SQLite format 3@ 'Ž.ê§ÊM'Ž.-â)ìûöñìvƒ?tablebuoy_nowbuoy_nowCREATE TABLE buoy_now ( STN, LAT, LON, YYYY, MM, DD, hh, minute, WDIR, WSPD, GST, WVHT, DPD, APD, MWD, PRES, PTDY, ATMP, WTMP, DEWP, VIS, TIDE, raw_text DEFAULT '', timestamp TIMESTAMP DEFAULT CURRENT_TIMESTAMP )jƒ7tablebuoybuoyCREATE TABLE buoy ( STN, LAT, LON, YYYY, MM, DD, hh, minute, WDIR, WSPD, GST, WVHT, DPD, APD, MWD, PRES, PTDY, ATMP, WTMP, DEWP, VIS, TIDE, raw_text DEFAULT '', timestamp TIMESTAMP DEFAULT C   Ø­øðèàØÐÈÀ¸°¨ ˜ˆ€xph`XPH@80( øðèàØÐÈÀ¸°¨ ˜ˆ€xph`XPH@80( øðèàØÐÈÀ¸°¨ ˜ˆ€xph`XPH@80( øðèàØ01#ɧø!#n§õ#§ò"¸§ï"]§ëa"§è]!§§å=!L§â ñ§ß –§Ü5 ;§ÙF৏ÖZ…§Óe*§Ñ ϧÍ{t§Êt§ÇU¾§Ä_c§Án§¾z­§¼R§¸d÷§µMœ§²ZA§¯n槏¬u‹§©`0§¦SÕ§£6z§ §œqħši§—§”,³§‘;X§ŽOý§‹b¢§ˆ`G§…I짏‚T‘§Žÿd6§ŽüfÛ§ŽùE€§ŽöT%§ŽógʧŽðYo§ŽíU§ŽêC¹§Žç6^§Žä;§Žáf¨§ŽÞyM§ŽÜ ò§ŽÚ—§Ž×<§ŽÓf᧎ÐF†§ŽÎ2+§ŽÌ"ЧŽÉUu§ŽÆ:§ŽÃJ ¿§ŽÀ^ d§Ž½r §ŽºN ®§Ž·L S§Ž´\ ø§Ž±g §Ž®K B§Ž«3 秎¨* Œ§Ž¥ 1§Ž¢- Ö§ŽŸ= {§ŽœU §Ž™wŧŽ–Sj§Ž“,§Ž´§Ž0Y§ŽŠAþ§Ž‡.£§Ž„>H§ŽMí§þ[’§û<7§ø/ܧõC§òR&§ïW˧ì8p§é§æº§ây_§ßX§Üp§—ÜEm§•÷EHħ“ðk$§‘ãi$€§ÖZ jƒ7tablebuoybuoyCREATE TABLE buoy ( STN, LAT, LON, YYYY, MM, DD, hh, minute, WDIR, WSPD, GST, WVHT, DPD, APD, MWD, PRES, PTDY, ATMP, WTMP, DEWP, VIS, TIDE, raw_text DEFAULT '', timestamp TIMESTAMP DEFAULT CURRENT_TIMESTAMP )vƒ?tablebuoy_nowbuoy_nowCREATE TABLE buoy_now ( STN, LAT, LON, YYYY, MM, DD, hh, minute, WDIR, WSPD, GST, WVHT, DPD, APD, MWD, PRES, PTDY, ATMP, WTMP, DEWP, VIS, TIDE, raw_text DEFAULT '', timestamp TIMESTAMP DEFAULT CURRENT_TIMESTAMP ) nnj…‰}tablemetarmetarCREATE TABLE metar ( raw_text DEFAULT '', station_id, observation_time, latitude, longitude, temp_c, dewpoint_c, wind_dir_degrees, wind_speed_kt, wind_gust_kt, visibility_statute_mi, altim_in_hg, sea_level_pressure_mb, corrected, auto, auto_station, maintenance_indicator_on, no_signal, lightning_sensor_off, freezing_rain_sensor_off, present_weather_sensor_off, wx_string, sky_cover, cloud_base_ft_agl, flight_category, three_hr_pressure_tendency_mb, maxT_c, minT_c, maxT24hr_c, minT24hr_c, precip_in, pcp3hr_in, pcp6hr_in, pcp24hr_in, snow_in, vert_vis_ft, metar_type, elevation_m, timestamp TIMESTAMP DEFAULT CURRENT_TIMESTAMP ) ÊÚÜúôîèâÜÖÐÊÎÉÄ¿ºµ°«¦¡œ—’ˆƒ~ytojd^XRLF@:4.(" þøòìæàÚÔÎȼ¶°ª¤ž˜’Œ†€ztnhb\VPJD>82,& üöðêäÞØÒÌÆÀº´®¨¢œ–Š„~xrlf`ZTNHB<60*$AO×2„&×1„"×0„×/„×.„×-„×,„ ×+„ ×*„×)„×(ƒ}×'ƒy×&ƒu×%ƒq×$ƒm×#ƒi×"ƒe×!ƒ`× ƒ\׃X׃T׃P׃L׃H׃D׃@׃<׃8׃4׃0׃,׃'׃#×ƒ×ƒ×ƒ×ƒ× ƒ × ƒ× ƒ× ‚~× ‚yׂtׂpׂkׂgׂbׂ]ׂXׂTׂOÖÿ‚JÖþ‚EÖý‚AÖü‚=Öû‚9Öú‚5Öù‚0Öø‚,Ö÷‚(Öö‚$Öõ‚ Öô‚Öó‚Öò‚Öñ‚Öð‚ Öï‚Öî‚Öí‚Öì|ÖëxÖêtÖépÖèlÖçhÖæcÖå_Öä[ÖãWÖâSÖáOÖàKÖ߁GÖށCÖ݁>Ö܁9Öہ5Öځ1Öف-Ö؁)Öׁ$Öց ÖՁÖԁÖӁÖҁÖс ÖЁÖρÖÎ~ÖÍzÖÌvÖËrÖÊnÖÉjÖÈeÖÇaÖÆ]ÖÅYÖÄTÖÃOÖÂJÖÁFÖÀAÖ¿=Ö¾9Ö½4Ö¼0Úk¡[Ùúž`ى›2Ù—Lا“XØ6J׶‹;×6‡B×5ƒm ‹‹)‡…Štablemetar_nowmetar_nowCREATE TABLE metar_now ( raw_text DEFAULT '', station_id, observation_time, latitude, longitude, temp_c, dewpoint_c, wind_dir_degrees, wind_speed_kt, wind_gust_kt, visibility_statute_mi, altim_in_hg, sea_level_pressure_mb, corrected, auto, auto_station, maintenance_indicator_on, no_signal, lightning_sensor_off, freezing_rain_sensor_off, present_weather_sensor_off, wx_string, sky_cover, cloud_base_ft_agl, flight_category, three_hr_pressure_tendency_mb, maxT_c, minT_c, maxT24hr_c, minT24hr_c, precip_in, pcp3hr_in, pcp6hr_in, pcp24hr_in, snow_in, vert_vis_ft, metar_type, elevation_m, timestamp TIMESTAMP DEFAULT CURRENT_TIMESTAMP )Tƒ tableshipship CREATE TABLE ship (day, dewpoint_c, gust, latitude, longitude, maxgst, sea_level_pressure_mb, station_id, temp_c, wind, raw_text DEFAULT '', timestamp TIMESTAMP DEFAULT CURRENT_TIMESTAMP )€áøðèàØÐÈÀ¸°¨ ˜ˆ€xph`XPH@80( øðèàØÐÈÀ¸°¨ ˜ˆ€xph`XPH@80( øðèàØÐÈÀ¸°¨ ˜ˆ€xph`XPH@80( øðèàØ ۟ïê۞ïê۝ïéxۜïéiۛïé[ۚïéNۙïé@ۘïé3ۗïé%ۖïéەïé ۔ïè}ۓïèpےïèbۑïèUېïèHۏïè;ێïè-ۍïè یïèۋïèۊïçxۉïçkۈïç^ۇïçQۆïçCۅïç3ۄïç#ۃïçۂïçہïæwۀïæiہïæ[Û~ïæLÛ}ïæ?Û|ïæ2Û{ïæ%ÛzïæÛyïæ Ûxïå}ÛwïåoÛvïåaÛuïåRÛtïåDÛsïå5Ûrïå'ÛqïåÛpïåÛoïäzÛnïämÛmïä`ÛlïäRÛkïäDÛjïä6Ûiïä(ÛhïäÛgïä Ûfïã}ÛeïãnÛdïã`ÛcïãQÛbïãDÛaïã5Û`ïã&Û_ïãÛ^ïã Û]ïâÛ\ïâpÛ[ïâcÛZïâVÛYïâHÛXïâ;ÛWïâ-ÛVïâÛUïâÛTïâÛSïáxÛRïájÛQïá]ÛPïáPÛOïáCÛNïá6ÛMïá)ÛLïáÛKïáുðý%àZðò$ßÿðç(ߤðÝSßIðÓÞîðÊޓðÀCÞ8ð¶kÝ݁ð­ ݂ð£#Ý'ð™TǗðvÜqð†Ü ïü>Û£ïòhÛ¢ïè}?Žã˜ûöñìçâÝØÒÌÆÀº´®¨¢œ–Š„~xrlf`ZTNHB<60*$ úôîèâÜÖÐÊľ¸²¬¦ š”Ž   324/03-8.0-110.1323190201422019-04-24 03:53:036     324/03-4.9-110.032318142019-04-24 03:53:039     324/03-2.0-110.032317220372019-04-24 03:53:037     324/032.0-110.03231613082019-04-24 03:53:03;    324/035.0-110.13231529.109082019-04-24 03:53:034     324/035.0-95.032303102019-04-24 03:53:03E    324/0325.55.3-10.61009.32IYH229.0260132019-04-24 03:53:037     324/0331.8-133.1219653302019-04-24 03:53:037     324/0334.0-146.6219303302019-04-24 0㗇㖆y㕆k㔆^㓆P㒆B㑆3㐆%㏆㎆ ㍅{㌅m㋅_㊅Q㉅C㈅5㇅'ㆅㅅ ㄄}ツoやaいS〄Fã„8ã~„*ã}„ã|„ã{„ãzƒtãyƒfãxƒXãwƒJãvƒ<ãuƒ.ãtƒ ãsƒãrƒãq‚vãp‚hão‚Yãn‚Jãm‚;ãl‚,ãk‚ãj‚ãiãhoãg_ãfOãe@ãd/ãcãbãaã`uã_gã^Wã]Jã\<ã[,ãZãY ââż=u­ŸWFuindexi3buoyCREATE UNIQUE INDEX i3 ON buoy(STN,YYYY,MM,DD,hh,mm)F kindexi2metar_nowCREATE UNIQUE INDEX i2 ON metar_now(station_id)`ƒtableship_nowship_now CREATE TABLE ship_now (day, dewpoint_c, gust, latitude, longitude, maxgst, sea_level_pressure_mb, station_id, temp_c, wind, raw_text DEFAULT '', timestamp TIMESTAMP DEFAULT CURRENT_TIMESTAMP )tƒ;tablestationss`ƒtableship_nowship_now CREATE TABLE ship_now (day, dewpoint_c, gust, latitude, longitude, maxgst, sea_level_pressure_mb, station_id, temp_c, wind, raw_text DEFAULT '', timestamp TIMESTAMP DEFAULT CURRENT_TIMESTAMP )tƒ;tablestationsstations CREATE TABLE stations ( metar TEXT, wmob INT, wmos INT, city TEXT, state TEXT, country TEXT, latitude DOUBLE, longitude DOUBLE, elevation DOUBLE, x DOUBLE, y DOUBLE, z DOUBLE, humor TEXT, source TEXT )B[indexi_metarstations CREATE INDEX i_metar ON stations(metar) ÊçÏúôîèâÜÖÐÊÎÉÄ¿º´®¨¢œ–Š„~xrlf`ZTNHB<60*$ úôîèâÜÖÐÊľ¸²¬¦ š”Žˆ‚|vpjd^XRLF@:4.(" þøòìæàÚÔÎȼ¶°ª¤ž˜’Œ†€ztnhb\VPJD>82,& DDä%ˆuä$ˆmä#ˆeä"ˆ\ä!ˆSä ˆJäˆAäˆ8äˆ/äˆ&äˆäˆäˆ äˆä‡yä‡oä‡eä‡[ä‡Rä‡Iä‡@ä‡7ä‡.ä‡$ä ‡ä ‡ä ‡ä †|ä †rä†hä†^ä†Tä†Iä†?ä†5ä†+ä†!ä†ãÿ†ãþ†ãý…~ãü…uãû…lãú…cãù…Zãø…Qã÷…Hãö…?ãõ…6ãô…-ãó…$ãò…ãñ…ãð…ãï„ãî„vãí„mãì„dãë„[ãê„Rãé„Jãè„Bãç„9ãæ„0ãå„'ãä„ãã„ã℠ãá„ãàƒ{ã߃rãރiã݃`ã܃WãۃOãڃGãك>ã؃6ã׃.ãփ'ãՃãԃãӃ ã҃ãтzãЂqãςiã΂`ã͂Xã̂Oã˂Fãʂ>ãɂ6ãȂ.ãǂ%ãƂãłãĂ ãÂã{ãÁrãÀi㿁`㾁Y㽁Q㼁I㻁@㺁7㹁.㸁%㷁㶁㵁 㴁ã³zã²rã±jç^Â#æí»Sæ|´}æ ¬q嚤qå)A䩖cä)ä(‡yòêkòå×É»­Ÿ‘ƒugYK=/!÷éÛÍ¿±£•‡yk]OA3% ûíßÑõ§™‹}oaSE7) ÿñãÕǹ«…{êg KNBG éêf KMSS ´êe KMJXêd KMAI <êc KLOT êb KLAM Íêa KJFX_ê` KIGC ^ê_ KHRL ,ê^ KHCD öê] KGPT Ãê\ KFYV ‹ê[ KFGN SêZ KESF êY KECP çêX KDNV ²êW KD19 zêV KCOS CêU KCEW êT KBUR ÔêS KBIH ™êR KAWI cêQ KALY1êP K9W7æêO K87Q³êN K62W„êM K4A6cêL K36YêK K25RåêJ K13A«êI HSTR!×êH HFFF7êG GUMAêF GCLAÃêE FYWBêD FQLCVêC FLMPêB FCOGØêA FAMM£ê@ ETUNwê? ESSK4ê> EPSKê= ENHEÓê< EHMA ñê; EGSY[ê: EGDYê9 EDSB×ê8 EBLB§ê7 DISSfê6 DABCê5 CYYUïê4 CYSK¥ê3 CYLK^ê2 CYCQê1 CXOXïê0 CXBKÛê/ CWVOžê. CWRHZê- CWMZê, CWIUÊê+ CWET€ê*CWAR4êj KMJXÊêîÜʸ¦”‚p^L:(òàμ«™‡ucQ?- ÷æÔ°žŒzhVD2 üêØÆ´¢~õçÙËé² ¿¼ŸÅ£|DA é± ¿¾%ý*þ%åé° ¿¿ÔA Vé¯ ¿ÀЫ“M©Pé® ¿ÂJ×÷ ÀÛüé­ ¿ÃK÷ñWX1¿é¬ ¿Ä#쇡Ìè ƒé« ¿Å Ù¦Z= Íéª ¿Åàp”q#aé© ¿ÆÚȚÛÙ é¨ ¿Çóò†ª²-Èé§ ¿É+Ÿ;>}ûié¦ ¿Ê Qò­zãé¥ ¿ËD÷ìN•v*é¤ ¿Ì˜\ó}èé£ ¿Í½\‚Ÿ„? =é¢ ¿Î­Ñ‰p# é¡ ¿Ï”UÒ”Zñé  ¿Ð_üð¬Ì€éŸ ¿Ñ"~ª~¶éž ¿Ñî:þ£_õAé ¿Ò´Öâ2×Úéœ ¿Óh)L¸%ï >é› ¿Ô¥+’ÅÈvéš ¿Ôè!%瀕Wé™ ¿ÕÉV¡/mŒ#é˜ ¿Övfrí©ôßé— ¿×&±F:f Té– ¿×l9Îxõ÷#é• ¿×æã™IÒ½é” ¿ØFÌw¨Ÿ é“ ¿Ø’'žùƒ4zé’ ¿ØÛQWšõGé‘ ¿ÙP«W¿M>é ¿ÙØ;h#«é Eé ¿ÚNŽhß5 ‡éŽ ¿Ú½…Ž¿é ¿Û=ü^‚Ï-0éŒ ¿Ü¤v“£#é‹ ¿Ýõ1¡°}{éŠ ¿ÞÌ\Y%Bé‰ ¿ßÛ]x”>0Léˆ ¿àõðÕù#Ÿé‡ ¿á³Ña¤Óc>é† ¿âšÉ MªÖé… ¿ã›rp‰ÛË#¶é„ ¿äà “þðÓéê ?âáU«WsUyé¶ ?ÃÅbƒy+Ý¡éµ ¿ÂJ×÷ ÀÛüÊévîÜʸ¦”‚p^L:(òàμª˜†tbP>,öäÒÀ®œŠxfTB0 úèÖIJ Ž| þðâÔé ¿çW†ðŸéÁgé ¿çfØ>‰« é ¿çy–#8¼é ¿ç‹ß[J´é ¿ç™)™ùYG bé ¿ç¬¸@™ Šé ¿ç¿OŒÝ-‰é ¿çΜ éé¾¸é ¿çÞóufbõ+é ¿çìÍàÎÆ é ¿èÓ°%àlÃèÿ ¿èið$ ƒèþ ¿è/…bh® §èý ¿èE5xeŒãèü ¿è_ƒLÆé]èû ¿èxniôñðèú ¿è¡z20£@Êèù ¿èÊ¢Àžy@èø ¿èäQ@d«šòè÷ ¿é ÙÙç¡1 èö ¿é.7¶… ;Ûèõ ¿éQÃøpG"èô ¿é}ÙGd¼K ãèó ¿é›‹Ï`qxþèò ¿é¸^·ƒ* ½èñ ¿éÔ­ ß·A Tèð ¿é÷öعTŸèï ¿êÐÛä„Ièî ¿ê,¢½ áéèí ¿êK³Vbª­èì ¿êt çê͗½èë ¿êšÞ°ò !1èê ¿ê¼NÑÄi~ éèé ¿êà÷Åè÷ [èè ¿ë Ñ-p !èç ¿ë8Hó‚J  èæ ¿ë_ÅáõwNèå ¿ë…Å«‘\4ëèä ¿ëJi‚r/èã ¿ëºíGÀVïèâ ¿ëãí>Ò^#èá ¿ìÿNßÝOAèà ¿ì%c‰g¤ßèß ¿ìRCÈ(ë _èÞ ¿ì€'ååèÝ ¿íT63pÖèÜ ¿í•{2‡tf¶éB ?Ò¿t‘/õ(ˆé ¿Û•à|0Ûieé ¿ç¬¸@™ ŠÊèÎîÜʸ¦”‚p^L:(òàμª˜†tbP>,öäÒÀ®œŠxfTB0 úèÖIJ Ž|!÷éÛèb ?à1m¸rOGúèa ?à¤ÉZZè` ?ß­PU¥Ä^…è_ ?ß=@©!Àè^ ?Þ·Írø!Åè] ?ÞO=¨òž8è\ ?Ýᵇ¼jÁè[ ?Ý ¿Æ{Ìýåíž è= ¿Ëþ¸—Ko Åè< ¿Ð]Ô¶ñ'D“è; ¿ÓcJË¥³#žè: ¿Õ¦ÊÌÚ#°è9 ¿×W-©Þè8 ¿Øœ±¹¦fy"Lè7 ¿Úº¥À¿ \è6 ¿Ü¡ž÷ŸôÁè5 ¿ÞÙ:owΆ!çè4 ¿à¡ï¿î,tèš ?ç}ó¿kiªèf ?ä—0Àînoìèe ?ÞO=¨òž8 ÕÄÛ¶‘lG"ýسŽiDúÕ°‹fA÷Ò­ˆcdC 5AGGM2019-04-24T00:00:00Zåú» 5DRRM2019-04-23T06:00:00Zã·pºþ 5DAON2019-04-23T16:00:00Zå$ºæ 5CZTB2019-04-23T08:00:00Zãö ºÎ 5CYZW2019-04-23T19:00:00Zåaº¶ 5CYYG2019-04-23T10:22:00Zä?¦ºž 5CYWG2019-04-23T08:49:00Zäõº† 5CYTR2019-04-23T17:23:00Zå)Ѻn 5CYQX2019-04-23T08:30:00Zä ºV 5CYPR2019-04-23T11:00:00Zä\€º> 5CYMT2019-04-24T00:55:00Zæ ’º& 5CYIN2019-04-24T02:00:00Zæ9º 5CYFO2019-04-23T18:00:00ZåCÔӛ 5UKLU2019-04-23T15:00:00ZäÝþÑr 5PAWM2019-04-23T19:20:00ZåešÏI 5LTAC2019-04-23T23:20:00ZåëþÍ 5LDPL2019-04-24T02:00:00Zæ6ÙÊ÷ 5KSLI2019-04-23T10:38:00ZäHäÈÎ 5KOXI2019-04-23T07:50:00ZãôPÆ¥ 5KLXV2019-04-23T10:23:00Zä?žÄ| 5KHKY2019-04-23T15:53:00ZäòaÂS 5KELA2019-04-23T09:35:00Zä#dÀ* 5KCAE2019-04-23T04:56:00Z㎊½¹ 5K6S52019-04-23T12:55:00Zä™S»H 5ESMX2019-04-23T21:20:00Zå¨þ»G 5CZTB2019-04-23T08:00:00Zãö >œÛ:òäÖȺ¬ž‚tfXJ<. öèÚ̾°¢”†xj\N@2$úìÞд¦˜Š|n`RD6( þðâÔƸªœvlbXND:0&Û9 YPLM±Û8 YBMAŸÛ7 VTUW Û6 VIJP Û5 UTSKlÛ4 UIAAÛ3 SPME üÛ2 SBRF &Û1 RPMDoÛ0 RJFG‚Û/ PAWG PÛ. PAINGÛ- OMRK çÛ, OEWD 9Û+ MUCCÛ* LYKVÛ) LROD¡Û( LIPCšÛ' LFROnÛ& LFBG{Û% KY50 gÛ$ KVCT¦Û# KTOC;Û" KSTCÛ! KSEZÛ KRPDšÛ KPVB Û KPEZ$Û KONPóÛ KNIP8Û KMQBÛ KMEV`Û KLUGyÛ KLAW Û KISNhÛ KHVS&Û KHCR~Û KGLH^Û KFRI LÛ KEYWÖÛ KECG,Û KDIJÛ KCRP´Û KCFJDÛ KBRLçÛ KBDH'Û KAPS¾Û KABI^Û K3F3<Û K08DOÛ FYWB ÈÛ ETIK‹Û ENTCÛÛ EHJAyÛ EGDMÒÛ DTTN #Û CYZF ½Û CYQMÌÚÿ CYCO £Úþ CXDK QÚý CWRF Úü CWGY ‡   ­6n¦Þ1yÁð­Akindexi6shipCREATE UNIQUE INDEX i6 ON ship(station_id, day)Diindexi5ship_nowCREATE UNIQUE INDEX i5 ON ship_now(station_id)6 Kindexi_xstationsCREATE INDEX i_x ON stations(x)6 Kindexi_ystationsCREATE INDEX i_y ON stations(y)6 Kindexi_zstationsCREATE INDEX i_z ON stations(z)Q indexi1metarCREATE UNIQUE INDEX i1 ON metar(station_id, observation_time)F kindexi2metar_nowCREATE UNIQUE INDEX i2 ON metar_now(station_id)Fuindexi3buoyCREATE UNIQUE INDEX i3 ON buoy(STN,YYYY,MM,DD,hh,mm)=[indexi4buoy_nowCREATE UNIQUE INDEX i4 ON buoy_now(STN) Iã¥òãÔŶ¥–…vgXIkaWMC9/%ýôêàÖ̸®¤š†|rh^TJ@6,"úðæÜÒȾ´ª –Œ‚xndZPF<2( öìâØÎĺ 44027T 44025S 44020R 44018Q 44017P 44014O 44013N 44009M 44007L 43301K 43001J 42360I 42099H 42098G 42097F 42095E 42060D 42059C 42058B 42057A 42055@ 42040? 42035> 42020= 42019< 42012; 42002: 411599 411178 411157 411146 411135 411124 411103 411082 410641 410560 41053/ 41052. 41049- 41047, 41046+ 41044* 41043) 41041( 41040' 41038& 41037% 41033$ 41029# 41024" 41013! 41010 41009 41008 41004 410023EUS 3ETB9 3EOY6 33960 33889 33884 32975 32716 32㤠V7HU7E㣠RCMC1þ㢠NABM4µã¡ ICAC1oã  EUCDE09=㟠C6RN3è㞠AMOUK65Šã 64046g㜠62131!㛠51207Û㚠46120•ã™ 43301K ôãKêÔ¾¨’zdL6  ôâ̶ Št^H2ðÚÄ®˜‚lV@*þèÒ¼¦zdÛÉá“4209923/12< á’4209723/15<Äá‘4206023/16<á4205823/19<$Ìá4205523/22á4104023/14<Øá€4103723/17<šá4102424/03)/5    3CYJT 230351Z 10003KT 1/4SM R27/4000VP6000FT/U FG VV002 01/00 A3025 RMK FG8 SLP245CYJT2019-04-23T03:51:00Z48.55-58.571.00.010030.2530.2509841024.5FGLIFR200METAR26.02019-04-23 03:54:54 Œ$GkŒY§ËE)5    3KATT 230351Z AUTO VRB06KT 10SM CLR 21/16 A3004 RMK AO2 SLP163 T02110156 KATT2019-04-23T03:51:00Z30.32-97.7721.115.60610.030.0413381016.3TRUETRUEVFRMETAR201.02019-04-23 03:54:54V§ËD)5    3KBVE 230351Z AUTO 00000KT 10SM CLR 17/15 A3016 RMK AO2 SLP213 T01720150 KBVE2019-04-23T03:51:00Z29.32-89.417.215.00010.030.1594491021.3TRUETRUEVFRMETAR1.02019-04-23 03:54:54W§ËC)%5    3KALB 230351Z 03006KT 10SM FEW060 SCT260 15/05 A3003 RMK AO2 SLP170 T01500050KALB2019-04-23T03:51:00Z42.75-73.815.05.030610.030.0295281017.0TRUEVFRMETAR92.02019-04-23 03:54:54V§ËB)5     3KDBQ 230351Z AUTO 28012KT 3SM BR SCT006 BKN011 OVC021 15/14 A2985 RMK AO2KDBQ2019-04-23T03:51:00Z42.4-90.715.014.0280123.029.84941TRUETRUEBRMVFRSPECI326.02019-04-23 03:54:54 /;/‚§ËI)o5    3KELP 230351Z 36016KT 10SM FEW110 SCT150 SCT250 15/09 A2997 RMK AO2 SLP095 OCNL LTGIC DSNT E CB DSNT E T01500094 $KELP2019-04-23T03:51:00Z31.82-106.3815.09.43601610.029.9704721009.5TRUETRUEVFRMETAR1197.02019-04-23 03:54:54Y§ËH)5   3KTPL 230351Z AUTO 15010KT 10SM 21/17 A3004 RMK AO2 SLP179 T02060167 $KTPL2019-04-23T03:51:00Z31.13-97.420.616.71501010.030.0413381017.9TRUETRUETRUEMETAR208.02019-04-23 03:54:54r§ËG)95       3PAKP 230351Z AUTO 04017KT 1 3/4SM -SN BKN006 OVC070 M13/M16 A2959 RMK AO2 P0000 FZRANOPAKP2019-04-23T03:51:00Z68.13-151.73-13.0-16.040171.7529.589567TRUETRUETRUE-SNIFR0.005SPECI642.02019-04-23 03:54:54h§ËF)75   3PAMD 230351Z AUTO 20015G18KT 10SM FEW029 SCT039 03/M03 A2955 RMK AO2 SLP995 T00281033PAMD2019-04-23T03:51:00Z59.43-146.32.8-3.3200151810.029.551182999.5TRUETRUEVFRMETAR14.02019-04-23 03:54:54 $u§ËM)K5   3KSAD 230351Z AUTO 36010G31KT 10SM BKN100 22/00 A2990 RMK AO2 PK WND 36031/0348 SLP083 T02170000KSAD2019-04-23T03:51:00Z32.85-109.6321.70.0360103110.029.8996071008.3TRUETRUEVFRMETAR962.02019-04-23 03:54:54‚§ËL)y5      3KROW 230351Z AUTO 06009KT 9SM -RA FEW037 BKN070 OVC090 16/11 A3006 RMK AO2 LTG DSNT ALQDS RAB37 SLP137 P0001 T01560111KROW2019-04-23T03:51:00Z33.3-104.515.611.16099.030.0590551013.7TRUETRUE-RAVFR0.01METAR1112.02019-04-23 03:54:54s§ËK)E5      3KPVD 230351Z 02010KT 10SM -RA BKN014 OVC039 12/11 A2992 RMK AO2 RAB31 SLP133 P0000 T01220111KPVD2019-04-23T03:51:00Z41.72-71.4312.211.1201010.029.9202751013.3TRUE-RAMVFR0.005METAR16.02019-04-23 03:54:54]§ËJ)'5    3KPHX 230351Z 24005KT 10SM FEW200 SCT250 25/M02 A2979 RMK AO2 SLP072 T02501017KPHX2019-04-23T03:51:00Z33.43-112.0225.0-1.7240510.029.7903541007.2TRUEVFRMETAR336.02019-04-23 03:54:54 Ô1p—ԁ=§ËQ(5    3LATI 230350Z 00000KT 9999 BKN098 OVC110 13/12 Q1011 NOSIGLATI2019-04-23T03:50:00Z41.4219.7213.012.0006.2129.852362TRUEVFRMETAR90.02019-04-23 03:54:54S§ËP))5  3PTRO 230350Z 07014G25KT 15SM SCT016TCU BKN120 BKN300 30/25 A2978 RMK TCU ALQDSPTRO2019-04-23T03:50:00Z7.37134.5530.025.070142515.029.778543VFRMETAR54.02019-04-23 03:54:54;§ËO)5   3ENRO 230350Z AUTO 07003KT 020V100 9999NDV NCD M01/M02 Q1021ENRO2019-04-23T03:50:00Z62.5711.33-1.0-2.070330.147638TRUEMETAR626.02019-04-23 03:54:54I§ËN)5     3KNYC 230351Z AUTO 00000KT 10SM BKN044 OVC055 A3004 RMK AO2 SLPNO $ KNYC2019-04-23T03:51:00Z40.78-73.970010.030.041338TRUETRUETRUEVFRMETAR11.02019-04-23 03:54:54 e;ße-§ËV(e5    3EEEI 230350Z 00000KT CAVOK 06/01 Q1029 NOSIGEEEI2019-04-23T03:50:00Z59.2724.26.01.0006.2130.383858TRUEVFRMETAR20.02019-04-23 03:54:54A§ËU(y5    3K2G4 230350Z AUTO 30003KT 10SM CLR 11/03 A3016 RMK AO1K2G42019-04-23T03:50:00Z39.58-79.3311.03.0300310.030.159449TRUETRUEVFRMETAR894.02019-04-23 03:54:54*§ËT(_5   3KNQA 230350Z 00000KT 10SM CLR 18/10 A3008KNQA2019-04-23T03:50:00Z35.35-89.8718.010.00010.030.079725VFRMETAR86.02019-04-23 03:54:54&§ËS(Y5   3ETNG 230350Z 10009KT CAVOK 11/02 Q1001ETNG2019-04-23T03:50:00Z50.976.0311.02.010096.2129.557087VFRMETAR98.02019-04-23 03:54:54?§ËR(y5    3KFDK 230350Z AUTO 00000KT 10SM CLR 12/10 A3011 RMK AO2KFDK2019-04-23T03:50:00Z39.42-77.3712.010.00010.030.109253TRUETRUEVFRMETAR92.02019-04-23 03:54:54 |M™ä)|'§Ë[([5   3EYKA 230350Z 01001KT CAVOK 02/M03 Q1029EYKA2019-04-23T03:50:00Z54.9724.082.0-3.01016.2130.383858VFRMETAR77.02019-04-23 03:54:545§ËZ(o5    3EYSA 230350Z 14005KT CAVOK 04/M03 Q1030 BLU NOSIGEYSA2019-04-23T03:50:00Z55.923.44.0-3.014056.2130.413385TRUEVFRMETAR135.02019-04-23 03:54:54/§ËY(g5    3EVRA 230350Z VRB02KT CAVOK 02/M00 Q1030 NOSIGEVRA2019-04-23T03:50:00Z56.9223.972.00.0026.2130.413385TRUEVFRMETAR10.02019-04-23 03:54:54.§ËX(o5   3EKVG 230350Z AUTO 14017KT 9999NDV NCD 08/06 Q1002EKVG2019-04-23T03:50:00Z62.07-7.38.06.01401729.586615TRUEMETAR85.02019-04-23 03:54:54-§ËW(e5    3EETN 230350Z 00000KT CAVOK 08/01 Q1029 NOSIGEETN2019-04-23T03:50:00Z59.424.828.01.0006.2130.383858TRUEVFRMETAR40.02019-04-23 03:54:54 r:‚Îr"§Ë`(Y5   3ENCN 230350Z 05009KT CAVOK 07/04 Q1020ENCN2019-04-23T03:50:00Z58.28.077.04.05096.2130.11811VFRMETAR17.02019-04-23 03:54:54.§Ë_(i5    3ENHD 230350Z AUTO 12015KT 9999 NCD 12/00 Q1016ENHD2019-04-23T03:50:00Z59.355.2212.00.0120156.2130.0TRUEVFRMETAR24.02019-04-23 03:54:54.§Ë^(q5   3ENRY 230350Z AUTO 06004KT 9999NDV NCD 01/M00 Q1023ENRY2019-04-23T03:50:00Z59.3710.771.00.060430.206694TRUEMETAR53.02019-04-23 03:54:542§Ë](g5    3EYVI 230350Z 08002KT CAVOK 07/M05 Q1030 NOSIGEYVI2019-04-23T03:50:00Z54.6325.287.0-5.08026.2130.413385TRUEVFRMETAR197.02019-04-23 03:54:54@§Ë\) 5   3PTPN 230350Z 07004KT 15SM BKN017TCU BKN130 OVC300 29/25 A2981 PTPN2019-04-23T03:50:00Z6.97158.2229.025.070415.029.811024MVFRMETAR2.02019-04-23 03:54:54 &P£²Ü&0§Ëe(c5    3EFIV 230350Z AUTO 22006KT CAVOK 07/01 Q1009EFIV2019-04-23T03:50:00Z68.6227.427.01.022066.2129.793306TRUEVFRMETAR148.02019-04-23 03:54:54P§Ëd)5     3VNKT 230350Z 12004KT 060V200 5000 HZ FEW015 SCT250 20/15 Q1019 NOSIGVNKT2019-04-23T03:50:00Z27.6885.3720.015.012043.1130.088583TRUEHZMVFRMETAR1337.02019-04-23 03:54:54k§Ëc)75      3PADM 230350Z AUTO 24008KT 10SM SCT019 OVC031 M03/M07 A2953 RMK AO2 SNE44 P0000 FZRANOPADM2019-04-23T03:50:00Z61.87-162.03-3.0-7.0240810.029.530512TRUETRUETRUEVFR0.005METAR31.02019-04-23 03:54:54'§Ëb([5   3EYPA 230350Z 12007KT CAVOK 07/M01 Q1028EYPA2019-04-23T03:50:00Z55.9721.087.0-1.012076.2130.35433VFRMETAR10.02019-04-23 03:54:54*§Ëa(e5   3ENAL 230350Z 08004KT 9999 FEW010 05/01 Q1017ENAL2019-04-23T03:50:00Z62.576.125.01.08046.2130.029528VFRMETAR22.02019-04-23 03:54:54 oM–Ù$o/§Ëj(c5    3EFTU 230350Z AUTO 20004KT CAVOK 05/03 Q1027EFTU2019-04-23T03:50:00Z60.5222.275.03.020046.2130.324802TRUEVFRMETAR59.02019-04-23 03:54:54/§Ëi(c5    3EFVA 230350Z AUTO 21011KT CAVOK 06/03 Q1022EFVA2019-04-23T03:50:00Z63.0321.776.03.0210116.2130.177166TRUEVFRMETAR4.02019-04-23 03:54:547§Ëh(s5    3EFOU 230350Z AUTO 22005KT 190V250 CAVOK 06/02 Q1019EFOU2019-04-23T03:50:00Z64.9225.376.02.022056.2130.088583TRUEVFRMETAR15.02019-04-23 03:54:541§Ëg(c5    3EFRO 230350Z AUTO 22015KT CAVOK 04/03 Q1015EFRO2019-04-23T03:50:00Z66.5725.824.03.0220156.2129.970472TRUEVFRMETAR201.02019-04-23 03:54:54-§Ëf(i5   3EFMA 230350Z 20003KT 160V230 CAVOK 05/03 Q1027EFMA2019-04-23T03:50:00Z60.1219.885.03.020036.2130.324802VFRMETAR6.02019-04-23 03:54:54 `J•ê `:§Ëo(s5     3ESUT 230350Z AUTO 00000KT 8000 BR NCD M03/M03 Q1019ESUT2019-04-23T03:50:00Z65.815.08-3.0-3.0004.9730.088583TRUEBRMVFRMETAR463.02019-04-23 03:54:54D§Ën) 5   3ENSB 230350Z 11009KT CAVOK M08/M13 Q1009 RMK WIND 1400FT 29002KTENSB2019-04-23T03:50:00Z78.2515.47-8.0-13.011096.2129.793306VFRMETAR29.02019-04-23 03:54:54%§Ëm(Y5   3ENTO 230350Z 35003KT CAVOK 05/01 Q1022ENTO2019-04-23T03:50:00Z59.210.275.01.035036.2130.177166VFRMETAR88.02019-04-23 03:54:54/§Ël(e5    3EFHK 230350Z 20005KT CAVOK 05/02 Q1028 NOSIGEFHK2019-04-23T03:50:00Z60.3224.975.02.020056.2130.35433TRUEVFRMETAR56.02019-04-23 03:54:540§Ëk(c5    3EFTP 230350Z AUTO 20008KT CAVOK 07/02 Q1027EFTP2019-04-23T03:50:00Z61.4223.627.02.020086.2130.324802TRUEVFRMETAR112.02019-04-23 03:54:54 pC‹Ñ$p.§Ët(c5    3LSGC 230350Z AUTO VRB03KT CAVOK 11/03 Q0999LSGC2019-04-23T03:50:00Z47.086.811.03.0036.2129.498032TRUEVFRMETAR1027.02019-04-23 03:54:54'§Ës(Y5   3EKSP 230350Z 10013KT CAVOK 10/05 Q1014EKSP2019-04-23T03:50:00Z55.229.2710.05.0100136.2129.940945VFRMETAR40.02019-04-23 03:54:544§Ër(q5    3LLBG 230350Z VRB02KT 9999 FEW030 11/07 Q1022 NOSIGLLBG2019-04-23T03:50:00Z32.034.8811.07.0026.2130.177166TRUEVFRMETAR49.02019-04-23 03:54:542§Ëq(k5    3ESNX 230350Z AUTO 00000KT 9999 NCD 01/M00 Q1018ESNX2019-04-23T03:50:00Z65.5819.281.00.0006.2130.059055TRUEVFRMETAR379.02019-04-23 03:54:547§Ëp(m5    3ESNL 230350Z AUTO 16002KT 9999 NCD M01/M02 Q1019ESNL2019-04-23T03:50:00Z64.5518.72-1.0-2.016026.2130.088583TRUEVFRMETAR214.02019-04-23 03:54:54 9JŠÖ"9c§Ëy);5    3KMIW 230350Z AUTO 32016KT 10SM OVC009 09/08 A2999 RMK AO2 PK WND 32026/0259 CIG 006V012KMIW2019-04-23T03:50:00Z42.12-92.929.08.03201610.029.991142TRUETRUEIFRSPECI296.02019-04-23 03:54:54.§Ëx(c5    3LSZG 230350Z AUTO VRB01KT CAVOK 10/08 Q0998LSZG2019-04-23T03:50:00Z47.177.4210.08.0016.2129.468504TRUEVFRMETAR430.02019-04-23 03:54:54.§Ëw(c5    3LSZR 230350Z AUTO VRB06KT CAVOK 18/00 Q0998LSZR2019-04-23T03:50:00Z47.489.5718.00.0066.2129.468504TRUEVFRMETAR398.02019-04-23 03:54:54:§Ëv(y5    3LSGS 230350Z AUTO 06004KT 340V140 9999 NSC 15/00 Q1001LSGS2019-04-23T03:50:00Z46.227.3215.00.06046.2129.557087TRUEVFRMETAR481.02019-04-23 03:54:540§Ëu(i5    3EKKA 230350Z AUTO 09010KT 9999 NCD 08/05 Q1017EKKA2019-04-23T03:50:00Z56.39.128.05.090106.2130.029528TRUEVFRMETAR52.02019-04-23 03:54:54 ® _®+§Ë}(e5   3LLIB 230350Z VRB03KT 9999 FEW030 07/06 Q1021LLIB2019-04-23T03:50:00Z32.9835.577.06.0036.2130.147638VFRMETAR282.02019-04-23 03:54:54-§Ë|(e5   3LLSD 230350Z 10005KT 9999 FEW030 12/08 Q1021LLSD2019-04-23T03:50:00Z32.1234.7812.08.010056.2130.147638VFRMETAR14.02019-04-23 03:54:54‚§Ë{)q5     3KABQ 230350Z 06027G40KT 9SM -RA FEW003 BKN042 OVC080 10/06 A3006 RMK AO2 PK WND 07046/0338 MTNS OBSC NE-SE P0006 $KABQ2019-04-23T03:50:00Z35.05-106.6210.06.06027409.030.059055TRUETRUE-RAVFR0.06SPECI1618.02019-04-23 03:54:54Z§Ëz)5    3KDAG 230350Z AUTO 24004KT 10SM CLR 21/02 A2996 RMK AO2 SLP128 T02060017KDAG2019-04-23T03:50:00Z34.85-116.7820.61.7240410.029.9586621012.8TRUETRUEVFRMETAR587.02019-04-23 03:54:54 aM˜åa5§Ì(o5    3LSZB 230350Z AUTO 33003KT 9999 BKN100 10/08 Q0998LSZB2019-04-23T03:50:00Z46.927.510.08.033036.2129.468504TRUEVFRMETAR505.02019-04-23 03:54:54C§Ì)5     3LSZA 230350Z AUTO VRB01KT 4200 -RA OVC050 SCT070 11/10 Q1005LSZA2019-04-23T03:50:00Z46.08.9211.010.0012.6129.675198TRUE-RAIFRMETAR276.02019-04-23 03:54:54-§Ì(c5    3EVVA 230350Z AUTO 03002KT CAVOK 02/02 Q1029EVVA2019-04-23T03:50:00Z57.3521.552.02.03026.2130.383858TRUEVFRMETAR6.02019-04-23 03:54:54/§Ë(i5    3EVLA 230350Z AUTO 10003KT 9999 NCD 03/00 Q1028EVLA2019-04-23T03:50:00Z56.5221.13.00.010036.2130.35433TRUEVFRMETAR4.02019-04-23 03:54:54-§Ë~(c5    3LLHA 230350Z AUTO VRB03KT CAVOK 11/08 Q1021LLHA2019-04-23T03:50:00Z32.7835.0211.08.0036.2130.147638TRUEVFRMETAR8.02019-04-23 03:54:54 $<ˆ¼û$Q§Ì)5   3PTYA 230350Z 08012KT 12SM FEW016 BKN300 32/25 A2981 RMK SLP095 T03180251PTYA2019-04-23T03:50:00Z9.48138.0831.825.1801212.029.8110241009.5VFRMETAR17.02019-04-23 03:54:54;§Ì(y5    3LSZS 230350Z AUTO 21004KT 9999 FEW060 02/00 Q1005 RESNLSZS2019-04-23T03:50:00Z46.539.882.00.021046.2129.675198TRUEVFRMETAR1706.02019-04-23 03:54:54F§Ì) 5    3LSZC 230350Z AUTO 26003KT 200V290 9999 SCT090 BKN110 13/04 Q0998LSZC2019-04-23T03:50:00Z46.978.3813.04.026036.2129.468504TRUEVFRMETAR450.02019-04-23 03:54:54.§Ì(e5    3LSZH 230350Z VRB02KT CAVOK 09/06 Q0999 NOSIGLSZH2019-04-23T03:50:00Z47.488.539.06.0026.2129.498032TRUEVFRMETAR432.02019-04-23 03:54:54>§Ì(5    3LSGG 230350Z 12004KT 9999 FEW070 BKN150 15/04 Q0998 NOSIGLSGG2019-04-23T03:50:00Z46.256.1215.04.012046.2129.468504TRUEVFRMETAR416.02019-04-23 03:54:54  AŽ h§Ì )95   3NSTU 230350Z 08008KT 12SM FEW017 SCT040 BKN100 OVC220 29/25 A2981 RMK SLP095 T02870249NSTU2019-04-23T03:50:00Z-14.33-170.7228.724.980812.029.8110241009.5OVC22000VFRMETAR3.02019-04-23 03:54:54-§Ì (_5   3KRHV 230350Z 31004KT 10SM SKC 19/11 A3001KRHV2019-04-23T03:50:00Z37.32-121.8219.011.0310410.030.008858VFRMETAR41.02019-04-23 03:54:54A§Ì (5    3KSSF 230350Z AUTO 11007KT 10SM BKN018 22/17 A3000 RMK AO2KSSF2019-04-23T03:50:00Z29.33-98.4722.017.0110710.030.0TRUETRUEMVFRSPECI176.02019-04-23 03:54:54r§Ì)55       3PATO 230350Z AUTO 09003KT 3/4SM -SN BR VV014 00/M01 A2947 RMK AO2 SNB0255 P0001 TSNOPATO2019-04-23T03:50:00Z60.78-148.850.0-1.09030.7529.471457TRUETRUETRUE-SN BRLIFR0.011400SPECI31.02019-04-23 03:54:54 ÛL–­ÛL§Ì)5   3CWRX 230349Z AUTO 28013KT ////SM //// SCT003 BKN007 OVC075 M21/M24 A2993CWRX2019-04-23T03:49:00Z69.07-79.02-21.0-24.02801329.929134TRUESPECI41.02019-04-23 03:54:54c§Ì)/5     3CYHE 230349Z AUTO 23006KT 190V290 6SM -RA BR BKN010 OVC035 09/08 A3018 RMK SLP221CYHE2019-04-23T03:49:00Z49.37-121.59.08.023066.030.1801191022.1TRUE-RA BRMVFRSPECI39.02019-04-23 03:54:540§Ì (u5   3EKVD 230350Z AUTO 09013KT //// ///////// 09/05 Q1015EKVD2019-04-23T03:50:00Z55.429.329.05.0901329.970472TRUEMETAR45.02019-04-23 03:54:54.§Ì (o5   3EKSB 230350Z AUTO 10019KT 9999NDV NCD 11/06 Q1014EKSB2019-04-23T03:50:00Z54.979.811.06.01001929.940945TRUEMETAR23.02019-04-23 03:54:54 '.81'‚§Ì)g5       3PAIN 230349Z 27003KT 2SM -SN BR SCT013 BKN029 OVC035 02/M01 A2920 RMK AO2 VIS 1 1/2V3 RAE37SNB37 P0000 FZRANOPAIN2019-04-23T03:49:00Z63.73-148.922.0-1.027032.029.199802TRUETRUE-SN BRIFR0.005METAR524.02019-04-23 03:54:54‚§Ì)]5      3PANA 230349Z AUTO 27010G15KT 1 1/4SM BR SCT010 BKN015 OVC030 M05/M07 A2958 RMK AO2 SNB10E11 P0000 FZRANOPANA2019-04-23T03:49:00Z60.68-161.98-5.0-7.027010151.2529.58071TRUETRUETRUEBRIFR0.005METAR5.02019-04-23 03:54:54p§Ì)M5     3KCWI 230349Z AUTO 27019KT 6SM BR BKN010 OVC030 14/14 A2987 RMK AO2 PK WND 27027/0322 CIG 006V011KCWI2019-04-23T03:49:00Z41.82-90.3214.014.0270196.029.870079TRUETRUEBRMVFRMETAR216.02019-04-23 03:54:54L§Ì)5    3CYPH 230349Z AUTO 29007KT 9SM BKN015 M12/M14 A3036 RMK SLP284CYPH2019-04-23T03:49:00Z58.45-78.08-12.0-14.029079.030.3602371028.4TRUEMVFRSPECI3.02019-04-23 03:54:54 ,3%þ,L§Ì) 5   3KSNT 230348Z AUTO 18003KT 03/M06 A3024 RMK AO1 SLP211 T00331056KSNT2019-04-23T03:48:00Z44.17-114.933.3-5.6180330.2391741021.1TRUETRUEMETAR1980.02019-04-23 03:54:54‚!§Ì)‚ 5  # 3CYZH 230349Z AUTO 32010G32KT 270V330 5SM -TSRA BR SQ FEW039 BKN050 BKN060 OVC095 06/04 A2965 RMK LTNG DIST ALQDS PRESRR SLP061CYZH2019-04-23T03:49:00Z55.28-114.776.04.032010325.029.6486231006.1TRUE-TSRA BR SQOVC9500MVFRSPECI581.02019-04-23 03:54:54‚§Ì)m5      3KFDR 230349Z AUTO 07007KT 10SM VCTS -RA FEW055 BKN100 BKN120 19/18 A2997 RMK AO2 LTG DSNT N AND NW RAB0257 P0003KFDR2019-04-23T03:49:00Z34.35-98.9819.018.070710.029.970472TRUETRUEVCTS -RAVFR0.03METAR386.02019-04-23 03:54:54G§Ì)5     3KCQX 230349Z AUTO 00000KT 3/4SM BR OVC002 09/09 A2991 RMK AO2KCQX2019-04-23T03:49:00Z41.68-70.09.09.0000.7529.911417TRUETRUEBRLIFRMETAR19.02019-04-23 03:54:54 ˜9N˜0§Ì(w5   3KSQL 230348Z VRB03KT 10SM SCT200 17/09 A3000 RMK LASTKSQL2019-04-23T03:48:00Z37.52-122.2517.09.00310.030.0VFRSPECI1.02019-04-23 03:54:54e§Ì)95   3KCID 230348Z 29018G25KT 9SM OVC010 10/09 A2993 RMK AO2 PK WND 28027/0301 CIG 008V015 $KCID2019-04-23T03:48:00Z41.88-91.7210.09.029018259.029.929134TRUETRUEMVFRSPECI264.02019-04-23 03:54:54G§Ì) 5   3KJDN 230348Z AUTO 00000KT 09/04 A3004 RMK AO1 SLP178 T00890044KJDN2019-04-23T03:48:00Z47.33-106.958.94.40030.0413381017.8TRUETRUEMETAR801.02019-04-23 03:54:54t§Ì)Q5   3CYVR 230348Z 08007KT 7SM -DZ FEW016 FEW022 BKN028 OVC060 10/08 A3019 RMK SF1SF1ST6SC1 SF TR SLP226CYVR2019-04-23T03:48:00Z49.17-123.1710.08.08077.030.1889761022.6-DZOVC6000MVFRMETAR2.02019-04-23 03:54:54 \G\e§Ì)-5      3KIWD 230348Z AUTO 04005KT 1/4SM FG OVC003 02/02 A3008 RMK AO2 FZRANO RVRNO PNO $KIWD2019-04-23T03:48:00Z46.52-90.122.02.04050.2530.079725TRUETRUETRUETRUEFGLIFRSPECI375.02019-04-23 03:54:54M§Ì)5    3KRYY 230348Z 00000KT 10SM CLR 16/11 A3017 RMK AO2 SLP935 T01560111KRYY2019-04-23T03:48:00Z34.02-84.615.611.10010.030.171259993.5TRUEVFRMETAR317.02019-04-23 03:54:54|§Ì)W5       3PFKW 230348Z AUTO 24011KT 2 1/2SM -SN BKN014 BKN021 OVC030 M05/M08 A2957 RMK AO2 VIS 1V5 P0000 FZRANOPFKW2019-04-23T03:48:00Z60.8-161.43-5.0-8.0240112.529.568897TRUETRUETRUE-SNIFR0.005SPECI8.02019-04-23 03:54:54^§Ì)35     3PASC 230348Z 07009KT 1 1/4SM R06/4500VP6000FT BR OVC004 M09/M11 A2987 RMK AO2 I1000PASC2019-04-23T03:48:00Z70.2-148.47-9.0-11.07091.2529.870079TRUEBRLIFRMETAR15.02019-04-23 03:54:54 µBy½µ‚§Ì#)S5       3PAFS 230347Z AUTO 22010KT 3/4SM -SN BR BKN007 OVC014 M02/M03 A2939 RMK AO2 CIG 006V011 P0000 FZRANOPAFS2019-04-23T03:47:00Z63.02-154.35-2.0-3.0220100.7529.388779TRUETRUETRUE-SN BRLIFR0.005SPECI126.02019-04-23 03:54:546§Ì"(u5   3KIWA 230347Z 00000KT 20SM FEW110 SCT250 24/M03 A2982KIWA2019-04-23T03:47:00Z33.3-111.6524.0-3.00020.029.819881VFRMETAR412.02019-04-23 03:54:54C§Ì!)5   3KGYR 230347Z 22004KT 10SM FEW130 FEW250 24/M01 A2980 RMK LASTKGYR2019-04-23T03:47:00Z33.42-112.3724.0-1.0220410.029.799213VFRMETAR295.02019-04-23 03:54:548§Ì (w5   3KPAO 230347Z 33006KT 10SM SCT200 16/12 A3001 RMK LASTKPAO2019-04-23T03:47:00Z37.47-122.1216.012.0330610.030.008858VFRMETAR2.02019-04-23 03:54:54 Š<^ŠN§Ì')5     3LERT 230347Z 31016KT 6000 SHRA SCT014TCU BKN049 13/12 Q1001 NOSIGLERT2019-04-23T03:47:00Z36.63-6.3313.012.0310163.7329.557087TRUESHRAMVFRMETAR26.02019-04-23 03:54:54X§Ì&)5    3KCQT 230347Z AUTO 00000KT 10SM CLR 17/12 A2995 RMK AO2 SLP139 T01670122KCQT2019-04-23T03:47:00Z34.02-118.2816.712.20010.029.9498021013.9TRUETRUEVFRMETAR56.02019-04-23 03:54:54T§Ì%)5   3KALO 230347Z AUTO 32014G21KT 10SM OVC009 10/08 A2996 RMK AO2 T01000083KALO2019-04-23T03:47:00Z42.55-92.410.08.3320142110.029.958662TRUETRUEIFRSPECI264.02019-04-23 03:54:54d§Ì$)95     3PADK 230347Z AUTO 28013KT 10SM FEW014 SCT025 OVC050 04/01 A3015 RMK AO2 RAB17E39 P0001PADK2019-04-23T03:47:00Z51.88-176.654.01.02801310.030.15059TRUETRUEVFR0.01SPECI4.02019-04-23 03:54:54 «'>u«D§Ì+(5    3KFOD 230346Z AUTO 35010KT 10SM OVC008 08/06 A3006 RMK AO2KFOD2019-04-23T03:46:00Z42.53-94.178.06.03501010.030.059055TRUETRUEIFRSPECI355.02019-04-23 03:54:54C§Ì*)5   3KCHD 230347Z 27005KT 10SM FEW100 FEW200 24/M02 A2981 RMK LASTKCHD2019-04-23T03:47:00Z33.27-111.8224.0-2.0270510.029.811024VFRMETAR379.02019-04-23 03:54:54c§Ì))+5      3KHQM 230347Z AUTO 15004KT 1 3/4SM -RA BR OVC008 09/09 A3024 RMK AO2 RAB39 P0001KHQM2019-04-23T03:47:00Z46.97-123.939.09.015041.7530.239174TRUETRUE-RA BRIFR0.01SPECI7.02019-04-23 03:54:54S§Ì() 5    3KFHU 230347Z AUTO 21009KT 10SM CLR 17/M06 A2999 RMK AO2 SLP101KFHU2019-04-23T03:47:00Z31.58-110.3517.0-6.0210910.029.9911421010.1TRUETRUEVFRSPECI1438.02019-04-23 03:54:54 Q&QO§Ì/)5    3KUUU 230346Z AUTO 36010KT 10SM SCT008 10/09 A2990 RMK AO2 T01000094KUUU2019-04-23T03:46:00Z41.53-71.2810.09.43601010.029.899607TRUETRUEVFRSPECI51.02019-04-23 03:54:54Z§Ì.)5    3KCRP 230346Z 11011KT 10SM FEW011 SCT017 BKN022 OVC200 23/20 A2999 RMK AO2KCRP2019-04-23T03:46:00Z27.77-97.523.020.01101110.029.991142TRUEOVC20000MVFRSPECI14.02019-04-23 03:54:54z§Ì-)U5     3KBED 230346Z AUTO 34009G17KT 2 1/2SM -RA BR BKN008 BKN014 OVC024 14/13 A2992 RMK AO2 P0012 T01390128KBED2019-04-23T03:46:00Z42.47-71.313.912.83409172.529.920275TRUETRUE-RA BRIFR0.12SPECI50.02019-04-23 03:54:54t§Ì,)W5    3CYYT 230346Z 28008KT 3/4SM R29/3500FT/D R16/2600V4000FT/D -RA BR OVC014 06/06 A3015 RMK FG7SC1 SLP216CYYT2019-04-23T03:46:00Z47.62-52.726.06.028080.7530.150591021.6-RA BRLIFRSPECI140.02019-04-23 03:54:54 Á7}Á6§Ì3(w5   3KBJC 230345Z VRB04KT 10SM OVC024 07/04 A3027 RMK LASTKBJC2019-04-23T03:45:00Z39.9-105.17.04.00410.030.268702MVFRMETAR1724.02019-04-23 03:54:544§Ì2(s5   3KSWF 230345Z VRB04KT 10SM SCT020 OVC055 15/14 A3003KSWF2019-04-23T03:45:00Z41.5-74.0815.014.00410.030.029528VFRMETAR150.02019-04-23 03:54:54C§Ì1(5    3KHSD 230345Z AUTO 00000KT 10SM OVC028 19/15 A3007 RMK A01KHSD2019-04-23T03:45:00Z35.6-97.7219.015.00010.030.070866TRUETRUEMVFRMETAR364.02019-04-23 03:54:54z§Ì0)A5       3PAMC 230346Z AUTO 26007KT 3/4SM -SN BR OVC020 M01/M02 A2940 RMK AO2 P0001 T10111022 TSNO $PAMC2019-04-23T03:46:00Z62.97-155.62-1.1-2.226070.7529.40059TRUETRUETRUETRUE-SN BRLIFR0.01SPECI103.02019-04-23 03:54:54 ¦?Li¦=§Ì7(y5    3KPGV 230345Z AUTO 00000KT 10SM CLR 12/11 A3014 RMK AO2KPGV2019-04-23T03:45:00Z35.62-77.412.011.00010.030.138779TRUETRUEVFRSPECI8.02019-04-23 03:54:54]§Ì6)/5    3KPPF 230345Z AUTO 35006KT 10SM SCT027 BKN037 OVC060 19/13 A3006 RMK AO2 T01890128KPPF2019-04-23T03:45:00Z37.33-95.518.912.8350610.030.059055TRUETRUEVFRSPECI274.02019-04-23 03:54:54m§Ì5)E5      3KSBM 230345Z AUTO 06008KT 3SM RA BR BKN005 BKN039 OVC080 08/07 A2986 RMK AO2 P0030 T00830072KSBM2019-04-23T03:45:00Z43.78-87.858.37.26083.029.861221TRUETRUERA BRIFR0.3SPECI232.02019-04-23 03:54:54;§Ì4(}5    3CYCX 230345Z AUTO 05007KT 020V090 9SM OVC037 06/04 A3019CYCX2019-04-23T03:45:00Z45.82-66.426.04.05079.030.188976TRUEVFRSPECI51.02019-04-23 03:54:54 \ !\?§Ì;(y5    3KJNX 230345Z AUTO 00000KT 10SM CLR 11/11 A3013 RMK AO2KJNX2019-04-23T03:45:00Z35.53-78.3811.011.00010.030.129921TRUETRUEVFRMETAR50.02019-04-23 03:54:54]§Ì:)/5    3KODO 230345Z AUTO 09006KT 10SM SCT023 SCT029 BKN042 17/14 A2999 RMK AO2 T01720144KODO2019-04-23T03:45:00Z31.92-102.417.214.490610.029.991142TRUETRUEVFRSPECI902.02019-04-23 03:54:54‚§Ì9)Y5       3PAAQ 230345Z AUTO 26003KT 1 3/4SM -SN BR SCT021 OVC027 01/M02 A2945 RMK AO2 SNB27 P0000 T00061017 TSNOPAAQ2019-04-23T03:45:00Z61.6-149.080.6-1.726031.7529.450787TRUETRUETRUE-SN BRIFR0.005SPECI73.02019-04-23 03:54:54p§Ì8)C5     3KORH 230345Z 02013G21KT 5SM -RA BR BKN004 BKN012 OVC028 12/11 A2995 RMK AO2 P0004 T01170111KORH2019-04-23T03:45:00Z42.27-71.8711.711.12013215.029.949802TRUE-RA BRLIFR0.04SPECI304.02019-04-23 03:54:54 À2`œÀV§Ì?)5     3KASX 230345Z AUTO 05006KT 1 3/4SM BR OVC003 03/03 A3011 RMK AO2 T00280028KASX2019-04-23T03:45:00Z46.55-90.922.82.85061.7530.109253TRUETRUEBRLIFRSPECI251.02019-04-23 03:54:54>§Ì>(y5    3KCGE 230345Z AUTO 00000KT 10SM CLR 13/12 A3007 RMK A01KCGE2019-04-23T03:45:00Z38.53-76.0313.012.00010.030.070866TRUETRUEVFRMETAR6.02019-04-23 03:54:54L§Ì=) 5    3KGEV 230345Z AUTO 32003KT 10SM CLR 16/06 A3019 RMK AO2 T01570057KGEV2019-04-23T03:45:00Z36.43-81.4215.75.7320310.030.188976TRUETRUEVFRSPECI969.02019-04-23 03:54:54H§Ì<) 5    3KHBI 230345Z AUTO 00000KT 10SM CLR 12/09 A3015 RMK AO2 T01230088KHBI2019-04-23T03:45:00Z35.65-79.912.38.80010.030.15059TRUETRUEVFRSPECI205.02019-04-23 03:54:54 Ê/^‘ʁA§ÌC)5   3CYZX 230345Z 06013KT 8SM OVC006 08/07 A3017 RMK SF8 SLP218CYZX2019-04-23T03:45:00Z44.98-64.928.07.060138.030.1712591021.8IFRSPECI28.02019-04-23 03:54:54G§ÌB)5    3KNSE 230345Z 30003KT 10SM CLR 13/09 A3015 RMK AO2 T01280089 $KNSE2019-04-23T03:45:00Z30.73-87.0212.88.9300310.030.15059TRUETRUEVFRSPECI61.02019-04-23 03:54:54K§ÌA)5     3LEZL 230345Z 25013KT 9999 -RA FEW015 BKN040 14/13 Q1000 RERA NOSIGLEZL2019-04-23T03:45:00Z37.42-5.914.013.0250136.2129.52756TRUE-RAVFRSPECI31.02019-04-23 03:54:54K§Ì@) 5    3K1A5 230345Z AUTO 00000KT 10SM CLR 10/10 A3022 RMK AO2 T01030103K1A52019-04-23T03:45:00Z35.22-83.4210.310.30010.030.221457TRUETRUEVFRSPECI616.02019-04-23 03:54:54 6 6J§ÌG) 5    3KGWW 230345Z AUTO 00000KT 10SM CLR 12/12 A3014 RMK AO2 T01170115KGWW2019-04-23T03:45:00Z35.47-77.9711.711.50010.030.138779TRUETRUEVFRSPECI41.02019-04-23 03:54:54|§ÌF)O5      3PAQH 230345Z AUTO 26017G20KT 2SM -SN BKN020 OVC028 M04/M08 A2964 RMK AO2 VIS 1 1/2V3 P0000 FZRANOPAQH2019-04-23T03:45:00Z59.75-161.85-4.0-8.026017202.029.639763TRUETRUETRUE-SNIFR0.005SPECI13.02019-04-23 03:54:54§ÌE)[5     3PFWS 230345Z AUTO 27013G19KT 10SM FEW020 BKN030 OVC037 M04/M08 A2961 RMK AO2 UPB11E36SNE11 P0000 FZRANOPFWS2019-04-23T03:45:00Z58.7-157.0-4.0-8.0270131910.029.610237TRUETRUETRUEMVFR0.005SPECI49.02019-04-23 03:54:54m§ÌD);5       3PABA 230345Z 06021KT 3SM UP BR OVC004 M08/M09 A2989 RMK AO2 UPB0257SNE0257 P0000 FZRANOPABA2019-04-23T03:45:00Z70.13-143.58-8.0-9.060213.029.890747TRUETRUEBR UPLIFR0.005SPECI2.02019-04-23 03:54:54 OˆÅëI§ÌL) 5    3KCGS 230344Z AUTO 00000KT 10SM CLR 12/09 A3007 RMK AO1 T01190093KCGS2019-04-23T03:44:00Z38.98-76.9211.99.30010.030.070866TRUETRUEVFRMETAR15.02019-04-23 03:54:54T§ÌK)5     3CYPD 230344Z AUTO 07005KT 6SM -RA BR OVC003 06/06 A3021 RMK SLP236CYPD2019-04-23T03:44:00Z45.67-61.376.06.07056.030.2096461023.6TRUE-RA BRLIFRSPECI114.02019-04-23 03:54:54=§ÌJ(y5    3LMML 230345Z 26008KT 6000 NSC 17/11 Q1005 NOSIG RMK HZLMML2019-04-23T03:45:00Z35.8514.4717.011.026083.7329.675198TRUEMVFRMETAR91.02019-04-23 03:54:54A§ÌI) 5    3CMGB 230345Z AUTO 02003KT 09/03 RMK AO1 SLP198 T00890026 58002CMGB2019-04-23T03:45:00Z45.37-72.778.92.62031019.8TRUETRUE-0.2METAR86.02019-04-23 03:54:54+§ÌH(o5  3CWPF 230345Z AUTO 04002KT 10/07 RMK AO1 T01030074CWPF2019-04-23T03:45:00Z48.43-123.4310.37.4402TRUETRUEMETAR12.02019-04-23 03:54:54 p FKpU§ÌP)5     3CYDN 230343Z AUTO 13007KT 6SM HZ SCT190 SCT250 07/M02 A3011 RMK SLP208CYDN2019-04-23T03:43:00Z51.1-100.037.0-2.013076.030.1092531020.8TRUEHZVFRSPECI305.02019-04-23 03:54:54u§ÌO)C5       3PACM 230343Z AUTO 27019KT 4SM UP BR BKN012 BKN023 OVC034 M06/M07 A2954 RMK AO2 P0000 FZRANOPACM2019-04-23T03:43:00Z61.85-165.57-6.0-7.0270194.029.53937TRUETRUETRUEBR UPMVFR0.005SPECI4.02019-04-23 03:54:54=§ÌN(y5    3KEVM 230344Z AUTO 00000KT 10SM CLR 03/00 A3013 RMK AO2KEVM2019-04-23T03:44:00Z47.42-92.53.00.00010.030.129921TRUETRUEVFRMETAR421.02019-04-23 03:54:54q§ÌM)A5      3PANV 230344Z AUTO 22008KT 10SM BKN028 OVC034 M01/M06 A2943 RMK AO2 UPB0259E12 P0000 FZRANOPANV2019-04-23T03:44:00Z62.65-160.18-1.0-6.0220810.029.430119TRUETRUETRUEMVFR0.005SPECI99.02019-04-23 03:54:54 ==E>§ÌT(y5    3K2W6 230343Z AUTO 00000KT 10SM CLR 12/09 A3010 RMK AO1K2W62019-04-23T03:43:00Z38.32-76.5512.09.00010.030.100393TRUETRUEVFRMETAR44.02019-04-23 03:54:54r§ÌS)Q5    3CYYH 230343Z 30007KT 15SM VCFG FEW009 FEW020 FEW210 M23/M27 A3011 RMK SC1SC1CI1 SC TR SC TR SLP203CYYH2019-04-23T03:43:00Z69.53-93.57-23.0-27.0300715.030.1092531020.3VCFGVFRSPECI28.02019-04-23 03:54:54z§ÌR)S5      3KLXV 230343Z AUTO 30004KT 3SM -SN BR BKN006 OVC012 00/M01 A3029 RMK AO2 CIG 005V009 P0000 T00001006KLXV2019-04-23T03:43:00Z39.23-106.320.0-0.630043.030.28937TRUETRUE-SN BRIFR0.005SPECI3028.02019-04-23 03:54:54=§ÌQ(y5    3KROX 230343Z AUTO 00000KT 10SM CLR 07/03 A3014 RMK AO2KROX2019-04-23T03:43:00Z48.85-95.77.03.00010.030.138779TRUETRUEVFRMETAR323.02019-04-23 03:54:54 ~:ED~@§ÌX(y5    3KMTN 230342Z AUTO 26003KT 10SM CLR 13/10 A3007 RMK AO2KMTN2019-04-23T03:42:00Z39.32-76.4213.010.0260310.030.070866TRUETRUEVFRMETAR7.02019-04-23 03:54:54{§ÌW)U5     3KAUG 230342Z AUTO 36013G19KT 2 1/2SM -RA BR FEW016 SCT023 OVC029 10/09 A3006 RMK AO2 P0012 T01000089KAUG2019-04-23T03:42:00Z44.32-69.810.08.936013192.530.059055TRUETRUE-RA BRIFR0.12SPECI109.02019-04-23 03:54:54o§ÌV)M5     3KAQW 230342Z AUTO 27005KT 10SM SCT023 BKN033 OVC055 13/09 A3002 RMK AO2 RAB15E30 P0000 T01330094KAQW2019-04-23T03:42:00Z42.7-73.1713.39.4270510.030.02067TRUETRUEVFR0.005METAR199.02019-04-23 03:54:54@§ÌU(y5    3KFFM 230342Z AUTO 01006KT 10SM CLR 11/04 A3010 RMK AO2KFFM2019-04-23T03:42:00Z46.28-96.1511.04.010610.030.100393TRUETRUEVFRMETAR361.02019-04-23 03:54:54 _<Gs_‚§Ì\)q5       3PAVL 230341Z AUTO 02029KT 1/2SM SN VV002 M04/M07 A2956 RMK AO2 PK WND 02035/0337 UPE22SNB22 P0002 T10441072 TSNO $PAVL2019-04-23T03:41:00Z67.73-164.55-4.4-7.220290.529.56004TRUETRUETRUETRUESNLIFR0.02200METAR3.02019-04-23 03:54:54N§Ì[)5     3KMEB 230341Z AUTO 00000KT 3SM BR CLR 13/11 A3014 RMK AO2 T01280106KMEB2019-04-23T03:41:00Z34.78-79.3712.810.6003.030.138779TRUETRUEBRMVFRMETAR67.02019-04-23 03:54:54o§ÌZ)C5      3KMMK 230341Z AUTO 36004KT 10SM -RA SCT018 BKN023 OVC070 14/12 A2997 RMK AO2 P0001 T01390117KMMK2019-04-23T03:41:00Z41.52-72.8313.911.7360410.029.970472TRUETRUE-RAMVFR0.01METAR31.02019-04-23 03:54:54>§ÌY(y5    3KFME 230342Z AUTO 00000KT 10SM CLR 10/08 A3010 RMK AO1KFME2019-04-23T03:42:00Z39.08-76.7710.08.00010.030.100393TRUETRUEVFRMETAR46.02019-04-23 03:54:54 ^1R^n§Ì`)?5       3PAEM 230341Z AUTO 00000KT 10SM UP SCT012 SCT020 OVC037 M02/M04 A2945 RMK AO2 P0000 FZRANOPAEM2019-04-23T03:41:00Z62.78-164.48-2.0-4.00010.029.450787TRUETRUETRUEUPVFR0.005METAR3.02019-04-23 03:54:54Y§Ì_)'5    3KPVC 230341Z AUTO 00000KT 10SM SCT001 BKN014 OVC050 06/06 A2992 RMK AO2 PNO $KPVC2019-04-23T03:41:00Z42.07-70.226.06.00010.029.920275TRUETRUETRUEMVFRMETAR2.02019-04-23 03:54:54\§Ì^)-5    3CYQM 230341Z 04005KT 15SM -SHRA OVC034 03/01 A3025 RMK SC8 CVCTV CLD EMBD SLP247CYQM2019-04-23T03:41:00Z46.12-64.673.01.040515.030.2509841024.7-SHRAVFRSPECI71.02019-04-23 03:54:54g§Ì])95      3PAKN 230341Z 25013KT 4SM -SN SCT017 OVC032 M04/M07 A2958 RMK AO2 SNB16 P0000 T10391072PAKN2019-04-23T03:41:00Z58.68-156.65-3.9-7.2250134.029.58071TRUE-SNMVFR0.005METAR17.02019-04-23 03:54:54 º2‹ºK§Ìd) 5    3KMWK 230340Z AUTO 00000KT 10SM CLR 15/10 A3016 RMK AO2 T01490102KMWK2019-04-23T03:40:00Z36.47-80.5514.910.20010.030.159449TRUETRUEVFRMETAR380.02019-04-23 03:54:54!§Ìc(c5   3CWZQ 230340Z AUTO 19002KT 04/ RMK AO1 T0037CWZQ2019-04-23T03:40:00Z46.53-61.053.71902TRUETRUEMETAR17.02019-04-23 03:54:54d§Ìb)A5     3RJKI 230341Z AUTO 14010KT 110V180 9000 RA FEW012 SCT019 BKN041 22/21 Q1013 RMK A2992 RI003RJKI2019-04-23T03:41:00Z28.32129.9222.021.0140105.5929.911417TRUERAVFRSPECI6.02019-04-23 03:54:54^§Ìa)!5     3KFSI 230341Z AUTO 10005KT 10SM -DZ OVC035 20/20 A3002 RMK AO2 DZB41 SLP160KFSI2019-04-23T03:41:00Z34.65-98.420.020.0100510.030.020671016.0TRUETRUE-DZVFRSPECI362.02019-04-23 03:54:54 ?9 <?w§Ìh)W5      3PABE 230340Z 27009KT 1SM R19R/3000VP6000FT -SN BR BKN009 OVC017 M06/M07 A2957 RMK AO2 P0001 T10561072PABE2019-04-23T03:40:00Z60.78-161.83-5.6-7.227091.029.568897TRUE-SN BRIFR0.01METAR41.02019-04-23 03:54:54^§Ìg)15     3PALH 230340Z 16005KT 10SM BKN044 OVC055 01/M02 A2946 RMK AO2 SNE28 P0001 T00061017PALH2019-04-23T03:40:00Z61.18-149.970.6-1.7160510.029.459646TRUEVFR0.01METAR22.02019-04-23 03:54:54‚§Ìf)}5      3KDEC 230340Z AUTO 20012KT 10SM VCTS -RA FEW045 SCT070 BKN090 18/12 A2995 RMK AO2 LTG DSNT S AND SW RAB18 P0000 T01830117KDEC2019-04-23T03:40:00Z39.83-88.8518.311.72001210.029.949802TRUETRUEVCTS -RAVFR0.005SPECI207.02019-04-23 03:54:54A§Ìe(y5    3KEDJ 230340Z AUTO 17008KT 10SM CLR 14/05 A3005 RMK AO1KEDJ2019-04-23T03:40:00Z40.37-83.8214.05.0170810.030.050198TRUETRUEVFRMETAR342.02019-04-23 03:54:54 Ë0aœËK§Ìl) 5    3KSVH 230340Z AUTO 00000KT 10SM CLR 14/11 A3012 RMK AO2 T01390108KSVH2019-04-23T03:40:00Z35.75-80.9513.910.80010.030.121063TRUETRUEVFRMETAR294.02019-04-23 03:54:54?§Ìk(y5    3KTDF 230340Z AUTO 00000KT 10SM CLR 10/09 A3016 RMK AO2KTDF2019-04-23T03:40:00Z36.28-78.9810.09.00010.030.159449TRUETRUEVFRMETAR186.02019-04-23 03:54:54I§Ìj) 5    3KTTA 230340Z AUTO 00000KT 10SM CLR 10/10 A3013 RMK AO2 T01010100KTTA2019-04-23T03:40:00Z35.58-79.110.110.00010.030.129921TRUETRUEVFRMETAR75.02019-04-23 03:54:54J§Ìi) 5    3KVUJ 230340Z AUTO 00000KT 10SM CLR 10/09 A3018 RMK AO2 T01040093KVUJ2019-04-23T03:40:00Z35.42-80.1510.49.30010.030.180119TRUETRUEVFRMETAR186.02019-04-23 03:54:54 Ì/jÌK§Ìp) 5    3KRUQ 230340Z AUTO 00000KT 10SM CLR 12/10 A3013 RMK AO2 T01170102KRUQ2019-04-23T03:40:00Z35.65-80.5211.710.20010.030.129921TRUETRUEVFRMETAR236.02019-04-23 03:54:54G§Ìo) 5    3KSCR 230340Z AUTO 00000KT 10SM CLR 10/09 A3014 RMK AO2 T00980091KSCR2019-04-23T03:40:00Z35.7-79.59.89.10010.030.138779TRUETRUEVFRMETAR188.02019-04-23 03:54:54?§Ìn(}5    3KSIF 230340Z AUTO 10SM CLR 11/09 A3013 RMK AO2 T01080092KSIF2019-04-23T03:40:00Z36.43-79.8510.89.210.030.129921TRUETRUEVFRMETAR211.02019-04-23 03:54:54K§Ìm) 5    3KSUT 230340Z AUTO 26004KT 10SM CLR 17/13 A3016 RMK AO2 T01690126KSUT2019-04-23T03:40:00Z33.93-78.0816.912.6260410.030.159449TRUETRUEVFRMETAR8.02019-04-23 03:54:54 Æ0i™ÆM§Ìt)5    3KMQI 230340Z AUTO 23007KT 10SM SCT070 17/13 A3012 RMK AO2 T01680131KMQI2019-04-23T03:40:00Z35.92-75.716.813.1230710.030.121063TRUETRUEVFRMETAR4.02019-04-23 03:54:54J§Ìs) 5    3KMRN 230340Z AUTO 00000KT 10SM CLR 11/10 A3018 RMK AO2 T01100098KMRN2019-04-23T03:40:00Z35.82-81.6211.09.80010.030.180119TRUETRUEVFRMETAR387.02019-04-23 03:54:54A§Ìr)5    3KONX 230340Z AUTO 10SM SCT075 14/13 A3011 RMK AO2 T01390129KONX2019-04-23T03:40:00Z36.4-76.0213.912.910.030.109253TRUETRUEVFRMETAR5.02019-04-23 03:54:54J§Ìq) 5    3KRCZ 230340Z AUTO 00000KT 10SM CLR 15/08 A3014 RMK AO2 T01450084KRCZ2019-04-23T03:40:00Z34.88-79.7714.58.40010.030.138779TRUETRUEVFRMETAR109.02019-04-23 03:54:54 Ë;k›ËJ§Ìx) 5    3KHNZ 230340Z AUTO 00000KT 10SM CLR 10/08 A3013 RMK AO2 T01010083KHNZ2019-04-23T03:40:00Z36.37-78.5310.18.30010.030.129921TRUETRUEVFRMETAR161.02019-04-23 03:54:54J§Ìw) 5    3KHRJ 230340Z AUTO 00000KT 10SM CLR 13/13 A3014 RMK AO2 T01310129KHRJ2019-04-23T03:40:00Z35.38-78.7313.112.90010.030.138779TRUETRUEVFRMETAR60.02019-04-23 03:54:54J§Ìv) 5    3KISO 230340Z AUTO 00000KT 10SM CLR 11/10 A3014 RMK AO2 T01130102KISO2019-04-23T03:40:00Z35.32-77.6211.310.20010.030.138779TRUETRUEVFRMETAR29.02019-04-23 03:54:54?§Ìu(y5    3KIXA 230340Z AUTO 00000KT 10SM CLR 10/10 A3012 RMK AO2KIXA2019-04-23T03:40:00Z36.33-77.6310.010.00010.030.121063TRUETRUEVFRMETAR44.02019-04-23 03:54:54 Æ8f–ƁJ§Ì|) 5    3KEXX 230340Z AUTO 00000KT 10SM CLR 12/11 A3013 RMK AO2 T01230111KEXX2019-04-23T03:40:00Z35.78-80.312.311.10010.030.129921TRUETRUEVFRMETAR223.02019-04-23 03:54:54J§Ì{) 5    3KEYF 230340Z AUTO 16003KT 10SM CLR 14/10 A3015 RMK AO2 T01370101KEYF2019-04-23T03:40:00Z34.6-78.5813.710.1160310.030.15059TRUETRUEVFRMETAR41.02019-04-23 03:54:54L§Ìz)5    3KFFA 230340Z AUTO 00000KT 10SM SCT070 16/13 A3010 RMK AO2 T01600133KFFA2019-04-23T03:40:00Z36.02-75.6716.013.30010.030.100393TRUETRUEVFRMETAR4.02019-04-23 03:54:54B§Ìy(y5    3KFQD 230340Z AUTO 30005KT 10SM CLR 13/11 A3014 RMK AO2KFQD2019-04-23T03:40:00Z35.42-81.9313.011.0300510.030.138779TRUETRUEVFRMETAR329.02019-04-23 03:54:54 Ø0l¨ØJ§Í) 5    3KCTZ 230340Z AUTO 00000KT 10SM CLR 12/12 A3014 RMK AO2 T01240119KCTZ2019-04-23T03:40:00Z34.98-78.3712.411.90010.030.138779TRUETRUEVFRMETAR45.02019-04-23 03:54:54>§Ì(y5    3KDMW 230340Z AUTO 00000KT 10SM CLR 15/10 A3008 RMK AO2KDMW2019-04-23T03:40:00Z39.6-77.015.010.00010.030.079725TRUETRUEVFRMETAR241.02019-04-23 03:54:54>§Ì~(y5    3KDPL 230340Z AUTO 00000KT 10SM CLR 10/10 A3014 RMK AO2KDPL2019-04-23T03:40:00Z35.0-77.9710.010.00010.030.138779TRUETRUEVFRMETAR42.02019-04-23 03:54:54J§Ì}) 5    3KEHO 230340Z AUTO 00000KT 10SM CLR 17/10 A3013 RMK AO2 T01650103KEHO2019-04-23T03:40:00Z35.25-81.616.510.30010.030.129921TRUETRUEVFRMETAR258.02019-04-23 03:54:54 Î1a’΁>§Í(y5    3KUKF 230340Z AUTO 00000KT 10SM CLR 13/09 A3018 RMK AO2KUKF2019-04-23T03:40:00Z36.22-81.113.09.00010.030.180119TRUETRUEVFRMETAR396.02019-04-23 03:54:54I§Í) 5    3K7W6 230340Z AUTO 00000KT 10SM CLR 14/12 A3012 RMK AO2 T01420119K7W62019-04-23T03:40:00Z35.55-75.9514.211.90010.030.121063TRUETRUEVFRMETAR2.02019-04-23 03:54:54J§Í) 5    3KAFP 230340Z AUTO 00000KT 10SM CLR 13/11 A3013 RMK AO2 T01260108KAFP2019-04-23T03:40:00Z35.02-80.0812.610.80010.030.129921TRUETRUEVFRMETAR92.02019-04-23 03:54:54I§Í) 5    3KCPC 230340Z AUTO 00000KT 10SM CLR 15/12 A3015 RMK AO2 T01500115KCPC2019-04-23T03:40:00Z34.28-78.7215.011.50010.030.15059TRUETRUEVFRMETAR29.02019-04-23 03:54:54 Ò6f¢ÒJ§Í) 5    3KASJ 230340Z AUTO 00000KT 10SM CLR 10/10 A3012 RMK AO2 T01000100KASJ2019-04-23T03:40:00Z36.28-77.1710.010.00010.030.121063TRUETRUEVFRMETAR21.02019-04-23 03:54:54>§Í(y5    3KLHZ 230340Z AUTO 00000KT 10SM CLR 12/09 A3015 RMK AO2KLHZ2019-04-23T03:40:00Z36.02-78.3312.09.00010.030.15059TRUETRUEVFRMETAR113.02019-04-23 03:54:54J§Í) 5    3KOCW 230340Z AUTO 00000KT 10SM CLR 14/11 A3013 RMK AO2 T01350105KOCW2019-04-23T03:40:00Z35.57-77.0513.510.50010.030.129921TRUETRUEVFRMETAR12.02019-04-23 03:54:54D§Í)5    3KRHP 230340Z AUTO 00000KT 11/09 A3018 RMK AO2 T01110090 PWINOKRHP2019-04-23T03:40:00Z35.18-83.8511.19.00030.180119TRUETRUETRUEMETAR518.02019-04-23 03:54:54 Í/h—́D§Í (5   3CWHN 230339Z AUTO 26013G24KT 170V340 9SM CLR 15/M03 A2960CWHN2019-04-23T03:39:00Z54.88-109.9715.0-3.026013249.029.601377TRUEVFRSPECI636.02019-04-23 03:54:54K§Í ) 5    3K24A 230340Z AUTO 13004KT 10SM CLR 15/09 A3021 RMK AO2 T01550088K24A2019-04-23T03:40:00Z35.32-83.215.58.8130410.030.209646TRUETRUEVFRMETAR871.02019-04-23 03:54:54A§Í (y5    3KW29 230340Z AUTO 28005KT 10SM CLR 14/12 A3007 RMK AO2KW292019-04-23T03:40:00Z38.98-76.3314.012.0280510.030.070866TRUETRUEVFRMETAR15.02019-04-23 03:54:54K§Í ) 5    3KCBE 230340Z AUTO 04003KT 10SM CLR 14/06 A3016 RMK AO2 T01360063KCBE2019-04-23T03:40:00Z39.62-78.7713.66.340310.030.159449TRUETRUEVFRMETAR236.02019-04-23 03:54:54 êêü_§Í)%5    3KGRF 230338Z 16004KT 10SM BKN031 BKN045 OVC055 11/11 A3022 RMK AO2A SLP238 $KGRF2019-04-23T03:38:00Z47.07-122.5711.011.0160410.030.2214571023.8TRUETRUEVFRSPECI92.02019-04-23 03:54:54h§Í)K5    3RJKA 230339Z 15019KT 8000 -SHRA FEW010 BKN015 BKN050 22/21 Q1012 RMK 1CU010 5CU015 7SC050 A2991RJKA2019-04-23T03:39:00Z28.42129.7222.021.0150194.9729.88189-SHRAMVFRSPECI7.02019-04-23 03:54:54z§Í){5    3RJFM 230339Z 03009KT 4500 R27/1000VP1800D SHRA BR FEW015 BKN025 BKN130 21/19 Q1016 RMK 2CU015 5CU025 7AS130 A3001 2000ERJFM2019-04-23T03:39:00Z31.87131.4321.019.03092.830.0SHRA BRIFRSPECI9.02019-04-23 03:54:54‚§Í )‚ 5     3PAFB 230339Z COR 05008KT 6SM HZ FEW006 SCT032 OVC043 08/02 A2919 RMK AO2 VIS 3/4V1 1/2 RAB01E37DZB37E38RAB38E39 SLP889 COR 0344PAFB2019-04-23T03:39:00Z64.83-147.628.02.05086.029.190945988.9TRUETRUEHZVFRMETAR137.02019-04-23 03:54:54 ˜ÿ0i˜K§Í) 5    3KOXD 230335Z AUTO 16008KT 10SM CLR 16/09 A3005 RMK AO2 T01620085KOXD2019-04-23T03:35:00Z39.5-84.7816.28.5160810.030.050198TRUETRUEVFRMETAR317.02019-04-23 03:54:54A§Í(y5    3KBWP 230335Z AUTO 35007KT 10SM CLR 11/03 A3013 RMK AO1KBWP2019-04-23T03:35:00Z46.25-96.6211.03.0350710.030.129921TRUETRUEVFRMETAR295.02019-04-23 03:54:54I§Í) 5    3KRZN 230335Z AUTO 00000KT 10SM CLR 03/03 A3010 RMK AO2 T00330031KRZN2019-04-23T03:35:00Z45.82-92.373.33.10010.030.100393TRUETRUEVFRMETAR301.02019-04-23 03:54:54{§Í)Q5     3KLTS 230337Z AUTO 06006KT 10SM -RA OVC015 19/15 A3002 RMK AO2 LTG DSNT SW RAB37 OVC V BKN SLP157 $KLTS2019-04-23T03:37:00Z34.67-99.2719.015.060610.030.020671015.7TRUETRUETRUE-RAMVFRSPECI420.02019-04-23 03:54:54 »:t›»Z§Í)!5   3KBWD 230335Z AUTO 14012G17KT 10SM BKN029 BKN038 OVC055 21/15 A2999 RMK AO1KBWD2019-04-23T03:35:00Z31.8-98.9521.015.0140121710.029.991142TRUETRUEMVFRMETAR423.02019-04-23 03:54:54S§Í)5      3KMRJ 230335Z AUTO 33013G18KT 5SM RA OVC007 15/ A2982 RMK AO2 P0001KMRJ2019-04-23T03:35:00Z42.88-90.2315.033013185.029.819881TRUETRUERAIFR0.01METAR359.02019-04-23 03:54:54@§Í(y5    3KFWB 230335Z AUTO 26003KT 10SM CLR 19/17 A3007 RMK AO2KFWB2019-04-23T03:35:00Z36.7-93.419.017.0260310.030.070866TRUETRUEVFRSPECI406.02019-04-23 03:54:54@§Í(y5    3KMDS 230335Z AUTO 13005KT 10SM CLR 08/08 A3016 RMK AO2KMDS2019-04-23T03:35:00Z44.02-97.088.08.0130510.030.159449TRUETRUEVFRMETAR524.02019-04-23 03:54:54 Ü1g¬ÜJ§Í)5   3KLVN 230335Z AUTO 36011G17KT 10SM OVC050 07/06 A3008 RMK AO2KLVN2019-04-23T03:35:00Z44.63-93.237.06.0360111710.030.079725TRUETRUEVFRMETAR293.02019-04-23 03:54:545§Í(o5   3KMER 230335Z AUTO 25006KT CLR 23/06 A2995 RMK AO1KMER2019-04-23T03:35:00Z37.38-120.5723.06.0250629.949802TRUETRUEMETAR57.02019-04-23 03:54:54D§Í(5    3KFYG 230335Z AUTO 24003KT 10SM OVC065 23/16 A2997 RMK AO2KFYG2019-04-23T03:35:00Z38.58-91.023.016.0240310.029.970472TRUETRUEVFRSPECI149.02019-04-23 03:54:54I§Í)5   3KEBS 230335Z AUTO 34017G22KT 10SM OVC008 08/08 A3002 RMK AO2KEBS2019-04-23T03:35:00Z42.42-93.878.08.0340172210.030.02067TRUETRUEIFRMETAR342.02019-04-23 03:54:54 <+s¶ý<;§Í!({5    3VAAH 230330Z 31004KT 4000 FU NSC 31/17 Q1010 BECMG 5000VAAH2019-04-23T03:30:00Z23.0772.6231.017.031042.4929.822834FUIFRMETAR55.02019-04-23 03:54:543§Í (k5   3OMAH 230330Z 33021KT 6000 SKC 24/15 Q1013 A2993OMAH2019-04-23T03:30:00Z24.0852.4724.015.0330213.7329.911417MVFRMETAR16.02019-04-23 03:54:547§Í(w5  3OMDL 230330Z VRB12G27KT 8000 SCT120 24/16 Q1012 A2989OMDL2019-04-23T03:30:00Z24.552.3324.016.0012274.9729.88189MVFRMETAR25.02019-04-23 03:54:542§Í(k5   3OMDM 230330Z 27009KT 6000 SKC 26/22 Q1010 A2983OMDM2019-04-23T03:30:00Z25.0355.3726.022.027093.7329.822834MVFRMETAR51.02019-04-23 03:54:54O§Í)5    3HRYR 230330Z 10003KT 060V170 0350 R28/0900U FG SCT006 SCT023 16/16 Q1020HRYR2019-04-23T03:30:00Z-1.9730.1216.016.010030.2230.11811FGLIFRMETAR1497.02019-04-23 03:54:54 §*Yf§9§Í%(q5     3VGHS 230330Z 10006KT 3500 HZ NSC 30/22 Q1011 NOSIGVGHS2019-04-23T03:30:00Z23.8590.430.022.010062.1729.852362TRUEHZIFRMETAR10.02019-04-23 03:54:54m§Í$)W5    3RJFE 230330Z 13007KT 080V170 8000 -RA FEW007 SCT070 OVC100 19/17 Q1013 RMK 1ST007 3AC070 8AS100 A2993RJFE2019-04-23T03:30:00Z32.67128.8219.017.013074.9729.911417-RAMVFRSPECI80.02019-04-23 03:54:54K§Í#) 5    3KHQU 230330Z AUTO 00000KT 10SM CLR 14/13 A3018 RMK AO2 T01370130KHQU2019-04-23T03:30:00Z33.53-82.5213.713.00010.030.180119TRUETRUEVFRMETAR152.02019-04-23 03:54:54P§Í")5    3YBCS 230330Z AUTO 12013KT 9999 // NCD 30/21 Q1012 RMK RF00.0/000.0 NOSIGYBCS2019-04-23T03:30:00Z-16.87145.7530.021.0120136.2129.88189TRUEVFRSPECI7.02019-04-23 03:54:54 (;~¶í(?§Í*)5  3CZMU 230300Z AUTO 32007KT 12/04 RMK AO1 PK WND 30018/0209 T01190039CZMU2019-04-23T03:00:00Z53.57-112.311.93.93207TRUETRUEMETAR683.02019-04-23 03:54:54C§Í)) 5    3CWNL 230300Z AUTO 14003KT 05/02 RMK AO1 SLP149 T00520020 55001CWNL2019-04-23T03:00:00Z45.62-82.975.22.014031014.9TRUETRUE-0.1METAR183.02019-04-23 03:54:54B§Í() 5    3CWPS 230300Z AUTO 05009KT 09/05 RMK AO1 SLP185 T00920050 58013CWPS2019-04-23T03:00:00Z42.57-80.039.25.05091018.5TRUETRUE-1.3METAR175.02019-04-23 03:54:547§Í'(q5    3VOAT 230330Z 01005KT 6000 SCT015 30/24 Q1011 NOSIGVOAT2019-04-23T03:30:00Z10.8272.1830.024.01053.7329.852362TRUEMVFRMETAR4.02019-04-23 03:54:54?§Í&(5    3VOSM 230330Z VRB02KT 6000 FEW020 SCT100 30/23 Q1011 NOSIGVOSM2019-04-23T03:30:00Z11.7878.0730.023.0023.7329.852362TRUEMVFRMETAR307.02019-04-23 03:54:54 9#tºò93§Í/(u5   3FAJB 230400Z AUTO 00000KT //// // ////// 12/10 Q1025FAJB2019-04-23T04:00:00Z-26.1528.012.010.00030.265747TRUEMETAR1626.02019-04-23 04:05:56B§Í.) 5    3OINZ 230300Z 22010KT 2000 DZ BKN008 FEW023CB OVC070 09/09 Q1019OINZ2019-04-23T03:00:00Z36.6353.29.09.0220101.2430.088583DZIFRMETAR11.02019-04-23 03:54:544§Í-(y5    3CWEF 230300Z AUTO 01/01 RMK AO1 SLP240 T00110005 51009CWEF2019-04-23T03:00:00Z47.22-60.121.10.51024.0TRUETRUE0.9METAR26.02019-04-23 03:54:54)§Í,(o5  3CWBS 230300Z AUTO 02009KT 08/01 RMK AO1 T00830008CWBS2019-04-23T03:00:00Z46.18-72.928.30.8209TRUETRUEMETAR16.02019-04-23 03:54:54W§Í+)-5    3CWMZ 230300Z AUTO 17022KT 15/03 RMK AO1 PK WND 17027/0237 SLP175 T01500031 56004CWMZ2019-04-23T03:00:00Z45.02-80.3715.03.1170221017.5TRUETRUE-0.4METAR191.02019-04-23 03:54:54 K6u¸K6§Í4(q5    3TGPY 230400Z 07007KT 9999 FEW020 26/22 Q1013 NOSIGTGPY2019-04-23T04:00:00Z12.0-61.7826.022.07076.2129.911417TRUEVFRMETAR7.02019-04-23 04:05:56+§Í3(Y5   3SBCF 230400Z 15003KT CAVOK 20/16 Q1018SBCF2019-04-23T04:00:00Z-19.63-43.9720.016.015036.2130.059055VFRMETAR828.02019-04-23 04:05:567§Í2(s5   3FQCH 230400Z 19004KT 9999 FEW015 SCT050 16/16 Q1022FQCH2019-04-23T04:00:00Z-19.1533.4316.016.019046.2130.177166VFRMETAR732.02019-04-23 04:05:56;§Í1(q5     3OPNH 230400Z 13508KT 5000 HZ NSC 32/19 Q1006 NOSIGOPNH2019-04-23T04:00:00Z26.2268.3732.019.013583.1129.704725TRUEHZMVFRMETAR38.02019-04-23 04:05:56D§Í0)5     3OPST 230400Z 09008KT 5000 HZ FEW100 31/15 Q1008 NOSIG RH40OPST2019-04-23T04:00:00Z32.5374.3731.015.09083.1129.763779TRUEHZMVFRMETAR247.02019-04-23 04:05:56 GBƒºG7§Í9(s5   3SBFL 230400Z 22006KT 6000 BKN013 BKN027 19/18 Q1018SBFL2019-04-23T04:00:00Z-27.67-48.5319.018.022063.7330.059055MVFRMETAR5.02019-04-23 04:05:560§Í8(e5   3SARE 230400Z 14007KT 9999 OVC031 20/16 Q1015SARE2019-04-23T04:00:00Z-27.43-59.0320.016.014076.2129.970472VFRMETAR52.02019-04-23 04:05:56C§Í7)5     3VGEG 230400Z 03003KT 4000 HZ FEW018 BKN100 31/21 Q1010 NOSIGVGEG2019-04-23T04:00:00Z22.2791.8231.021.03032.4929.822834TRUEHZIFRMETAR6.02019-04-23 04:05:569§Í6(q5    3VHHH 230400Z 23013KT 9999 FEW012 31/23 Q1011 NOSIGVHHH2019-04-23T04:00:00Z22.32113.9231.023.0230136.2129.852362TRUEVFRMETAR9.02019-04-23 04:05:568§Í5(s5   3SBGR 230400Z 11002KT 9999 BKN009 OVC020 21/20 Q1019SBGR2019-04-23T04:00:00Z-23.42-46.4721.020.011026.2130.088583IFRMETAR750.02019-04-23 04:05:56 :?ŒÄ:A§Í>(y5    3KCVH 230400Z AUTO 18006KT 10SM CLR 16/10 A3001 RMK A01KCVH2019-04-23T04:00:00Z36.9-121.4216.010.0180610.030.008858TRUETRUEVFRMETAR70.02019-04-23 04:05:56=§Í=(y5    3KFBR 230400Z AUTO 00000KT 10SM CLR 07/02 A3029 RMK AO2KFBR2019-04-23T04:00:00Z41.4-110.47.02.00010.030.28937TRUETRUEVFRMETAR2144.02019-04-23 04:05:56B§Í<(}5     3KHAF 230400Z AUTO 00000KT 5SM HZ CLR 11/08 A3004 RMK AO2KHAF2019-04-23T04:00:00Z37.52-122.511.08.0005.030.041338TRUETRUEHZMVFRMETAR21.02019-04-23 04:05:56-§Í;(e5   3MKJS 230400Z 10004KT 9999 FEW022 26/22 Q1015MKJS2019-04-23T04:00:00Z18.5-77.9226.022.010046.2129.970472VFRMETAR1.02019-04-23 04:05:56;§Í:(y5    3OPPS 230400Z 18006KT 4000 HZ FEW110 BKN210 28/15 Q1009OPPS2019-04-23T04:00:00Z34.0271.5228.015.018062.4929.793306HZIFRMETAR360.02019-04-23 04:05:56 6IƒÇ6E§ÍC)5     3VOCB 230400Z 23003KT 4000 BR FEW015 SCT080 27/22 Q1012 NOSIGVOCB2019-04-23T04:00:00Z11.0277.0327.022.023032.4929.88189TRUEBRIFRMETAR399.02019-04-23 04:05:56@§ÍB) 5   3WSSL 230400Z 01003KT 280V060 9999 SCT018TCU BKN300 31/25 Q1008WSSL2019-04-23T04:00:00Z1.42103.8731.025.01036.2129.763779VFRMETAR14.02019-04-23 04:05:566§ÍA(q5    3VOBL 230400Z VRB02KT 8000 FEW015 29/17 Q1015 NOSIGVOBL2019-04-23T04:00:00Z13.277.729.017.0024.9729.970472TRUEMVFRMETAR915.02019-04-23 04:05:56@§Í@)5    3FSIA 230400Z 27003KT 230V310 9999 SCT024 30/25 Q1010 NOSIGFSIA2019-04-23T04:00:00Z-4.6755.5230.025.027036.2129.822834TRUEVFRMETAR3.02019-04-23 04:05:561§Í?(e5   3FYRN 230400Z 36012KT 9999 SCT015 18/16 Q1018FYRN2019-04-23T04:00:00Z-20.0213.8518.016.0360126.2130.059055VFRMETAR756.02019-04-23 04:05:56 0`žÞ=§ÍH(}5    3UKLN 230400Z 11003MPS CAVOK 02/00 Q1026 R15/09//70 NOSIGUKLN2019-04-23T04:00:00Z48.2725.982.00.011066.2130.295275TRUEVFRMETAR252.02019-04-23 04:05:56:§ÍG(}5    3UKOH 230400Z 05003MPS CAVOK 06/04 Q1027 R03/CLRD// NOSIGUKOH2019-04-23T04:00:00Z46.6732.56.04.05066.2130.324802TRUEVFRMETAR45.02019-04-23 04:05:56<§ÍF(5    3UKWW 230400Z 00000MPS CAVOK 05/M02 Q1027 R13/0///65 NOSIGUKWW2019-04-23T04:00:00Z49.2528.65.0-2.0006.2130.324802TRUEVFRMETAR293.02019-04-23 04:05:56J§ÍE) 5    3SBSP 230400Z AUTO 14005KT 9999 FEW008 BKN010 OVC016 21/18 Q1019SBSP2019-04-23T04:00:00Z-23.62-46.6321.018.014056.2130.088583TRUEMVFRMETAR803.02019-04-23 04:05:56J§ÍD)5    3WSSS 230400Z 03006KT 360V060 9999 SCT018TCU SCT300 31/25 Q1009 NOSIGWSSS2019-04-23T04:00:00Z1.37103.9731.025.03066.2129.793306TRUEVFRMETAR16.02019-04-23 04:05:56 5D°ú5?§ÍM(5    3UKLI 230400Z 11001MPS CAVOK 01/M01 Q1024 R28/090070 NOSIGUKLI2019-04-23T04:00:00Z48.8824.681.0-1.011026.2130.236221TRUEVFRMETAR280.02019-04-23 04:05:560§ÍL(g5    3UKON 230400Z 01002MPS CAVOK 05/01 Q1027 NOSIGUKON2019-04-23T04:00:00Z47.0531.925.01.01046.2130.324802TRUEVFRMETAR56.02019-04-23 04:05:56K§ÍK)5     3UKLU 230400Z 08004MPS 9999 -SHRA SCT033CB SCT033 09/07 Q1020 NOSIGUKLU2019-04-23T04:00:00Z48.6322.279.07.08086.2130.11811TRUE-SHRAVFRMETAR117.02019-04-23 04:05:56=§ÍJ(5    3UKKK 230400Z 08003MPS CAVOK 06/M01 Q1029 R08/CLRD70 NOSIGUKKK2019-04-23T04:00:00Z50.430.456.0-1.08066.2130.383858TRUEVFRMETAR179.02019-04-23 04:05:566§ÍI(s5    3UKKM 230400Z AUTO 35001MPS 9000 // NCD 04/M00 Q1029UKKM2019-04-23T04:00:00Z50.630.24.00.035025.5930.383858TRUEVFRMETAR157.02019-04-23 04:05:56 ÂGy¢ÂZ§ÍQ)-5    3NWWW 230400Z AUTO 15010KT 110V190 9999 SCT028 BKN033 27/22 Q1013 TEMPO FEW030TCUNWWW2019-04-23T04:00:00Z-22.02166.2227.022.0150106.2129.911417TRUEVFRMETAR16.02019-04-23 04:05:56Q§ÍP)%5    3FMMT 230400Z 25007KT 3500 -RA SCT007 BKN017TCU BKN033 24/24 Q1012 TEMPO 5000FMMT2019-04-23T04:00:00Z-18.1249.3824.024.025072.1729.88189-RAIFRMETAR6.02019-04-23 04:05:56H§ÍO) 5     3TFFR 230400Z AUTO 00000KT 9999 SCT052 OVC088 22/20 Q1014 NOSIGTFFR2019-04-23T04:00:00Z16.27-61.5322.020.0006.2129.940945TRUETRUEVFRMETAR11.02019-04-23 04:05:563§ÍN(i5    3UKLR 230400Z 11004MPS CAVOK 03/M03 Q1027 NOSIGUKLR2019-04-23T04:00:00Z50.626.133.0-3.011086.2130.324802TRUEVFRMETAR230.02019-04-23 04:05:56 Bv§Þ<§ÍV({5    3LDRI 230400Z 31005KT 9999 -RA FEW013 BKN040 12/12 Q1009LDRI2019-04-23T04:00:00Z45.2214.5712.012.031056.2129.793306-RAVFRMETAR85.02019-04-23 04:05:56C§ÍU)5    3LDSP 230400Z 11015KT 9999 SCT050 16/08 Q1009 BECMG 11018G28KTLDSP2019-04-23T04:00:00Z43.5216.316.08.0110156.2129.793306VFR-1.8METAR21.02019-04-23 04:05:56I§ÍT) 5     3LDZA 230400Z 34005KT 9999 -RA NSC 11/10 Q1009 BECMG 11010KT RALDZA2019-04-23T04:00:00Z45.7216.0711.010.034056.2129.793306-RAVFR-1.0METAR107.02019-04-23 04:05:56F§ÍS)5    3LDZD 230400Z 10008KT 060V130 9999 FEW040 SCT060 12/09 Q1008 NOSIGLDZD2019-04-23T04:00:00Z44.115.3712.09.010086.2129.763779TRUEVFRMETAR84.02019-04-23 04:05:568§ÍR(q5    3TAPA 230400Z 07006KT 9999 FEW018 24/17 Q1014 NOSIGTAPA2019-04-23T04:00:00Z17.12-61.7824.017.07066.2129.940945TRUEVFRMETAR14.02019-04-23 04:05:56 %r²õV§Í[)/5    3SOCA 230400Z AUTO VRB02KT 9999 BKN017 BKN029 27/24 Q1011 TEMPO 3000 SHRA FEW010CBSOCA2019-04-23T04:00:00Z4.82-52.3727.024.0026.2129.852362TRUEMVFRMETAR9.02019-04-23 04:05:567§ÍZ(q5    3TNCA 230400Z 09011KT 9999 FEW018 26/22 Q1013 NOSIGTNCA2019-04-23T04:00:00Z12.5-70.026.022.090116.2129.911417TRUEVFRMETAR18.02019-04-23 04:05:56:§ÍY({5   3LDDU 230400Z 11019KT CAVOK 17/05 Q1011 TEMPO 13020G30KTLDDU2019-04-23T04:00:00Z42.5718.2717.05.0110196.2129.852362VFRMETAR165.02019-04-23 04:05:56-§ÍX(e5   3LDOS 230400Z 13015KT 9999 FEW045 14/05 Q1012LDOS2019-04-23T04:00:00Z45.4718.8214.05.0130156.2129.88189VFRMETAR89.02019-04-23 04:05:56U§ÍW)!5     3LDPL 230400Z 11009KT 090V160 9000 -RA FEW010 OVC025 12/11 Q1007 RERA NOSIGLDPL2019-04-23T04:00:00Z44.8813.9212.011.011095.5929.734253TRUE-RAMVFRMETAR63.02019-04-23 04:05:56 W@ƒÌW2§Í`(s5   3LBPL 230400Z 05002KT 9999 SCT100 BKN200 07/02 Q1022LBPL2019-04-23T04:00:00Z43.4524.57.02.05026.2130.177166VFRMETAR101.02019-04-23 04:05:567§Í_(s5   3SAME 230400Z 05003KT 9999 SCT025 BKN035 14/12 Q1019SAME2019-04-23T04:00:00Z-32.82-68.7714.012.05036.2130.088583VFRMETAR704.02019-04-23 04:05:561§Í^(e5    3LHBP 230400Z 07016KT CAVOK 08/08 Q1015 NOSIGLHBP2019-04-23T04:00:00Z47.4219.278.08.070166.2129.970472TRUEVFRMETAR185.02019-04-23 04:05:567§Í](y5   3WSAP 230400Z 04008KT 9999 SCT020TCU BKN300 33/26 Q1008WSAP2019-04-23T04:00:00Z1.37103.9233.026.04086.2129.763779VFRMETAR32.02019-04-23 04:05:56:§Í\(q5    3GOBD 230400Z 35014KT 7000 BKN007 19/17 Q1010 NOSIGGOBD2019-04-23T04:00:00Z14.67-17.0719.017.0350144.3529.822834TRUEIFRMETAR88.02019-04-23 04:05:56 `G—æ"`<§Íe(u5     3LBPD 230400Z AUTO 23002KT 9999 NCD 06/02 Q1024 NOSIGLBPD2019-04-23T04:00:00Z42.1324.86.02.023026.2130.236221TRUETRUEVFRMETAR185.02019-04-23 04:05:56>§Íd(w5     3LBGO 230400Z AUTO 12007KT 9999 NCD 08/M01 Q1022 NOSIGLBGO2019-04-23T04:00:00Z43.1525.728.0-1.012076.2130.177166TRUETRUEVFRMETAR86.02019-04-23 04:05:56+§Íc(Y5   3SARP 230400Z 14007KT CAVOK 19/18 Q1015SARP2019-04-23T04:00:00Z-27.38-55.9719.018.014076.2129.970472VFRMETAR125.02019-04-23 04:05:56*§Íb(e5   3LBPG 230400Z 00000KT 9999 OVC100 06/01 Q1024LBPG2019-04-23T04:00:00Z42.2824.726.01.0006.2130.236221VFRMETAR58.02019-04-23 04:05:563§Ía(s5   3LBIA 230400Z 06004KT 9999 SCT100 BKN200 06/04 Q1025LBIA2019-04-23T04:00:00Z42.4526.356.04.06046.2130.265747VFRMETAR155.02019-04-23 04:05:56 0K–Íò0<§Íj({5    3LZTT 230400Z 11009KT 9999 -RA SCT004 OVC023 05/04 Q1018LZTT2019-04-23T04:00:00Z49.0720.255.04.011096.2130.059055-RAMVFRMETAR707.02019-04-23 04:05:56U§Íi)5     3YKRY 230400Z AUTO 13009KT 6000 -SHRA SCT008 BKN010 BKN014 20/19 Q1021YKRY2019-04-23T04:00:00Z-26.57151.8320.019.013093.7330.147638TRUE-SHRAMVFRSPECI434.02019-04-23 04:05:56C§Íh) 5    3LBSF 230400Z 10009KT 7000 -RA OVC057 06/03 Q1022 TEMPO 5000 RALBSF2019-04-23T04:00:00Z42.723.426.03.010094.3530.177166-RAMVFRMETAR530.02019-04-23 04:05:56/§Íg(e5    3LBWN 230400Z 03002KT CAVOK 04/02 Q1026 NOSIGLBWN2019-04-23T04:00:00Z43.2227.824.02.03026.2130.295275TRUEVFRMETAR43.02019-04-23 04:05:56/§Íf(e5    3LBBG 230400Z 06007KT CAVOK 06/05 Q1026 NOSIGLBBG2019-04-23T04:00:00Z42.5727.526.05.06076.2130.295275TRUEVFRMETAR28.02019-04-23 04:05:56 @8t«ü@6§Ío(s5   3SBTE 230400Z 33003KT 9999 SCT020 BKN070 25/23 Q1011SBTE2019-04-23T04:00:00Z-5.03-42.8225.023.033036.2129.852362VFRMETAR69.02019-04-23 04:05:56)§Ín(Y5   3SBRB 230400Z 03006KT CAVOK 25/24 Q1011SBRB2019-04-23T04:00:00Z-10.0-67.7825.024.03066.2129.852362VFRMETAR143.02019-04-23 04:05:56C§Ím)5    3FMMI 230400Z 15003KT 110V180 9999 FEW017 17/15 Q1019 NOSIGFMMI2019-04-23T04:00:00Z-18.847.4717.015.015036.2130.088583TRUEVFRMETAR1276.02019-04-23 04:05:56>§Íl(5    3LZIB 230400Z 05012KT 9999 FEW015 BKN095 09/07 Q1013 NOSIGLZIB2019-04-23T04:00:00Z48.1717.229.07.050126.2129.911417TRUEVFRMETAR134.02019-04-23 04:05:56B§Ík) 5    3LZKZ 230400Z 05007KT 9999 -RA FEW010 SCT040 BKN060 07/06 Q1019LZKZ2019-04-23T04:00:00Z48.6721.237.06.05076.2130.088583-RAVFRMETAR232.02019-04-23 04:05:56 ("f¦è(:§Ít(q5    3VOML 230400Z 29003KT 6000 FEW015 30/24 Q1010 NOSIGVOML2019-04-23T04:00:00Z12.9774.8830.024.029033.7329.822834TRUEMVFRMETAR103.02019-04-23 04:05:568§Ís(q5    3TBPB 230400Z 05006KT 9999 SCT020 25/21 Q1013 NOSIGTBPB2019-04-23T04:00:00Z13.07-59.4825.021.05066.2129.911417TRUEVFRMETAR52.02019-04-23 04:05:56:§Ír(s5    3SBSN 230400Z 14003KT 9999 VCTS FEW030CB 24/24 Q1011SBSN2019-04-23T04:00:00Z-2.42-54.7824.024.014036.2129.852362VCTSVFRMETAR72.02019-04-23 04:05:566§Íq(s5   3SBCG 230400Z VRB02KT 9999 FEW040 SCT080 20/20 Q1015SBCG2019-04-23T04:00:00Z-20.47-54.6720.020.0026.2129.970472VFRMETAR567.02019-04-23 04:05:56X§Íp)55    3TFFF 230400Z AUTO 06003KT 030V090 CAVOK 23/20 Q1014 TEMPO 4000 SHRA SCT018TCU SCT025TFFF2019-04-23T04:00:00Z14.6-61.023.020.06036.2129.940945TRUEVFRMETAR5.02019-04-23 04:05:56 RM˜ÖRB§Íy)5    3OMDB 230400Z 27010KT 220V300 8000 SCT015 27/23 Q1010 NOSIGOMDB2019-04-23T04:00:00Z25.2555.3727.023.0270104.9729.822834TRUEMVFRMETAR5.02019-04-23 04:05:566§Íx(k5    3OMDW 230400Z 29013KT 8000 NSC 26/22 Q1011 NOSIGOMDW2019-04-23T04:00:00Z24.955.1726.022.0290134.9729.852362TRUEMVFRMETAR25.02019-04-23 04:05:56<§Íw)5   3OMFJ 230400Z 07005KT 050V130 7000 FEW030 32/20 Q1003 A2976OMFJ2019-04-23T04:00:00Z25.156.3232.020.07054.3529.616142MVFRMETAR28.02019-04-23 04:05:56/§Ív(e5   3OMRK 230400Z 26010KT CAVOK 28/22 Q1010 A2983OMRK2019-04-23T04:00:00Z25.6255.9228.022.0260106.2129.822834VFRMETAR31.02019-04-23 04:05:56-§Íu(_5   3OMSJ 230400Z 25011KT 8000 NSC 27/22 Q1010OMSJ2019-04-23T04:00:00Z25.3255.5227.022.0250114.9729.822834MVFRMETAR33.02019-04-23 04:05:56 ADŒÌïA(§Í~(Y5   3SBCZ 230400Z 00000KT CAVOK 25/25 Q1010SBCZ2019-04-23T04:00:00Z-7.62-72.7725.025.0006.2129.822834VFRMETAR170.02019-04-23 04:05:56W§Í})-5    3UBBY 230400Z 16004KT 9999 SCT010 OVC030 06/04 Q1026 R33/////// NOSIG RMK MT OBSCUBBY2019-04-23T04:00:00Z41.5746.676.04.016046.2130.295275TRUEMVFRMETAR390.02019-04-23 04:05:56:§Í|(q5    3OMAA 230400Z 30015KT 8000 FEW020 26/21 Q1011 NOSIGOMAA2019-04-23T04:00:00Z24.4254.6326.021.0300154.9729.852362TRUEMVFRMETAR27.02019-04-23 04:05:562§Í{(e5    3OMAD 230400Z 32012KT CAVOK 26/19 Q1011 NOSIGOMAD2019-04-23T04:00:00Z24.4254.4726.019.0320126.2129.852362TRUEVFRMETAR3.02019-04-23 04:05:566§Íz(u5   3OMAL 230400Z 17016KT CAVOK 29/16 Q1012 BECMG 30010KTOMAL2019-04-23T04:00:00Z24.2555.629.016.0170166.2129.88189VFRMETAR262.02019-04-23 04:05:56 =5xÄó=0§Î(m5   3SPTN 230400Z 29002KT CAVOK 16/12 Q1016 RMK PP000SPTN2019-04-23T04:00:00Z-18.07-70.2816.012.029026.2130.0VFRMETAR458.02019-04-23 04:05:56K§Î)5   3SPZO 230400Z VRB02KT 9999 SCT050 SCT100 09/05 Q1033 RMK LTG QUAD N PP000SPZO2019-04-23T04:00:00Z-13.55-71.979.05.0026.2130.501968VFRMETAR3249.02019-04-23 04:05:56.§Î(e5   3SBPA 230400Z 07003KT 9999 OVC030 19/16 Q1019SBPA2019-04-23T04:00:00Z-30.0-51.1719.016.07036.2130.088583MVFRMETAR3.02019-04-23 04:05:567§Î(q5    3TLPL 230400Z 06009KT 9999 FEW027 24/22 Q1014 NOSIGTLPL2019-04-23T04:00:00Z13.75-60.9524.022.06096.2129.940945TRUEVFRMETAR3.02019-04-23 04:05:56E§Í)5    3YBHM 230400Z AUTO 12020KT 9999 // BKN016 OVC082 26/24 Q1013YBHM2019-04-23T04:00:00Z-20.35148.9526.024.0120206.2129.911417TRUEMVFRSPECI5.02019-04-23 04:05:56 8@Èø8:§Î(y5   3SPHI 230400Z 17011KT 9999 BKN050 23/19 Q1013 RMK PP000SPHI2019-04-23T04:00:00Z-6.77-79.8223.019.0170116.2129.911417VFRMETAR34.02019-04-23 04:05:56J§Î)5    3SPQT 230400Z VRB01KT 9999 FEW020 BKN100 26/24 Q1011 NOSIG RMK PP000SPQT2019-04-23T04:00:00Z-3.78-73.3226.024.0016.2129.852362TRUEVFRMETAR126.02019-04-23 04:05:563§Î(m5   3SPQU 230400Z VRB03KT CAVOK 11/08 Q1027 RMK PP000SPQU2019-04-23T04:00:00Z-16.33-71.5711.08.0036.2130.324802VFRMETAR2554.02019-04-23 04:05:569§Î(y5   3SPRU 230400Z 15007KT 9999 BKN120 22/19 Q1013 RMK PP000SPRU2019-04-23T04:00:00Z-8.08-79.1222.019.015076.2129.911417VFRMETAR30.02019-04-23 04:05:56:§Î(y5   3SPSO 230400Z 33003KT 9999 OVC084 22/21 Q1013 RMK PP000SPSO2019-04-23T04:00:00Z-13.73-76.2222.021.033036.2129.911417VFRMETAR10.02019-04-23 04:05:56 ³gy³@§Î (}5    3MHTG 230400Z 27002KT 9999 FEW028 19/12 Q1020 A3012 NOSIGMHTG2019-04-23T04:00:00Z14.07-87.2219.012.027026.2130.11811TRUEVFRMETAR1004.02019-04-23 04:05:56h§Î )I5    3NFFN 230400Z 30007KT 270V040 3000 +SHRA FEW010CB BKN012TCU OVC100 27/26 Q1007 TEMPO 2000 +TSRANFFN2019-04-23T04:00:00Z-17.75177.4527.026.030071.8629.734253+SHRAIFRSPECI18.02019-04-23 04:05:56/§Î (e5    3SYCJ 230400Z 06004KT CAVOK 24/22 Q1012 NOSIGSYCJ2019-04-23T04:00:00Z6.5-58.2524.022.06046.2129.88189TRUEVFRMETAR30.02019-04-23 04:05:56^§Î )=5    3UBBB 230400Z 33016KT 9999 FEW050CB SCT050 OVC100 09/06 Q1023 R34/290060 R35/290055 NOSIGUBBB2019-04-23T04:00:00Z40.4550.079.06.0330166.2130.206694TRUEVFRMETAR-6.02019-04-23 04:05:56 @KzÌ@J§Î)5     3UBEE 230400Z 30005KT 9999 -DZ OVC030 07/06 Q1025 R30/////// NOSIGUBEE2019-04-23T04:00:00Z40.6347.157.06.030056.2130.265747TRUE-DZMVFRMETAR15.02019-04-23 04:05:566§Î(s5   3SBNT 230400Z 21002KT 9999 SCT018 SCT080 26/24 Q1011SBNT2019-04-23T04:00:00Z-5.92-35.2526.024.021026.2129.852362VFRMETAR49.02019-04-23 04:05:56(§Î(Y5   3SBBV 230400Z 11006KT CAVOK 30/19 Q1010SBBV2019-04-23T04:00:00Z2.85-60.730.019.011066.2129.822834VFRMETAR140.02019-04-23 04:05:56K§Î) 5    3KIPJ 230400Z AUTO 00000KT 10SM CLR 12/11 A3013 RMK AO2 T01160107KIPJ2019-04-23T04:00:00Z35.48-81.1711.610.70010.030.129921TRUETRUEVFRSPECI267.02019-04-23 04:05:56/§Î (e5   3SBPS 230400Z 08002KT 9999 SCT020 25/23 Q1015SBPS2019-04-23T04:00:00Z-16.43-39.0725.023.08026.2129.970472VFRMETAR51.02019-04-23 04:05:56 vyò;µþv§Î(75  3NCMG 230400Z AUTO NILNCMG2019-04-23T04:00:00Z-21.92-157.95TRUEMETAR41.02019-04-23 04:05:561§Î(o5   3NCMK 230400Z AUTO 02009KT //// ////// 25/20 Q1011NCMK2019-04-23T04:00:00Z-20.15-157.3825.020.020929.852362TRUEMETAR9.02019-04-23 04:05:56§Î(75  3NCMH 230400Z AUTO NILNCMH2019-04-23T04:00:00Z-10.38-161.0TRUEMETAR0.02019-04-23 04:05:561§Î(o5   3NCPY 230400Z AUTO 08010KT //// ////// 30/26 Q1009NCPY2019-04-23T04:00:00Z-9.02-158.0730.026.0801029.793306TRUEMETAR2.02019-04-23 04:05:56§Î(75  3NCPK 230400Z AUTO NILNCPK2019-04-23T04:00:00Z-10.88-165.82TRUEMETAR3.02019-04-23 04:05:56§Î(75  3NCRK 230400Z AUTO NILNCRK2019-04-23T04:00:00Z-10.05-161.08TRUEMETAR5.02019-04-23 04:05:56 iP”Ùi&§Î(g5   3MHCA 230400Z 03002KT 9999 SCT030 SCT070 24/19MHCA2019-04-23T04:00:00Z14.9-85.7824.019.03026.21VFRMETAR442.02019-04-23 04:05:56>§Î(}5    3MHRO 230400Z 06010KT 9999 SCT022 27/23 Q1015 A2997 NOSIGMHRO2019-04-23T04:00:00Z16.32-86.5327.023.060106.2129.970472TRUEVFRMETAR5.02019-04-23 04:05:565§Î(w5   3LRCT 230400Z 10003KT 9999 BKN150 05/M00 Q1021 BLU BLULRCT2019-04-23T04:00:00Z46.523.885.00.010036.2130.147638VFRMETAR331.02019-04-23 04:05:566§Î(w5   3LRBO 230400Z 02008KT 9999 SCT100 02/M02 Q1026 BLU BLULRBO2019-04-23T04:00:00Z45.2226.972.0-2.02086.2130.295275VFRMETAR103.02019-04-23 04:05:56*§Î(i5    3NCAT 230400Z AUTO 12006G16KT //// ////// Q1007NCAT2019-04-23T04:00:00Z-19.97-158.1212061629.734253TRUEMETAR11.02019-04-23 04:05:56 L<wºL/§Î!(e5   3SBRF 230400Z 11003KT 9999 SCT019 28/24 Q1011SBRF2019-04-23T04:00:00Z-8.13-34.9228.024.011036.2129.852362VFRMETAR19.02019-04-23 04:05:563§Î (k5    3OJAI 230400Z 04006KT 6000 NSC 03/02 Q1022 NOSIGOJAI2019-04-23T04:00:00Z31.7236.03.02.04063.7330.177166TRUEMVFRMETAR730.02019-04-23 04:05:567§Î(q5     3OJAM 230400Z 00000KT 4000 HZ NSC 06/02 Q1022 NOSIGOJAM2019-04-23T04:00:00Z31.9735.976.02.0002.4930.177166TRUEHZIFRMETAR773.02019-04-23 04:05:56?§Î(}5    3MHLC 230400Z 17002KT 9999 SCT024 23/22 Q1014 A2995 NOSIGMHLC2019-04-23T04:00:00Z15.75-86.8523.022.017026.2129.940945TRUEVFRMETAR15.02019-04-23 04:05:56>§Î(}5    3MHLM 230400Z 02005KT 9999 FEW025 26/22 Q1015 A2997 NOSIGMHLM2019-04-23T04:00:00Z15.45-87.9326.022.02056.2129.970472TRUEVFRMETAR26.02019-04-23 04:05:56 d?—Ü-dC§Î&)5    3SBFZ 230400Z 15010KT 9999 VCSH SCT015 SCT020 FEW025TCU 25/23 Q1 011SBFZ2019-04-23T04:00:00Z-3.77-38.5225.023.0150106.21VCSHVFRMETAR25.02019-04-23 04:05:56)§Î%(_5   3VASU 230400Z 00000KT 6000 NSC 31/19 Q1010VASU2019-04-23T04:00:00Z21.1272.7331.019.0003.7329.822834MVFRMETAR5.02019-04-23 04:05:565§Î$(s5   3SBBE 230400Z 17002KT 9999 SCT017 BKN100 24/24 Q1012SBBE2019-04-23T04:00:00Z-1.37-48.4724.024.017026.2129.88189VFRMETAR16.02019-04-23 04:05:56"§Î#(c5    3NCMR 230400Z AUTO 11007KT //// ////// Q1012NCMR2019-04-23T04:00:00Z-19.85-157.7110729.88189TRUEMETAR8.02019-04-23 04:05:56;§Î"(y5    3LRTZ 230400Z 01003KT 0100 FG VV001 05/05 Q1026 RED REDLRTZ2019-04-23T04:00:00Z43.9828.625.05.01030.0630.295275FGLIFR100METAR49.02019-04-23 04:05:56 Ê-p¯Ê_§Î*);5    3ZMUB 230400Z 36004MPS 300V050 9999 SCT033 SCT100 03/M09 Q1020 NOSIG RMK QFE657.0 39 MOPZMUB2019-04-23T04:00:00Z47.83106.783.0-9.036086.2130.11811TRUEVFRMETAR1330.02019-04-23 04:05:56;§Î))5   3ORSU 230400Z VRB02KT 6000 FEW023 SCT030 BKN080 08/08 Q1019ORSU2019-04-23T04:00:00Z35.5745.328.08.0023.7330.088583MVFRMETAR761.02019-04-23 04:05:567§Î((y5   3NGFU 230400Z 01003KT 9999 FEW018TCU SCT300 32/26 Q1007NGFU2019-04-23T04:00:00Z-8.52179.2232.026.01036.2129.734253VFRMETAR1.02019-04-23 04:05:56M§Î')5     3LWSK 230400Z 16004KT 9999 -RA FEW016 SCT043 OVC100 09/07 Q1021 NOSIGLWSK2019-04-23T04:00:00Z41.9721.639.07.016046.2130.147638TRUE-RAVFRMETAR239.02019-04-23 04:05:56 WA„×W:§Î/(q5     3OPSK 230400Z 23010KT 4000 HZ NSC 31/17 Q1005 NOSIGOPSK2019-04-23T04:00:00Z27.7268.831.017.0230102.4929.675198TRUEHZIFRMETAR58.02019-04-23 04:05:56:§Î.(u5    3MRLB 230400Z 13007KT 100V160 CAVOK 28/18 A2988 NOSIGMRLB2019-04-23T04:00:00Z10.6-85.5528.018.013076.2129.878937TRUEVFRMETAR82.02019-04-23 04:05:56'§Î-(Y5   3SBMN 230400Z 00000KT CAVOK 25/24 Q1011SBMN2019-04-23T04:00:00Z-3.13-59.9725.024.0006.2129.852362VFRMETAR84.02019-04-23 04:05:567§Î,(q5    3WIOO 230400Z 02003KT 9999 BKN012 32/25 Q1007 NOSIGWIOO2019-04-23T04:00:00Z-0.15109.432.025.02036.2129.734253TRUEMVFRMETAR3.02019-04-23 04:05:569§Î+(q5    3WIPP 230400Z 12003KT 9999 BKN010 30/25 Q1008 NOSIGWIPP2019-04-23T04:00:00Z-2.88104.730.025.012036.2129.763779TRUEMVFRMETAR10.02019-04-23 04:05:56 -D†Ì -X§Î4)%5     3LEMO 230400Z 19014KT 160V230 6000 +RA FEW012 SCT031 BKN042 14/12 Q0999 NOSIGLEMO2019-04-23T04:00:00Z37.17-5.6214.012.0190143.7329.498032TRUE+RAMVFRMETAR88.02019-04-23 04:05:56;§Î3(u5    3MROC 230400Z 09014KT 050V120 CAVOK 21/14 A3006 NOSIGMROC2019-04-23T04:00:00Z10.0-84.2221.014.090146.2130.059055TRUEVFRMETAR920.02019-04-23 04:05:564§Î2(e5    3SCEL 230400Z 15006KT CAVOK 11/08 Q1015 NOSIGSCEL2019-04-23T04:00:00Z-33.37-70.7711.08.015066.2129.970472TRUEVFRMETAR476.02019-04-23 04:05:568§Î1(q5    3SUMU 230400Z 04003KT 9999 BKN023 13/08 Q1022 NOSIGSUMU2019-04-23T04:00:00Z-34.82-56.013.08.04036.2130.177166TRUEMVFRMETAR32.02019-04-23 04:05:566§Î0(s5   3SBVT 230400Z 36003KT 9999 FEW030 BKN100 26/24 Q1015SBVT2019-04-23T04:00:00Z-20.27-40.2726.024.036036.2129.970472VFRMETAR4.02019-04-23 04:05:56 TH í%TK§Î9)5   3KGHB 230400Z AUTO 11012G20KT 10SM BKN034 22/19 A3010 RMK A01KGHB2019-04-23T04:00:00Z27.83-91.9822.019.0110122010.030.100393TRUETRUEVFRMETAR30.02019-04-23 04:05:56B§Î8(y5    3KDSF 230400Z AUTO 05010KT 10SM CLR 21/15 A3014 RMK A01KDSF2019-04-23T04:00:00Z28.35-88.2721.015.0501010.030.138779TRUETRUEVFRMETAR130.02019-04-23 04:05:56-§Î7(e5   3SBAR 230400Z 09008KT 9999 SCT017 28/23 Q1012SBAR2019-04-23T04:00:00Z-10.97-37.0728.023.09086.2129.88189VFRMETAR9.02019-04-23 04:05:56"§Î6(Y5   3SCVM 230400Z 00000KT CAVOK 09/08 Q1016SCVM2019-04-23T04:00:00Z-32.95-71.489.08.0006.2130.0VFRMETAR141.02019-04-23 04:05:562§Î5(e5   3SBBR 230400Z 26003KT 9999 FEW046 20/19 Q1019SBBR2019-04-23T04:00:00Z-15.87-47.9220.019.026036.2130.088583VFRMETAR1061.02019-04-23 04:05:56 Y.xÉY4§Î>(i5    3KVOA 230400Z AUTO 10SM CLR 21/12 A3015 RMK A01KVOA2019-04-23T04:00:00Z29.23-87.7821.012.010.030.15059TRUETRUEVFRMETAR53.02019-04-23 04:05:560§Î=(e5   3GBYD 230400Z 26010KT 9999 SCT010 19/18 Q1010GBYD2019-04-23T04:00:00Z13.33-16.6519.018.0260106.2129.822834VFRMETAR36.02019-04-23 04:05:56)§Î<(Y5   3SBGL 230400Z 31003KT CAVOK 26/23 Q1014SBGL2019-04-23T04:00:00Z-22.82-43.2526.023.031036.2129.940945VFRMETAR6.02019-04-23 04:05:560§Î;(e5   3SBGO 230400Z 05005KT 9999 FEW025 21/19 Q1017SBGO2019-04-23T04:00:00Z-16.62-49.2221.019.05056.2130.029528VFRMETAR747.02019-04-23 04:05:56L§Î:)5    3NFNA 230400Z 19005KT 2000 +SHRA BKN012TCU BKN044 OVC090 25/25 Q1009NFNA2019-04-23T04:00:00Z-18.05178.5725.025.019051.2429.793306+SHRAIFRSPECI5.02019-04-23 04:05:56 J9u¬ýJ-§ÎC(e5   3SBEG 230400Z 08001KT 9999 FEW018 24/23 Q1011SBEG2019-04-23T04:00:00Z-3.02-60.0324.023.08016.2129.852362VFRMETAR2.02019-04-23 04:05:56)§ÎB(Y5   3SBLO 230400Z 00000KT CAVOK 21/20 Q1017SBLO2019-04-23T04:00:00Z-23.32-51.1221.020.0006.2130.029528VFRMETAR570.02019-04-23 04:05:56C§ÎA)5    3SBSG 230400Z 23003KT 9999 VCSH SCT017 FEW025TCU 25/24 Q1011SBSG2019-04-23T04:00:00Z-5.77-35.3725.024.023036.2129.852362VCSHVFRMETAR83.02019-04-23 04:05:56>§Î@(y5    3SPJC 230400Z 27002KT CAVOK 21/19 Q1013 NOSIG RMK PP000SPJC2019-04-23T04:00:00Z-12.02-77.1221.019.027026.2129.911417TRUEVFRMETAR13.02019-04-23 04:05:56A§Î?(y5    3KUSE 230400Z AUTO 19007KT 10SM CLR 16/09 A3001 RMK AO2KUSE2019-04-23T04:00:00Z41.62-84.1316.09.0190710.030.008858TRUETRUEVFRMETAR238.02019-04-23 04:05:56 GB‹Ç G<§ÎH(w5    3MGGT 230400Z 03006KT 8000 BKN014 20/13 Q1027 A3033 HZMGGT2019-04-23T04:00:00Z14.57-90.5320.013.03064.9730.324802HZMVFRMETAR1509.02019-04-23 04:05:568§ÎG(s5   3NFTV 230400Z 10013KT 9999 SCT017 BKN120 27/22 Q1012NFTV2019-04-23T04:00:00Z-18.58-173.9727.022.0100136.2129.88189VFRMETAR71.02019-04-23 04:05:56>§ÎF)5   3NFTL 230400Z 07016KT 9999 SCT010 SCT017 BKN110 26/20 Q1012NFTL2019-04-23T04:00:00Z-19.78-174.3326.020.070166.2129.88189VFRMETAR3.02019-04-23 04:05:561§ÎE(e5    3OLBA 230400Z 14007KT CAVOK 13/08 Q1023 NOSIGOLBA2019-04-23T04:00:00Z33.8235.4713.08.014076.2130.206694TRUEVFRMETAR19.02019-04-23 04:05:568§ÎD(q5    3WIII 230400Z 09016KT 9000 SCT020 34/23 Q1007 NOSIGWIII2019-04-23T04:00:00Z-6.13106.6734.023.090165.5929.734253TRUEVFRMETAR8.02019-04-23 04:05:56 N9}¹N/§ÎM(e5   3SBSL 230400Z 19002KT 9999 BKN017 25/24 Q1011SBSL2019-04-23T04:00:00Z-2.6-44.2225.024.019026.2129.852362MVFRMETAR53.02019-04-23 04:05:560§ÎL(e5   3SBCT 230400Z 11005KT 9999 OVC007 17/17 Q1020SBCT2019-04-23T04:00:00Z-25.52-49.1717.017.011056.2130.11811IFRMETAR908.02019-04-23 04:05:56>§ÎK)5   3SKBQ 230400Z 36007KT 320V020 9999 FEW015 SCT200 27/23 A2987SKBQ2019-04-23T04:00:00Z10.9-74.7727.023.036076.2129.870079VFRMETAR10.02019-04-23 04:05:566§ÎJ(q5    3FOOL 230400Z 14004KT 9999 FEW015 26/24 Q1008 NOSIGFOOL2019-04-23T04:00:00Z0.459.4226.024.014046.2129.763779TRUEVFRMETAR15.02019-04-23 04:05:56A§ÎI)5  3NFTF 230400Z 10011G23KT 9999 FEW010 SCT016TCU OVC100 25/21 Q101 5NFTF2019-04-23T04:00:00Z-21.23-175.1525.021.010011236.21VFRMETAR38.02019-04-23 04:05:56 /Cl­ñ/<§ÎR({5    3OPMT 230400Z 36004KT 2500 HZ NSC 31/19 Q1005 TEMPO 3000OPMT2019-04-23T04:00:00Z30.1871.4231.019.036041.5529.675198HZIFRMETAR123.02019-04-23 04:05:566§ÎQ(s5   3FNLU 230400Z 16005KT 8000 SCT020 BKN070 26/24 Q1009FNLU2019-04-23T04:00:00Z-8.8313.2226.024.016054.9729.793306MVFRMETAR70.02019-04-23 04:05:569§ÎP(s5   3FQLC 230400Z 15010KT 9999 FEW015 SCT070 15/15 Q1021FQLC2019-04-23T04:00:00Z-13.2735.2515.015.0150106.2130.147638VFRMETAR1365.02019-04-23 04:05:56Q§ÎO)5   3AGGM 230400Z 00000KT 9999 HZ FEW017 FEW018CB SCT028 OVC100 29/25 Q1008AGGM2019-04-23T04:00:00Z-8.32157.2729.025.0006.2129.763779HZOVC10000VFRMETAR6.02019-04-23 04:05:567§ÎN(q5    3BKPR 230400Z 14008KT 9999 BKN040 09/06 Q1017 NOSIGBKPR2019-04-23T04:00:00Z42.5821.039.06.014086.2130.029528TRUEVFRMETAR576.02019-04-23 04:05:56 3I…Êó3:§ÎW(y5    3SKCC 230400Z 00000KT 5000 BR SCT010 BKN070 23/23 A2997SKCC2019-04-23T04:00:00Z7.92-72.5223.023.0003.1129.970472BRMVFRMETAR317.02019-04-23 04:05:56Q§ÎV)5    3SMJP 230400Z 14002KT 8000 -SHRA SCT012 SCT020 24/23 Q1012 TEMPO 5000 SHRASMJP2019-04-23T04:00:00Z5.45-55.1724.023.014024.9729.88189-SHRAMVFRMETAR16.02019-04-23 04:05:565§ÎU(s5   3SKBO 230400Z 03003KT 9999 FEW017 BKN080 12/11 A3035SKBO2019-04-23T04:00:00Z4.7-74.1212.011.03036.2130.351377VFRMETAR2548.02019-04-23 04:05:56>§ÎT({5    3SKCL 230400Z 19004KT 6000 -DZ BKN010 BKN090 21/20 A3007SKCL2019-04-23T04:00:00Z3.53-76.3721.020.019043.7330.070866-DZMVFRMETAR969.02019-04-23 04:05:561§ÎS(e5   3SBSJ 230400Z 16004KT 9999 SCT040 20/20 Q1018SBSJ2019-04-23T04:00:00Z-23.22-45.8720.020.016046.2130.059055VFRMETAR646.02019-04-23 04:05:56 H<€À H>§Î\(}5    3SKPE 230400Z 00000KT 4000 BCFG BKN007 SCT070 19/19 A3013SKPE2019-04-23T04:00:00Z4.82-75.7319.019.0002.4930.129921BCFGIFRMETAR1346.02019-04-23 04:05:56.§Î[(e5   3SKBG 230400Z VRB02KT 9999 FEW007 18/18 A3003SKBG2019-04-23T04:00:00Z7.13-73.1818.018.0026.2130.029528VFRMETAR1189.02019-04-23 04:05:56:§ÎZ({5    3SKLT 230400Z 00000KT 9999 -DZ SCT008 BKN080 24/24 A2987SKLT2019-04-23T04:00:00Z-4.2-69.9324.024.0006.2129.870079-DZVFRMETAR84.02019-04-23 04:05:566§ÎY(s5   3SKSP 230400Z 06010KT 9999 FEW018 SCT200 27/22 A2996SKSP2019-04-23T04:00:00Z12.57-81.7227.022.060106.2129.958662VFRMETAR-2.02019-04-23 04:05:56>§ÎX)5   3SKCG 230400Z 04012KT 360V060 9999 FEW013 SCT020 27/24 A2987SKCG2019-04-23T04:00:00Z10.43-75.5227.024.040126.2129.870079VFRMETAR1.02019-04-23 04:05:56 O;ÌO:§Îa(q5    3WADL 230400Z 12008KT 9999 BKN016 31/23 Q1009 NOSIGWADL2019-04-23T04:00:00Z-8.75116.2831.023.012086.2129.793306TRUEMVFRMETAR97.02019-04-23 04:05:567§Î`(m5    3OKBK 230400Z 28005KT 6000 SKC 17/M01 Q1018 NOSIGOKBK2019-04-23T04:00:00Z29.2247.9717.0-1.028053.7330.059055TRUEMVFRMETAR55.02019-04-23 04:05:56/§Î_(c5   3SBMA 230400Z 36005KT CAVOK 24/24 Q1013 RETSSBMA2019-04-23T04:00:00Z-5.37-49.1324.024.036056.2129.911417VFRMETAR102.02019-04-23 04:05:564§Î^(s5   3LWOH 230400Z 12002KT 9999 FEW015 BKN040 08/06 Q1018LWOH2019-04-23T04:00:00Z41.1820.758.06.012026.2130.059055VFRMETAR761.02019-04-23 04:05:56?§Î](5    3MPTO 230400Z 18004KT 9999 FEW018 SCT090 26/22 Q1011 NOSIGMPTO2019-04-23T04:00:00Z9.05-79.3726.022.018046.2129.852362TRUEVFRMETAR45.02019-04-23 04:05:56 PNÜ PJ§Îf)5    3UBBG 230400Z 20002KT 9999 FEW010 BKN083 06/04 Q1024 R30/290060 NOSIGUBBG2019-04-23T04:00:00Z40.7346.326.04.020026.2130.236221TRUEVFRMETAR330.02019-04-23 04:05:566§Îe(s5   3SGAS 230400Z VRB05KT 9999 FEW033 BKN080 23/21 Q1013SGAS2019-04-23T04:00:00Z-25.25-57.5223.021.0056.2129.911417VFRMETAR101.02019-04-23 04:05:56.§Îd(_5   3SGES 230400Z 18004KT 9000 NSC 21/21 Q1014SGES2019-04-23T04:00:00Z-25.45-54.8521.021.018045.5929.940945VFRMETAR849.02019-04-23 04:05:568§Îc(s5   3SBMO 230400Z 20006KT 9999 BKN015 BKN070 24/23 Q1013SBMO2019-04-23T04:00:00Z-9.52-35.7724.023.020066.2129.911417MVFRMETAR115.02019-04-23 04:05:56,§Îb(e5   3SBPV 230400Z 00000KT 9999 FEW030 26/23 Q1011SBPV2019-04-23T04:00:00Z-8.72-63.926.023.0006.2129.852362VFRMETAR88.02019-04-23 04:05:56 31xÇ 3T§Îk)%5    3FAOR 230400Z 04005KT 010V170 5000 +RA BKN005 OVC013 13/12 Q1025 BECMG BKN015FAOR2019-04-23T04:00:00Z-26.1228.2213.012.04053.1130.265747+RAIFRMETAR1700.02019-04-23 04:05:564§Îj(e5    3SAEZ 230400Z 15003KT CAVOK 11/10 Q1021 NOSIGSAEZ2019-04-23T04:00:00Z-34.82-58.5211.010.015036.2130.147638TRUEVFRMETAR20.02019-04-23 04:05:56+§Îi([5   3SAZS 230400Z 18007KT CAVOK 04/M05 Q1018SAZS2019-04-23T04:00:00Z-41.13-71.174.0-5.018076.2130.059055VFRMETAR840.02019-04-23 04:05:563§Îh(s5   3NGTA 230400Z 04009KT 9999 FEW019 SCT300 31/26 Q1006NGTA2019-04-23T04:00:00Z1.37173.1331.026.04096.2129.704725VFRMETAR2.02019-04-23 04:05:56I§Îg)5    3SKRG 230400Z 00000KT 9999 VCSH SCT010 BKN080 15/15 A3033 RMK VCSH/NSKRG2019-04-23T04:00:00Z6.17-75.4215.015.0006.2130.33071VCSHVFRMETAR2137.02019-04-23 04:05:56 N9|¶N-§Îp(e5   3MGPB 230400Z 00000KT CAVOK 24/23 Q1015 A2997MGPB2019-04-23T04:00:00Z15.72-88.5824.023.0006.2129.970472VFRMETAR10.02019-04-23 04:05:56/§Îo(e5   3SVMI 230400Z 11003KT 9999 BKN016 25/22 Q1010SVMI2019-04-23T04:00:00Z10.58-67.025.022.011036.2129.822834MVFRMETAR48.02019-04-23 04:05:56@§În)5   3SLLP 230400Z 02004KT 9999 FEW013 FEW017CB SCT200 07/03 Q1037SLLP2019-04-23T04:00:00Z-16.52-68.177.03.02046.2130.620079VFRMETAR4014.02019-04-23 04:05:567§Îm(s5   3SLVR 230400Z 21003KT 9999 SCT020 BKN200 22/22 Q1012SLVR2019-04-23T04:00:00Z-17.63-63.1222.022.021036.2129.88189VFRMETAR373.02019-04-23 04:05:56A§Îl)5   3SLCB 230400Z 15004KT 100V200 9999 FEW030 SCT080 17/07 Q1023SLCB2019-04-23T04:00:00Z-17.42-66.1817.07.015046.2130.206694VFRMETAR2548.02019-04-23 04:05:56 fb²Ö"f6§Îu(m5    3MDPC 230400Z 09006KT 8000 -RA BKN016 23/22 Q1015MDPC2019-04-23T04:00:00Z18.57-68.3723.022.09064.9729.970472-RAMVFRMETAR12.02019-04-23 04:05:56.§Ît(e5   3MDSD 230400Z 03004KT 9999 FEW016 22/21 Q1014MDSD2019-04-23T04:00:00Z18.42-69.6722.021.03046.2129.940945VFRMETAR18.02019-04-23 04:05:56V§Îs))5     3UBBL 230400Z 32004KT 9999 -RA OVC032 06/06 Q1026 R33/CLRD// NOSIG RMK MT OBSC UBBL2019-04-23T04:00:00Z38.7548.826.06.032046.2130.295275TRUE-RAVFRMETAR10.02019-04-23 04:05:56*§Îr(e5   3MGMM 230400Z 09008KT CAVOK 25/21 Q1016 A3000MGMM2019-04-23T04:00:00Z16.97-89.8725.021.09086.2130.0VFRMETAR123.02019-04-23 04:05:56§Îq(M5   3MGHT 230400Z 00000KT CAVOK 17/09MGHT2019-04-23T04:00:00Z15.32-91.517.09.0006.21VFRMETAR1901.02019-04-23 04:05:56 ?M‰Úü?7§Îz(s5   3SELT 230400Z 34001KT 9999 SCT030 BKN100 10/09 Q1031SELT2019-04-23T04:00:00Z-0.92-78.6210.09.034016.2130.442913VFRMETAR2785.02019-04-23 04:05:56X§Îy)15    3SEGU 230400Z 33004KT 8000 RA FEW008 BKN023 BKN100 24/23 Q1013 TEMPO 6000 RMK A2992SEGU2019-04-23T04:00:00Z-2.13-79.8724.023.033044.9729.911417RAMVFRMETAR9.02019-04-23 04:05:56)§Îx(Y5   3SBFI 230400Z 05002KT CAVOK 20/20 Q1014SBFI2019-04-23T04:00:00Z-25.6-54.4820.020.05026.2129.940945VFRMETAR243.02019-04-23 04:05:56>§Îw(5    3ORBI 230400Z 26008KT 9999 FEW030 FEW100 15/04 Q1017 NOSIGORBI2019-04-23T04:00:00Z33.2744.2315.04.026086.2130.029528TRUEVFRMETAR35.02019-04-23 04:05:56-§Îv(e5   3MDST 230400Z 09004KT 9999 FEW017 22/21 Q1015MDST2019-04-23T04:00:00Z19.4-70.622.021.09046.2129.970472VFRMETAR184.02019-04-23 04:05:56 19Z ç10§Î(e5    3OEJN 230400Z 02006KT CAVOK 22/17 Q1012 NOSIGOEJN2019-04-23T04:00:00Z21.6839.1522.017.02066.2129.88189TRUEVFRMETAR15.02019-04-23 04:05:563§Î~(g5    3OEMA 230400Z 04008KT CAVOK 19/M14 Q1017 NOSIGOEMA2019-04-23T04:00:00Z24.5539.719.0-14.04086.2130.029528TRUEVFRMETAR631.02019-04-23 04:05:564§Î}(g5    3OERK 230400Z 35007KT CAVOK 16/M06 Q1019 NOSIGOERK2019-04-23T04:00:00Z24.9546.7216.0-6.035076.2130.088583TRUEVFRMETAR612.02019-04-23 04:05:56Y§Î|))5     3SEQM 230400Z 06002KT 9999 -RA FEW003 SCT026 BKN080 14/13 Q1028 NOSIG RMK A3037SEQM2019-04-23T04:00:00Z-0.12-78.3514.013.06026.2130.35433TRUE-RAVFRMETAR2400.02019-04-23 04:05:56A§Î{)5   3SEMT 230400Z 18005KT 9999 SCT026 SCT120 24/22 Q1013 RMK A2992SEMT2019-04-23T04:00:00Z-0.95-80.6724.022.018056.2129.911417VFRMETAR14.02019-04-23 04:05:56 QH–æ'QP§Ï)5    3K3LF 230400Z AUTO 18007KT 10SM OVC050 18/13 A2997 RMK AO2 T01830127K3LF2019-04-23T04:00:00Z39.17-89.6718.312.7180710.029.970472TRUETRUEVFRMETAR210.02019-04-23 04:05:569§Ï(y5   3SPCL 230400Z 03004KT 9999 SCT020 26/24 Q1011 RMK PP000SPCL2019-04-23T04:00:00Z-8.38-74.5826.024.03046.2129.852362VFRMETAR149.02019-04-23 04:05:56*§Ï(Y5   3SBPL 230400Z 17004KT CAVOK 26/17 Q1014SBPL2019-04-23T04:00:00Z-9.37-40.5726.017.017046.2129.940945VFRMETAR375.02019-04-23 04:05:56,§Ï(e5    3OEDF 230400Z 32012KT CAVOK 19/05 Q1016 NOSIGOEDF2019-04-23T04:00:00Z26.4749.819.05.0320126.2130.0TRUEVFRMETAR22.02019-04-23 04:05:562§Ï(e5    3OEDR 230400Z 35018KT CAVOK 22/08 Q1014 NOSIGOEDR2019-04-23T04:00:00Z26.2750.1722.08.0350186.2129.940945TRUEVFRMETAR17.02019-04-23 04:05:56 RG„ÃR+§Ï (Y5   3SARL 230400Z 14011KT CAVOK 16/10 Q1018SARL2019-04-23T04:00:00Z-29.67-57.1316.010.0140116.2130.059055VFRMETAR70.02019-04-23 04:05:56:§Ï(y5  3SAWH 230400Z 23022G29KT 9999 SCT040 BKN070 06/01 Q1011SAWH2019-04-23T04:00:00Z-54.85-68.36.01.023022296.2129.852362VFRMETAR14.02019-04-23 04:05:56;§Ï(}5    3LUKK 230400Z VRB01KT CAVOK 02/M00 Q1027 R08/CLRD// NOSIGLUKK2019-04-23T04:00:00Z46.9328.932.00.0016.2130.324802TRUEVFRMETAR122.02019-04-23 04:05:56=§Ï(}5    3FIMP 230400Z 00000KT 9999 VCSH SCT015 SCT050 26/24 Q1015FIMP2019-04-23T04:00:00Z-20.4257.6726.024.0006.2129.970472VCSHVFRMETAR57.02019-04-23 04:05:563§Ï(g5    3HSSS 230400Z 36007KT CAVOK 21/M06 Q1012 NOSIGHSSS2019-04-23T04:00:00Z15.5832.5321.0-6.036076.2129.88189TRUEVFRMETAR380.02019-04-23 04:05:56Y8q8@HPX`hpx€ˆ˜ ¨°¸ÀÈÐØàèðø (08@HPX`hpx€ˆ˜ ¨°¸ÀÈÐØàèðø (08@HPX`hpx€ˆ˜ ¨°¸ÀÈÐØàèðø ¨°¸ÀÈÐØàèðø§Ë9§Ë=§ËA§ËE§ËI§ËM§ËQ§ËV §Ë[!§Ë`"§Ëe#§Ëj§Ë9§Ë=§ËA§ËE§ËI§ËM§ËQ§ËV §Ë[!§Ë`"§Ëe#§Ëj$§Ëo%§Ët&§Ëy'§Ë}(§Ì)§Ì*§Ì +§Ì,§Ì-§Ì.§Ì/§Ì0§Ì#1§Ì'2§Ì+3§Ì/4§Ì35§Ì76§Ì;7§Ì?8§ÌC9§ÌG:§ÌL;§ÌP<§ÌT=§ÌX>§Ì\?§Ì`@§ÌdA§ÌhB§ÌlC§ÌpD§ÌtE§ÌxF§Ì|G§ÍH§ÍI§ÍJ§Í K§ÍL§ÍM§ÍN§ÍO§Í!P§Í%Q§Í*R§Í/S§Í4T§Í9U§Í>V§ÍCW§ÍHX§ÍMY§ÍQZ§ÍV[§Í[\§Í`]§Íe^§Íj_§Ío`§Íta§Íyb§Í~c§Îd§Îe§Î f§Îg§Îh§Îi§Î!j§Î&k§Î*l§Î/m§Î4n§Î9o§Î>p§ÎCY8Í8@HPX`hpx€ˆ˜ ¨°¸ÀÈÐØàèðø (08@HPX`hpx€ˆ˜ ¨°¸ÀÈÐØàèðø (08@HPX`hpx€ˆ˜ ¨°¸ÀÈÐØàèðø ¨°¸ÀÈÐØàèðør§ÎMs§ÎRt§ÎWu§Î\v§Îaw§Îfx§Îky§Îpz§Îu{§Îz|§Î}§Ïr§ÎMs§ÎRt§ÎWu§Î\v§Îaw§Îfx§Îky§Îpz§Îu{§Îz|§Î}§Ï~§Ï §Ï‚§Ïƒ§Ï„§Ï…§Ï"†§Ï'‡§Ï,ˆ§Ï0‰§Ï4Š§Ï8‹§Ï<Œ§Ï@§ÏDŽ§ÏH§ÏL§ÏP‘§ÏT’§ÏX“§Ï\”§Ï`•§Ïd–§Ïh—§Ïl˜§Ïp™§Ïtš§Ïx›§Ï|œ§Ð§Ðž§ÐŸ§Ð  §Ð¡§Ð¢§Ð£§Ð¤§Ð¥§Ð¦§Ð#§§Ð'¨§Ð+©§Ð/ª§Ð3«§Ð7¬§Ð;­§Ð?®§ÐC¯§ÐG°§ÐK±§ÐO²§ÐS³§ÐW´§Ð[µ§Ð_¶§Ðc·§Ðg¸§Ðk¹§Ðoº§Ðs»§Ðw¼§Ð{½§Ð¾§Ñ¿§ÑÀ§Ñ Á§Ñ§ÑçÑħÑŧÑƧÑ#ǧÑ'ȧÑ+ɧÑ/ʧÑ3˧Ñ7̧Ñ; =G„Æ =J§Ï) 5    3PKWA 230400Z AUTO 06017KT 10SM CLR 30/23 A2982 RMK AO2 T03020233PKWA2019-04-23T04:00:00Z8.72167.7230.223.3601710.029.819881TRUETRUEVFRMETAR8.02019-04-23 04:05:563§Ï (o5    3SCSN 230400Z AUTO 05004KT 9999 BKN007 11/10 Q1016SCSN2019-04-23T04:00:00Z-33.63-71.6211.010.05046.2130.0TRUEIFRMETAR75.02019-04-23 04:05:568§Ï (s5    3SCON 230400Z AUTO 24007KT 210V280 CAVOK 09/08 Q1022SCON2019-04-23T04:00:00Z-43.12-73.629.08.024076.2130.177166TRUEVFRMETAR3.02019-04-23 04:05:56=§Ï (5   3SCFT 230400Z AUTO 29004KT 230V320 9999 ///011 06/05 Q1022SCFT2019-04-23T04:00:00Z-43.17-71.856.05.029046.2130.177166TRUEMETAR318.02019-04-23 04:05:563§Ï (o5   3SCAP 230400Z AUTO VRB02KT 9999 ////// 05/03 Q1024SCAP2019-04-23T04:00:00Z-43.62-71.785.03.0026.2130.236221TRUEMETAR277.02019-04-23 04:05:56 f@ŠËf)§Ï(Y5   3SCSE 230400Z 12005KT CAVOK 11/09 Q1015SCSE2019-04-23T04:00:00Z-29.92-71.211.09.012056.2129.970472VFRMETAR146.02019-04-23 04:05:560§Ï(e5   3SCQP 230400Z 18006KT 9999 OVC016 11/08 Q1017SCQP2019-04-23T04:00:00Z-38.92-72.6511.08.018066.2130.029528MVFRMETAR97.02019-04-23 04:05:569§Ï(q5    3SCTE 230400Z 18011KT 9999 OVC011 09/07 Q1020 NOSIGSCTE2019-04-23T04:00:00Z-41.42-73.079.07.0180116.2130.11811TRUEMVFRMETAR86.02019-04-23 04:05:560§Ï(e5   3SCVD 230400Z 20005KT 9999 OVC020 10/07 Q1019SCVD2019-04-23T04:00:00Z-39.65-73.0710.07.020056.2130.088583MVFRMETAR14.02019-04-23 04:05:56:§Ï(5    3SCCI 230400Z 25013KT 9999 FEW040 SCT100 05/01 Q1016 NOSIGSCCI2019-04-23T04:00:00Z-53.0-70.835.01.0250136.2130.0TRUEVFRMETAR37.02019-04-23 04:05:56 €Uè7€1§Ï(c5    3SCBA 230400Z AUTO 24004KT CAVOK 04/01 Q1020SCBA2019-04-23T04:00:00Z-45.92-71.674.01.024046.2130.11811TRUEVFRMETAR524.02019-04-23 04:05:56+§Ï([5   3SCCF 230400Z 11011KT CAVOK 07/M09 Q1026SCCF2019-04-23T04:00:00Z-22.5-68.97.0-9.0110116.2130.295275VFRMETAR2312.02019-04-23 04:05:56/§Ï(e5   3SCIE 230400Z 01004KT 9999 OVC015 12/09 Q1017SCIE2019-04-23T04:00:00Z-36.77-73.0712.09.01046.2130.029528MVFRMETAR16.02019-04-23 04:05:562§Ï(o5    3SCAT 230400Z AUTO 00000KT 9999 // NCD 13/09 Q1016SCAT2019-04-23T04:00:00Z-27.27-70.7713.09.0006.2130.0TRUEVFRMETAR204.02019-04-23 04:05:56%§Ï(Y5   3SCDA 230400Z 17003KT CAVOK 18/13 Q1016SCDA2019-04-23T04:00:00Z-20.52-70.1718.013.017036.2130.0VFRMETAR52.02019-04-23 04:05:56 XW•äX<§Ï({5    3SBMQ 230400Z 21003KT 3000 -RA BKN008 OVC080 26/26 Q1011SBMQ2019-04-23T04:00:00Z0.05-51.0726.026.021031.8629.852362-RAIFRMETAR15.02019-04-23 04:05:56D§Ï(5    3SANT 230400Z 20006KT 2500 -DZBR SCT003 OVC008 12/12 Q1021SANT2019-04-23T04:00:00Z-26.85-65.0812.012.020061.5530.147638-DZ BRIFRMETAR450.02019-04-23 04:05:56+§Ï(Y5   3SBRP 230400Z 12004KT CAVOK 20/18 Q1015SBRP2019-04-23T04:00:00Z-21.12-47.7720.018.012046.2129.970472VFRMETAR549.02019-04-23 04:05:56<§Ï(q5    3SCFA 230400Z 18008KT 9999 OVC028 18/13 Q1015 NOSIGSCFA2019-04-23T04:00:00Z-23.42-70.4218.013.018086.2129.970472TRUEMVFRMETAR120.02019-04-23 04:05:56#§Ï(Y5   3SCAR 230400Z 00000KT CAVOK 18/11 Q1016SCAR2019-04-23T04:00:00Z-18.35-70.3218.011.0006.2130.0VFRMETAR59.02019-04-23 04:05:56 8Lt¯ô86§Ï"(o5    3SCTN 230400Z AUTO 15004KT 9999 BKN020 09/07 Q1021SCTN2019-04-23T04:00:00Z-42.92-72.79.07.015046.2130.147638TRUEMVFRMETAR4.02019-04-23 04:05:565§Ï!(u5   3SCCH 230400Z AUTO 22006KT 9999 ///////// 11/10 Q1016SCCH2019-04-23T04:00:00Z-36.57-72.0211.010.022066.2130.0TRUEMETAR148.02019-04-23 04:05:56?§Ï (w5     3SCRM 230400Z 30013KT 0400 FG OVC005 00/00 Q0997 NOSIGSCRM2019-04-23T04:00:00Z-62.18-58.980.00.0300130.2529.438976TRUEFGLIFRMETAR45.02019-04-23 04:05:56R§Ï)5     3SCIC 230400Z AUTO 19006KT 160V230 0600 R/////// FG VV002 09/09 Q1015SCIC2019-04-23T04:00:00Z-34.97-71.229.09.019060.3729.970472TRUEFGLIFR200METAR242.02019-04-23 04:05:56.§Ï(c5    3SCCY 230400Z AUTO VRB03KT CAVOK 06/03 Q1020SCCY2019-04-23T04:00:00Z-45.57-72.16.03.0036.2130.11811TRUEVFRMETAR311.02019-04-23 04:05:56 ;j…ׁ9§Ï'(q5     3VGHS 230400Z 12005KT 3500 HZ NSC 31/22 Q1011 NOSIGVGHS2019-04-23T04:00:00Z23.8590.431.022.012052.1729.852362TRUEHZIFRMETAR10.02019-04-23 04:05:56(§Ï&(Y5   3SBRJ 230400Z 04003KT CAVOK 26/24 Q1014SBRJ2019-04-23T04:00:00Z-22.88-43.1726.024.04036.2129.940945VFRMETAR3.02019-04-23 04:05:56_§Ï%)?5    3UBBN 230400Z 13006KT 9999 SCT040CB BKN080 04/M01 Q1020 R14R/CLRD// NOSIG RMK MT OP QFE690UBBN2019-04-23T04:00:00Z39.1845.454.0-1.013066.2130.11811TRUEVFRMETAR873.02019-04-23 04:05:56K§Ï$)5    3SCIP 230400Z 16003KT 070V180 9999 FEW020 SCT040 22/21 Q1024 NOSIGSCIP2019-04-23T04:00:00Z-27.17-109.4322.021.016036.2130.236221TRUEVFRMETAR69.02019-04-23 04:05:56?§Ï#(5    3SCPQ 230400Z AUTO 19011KT //// R35/P2000N NCD 08/06 Q1021SCPQ2019-04-23T04:00:00Z-42.33-73.728.06.0190111.2430.147638TRUEIFRMETAR5.02019-04-23 04:05:56 (0xÂ(`§Ï,)!5    3KNOZ 230359Z AUTO 29007KT 10SM CLR 25/01 A2983 RMK AO2 SLP052 T02500006 $ KNOZ2019-04-23T03:59:00Z32.5-114.4525.00.6290710.029.8287411005.2TRUETRUETRUEVFRMETAR103.02019-04-23 04:05:56.§Ï+(_5   3SBKP 230400Z 12011KT 9000 NSC 22/19 Q1017SBKP2019-04-23T04:00:00Z-23.0-47.1222.019.0120115.5930.029528VFRMETAR661.02019-04-23 04:05:560§Ï*(e5    3HECA 230400Z 05006KT CAVOK 14/07 Q1021 NOSIGHECA2019-04-23T04:00:00Z30.1231.3814.07.05066.2130.147638TRUEVFRMETAR74.02019-04-23 04:05:562§Ï)(e5    3OBBI 230400Z 33024KT CAVOK 22/10 Q1015 NOSIGOBBI2019-04-23T04:00:00Z26.2750.6322.010.0330246.2129.970472TRUEVFRMETAR2.02019-04-23 04:05:56J§Ï()5   3LEJR 230400Z 22019G29KT 9999 -RA BKN012 BKN030 BKN048 14/13 Q1000LEJR2019-04-23T04:00:00Z36.75-6.0714.013.022019296.2129.52756-RAMVFRMETAR30.02019-04-23 04:05:56 ¸'N¥¸g§Ï0)/5    3KU16 230358Z AUTO 06008KT 10SM SCT070 12/05 A3016 RMK AO2 SLP832 T01220050 PNO $ KU162019-04-23T03:58:00Z41.05-113.0712.25.060810.030.159449983.2TRUETRUETRUEVFRMETAR1292.02019-04-23 04:05:56#§Ï/(W5   3MUCF 230359Z AUTO 06007KT 21/18 Q1018MUCF2019-04-23T03:59:00Z22.13-80.421.018.060730.059055TRUEMETAR39.02019-04-23 04:05:56S§Ï.)5    3CYUX 230359Z AUTO 27010KT 9SM SCT060 SCT083 M24/M27 A2996 RMK SLP149CYUX2019-04-23T03:59:00Z68.77-81.25-24.0-27.0270109.029.9586621014.9TRUEVFRSPECI8.02019-04-23 04:05:56S§Ï-)5    3KNGU 230359Z 20003KT 10SM FEW280 13/10 A3011 RMK AO2 SLP196 T01330100 KNGU2019-04-23T03:59:00Z36.92-76.2713.310.0200310.030.1092531019.6TRUEVFRMETAR5.02019-04-23 04:05:56 F8OF‚§Ï4)e5    3KTCM 230358Z AUTO 23006KT 10SM FEW032 FEW044 OVC055 11/11 A3022 RMK AO2 SLP238 T01080108 RVRNO CHINO RWY34 $KTCM2019-04-23T03:58:00Z47.12-122.4710.810.8230610.030.2214571023.8TRUETRUETRUEVFRMETAR98.02019-04-23 04:05:56c§Ï3)%5    3KVBG 230358Z AUTO 01004KT 10SM OVC005 11/10 A3003 RMK AO2 SLP173 T01090103 $KVBG2019-04-23T03:58:00Z34.73-120.5810.910.310410.030.0295281017.3TRUETRUETRUEIFRMETAR112.02019-04-23 04:05:56]§Ï2)#5    3MHSC 230358Z AUTO 34012KT 9999 BKN095 23/20 A3004 RMK AO2 SLPNO T02330200 $MHSC2019-04-23T03:58:00Z14.37-87.6223.320.0340126.2130.041338TRUETRUETRUEVFRMETAR626.02019-04-23 04:05:56_§Ï1)#5     3OAIX 230358Z 00000KT 8000 HZ BKN110 16/11 A3009 RMK AO2A SLP109 T01600108 $OAIX2019-04-23T03:58:00Z34.9569.2716.010.8004.9730.0885831010.9TRUETRUEHZMVFRMETAR1492.02019-04-23 04:05:56 V;V_§Ï8)5    3KMUO 230358Z AUTO 30008KT 10SM CLR 13/01 A3015 RMK AO2 SLP204 T01260010 $KMUO2019-04-23T03:58:00Z43.03-115.8712.61.0300810.030.150591020.4TRUETRUETRUEVFRMETAR913.02019-04-23 04:05:56U§Ï7)5    3KHIF 230358Z 09007KT 10SM FEW060 11/02 A3017 RMK AO2A SLP194 T01130015KHIF2019-04-23T03:58:00Z41.12-111.9711.31.590710.030.1712591019.4TRUEVFRMETAR1459.02019-04-23 04:05:56§Ï6)U5      3KSKA 230358Z 20007KT 10SM -RA SCT065 BKN080 13/05 A3010 RMK AO2A RAE26RAB36 SLP196 P0000 T01320046 $KSKA2019-04-23T03:58:00Z47.62-117.6513.24.6200710.030.1003931019.6TRUETRUE-RAVFR0.005METAR750.02019-04-23 04:05:56_§Ï5)5    3KSUU 230358Z AUTO 22007KT 10SM CLR 17/09 A2997 RMK AO2 SLP155 T01720091 $KSUU2019-04-23T03:58:00Z38.27-121.9217.29.1220710.029.9704721015.5TRUETRUETRUEVFRMETAR19.02019-04-23 04:05:56 e1G_et§Ï<)K5    3KGOV 230358Z AUTO 04004KT 10SM FEW060 BKN100 13/05 A2987 RMK AO2 LTG DSNT NW SLP119 T01250052 $KGOV2019-04-23T03:58:00Z44.68-84.7312.55.240410.029.8700791011.9TRUETRUETRUEVFRMETAR353.02019-04-23 04:05:56b§Ï;)+5    3KGRF 230358Z 19005KT 10SM BKN031 OVC045 11/11 A3022 RMK AO2A SLP238 T01070107 $KGRF2019-04-23T03:58:00Z47.07-122.5710.710.7190510.030.2214571023.8TRUETRUEVFRMETAR92.02019-04-23 04:05:56d§Ï:)%5    3KHMN 230358Z AUTO 34010KT 10SM OVC130 12/09 A3002 RMK AO2 SLP118 T01230091 $KHMN2019-04-23T03:58:00Z32.85-106.0812.39.13401010.030.020671011.8TRUETRUETRUEVFRMETAR1248.02019-04-23 04:05:56I§Ï9) 5    3KESN 230358Z AUTO 00000KT 10SM CLR 14/11 A3010 RMK AO2 T01410112KESN2019-04-23T03:58:00Z38.8-76.0714.111.20010.030.100393TRUETRUEVFRMETAR22.02019-04-23 04:05:56 ‚$Ia‚Y§Ï@)#5    3KSAW 230358Z AUTO 01019G22KT 1/2SM -SN OVC002 02/02 A2998 RMK AO2 T00210016KSAW2019-04-23T03:58:00Z46.35-87.42.11.61019220.529.97933TRUETRUE-SNLIFRMETAR372.02019-04-23 04:05:56b§Ï?)%5    3K1BW 230358Z AUTO 21005KT 10SM BKN033 05/02 A3027 RMK AO2 SLP258 T00460017 $K1BW2019-04-23T03:58:00Z41.52-104.04.61.7210510.030.2687021025.8TRUETRUETRUEVFRMETAR1607.02019-04-23 04:05:56U§Ï>)5    3KBKF 230358Z 09003KT 10SM OVC023 06/04 A3027 RMK AO2A SLP241 T00590042KBKF2019-04-23T03:58:00Z39.72-104.755.94.290310.030.2687021024.1TRUEMVFRMETAR1726.02019-04-23 04:05:56V§Ï=)5    3KEDW 230358Z 29012KT 50SM SCT120 20/02 A2997 RMK AO2A SLP135 T01980022KEDW2019-04-23T03:58:00Z34.88-117.8719.82.22901250.029.9704721013.5TRUEVFRMETAR702.02019-04-23 04:05:56 i=Pia§ÏD)%5    3K1NM 230358Z AUTO 00000KT 10SM BKN240 11/02 A2998 RMK AO2 SLP164 T01100020 $K1NM2019-04-23T03:58:00Z47.07-109.0311.02.00010.029.979331016.4TRUETRUETRUEVFRMETAR1161.02019-04-23 04:05:56g§ÏC)A5    3KGXA 230358Z AUTO 00000KT 10SM FEW120 18/M01 A3000 RMK AO2 SLP137 WND DATA ESTMD T01771012KGXA2019-04-23T03:58:00Z34.57-117.6717.7-1.20010.030.01013.7TRUETRUEVFRMETAR923.02019-04-23 04:05:56\§ÏB)5    3KGXF 230358Z AUTO 22006KT 10SM CLR 23/M05 A2980 RMK AO2 SLP082 T02281052KGXF2019-04-23T03:58:00Z32.87-112.7222.8-5.2220610.029.7992131008.2TRUETRUEVFRMETAR262.02019-04-23 04:05:56[§ÏA)!5    3KROG 230358Z AUTO 00000KT 10SM OVC049 19/16 A3007 RMK AO2 SLP173 T01890156KROG2019-04-23T03:58:00Z36.37-94.0818.915.60010.030.0708661017.3TRUETRUEVFRMETAR415.02019-04-23 04:05:56 f0If]§ÏH)5    3K1IM 230358Z AUTO 24012KT 10SM CLR 12/01 A3000 RMK AO2 SLP169 T01170011 $K1IM2019-04-23T03:58:00Z47.32-111.4711.71.12401210.030.01016.9TRUETRUETRUEVFRMETAR1108.02019-04-23 04:05:56a§ÏG)5    3K1JM 230358Z AUTO 22011KT 10SM CLR 09/01 A2997 RMK AO2 SLP165 T00940011 $K1JM2019-04-23T03:58:00Z47.75-111.559.41.12201110.029.9704721016.5TRUETRUETRUEVFRMETAR1152.02019-04-23 04:05:56b§ÏF)%5    3K1KM 230358Z AUTO 21007KT 10SM BKN230 09/03 A3006 RMK AO2 SLP193 T00920033 $K1KM2019-04-23T03:58:00Z46.45-109.89.23.3210710.030.0590551019.3TRUETRUETRUEVFRMETAR1330.02019-04-23 04:05:56b§ÏE)%5    3K1LM 230358Z AUTO 17007KT 10SM BKN220 09/02 A3006 RMK AO2 SLP193 T00880021 $K1LM2019-04-23T03:58:00Z46.7-109.738.82.1170710.030.0590551019.3TRUETRUETRUEVFRMETAR1414.02019-04-23 04:05:56 s4QsX§ÏL)5    3KHUA 230358Z AUTO 00000KT 10SM CLR 16/10 A3012 RMK AO2 SLP197 T01560103KHUA2019-04-23T03:58:00Z34.68-86.6815.610.30010.030.1210631019.7TRUETRUEVFRMETAR209.02019-04-23 04:05:56]§ÏK)!5    3KGRK 230358Z AUTO 14010KT 10SM OVC170 20/15 A3002 RMK AO2 SLP158 T02010154KGRK2019-04-23T03:58:00Z31.07-97.8320.115.41401010.030.020671015.8TRUETRUEVFRMETAR309.02019-04-23 04:05:56c§ÏJ)%5    3K1FM 230358Z AUTO 24008KT 10SM BKN240 11/00 A2999 RMK AO2 SLP163 T01070002 $K1FM2019-04-23T03:58:00Z47.6-112.3210.70.2240810.029.9911421016.3TRUETRUETRUEVFRMETAR1116.02019-04-23 04:05:56]§ÏI)5    3K1GM 230358Z AUTO 21017KT 10SM CLR 10/00 A3000 RMK AO2 SLP164 T01011002 $K1GM2019-04-23T03:58:00Z47.33-112.110.1-0.22101710.030.01016.4TRUETRUETRUEVFRMETAR1311.02019-04-23 04:05:56 W!74WW§ÏP)5    3KLOR 230358Z AUTO 00000KT 10SM CLR 15/13 A3014 RMK AO2 SLP188 T01470127KLOR2019-04-23T03:58:00Z31.35-85.7514.712.70010.030.1387791018.8TRUETRUEVFRMETAR74.02019-04-23 04:05:56}§ÏO)O5     3KCWN 230358Z AUTO 31003KT 5SM -SHRA OVC013 04/03 A3022 RMK AO2 DZB25E42SHRAB42 SLP134 T00390027 $KCWN2019-04-23T03:58:00Z38.75-104.853.92.731035.030.2214571013.4TRUETRUETRUE-SHRAMVFRMETAR2040.02019-04-23 04:05:56d§ÏN)%5    3K1BM 230358Z AUTO 26014KT 10SM FEW210 11/01 A2998 RMK AO2 SLP160 T01120011 $K1BM2019-04-23T03:58:00Z47.28-110.3711.21.12601410.029.979331016.0TRUETRUETRUEVFRMETAR1234.02019-04-23 04:05:56Y§ÏM)5    3K1AM 230358Z AUTO 00000KT 10SM CLR 12/00 A3000 RMK AO2 SLP113 T01210003 $K1AM2019-04-23T03:58:00Z47.28-110.812.10.30010.030.01011.3TRUETRUETRUEVFRMETAR1219.02019-04-23 04:05:56 wAawd§ÏT)%5    3K1OM 230358Z AUTO 23012KT 10SM FEW220 13/01 A2998 RMK AO2 SLP151 T01320007 $K1OM2019-04-23T03:58:00Z47.33-108.9313.20.72301210.029.979331015.1TRUETRUETRUEVFRMETAR1086.02019-04-23 04:05:56Z§ÏS)5    3KSLI 230358Z AUTO 18006KT 10SM CLR 15/14 A2996 RMK AO2 SLP148 T01470136KSLI2019-04-23T03:58:00Z33.77-118.0314.713.6180610.029.9586621014.8TRUETRUEVFRMETAR11.02019-04-23 04:05:56W§ÏR)5    3KHEY 230358Z AUTO 00000KT 10SM CLR 17/12 A3014 RMK AO2 SLP207 T01650120KHEY2019-04-23T03:58:00Z31.35-85.6516.512.00010.030.1387791020.7TRUETRUEVFRMETAR97.02019-04-23 04:05:56\§ÏQ)5    3KHLR 230358Z AUTO 15011KT 8SM BKN150 21/16 A2999 RMK AO2 SLP147 T02070157KHLR2019-04-23T03:58:00Z31.13-97.7220.715.7150118.029.9911421014.7TRUETRUEVFRMETAR283.02019-04-23 04:05:56 D/RD‚§ÏX)c5     3KCVS 230358Z AUTO 06016KT 10SM FEW100 OVC120 10/09 A3011 RMK AO2 RAE0258DZB0258E07 SLP172 P0000 T01030089 $KCVS2019-04-23T03:58:00Z34.37-103.3210.38.9601610.030.1092531017.2TRUETRUETRUEVFR0.005METAR1309.02019-04-23 04:05:56W§ÏW)5    3KPOE 230358Z AUTO 15003KT 9SM CLR 18/15 A3009 RMK AO2 SLP190 T01820152KPOE2019-04-23T03:58:00Z31.05-93.218.215.215039.030.0885831019.0TRUETRUEVFRMETAR101.02019-04-23 04:05:56b§ÏV)%5    3K1CM 230358Z AUTO 23006KT 10SM SCT240 09/01 A3001 RMK AO2 SLP170 T00910009 $K1CM2019-04-23T03:58:00Z47.1-110.179.10.9230610.030.0088581017.0TRUETRUETRUEVFRMETAR1337.02019-04-23 04:05:56c§ÏU)%5    3K1EM 230358Z AUTO 20005KT 10SM BKN220 11/02 A2998 RMK AO2 SLP163 T01050024 $K1EM2019-04-23T03:58:00Z47.45-109.4210.52.4200510.029.979331016.3TRUETRUETRUEVFRMETAR1116.02019-04-23 04:05:56 k6Ok^§Ï\)5    3KFHU 230358Z AUTO 21011KT 10SM CLR 17/M06 A2999 RMK AO2 SLP101 T01651059KFHU2019-04-23T03:58:00Z31.58-110.3516.5-5.92101110.029.9911421010.1TRUETRUEVFRMETAR1438.02019-04-23 04:05:56a§Ï[)5    3KGFA 230358Z AUTO 23013KT 10SM CLR 13/01 A2999 RMK AO2 SLP163 T01300012 $KGFA2019-04-23T03:58:00Z47.5-111.1713.01.22301310.029.9911421016.3TRUETRUETRUEVFRMETAR1075.02019-04-23 04:05:56Y§ÏZ)5    3KSXS 230358Z AUTO 27005KT 10SM CLR 18/09 A3014 RMK AO2 SLP206 T01810092KSXS2019-04-23T03:58:00Z31.37-85.8518.19.2270510.030.1387791020.6TRUETRUEVFRMETAR122.02019-04-23 04:05:56e§ÏY)%5    3KT70 230358Z AUTO 10011KT 10SM FEW220 22/17 A2992 RMK AO2 SLP122 T02200169 $KT702019-04-23T03:58:00Z29.12-100.4822.016.91001110.029.9202751012.2TRUETRUETRUEVFRMETAR298.02019-04-23 04:05:56 _-D__§Ï`)5    3KBAB 230358Z AUTO 03006KT 10SM CLR 20/10 A2996 RMK AO2 SLP148 T01950102 $KBAB2019-04-23T03:58:00Z39.12-121.4219.510.230610.029.9586621014.8TRUETRUETRUEVFRMETAR34.02019-04-23 04:05:56c§Ï_)%5    3KDMA 230358Z AUTO 33006KT 10SM OVC110 22/01 A2988 RMK AO2 SLP084 T02150006 $KDMA2019-04-23T03:58:00Z32.17-110.8721.50.6330610.029.8789371008.4TRUETRUETRUEVFRMETAR824.02019-04-23 04:05:56c§Ï^)%5    3KFCS 230358Z AUTO 06005KT 10SM OVC018 07/03 A3027 RMK AO2 SLP256 T00710028 $KFCS2019-04-23T03:58:00Z38.67-104.777.12.860510.030.2687021025.6TRUETRUETRUEMVFRMETAR1789.02019-04-23 04:05:56d§Ï])%5    3KFEW 230358Z AUTO 15005KT 10SM OVC018 05/02 A3027 RMK AO2 SLP251 T00460016 $KFEW2019-04-23T03:58:00Z41.13-104.874.61.6150510.030.2687021025.1TRUETRUETRUEMVFRMETAR1878.02019-04-23 04:05:56 ]?]\§Ïd)#5    3K1YT 230358Z AUTO 11009KT 10SM BKN120 14/06 A3011 RMK AO2 SLPNO T01400059 $K1YT2019-04-23T03:58:00Z46.67-120.4514.05.9110910.030.109253TRUETRUETRUEVFRMETAR438.02019-04-23 04:05:56Z§Ïc)5    3K9L2 230358Z AUTO 28007KT 8SM FEW120 19/02 A2998 RMK AO2 SLP139 T01910020K9L22019-04-23T03:58:00Z34.97-117.8719.12.028078.029.979331013.9TRUETRUEVFRMETAR701.02019-04-23 04:05:56k§Ïb)/5     3K4MR 230358Z AUTO 07009KT 10SM OVC011 11/09 A3012 RMK AO2 SLP172 T01140093 TSNO $K4MR2019-04-23T03:58:00Z34.3-103.811.49.370910.030.1210631017.2TRUETRUETRUETRUEMVFRMETAR1326.02019-04-23 04:05:56j§Ïa)=5    3KAFF 230358Z AUTO 01005KT 10SM FEW014 BKN031 OVC042 05/03 A3025 RMK AO2 SLP230 T00510025KAFF2019-04-23T03:58:00Z38.97-104.825.12.510510.030.2509841023.0TRUETRUEVFRMETAR2003.02019-04-23 04:05:56 y7Zy[§Ïh)#5    3KLGF 230358Z AUTO 26007KT 10SM FEW130 23/05 A2981 RMK AO2 SLPNO T02310053 $KLGF2019-04-23T03:58:00Z32.87-114.423.15.3260710.029.811024TRUETRUETRUEVFRMETAR132.02019-04-23 04:05:56W§Ïg)5    3K0J4 230358Z AUTO 00000KT 10SM CLR 15/08 A3017 RMK AO2 SLP214 T01500083 K0J42019-04-23T03:58:00Z31.05-86.3215.08.30010.030.1712591021.4TRUETRUEVFRMETAR96.02019-04-23 04:05:56[§Ïf)5    3KRIV 230358Z AUTO 16005KT 10SM CLR 16/12 A2996 RMK AO2 SLP140 T01600122KRIV2019-04-23T03:58:00Z33.87-117.2716.012.2160510.029.9586621014.0TRUETRUEVFRMETAR469.02019-04-23 04:05:56b§Ïe)!5    3KLUF 230358Z AUTO 24006KT 10SM CLR 24/M01 A2979 RMK AO2 SLP078 T02351015 $KLUF2019-04-23T03:58:00Z33.52-112.3723.5-1.5240610.029.7903541007.8TRUETRUETRUEVFRMETAR332.02019-04-23 04:05:56 ^"7<^X§Ïl)5    3KMRH 230358Z AUTO 24007KT 10SM CLR 18/13 A3014 RMK AO2 SLP205 T01780128KMRH2019-04-23T03:58:00Z34.73-76.6517.812.8240710.030.1387791020.5TRUETRUEVFRMETAR3.02019-04-23 04:05:56u§Ïk)M5       3PAAQ 230358Z AUTO 00000KT 3SM -SN FEW019 BKN033 OVC042 01/M02 A2945 RMK AO2 P0000 T00111017 TSNOPAAQ2019-04-23T03:58:00Z61.6-149.081.1-1.7003.029.450787TRUETRUETRUE-SNMVFR0.005SPECI73.02019-04-23 04:05:56e§Ïj)%5    3K1MM 230358Z AUTO 20014KT 10SM FEW140 12/01 A3001 RMK AO2 SLP167 T01180011 $K1MM2019-04-23T03:58:00Z47.02-109.6311.81.12001410.030.0088581016.7TRUETRUETRUEVFRMETAR1256.02019-04-23 04:05:56X§Ïi)5    3KGUR 230358Z AUTO 00000KT 10SM CLR 05/02 A3027 RMK AO2 SLP263 T00460023KGUR2019-04-23T03:58:00Z42.25-104.724.62.30010.030.2687021026.3TRUETRUEVFRMETAR1358.02019-04-23 04:05:56 q!&^qg§Ïp)55    3KOFF 230357Z 33008KT 10SM OVC017 11/06 A3012 RMK AO2A SLP199 ALSTG/SLP ESTMD RVRNO $KOFF2019-04-23T03:57:00Z41.12-95.9211.06.0330810.030.1210631019.9TRUETRUEMVFRMETAR319.02019-04-23 04:05:56B§Ïo(y5    3KCUL 230357Z AUTO 18009KT 10SM CLR 17/12 A3001 RMK AO2KCUL2019-04-23T03:57:00Z38.08-88.1217.012.0180910.030.008858TRUETRUEVFRMETAR118.02019-04-23 04:05:56u§Ïn)I5     3KCON 230358Z AUTO 36010G19KT 10SM -RA BKN021 BKN041 OVC055 12/11 A2999 RMK AO2 P0000 T01220106KCON2019-04-23T03:58:00Z43.2-71.512.210.6360101910.029.991142TRUETRUE-RAMVFR0.005SPECI103.02019-04-23 04:05:56Y§Ïm)5    3KMEI 230358Z AUTO 19003KT 10SM CLR 16/13 A3013 RMK AO2 SLP201 T01610128KMEI2019-04-23T03:58:00Z32.33-88.7516.112.8190310.030.1299211020.1TRUETRUEVFRMETAR89.02019-04-23 04:05:56 qÚNqW§Ït)5    3KEAR 230357Z AUTO 35008KT 10SM CLR 09/00 A3019 RMK AO2 SLP224 T00940000KEAR2019-04-23T03:57:00Z40.72-99.09.40.0350810.030.1889761022.4TRUETRUEVFRMETAR649.02019-04-23 04:05:56@§Ïs(5    3KXVG 230357Z AUTO 00000KT 10SM SCT075 06/03 A3012 RMK AO2KXVG2019-04-23T03:57:00Z46.98-94.26.03.00010.030.121063TRUETRUEVFRMETAR407.02019-04-23 04:05:56@§Ïr(y5    3KPHN 230357Z AUTO 16008KT 10SM CLR 12/05 A3002 RMK AO2KPHN2019-04-23T03:57:00Z42.92-82.5212.05.0160810.030.02067TRUETRUEVFRMETAR198.02019-04-23 04:05:56‚ §Ïq)‚ 5      3PAJC 230357Z AUTO 25012G20KT 8SM -SN FEW035 BKN041 OVC060 M01/M07 A2978 RMK AO2 PK WND 24026/0334 SLP084 P0000 T10061072 FZRANOPAJC2019-04-23T03:57:00Z56.32-158.37-0.6-7.225012208.029.7785431008.4TRUETRUETRUE-SNVFR0.005METAR15.02019-04-23 04:05:56 y6\y]§Ïx)5    3KNJM 230357Z AUTO 26006KT 10SM CLR 17/13 A3015 RMK AO2 SLP212 T01670133 $KNJM2019-04-23T03:57:00Z34.67-77.0216.713.3260610.030.150591021.2TRUETRUETRUEVFRMETAR7.02019-04-23 04:05:56T§Ïw)5    3KNTD 230357Z 32003KT 7SM CLR 14/13 A2994 RMK AO2 SLP141 T01390128 $KNTD2019-04-23T03:57:00Z34.12-119.1213.912.832037.029.9409451014.1TRUETRUEVFRMETAR4.02019-04-23 04:05:56_§Ïv)5    3KNYL 230357Z AUTO 31007KT 10SM CLR 24/07 A2982 RMK AO2 SLP096 T02390067 $KNYL2019-04-23T03:57:00Z32.63-114.6223.96.7310710.029.8198811009.6TRUETRUETRUEVFRMETAR65.02019-04-23 04:05:56_§Ïu)#5   3PHNG 230357Z 07011G18KT 10SM FEW023 26/18 A3009 RMK AO2 SLP183 T02610178 $ PHNG2019-04-23T03:57:00Z21.43-157.7726.117.870111810.030.0885831018.3TRUETRUEVFRMETAR3.02019-04-23 04:05:56 ƒ)._ƒV§Ï|)5    3KDAA 230356Z AUTO 00000KT 10SM CLR 11/09 A3008 RMK AO2 SLP189 T01110092KDAA2019-04-23T03:56:00Z38.72-77.1711.19.20010.030.0797251018.9TRUETRUEVFRMETAR21.02019-04-23 04:05:56I§Ï{)5   3MUGM 230356Z 33008KT 9999 FEW030 SCT270 23/21 A2999 RMK SLPNO T02330211MUGM2019-04-23T03:56:00Z19.9-75.223.321.133086.2129.991142VFRMETAR17.02019-04-23 04:05:56u§Ïz)G5      3KCIU 230356Z AUTO 05006KT 10SM -RA OVC090 06/05 A2991 RMK AO2 RAE13B36 SLP157 P0000 T00610050KCIU2019-04-23T03:56:00Z46.25-84.476.15.050610.029.9114171015.7TRUETRUE-RAVFR0.005METAR244.02019-04-23 04:05:56Q§Ïy)5    3KFLG 230357Z 00000KT 10SM CLR 07/M05 A3008 RMK AO2 SLP121 T00721050KFLG2019-04-23T03:57:00Z35.13-111.677.2-5.00010.030.0797251012.1TRUEVFRMETAR2134.02019-04-23 04:05:56 >aK§Ð)5   3KACQ 230356Z AUTO 36013G20KT 10SM OVC012 06/04 A3007 RMK AO2KACQ2019-04-23T03:56:00Z44.07-93.556.04.0360132010.030.070866TRUETRUEMVFRMETAR343.02019-04-23 04:05:56W§Ï)5    3K1M4 230356Z AUTO 00000KT 10SM CLR 14/11 A3016 RMK AO2 SLP227 T01390111K1M42019-04-23T03:56:00Z34.28-87.613.911.10010.030.1594491022.7TRUETRUEVFRMETAR284.02019-04-23 04:05:56Z§Ï~)5    3ETAD 230356Z AUTO 06016KT 9999 CLR 10/01 A2953 RMK AO2 SLP983 T00990010 $ETAD2019-04-23T03:56:00Z49.986.79.91.060166.2129.530512998.3TRUETRUETRUEVFRMETAR365.02019-04-23 04:05:56\§Ï})5    3ETIH 230356Z AUTO 06004KT 9999 CLR 09/05 A2961 RMK AO2 SLP022 T00940048 $ETIH2019-04-23T03:56:00Z49.2211.829.44.86046.2129.6102371002.2TRUETRUETRUEVFRMETAR442.02019-04-23 04:05:56 tCbth§Ð)/5     3KAFJ 230356Z AUTO 00000KT 10SM CLR 10/07 A3013 RMK AO2 SLP205 T01000072 401940056KAFJ2019-04-23T03:56:00Z40.12-80.2710.07.20010.030.1299211020.5TRUETRUEVFR19.45.6METAR361.02019-04-23 04:05:56[§Ð)!5    3KAIZ 230356Z AUTO 25003KT 10SM OVC060 21/17 A3002 RMK AO2 SLP159 T02060167KAIZ2019-04-23T03:56:00Z38.1-92.5320.616.7250310.030.020671015.9TRUETRUEVFRMETAR265.02019-04-23 04:05:56V§Ð)5    3K7N0 230356Z AUTO VRB03KT 10SM CLR 21/13 A3016 RMK AO2 SLP212 T02060133K7N02019-04-23T03:56:00Z29.95-90.0720.613.30310.030.1594491021.2TRUETRUEVFRMETAR0.02019-04-23 04:05:56[§Ð))5   3K9MN 230356Z AUTO 35009G16KT 300V010 10SM OVC007 07/07 A3001 RMK AO1 T00700069K9MN2019-04-23T03:56:00Z44.02-92.487.06.935091610.030.008858TRUETRUEIFRMETAR355.02019-04-23 04:05:56 N2RON{§Ð)[5     3PAGN 230356Z AUTO 14003KT 10SM FEW040 BKN050 OVC060 05/01 A2996 RMK AO2 RAB04E19 SLP133 P0000 T00500006PAGN2019-04-23T03:56:00Z57.5-134.585.00.6140310.029.9586621013.3TRUETRUEVFR0.005METAR2.02019-04-23 04:05:56}§Ð)[5     3PAGS 230356Z AUTO 12011KT 10SM FEW034 BKN065 BKN110 03/01 A2987 RMK AO2 RAB12E53 SLP114 P0000 T00330011PAGS2019-04-23T03:56:00Z58.42-135.733.31.11201110.029.8700791011.4TRUETRUEVFR0.005METAR9.02019-04-23 04:05:56Z§Ð)#5    3PAHL 230356Z AUTO 05004KT 10SM OVC048 06/M02 A2936 RMK AO2 SLP953 T00561017PAHL2019-04-23T03:56:00Z65.7-156.355.6-1.750410.029.359253995.3TRUETRUEVFRMETAR65.02019-04-23 04:05:56H§Ð)5   3KAEL 230356Z AUTO 36013G18KT 7SM OVC008 07/07 A3004 RMK AO2KAEL2019-04-23T03:56:00Z43.68-93.377.07.036013187.030.041338TRUETRUEIFRMETAR383.02019-04-23 04:05:56 âöd§Ð )'5    3PAGA 230356Z AUTO 26011KT 10SM 02/M03 A2935 RMK AO2 SLP943 T00171033 FZRANO $PAGA2019-04-23T03:56:00Z64.73-156.931.7-3.32601110.029.350393994.3TRUETRUETRUETRUEMETAR46.02019-04-23 04:05:56h§Ð )15     3PAGH 230356Z AUTO 28010KT 10SM OVC110 01/M05 A2943 RMK AO2 SLP973 T00111050 FZRANOPAGH2019-04-23T03:56:00Z66.88-157.171.1-5.02801010.029.430119997.3TRUETRUETRUEVFRMETAR60.02019-04-23 04:05:56f§Ð )15     3PAGL 230356Z AUTO 20008KT 10SM OVC038 00/M02 A2946 RMK AO2 SLP973 T00001017 FZRANOPAGL2019-04-23T03:56:00Z64.55-163.030.0-1.7200810.029.459646997.3TRUETRUETRUEVFRMETAR8.02019-04-23 04:05:56‚§Ð )}5      3PAGM 230356Z AUTO 01027G32KT 7SM -SN BKN014 OVC019 M07/M09 A2970 RMK AO2 PK WND 35037/0303 SLP063 P0000 T10671094 FZRANOPAGM2019-04-23T03:56:00Z63.77-171.73-6.7-9.41027327.029.6988181006.3TRUETRUETRUE-SNMVFR0.005METAR8.02019-04-23 04:05:56 øY§Ð)5    3KAJO 230356Z AUTO 27004KT 10SM CLR 17/12 A2995 RMK AO2 SLP152 T01720122KAJO2019-04-23T03:56:00Z33.9-117.617.212.2270410.029.9498021015.2TRUETRUEVFRMETAR163.02019-04-23 04:05:56‚ §Ð)]5      3PAMB 230356Z AUTO 28011KT 10SM FEW032 OVC060 M05/M11 A2963 RMK AO2 SNE11 SLP041 P0000 T10501111 FZRANO $PAMB2019-04-23T03:56:00Z58.98-159.05-5.0-11.12801110.029.6309051004.1TRUETRUETRUETRUEVFR0.005METAR16.02019-04-23 04:05:56‚§Ð)O5       3PAMH 230356Z AUTO 22008KT 3/4SM -SN BR OVC007 M01/M02 A2929 RMK AO2 SLP676 P0001 T10061017 FZRANOPAMH2019-04-23T03:56:00Z63.9-152.32-0.6-1.722080.7529.291338967.6TRUETRUETRUE-SN BRLIFR0.01METAR214.02019-04-23 04:05:56j§Ð )35    3PAFM 230356Z AUTO 02018G24KT 10SM CLR M01/M09 A2948 RMK AO2 SLP995 T10061089 FZRANOPAFM2019-04-23T03:56:00Z67.1-157.85-0.6-8.920182410.029.480314999.5TRUETRUETRUEVFRMETAR88.02019-04-23 04:05:56 áØÝáv§Ð)K5     3PAMK 230356Z AUTO 21004KT 10SM OVC021 M02/M04 A2946 RMK AO2 CIG 015V024 SLP980 T10171039 FZRANOPAMK2019-04-23T03:56:00Z63.48-162.12-1.7-3.9210410.029.459646998.0TRUETRUETRUEMVFRMETAR28.02019-04-23 04:05:56u§Ð)95       3PAMY 230356Z AUTO 9SM -SN OVC027 M04/M09 A2963 RMK AO2 SLP037 P0000 T10441089 FZRANO $PAMY2019-04-23T03:56:00Z60.37-166.27-4.4-8.99.029.6309051003.7TRUETRUETRUETRUE-SNMVFR0.005METAR13.02019-04-23 04:05:56‚"§Ð)‚ 5     3PANA 230356Z AUTO 26011G17KT 1 1/4SM BR SCT010 BKN014 OVC027 M04/M07 A2958 RMK AO2 SNB10E11 SLP016 P0000 T10441067 PWINO FZRANOPANA2019-04-23T03:56:00Z60.68-161.98-4.4-6.726011171.2529.580711001.6TRUETRUETRUETRUEBRIFR0.005METAR5.02019-04-23 04:05:56 éÍàéq§Ð)A5     3PANW 230356Z AUTO 29007KT 10SM FEW038 OVC050 M04/M08 A2957 RMK AO2 SLP030 T10391083 FZRANOPANW2019-04-23T03:56:00Z59.45-157.37-3.9-8.3290710.029.5688971003.0TRUETRUETRUEVFRMETAR92.02019-04-23 04:05:56g§Ð)95     3PAOH 230356Z AUTO 00000KT 10SM FEW015 03/02 A2987 RMK AO2 RAE51 SLP116 P0002 T00280017PAOH2019-04-23T03:56:00Z58.1-135.452.81.70010.029.8700791011.6TRUETRUEVFR0.02METAR9.02019-04-23 04:05:56‚-§Ð)‚#5       3PAOO 230356Z AUTO 25021KT 1 1/2SM -SN BR FEW015 SCT022 OVC029 M06/M08 A2961 RMK AO2 PK WND 26026/0327 VIS 1V4 SLP037 P0000 T10561078 FZRANOPAOO2019-04-23T03:56:00Z60.53-165.12-5.6-7.8250211.529.6102371003.7TRUETRUETRUE-SN BRIFR0.005METAR18.02019-04-23 04:05:56 ò‚§Ð)}5      3PAOU 230356Z AUTO 31020KT 10SM FEW024 SCT033 BKN040 M01/M04 A2984 RMK AO2 UPB11E33SNB19E30 SLP104 P0000 T10061044 FZRANOPAOU2019-04-23T03:56:00Z56.0-161.17-0.6-4.43102010.029.8405511010.4TRUETRUETRUEVFR0.005METAR4.02019-04-23 04:05:56O§Ð)5    3PAPG 230356Z 24007KT 10SM CLR 04/00 A3001 RMK AO2 SLP167 T00440000PAPG2019-04-23T03:56:00Z56.82-132.974.40.0240710.030.0088581016.7TRUEVFRMETAR15.02019-04-23 04:05:56‚§Ð)a5       3PANI 230356Z AUTO 22010KT 9SM -SN BKN017 BKN023 OVC031 M06/M08 A2954 RMK AO2 SLP972 P0000 T10561083 FZRANOPANI2019-04-23T03:56:00Z61.58-159.53-5.6-8.3220109.029.53937997.2TRUETRUETRUE-SNMVFR0.005METAR26.02019-04-23 04:05:56 ¡æႧÐ)‚ 5      3PAPH 230356Z AUTO 29016KT 10SM FEW020 SCT030 SCT045 M02/M07 A2975 RMK AO2 PK WND 29027/0325 SNE34 SLP079 P0000 T10221067 FZRANOPAPH2019-04-23T03:56:00Z56.95-158.62-2.2-6.72901610.029.7490161007.9TRUETRUETRUEVFR0.005METAR29.02019-04-23 04:05:56‚§Ð)‚ 5       3PAPM 230356Z AUTO 28018KT 9SM -SN OVC033 M04/M08 A2968 RMK AO2 PK WND 27027/0314 UPB06E09SNE06B09 SLP052 P0000 T10391083 FZRANOPAPM2019-04-23T03:56:00Z59.02-161.82-3.9-8.3280189.029.6811031005.2TRUETRUETRUE-SNVFR0.005METAR5.02019-04-23 04:05:56‚§Ð)5    3PAPN 230356Z AUTO 27020G33KT SCT033 BKN044 OVC070 M02/M07 A2968 RMK AO2 PK WND 28033/0348 SLP053 T10221067 PWINO FZRANO $PAPN2019-04-23T03:56:00Z57.58-157.57-2.2-6.7270203329.6811031005.3TRUETRUETRUETRUETRUEMETAR18.02019-04-23 04:05:56 èíÔèf§Ð)-5     3PASH 230356Z AUTO 36012KT 10SM CLR M01/M04 A2956 RMK AO2 SLP012 T10061039 FZRANOPASH2019-04-23T03:56:00Z66.27-166.08-0.6-3.93601210.029.560041001.2TRUETRUETRUEVFRMETAR2.02019-04-23 04:05:56‚§Ð)u5      3PAPO 230356Z AUTO 04032G40KT 8SM -SN CLR M08/M10 A2976 RMK AO2 PK WND 04042/0322 SNB42 SLP077 P0000 T10781100 FZRANOPAPO2019-04-23T03:56:00Z68.35-166.8-7.8-10.04032408.029.7608261007.7TRUETRUETRUE-SNVFR0.005METAR6.02019-04-23 04:05:56‚ §Ð)i5       3PAQH 230356Z AUTO 26015KT 2 1/2SM -SN BKN018 BKN023 OVC028 M04/M07 A2964 RMK AO2 SLP038 P0000 T10441072 FZRANOPAQH2019-04-23T03:56:00Z59.75-161.85-4.4-7.2260152.529.6397631003.8TRUETRUETRUE-SNIFR0.005METAR13.02019-04-23 04:05:56 * *f§Ð#)35   3PASX 230356Z AUTO 19008G14KT 160V220 10SM CLR 03/M09 A2948 RMK AO2 SLP992 T00281089PASX2019-04-23T03:56:00Z60.48-151.032.8-8.919081410.029.480314999.2TRUETRUEVFRMETAR32.02019-04-23 04:05:56o§Ð")75    3PARC 230356Z AUTO 34012G18KT 10SM SCT110 02/M08 A2946 RMK AO2 SLP018 T00171083 FZRANOPARC2019-04-23T03:56:00Z68.12-145.581.7-8.3340121810.029.4596461001.8TRUETRUETRUEVFRMETAR636.02019-04-23 04:05:56‚§Ð!)W5       3PARS 230356Z AUTO 24007KT 9SM -SN FEW021 OVC026 M03/M07 A2951 RMK AO2 SLP996 P0000 T10331072 FZRANO $PARS2019-04-23T03:56:00Z61.77-161.32-3.3-7.224079.029.509842999.6TRUETRUETRUETRUE-SNMVFR0.005METAR16.02019-04-23 04:05:56b§Ð )15    3PARY 230356Z AUTO VRB05KT 10SM BKN070 OVC090 03/M03 A2929 RMK AO2 SLP947 T00331033PARY2019-04-23T03:56:00Z64.73-155.473.3-3.30510.029.291338994.7TRUETRUEVFRMETAR199.02019-04-23 04:05:56 +s§Ð')M5     3PAUN 230356Z AUTO 26007KT 10SM FEW029 BKN065 OVC085 00/M04 A2946 RMK AO2 SLP980 T00001044 FZRANOPAUN2019-04-23T03:56:00Z63.88-160.80.0-4.4260710.029.459646998.0TRUETRUETRUEVFRMETAR6.02019-04-23 04:05:56‚§Ð&)u5       3PATQ 230356Z AUTO 06020KT 5SM BR SCT006 M07/M08 A2989 RMK AO2 UPE16SNB03E12B16E26 SLP129 P0000 T10671078 FZRANO TSNOPATQ2019-04-23T03:56:00Z70.47-157.43-6.7-7.860205.029.8907471012.9TRUETRUETRUETRUEBRMVFR0.005METAR29.02019-04-23 04:05:56e§Ð%)/5     3PASK 230356Z AUTO 00000KT 10SM CLR 01/M07 A2950 RMK AO2 SLP986 T00061072 FZRANO $PASK2019-04-23T03:56:00Z66.6-160.00.6-7.20010.029.500984998.6TRUETRUETRUETRUEVFRMETAR8.02019-04-23 04:05:56d§Ð$)-5     3PASL 230356Z AUTO VRB05KT 10SM CLR M02/M09 A2954 RMK AO2 SLP000 T10221089 FZRANOPASL2019-04-23T03:56:00Z61.72-157.15-2.2-8.90510.029.539371000.0TRUETRUETRUEVFRMETAR55.02019-04-23 04:05:56 >ö$@>|§Ð+)U5    3PAWN 230356Z AUTO 04014G18KT 10SM CLR 01/M07 A2955 RMK AO2 PK WND 05027/0312 SLP019 T00111072 FZRANOPAWN2019-04-23T03:56:00Z67.57-162.981.1-7.240141810.029.5511821001.9TRUETRUETRUEVFRMETAR30.02019-04-23 04:05:56^§Ð*)!5    3KEGE 230356Z AUTO 10007KT 10SM OVC050 10/02 A3022 RMK AO2 SLP220 T01000017KEGE2019-04-23T03:56:00Z39.63-106.9210.01.7100710.030.2214571022.0TRUETRUEVFRMETAR1993.02019-04-23 04:05:56L§Ð)) 5    3KEFK 230356Z AUTO 34010KT 10SM CLR 09/04 A3010 RMK AO2 T00900041KEFK2019-04-23T03:56:00Z44.88-72.239.04.13401010.030.100393TRUETRUEVFRMETAR284.02019-04-23 04:05:56‚§Ð()c5     3KEEN 230356Z AUTO 01003KT 10SM -RA BKN050 BKN060 OVC080 13/12 A2999 RMK AO2 RAE08B24 SLP174 T01330122 PNO $KEEN2019-04-23T03:56:00Z42.88-72.2713.312.210310.029.9911421017.4TRUETRUETRUE-RAVFRMETAR149.02019-04-23 04:05:56 6,‚ §Ð/)a5      3PAVA 230356Z AUTO 29019KT 1 1/4SM -SN BR SCT017 OVC025 M07/M08 A2954 RMK AO2 SLP092 T10671078 FZRANO PNO $PAVA2019-04-23T03:56:00Z61.53-165.6-6.7-7.8290191.2529.539371009.2TRUETRUETRUETRUE-SN BRIFRMETAR23.02019-04-23 04:05:56‚§Ð.)]5      3PAVC 230356Z AUTO 26015KT 10SM BKN036 BKN048 00/M06 A2989 RMK AO2 RAB16E31 SLP127 P0000 T00001061 FZRANOPAVC2019-04-23T03:56:00Z55.12-162.270.0-6.12601510.029.8907471012.7TRUETRUETRUEVFR0.005METAR47.02019-04-23 04:05:56b§Ð-)55    3PAVD 230356Z 31004KT 10SM FEW019 SCT065 SCT090 02/M00 A2952 RMK AO2 SLP021 T00221005PAVD2019-04-23T03:56:00Z61.13-146.252.2-0.5310410.029.5187021002.1TRUEVFRMETAR37.02019-04-23 04:05:56\§Ð,)#5    3PAWM 230356Z AUTO 03005KT 10SM OVC027 03/M03 A2944 RMK AO2 SLP975 T00281028PAWM2019-04-23T03:56:00Z64.68-163.422.8-2.830510.029.438976997.5TRUETRUEMVFRMETAR82.02019-04-23 04:05:56 G%3Gf§Ð3)15     3PAWS 230356Z AUTO 00000KT 10SM BKN041 02/M04 A2946 RMK AO2 SLP990 T00221044 FZRANOPAWS2019-04-23T03:56:00Z61.57-149.532.2-4.40010.029.459646999.0TRUETRUETRUEVFRMETAR107.02019-04-23 04:05:56l§Ð2)35     3PAZK 230356Z AUTO 22011KT 10SM SCT100 M04/M07 A2922 RMK AO2 SLP946 T10391067 FZRANOPAZK2019-04-23T03:56:00Z61.93-147.17-3.9-6.72201110.029.220472994.6TRUETRUETRUEVFRMETAR1003.02019-04-23 04:05:56r§Ð1)E5   3PHNY 230356Z AUTO 04015G20KT 10SM CLR 23/18 A3012 RMK AO2 PK WND 04026/0321 SLP181 T02280183PHNY2019-04-23T03:56:00Z20.77-156.9322.818.340152010.030.1210631018.1TRUETRUEVFRMETAR399.02019-04-23 04:05:56]§Ð0)!5    3PMDY 230356Z AUTO 06016KT 10SM OVC014 20/18 A3027 RMK AO2 SLP250 T02000178PMDY2019-04-23T03:56:00Z28.22-177.3720.017.8601610.030.2687021025.0TRUETRUEMVFRMETAR4.02019-04-23 04:05:56  8[V§Ð7)5    3KAQV 230356Z AUTO 00000KT 10SM CLR 17/15 A3009 RMK AO2 SLP186 T01670150KAQV2019-04-23T03:56:00Z31.4-93.316.715.00010.030.0885831018.6TRUETRUEVFRMETAR111.02019-04-23 04:05:56W§Ð6)5    3KNMM 230356Z 00000KT 10SM BKN300 16/12 A3013 RMK AO2 SLP211 T01560122 $KNMM2019-04-23T03:56:00Z32.53-88.5715.612.20010.030.1299211021.1TRUETRUEVFRMETAR97.02019-04-23 04:05:56b§Ð5))5    3KNJK 230356Z 28013KT 10SM SCT100 SCT200 25/01 A2984 RMK AO2 SLP119 T02500006 $KNJK2019-04-23T03:56:00Z32.82-115.6725.00.62801310.029.8405511011.9TRUETRUEVFRMETAR-13.02019-04-23 04:05:56Z§Ð4)5    3KEHR 230356Z AUTO 19006KT 10SM CLR 17/11 A3004 RMK AO2 SLP179 T01670111KEHR2019-04-23T03:56:00Z37.82-87.6716.711.1190610.030.0413381017.9TRUETRUEVFRMETAR117.02019-04-23 04:05:56 r!Gari§Ð;)/5     3KDWU 230356Z AUTO 00000KT 10SM CLR 12/10 A3010 RMK AO2 SLP191 T01170100 402390044KDWU2019-04-23T03:56:00Z38.55-82.7311.710.00010.030.1003931019.1TRUETRUEVFR23.94.4METAR166.02019-04-23 04:05:56`§Ð:)'5    3KDYR 230356Z AUTO VRB03KT 10SM CLR 19/11 A3008 RMK AO2 SLP199 T01890106 PNO $KDYR2019-04-23T03:56:00Z36.0-89.418.910.60310.030.0797251019.9TRUETRUETRUEVFRMETAR103.02019-04-23 04:05:56T§Ð9)5    3KNFE 230356Z AUTO 00000KT 10SM CLR 14/09 A3010 RMK AO2 SLP195 T01390094KNFE2019-04-23T03:56:00Z36.7-76.1313.99.40010.030.1003931019.5TRUETRUEVFRMETAR5.02019-04-23 04:05:56Y§Ð8)5    3KNBC 230356Z AUTO 22003KT 10SM CLR 14/12 A3016 RMK AO2 SLP212 T01440122KNBC2019-04-23T03:56:00Z32.47-80.7214.412.2220310.030.1594491021.2TRUETRUEVFRMETAR12.02019-04-23 04:05:56 —#Vu—X§Ð?)5    3KDIJ 230356Z AUTO 09007KT 10SM CLR 06/03 A3023 RMK AO2 SLP232 T00560028KDIJ2019-04-23T03:56:00Z43.75-111.15.62.890710.030.2303141023.2TRUETRUEVFRMETAR1899.02019-04-23 04:05:56[§Ð>))5     3KDRM 230356Z AUTO 11003KT 10SM -RA SCT070 OVC095 06/03 A2991 RMK AO2 T00600029KDRM2019-04-23T03:56:00Z46.0-83.756.02.9110310.029.911417TRUETRUE-RAVFRMETAR204.02019-04-23 04:05:56G§Ð=) 5    3KDUH 230356Z AUTO 17006KT 10SM CLR 18/07 A3000 RMK AO2 T01800071KDUH2019-04-23T03:56:00Z41.73-83.6518.07.1170610.030.0TRUETRUEVFRMETAR204.02019-04-23 04:05:56W§Ð<)5    3KDVL 230356Z AUTO 07006KT 10SM CLR 07/00 A3017 RMK AO2 SLP238 T00720000KDVL2019-04-23T03:56:00Z48.12-98.927.20.070610.030.1712591023.8TRUETRUEVFRMETAR443.02019-04-23 04:05:56 c3.?cV§ÐC)5    3KYKN 230356Z AUTO 00000KT 10SM CLR 09/07 A3017 RMK AO2 SLP235 T00890072KYKN2019-04-23T03:56:00Z42.92-97.378.97.20010.030.1712591023.5TRUETRUEVFRMETAR398.02019-04-23 04:05:56i§ÐB)35     3PAHX 230356Z AUTO 21011KT 10SM OVC032 M02/M06 A2948 RMK AO2 SLP984 T10171056 FZRANOPAHX2019-04-23T03:56:00Z62.7-159.57-1.7-5.62101110.029.480314998.4TRUETRUETRUEVFRMETAR24.02019-04-23 04:05:56§ÐA)a5     3KCWI 230356Z AUTO 27016KT 6SM BR OVC008 14/14 A2988 RMK AO2 PK WND 27027/0322 CIG 006V011 SLP139 T01440139KCWI2019-04-23T03:56:00Z41.82-90.3214.413.9270166.029.8789371013.9TRUETRUEBRIFRMETAR216.02019-04-23 04:05:56G§Ð@) 5    3KD95 230356Z AUTO 16005KT 10SM CLR 14/07 A3000 RMK AO2 T01400066KD952019-04-23T03:56:00Z43.07-83.2714.06.6160510.030.0TRUETRUEVFRMETAR255.02019-04-23 04:05:56 Cý CW§ÐG)5    3KVIS 230356Z AUTO 31003KT 10SM CLR 21/09 A2998 RMK AO2 SLP158 T02110094KVIS2019-04-23T03:56:00Z36.32-119.421.19.4310310.029.979331015.8TRUETRUEVFRMETAR89.02019-04-23 04:05:56Z§ÐF)5    3KWMC 230356Z AUTO 03004KT 10SM CLR 13/M04 A3020 RMK AO2 SLP210 T01281044KWMC2019-04-23T03:56:00Z40.9-117.812.8-4.430410.030.2007871021.0TRUETRUEVFRMETAR1310.02019-04-23 04:05:56w§ÐE)E5      3KWVL 230356Z AUTO 02015KT 6SM -RA BR OVC022 09/09 A3004 RMK AO2 RAB07 SLP201 P0007 T00940089KWVL2019-04-23T03:56:00Z44.52-69.679.48.920156.030.0413381020.1TRUETRUE-RA BRMVFR0.07METAR101.02019-04-23 04:05:56}§ÐD)Q5      3KY50 230356Z AUTO 01009KT 10SM -RA OVC010 08/07 A2989 RMK AO2 CIG 005V011 SLP150 P0002 T00830072 $KY502019-04-23T03:56:00Z44.03-89.38.37.210910.029.8907471015.0TRUETRUETRUE-RAMVFR0.02METAR262.02019-04-23 04:05:56 ‚<_‚W§ÐK)5    3KGAD 230356Z AUTO 00000KT 10SM CLR 13/13 A3015 RMK AO2 SLP211 T01280128KGAD2019-04-23T03:56:00Z33.97-86.0712.812.80010.030.150591021.1TRUETRUEVFRMETAR173.02019-04-23 04:05:56W§ÐJ)5    3KGAI 230356Z AUTO 00000KT 10SM CLR 12/09 A3009 RMK AO2 SLP219 T01170094KGAI2019-04-23T03:56:00Z39.17-77.1711.79.40010.030.0885831021.9TRUETRUEVFRMETAR165.02019-04-23 04:05:56[§ÐI)!5     3KUNV 230356Z AUTO 00000KT 10SM CLR 13/05 A3010 RMK AO2 T01260052 402140093KUNV2019-04-23T03:56:00Z40.85-77.8312.65.20010.030.100393TRUETRUEVFR21.49.3METAR378.02019-04-23 04:05:56]§ÐH)!5    3KVBT 230356Z AUTO 16003KT 10SM OVC050 19/16 A3008 RMK AO2 SLP180 T01890156KVBT2019-04-23T03:56:00Z36.35-94.2218.915.6160310.030.0797251018.0TRUETRUEVFRMETAR395.02019-04-23 04:05:56 š1kˆšh§ÐO)75   3KFOD 230356Z AUTO 35007G14KT 320V020 10SM OVC008 08/06 A3006 RMK AO2 SLP210 T00780061KFOD2019-04-23T03:56:00Z42.53-94.177.86.135071410.030.0590551021.0TRUETRUEIFRMETAR355.02019-04-23 04:05:56]§ÐN)!5    3KFRM 230356Z AUTO 36014KT 10SM OVC013 07/05 A3009 RMK AO2 SLP200 T00720050KFRM2019-04-23T03:56:00Z43.63-94.427.25.03601410.030.0885831020.0TRUETRUEMVFRMETAR354.02019-04-23 04:05:56@§ÐM(y5    3KFSE 230356Z AUTO 29006KT 10SM CLR 08/02 A3012 RMK AO2KFSE2019-04-23T03:56:00Z47.58-95.778.02.0290610.030.121063TRUETRUEVFRMETAR389.02019-04-23 04:05:56I§ÐL) 5    3KFSO 230356Z AUTO 35005KT 10SM CLR 09/04 A3010 RMK AO2 T00930040KFSO2019-04-23T03:56:00Z44.93-73.19.34.0350510.030.100393TRUETRUEVFRMETAR70.02019-04-23 04:05:56 6WA§ÐS(5    3KFGN 230356Z AUTO 01006KT 10SM BKN095 07/01 A3014 RMK AO2KFGN2019-04-23T03:56:00Z49.32-94.97.01.010610.030.138779TRUETRUEVFRMETAR328.02019-04-23 04:05:56Y§ÐR)5    3KFKL 230356Z AUTO 19003KT 10SM CLR 13/07 A3010 RMK AO2 SLP195 T01280067KFKL2019-04-23T03:56:00Z41.37-79.8712.86.7190310.030.1003931019.5TRUETRUEVFRMETAR469.02019-04-23 04:05:56Z§ÐQ)5    3KFLP 230356Z AUTO 23004KT 10SM CLR 19/12 A3005 RMK AO2 SLP170 T01940122KFLP2019-04-23T03:56:00Z36.28-92.5819.412.2230410.030.0501981017.0TRUETRUEVFRMETAR219.02019-04-23 04:05:56d§ÐP)/5    3KFNL 230356Z AUTO 21005KT 10SM SCT030 OVC037 07/04 A3027 RMK AO2 SLP242 T00720039KFNL2019-04-23T03:56:00Z40.45-105.027.23.9210510.030.2687021024.2TRUETRUEVFRMETAR1529.02019-04-23 04:05:56 },?\}Y§ÐW)5    3KEWK 230356Z AUTO 35007KT 10SM CLR 12/09 A3010 RMK AO2 SLP189 T01170089KEWK2019-04-23T03:56:00Z38.03-97.2711.78.9350710.030.1003931018.9TRUETRUEVFRMETAR467.02019-04-23 04:05:56]§ÐV)!5    3KFAM 230356Z AUTO 25006KT 10SM SCT065 20/11 A3003 RMK AO2 SLP162 T02000111KFAM2019-04-23T03:56:00Z37.77-90.4220.011.1250610.030.0295281016.2TRUETRUEVFRMETAR288.02019-04-23 04:05:56g§ÐU)/5     3KFCI 230356Z AUTO 00000KT 10SM CLR 11/08 A3011 RMK AO2 SLP215 T01110083 402220106KFCI2019-04-23T03:56:00Z37.4-77.5211.18.30010.030.1092531021.5TRUETRUEVFR22.210.6METAR72.02019-04-23 04:05:56N§ÐT)5    3KFFX 230356Z AUTO 18007KT 10SM SCT110 20/07 A2984 RMK AO2 T02020068KFFX2019-04-23T03:56:00Z43.43-86.020.26.8180710.029.840551TRUETRUEVFRMETAR236.02019-04-23 04:05:56 k!,JkY§Ð[)5    3KEKY 230356Z AUTO 21003KT 10SM CLR 17/10 A3015 RMK AO2 SLP223 T01670100KEKY2019-04-23T03:56:00Z33.32-86.9316.710.0210310.030.150591022.3TRUETRUEVFRMETAR213.02019-04-23 04:05:56\§ÐZ)5    3KENV 230356Z AUTO 35011KT 10SM CLR 14/04 A3018 RMK AO2 SLP209 T01390039KENV2019-04-23T03:56:00Z40.72-114.0213.93.93501110.030.1801191020.9TRUETRUEVFRMETAR1292.02019-04-23 04:05:56o§ÐY)95     3KESC 230356Z AUTO 35009G15KT 10SM RA OVC007 04/03 A2994 RMK AO2 SLP162 P0005 T00390028KESC2019-04-23T03:56:00Z45.75-87.083.92.835091510.029.9409451016.2TRUETRUERAIFR0.05METAR187.02019-04-23 04:05:56Y§ÐX)5    3KEUL 230356Z AUTO 15003KT 10SM CLR 16/02 A3015 RMK AO2 SLP204 T01560022KEUL2019-04-23T03:56:00Z43.62-116.6215.62.2150310.030.150591020.4TRUETRUEVFRMETAR740.02019-04-23 04:05:56 =*:=w§Ð_)K5      3KSFZ 230356Z AUTO 02010KT 10SM RA OVC006 12/12 A2992 RMK AO2 CIG 004V008 SLP079 P0017 T01170117KSFZ2019-04-23T03:56:00Z41.92-71.511.711.7201010.029.9202751007.9TRUETRUERAIFR0.17METAR134.02019-04-23 04:05:56j§Ð^)/5     3KSGH 230356Z AUTO 16005KT 10SM CLR 16/06 A3006 RMK AO2 SLP180 T01610061 402220039KSGH2019-04-23T03:56:00Z39.83-83.8316.16.1160510.030.0590551018.0TRUETRUEVFR22.23.9METAR321.02019-04-23 04:05:56V§Ð])5    3KSGJ 230356Z AUTO 00000KT 10SM CLR 16/13 A3016 RMK AO2 SLP211 T01560128KSGJ2019-04-23T03:56:00Z29.97-81.3215.612.80010.030.1594491021.1TRUETRUEVFRMETAR3.02019-04-23 04:05:56t§Ð\);5     3KEKQ 230356Z AUTO 28004KT 10SM CLR 11/09 A3013 RMK AO2 SLP223 T01110089 402560033 PNO $KEKQ2019-04-23T03:56:00Z36.85-84.8511.18.9280410.030.1299211022.3TRUETRUETRUEVFR25.63.3METAR294.02019-04-23 04:05:56 Zã?Z_§Ðc)5    3KRUT 230356Z AUTO 36005KT 10SM CLR 12/05 A3004 RMK AO2 SLP193 T01170050 $KRUT2019-04-23T03:56:00Z43.52-72.9511.75.0360510.030.0413381019.3TRUETRUETRUEVFRMETAR240.02019-04-23 04:05:56?§Ðb(y5    3KSAZ 230356Z AUTO 18004KT 10SM CLR 05/02 A3013 RMK AO2KSAZ2019-04-23T03:56:00Z46.37-94.85.02.0180410.030.129921TRUETRUEVFRMETAR392.02019-04-23 04:05:56Y§Ða)5    3KSDY 230356Z AUTO 21005KT 10SM CLR 09/M01 A3008 RMK AO2 SLP198 T00941006KSDY2019-04-23T03:56:00Z47.7-104.29.4-0.6210510.030.0797251019.8TRUETRUEVFRMETAR605.02019-04-23 04:05:56‚§Ð`)s5     3KSFM 230356Z AUTO 01018G22KT 2 1/2SM -RA BR OVC006 12/11 A2999 RMK AO2 CIG 004V010 SLP157 T01220111 401940083 PNO $KSFM2019-04-23T03:56:00Z43.38-70.7212.211.11018222.529.9911421015.7TRUETRUETRUE-RA BRIFR19.48.3METAR74.02019-04-23 04:05:56 })._}\§Ðg)'5     3KPZQ 230356Z AUTO 00000KT 10SM SCT120 08/05 A2992 RMK AO2 T00820050 402400031KPZQ2019-04-23T03:56:00Z45.4-83.828.25.00010.029.920275TRUETRUEVFR24.03.1METAR204.02019-04-23 04:05:56I§Ðf)5   3KRGK 230356Z AUTO 01010G15KT 10SM SCT060 07/04 A3004 RMK AO2KRGK2019-04-23T03:56:00Z44.58-92.487.04.010101510.030.041338TRUETRUEVFRMETAR239.02019-04-23 04:05:56u§Ðe)A5      3KRKD 230356Z AUTO 09006KT 2 1/2SM -RA BR OVC003 10/10 A3004 RMK AO2 SLP174 P0017 T01000100KRKD2019-04-23T03:56:00Z44.07-69.0810.010.09062.530.0413381017.4TRUETRUE-RA BRLIFR0.17METAR17.02019-04-23 04:05:56Q§Ðd)5   3KRMY 230356Z AUTO 16008G14KT 10SM CLR 18/09 A2994 RMK AO2 T01770093KRMY2019-04-23T03:56:00Z42.23-84.9517.79.316081410.029.940945TRUETRUEVFRMETAR287.02019-04-23 04:05:56 bKib‚§Ðk)_5     3KOKK 230356Z AUTO 17011KT 10SM BKN080 OVC095 17/11 A2998 RMK AO2 LTG DSNT NE RAE07 SLP151 P0000 T01720106KOKK2019-04-23T03:56:00Z40.53-86.0717.210.61701110.029.979331015.1TRUETRUEVFR0.005METAR253.02019-04-23 04:05:56\§Ðj)!5    3KOLU 230356Z AUTO 36008KT 10SM SCT046 10/08 A3016 RMK AO2 SLP220 T01000078KOLU2019-04-23T03:56:00Z41.45-97.3210.07.8360810.030.1594491022.0TRUETRUEVFRMETAR440.02019-04-23 04:05:56L§Ði) 5      3KPWG 230356Z AUTO 16007KT 10SM CLR A3004 RMK AO2 SLPNO FZRANO $KPWG2019-04-23T03:56:00Z31.47-97.32160710.030.041338TRUETRUETRUETRUEVFRMETAR180.02019-04-23 04:05:56]§Ðh)!5    3KPWT 230356Z AUTO 21010KT 10SM OVC016 09/08 A3021 RMK AO2 SLP250 T00890078KPWT2019-04-23T03:56:00Z47.5-122.758.97.82101010.030.2096461025.0TRUETRUEMVFRMETAR147.02019-04-23 04:05:56 ¡ Bd¡=§Ðo(y5    3KMWM 230356Z AUTO 01008KT 10SM CLR 06/04 A3011 RMK AO2KMWM2019-04-23T03:56:00Z43.9-95.16.04.010810.030.109253TRUETRUEVFRMETAR430.02019-04-23 04:05:56X§Ðn)5    3KMYR 230356Z AUTO 21005KT 10SM CLR 17/13 A3016 RMK AO2 SLP214 T01670128KMYR2019-04-23T03:56:00Z33.67-78.9216.712.8210510.030.1594491021.4TRUETRUEVFRMETAR8.02019-04-23 04:05:56X§Ðm)5    3KOAJ 230356Z AUTO 20004KT 10SM CLR 13/12 A3015 RMK AO2 SLP213 T01280117KOAJ2019-04-23T03:56:00Z34.82-77.6212.811.7200410.030.150591021.3TRUETRUEVFRMETAR29.02019-04-23 04:05:56Z§Ðl)5    3KOCH 230356Z AUTO 13003KT 10SM CLR 19/16 A3008 RMK AO2 SLP187 T01940161KOCH2019-04-23T03:56:00Z31.57-94.7219.416.1130310.030.0797251018.7TRUETRUEVFRMETAR108.02019-04-23 04:05:56 [$=[\§Ðs)!5    3KMRF 230356Z AUTO 09005KT 10SM FEW120 18/07 A3002 RMK AO2 SLP112 T01780072KMRF2019-04-23T03:56:00Z30.37-104.0217.87.290510.030.020671011.2TRUETRUEVFRMETAR1481.02019-04-23 04:05:56X§Ðr)5    3KMSV 230356Z AUTO 33008KT 10SM CLR 12/07 A3006 RMK AO2 SLP179 T01220072KMSV2019-04-23T03:56:00Z41.7-74.7812.27.2330810.030.0590551017.9TRUETRUEVFRMETAR428.02019-04-23 04:05:56‚§Ðq)a5      3KMTW 230356Z AUTO 02009KT 5SM +RA BR FEW012 BKN065 OVC090 07/07 A2985 RMK AO2 RAB05 SLP133 P0026 T00720067KMTW2019-04-23T03:56:00Z44.12-87.677.26.72095.029.849411013.3TRUETRUE+RA BRMVFR0.26METAR198.02019-04-23 04:05:56V§Ðp)5    3KMVN 230356Z AUTO 21013KT 10SM CLR 20/11 A3000 RMK AO2 SLP155 T02000111KMVN2019-04-23T03:56:00Z38.32-88.8720.011.12101310.030.01015.5TRUETRUEVFRMETAR146.02019-04-23 04:05:56 ˆ ZeˆW§Ðw)5    3KMML 230356Z AUTO 05003KT 10SM CLR 07/04 A3016 RMK AO2 SLP221 T00670039KMML2019-04-23T03:56:00Z44.45-95.826.73.950310.030.1594491022.1TRUETRUEVFRMETAR359.02019-04-23 04:05:56o§Ðv)75      3KMNM 230356Z AUTO 03007KT 10SM RA OVC007 06/05 A2993 RMK AO2 SLP157 P0004 T00610050 $KMNM2019-04-23T03:56:00Z45.12-87.626.15.030710.029.9291341015.7TRUETRUETRUERAIFR0.04METAR191.02019-04-23 04:05:56@§Ðu(y5    3KMOX 230356Z AUTO 17004KT 10SM CLR 07/04 A3010 RMK AO2KMOX2019-04-23T03:56:00Z45.57-95.977.04.0170410.030.100393TRUETRUEVFRMETAR344.02019-04-23 04:05:56Z§Ðt)5    3KMQY 230356Z AUTO 17004KT 10SM CLR 16/11 A3011 RMK AO2 SLP112 T01560106KMQY2019-04-23T03:56:00Z36.02-86.5215.610.6170410.030.1092531011.2TRUETRUEVFRMETAR166.02019-04-23 04:05:56 [$BB[a§Ð{)/5    3KJRB 230356Z AUTO 27004KT 10SM BKN045 OVC050 14/13 A3003 RMK AO2 SLP169 T01440128KJRB2019-04-23T03:56:00Z40.7-74.0214.412.8270410.030.0295281016.9TRUETRUEVFRMETAR7.02019-04-23 04:05:56z§Ðz)O5      3KMJX 230356Z AUTO 29004KT 10SM -RA BKN039 OVC050 14/14 A3004 RMK AO2 RAB44 SLP178 P0000 T01390139KMJX2019-04-23T03:56:00Z39.93-74.313.913.9290410.030.0413381017.8TRUETRUE-RAVFR0.005METAR25.02019-04-23 04:05:56\§Ðy)!5    3KMKT 230356Z AUTO 01011KT 10SM OVC016 07/05 A3009 RMK AO2 SLP199 T00670050KMKT2019-04-23T03:56:00Z44.22-93.926.75.0101110.030.0885831019.9TRUETRUEMVFRMETAR311.02019-04-23 04:05:56V§Ðx)5    3KMKY 230356Z AUTO 09007KT 10SM CLR 19/17 A3012 RMK AO2 SLP198 T01940167KMKY2019-04-23T03:56:00Z26.0-81.6719.416.790710.030.1210631019.8TRUETRUEVFRMETAR2.02019-04-23 04:05:56 X%97XY§Ð)5     3KITH 230356Z AUTO 00000KT 6SM BR CLR 06/06 A3011 RMK AO2 SLP202 T00610061KITH2019-04-23T03:56:00Z42.47-76.456.16.1006.030.1092531020.2TRUETRUEBRVFRMETAR335.02019-04-23 04:05:56|§Ð~)O5      3KIWD 230356Z AUTO 06005KT 1/4SM FG OVC003 02/02 A3008 RMK AO2 SLP198 T00170017 FZRANO RVRNO PNO $KIWD2019-04-23T03:56:00Z46.52-90.121.71.76050.2530.0797251019.8TRUETRUETRUETRUEFGLIFRMETAR375.02019-04-23 04:05:56f§Ð})+5     3KJAC 230356Z AUTO 05003KT 10SM CLR 02/M01 A3023 RMK AO2 SLP245 T00221006 FZRANOKJAC2019-04-23T03:56:00Z43.62-110.732.2-0.650310.030.2303141024.5TRUETRUETRUEVFRMETAR1961.02019-04-23 04:05:56U§Ð|)5    3KJHW 230356Z AUTO 00000KT 9SM CLR 12/07 A3010 RMK AO2 SLP200 T01170072KJHW2019-04-23T03:56:00Z42.13-79.2711.77.2009.030.1003931020.0TRUETRUEVFRMETAR525.02019-04-23 04:05:56 §8x§K§Ñ) 5    3KI19 230356Z AUTO 19005KT 10SM CLR 16/03 A3007 RMK AO2 T01560032KI192019-04-23T03:56:00Z39.7-83.9815.63.2190510.030.070866TRUETRUEVFRMETAR289.02019-04-23 04:05:56:§Ñ(q5   3KI23 230356Z AUTO 16005KT 10SM 15/07 A3006 RMK AO1KI232019-04-23T03:56:00Z39.57-83.4215.07.0160510.030.059055TRUETRUEMETAR299.02019-04-23 04:05:56Z§Ñ)5    3KILE 230356Z AUTO 16007KT 10SM CLR 21/16 A3004 RMK AO2 SLP180 T02060161KILE2019-04-23T03:56:00Z31.07-97.6720.616.1160710.030.0413381018.0TRUETRUEVFRMETAR258.02019-04-23 04:05:56b§Ñ)'5    3KISM 230356Z AUTO 10003KT 10SM CLR 18/12 A3015 RMK AO2 SLP213 T01830122 PNO $KISM2019-04-23T03:56:00Z28.28-81.4318.312.2100310.030.150591021.3TRUETRUETRUEVFRMETAR25.02019-04-23 04:05:56 ‡<Tp‡c§Ñ)/5    3KBLM 230356Z AUTO 31004KT 10SM BKN044 OVC055 14/13 A3003 RMK AO2 SLP175 T01440133KBLM2019-04-23T03:56:00Z40.17-74.1214.413.3310410.030.0295281017.5TRUETRUEVFRMETAR48.02019-04-23 04:05:56^§Ñ)!5    3KHYI 230356Z AUTO 11004KT 10SM BKN020 19/17 A3004 RMK AO2 SLP167 T01890167KHYI2019-04-23T03:56:00Z29.88-97.8718.916.7110410.030.0413381016.7TRUETRUEMVFRMETAR182.02019-04-23 04:05:56b§Ñ)'5    3KHYS 230356Z AUTO 02006KT 10SM CLR 11/04 A3016 RMK AO2 SLP213 T01110039 PNO $KHYS2019-04-23T03:56:00Z38.85-99.2711.13.920610.030.1594491021.3TRUETRUETRUEVFRMETAR609.02019-04-23 04:05:56>§Ñ(y5    3KHZX 230356Z AUTO 00000KT 10SM CLR 03/00 A3013 RMK AO2KHZX2019-04-23T03:56:00Z46.62-93.323.00.00010.030.129921TRUETRUEVFRMETAR374.02019-04-23 04:05:56 X$&+XM§Ñ ) 5    3KBAX 230356Z AUTO 17011KT 10SM CLR 14/06 A2997 RMK AO2 T01380062KBAX2019-04-23T03:56:00Z43.78-82.9813.86.21701110.029.970472TRUETRUEVFRMETAR234.02019-04-23 04:05:56u§Ñ )C5      3KBHB 230356Z AUTO 05010KT 4SM RA BR OVC006 12/11 A3005 RMK AO2 RAB08 SLP180 P0008 T01170111KBHB2019-04-23T03:56:00Z44.45-68.3711.711.150104.030.0501981018.0TRUETRUERA BRIFR0.08METAR26.02019-04-23 04:05:56x§Ñ )I5    3KBID 230356Z AUTO 04007G14KT 10SM SCT032 OVC070 11/10 A2991 RMK AO2 SLP134 T01110100 401330083KBID2019-04-23T03:56:00Z41.17-71.5811.110.04071410.029.9114171013.4TRUETRUEVFR13.38.3METAR33.02019-04-23 04:05:56V§Ñ)5    3KBKX 230356Z AUTO 00000KT 10SM CLR 08/05 A3016 RMK AO2 SLP237 T00780050KBKX2019-04-23T03:56:00Z44.28-96.827.85.00010.030.1594491023.7TRUETRUEVFRMETAR502.02019-04-23 04:05:56 e<Sse‚§Ñ)a5     3KASH 230356Z AUTO 35012G17KT 8SM RA BKN009 OVC014 13/13 A2996 RMK AO2 CIG 006V013 SLP155 P0016 T01330133 $KASH2019-04-23T03:56:00Z42.78-71.5213.313.335012178.029.9586621015.5TRUETRUETRUERAIFR0.16METAR61.02019-04-23 04:05:56Z§Ñ)5    3KAUO 230356Z AUTO 34003KT 10SM CLR 17/12 A3016 RMK AO2 SLP229 T01720117KAUO2019-04-23T03:56:00Z32.62-85.4217.211.7340310.030.1594491022.9TRUETRUEVFRMETAR236.02019-04-23 04:05:56c§Ñ )%5    3KAWO 230356Z AUTO 14009KT 10SM OVC020 12/09 A3021 RMK AO2 SLP233 T01170089 $KAWO2019-04-23T03:56:00Z48.17-122.1711.78.9140910.030.2096461023.3TRUETRUETRUEMVFRMETAR42.02019-04-23 04:05:56>§Ñ (y5    3KAXV 230356Z AUTO 17007KT 10SM CLR 16/06 A3002 RMK AO2KAXV2019-04-23T03:56:00Z40.5-84.316.06.0170710.030.02067TRUETRUEVFRMETAR279.02019-04-23 04:05:56 k!Jekt§Ñ)A5      3KCVO 230356Z AUTO 30012KT 10SM -RA OVC110 14/08 A3026 RMK AO2 RAB22 SLP247 P0000 T01440083KCVO2019-04-23T03:56:00Z44.5-123.2714.48.33001210.030.2598421024.7TRUETRUE-RAVFR0.005METAR75.02019-04-23 04:05:56_§Ñ)'5     3KCVX 230356Z AUTO 25003KT 10SM OVC060 11/09 A2991 RMK AO2 T01060086 401840060KCVX2019-04-23T03:56:00Z45.3-85.2710.68.6250310.029.911417TRUETRUEVFR18.46.0METAR204.02019-04-23 04:05:56Q§Ñ)5   3KAMN 230356Z AUTO 15008G15KT 10SM CLR 19/07 A2987 RMK AO2 T01880071KAMN2019-04-23T03:56:00Z43.32-84.6818.87.115081510.029.870079TRUETRUEVFRMETAR230.02019-04-23 04:05:56Y§Ñ)5    3KARG 230356Z AUTO 19009KT 10SM CLR 18/12 A3005 RMK AO2 SLP175 T01780122KARG2019-04-23T03:56:00Z36.12-90.9217.812.2190910.030.0501981017.5TRUETRUEVFRMETAR83.02019-04-23 04:05:56 ]ÿ?]\§Ñ)5    3KDRA 230356Z AUTO 02010KT 10SM CLR 18/01 A3003 RMK AO2 SLP137 T01830011 KDRA2019-04-23T03:56:00Z36.62-116.0318.31.1201010.030.0295281013.7TRUETRUEVFRMETAR1006.02019-04-23 04:05:56Z§Ñ)5    3KCOD 230356Z AUTO 20003KT 10SM CLR 07/03 A3017 RMK AO2 SLP227 T00720028KCOD2019-04-23T03:56:00Z44.52-109.027.22.8200310.030.1712591022.7TRUETRUEVFRMETAR1553.02019-04-23 04:05:56Z§Ñ)5    3KCOE 230356Z AUTO 18006KT 10SM CLR 14/02 A3012 RMK AO2 SLP215 T01390017KCOE2019-04-23T03:56:00Z47.77-116.8213.91.7180610.030.1210631021.5TRUETRUEVFRMETAR707.02019-04-23 04:05:56{§Ñ)M5    3KCVN 230356Z AUTO 05015G19KT 10SM FEW016 SCT100 11/09 A3011 RMK AO2 RAE18 SLP185 P0000 T01060089KCVN2019-04-23T03:56:00Z34.42-103.0710.68.950151910.030.1092531018.5TRUETRUEVFR0.005METAR1284.02019-04-23 04:05:56 r5Tr\§Ñ)5    3ETEB 230356Z AUTO 05006KT 9999 CLR 09/03 A2957 RMK AO2 SLP018 T00850031 $ETEB2019-04-23T03:56:00Z49.3210.628.53.15066.2129.5688971001.8TRUETRUETRUEVFRMETAR467.02019-04-23 04:05:56[§Ñ)5    3ETIC 230356Z AUTO 08009KT 9999 CLR 10/04 A2963 RMK AO2 SLP030 T00980035 $ETIC2019-04-23T03:56:00Z49.711.939.83.58096.2129.6309051003.0TRUETRUETRUEVFRMETAR415.02019-04-23 04:05:56[§Ñ)5    3ETIK 230356Z AUTO 00000KT 9999 CLR 09/04 A2959 RMK AO2 SLP015 T00870043 $ETIK2019-04-23T03:56:00Z49.4710.378.74.3006.2129.5895671001.5TRUETRUETRUEVFRMETAR325.02019-04-23 04:05:56d§Ñ)75    3KNRS 230356Z VRB05KT 10SM FEW030 FEW070 SCT160 16/12 A2998 RMK AO2 SLP152 T01610122 $KNRS2019-04-23T03:56:00Z32.57-117.1216.112.20510.029.979331015.2TRUETRUEVFRMETAR7.02019-04-23 04:05:56 º Brº2§Ñ(m5    3KABH 230356Z AUTO 08012KT A3025 RMK AO2 SLPNO $ KABH2019-04-23T03:56:00Z38.75-104.3801230.250984TRUETRUETRUEMETAR1840.02019-04-23 04:05:56J§Ñ) 5   3K2WX 230356Z AUTO 26004KT 10/02 A3013 RMK AO1 SLP205 T01000017 K2WX2019-04-23T03:56:00Z45.6-103.5510.01.7260430.1299211020.5TRUETRUEMETAR915.02019-04-23 04:05:56X§Ñ)#5    3ROTM 230356Z 17009KT 9000 BR BKN010 OVC020 26/23 A2990 RMK SLP111 T02610228ROTM2019-04-23T03:56:00Z26.27127.7526.122.817095.5929.8996071011.1BRMVFRMETAR75.02019-04-23 04:05:56Z§Ñ)#5    3KNXP 230356Z 27013KT 7SM FEW080 FEW120 19/02 A3001 RMK AO2 SLP134 T01890022KNXP2019-04-23T03:56:00Z34.28-116.1718.92.2270137.030.0088581013.4TRUEVFRMETAR626.02019-04-23 04:05:56 V'5VY§Ñ#)5    3KPTV 230356Z AUTO 00000KT 10SM CLR 20/10 A2999 RMK AO2 SLP166 T02000100KPTV2019-04-23T03:56:00Z36.02-119.0720.010.00010.029.9911421016.6TRUETRUEVFRMETAR135.02019-04-23 04:05:56l§Ñ")?5     3KPVC 230356Z AUTO 00000KT 4SM BR BKN001 OVC014 06/06 A2991 RMK AO2 SLP127 T00610061 PNO $KPVC2019-04-23T03:56:00Z42.07-70.226.16.1004.029.9114171012.7TRUETRUETRUEBRLIFRMETAR2.02019-04-23 04:05:56T§Ñ!)5    3KPVG 230356Z AUTO 00000KT 10SM CLR 09/09 A3011 RMK AO2 SLP198 T00940089KPVG2019-04-23T03:56:00Z36.78-76.459.48.90010.030.1092531019.8TRUETRUEVFRMETAR7.02019-04-23 04:05:56y§Ñ )e5     3OAKN 230356Z VRB06KT 9000 HZ FEW200 27/06 A2992 RMK AO2A SLP080 WND DATA ESTMD Q1013 PA3293 DA5421 T02680061OAKN2019-04-23T03:56:00Z31.565.8326.86.1065.5929.9202751008.0TRUEHZVFRMETAR1010.02019-04-23 04:05:56 †"?`†T§Ñ')5     3KPOV 230356Z AUTO 00000KT 10SM CLR 12/05 A3009 RMK AO2 T01150053 PWINOKPOV2019-04-23T03:56:00Z41.22-81.2511.55.30010.030.088583TRUETRUETRUEVFRMETAR365.02019-04-23 04:05:56Y§Ñ&)5    3KPQI 230356Z AUTO 04007KT 10SM CLR 07/M03 A3021 RMK AO2 SLP277 T00671033KPQI2019-04-23T03:56:00Z46.67-68.036.7-3.340710.030.2096461027.7TRUETRUEVFRMETAR146.02019-04-23 04:05:56]§Ñ%)!5    3KPRX 230356Z AUTO 11006KT 10SM BKN045 19/16 A3005 RMK AO2 SLP187 T01890161KPRX2019-04-23T03:56:00Z33.62-95.4518.916.1110610.030.0501981018.7TRUETRUEVFRMETAR167.02019-04-23 04:05:56X§Ñ$)5    3KPTN 230356Z AUTO 13006KT 10SM CLR 18/17 A3014 RMK AO2 SLP205 T01830167KPTN2019-04-23T03:56:00Z29.72-91.3218.316.7130610.030.1387791020.5TRUETRUEVFRMETAR3.02019-04-23 04:05:56 Š;\xŠh§Ñ+)75     3KKLS 230356Z AUTO 00000KT 9SM OVC040 12/11 A3026 RMK AO2 RAE33 SLP250 P0000 T01170111KKLS2019-04-23T03:56:00Z46.12-122.911.711.1009.030.2598421025.0TRUETRUEVFR0.005METAR5.02019-04-23 04:05:56^§Ñ*)!5    3KPVU 230356Z AUTO 14009KT 10SM FEW055 11/07 A3016 RMK AO2 SLP197 T01060067KPVU2019-04-23T03:56:00Z40.22-111.7210.66.7140910.030.1594491019.7TRUETRUEVFRMETAR1369.02019-04-23 04:05:56Y§Ñ))5    3KPIB 230356Z AUTO 20004KT 10SM CLR 16/11 A3016 RMK AO2 SLP210 T01610106KPIB2019-04-23T03:56:00Z31.47-89.3216.110.6200410.030.1594491021.0TRUETRUEVFRMETAR91.02019-04-23 04:05:56?§Ñ((y5    3KPNM 230356Z AUTO 33003KT 10SM CLR 03/01 A3013 RMK AO2KPNM2019-04-23T03:56:00Z45.57-93.63.01.0330310.030.129921TRUETRUEVFRMETAR298.02019-04-23 04:05:56 S,LOSv§Ñ/)=5      3KLCI 230356Z AUTO 05004KT 10SM OVC020 11/09 A3003 RMK AO2 SLP188 P0005 T01060094 PWINO $KLCI2019-04-23T03:56:00Z43.57-71.4210.69.450410.030.0295281018.8TRUETRUETRUETRUEMVFR0.05METAR166.02019-04-23 04:05:56w§Ñ.)?5     3KLEW 230356Z AUTO 01015KT 6SM -RA BR 10/09 A3005 RMK AO2 SLP190 P0004 T01000094 401830094KLEW2019-04-23T03:56:00Z44.03-70.2710.09.410156.030.0501981019.0TRUETRUE-RA BR18.39.40.04METAR88.02019-04-23 04:05:56Z§Ñ-)!5    3KLGD 230356Z AUTO 00000KT 10SM SCT100 16/03 A3019 RMK AO2 SLP355 T01560033KLGD2019-04-23T03:56:00Z45.27-118.015.63.30010.030.1889761035.5TRUETRUEVFRMETAR827.02019-04-23 04:05:56N§Ñ,)5    3KJYM 230356Z AUTO 14005KT 10SM SCT110 17/06 A2998 RMK AO2 T01680063KJYM2019-04-23T03:56:00Z41.92-84.5816.86.3140510.029.97933TRUETRUEVFRMETAR360.02019-04-23 04:05:56 Dÿ<Dr§Ñ3);5     3KHEF 230356Z AUTO 00000KT 10SM CLR 11/09 A3010 RMK AO2 SLP203 T01060089 402280106 PNO $KHEF2019-04-23T03:56:00Z38.72-77.5210.68.90010.030.1003931020.3TRUETRUETRUEVFR22.810.6METAR59.02019-04-23 04:05:56X§Ñ2)5    3KHEZ 230356Z AUTO 16007KT 10SM CLR 18/13 A3012 RMK AO2 SLP203 T01780133KHEZ2019-04-23T03:56:00Z31.62-91.317.813.3160710.030.1210631020.3TRUETRUEVFRMETAR83.02019-04-23 04:05:56_§Ñ1)#5    3KGUC 230356Z AUTO 12008KT 10SM OVC080 08/M02 A3017 RMK AO2 SLP184 T00781017KGUC2019-04-23T03:56:00Z38.52-106.927.8-1.7120810.030.1712591018.4TRUETRUEVFRMETAR2339.02019-04-23 04:05:56{§Ñ0)O5      3KLBL 230356Z AUTO 03007KT 10SM -RA BKN075 OVC095 13/08 A3016 RMK AO2 RAB42 SLP200 P0000 T01330083KLBL2019-04-23T03:56:00Z37.03-100.9713.38.330710.030.1594491020.0TRUETRUE-RAVFR0.005METAR879.02019-04-23 04:05:56 €"?`€Z§Ñ7)5    3KGTU 230356Z AUTO 14006KT 10SM CLR 21/16 A3006 RMK AO2 SLP175 T02060161KGTU2019-04-23T03:56:00Z30.68-97.6820.616.1140610.030.0590551017.5TRUETRUEVFRMETAR240.02019-04-23 04:05:56Y§Ñ6)5    3KGVQ 230356Z AUTO 15004KT 10SM CLR 11/06 A3011 RMK AO2 SLP230 T01060061KGVQ2019-04-23T03:56:00Z43.03-78.1710.66.1150410.030.1092531023.0TRUETRUEVFRMETAR278.02019-04-23 04:05:56]§Ñ5)!5    3KGXY 230356Z AUTO 24005KT 10SM OVC040 08/04 A3027 RMK AO2 SLP257 T00830044KGXY2019-04-23T03:56:00Z40.42-104.628.34.4240510.030.2687021025.7TRUETRUEVFRMETAR1420.02019-04-23 04:05:56X§Ñ4)5    3KHDN 230356Z AUTO 00000KT 10SM CLR 06/01 A3019 RMK AO2 SLP203 T00610011KHDN2019-04-23T03:56:00Z40.47-107.226.11.10010.030.1889761020.3TRUETRUEVFRMETAR2012.02019-04-23 04:05:56 …!Cc…X§Ñ;)5    3KGBD 230356Z AUTO 04005KT 10SM CLR 12/09 A3014 RMK AO2 SLP204 T01220094KGBD2019-04-23T03:56:00Z38.35-98.8712.29.440510.030.1387791020.4TRUETRUEVFRMETAR575.02019-04-23 04:05:56Z§Ñ:)5    3KGDV 230356Z AUTO 19007KT 10SM CLR 10/03 A3010 RMK AO2 SLP198 T01000033KGDV2019-04-23T03:56:00Z47.12-104.7810.03.3190710.030.1003931019.8TRUETRUEVFRMETAR749.02019-04-23 04:05:56X§Ñ9)5    3KGPZ 230356Z AUTO 16006KT 10SM CLR 06/02 A3014 RMK AO2 SLP217 T00610017KGPZ2019-04-23T03:56:00Z47.22-93.526.11.7160610.030.1387791021.7TRUETRUEVFRMETAR413.02019-04-23 04:05:56Y§Ñ8)5    3KGTR 230356Z AUTO 18004KT 10SM CLR 18/13 A3012 RMK AO2 SLP198 T01780128KGTR2019-04-23T03:56:00Z33.45-88.5717.812.8180410.030.1210631019.8TRUETRUEVFRMETAR80.02019-04-23 04:05:56 <MnX§Ñ?)5    3KTVF 230356Z AUTO 34007KT 10SM CLR 09/03 A3014 RMK AO2 SLP212 T00890028KTVF2019-04-23T03:56:00Z48.07-96.178.92.8340710.030.1387791021.2TRUETRUEVFRMETAR340.02019-04-23 04:05:56Y§Ñ>)5    3KUCP 230356Z AUTO 26003KT 10SM CLR 12/08 A3010 RMK AO2 SLP208 T01170083KUCP2019-04-23T03:56:00Z41.03-80.4211.78.3260310.030.1003931020.8TRUETRUEVFRMETAR327.02019-04-23 04:05:56i§Ñ=)/5     3KUDG 230356Z AUTO 23004KT 10SM CLR 13/11 A3015 RMK AO2 SLP215 T01280106 402440067KUDG2019-04-23T03:56:00Z34.45-79.8812.810.6230410.030.150591021.5TRUETRUEVFR24.46.7METAR59.02019-04-23 04:05:56>§Ñ<(y5    3KULM 230356Z AUTO 02008KT 10SM CLR 07/03 A3011 RMK AO2KULM2019-04-23T03:56:00Z44.32-94.57.03.020810.030.109253TRUETRUEVFRMETAR308.02019-04-23 04:05:56 _ +>_Y§ÑC)5    3KSMN 230356Z AUTO 00000KT 10SM CLR 10/03 A3014 RMK AO2 SLP211 T01000028KSMN2019-04-23T03:56:00Z45.12-113.8710.02.80010.030.1387791021.1TRUETRUEVFRMETAR1233.02019-04-23 04:05:56g§ÑB)/5     3KSOP 230356Z AUTO 00000KT 10SM CLR 12/09 A3014 RMK AO2 SLP225 T01170094 402330061KSOP2019-04-23T03:56:00Z35.22-79.411.79.40010.030.1387791022.5TRUETRUEVFR23.36.1METAR141.02019-04-23 04:05:56Y§ÑA)5    3KSRC 230356Z AUTO 20003KT 10SM CLR 16/14 A3007 RMK AO2 SLP191 T01560139KSRC2019-04-23T03:56:00Z35.22-91.7315.613.9200310.030.0708661019.1TRUETRUEVFRMETAR80.02019-04-23 04:05:56p§Ñ@)?5      3KSUE 230356Z AUTO 36015KT 8SM -RA OVC005 04/04 A2989 RMK AO2 TSE09 SLP144 P0020 T00440044KSUE2019-04-23T03:56:00Z44.85-87.424.44.4360158.029.8907471014.4TRUETRUE-RAIFR0.2METAR221.02019-04-23 04:05:56 ];]X§ÑG)5    3KSGT 230356Z AUTO 17005KT 10SM CLR 19/12 A3008 RMK AO2 SLP186 T01890117KSGT2019-04-23T03:56:00Z34.6-91.5718.911.7170510.030.0797251018.6TRUETRUEVFRMETAR68.02019-04-23 04:05:56U§ÑF)5    3KSGU 230356Z AUTO 16009KT 10SM CLR 16/08 A3000 RMK AO2 SLP140 T01560083KSGU2019-04-23T03:56:00Z37.07-113.5215.68.3160910.030.01014.0TRUETRUEVFRMETAR896.02019-04-23 04:05:56{§ÑE)G5      3KSKX 230356Z AUTO 11009KT 10SM -RA BKN034 OVC046 06/04 A3022 RMK AO2 SLP198 P0005 T00560039 $KSKX2019-04-23T03:56:00Z36.45-105.675.63.9110910.030.2214571019.8TRUETRUETRUE-RAVFR0.05METAR2161.02019-04-23 04:05:56c§ÑD)/5    3KSLG 230356Z AUTO 16004KT 10SM BKN045 BKN050 18/15 A3007 RMK AO2 SLP176 T01780150KSLG2019-04-23T03:56:00Z36.2-94.4717.815.0160410.030.0708661017.6TRUETRUEVFRMETAR300.02019-04-23 04:05:56 j.IjY§ÑK)5    3KDYS 230356Z 09005KT 10SM OVC050 21/13 A2999 RMK AO2A SLP120 T02110133$KDYS2019-04-23T03:56:00Z32.42-99.8321.113.390510.029.9911421012.0TRUETRUEVFRMETAR545.02019-04-23 04:05:56_§ÑJ)5    3KHND 230356Z AUTO 04003KT 10SM CLR 21/01 A2996 RMK AO2 SLP131 T02110011 $KHND2019-04-23T03:56:00Z35.98-115.1321.11.140310.029.9586621013.1TRUETRUETRUEVFRMETAR749.02019-04-23 04:05:56k§ÑI)/5     3KHNB 230356Z AUTO 18007KT 10SM CLR 18/11 A3003 RMK AO2 SLP164 T01830106 402610078KHNB2019-04-23T03:56:00Z38.25-86.9518.310.6180710.030.0295281016.4TRUETRUEVFR26.17.8METAR161.02019-04-23 04:05:56[§ÑH))5     3KMGN 230356Z AUTO 07009KT 10SM -RA BKN065 OVC090 10/06 A2988 RMK AO2 T00990065KMGN2019-04-23T03:56:00Z45.43-84.929.96.570910.029.878937TRUETRUE-RAVFRMETAR209.02019-04-23 04:05:56 U:9U^§ÑO)'5     3KGTB 230356Z AUTO 00000KT 10SM HZ OVC100 10/07 A3010 RMK AO2 SLP195 T00970066KGTB2019-04-23T03:56:00Z44.07-75.729.76.60010.030.1003931019.5TRUETRUEHZVFRMETAR207.02019-04-23 04:05:56{§ÑN)Q5      3KFSI 230356Z AUTO 09007KT 10SM -RA OVC034 20/20 A3001 RMK AO2 DZB41E47RAB47 SLP156 P0000 T01990199KFSI2019-04-23T03:56:00Z34.65-98.419.919.990710.030.0088581015.6TRUETRUE-RAVFR0.005METAR362.02019-04-23 04:05:56W§ÑM)5    3KFBG 230356Z AUTO 00000KT 10SM CLR 12/12 A3013 RMK AO2 SLP205 T01240116KFBG2019-04-23T03:56:00Z35.12-78.9212.411.60010.030.1299211020.5TRUETRUEVFRMETAR74.02019-04-23 04:05:56c§ÑL)%5    3KEND 230356Z AUTO 33003KT 10SM SCT050 16/16 A3007 RMK AO2 SLP178 T01610161 $KEND2019-04-23T03:56:00Z36.32-97.9216.116.1330310.030.0708661017.8TRUETRUETRUEVFRMETAR398.02019-04-23 04:05:56 s"BSsZ§ÑS)!5    3KWRI 230356Z AUTO 00000KT 10SM OVC055 15/12 A3001 RMK AO2 SLP162 T01490120KWRI2019-04-23T03:56:00Z40.02-74.5814.912.00010.030.0088581016.2TRUETRUEVFRMETAR41.02019-04-23 04:05:56i§ÑR)35      3KVOK 230356Z AUTO 01009KT 10SM RA OVC007 09/09 A2990 RMK AO2 SLP129 P0007 T00870087KVOK2019-04-23T03:56:00Z43.92-90.278.78.710910.029.8996071012.9TRUETRUERAIFR0.07METAR277.02019-04-23 04:05:56Z§ÑQ)5    3KIAB 230356Z AUTO 01013KT 10SM CLR 15/10 A3007 RMK AO2 SLP179 T01500102KIAB2019-04-23T03:56:00Z37.62-97.2715.010.2101310.030.0708661017.9TRUETRUEVFRMETAR418.02019-04-23 04:05:56X§ÑP)5    3KHST 230356Z AUTO 06010KT 10SM CLR 22/15 A3009 RMK AO2 SLP193 T02230147KHST2019-04-23T03:56:00Z25.47-80.3722.314.7601010.030.0885831019.3TRUETRUEVFRMETAR2.02019-04-23 04:05:56 %ü%W§ÑW)5    3KFFO 230356Z AUTO 00000KT 10SM CLR 14/06 A3004 RMK AO2 SLP174 T01380062KFFO2019-04-23T03:56:00Z39.82-84.0313.86.20010.030.0413381017.4TRUETRUEVFRMETAR251.02019-04-23 04:05:56‚ §ÑV)w5     3KCEF 230356Z AUTO 02009KT 10SM BKN022 OVC075 14/12 A2996 RMK AO2 RAE0256DZB18E27 CIG 021 RWY23 SLP151 P0000 T01400122KCEF2019-04-23T03:56:00Z42.2-72.5214.012.220910.029.9586621015.1TRUETRUEMVFR0.005METAR75.02019-04-23 04:05:56c§ÑU)%5    3KBLV 230356Z AUTO 21003KT 10SM SCT047 19/12 A2997 RMK AO2 SLP149 T01940122 $KBLV2019-04-23T03:56:00Z38.53-89.8319.412.2210310.029.9704721014.9TRUETRUETRUEVFRMETAR138.02019-04-23 04:05:56~§ÑT)A5      3BGTL 230356Z AUTO 10009KT 9999 CLR M21/M23 A2971 RMK AO2 SLP051 T12131235 411011218 TSNO $BGTL2019-04-23T03:56:00Z76.53-68.7-21.3-23.510096.2129.710631005.1TRUETRUETRUETRUEVFR-10.1-21.8METAR77.02019-04-23 04:05:56 l.Pl^§Ñ[)5    3KLFI 230356Z AUTO 23004KT 10SM CLR 13/11 A3009 RMK AO2 SLP196 T01310113 $KLFI2019-04-23T03:56:00Z37.07-76.3713.111.3230410.030.0885831019.6TRUETRUETRUEVFRMETAR3.02019-04-23 04:05:56X§ÑZ)5    3KHOP 230356Z AUTO 20007KT 10SM CLR 20/10 A3006 RMK AO2 SLP177 T01950097KHOP2019-04-23T03:56:00Z36.67-87.519.59.7200710.030.0590551017.7TRUETRUEVFRMETAR174.02019-04-23 04:05:56j§ÑY)35    3KGUS 230356Z AUTO 17008KT 10SM FEW075 BKN100 17/11 A2996 RMK AO2 SLP145 T01710109 $KGUS2019-04-23T03:56:00Z40.63-86.1517.110.9170810.029.9586621014.5TRUETRUETRUEVFRMETAR247.02019-04-23 04:05:56\§ÑX)5    3KFAF 230356Z AUTO 00000KT 10SM CLR 14/12 A3008 RMK AO2 SLP189 T01400119 $KFAF2019-04-23T03:56:00Z37.12-76.6214.011.90010.030.0797251018.9TRUETRUETRUEVFRMETAR4.02019-04-23 04:05:56 f*Kf_§Ñ_)5    3KRCA 230356Z AUTO 26005KT 10SM CLR 08/03 A3019 RMK AO2 SLP230 T00770032 $KRCA2019-04-23T03:56:00Z44.13-103.087.73.2260510.030.1889761023.0TRUETRUETRUEVFRMETAR999.02019-04-23 04:05:56Y§Ñ^)5    3KMUI 230356Z AUTO 36006KT 10SM CLR 16/04 A3005 RMK AO2 SLP178 T01640038KMUI2019-04-23T03:56:00Z40.42-76.5716.43.8360610.030.0501981017.8TRUETRUEVFRMETAR149.02019-04-23 04:05:56i§Ñ])35    3KMTC 230356Z AUTO 13006KT 10SM BKN130 BKN150 10/08 A3001 RMK AO2 SLP168 T01000079 $KMTC2019-04-23T03:56:00Z42.62-82.8210.07.9130610.030.0088581016.8TRUETRUETRUEVFRMETAR177.02019-04-23 04:05:56a§Ñ\)!5    3KMIB 230356Z AUTO 15004KT 10SM CLR 06/M02 A3011 RMK AO2 SLP210 T00611018 $KMIB2019-04-23T03:56:00Z48.42-101.336.1-1.8150410.030.1092531021.0TRUETRUETRUEVFRMETAR508.02019-04-23 04:05:56 U )UN§Ñc) 5    3KPRN 230356Z AUTO 10SM CLR 14/11 A3014 RMK AO2 SLP201 T01390111KPRN2019-04-23T03:56:00Z31.85-86.6213.911.110.030.1387791020.1TRUETRUEVFRMETAR138.02019-04-23 04:05:56o§Ñb)=5    3RODN 230356Z AUTO 16009KT 10SM BKN010 27/24 A2988 RMK AO2 CIG 008V010 SLP124 T02730237 $RODN2019-04-23T03:56:00Z26.35127.7727.323.7160910.029.8789371012.4TRUETRUETRUEMVFRMETAR45.02019-04-23 04:05:56e§Ña)55    3KNGP 230356Z 11012KT 9SM SCT011 BKN022 OVC027 25/23 A2998 RMK AO2 SLP152 T02500228 $KNGP2019-04-23T03:56:00Z27.68-97.2725.022.8110129.029.979331015.2TRUETRUEMVFRMETAR6.02019-04-23 04:05:56q§Ñ`)=5    3PHSF 230356Z AUTO 26004KT 10SM CLR 17/11 A3037 RMK AO2 SLP176 WND DATA ESTMD T01710112 $PHSF2019-04-23T03:56:00Z19.77-155.5517.111.2260410.030.3690951017.6TRUETRUETRUEVFRMETAR1887.02019-04-23 04:05:56 •$^p•U§Ñg)5    3KNPA 230356Z AUTO 00000KT 10SM CLR 13/12 A3015 RMK AO2 SLP212 T01280117KNPA2019-04-23T03:56:00Z30.35-87.3212.811.70010.030.150591021.2TRUETRUEVFRMETAR9.02019-04-23 04:05:56h§Ñf)15   3KMHS 230356Z AUTO 34008G20KT 300V010 10SM CLR 17/02 A3023 RMK AO2 SLP240 T01670022KMHS2019-04-23T03:56:00Z41.32-122.3216.72.234082010.030.2303141024.0TRUETRUEVFRMETAR1078.02019-04-23 04:05:56@§Ñe(5   3KNUC 230356Z AUTO OVC007 14/ A2999 RMK AO2 SLP152 T0139 $KNUC2019-04-23T03:56:00Z33.02-118.5713.929.9911421015.2TRUETRUETRUEMETAR55.02019-04-23 04:05:56V§Ñd)5    3KNID 230356Z 03009KT 10SM CLR 23/00 A2999 RMK AO2 SLP140 T02280000 $KNID2019-04-23T03:56:00Z35.67-117.6722.80.030910.029.9911421014.0TRUETRUEVFRMETAR696.02019-04-23 04:05:56 ‚ Pi‚a§Ñk)!5   3KDLF 230356Z AUTO 11013G19KT 10SM CLR 22/17 A2995 RMK AO2 SLP133 T02220167KDLF2019-04-23T03:56:00Z29.37-100.7722.216.7110131910.029.9498021013.3TRUETRUEVFRMETAR330.02019-04-23 04:05:56a§Ñj)%5    3KDOV 230356Z AUTO 26003KT 10SM SCT070 15/10 A3004 RMK AO2 SLP176 T01500102 $KDOV2019-04-23T03:56:00Z39.12-75.4715.010.2260310.030.0413381017.6TRUETRUETRUEVFRMETAR9.02019-04-23 04:05:56J§Ñi) 5   3KGNA 230356Z AUTO 33004KT 01/M01 A3012 RMK AO1 SLP208 T00061011KGNA2019-04-23T03:56:00Z47.75-90.350.6-1.1330430.1210631020.8TRUETRUEMETAR185.02019-04-23 04:05:56Z§Ñh)5    3K79J 230356Z AUTO 00000KT 10SM CLR 17/09 A3015 RMK AO2 SLP206 T01720089 $K79J2019-04-23T03:56:00Z31.32-86.417.28.90010.030.150591020.6TRUETRUETRUEVFRMETAR94.02019-04-23 04:05:56 ;]V§Ño)5    3K2DP 230356Z AUTO 22006KT 10SM CLR 12/11 A3012 RMK AO2 SLPNO T01220111 $K2DP2019-04-23T03:56:00Z35.68-75.912.211.1220610.030.121063TRUETRUETRUEVFRMETAR3.02019-04-23 04:05:56X§Ñn)5    3KBIX 230356Z AUTO 22003KT 10SM CLR 18/14 A3015 RMK AO2 SLP213 T01820139KBIX2019-04-23T03:56:00Z30.42-88.9218.213.9220310.030.150591021.3TRUETRUEVFRMETAR10.02019-04-23 04:05:56]§Ñm)5    3KCBM 230356Z AUTO 00000KT 10SM CLR 15/13 A3011 RMK AO2 SLP198 T01540127 $KCBM2019-04-23T03:56:00Z33.63-88.4515.412.70010.030.1092531019.8TRUETRUETRUEVFRMETAR67.02019-04-23 04:05:56\§Ñl)5    3KCOF 230356Z AUTO 07005KT 10SM CLR 22/13 A3013 RMK AO2 SLP207 T02150134 $KCOF2019-04-23T03:56:00Z28.23-80.621.513.470510.030.1299211020.7TRUETRUETRUEVFRMETAR3.02019-04-23 04:05:56 ~L[~W§Ñs)+5   3PKMR 230356Z 08012KT 15SM FEW015 SCT050 BKN300 29/25 A2977 RMK SLP085 T02920251PKMR2019-04-23T03:56:00Z7.08171.3829.225.1801215.029.7696861008.5VFRMETAR4.02019-04-23 04:05:56k§Ñr)+5     3KNSI 230356Z AUTO 28016KT 10SM CLR 15/08 A2996 RMK AO2 SLP140 T01500078 PWINO $KNSI2019-04-23T03:56:00Z33.22-119.4515.07.82801610.029.9586621014.0TRUETRUETRUETRUEVFRMETAR154.02019-04-23 04:05:56J§Ñq) 5   3KP28 230356Z AUTO 02014KT 16/10 A3006 RMK AO1 SLP170 T01610100KP282019-04-23T03:56:00Z37.28-98.5516.110.0201430.0590551017.0TRUETRUEMETAR469.02019-04-23 04:05:56^§Ñp)5    3KNBT 230356Z AUTO 22005KT 10SM CLR 14/12 A3013 RMK AO2 SLP207 T01440122 $KNBT2019-04-23T03:56:00Z35.02-76.4714.412.2220510.030.1299211020.7TRUETRUETRUEVFRMETAR5.02019-04-23 04:05:56 "0"i§Ñv)35     3PFSH 230356Z AUTO 25009KT 10SM OVC021 M01/M03 A2946 RMK AO2 SLP975 T10111033 FZRANOPFSH2019-04-23T03:56:00Z64.37-161.22-1.1-3.3250910.029.459646997.5TRUETRUETRUEMVFRMETAR7.02019-04-23 04:05:56‚§Ñu)‚5       3PFWS 230356Z AUTO 27013KT 7SM -SN SCT023 BKN030 OVC038 M04/M08 A2962 RMK AO2 UPB11E36SNE11B46 SLP035 P0000 T10391078 FZRANOPFWS2019-04-23T03:56:00Z58.7-157.0-3.9-7.8270137.029.6190951003.5TRUETRUETRUE-SNMVFR0.005METAR49.02019-04-23 04:05:56J§Ñt) 5   3KGNR 230356Z AUTO 02009KT 11/M01 A3012 RMK AO1 SLP204 T01061011KGNR2019-04-23T03:56:00Z45.47-69.5510.6-1.120930.1210631020.4TRUETRUEMETAR427.02019-04-23 04:05:56 Oì,OW§Ñz)#5    3KNLC 230356Z 00000KT 10SM SCT200 19/07 A2997 RMK AO2 SLP149 RH/46 T01940067KNLC2019-04-23T03:56:00Z36.32-119.9519.46.70010.029.9704721014.9TRUEVFRMETAR72.02019-04-23 04:05:56V§Ñy)5    3KNFL 230356Z 32006KT 10SM FEW250 13/M02 A3019 RMK AO2 SLP186 T01281022KNFL2019-04-23T03:56:00Z39.42-118.712.8-2.2320610.030.1889761018.6TRUEVFRMETAR1199.02019-04-23 04:05:56^§Ñx)!5    3KALK 230356Z AUTO 20010KT 10SM CLR 16/M05 A3000 RMK AO2 SLP084 T01611050 $KALK2019-04-23T03:56:00Z31.6-110.4316.1-5.02001010.030.01008.4TRUETRUETRUEVFRMETAR1453.02019-04-23 04:05:56‚§Ñw)g5      3PFCL 230356Z AUTO 29012KT 9SM FEW030 OVC041 M04/M10 A2963 RMK AO2 SNB35E56 SLP028 P0000 T10441100 FZRANO TSNOPFCL2019-04-23T03:56:00Z58.83-158.53-4.4-10.0290129.029.6309051002.8TRUETRUETRUETRUEVFR0.005METAR24.02019-04-23 04:05:56 [5V8[W§Ñ~)5    3KINW 230356Z AUTO 12010KT 10SM CLR 14/01 A3000 RMK AO2 SLP115 T01440011KINW2019-04-23T03:56:00Z35.03-110.7214.41.11201010.030.01011.5TRUETRUEVFRMETAR1490.02019-04-23 04:05:56‚§Ñ})5     3KLNR 230356Z AUTO 36019G27KT 2SM +RA BR SCT014 BKN033 OVC045 13/11 A2982 RMK AO2 PK WND 36029/0308 SLP093 P0049 T01280111KLNR2019-04-23T03:56:00Z43.22-90.1812.811.136019272.029.8198811009.3TRUETRUE+RA BRIFR0.49METAR217.02019-04-23 04:05:56Y§Ñ|)5    3KSXT 230356Z AUTO 01007KT 10SM CLR 13/04 A3030 RMK AO2 SLP243 T01280044KSXT2019-04-23T03:56:00Z42.6-123.3712.84.410710.030.3011821024.3TRUETRUEVFRMETAR1170.02019-04-23 04:05:56E§Ñ{)5     3PHBK 230356Z AUTO 26010KT 10SM FEW050 A3009 RMK AO2 SLP193PHBK2019-04-23T03:56:00Z22.03-159.782601010.030.0885831019.3TRUETRUEVFRMETAR8.02019-04-23 04:05:56 19[1‚$§Ò)‚5       3PPIZ 230356Z AUTO 02022KT 1/2SM -SN FZFG OVC011 M09/M11 A2994 RMK AO2 PK WND 02029/0346 CIG 007V013 SLP143 P0000 T10941111 FZRANOPPIZ2019-04-23T03:56:00Z69.73-163.0-9.4-11.120220.529.9409451014.3TRUETRUETRUE-SN FZFGLIFR0.005METAR8.02019-04-23 04:05:56X§Ò)5    3PABL 230356Z AUTO 21005KT 10SM CLR 03/M04 A2947 RMK AO2 SLP981 T00281044PABL2019-04-23T03:56:00Z65.98-161.152.8-4.4210510.029.471457998.1TRUETRUEVFRMETAR7.02019-04-23 04:05:56^§Ò)5    3KNCA 230356Z AUTO 21006KT 10SM CLR 14/11 A3014 RMK AO2 SLP207 T01440111 $KNCA2019-04-23T03:56:00Z34.72-77.4514.411.1210610.030.1387791020.7TRUETRUETRUEVFRMETAR8.02019-04-23 04:05:56]§Ñ)5    3KDUG 230356Z AUTO 11004KT 10SM CLR 14/M03 A2996 RMK AO2 SLP096 T01441028KDUG2019-04-23T03:56:00Z31.47-109.5814.4-2.8110410.029.9586621009.6TRUETRUEVFRMETAR1265.02019-04-23 04:05:56 ÿ õÿp§Ò)A5     3PFKT 230356Z AUTO 04023KT 10SM BKN043 OVC065 M01/M05 A2953 RMK AO2 SLP000 T10061050 FZRANOPFKT2019-04-23T03:56:00Z65.33-166.47-0.6-5.0402310.029.5305121000.0TRUETRUETRUEVFRMETAR9.02019-04-23 04:05:56‚§Ò)i5       3PFKW 230356Z AUTO 24011KT 2SM -SN BR FEW010 OVC016 M05/M07 A2957 RMK AO2 VIS 1V5 SLP015 P0000 T10501072 FZRANOPFKW2019-04-23T03:56:00Z60.8-161.43-5.0-7.2240112.029.5688971001.5TRUETRUETRUE-SN BRIFR0.005METAR8.02019-04-23 04:05:56q§Ò)G5   3PFYU 230356Z AUTO 05015G22KT 10SM CLR 04/M03 A2934 RMK AO2 PK WND 04027/0321 SLP961 T00391028PFYU2019-04-23T03:56:00Z66.57-145.273.9-2.850152210.029.338583996.1TRUETRUEVFRMETAR131.02019-04-23 04:05:56 o$@oK§Ò ) 5    3KPMH 230356Z AUTO 00000KT 10SM CLR 11/10 A3011 RMK AO2 T01080103KPMH2019-04-23T03:56:00Z38.83-82.8510.810.30010.030.109253TRUETRUEVFRMETAR202.02019-04-23 04:05:56^§Ò)+5    3KSZL 230356Z 33011KT 10SM FEW034 FEW046 17/12 A3000 RMK AO2A SLP158 T01700119 $KSZL2019-04-23T03:56:00Z38.72-93.5317.011.93301110.030.01015.8TRUETRUEVFRMETAR265.02019-04-23 04:05:56d§Ò)+5     3PFNO 230356Z AUTO 04013KT 10SM CLR 01/M07 A2949 RMK AO2 SLP986 T00111072 FZRANOPFNO2019-04-23T03:56:00Z66.82-161.021.1-7.2401310.029.489174998.6TRUETRUETRUEVFRMETAR17.02019-04-23 04:05:56l§Ò)75    3PFEL 230356Z AUTO 23008G14KT 10SM OVC038 00/M03 A2945 RMK AO2 SLP973 T00001028 FZRANOPFEL2019-04-23T03:56:00Z64.62-162.270.0-2.823081410.029.450787997.3TRUETRUETRUEVFRMETAR49.02019-04-23 04:05:56 >2 >\§Ò )!5   3PADL 230356Z 26014G19KT 10SM FEW120 M04/M11 A2961 RMK AO2 SLP034 T10441111PADL2019-04-23T03:56:00Z59.05-158.5-4.4-11.1260141910.029.6102371003.4TRUEVFRMETAR26.02019-04-23 04:05:56‚ §Ò )e5       3PACM 230356Z AUTO 27019KT 3SM UP BR SCT010 BKN017 OVC022 M06/M08 A2954 RMK AO2 SLP000 P0000 T10561078 FZRANOPACM2019-04-23T03:56:00Z61.85-165.57-5.6-7.8270193.029.539371000.0TRUETRUETRUEBR UPMVFR0.005METAR4.02019-04-23 04:05:56g§Ò )15     3PABV 230356Z AUTO 21006KT 10SM FEW070 02/M03 A2946 RMK AO2 SLP985 T00221028 FZRANOPABV2019-04-23T03:56:00Z61.42-149.522.2-2.8210610.029.459646998.5TRUETRUETRUEVFRMETAR29.02019-04-23 04:05:56[§Ò )5    3KEGI 230356Z AUTO 00000KT 10SM CLR 13/09 A3015 RMK AO2 SLP210 T01260085 $KEGI2019-04-23T03:56:00Z30.63-86.5212.68.50010.030.150591021.0TRUETRUETRUEVFRMETAR59.02019-04-23 04:05:56 G#GV§Ò)5    3KNDZ 230356Z 00000KT 10SM FEW250 13/09 A3016 RMK AO2 SLP198 T01330094 $ KNDZ2019-04-23T03:56:00Z30.7-87.0213.39.40010.030.1594491019.8TRUETRUEVFRMETAR54.02019-04-23 04:05:56p§Ò)G5   3PADU 230356Z 27016G19KT 10SM SCT041 02/M04 A2999 RMK AO2 UPB27E36SNE27 SLP160 T00221039 PNO $PADU2019-04-23T03:56:00Z53.9-166.532.2-3.9270161910.029.9911421016.0TRUETRUEVFRMETAR4.02019-04-23 04:05:56§Ò)Y5      3PAEM 230356Z AUTO 00000KT 10SM FEW020 OVC037 M02/M04 A2946 RMK AO2 UPE55 SLP033 P0000 T10221044 FZRANOPAEM2019-04-23T03:56:00Z62.78-164.48-2.2-4.40010.029.4596461003.3TRUETRUETRUEVFR0.005METAR3.02019-04-23 04:05:56\§Ò)5    3KPOB 230356Z AUTO 00000KT 10SM CLR 12/10 A3013 RMK AO2 SLP205 T01190098 $KPOB2019-04-23T03:56:00Z35.17-79.0211.99.80010.030.1299211020.5TRUETRUETRUEVFRMETAR66.02019-04-23 04:05:56 'Tr\§Ò)5    3KVPS 230356Z AUTO 00000KT 10SM CLR 16/11 A3015 RMK AO2 SLP216 T01600105 $KVPS2019-04-23T03:56:00Z30.47-86.5216.010.50010.030.150591021.6TRUETRUETRUEVFRMETAR26.02019-04-23 04:05:56\§Ò)5    3KXMR 230356Z AUTO 00000KT 10SM CLR 14/11 A3013 RMK AO2 SLP206 T01440110 $KXMR2019-04-23T03:56:00Z28.47-80.5714.411.00010.030.1299211020.6TRUETRUETRUEVFRMETAR3.02019-04-23 04:05:56M§Ò) 5   3KD07 230356Z AUTO 13010KT 11/M02 A3017 RMK AO1 SLP221 T01111017KD072019-04-23T03:56:00Z45.03-102.0211.1-1.71301030.1712591022.1TRUETRUEMETAR784.02019-04-23 04:05:56S§Ò)5    3KSPD 230356Z AUTO 07005KT 09/06 A3021 RMK AO1 SLP204 P0001 T00890061KSPD2019-04-23T03:56:00Z37.28-102.628.96.170530.2096461020.4TRUETRUE0.01METAR1335.02019-04-23 04:05:56 o<LoW§Ò)5    3KMXF 230356Z AUTO 00000KT 10SM CLR 15/13 A3012 RMK AO2 SLP201 T01470134KMXF2019-04-23T03:56:00Z32.37-86.3714.713.40010.030.1210631020.1TRUETRUEVFRMETAR51.02019-04-23 04:05:56j§Ò)35    3KTIK 230356Z AUTO 36005KT 10SM SCT026 OVC034 19/18 A3005 RMK AO2 SLP174 T01880178 $KTIK2019-04-23T03:56:00Z35.42-97.3718.817.8360510.030.0501981017.4TRUETRUETRUEVFRMETAR394.02019-04-23 04:05:56\§Ò)5    3KTTS 230356Z AUTO 00000KT 10SM CLR 13/11 A3014 RMK AO2 SLP211 T01280110 $KTTS2019-04-23T03:56:00Z28.62-80.7212.811.00010.030.1387791021.1TRUETRUETRUEVFRMETAR3.02019-04-23 04:05:56\§Ò)5    3KVAD 230356Z AUTO 00000KT 10SM CLR 16/11 A3014 RMK AO2 SLP207 T01550109 $KVAD2019-04-23T03:56:00Z30.97-83.215.510.90010.030.1387791020.7TRUETRUETRUEVFRMETAR71.02019-04-23 04:05:56 v:Wv[§Ò)!5    3KBAD 230356Z AUTO 18006KT 10SM BKN220 20/15 A3006 RMK AO2 SLP181 T02020152KBAD2019-04-23T03:56:00Z32.5-93.6720.215.2180610.030.0590551018.1TRUETRUEVFRMETAR51.02019-04-23 04:05:56]§Ò)5    3KGSB 230356Z AUTO 00000KT 10SM CLR 13/10 A3011 RMK AO2 SLP199 T01270101 $KGSB2019-04-23T03:56:00Z35.32-77.9712.710.10010.030.1092531019.9TRUETRUETRUEVFRMETAR33.02019-04-23 04:05:56]§Ò)5    3KLRF 230356Z AUTO 00000KT 10SM CLR 16/13 A3006 RMK AO2 SLP181 T01580133 $KLRF2019-04-23T03:56:00Z34.92-92.1515.813.30010.030.0590551018.1TRUETRUETRUEVFRMETAR95.02019-04-23 04:05:56]§Ò)5    3KMMT 230356Z AUTO 00000KT 10SM CLR 12/12 A3014 RMK AO2 SLP208 T01240118 $KMMT2019-04-23T03:56:00Z33.92-80.7812.411.80010.030.1387791020.8TRUETRUETRUEVFRMETAR77.02019-04-23 04:05:56 o 1Ro]§Ò!)5    3KSSC 230356Z AUTO 00000KT 10SM CLR 14/11 A3014 RMK AO2 SLP207 T01350105 $KSSC2019-04-23T03:56:00Z33.97-80.4713.510.50010.030.1387791020.7TRUETRUETRUEVFRMETAR74.02019-04-23 04:05:56Y§Ò )5    3KTBN 230356Z AUTO 23004KT 10SM CLR 19/15 A3002 RMK AO2 SLP160 T01920151KTBN2019-04-23T03:56:00Z37.72-92.1219.215.1230410.030.020671016.0TRUETRUEVFRMETAR353.02019-04-23 04:05:56i§Ò)75    3KNUW 230356Z 13010KT 10SM FEW010 BKN017 OVC030 13/08 A3022 RMK AO2 SLP233 T01280078 $KNUW2019-04-23T03:56:00Z48.35-122.6512.87.81301010.030.2214571023.3TRUETRUEMVFRMETAR14.02019-04-23 04:05:56Z§Ò)5    3ETAR 230356Z AUTO 06005KT 9999 CLR 10/02 A2952 RMK AO2 SLP994 T00990020 $ETAR2019-04-23T03:56:00Z49.427.589.92.06056.2129.518702999.4TRUETRUETRUEVFRMETAR238.02019-04-23 04:05:56Y8(8@HPX`hpx€ˆ˜ ¨°¸ÀÈÐØàèðø (08@HPX`hpx€ˆ˜ ¨°¸ÀÈÐØàèðø (08@HPX`hpx€ˆ˜ ¨°¸ÀÈÐØàèðø ¨°¸ÀÈÐØàèðø׍ÑCϧÑGЧÑKѧÑOÒ§ÑSÓ§ÑWÔ§Ñ[Õ§Ñ_Ö§ÑcקÑgاÑkÙ§Ño׍ÑCϧÑGЧÑKѧÑOÒ§ÑSÓ§ÑWÔ§Ñ[Õ§Ñ_Ö§ÑcקÑgاÑkÙ§ÑoÚ§ÑsÛ§ÑvܧÑzݧÑ~Þ§ÒߧÒà§Ò á§Ò â§Ò㧍Ò䧍Ò姍Ò槍Ò!觍Ò%駍Ò)꧍Ò-맍Ò1짍Ò5í§Ò9Ò=留ÒAð§ÒEñ§ÒIò§ÒMó§ÒQô§ÒUõ§ÒYö§Ò]÷§Òaø§Òeù§Òiú§Òmû§Òqü§Òuý§Òyþ§Ò}ÿ§Ó§Ó§Ó§Ó §Ó§Ó§Ó§Ó§Ó!§Ó% §Ó) §Ó- §Ó1 §Ó5 §Ó9§Ó=§ÓA§ÓE§ÓJ§ÓN§ÓR§ÓV§ÓZ§Ó^§Ób§Óf§Ój§Ón§Ór§Óv§Óz§Ó~§Ô §Ô!§Ô "§Ô#§Ô$§Ô%§Ô&§Ô'§Ô# Žú3RŽ>§Ò%(y5    3KLJF 230356Z AUTO 01003KT 10SM CLR 06/04 A3014 RMK AO2KLJF2019-04-23T03:56:00Z45.1-94.526.04.010310.030.138779TRUETRUEVFRMETAR348.02019-04-23 04:05:56[§Ò$)%5    3KLWS 230356Z 14004KT 10SM BKN080 BKN100 17/05 A3012 RMK AO2 SLP200 T01720050KLWS2019-04-23T03:56:00Z46.37-117.0217.25.0140410.030.1210631020.0TRUEVFRMETAR438.02019-04-23 04:05:56A§Ò#(y5    3KOWX 230356Z AUTO 18007KT 10SM CLR 15/06 A3003 RMK AO1KOWX2019-04-23T03:56:00Z41.03-83.9815.06.0180710.030.029528TRUETRUEVFRMETAR233.02019-04-23 04:05:56‚§Ò")S5      3KSMP 230356Z AUTO 28007KT 230V330 1/2SM FG VV002 06/04 A3018 RMK AO2 RAE0259 SLP227 P0000 T00560039KSMP2019-04-23T03:56:00Z47.28-121.335.63.928070.530.1801191022.7TRUETRUEFGLIFR0.005200METAR1208.02019-04-23 04:05:56 ‰8\‰M§Ò))5    3KJAX 230356Z 00000KT 10SM CLR 14/11 A3014 RMK AO2 SLP206 T01390111KJAX2019-04-23T03:56:00Z30.5-81.6813.911.10010.030.1387791020.6TRUEVFRMETAR10.02019-04-23 04:05:56V§Ò()5    3KJMS 230356Z AUTO 00000KT 10SM CLR 07/02 A3016 RMK AO2 SLP219 T00720022KJMS2019-04-23T03:56:00Z46.93-98.677.22.20010.030.1594491021.9TRUETRUEVFRMETAR455.02019-04-23 04:05:56a§Ò'))5    3KJXN 230356Z AUTO 13010KT 10SM CLR 18/07 A2995 RMK AO2 PRESFR SLP137 T01830072KJXN2019-04-23T03:56:00Z42.27-84.4718.37.21301010.029.9498021013.7TRUETRUEVFRMETAR305.02019-04-23 04:05:56[§Ò&)%5    3KLAS 230356Z 01010KT 10SM FEW075 FEW100 24/00 A2992 RMK AO2 SLP115 T02440000KLAS2019-04-23T03:56:00Z36.07-115.1724.40.0101010.029.9202751011.5TRUEVFRMETAR636.02019-04-23 04:05:56 ;-;l§Ò-)35      3KHWV 230356Z AUTO 33008KT 9SM -RA OVC022 12/11 A2997 RMK AO2 SLP148 P0001 T01220111KHWV2019-04-23T03:56:00Z40.82-72.8712.211.133089.029.9704721014.8TRUETRUE-RAMVFR0.01METAR21.02019-04-23 04:05:56a§Ò,))5     3KHYA 230356Z AUTO 36006KT 3/4SM BR OVC002 08/07 A2989 RMK AO2 SLP121 T00780067KHYA2019-04-23T03:56:00Z41.67-70.277.86.736060.7529.8907471012.1TRUETRUEBRLIFRMETAR22.02019-04-23 04:05:56v§Ò+)Q5      3KISP 230356Z 32011KT 10SM -RA FEW016 FEW022 OVC065 13/12 A2997 RMK AO2 SLP148 LAST P0003 T01330122KISP2019-04-23T03:56:00Z40.8-73.113.312.23201110.029.9704721014.8TRUE-RAVFR0.03METAR43.02019-04-23 04:05:56j§Ò*)95      3KISQ 230356Z AUTO 36008KT 4SM UP BKN004 OVC035 05/02 A2991 RMK AO2 T00500017 401550045KISQ2019-04-23T03:56:00Z45.97-86.175.01.736084.029.911417TRUETRUEUPLIFR15.54.5METAR209.02019-04-23 04:05:56 ­,^­Z§Ò1)5    3KOWB 230356Z AUTO 19005KT 10SM CLR 17/11 A3005 RMK AO2 SLP183 T01720111KOWB2019-04-23T03:56:00Z37.72-87.1717.211.1190510.030.0501981018.3TRUETRUEVFRMETAR124.02019-04-23 04:05:56K§Ò0) 5    3KOZW 230356Z AUTO 14007KT 10SM CLR 15/06 A2998 RMK AO2 T01460060KOZW2019-04-23T03:56:00Z42.62-83.9714.66.0140710.029.97933TRUETRUEVFRMETAR293.02019-04-23 04:05:56H§Ò/) 5    3KPEX 230356Z AUTO 00000KT 10SM CLR 05/04 A3015 RMK AO2 T00450035KPEX2019-04-23T03:56:00Z45.37-94.734.53.50010.030.15059TRUETRUEVFRMETAR360.02019-04-23 04:05:56N§Ò.)5    3KHPN 230356Z 30008KT 10SM BKN055 14/12 A3000 RMK AO2 SLP158 T01390122KHPN2019-04-23T03:56:00Z41.07-73.713.912.2300810.030.01015.8TRUEVFRMETAR121.02019-04-23 04:05:56 ‘!Ct‘]§Ò5)5    3KTPH 230356Z AUTO 02012KT 10SM CLR 13/M02 A3019 RMK AO2 SLP191 T01281017KTPH2019-04-23T03:56:00Z38.05-117.0812.8-1.7201210.030.1889761019.1TRUETRUEVFRMETAR1652.02019-04-23 04:05:56I§Ò4)5     3KONA 230356Z AUTO 35006KT 10SM DZ OVC014 08/07 A2999 RMK AO2KONA2019-04-23T03:56:00Z44.07-91.78.07.0350610.029.991142TRUETRUEDZMVFRMETAR200.02019-04-23 04:05:56X§Ò3)5    3KOTG 230356Z AUTO 03011KT 10SM CLR 07/04 A3013 RMK AO2 SLP215 T00670044KOTG2019-04-23T03:56:00Z43.63-95.576.74.4301110.030.1299211021.5TRUETRUEVFRMETAR480.02019-04-23 04:05:56Y§Ò2)%5    3KOTH 230356Z 28005KT 10SM FEW080 SCT110 13/08 A3028 RMK AO2 SLP254 T01280083KOTH2019-04-23T03:56:00Z43.42-124.2512.88.3280510.030.2805121025.4TRUEVFRMETAR4.02019-04-23 04:05:56 y &RyS§Ò9)5    3KSDF 230356Z 13005KT 10SM FEW300 19/09 A3004 RMK AO2 SLP168 T01940094KSDF2019-04-23T03:56:00Z38.18-85.7319.49.4130510.030.0413381016.8TRUEVFRMETAR146.02019-04-23 04:05:56N§Ò8)5    3KSFO 230356Z 28011KT 10SM SCT200 13/08 A3000 RMK AO2 SLP158 T01330078KSFO2019-04-23T03:56:00Z37.62-122.3713.37.82801110.030.01015.8TRUEVFRMETAR3.02019-04-23 04:05:56`§Ò7))5    3KSHV 230356Z 19007KT 10SM BKN170 OVC250 21/14 A3006 RMK AO2 SLP176 T02060144 $KSHV2019-04-23T03:56:00Z32.45-93.8320.614.4190710.030.0590551017.6TRUETRUEVFRMETAR83.02019-04-23 04:05:56n§Ò6)C5     3KSLE 230356Z AUTO 00000KT 10SM OVC049 16/08 A3024 RMK AO2 RAB0258E34 SLP241 P0000 T01560083KSLE2019-04-23T03:56:00Z44.9-123.015.68.30010.030.2391741024.1TRUETRUEVFR0.005METAR59.02019-04-23 04:05:56 7#?T7‚§Ò=)u5       3PAIG 230356Z AUTO 00000KT 1 3/4SM -SN BR BKN021 OVC030 M03/M05 A2957 RMK AO2 VIS 1V4 SLP024 P0000 T10331050 FZRANO $PAIG2019-04-23T03:56:00Z59.32-155.9-3.3-5.0001.7529.5688971002.4TRUETRUETRUETRUE-SN BRIFR0.005METAR28.02019-04-23 04:05:56e§Ò<)+5     3PAIK 230356Z AUTO 34009KT 10SM CLR 01/M08 A2952 RMK AO2 SLP000 T00061078 FZRANOPAIK2019-04-23T03:56:00Z66.98-160.430.6-7.8340910.029.5187021000.0TRUETRUETRUEVFRMETAR51.02019-04-23 04:05:56^§Ò;)!5    3KRDM 230356Z AUTO 32011KT 10SM OVC065 16/06 A3024 RMK AO2 SLP231 T01610061KRDM2019-04-23T03:56:00Z44.25-121.1516.16.13201110.030.2391741023.1TRUETRUEVFRMETAR938.02019-04-23 04:05:56W§Ò:)5    3KSBP 230356Z AUTO 28003KT 8SM CLR 11/09 A3001 RMK AO2 SLP163 T01110094KSBP2019-04-23T03:56:00Z35.23-120.6311.19.428038.030.0088581016.3TRUETRUEVFRMETAR59.02019-04-23 04:05:56 €<]€W§ÒA)5    3KAND 230356Z AUTO 00000KT 10SM CLR 14/12 A3013 RMK AO2 SLP198 T01440117KAND2019-04-23T03:56:00Z34.5-82.7214.411.70010.030.1299211019.8TRUETRUEVFRMETAR239.02019-04-23 04:05:56Y§Ò@)!5    3KART 230356Z AUTO 00000KT 10SM SCT110 08/07 A3010 RMK AO2 SLP195 T00830072KART2019-04-23T03:56:00Z43.98-76.038.37.20010.030.1003931019.5TRUETRUEVFRMETAR100.02019-04-23 04:05:56>§Ò?(y5    3KAIT 230356Z AUTO 00000KT 10SM CLR 02/00 A3012 RMK AO2KAIT2019-04-23T03:56:00Z46.53-93.672.00.00010.030.121063TRUETRUEVFRMETAR367.02019-04-23 04:05:56z§Ò>)E5       3PAHP 230356Z AUTO 1 1/2SM UP BR OVC016 M06/M08 A2954 RMK AO2 SLP042 P0000 T10611078 FZRANO $PAHP2019-04-23T03:56:00Z61.52-166.15-6.1-7.81.529.539371004.2TRUETRUETRUETRUEBR UPIFR0.005METAR5.02019-04-23 04:05:56 Š;3lŠ\§ÒE)5    3KBIH 230356Z AUTO 28007KT 10SM CLR 15/M04 A3015 RMK AO2 SLP181 T01501044KBIH2019-04-23T03:56:00Z37.37-118.3515.0-4.4280710.030.150591018.1TRUETRUEVFRMETAR1253.02019-04-23 04:05:57A§ÒD(}5    3KBFW 230356Z AUTO 00000KT 10SM CLR M02/M03 A3011 RMK AO2KBFW2019-04-23T03:56:00Z47.25-91.4-2.0-3.00010.030.109253TRUETRUEVFRMETAR331.02019-04-23 04:05:57‚§ÒC)]5      3KBED 230356Z AUTO 07013KT 1 1/2SM -RA BR BKN008 BKN014 OVC024 13/12 A2992 RMK AO2 SLP145 P0014 T01280122KBED2019-04-23T03:56:00Z42.47-71.312.812.270131.529.9202751014.5TRUETRUE-RA BRIFR0.14METAR50.02019-04-23 04:05:57?§ÒB(w5  3KAUM 230356Z AUTO 36012G19KT 10SM 09/04 A3001 RMK AO2KAUM2019-04-23T03:56:00Z43.67-92.929.04.0360121910.030.008858TRUETRUEMETAR375.02019-04-23 04:05:56 ˜)Lv˜X§ÒI)5    3KCEC 230356Z AUTO 01004KT 10SM CLR 11/08 A3022 RMK AO2 SLP234 T01060078KCEC2019-04-23T03:56:00Z41.77-124.2210.67.810410.030.2214571023.4TRUETRUEVFRMETAR17.02019-04-23 04:05:57P§ÒH)5    3KCAE 230356Z 28003KT 10SM CLR 14/11 A3013 RMK AO2 SLP202 T01390106KCAE2019-04-23T03:56:00Z33.93-81.1213.910.6280310.030.1299211020.2TRUEVFRMETAR70.02019-04-23 04:05:57W§ÒG)5    3KBJJ 230356Z AUTO 00000KT 10SM CLR 13/09 A3008 RMK AO2 SLP184 T01330089KBJJ2019-04-23T03:56:00Z40.87-81.8813.38.90010.030.0797251018.4TRUETRUEVFRMETAR343.02019-04-23 04:05:57Q§ÒF)5    3KBZN 230356Z 15007KT 10SM CLR 09/04 A3011 RMK AO2 SLP195 T00890039KBZN2019-04-23T03:56:00Z45.78-111.178.93.9150710.030.1092531019.5TRUEVFRMETAR1361.02019-04-23 04:05:57 ©-No©@§ÒM(y5    3KDTL 230356Z AUTO 33007KT 10SM CLR 09/03 A3014 RMK AO2KDTL2019-04-23T03:56:00Z46.82-95.879.03.0330710.030.138779TRUETRUEVFRMETAR426.02019-04-23 04:05:57Y§ÒL)5    3KDIK 230356Z AUTO 16007KT 10SM CLR 06/M04 A3011 RMK AO2 SLP205 T00561039KDIK2019-04-23T03:56:00Z46.8-102.85.6-3.9160710.030.1092531020.5TRUETRUEVFRMETAR788.02019-04-23 04:05:57Y§ÒK)5    3KCXY 230356Z AUTO 26003KT 10SM CLR 12/07 A3006 RMK AO2 SLP180 T01220072KCXY2019-04-23T03:56:00Z40.22-76.8512.27.2260310.030.0590551018.0TRUETRUEVFRMETAR106.02019-04-23 04:05:57M§ÒJ)5    3KCHS 230356Z 00000KT 10SM CLR 16/12 A3016 RMK AO2 SLP212 T01560117KCHS2019-04-23T03:56:00Z32.9-80.0315.611.70010.030.1594491021.2TRUEVFRMETAR13.02019-04-23 04:05:57 z4UzU§ÒQ)5    3KELZ 230356Z AUTO 00000KT 10SM CLR 09/07 A3012 RMK AO2 SLP208 T00940067KELZ2019-04-23T03:56:00Z42.1-77.989.46.70010.030.1210631020.8TRUETRUEVFRMETAR646.02019-04-23 04:05:57Y§ÒP)5    3KEKO 230356Z AUTO 00000KT 10SM CLR 12/01 A3021 RMK AO2 SLP207 T01170011KEKO2019-04-23T03:56:00Z40.82-115.7811.71.10010.030.2096461020.7TRUETRUEVFRMETAR1547.02019-04-23 04:05:57Y§ÒO)5    3KEED 230356Z AUTO 34004KT 10SM CLR 25/02 A2985 RMK AO2 SLP082 T02500022KEED2019-04-23T03:56:00Z34.77-114.6225.02.2340410.029.849411008.2TRUETRUEVFRMETAR302.02019-04-23 04:05:57g§ÒN)55   3KEAU 230356Z AUTO 01009G18KT 10SM BKN017 BKN120 07/04 A3001 RMK AO2 SLP165 T00670044KEAU2019-04-23T03:56:00Z44.87-91.476.74.41091810.030.0088581016.5TRUETRUEMVFRMETAR276.02019-04-23 04:05:57 œHpœN§ÒU) 5   3KP53 230356Z AUTO 36013KT 02/01 A2998 RMK AO1 SLP158 T00170011 $KP532019-04-23T03:56:00Z46.42-86.651.71.13601329.979331015.8TRUETRUETRUEMETAR187.02019-04-23 04:05:57R§ÒT)5    3KDAY 230356Z 16006KT 10SM SCT160 17/06 A3005 RMK AO2 SLP172 T01670056KDAY2019-04-23T03:56:00Z39.9-84.2216.75.6160610.030.0501981017.2TRUEVFRMETAR305.02019-04-23 04:05:57P§ÒS)5    3KFSD 230356Z 02006KT 10SM OVC200 09/06 A3015 RMK AO2 SLP218 T00890056KFSD2019-04-23T03:56:00Z43.58-96.758.95.620610.030.150591021.8TRUEVFRMETAR436.02019-04-23 04:05:57\§ÒR)/5    3KFKS 230356Z AUTO 30005KT 10SM BKN060 BKN070 OVC080 13/08 A2987 RMK AO2 T01260079KFKS2019-04-23T03:56:00Z44.63-86.212.67.9300510.029.870079TRUETRUEVFRMETAR193.02019-04-23 04:05:57 _2C_^§ÒY)5    3KPAM 230356Z AUTO 31003KT 10SM CLR 15/13 A3016 RMK AO2 SLP216 T01540132 $KPAM2019-04-23T03:56:00Z30.07-85.5715.413.2310310.030.1594491021.6TRUETRUETRUEVFRMETAR5.02019-04-23 04:05:57i§ÒX)=5    3KGON 230356Z AUTO 36009KT 10SM SCT023 BKN085 OVC110 14/11 A2991 RMK AO2 SLP129 T01390106KGON2019-04-23T03:56:00Z41.33-72.0513.910.6360910.029.9114171012.9TRUETRUEVFRMETAR3.02019-04-23 04:05:57X§ÒW)5    3KGRD 230356Z AUTO 00000KT 10SM CLR 14/11 A3014 RMK AO2 SLP203 T01440106KGRD2019-04-23T03:56:00Z34.25-82.1514.410.60010.030.1387791020.3TRUETRUEVFRMETAR185.02019-04-23 04:05:57j§ÒV)95     3TJSJ 230356Z 00000KT 10SM FEW030 SCT040 25/19 A2999 RMK AO2 SLP153 T02500189 402940239TJSJ2019-04-23T03:56:00Z18.43-66.0225.018.90010.029.9911421015.3TRUEVFR29.423.9METAR21.02019-04-23 04:05:57 g7Lg_§Ò])5    3KLSF 230356Z AUTO 11003KT 10SM CLR 12/12 A3013 RMK AO2 SLP207 T01240124 $KLSF2019-04-23T03:56:00Z32.32-84.9712.412.4110310.030.1299211020.7TRUETRUETRUEVFRMETAR71.02019-04-23 04:05:57e§Ò\)+5     3KMCF 230356Z AUTO 09007KT 8SM CLR 19/13 A3015 RMK AO2 SLP213 T01880130 FZRANO $KMCF2019-04-23T03:56:00Z27.85-82.5218.813.09078.030.150591021.3TRUETRUETRUETRUEVFRMETAR4.02019-04-23 04:05:57_§Ò[)5    3KMGE 230356Z AUTO 24003KT 10SM CLR 16/10 A3016 RMK AO2 SLP208 T01570098 $KMGE2019-04-23T03:56:00Z33.92-84.5215.79.8240310.030.1594491020.8TRUETRUETRUEVFRMETAR326.02019-04-23 04:05:57^§ÒZ)5    3KOZR 230356Z AUTO 21003KT 10SM CLR 16/11 A3015 RMK AO2 SLP210 T01580114 $KOZR2019-04-23T03:56:00Z31.28-85.7215.811.4210310.030.150591021.0TRUETRUETRUEVFRMETAR93.02019-04-23 04:05:57 Nc\§Òa)5    3KHFF 230356Z AUTO 00000KT 10SM CLR 11/09 A3014 RMK AO2 SLP221 T01050094 $KHFF2019-04-23T03:56:00Z35.02-79.510.59.40010.030.1387791022.1TRUETRUETRUEVFRMETAR115.02019-04-23 04:05:57e§Ò`)75    3KNQI 230356Z 09006KT 10SM FEW010 BKN012 OVC024 22/21 A2998 RMK AO2 SLP148 T02220206 $KNQI2019-04-23T03:56:00Z27.5-97.8222.220.690610.029.979331014.8TRUETRUEMVFRMETAR15.02019-04-23 04:05:57I§Ò_) 5   3K8D3 230356Z AUTO 31006KT 08/04 A3013 RMK AO1 SLP207 T00830044 K8D32019-04-23T03:56:00Z45.67-96.988.34.4310630.1299211020.7TRUETRUEMETAR354.02019-04-23 04:05:57]§Ò^)5    3KLHW 230356Z AUTO 00000KT 10SM CLR 14/11 A3013 RMK AO2 SLP206 T01370112 $KLHW2019-04-23T03:56:00Z31.87-81.5713.711.20010.030.1299211020.6TRUETRUETRUEVFRMETAR14.02019-04-23 04:05:57 ˆAdˆV§Òe)5    3KOFK 230356Z AUTO 01008KT 10SM CLR 08/06 A3015 RMK AO2 SLP215 T00830056KOFK2019-04-23T03:56:00Z41.98-97.438.35.610810.030.150591021.5TRUETRUEVFRMETAR470.02019-04-23 04:05:57W§Òd)5    3KUKI 230356Z AUTO 00000KT 10SM CLR 19/08 A3005 RMK AO2 SLP170 T01940078KUKI2019-04-23T03:56:00Z39.12-123.219.47.80010.030.0501981017.0TRUETRUEVFRMETAR187.02019-04-23 04:05:57O§Òc)5    3KWJF 230356Z 27005KT 10SM FEW120 17/03 A3000 RMK AO2 SLP152 T01720028KWJF2019-04-23T03:56:00Z34.72-118.2217.22.8270510.030.01015.2TRUEVFRMETAR715.02019-04-23 04:05:57d§Òb)/5    3KRND 230356Z AUTO 13004KT 10SM FEW014 SCT019 20/18 A3003 RMK AO2 SLP164 T01960175KRND2019-04-23T03:56:00Z29.52-98.2719.617.5130410.030.0295281016.4TRUETRUEVFRMETAR232.02019-04-23 04:05:57 ».R»L§Òi) 5    3KMRT 230356Z AUTO 17004KT 10SM CLR 14/09 A3005 RMK AO2 T01430091KMRT2019-04-23T03:56:00Z40.22-83.3514.39.1170410.030.050198TRUETRUEVFRMETAR312.02019-04-23 04:05:57?§Òh(y5    3KMVE 230356Z AUTO 12003KT 10SM CLR 07/03 A3015 RMK AO2KMVE2019-04-23T03:56:00Z44.97-95.727.03.0120310.030.15059TRUETRUEVFRMETAR315.02019-04-23 04:05:57V§Òg)5    3KNUQ 230356Z 36009KT 10SM CLR 17/12 A3001 RMK AO2 SLP165 T01720122 $KNUQ2019-04-23T03:56:00Z37.4-122.0517.212.2360910.030.0088581016.5TRUETRUEVFRMETAR12.02019-04-23 04:05:57L§Òf) 5    3KOEB 230356Z AUTO 16007KT 10SM CLR 17/09 A2996 RMK AO2 T01720085KOEB2019-04-23T03:56:00Z41.92-85.0317.28.5160710.029.958662TRUETRUEVFRMETAR292.02019-04-23 04:05:57 Œ)TŒm§Òm);5    3KNOG 230356Z AUTO 12008KT 10SM BKN016 OVC021 22/20 A2999 RMK AO2 SLP136 T02170200 PNO $KNOG2019-04-23T03:56:00Z27.9-98.0521.720.0120810.029.9911421013.6TRUETRUETRUEMVFRMETAR78.02019-04-23 04:05:57O§Òl)5    3KWRB 230356Z 00000KT 10SM CLR 15/13 A3013 RMK AO2A SLP204 T01500134KWRB2019-04-23T03:56:00Z32.62-83.5815.013.40010.030.1299211020.4TRUEVFRMETAR90.02019-04-23 04:05:57O§Òk)5    3KMDT 230356Z 00000KT 10SM FEW150 13/09 A3005 RMK AO2 SLP178 T01280089KMDT2019-04-23T03:56:00Z40.2-76.7712.88.90010.030.0501981017.8TRUEVFRMETAR95.02019-04-23 04:05:57Q§Òj)5    3KMOB 230356Z 00000KT 10SM FEW250 13/11 A3017 RMK AO2 SLP212 T01280111KMOB2019-04-23T03:56:00Z30.68-88.2512.811.10010.030.1712591021.2TRUEVFRMETAR63.02019-04-23 04:05:57 t,Wt]§Òq)5    3KNSE 230356Z AUTO 30003KT 10SM CLR 12/09 A3015 RMK AO2 SLP197 T01220089 $KNSE2019-04-23T03:56:00Z30.73-87.0212.28.9300310.030.150591019.7TRUETRUETRUEVFRMETAR61.02019-04-23 04:05:57O§Òp)5    3KNTU 230356Z 22004KT 10SM CLR 13/11 A3009 RMK AO2 SLP192 T01280106KNTU2019-04-23T03:56:00Z36.82-76.0212.810.6220410.030.0885831019.2TRUEVFRMETAR7.02019-04-23 04:05:57c§Òo)35   3KXNO 230356Z AUTO 00000KT 10SM M 14/11 A3015 RMK AO2 SLP211 T01370112 CHINO RWY05 $KXNO2019-04-23T03:56:00Z33.62-81.0713.711.20010.030.150591021.1TRUETRUETRUEMETAR98.02019-04-23 04:05:57e§Òn)/5     3RKSG 230356Z 15008KT 4SM HZ SCT180 BKN200 24/13 A2987 RMK AO2A SLP118 T02420125 $RKSG2019-04-23T03:56:00Z36.97127.0224.212.515084.029.8700791011.8TRUETRUEHZMVFRMETAR16.02019-04-23 04:05:57 |LP|N§Òu) 5   3KP60 230356Z AUTO 32004KT M01/M04 A3027 RMK AO1 SLP239 T10061039KP602019-04-23T03:56:00Z44.55-110.42-0.6-3.9320430.2687021023.9TRUETRUEMETAR2388.02019-04-23 04:05:57v§Òt)K5      3RKJK 230356Z 19006KT 6SM -RA BKN065 20/16 A2988 RMK AO2A DZB35E53RAB53 SLP123 P0000 T02040164 $RKJK2019-04-23T03:56:00Z35.9126.6220.416.419066.029.8789371012.3TRUETRUE-RAVFR0.005METAR9.02019-04-23 04:05:57>§Òs(y5    3KBBB 230356Z AUTO 00000KT 10SM CLR 08/04 A3016 RMK AO2KBBB2019-04-23T03:56:00Z45.32-95.658.04.00010.030.159449TRUETRUEVFRMETAR317.02019-04-23 04:05:57j§Òr)=5    3KMEH 230356Z AUTO 00000KT 10SM FEW047 BKN080 OVC110 11/03 A3021 RMK AO2 SLP232 T01060033KMEH2019-04-23T03:56:00Z45.52-118.4210.63.30010.030.2096461023.2TRUETRUEVFRMETAR1136.02019-04-23 04:05:57 Uõ'8U]§Òy)5    3KCTB 230356Z AUTO 26015KT 10SM CLR 12/M02 A2993 RMK AO2 SLP130 T01171017KCTB2019-04-23T03:56:00Z48.6-112.3711.7-1.72601510.029.9291341013.0TRUETRUEVFRMETAR1175.02019-04-23 04:05:57i§Òx)35    3KVPZ 230356Z AUTO 17008KT 10SM SCT070 SCT100 19/10 A2991 RMK AO2 SLP125 T01940100 $KVPZ2019-04-23T03:56:00Z41.45-87.019.410.0170810.029.9114171012.5TRUETRUETRUEVFRMETAR231.02019-04-23 04:05:57H§Òw) 5    3K6B0 230356Z AUTO 00000KT 10SM CLR 08/04 A3005 RMK AO2 T00810042K6B02019-04-23T03:56:00Z43.98-73.18.14.20010.030.050198TRUETRUEVFRMETAR149.02019-04-23 04:05:57‚§Òv)e5     3KPSM 230356Z 03019G26KT 4SM -RA BR BKN006 OVC012 13/12 A2994 RMK AO2A PK WND 01028/04 SLP141 P0001 T01280123KPSM2019-04-23T03:56:00Z43.07-70.8212.812.33019264.029.9409451014.1TRUE-RA BRIFR0.01METAR31.02019-04-23 04:05:57 z4WzW§Ò})5    3KBOK 230356Z AUTO 00000KT 8SM CLR 12/10 A3022 RMK AO2 SLP249 T01220100KBOK2019-04-23T03:56:00Z42.07-124.2812.210.0008.030.2214571024.9TRUETRUEVFRMETAR140.02019-04-23 04:05:57W§Ò|)5    3KBTP 230356Z AUTO 00000KT 10SM CLR 13/07 A3011 RMK AO2 SLP201 T01280067KBTP2019-04-23T03:56:00Z40.77-79.9512.86.70010.030.1092531020.1TRUETRUEVFRMETAR380.02019-04-23 04:05:57Z§Ò{)5    3KBVX 230356Z AUTO 19005KT 10SM CLR 19/12 A3007 RMK AO2 SLP178 T01940117KBVX2019-04-23T03:56:00Z35.73-91.6519.411.7190510.030.0708661017.8TRUETRUEVFRMETAR141.02019-04-23 04:05:57f§Òz))5    3KCGZ 230356Z AUTO 28007KT 10SM CLR 23/M03 A2983 RMK AO2 SLP090 T02281028 PNO $KCGZ2019-04-23T03:56:00Z32.95-111.7722.8-2.8280710.029.8287411009.0TRUETRUETRUEVFRMETAR446.02019-04-23 04:05:57 b§Ó))5   3PAKK 230356Z AUTO 35010G18KT 10SM OVC075 03/M03 A2937 RMK AO2 SLP960 T00281033PAKK2019-04-23T03:56:00Z64.93-161.152.8-3.3350101810.029.371063996.0TRUETRUEVFRMETAR47.02019-04-23 04:05:57‚ §Ó)a5       3PAKP 230356Z AUTO 04017KT 2SM -SN BKN006 BKN010 OVC070 M13/M16 A2959 RMK AO2 SLP088 P0000 T11331161 FZRANOPAKP2019-04-23T03:56:00Z68.13-151.73-13.3-16.140172.029.5895671008.8TRUETRUETRUE-SNIFR0.005METAR642.02019-04-23 04:05:57‚§Ò)S5       3PALG 230356Z AUTO 20008KT 6SM -SN FEW016 OVC027 M04/M08 A2953 RMK AO2 SLP006 P0000 T10441083 FZRANOPALG2019-04-23T03:56:00Z61.53-160.33-4.4-8.320086.029.5305121000.6TRUETRUETRUE-SNMVFR0.005METAR17.02019-04-23 04:05:57\§Ò~)5    3KBMI 230356Z AUTO 21010KT 9SM SCT047 18/12 A2992 RMK AO2 SLP125 T01830122KBMI2019-04-23T03:56:00Z40.47-88.9218.312.2210109.029.9202751012.5TRUETRUEVFRMETAR267.02019-04-23 04:05:57 wí«w‚.§Ó)‚%5      3PAIW 230356Z AUTO 01024G29KT 4SM -SN BR FEW012 OVC040 M04/M06 A2961 RMK AO2 PK WND 01031/0315 UPB29E46SNE29B52 SLP029 P0000 T10441061 FZRANOPAIW2019-04-23T03:56:00Z65.62-168.1-4.4-6.11024294.029.6102371002.9TRUETRUETRUE-SN BRMVFR0.005METAR7.02019-04-23 04:05:57‚<§Ó)‚=5      3PAKH 230356Z AUTO 31019G24KT 9SM -SN FEW031 SCT050 BKN070 M02/M06 A2967 RMK AO2 PK WND 30027/0338 UPB20E43SNE20B32E41B48 SLP050 P0000 T10221061 FZRANO $PAKH2019-04-23T03:56:00Z56.93-154.18-2.2-6.131019249.029.669291005.0TRUETRUETRUETRUE-SNVFR0.005METAR14.02019-04-23 04:05:57‚ §Ó)i5       3PAKI 230356Z AUTO 29017KT 9SM -SN OVC027 M05/M09 A2964 RMK AO2 PK WND 28026/0312 SLP040 P0000 T10501089 FZRANOPAKI2019-04-23T03:56:00Z59.93-164.03-5.0-8.9290179.029.6397631004.0TRUETRUETRUE-SNMVFR0.005METAR4.02019-04-23 04:05:57 Lú)LW§Ó)5    3KSVN 230356Z AUTO 00000KT 10SM CLR 16/12 A3013 RMK AO2 SLP206 T01570119KSVN2019-04-23T03:56:00Z32.02-81.1515.711.90010.030.1299211020.6TRUETRUEVFRMETAR13.02019-04-23 04:05:57K§Ó) 5    3KHCD 230356Z AUTO 36004KT 10SM CLR 06/04 A3014 RMK AO2 T00580037KHCD2019-04-23T03:56:00Z44.87-94.385.83.7360410.030.138779TRUETRUEVFRMETAR323.02019-04-23 04:05:57‚§Ó)‚5       3PAIN 230356Z 24003KT 2 1/2SM -SN BR FEW015 BKN024 OVC035 01/M01 A2920 RMK AO2 VIS 1 1/2V5 RAE37SNB37 SLP916 P0000 T00111006 FZRANOPAIN2019-04-23T03:56:00Z63.73-148.921.1-0.624032.529.199802991.6TRUETRUE-SN BRIFR0.005METAR524.02019-04-23 04:05:57\§Ó)5    3KRYM 230356Z AUTO 00000KT 10SM CLR 02/01 A3014 RMK AO2 SLP219 T00230012 $KRYM2019-04-23T03:56:00Z46.08-94.372.31.20010.030.1387791021.9TRUETRUETRUEVFRMETAR351.02019-04-23 04:05:57 `#:?`Y§Ó )5    3KM19 230356Z AUTO 18007KT 10SM CLR 17/13 A3006 RMK AO2 SLP185 T01670128KM192019-04-23T03:56:00Z35.65-91.1716.712.8180710.030.0590551018.5TRUETRUEVFRMETAR73.02019-04-23 04:05:57u§Ó )C5     3KMBL 230356Z AUTO 28006KT 10SM SCT060 OVC080 11/08 A2986 RMK AO2 SLP128 T01060078 402610100KMBL2019-04-23T03:56:00Z44.27-86.2510.67.8280610.029.8612211012.8TRUETRUEVFR26.110.0METAR189.02019-04-23 04:05:57c§Ó )+5    3KSKF 230356Z 11008KT 10SM BKN018 OVC250 21/18 A3001 RMK AO2A SLP157 T02110175 $KSKF2019-04-23T03:56:00Z29.37-98.5721.117.5110810.030.0088581015.7TRUETRUEMVFRMETAR210.02019-04-23 04:05:57W§Ó )5    3KMQE 230356Z AUTO 03012G19KT 08/08 A2991 RMK AO1 SLP141 P0007 T00830083KMQE2019-04-23T03:56:00Z42.22-71.128.38.330121929.9114171014.1TRUETRUE0.07METAR199.02019-04-23 04:05:57 •Nv•[§Ó)5    3KLPC 230356Z AUTO 30004KT 7SM OVC009 12/11 A3003 RMK AO2 SLP171 T01220106KLPC2019-04-23T03:56:00Z34.67-120.4712.210.630047.030.0295281017.1TRUETRUEIFRMETAR27.02019-04-23 04:05:57R§Ó)5    3KLRD 230356Z 11012KT 10SM CLR 24/18 A2994 RMK AO2 SLP146 T02390178KLRD2019-04-23T03:56:00Z27.55-99.4723.917.81101210.029.9409451014.6TRUEVFRMETAR155.02019-04-23 04:05:57>§Ó(y5    3KLYV 230356Z AUTO 01006KT 10SM CLR 06/05 A3015 RMK AO2KLYV2019-04-23T03:56:00Z43.62-96.226.05.010610.030.15059TRUETRUEVFRMETAR436.02019-04-23 04:05:57h§Ó )/5     3KLZU 230356Z AUTO 00000KT 10SM CLR 14/12 A3015 RMK AO2 SLP215 T01440117 402720056KLZU2019-04-23T03:56:00Z33.98-83.9714.411.70010.030.150591021.5TRUETRUEVFR27.25.6METAR323.02019-04-23 04:05:57 l -3lA§Ó(y5    3KLNP 230355Z AUTO 15003KT 10SM CLR 17/07 A3018 RMK AO2KLNP2019-04-23T03:55:00Z36.97-82.5217.07.0150310.030.180119TRUETRUEVFRMETAR817.02019-04-23 04:05:57t§Ó)M5     3PADK 230356Z AUTO 28014KT 10SM FEW023 OVC050 03/01 A3015 RMK AO2 RAB17E39 SLP211 P0001 T00330011PADK2019-04-23T03:56:00Z51.88-176.653.31.12801410.030.150591021.1TRUETRUEVFR0.01METAR4.02019-04-23 04:05:57W§Ó)5    3KNYG 230356Z AUTO 31009KT 10SM CLR 14/11 A3010 RMK AO2 SLP192 T01440111KNYG2019-04-23T03:56:00Z38.5-77.2814.411.1310910.030.1003931019.2TRUETRUEVFRMETAR4.02019-04-23 04:05:57p§Ó)35    3RJTY 230356Z AUTO 16013G18KT 10SM CLR 23/09 A3016 RMK AO2 SLP214 T02250086 FZRANO $RJTY2019-04-23T03:56:00Z35.75139.3322.58.6160131810.030.1594491021.4TRUETRUETRUETRUEVFRMETAR139.02019-04-23 04:05:57 4:Àø4>§Ó)5    3EHDL 230355Z AUTO 08008KT 360V140 9999 NCD 10/01 Q1002 BLUEHDL2019-04-23T03:55:00Z52.075.8710.01.08086.2129.586615TRUEVFRMETAR52.02019-04-23 04:05:57B§Ó)5    3EHGR 230355Z AUTO 08010KT 050V120 9999 OVC330 11/03 Q1001 BLUEHGR2019-04-23T03:55:00Z51.574.9211.03.080106.2129.557087TRUEVFRMETAR13.02019-04-23 04:05:57;§Ó)5    3EHLW 230355Z AUTO 09009KT 040V140 9999 NCD 09/03 Q1004 BLUEHLW2019-04-23T03:55:00Z53.225.759.03.09096.2129.64567TRUEVFRMETAR2.02019-04-23 04:05:573§Ó(q5    3EHVK 230355Z AUTO 07009KT 9999 NCD 09/02 Q1002 BLUEHVK2019-04-23T03:55:00Z51.635.79.02.07096.2129.586615TRUEVFRMETAR21.02019-04-23 04:05:57@§Ó(y5    3KCKN 230355Z AUTO 36008KT 10SM CLR 08/04 A3014 RMK AO2KCKN2019-04-23T03:55:00Z47.85-96.628.04.0360810.030.138779TRUETRUEVFRMETAR273.02019-04-23 04:05:57 ÇC‰£ÇV§Ó)5    3KNBG 230355Z 00000KT 10SM BKN250 15/14 A3014 RMK AO2 SLP207 T01500144 $KNBG2019-04-23T03:55:00Z29.82-90.0215.014.40010.030.1387791020.7TRUETRUEVFRMETAR1.02019-04-23 04:05:57`§Ó)/5    3KBYS 230355Z 30002KT 10SM CLR 20/00 A2998 RMK AO2 SLP134 WND DATA ESTMD T02041004KBYS2019-04-23T03:55:00Z35.28-116.6220.4-0.4300210.029.979331013.4TRUEVFRMETAR716.02019-04-23 04:05:574§Ó(q5    3EHVL 230355Z AUTO 09018KT 9999 NCD 10/05 Q1004 BLUEHVL2019-04-23T03:55:00Z53.234.9210.05.090186.2129.64567TRUEVFRMETAR5.02019-04-23 04:05:577§Ó(w5    3EHWO 230355Z AUTO 08009KT 9999 OVC310 11/02 Q1000 BLUEHWO2019-04-23T03:55:00Z51.454.3211.02.08096.2129.52756TRUEVFRMETAR17.02019-04-23 04:05:57 Åg•ÅJ§Ó!) 5    3K1A9 230355Z AUTO 00000KT 10SM CLR 14/12 A3013 RMK AO2 T01350122K1A92019-04-23T03:55:00Z32.43-86.5213.512.20010.030.129921TRUETRUEVFRMETAR69.02019-04-23 04:05:57L§Ó ) 5    3K1K1 230355Z AUTO 35005KT 10SM CLR 14/10 A3009 RMK AO2 T01350099K1K12019-04-23T03:55:00Z37.77-97.1213.59.9350510.030.088583TRUETRUEVFRMETAR416.02019-04-23 04:05:570§Ó(m5     3K28J 230355Z AUTO 00000KT 10SM CLR A3015 RMK AO2K28J2019-04-23T03:55:00Z29.65-81.580010.030.15059TRUETRUEVFRMETAR15.02019-04-23 04:05:57]§Ó)%5      3K2P2 230355Z AUTO 03009KT 3SM +RA OVC003 04/04 A2992 RMK AO2 P0017 T00380038K2P22019-04-23T03:55:00Z45.38-86.923.83.83093.029.920275TRUETRUE+RALIFR0.17METAR199.02019-04-23 04:05:57 ½/Y…½B§Ó%(y5    3K4O4 230355Z AUTO 10005KT 10SM CLR 17/13 A3004 RMK AO2K4O42019-04-23T03:55:00Z33.92-94.8717.013.0100510.030.041338TRUETRUEVFRMETAR144.02019-04-23 04:05:57N§Ó$)5    3K0F2 230355Z AUTO 11003KT 10SM OVC050 20/17 A3002 RMK AO2 T02020167K0F22019-04-23T03:55:00Z33.6-97.7820.216.7110310.030.02067TRUETRUEVFRMETAR336.02019-04-23 04:05:57P§Ó#)5    3K13K 230355Z AUTO 34011KT 10SM OVC035 16/11 A3007 RMK AO2 T01600111K13K2019-04-23T03:55:00Z37.85-96.316.011.13401110.030.070866TRUETRUEVFRMETAR369.02019-04-23 04:05:57K§Ó") 5    3K18A 230355Z AUTO 00000KT 10SM CLR 15/11 A3014 RMK AO2 T01480106K18A2019-04-23T03:55:00Z34.35-83.1314.810.60010.030.138779TRUETRUEVFRMETAR271.02019-04-23 04:05:57 ¿/W“¿N§Ó))5    3K4R5 230355Z AUTO 36005KT 10SM SCT120 02/01 A3010 RMK AO2 T00150009K4R52019-04-23T03:55:00Z46.78-90.771.50.9360510.030.100393TRUETRUEVFRMETAR198.02019-04-23 04:05:57>§Ó((w5    3K4S1 230355Z AUTO 34006KT 7SM CLR 11/07 A3024 RMK AO1K4S12019-04-23T03:55:00Z42.42-124.4211.07.034067.030.239174TRUETRUEVFRMETAR5.02019-04-23 04:05:57R§Ó')5   3K4V0 230355Z AUTO 05015G23KT 10SM CLR 12/02 A3013 RMK AO2 T01230019K4V02019-04-23T03:55:00Z40.1-108.7712.31.950152310.030.129921TRUETRUEVFRMETAR1608.02019-04-23 04:05:57K§Ó&) 5    3K3R7 230355Z AUTO 14003KT 10SM CLR 18/16 A3011 RMK AO2 T01830163K3R72019-04-23T03:55:00Z30.25-92.6718.316.3140310.030.109253TRUETRUEVFRMETAR7.02019-04-23 04:05:57 ®!\®Y§Ó-)!5     3K8W2 230355Z AUTO 00000KT 10SM CLR 10/08 A3013 RMK AO1 T00960082 402180037K8W22019-04-23T03:55:00Z38.65-78.79.68.20010.030.129921TRUETRUEVFR21.83.7METAR297.02019-04-23 04:05:57I§Ó,) 5    3KA08 230355Z AUTO 00000KT 10SM CLR 14/10 A3013 RMK AO2 T01410095KA082019-04-23T03:55:00Z32.52-87.3814.19.50010.030.129921TRUETRUEVFRMETAR69.02019-04-23 04:05:57?§Ó+(y5    3KAAS 230355Z AUTO 00000KT 10SM CLR 16/08 A3014 RMK AO1KAAS2019-04-23T03:55:00Z37.35-85.3216.08.00010.030.138779TRUETRUEVFRMETAR281.02019-04-23 04:05:57Y§Ó*)5    3KAAT 230355Z AUTO 00000KT 10SM CLR 12/03 A3023 RMK AO2 SLP225 T01220033KAAT2019-04-23T03:55:00Z41.48-120.5712.23.30010.030.2303141022.5TRUETRUEVFRMETAR1331.02019-04-23 04:05:57 Ï5m•Ï@§Ó1(y5    3K6A2 230355Z AUTO 00000KT 10SM CLR 15/10 A3016 RMK AO2K6A22019-04-23T03:55:00Z33.23-84.2715.010.00010.030.159449TRUETRUEVFRMETAR292.02019-04-23 04:05:57R§Ó0)5    3K6S2 230355Z AUTO 31005KT 10SM SCT039 SCT045 BKN055 12/09 A3029 RMK AO2K6S22019-04-23T03:55:00Z43.98-124.1212.09.0310510.030.28937TRUETRUEVFRMETAR16.02019-04-23 04:05:57B§Ó/(y5    3K74V 230355Z AUTO 22008KT 10SM CLR 10/03 A3015 RMK AO2K74V2019-04-23T03:55:00Z40.28-110.0510.03.0220810.030.15059TRUETRUEVFRMETAR1576.02019-04-23 04:05:57E§Ó.(5    3K82V 230355Z AUTO 20004KT 10SM OVC032 02/00 A3026 RMK AO2K82V2019-04-23T03:55:00Z41.15-104.132.00.0200410.030.259842TRUETRUEVFRMETAR1570.02019-04-23 04:05:57 º.QºM§Ó5) 5    3KAJG 230355Z AUTO 21007KT 10SM CLR 19/11 A3001 RMK AO2 T01900105KAJG2019-04-23T03:55:00Z38.62-87.7319.010.5210710.030.008858TRUETRUEVFRMETAR131.02019-04-23 04:05:57>§Ó4(y5    3KADC 230355Z AUTO 00000KT 10SM CLR 07/01 A3012 RMK AO2KADC2019-04-23T03:55:00Z46.45-95.227.01.00010.030.121063TRUETRUEVFRMETAR418.02019-04-23 04:05:57W§Ó3)!5    3KADM 230355Z AUTO 14003KT 10SM SCT046 OVC055 21/17 A3004 RMK AO2 T02100172KADM2019-04-23T03:55:00Z34.28-97.0221.017.2140310.030.041338TRUETRUEVFRMETAR232.02019-04-23 04:05:57L§Ó2) 5    3K5M9 230355Z AUTO 22003KT 10SM CLR 18/10 A3006 RMK AO2 T01770096K5M92019-04-23T03:55:00Z37.33-88.1217.79.6220310.030.059055TRUETRUEVFRMETAR199.02019-04-23 04:05:57 ŸAnŸI§Ó9) 5    3KDZJ 230355Z AUTO 00000KT 10SM CLR 11/09 A3019 RMK AO2 T01110094KDZJ2019-04-23T03:55:00Z34.85-84.011.19.40010.030.188976TRUETRUEVFRMETAR582.02019-04-23 04:05:57M§Ó8) 5    3KDZB 230355Z AUTO 14004KT 10SM CLR 21/16 A3004 RMK AO2 T02050162KDZB2019-04-23T03:55:00Z30.53-98.3720.516.2140410.030.041338TRUETRUEVFRMETAR334.02019-04-23 04:05:57O§Ó7)5    3KAFK 230355Z AUTO 35007KT 10SM OVC013 10/08 A3012 RMK AO2 T01030077KAFK2019-04-23T03:55:00Z40.6-95.8510.37.7350710.030.121063TRUETRUEMVFRMETAR354.02019-04-23 04:05:57d§Ó6)-5    3KAIG 230355Z AUTO 02013G18KT 10SM OVC006 04/04 A2993 RMK AO2 T00400036 401720040KAIG2019-04-23T03:55:00Z45.15-89.124.03.620131810.029.929134TRUETRUEIFR17.24.0METAR464.02019-04-23 04:05:57 »+D}»<§Ó=(q5   3KECU 230355Z AUTO 14009KT 10SM 19/15 A3006 RMK AO2KECU2019-04-23T03:55:00Z29.95-100.1719.015.0140910.030.059055TRUETRUEMETAR725.02019-04-23 04:05:57A§Ó<(y5    3KECS 230355Z AUTO 09004KT 10SM CLR 06/00 A3023 RMK AO2KECS2019-04-23T03:55:00Z43.88-104.326.00.090410.030.230314TRUETRUEVFRMETAR1273.02019-04-23 04:05:57a§Ó;)%5     3KEAT 230355Z AUTO 30004KT 10SM CLR 14/04 A3010 RMK AO2 SLP193 T01390044 TSNOKEAT2019-04-23T03:55:00Z47.4-120.213.94.4300410.030.1003931019.3TRUETRUETRUEVFRMETAR377.02019-04-23 04:05:57O§Ó:) 5    3KE38 230355Z AUTO 12005KT 10SM CLR 17/11 A3004 RMK AO2 T01740109KE382019-04-23T03:55:00Z30.38-103.6817.410.9120510.030.041338TRUETRUEVFRMETAR1376.02019-04-23 04:05:57 ›-_ƒ›b§ÓA)55     3KEHA 230355Z AUTO 04006KT 10SM DZ SCT008 BKN012 BKN020 13/09 A3019 RMK AO2 T01340086KEHA2019-04-23T03:55:00Z37.0-101.913.48.640610.030.188976TRUETRUEDZMVFRMETAR1099.02019-04-23 04:05:57V§Ó@)'5    3KEFT 230355Z AUTO 10SM SCT005 BKN010 16/15 A2980 RMK AO2 LTG DSNT E T01610152KEFT2019-04-23T03:55:00Z42.62-89.616.115.210.029.799213TRUETRUEMVFRMETAR331.02019-04-23 04:05:57H§Ó?) 5    3KEDN 230355Z AUTO 00000KT 10SM CLR 15/12 A3015 RMK AO2 T01500124KEDN2019-04-23T03:55:00Z31.3-85.915.012.40010.030.15059TRUETRUEVFRMETAR110.02019-04-23 04:05:57M§Ó>) 5    3KEDC 230355Z AUTO 17003KT 10SM BKN026 OVC034 19/17 A3006 RMK AO2KEDC2019-04-23T03:55:00Z30.4-97.5719.017.0170310.030.059055TRUETRUEMVFRMETAR189.02019-04-23 04:05:57 –A{–_§ÓE)!5      3KDUX 230355Z AUTO 34005KT 10SM -RA CLR 10/10 A3014 RMK AO2 P0002 T01000095KDUX2019-04-23T03:55:00Z35.85-102.0210.09.5340510.030.138779TRUETRUE-RAVFR0.02METAR1129.02019-04-23 04:05:57@§ÓD(y5    3KDXX 230355Z AUTO 21003KT 10SM CLR 10/07 A3015 RMK AO2KDXX2019-04-23T03:55:00Z44.98-96.1810.07.0210310.030.15059TRUETRUEVFRMETAR330.02019-04-23 04:05:57P§ÓC)5    3KF46 230355Z AUTO 16003KT 10SM BKN042 21/17 A3005 RMK AO2 T02130165KF462019-04-23T03:55:00Z32.93-96.4321.316.5160310.030.050198TRUETRUEVFRMETAR176.02019-04-23 04:05:57c§ÓB)75   3PAUT 230355Z AUTO 29015G21KT 10SM SCT043 BKN048 BKN055 02/M04 A2995 RMK AO2 T00161040PAUT2019-04-23T03:55:00Z54.15-165.61.6-4.0290152110.029.949802TRUETRUEVFRMETAR25.02019-04-23 04:05:57 ;i±ëI§ÓJ) 5    3KDLO 230355Z AUTO 00000KT 10SM CLR 20/04 A2998 RMK AO2 T02010044KDLO2019-04-23T03:55:00Z35.75-119.2320.14.40010.029.97933TRUETRUEVFRMETAR96.02019-04-23 04:05:57@§ÓI(y5    3KDNN 230355Z AUTO 00000KT 10SM CLR 12/11 A3016 RMK AO2KDNN2019-04-23T03:55:00Z34.72-84.8712.011.00010.030.159449TRUETRUEVFRMETAR216.02019-04-23 04:05:572§ÓH(m5     3KDNV 230355Z AUTO 20009KT 10SM CLR A2994 RMK AO2KDNV2019-04-23T03:55:00Z40.2-87.6200910.029.940945TRUETRUEVFRMETAR212.02019-04-23 04:05:57L§ÓG) 5    3KDRI 230355Z AUTO 12003KT 10SM CLR 19/16 A3012 RMK AO2 T01850156KDRI2019-04-23T03:55:00Z30.83-93.3318.515.6120310.030.121063TRUETRUEVFRMETAR63.02019-04-23 04:05:57?§ÓF({5    3KDUA 230355Z AUTO 15003KT CLR 18/15 A3005 RMK AO2 PWINOKDUA2019-04-23T03:55:00Z33.95-96.418.015.0150330.050198TRUETRUETRUEMETAR213.02019-04-23 04:05:57 Ï*f—ρB§ÓN(y5    3KCZT 230355Z AUTO 11008KT 10SM CLR 22/17 A2995 RMK AO2KCZT2019-04-23T03:55:00Z28.52-99.8222.017.0110810.029.949802TRUETRUEVFRMETAR183.02019-04-23 04:05:57I§ÓM) 5    3KD73 230355Z AUTO 00000KT 10SM CLR 14/11 A3015 RMK AO2 T01370114KD732019-04-23T03:55:00Z33.78-83.713.711.40010.030.15059TRUETRUEVFRMETAR267.02019-04-23 04:05:57>§ÓL(y5    3KDED 230355Z AUTO 00000KT 10SM CLR 15/12 A3015 RMK AO2KDED2019-04-23T03:55:00Z29.07-81.2815.012.00010.030.15059TRUETRUEVFRMETAR24.02019-04-23 04:05:57P§ÓK)5    3KDLH 230355Z 10003KT 10SM CLR 03/M01 A3010 RMK AO2 SLP208 T00281011KDLH2019-04-23T03:55:00Z46.85-92.22.8-1.1100310.030.1003931020.8TRUEVFRMETAR435.02019-04-23 04:05:57 À2bŽÀH§ÓR) 5    3KW96 230355Z AUTO 00000KT 10SM CLR 11/10 A3010 RMK AO1 T01130097KW962019-04-23T03:55:00Z37.5-77.1211.39.70010.030.100393TRUETRUEVFRMETAR37.02019-04-23 04:05:57N§ÓQ)5    3KWDG 230355Z AUTO 01004KT 10SM CLR 16/13 A3006 RMK AO2 LTG DSNT SWKWDG2019-04-23T03:55:00Z36.37-97.7716.013.010410.030.059055TRUETRUEVFRMETAR356.02019-04-23 04:05:57J§ÓP) 5    3KY23 230355Z AUTO 36008KT 10SM CLR 05/04 A3005 RMK AO2 T00450037KY232019-04-23T03:55:00Z45.3-91.634.53.7360810.030.050198TRUETRUEVFRMETAR322.02019-04-23 04:05:57H§ÓO) 5    3KCWV 230355Z AUTO 00000KT 10SM CLR 14/13 A3015 RMK AO2 T01410130KCWV2019-04-23T03:55:00Z32.2-81.8714.113.00010.030.15059TRUETRUEVFRMETAR33.02019-04-23 04:05:57 Ð2c•Ð?§ÓV(y5    3KW63 230355Z AUTO 00000KT 10SM CLR 11/11 A3012 RMK AO1KW632019-04-23T03:55:00Z36.6-78.5511.011.00010.030.121063TRUETRUEVFRMETAR129.02019-04-23 04:05:57H§ÓU) 5    3KW75 230355Z AUTO 00000KT 10SM CLR 13/12 A3009 RMK AO1 T01250124KW752019-04-23T03:55:00Z37.6-76.4512.512.40010.030.088583TRUETRUEVFRMETAR9.02019-04-23 04:05:57I§ÓT) 5    3KW78 230355Z AUTO 00000KT 10SM CLR 10/09 A3013 RMK AO1 T00970090KW782019-04-23T03:55:00Z36.68-78.859.79.00010.030.129921TRUETRUEVFRMETAR129.02019-04-23 04:05:57H§ÓS) 5    3KW81 230355Z AUTO 00000KT 10SM CLR 09/09 A3012 RMK AO1 T00910091KW812019-04-23T03:55:00Z37.18-78.19.19.10010.030.121063TRUETRUEVFRMETAR129.02019-04-23 04:05:57 ¿0^Ž¿I§ÓZ) 5    3KVBW 230355Z AUTO 00000KT 10SM CLR 10/09 A3014 RMK AO1 T00970091KVBW2019-04-23T03:55:00Z38.37-78.979.79.10010.030.138779TRUETRUEVFRMETAR355.02019-04-23 04:05:57J§ÓY) 5    3KVJI 230355Z AUTO 00000KT 10SM CLR 12/08 A3017 RMK AO2 T01200081KVJI2019-04-23T03:55:00Z36.67-82.0212.08.10010.030.171259TRUETRUEVFRMETAR631.02019-04-23 04:05:57L§ÓX) 5    3KVLL 230355Z AUTO 11003KT 10SM CLR 14/04 A3004 RMK AO2 T01350042KVLL2019-04-23T03:55:00Z42.55-83.1813.54.2110310.030.041338TRUETRUEVFRMETAR222.02019-04-23 04:05:57J§ÓW) 5    3KW31 230355Z AUTO 00000KT 10SM CLR 12/09 A3012 RMK AO1 T01160091KW312019-04-23T03:55:00Z36.95-78.1811.69.10010.030.121063TRUETRUEVFRMETAR162.02019-04-23 04:05:57 ¸N¸O§Ó^)5    3KFWS 230355Z AUTO 14004KT 10SM SCT047 20/17 A3004 RMK AO2 T02000165KFWS2019-04-23T03:55:00Z32.57-97.320.016.5140410.030.041338TRUETRUEVFRMETAR208.02019-04-23 04:05:57;§Ó](q5   3KFWZ 230355Z AUTO 22003KT 10SM 00/00 A3020 RMK AO2KFWZ2019-04-23T03:55:00Z42.52-108.780.00.0220310.030.200787TRUETRUEMETAR2588.02019-04-23 04:05:57K§Ó\) 5    3KGAO 230355Z AUTO 13003KT 10SM CLR 18/14 A3014 RMK AO2 T01770137KGAO2019-04-23T03:55:00Z29.45-90.2717.713.7130310.030.138779TRUETRUEVFRMETAR1.02019-04-23 04:05:57[§Ó[)!5     3KUNI 230355Z AUTO 00000KT 10SM CLR 11/09 A3009 RMK AO2 T01140091 402250028KUNI2019-04-23T03:55:00Z39.22-82.2311.49.10010.030.088583TRUETRUEVFR22.52.8METAR193.02019-04-23 04:05:57 ’*\e’M§Ób) 5    3KF00 230355Z AUTO 10003KT 10SM CLR 18/17 A3004 RMK AO2 T01820175KF002019-04-23T03:55:00Z33.62-96.1818.217.5100310.030.041338TRUETRUEVFRMETAR188.02019-04-23 04:05:57q§Óa)Q5      3KF05 230355Z AUTO 09005KT 10SM VCTS OVC110 20/19 A3000 RMK AO1 LTG DSNT NW THRU NE P0002 T02000189KF052019-04-23T03:55:00Z34.23-99.2820.018.990510.030.0TRUETRUEVCTSVFR0.02METAR386.02019-04-23 04:05:57H§Ó`) 5    3KFHB 230355Z AUTO 00000KT 10SM CLR 15/14 A3015 RMK AO2 T01550143KFHB2019-04-23T03:55:00Z30.62-81.4715.514.30010.030.15059TRUETRUEVFRMETAR5.02019-04-23 04:05:57P§Ó_)5    3KFKR 230355Z AUTO 19005KT 10SM BKN090 18/10 A2999 RMK AO2 T01770104KFKR2019-04-23T03:55:00Z40.27-86.5717.710.4190510.029.991142TRUETRUEVFRMETAR262.02019-04-23 04:05:57 ™5Yv™W§Óf)!5    3KERV 230355Z AUTO 13009KT 10SM SCT027 BKN050 20/16 A3003 RMK AO2 T01970156KERV2019-04-23T03:55:00Z29.98-99.0819.715.6130910.030.029528TRUETRUEVFRMETAR510.02019-04-23 04:05:57]§Óe)%5      3KERY 230355Z AUTO 36006KT 7SM -RA OVC003 04/03 A2992 RMK AO2 P0004 T00380025KERY2019-04-23T03:55:00Z46.3-85.453.82.536067.029.920275TRUETRUE-RALIFR0.04METAR265.02019-04-23 04:05:57V§Ód)!5    3KETN 230355Z AUTO 14006KT 10SM BKN047 BKN055 20/15 A3002 RMK AO2 T01990153KETN2019-04-23T03:55:00Z32.42-98.8219.915.3140610.030.02067TRUETRUEVFRMETAR446.02019-04-23 04:05:57E§Óc(5    3KEVU 230355Z AUTO 32008KT 10SM OVC013 11/03 A3009 RMK AO2KEVU2019-04-23T03:55:00Z40.35-94.9211.03.0320810.030.088583TRUETRUEMVFRMETAR349.02019-04-23 04:05:57 Ò*k¥ÒM§Ój) 5    3KSEP 230355Z AUTO 15008KT 10SM CLR 21/16 A3004 RMK AO2 T02050158KSEP2019-04-23T03:55:00Z32.22-98.1720.515.8150810.030.041338TRUETRUEVFRMETAR402.02019-04-23 04:05:57@§Ói(y5    3KSEZ 230355Z AUTO 00000KT 10SM CLR 16/00 A2998 RMK AO2KSEZ2019-04-23T03:55:00Z34.85-111.7816.00.00010.029.97933TRUETRUEVFRMETAR1473.02019-04-23 04:05:579§Óh({5   3KEMV 230355Z AUTO 00000KT 12/10 A3013 RMK AO2 T01150100KEMV2019-04-23T03:55:00Z36.68-77.4811.510.00030.129921TRUETRUEMETAR39.02019-04-23 04:05:57P§Óg)5    3KENL 230355Z AUTO 21011KT 10SM OVC075 21/13 A2999 RMK AO2 T02050130KENL2019-04-23T03:55:00Z38.52-89.120.513.02101110.029.991142TRUETRUEVFRMETAR163.02019-04-23 04:05:57 £ N‰£`§Ón)'5     3KSAR 230355Z AUTO 21004KT 10SM OVC075 20/13 A3002 RMK AO2 T02010130 402560126KSAR2019-04-23T03:55:00Z38.15-89.720.113.0210410.030.02067TRUETRUEVFR25.612.6METAR164.02019-04-23 04:05:57?§Óm(y5    3KSBO 230355Z AUTO 00000KT 10SM CLR 14/12 A3015 RMK AO2KSBO2019-04-23T03:55:00Z32.62-82.3714.012.00010.030.15059TRUETRUEVFRMETAR100.02019-04-23 04:05:57L§Ól)5    3KSCD 230355Z AUTO 00000KT 10SM BKN110 13/13 A3015 RMK AO2 T01290129KSCD2019-04-23T03:55:00Z33.17-86.312.912.90010.030.15059TRUETRUEVFRMETAR173.02019-04-23 04:05:57Z§Ók)5    3KSCK 230355Z AUTO 30011KT 10SM CLR 23/08 A2995 RMK AO2 SLP141 T02280083KSCK2019-04-23T03:55:00Z37.88-121.2222.88.33001110.029.9498021014.1TRUETRUEVFRMETAR10.02019-04-23 04:05:57 ¿5_¿H§Ór) 5    3KRSV 230355Z AUTO 20009KT 10SM CLR 19/11 A3000 RMK AO2 T01900110KRSV2019-04-23T03:55:00Z39.02-87.6519.011.0200910.030.0TRUETRUEVFRMETAR141.02019-04-23 04:05:57L§Óq) 5    3KRYW 230355Z AUTO 13006KT 10SM CLR 20/16 A3004 RMK AO2 T01960160KRYW2019-04-23T03:55:00Z30.5-97.9719.616.0130610.030.041338TRUETRUEVFRMETAR376.02019-04-23 04:05:57P§Óp)5    3KS52 230355Z AUTO 35003KT 10SM BKN090 14/03 A3007 RMK AO2 T01380034KS522019-04-23T03:55:00Z48.38-120.1513.83.4350310.030.070866TRUETRUEVFRMETAR520.02019-04-23 04:05:57E§Óo(5    3KSAA 230355Z AUTO 29009KT 10SM SCT046 05/01 A3021 RMK AO2KSAA2019-04-23T03:55:00Z41.45-106.835.01.0290910.030.209646TRUETRUEVFRMETAR2138.02019-04-23 04:05:57 0Qzd§Óv)95     3KRLD 230355Z AUTO 28008KT 250V310 10SM -DZ SCT100 OVC120 20/10 A3010 RMK AO2 T02010096KRLD2019-04-23T03:55:00Z46.3-119.320.19.6280810.030.100393TRUETRUE-DZVFRMETAR120.02019-04-23 04:05:57Q§Óu)5    3KRNO 230355Z VRB03KT 10SM CLR 17/M09 A3021 RMK AO2 SLP202 T01721089KRNO2019-04-23T03:55:00Z39.5-119.7717.2-8.90310.030.2096461020.2TRUEVFRMETAR1342.02019-04-23 04:05:57Y§Ót)%5    3KRPJ 230355Z AUTO 23009KT 10SM CLR 14/14 A2984 RMK AO2 LTG DSNT NE T01420135KRPJ2019-04-23T03:55:00Z41.88-89.0814.213.5230910.029.840551TRUETRUEVFRMETAR238.02019-04-23 04:05:57J§Ós) 5    3KRSN 230355Z AUTO 00000KT 10SM CLR 17/13 A3013 RMK AO2 T01650128KRSN2019-04-23T03:55:00Z32.52-92.5816.512.80010.030.129921TRUETRUEVFRMETAR95.02019-04-23 04:05:57 µ:u‘µV§Óz)!5    3KPYX 230355Z AUTO 00000KT 10SM SCT060 OVC080 15/11 A3012 RMK AO2 T01540107KPYX2019-04-23T03:55:00Z36.42-100.7515.410.70010.030.121063TRUETRUEVFRMETAR889.02019-04-23 04:05:57^§Óy)/5    3KRAS 230355Z AUTO 11011KT 10SM BKN015 BKN022 OVC029 23/21 A3001 RMK AO2 T02280211KRAS2019-04-23T03:55:00Z27.82-97.0822.821.11101110.030.008858TRUETRUEMVFRMETAR2.02019-04-23 04:05:57?§Óx(y5    3KRGA 230355Z AUTO 00000KT 10SM CLR 15/08 A3009 RMK AO2KRGA2019-04-23T03:55:00Z37.63-84.3315.08.00010.030.088583TRUETRUEVFRMETAR305.02019-04-23 04:05:57@§Ów(y5    3KRKR 230355Z AUTO 00000KT 10SM CLR 16/15 A3006 RMK AO2KRKR2019-04-23T03:55:00Z35.02-94.6216.015.00010.030.059055TRUETRUEVFRMETAR138.02019-04-23 04:05:57 °0gw°A§Ó~(5    3KOLG 230355Z AUTO 00000KT 10SM OVC004 01/01 A3010 RMK AO1KOLG2019-04-23T03:55:00Z46.3-91.821.01.00010.030.100393TRUETRUELIFRMETAR336.02019-04-23 04:05:57j§Ó});5     3KPVW 230355Z AUTO 04013KT 10SM SCT007 SCT017 SCT036 11/11 A3007 RMK AO2 P0003 T01100107KPVW2019-04-23T03:55:00Z34.17-101.7211.010.7401310.030.070866TRUETRUEVFR0.03METAR1028.02019-04-23 04:05:57C§Ó|(5    3KPWC 230355Z AUTO 18003KT 10SM SCT075 04/02 A3016 RMK AO2KPWC2019-04-23T03:55:00Z46.72-94.374.02.0180310.030.159449TRUETRUEVFRMETAR395.02019-04-23 04:05:57J§Ó{) 5    3KPXE 230355Z AUTO 00000KT 10SM CLR 14/12 A3015 RMK AO2 T01390115KPXE2019-04-23T03:55:00Z32.52-83.7713.911.50010.030.15059TRUETRUEVFRMETAR127.02019-04-23 04:05:57 •.3Z•?§Ô(y5    3KOBE 230355Z AUTO 00000KT 10SM CLR 15/13 A3013 RMK AO2KOBE2019-04-23T03:55:00Z27.27-80.8515.013.00010.030.129921TRUETRUEVFRMETAR11.02019-04-23 04:05:57S§Ô)5     3KOEO 230355Z AUTO 01004KT 10SM CLR 05/04 A3012 RMK AO2 T00520038 PWINOKOEO2019-04-23T03:55:00Z45.32-92.75.23.810410.030.121063TRUETRUETRUEVFRMETAR275.02019-04-23 04:05:57u§Ô)O5     3KOJA 230355Z AUTO 04005KT 10SM -VCTSRA SCT038 BKN065 OVC110 17/15 A3008 RMK AO2 LTG DSNT S AND SWKOJA2019-04-23T03:55:00Z35.55-98.6717.015.040510.030.079725TRUETRUEVCTS -RAVFRMETAR490.02019-04-23 04:05:57L§Ó)5     3KOLE 230355Z AUTO 07005KT 3/4SM BR VV005 08/08 A3012 RMK AO2KOLE2019-04-23T03:55:00Z42.23-78.378.08.07050.7530.121063TRUETRUEBRLIFR500METAR651.02019-04-23 04:05:57 ¿=o˜¿S§Ô)5   3KMNZ 230355Z AUTO 16010G15KT 10SM CLR 21/15 A3003 RMK AO2 T02080153KMNZ2019-04-23T03:55:00Z31.67-98.1520.815.3160101510.030.029528TRUETRUEVFRMETAR396.02019-04-23 04:05:57Q§Ô)5    3KMQB 230355Z AUTO 30011KT 10SM BKN039 16/12 A2997 RMK AO2 T01550117KMQB2019-04-23T03:55:00Z40.52-90.6515.511.73001110.029.970472TRUETRUEVFRMETAR215.02019-04-23 04:05:57H§Ô)5    3KMZZ 230355Z AUTO 00000KT 10SM SCT100 16/10 A3000 RMK AO2 T01610095KMZZ2019-04-23T03:55:00Z40.48-85.6816.19.50010.030.0TRUETRUEVFRMETAR262.02019-04-23 04:05:57=§Ô(y5    3KN03 230355Z AUTO 00000KT 10SM CLR 07/06 A3010 RMK AO2KN032019-04-23T03:55:00Z42.6-76.227.06.00010.030.100393TRUETRUEVFRMETAR366.02019-04-23 04:05:57 Ð/Z”Ё>§Ô (y5    3KMKS 230355Z AUTO 00000KT 10SM CLR 13/06 A3016 RMK AO2KMKS2019-04-23T03:55:00Z33.18-80.0313.06.00010.030.159449TRUETRUEVFRMETAR23.02019-04-23 04:05:57@§Ô (y5    3KMLJ 230355Z AUTO 00000KT 10SM CLR 15/13 A3014 RMK AO2KMLJ2019-04-23T03:55:00Z33.15-83.2315.013.00010.030.138779TRUETRUEVFRMETAR117.02019-04-23 04:05:57O§Ô)5    3KMMH 230355Z AUTO 27004KT 10SM CLR 09/M08 A3030 RMK AO2 T00881077KMMH2019-04-23T03:55:00Z37.62-118.828.8-7.7270410.030.301182TRUETRUEVFRMETAR2173.02019-04-23 04:05:57K§Ô) 5    3KMNE 230355Z AUTO 14004KT 10SM CLR 20/15 A3008 RMK AO2 T01980150KMNE2019-04-23T03:55:00Z32.65-93.319.815.0140410.030.079725TRUETRUEVFRMETAR85.02019-04-23 04:05:57 Œ+(bŒP§Ô)5    3KJWY 230355Z AUTO 14004KT 10SM SCT043 21/17 A3004 RMK AO2 T02060170KJWY2019-04-23T03:55:00Z32.45-96.9220.617.0140410.030.041338TRUETRUEVFRMETAR217.02019-04-23 04:05:57@§Ô (y5    3KJYG 230355Z AUTO 35007KT 10SM CLR 06/04 A3010 RMK AO2KJYG2019-04-23T03:55:00Z43.98-94.556.04.0350710.030.100393TRUETRUEVFRMETAR325.02019-04-23 04:05:57}§Ô )S5    3KMKG 230355Z AUTO 17014G22KT 10SM FEW085 BKN110 21/09 A2983 RMK AO2 RAB14E32 SLP097 P0000 T02060089KMKG2019-04-23T03:55:00Z43.17-86.2320.68.9170142210.029.8287411009.7TRUETRUEVFR0.005METAR191.02019-04-23 04:05:57O§Ô )5    3KMKN 230355Z AUTO 16009KT 10SM SCT048 20/16 A3001 RMK AO2 T01980158KMKN2019-04-23T03:55:00Z31.92-98.619.815.8160910.030.008858TRUETRUEVFRMETAR423.02019-04-23 04:05:57 Û;j Û?§Ô(w5    3KIZA 230355Z AUTO 21005KT 7SM CLR 11/09 A3001 RMK AO2KIZA2019-04-23T03:55:00Z34.6-120.0711.09.021057.030.008858TRUETRUEVFRMETAR205.02019-04-23 04:05:57D§Ô(5    3KJDD 230355Z AUTO 12003KT 10SM SCT049 20/16 A3004 RMK AO2KJDD2019-04-23T03:55:00Z32.75-95.520.016.0120310.030.041338TRUETRUEVFRMETAR132.02019-04-23 04:05:57K§Ô) 5    3KJFZ 230355Z AUTO 14003KT 10SM CLR 14/06 A3018 RMK AO2 T01420055KJFZ2019-04-23T03:55:00Z37.07-81.814.25.5140310.030.180119TRUETRUEVFRMETAR809.02019-04-23 04:05:57?§Ô(y5    3KJKJ 230355Z AUTO 35004KT 10SM CLR 09/05 A3015 RMK AO2KJKJ2019-04-23T03:55:00Z46.83-96.679.05.0350410.030.15059TRUETRUEVFRMETAR280.02019-04-23 04:05:57 %>mZ§Ô)-5    3KIKG 230355Z AUTO 07006KT 7SM BKN009 BKN017 OVC024 22/22 A2999 RMK AO2 T02200220KIKG2019-04-23T03:55:00Z27.55-98.0322.022.07067.029.991142TRUETRUEIFRMETAR40.02019-04-23 04:05:57K§Ô) 5    3KINJ 230355Z AUTO 13007KT 10SM CLR 21/18 A3002 RMK AO2 T02100182KINJ2019-04-23T03:55:00Z32.08-97.121.018.2130710.030.02067TRUETRUEVFRMETAR209.02019-04-23 04:05:57a§Ô)/5    3KINL 230355Z AUTO 03006KT 10SM BKN080 OVC110 11/02 A3011 RMK AO2 SLP202 T01110022KINL2019-04-23T03:55:00Z48.57-93.411.12.230610.030.1092531020.2TRUETRUEVFRMETAR360.02019-04-23 04:05:57U§Ô)5     3KIRK 230355Z AUTO 30010KT 10SM CLR 13/ A3002 RMK AO2 SLP165 T0128 $KIRK2019-04-23T03:55:00Z40.1-92.5512.83001010.030.020671016.5TRUETRUETRUEVFRMETAR293.02019-04-23 04:05:57 ¯$T~¯I§Ô) 5    3KI35 230355Z AUTO 00000KT 10SM CLR 13/09 A3015 RMK AO2 T01300085KI352019-04-23T03:55:00Z36.87-83.3713.08.50010.030.15059TRUETRUEVFRMETAR473.02019-04-23 04:05:57P§Ô)5    3KI75 230355Z AUTO 30009KT 10SM OVC014 11/08 A3005 RMK AO2 T01110082KI752019-04-23T03:55:00Z41.05-93.6811.18.2300910.030.050198TRUETRUEMVFRMETAR339.02019-04-23 04:05:57J§Ô) 5    3KIER 230355Z AUTO 01004KT 10SM CLR 19/16 A3009 RMK AO2 T01870155KIER2019-04-23T03:55:00Z31.73-93.118.715.510410.030.088583TRUETRUEVFRMETAR37.02019-04-23 04:05:57V§Ô)5   3KIGQ 230355Z AUTO 19015G18KT 10SM SCT110 20/12 A2988 RMK AO2 T01990117KIGQ2019-04-23T03:55:00Z41.53-87.5319.911.7190151810.029.878937TRUETRUEVFRMETAR188.02019-04-23 04:05:57 =u²èI§Ô) 5    3KHUM 230355Z AUTO 00000KT 10SM CLR 17/15 A3014 RMK AO2 T01660151KHUM2019-04-23T03:55:00Z29.57-90.6716.615.10010.030.138779TRUETRUEVFRMETAR3.02019-04-23 04:05:57D§Ô({5    3KHVE 230355Z AUTO 34006KT 10SM CLR 17/M01 A3005 RMK AO2KHVE2019-04-23T03:55:00Z38.42-110.717.0-1.0340610.030.050198TRUETRUEVFRMETAR1350.02019-04-23 04:05:57=§Ô(w5    3KHYW 230355Z AUTO 00000KT 7SM CLR 11/10 A3016 RMK AO2KHYW2019-04-23T03:55:00Z33.83-79.1211.010.0007.030.159449TRUETRUEVFRMETAR11.02019-04-23 04:05:57B§Ô(y5    3KHYX 230355Z AUTO 16010KT 10SM CLR 18/07 A2993 RMK AO2KHYX2019-04-23T03:55:00Z43.43-83.8718.07.01601010.029.929134TRUETRUEVFRMETAR183.02019-04-23 04:05:57=§Ô(}5    3KI16 230355Z AUTO 10SM CLR 10/08 A3019 RMK AO2 T00980077KI162019-04-23T03:55:00Z37.6-81.579.87.710.030.188976TRUETRUEVFRMETAR544.02019-04-23 04:05:57 ³-[„³K§Ô#)5    3KBJI 230355Z AUTO 00000KT 10SM SCT080 07/00 A3010 RMK AO2 T00680004KBJI2019-04-23T03:55:00Z47.5-94.926.80.40010.030.100393TRUETRUEVFRMETAR420.02019-04-23 04:05:57Q§Ô")5    3KHRX 230355Z AUTO 05006KT 10SM SCT075 11/10 A3014 RMK AO2 T01100102KHRX2019-04-23T03:55:00Z34.87-102.3311.010.250610.030.138779TRUETRUEVFRMETAR1154.02019-04-23 04:05:57L§Ô!) 5    3KHSB 230355Z AUTO 20008KT 10SM CLR 19/13 A3002 RMK AO2 T01860130KHSB2019-04-23T03:55:00Z37.82-88.5518.613.0200810.030.02067TRUETRUEVFRMETAR121.02019-04-23 04:05:57M§Ô ) 5    3KHSP 230355Z AUTO 31005KT 10SM CLR 13/06 A3020 RMK AO2 T01300056KHSP2019-04-23T03:55:00Z37.95-79.8213.05.6310510.030.200787TRUETRUEVFRMETAR1156.02019-04-23 04:05:57 ¯*X|¯G§Ô')5   3KBDG 230355Z AUTO 01008KT 10SM 10/M02 A3012 RMK AO1 T00981019KBDG2019-04-23T03:55:00Z37.58-109.479.8-1.910810.030.121063TRUETRUEMETAR1788.02019-04-23 04:05:57V§Ô&)!5    3KBEA 230355Z AUTO 09006KT 10SM BKN015 OVC021 23/19 A3001 RMK AO2 T02260192KBEA2019-04-23T03:55:00Z28.37-97.7822.619.290610.030.008858TRUETRUEMVFRMETAR82.02019-04-23 04:05:57L§Ô%) 5    3KBEC 230355Z AUTO 36007KT 10SM CLR 14/10 A3008 RMK AO2 T01410100KBEC2019-04-23T03:55:00Z37.7-97.2214.110.0360710.030.079725TRUETRUEVFRMETAR429.02019-04-23 04:05:57P§Ô$)5    3KBIE 230355Z AUTO 36007KT 10SM OVC015 12/09 A3013 RMK AO2 T01180090KBIE2019-04-23T03:55:00Z40.28-96.7511.89.0360710.030.129921TRUETRUEMVFRMETAR403.02019-04-23 04:05:57 ‘"[…‘n§Ô+)E5      3KAXS 230355Z AUTO 00000KT 7SM +TSRA OVC020 17/15 A3007 RMK AO2 LTG DSNT ALQS P0010 T01710150KAXS2019-04-23T03:55:00Z34.7-99.3317.115.0007.030.070866TRUETRUE+TSRAMVFR0.1METAR437.02019-04-23 04:05:57P§Ô*)5     3KAYS 230355Z AUTO 00000KT 10SM CLR 17/06 A3015 RMK AO2 T01670063 TSNOKAYS2019-04-23T03:55:00Z31.25-82.416.76.30010.030.15059TRUETRUETRUEVFRMETAR46.02019-04-23 04:05:57A§Ô)(y5    3KAZC 230355Z AUTO 01003KT 10SM CLR 09/05 A3008 RMK AO2KAZC2019-04-23T03:55:00Z36.97-113.029.05.010310.030.079725TRUETRUEVFRMETAR1486.02019-04-23 04:05:57X§Ô()5    3KBCK 230355Z AUTO 36009G14KT 10SM RA OVC009 07/07 A2996 RMK AO2 T00720072KBCK2019-04-23T03:55:00Z44.25-90.857.27.236091410.029.958662TRUETRUERAIFRMETAR255.02019-04-23 04:05:57 ¹+Z‹¹L§Ô/) 5    3KASW 230355Z AUTO 19005KT 10SM BKN085 OVC110 18/09 A2996 RMK AO2KASW2019-04-23T03:55:00Z41.27-85.8318.09.0190510.029.958662TRUETRUEVFRMETAR259.02019-04-23 04:05:57I§Ô.) 5    3KAVC 230355Z AUTO 00000KT 10SM CLR 10/10 A3018 RMK AO2 T00950095KAVC2019-04-23T03:55:00Z36.68-78.039.59.50010.030.180119TRUETRUEVFRMETAR135.02019-04-23 04:05:57K§Ô-) 5    3KAVQ 230355Z AUTO 28004KT 10SM CLR 19/03 A2985 RMK AO2 T01930028KAVQ2019-04-23T03:55:00Z32.4-111.2219.32.8280410.029.84941TRUETRUEVFRMETAR619.02019-04-23 04:05:57O§Ô,)5    3KAXH 230355Z AUTO 12004KT 10SM SCT040 20/19 A3006 RMK AO2 T01980186KAXH2019-04-23T03:55:00Z29.52-95.4819.818.6120410.030.059055TRUETRUEVFRMETAR21.02019-04-23 04:05:57 z÷'OzO§Ô3)5    3KARM 230355Z AUTO 10004KT 10SM SCT041 21/17 A3004 RMK AO2 T02050171KARM2019-04-23T03:55:00Z29.25-96.1520.517.1100410.030.041338TRUETRUEVFRMETAR31.02019-04-23 04:05:57R§Ô2)5   3KARV 230355Z AUTO 01009G17KT 10SM OVC007 04/03 A3001 RMK AO2 T00400030KARV2019-04-23T03:55:00Z45.92-89.724.03.01091710.030.008858TRUETRUEIFRMETAR496.02019-04-23 04:05:57J§Ô1) 5    3KASN 230355Z AUTO 00000KT 10SM CLR 14/12 A3015 RMK AO2 T01370121KASN2019-04-23T03:55:00Z33.57-86.0513.712.10010.030.15059TRUETRUEVFRMETAR162.02019-04-23 04:05:57‚§Ô0)a5      3KAST 230355Z AUTO 00000KT 6SM -RA BR BKN019 BKN026 OVC037 10/08 A3024 RMK AO2 RAB00 SLP239 P0004 T01000078KAST2019-04-23T03:55:00Z46.15-123.8810.07.8006.030.2391741023.9TRUETRUE-RA BRMVFR0.04METAR3.02019-04-23 04:05:57 z(0bzb§Ô7)75    3KCWC 230355Z AUTO 12007KT 10SM BKN050 OVC065 21/17 A3003 RMK AO2 LTG DSNT N T02120166KCWC2019-04-23T03:55:00Z33.85-98.4821.216.6120710.030.029528TRUETRUEVFRMETAR305.02019-04-23 04:05:57H§Ô6) 5    3KAJR 230355Z AUTO 00000KT 10SM CLR 16/10 A3015 RMK AO2 T01560096KAJR2019-04-23T03:55:00Z34.5-83.5515.69.60010.030.15059TRUETRUEVFRMETAR441.02019-04-23 04:05:57r§Ô5)C5      3KANJ 230355Z AUTO 06007KT 10SM -RA SCT055 OVC080 07/04 A2991 RMK AO2 SLP131 P0002 T00670044KANJ2019-04-23T03:55:00Z46.47-84.376.74.460710.029.9114171013.1TRUETRUE-RAVFR0.02METAR218.02019-04-23 04:05:57R§Ô4)5   3KAPY 230355Z AUTO 12007G15KT 10SM CLR 23/16 A2994 RMK AO2 T02400162KAPY2019-04-23T03:55:00Z26.97-99.2524.016.212071510.029.940945TRUETRUEVFRMETAR129.02019-04-23 04:05:57 ¼1f¼M§Ô;)5     3KCPK 230355Z AUTO 00000KT 5SM BR CLR 12/11 A3011 RMK AO2 T01200111KCPK2019-04-23T03:55:00Z36.67-76.3212.011.1005.030.109253TRUETRUEBRMVFRMETAR6.02019-04-23 04:05:57Q§Ô:)5    3KCQB 230355Z AUTO 33004KT 10SM OVC025 19/17 A3006 RMK AO2 T01890168KCQB2019-04-23T03:55:00Z35.72-96.8218.916.8330410.030.059055TRUETRUEMVFRMETAR300.02019-04-23 04:05:57E§Ô9)5    3KCVC 230355Z AUTO 00000KT 10SM CLR 15/12 A3014 RMK AO2 PNOKCVC2019-04-23T03:55:00Z33.63-83.8515.012.00010.030.138779TRUETRUEVFRMETAR247.02019-04-23 04:05:57I§Ô8)5   3KCWA 230355Z AUTO 01011G16KT 10SM OVC009 05/04 A2994 RMK AO2KCWA2019-04-23T03:55:00Z44.78-89.675.04.010111610.029.940945TRUETRUEIFRMETAR389.02019-04-23 04:05:57 ¾<T¾K§Ô?) 5    3KCMD 230355Z AUTO 00000KT 10SM CLR 13/11 A3016 RMK AO2 T01300105KCMD2019-04-23T03:55:00Z34.27-86.8513.010.50010.030.159449TRUETRUEVFRMETAR294.02019-04-23 04:05:57?§Ô>(y5    3KCNI 230355Z AUTO 00000KT 10SM CLR 15/08 A3017 RMK AO2KCNI2019-04-23T03:55:00Z34.32-84.4215.08.00010.030.171259TRUETRUEVFRMETAR372.02019-04-23 04:05:57b§Ô=)%5    3KCNK 230355Z AUTO 02005KT 10SM BKN023 12/08 A3014 RMK AO2 SLP204 T01170083 $KCNK2019-04-23T03:55:00Z39.55-97.6511.78.320510.030.1387791020.4TRUETRUETRUEMVFRMETAR447.02019-04-23 04:05:57>§Ô<({5    3KCOQ 230355Z AUTO 00000KT 10SM CLR 00/M02 A3011 RMK AO2KCOQ2019-04-23T03:55:00Z46.7-92.50.0-2.00010.030.109253TRUETRUEVFRMETAR390.02019-04-23 04:05:57 )Or]§ÔC)'5    3KNKX 230355Z 25006KT 10SM FEW030 BKN150 16/11 A2995 RMK AO2 SLP137 T01610111 KNKX2019-04-23T03:55:00Z32.87-117.1316.111.1250610.029.9498021013.7TRUEVFRMETAR146.02019-04-23 04:05:57W§ÔB)!5    3KPEZ 230355Z AUTO 11003KT 10SM SCT017 BKN023 20/18 A3002 RMK AO2 T02000177KPEZ2019-04-23T03:55:00Z28.95-98.5220.017.7110310.030.02067TRUETRUEMVFRMETAR132.02019-04-23 04:05:57T§ÔA)5   3KCKP 230355Z AUTO 01011G16KT 10SM OVC016 08/07 A3012 RMK AO2 T00800066KCKP2019-04-23T03:55:00Z42.73-95.558.06.610111610.030.121063TRUETRUEMVFRMETAR374.02019-04-23 04:05:57Q§Ô@)5     3KCMA 230355Z 00000KT 7SM HZ CLR 16/11 A2994 RMK AO2 SLP145 T01560106KCMA2019-04-23T03:55:00Z34.22-119.115.610.6007.029.9409451014.5TRUEHZVFRMETAR23.02019-04-23 04:05:57 Å*j¢ÅW§ÔG)!5    3KVYS 230355Z AUTO 22009KT 10SM SCT070 BKN100 15/14 A2987 RMK AO2 T01500137KVYS2019-04-23T03:55:00Z41.35-89.1515.013.7220910.029.870079TRUETRUEVFRMETAR199.02019-04-23 04:05:57B§ÔF)5    3OPIS 230355Z 26008KT 5000 FU FEW040 SCT100 28/15 Q1010 RH44OPIS2019-04-23T03:55:00Z33.5572.8328.015.026083.1129.822834FUMVFRMETAR537.02019-04-23 04:05:57:§ÔE(q5     3OPKC 230355Z 27008KT 4000 FU NSC 28/22 Q1010 NOSIGOPKC2019-04-23T03:55:00Z24.8867.1728.022.027082.4929.822834TRUEFUIFRMETAR22.02019-04-23 04:05:57P§ÔD)'5    3OPLA 230355Z 00000KT 3500 HZ NSC 31/17 Q1008 BECMG 4000 RMK QFE982 RMK A29.75OPLA2019-04-23T03:55:00Z31.5274.431.017.0002.1729.763779HZIFRMETAR217.02019-04-23 04:05:57 ¸+\†¸H§ÔK) 5    3KSHD 230355Z AUTO 00000KT 10SM CLR 09/07 A3016 RMK AO2 T00900071KSHD2019-04-23T03:55:00Z38.27-78.99.07.10010.030.159449TRUETRUEVFRMETAR366.02019-04-23 04:05:57P§ÔJ)5    3KT82 230355Z AUTO 16005KT 10SM SCT021 19/15 A3004 RMK AO2 T01920149KT822019-04-23T03:55:00Z30.25-98.9219.214.9160510.030.041338TRUETRUEVFRMETAR517.02019-04-23 04:05:57I§ÔI) 5    3KTOC 230355Z AUTO 00000KT 10SM CLR 14/12 A3014 RMK AO2 T01420116KTOC2019-04-23T03:55:00Z34.6-83.314.211.60010.030.138779TRUETRUEVFRMETAR304.02019-04-23 04:05:57O§ÔH)5    3KVER 230355Z AUTO 31008KT 10SM OVC033 19/11 A3002 RMK AO2 T01890114KVER2019-04-23T03:55:00Z38.95-92.6818.911.4310810.030.02067TRUETRUEVFRMETAR218.02019-04-23 04:05:57 š0kšK§ÔO) 5    3KOPL 230355Z AUTO 10009KT 10SM CLR 18/15 A3011 RMK AO2 T01760149KOPL2019-04-23T03:55:00Z30.55-92.117.614.9100910.030.109253TRUETRUEVFRMETAR23.02019-04-23 04:05:57?§ÔN(y5    3KOPN 230355Z AUTO 00000KT 10SM CLR 15/08 A3017 RMK AO2KOPN2019-04-23T03:55:00Z32.95-84.2715.08.00010.030.171259TRUETRUEVFRMETAR243.02019-04-23 04:05:57^§ÔM)/5    3KPPO 230355Z AUTO 16009KT 10SM SCT070 BKN095 OVC120 19/10 A2992 RMK AO2 T01860104KPPO2019-04-23T03:55:00Z41.57-86.7318.610.4160910.029.920275TRUETRUEVFRMETAR248.02019-04-23 04:05:57f§ÔL)E5    3KRQO 230355Z AUTO 05007KT 7SM SCT027 BKN034 OVC065 18/14 A3008 RMK AO2 LTG DSNT SW T01780145KRQO2019-04-23T03:55:00Z35.47-98.017.814.55077.030.079725TRUETRUEVFRMETAR432.02019-04-23 04:05:57 ²9J…²M§ÔS) 5    3KHSG 230355Z AUTO 20009KT 10SM CLR 07/02 A3017 RMK AO2 T00650023KHSG2019-04-23T03:55:00Z43.72-108.386.52.3200910.030.171259TRUETRUEVFRMETAR1494.02019-04-23 04:05:57?§ÔR(y5    3KHZR 230355Z AUTO 00000KT 10SM CLR 19/14 A3013 RMK AO2KHZR2019-04-23T03:55:00Z30.72-91.4819.014.00010.030.129921TRUETRUEVFRMETAR12.02019-04-23 04:05:57i§ÔQ)=5    3KLOT 230355Z AUTO 20021G29KT 10SM -RA SCT050 SCT055 SCT090 19/13 A2982 RMK AO2 T01850125KLOT2019-04-23T03:55:00Z41.6-88.118.512.5200212910.029.819881TRUETRUE-RAVFRMETAR205.02019-04-23 04:05:57A§ÔP)5   3KMDD 230355Z AUTO 11005KT 10SM 21/16 A3000 RMK AO2 T02050160KMDD2019-04-23T03:55:00Z32.03-102.120.516.0110510.030.0TRUETRUEMETAR854.02019-04-23 04:05:57 ¸9s’¸T§ÔW)5   3KFKA 230355Z AUTO 36013G17KT 10SM OVC006 07/06 A2997 RMK AO2 T00660055KFKA2019-04-23T03:55:00Z43.68-92.176.65.5360131710.029.970472TRUETRUEIFRMETAR389.02019-04-23 04:05:57[§ÔV)/5    3KGLE 230355Z AUTO 00000KT 10SM SCT039 SCT045 OVC060 20/17 A3005 RMK AO2 T02040167KGLE2019-04-23T03:55:00Z33.65-97.220.416.70010.030.050198TRUETRUEVFRMETAR256.02019-04-23 04:05:57@§ÔU(y5    3KHCR 230355Z AUTO 00000KT 10SM CLR 08/01 A3018 RMK AO2KHCR2019-04-23T03:55:00Z40.48-111.438.01.00010.030.180119TRUETRUEVFRMETAR1706.02019-04-23 04:05:57A§ÔT(y5    3KHII 230355Z AUTO 02006KT 10SM CLR 25/00 A2984 RMK AO2KHII2019-04-23T03:55:00Z34.57-114.3725.00.020610.029.840551TRUETRUEVFRMETAR238.02019-04-23 04:05:57 Ó.^™Ó@§Ô[(y5    3KAFO 230355Z AUTO 00000KT 10SM CLR 04/02 A3023 RMK AO2KAFO2019-04-23T03:55:00Z42.72-110.954.02.00010.030.230314TRUETRUEVFRMETAR1897.02019-04-23 04:05:57?§ÔZ(y5    3KBBG 230355Z AUTO 00000KT 10SM CLR 19/15 A3007 RMK AO2KBBG2019-04-23T03:55:00Z36.53-93.219.015.00010.030.070866TRUETRUEVFRMETAR397.02019-04-23 04:05:57J§ÔY) 5    3KCKF 230355Z AUTO 00000KT 10SM CLR 14/11 A3016 RMK AO2 T01430110KCKF2019-04-23T03:55:00Z31.98-83.7714.311.00010.030.159449TRUETRUEVFRMETAR91.02019-04-23 04:05:57L§ÔX)5     3KCWF 230355Z 13006KT 10SM CLR 18/17 A3011 RMK AO2 T01850172 PWINOKCWF2019-04-23T03:55:00Z30.22-93.1518.517.2130610.030.109253TRUETRUEVFRMETAR4.02019-04-23 04:05:57 Ó;j¡ÓH§Ô_) 5    3K1H2 230355Z AUTO 17006KT 10SM CLR 20/10 A3000 RMK AO2 T02000100K1H22019-04-23T03:55:00Z39.07-88.5320.010.0170610.030.0TRUETRUEVFRMETAR179.02019-04-23 04:05:57C§Ô^(y5    3K3AU 230355Z AUTO 36011KT 10SM CLR 14/10 A3008 RMK AO2K3AU2019-04-23T03:55:00Z37.67-97.0814.010.03601110.030.079725TRUETRUEVFRMETAR405.02019-04-23 04:05:57K§Ô])5   3K5C1 230355Z AUTO 14009G14KT 10SM OVC019 18/16 A3005 RMK AO1K5C12019-04-23T03:55:00Z29.72-98.718.016.014091410.030.050198TRUETRUEMVFRMETAR423.02019-04-23 04:05:57?§Ô\(y5    3K8A0 230355Z AUTO 00000KT 10SM CLR 15/10 A3015 RMK AO2K8A02019-04-23T03:55:00Z34.23-86.2515.010.00010.030.15059TRUETRUEVFRMETAR315.02019-04-23 04:05:57 ¿;i—¿R§Ôc)5   3KPRS 230355Z AUTO 16005G15KT 10SM CLR 27/00 A2989 RMK AO2 T02680002KPRS2019-04-23T03:55:00Z29.63-104.3526.80.216051510.029.890747TRUETRUEVFRMETAR896.02019-04-23 04:05:57L§Ôb) 5    3KPSK 230355Z AUTO 30003KT 10SM CLR 13/07 A3018 RMK AO2 T01300068KPSK2019-04-23T03:55:00Z37.12-80.6713.06.8300310.030.180119TRUETRUEVFRMETAR642.02019-04-23 04:05:57L§Ôa) 5    3KPSN 230355Z AUTO 16003KT 10SM CLR 20/15 A3007 RMK AO2 T02050155KPSN2019-04-23T03:55:00Z31.78-95.720.515.5160310.030.070866TRUETRUEVFRMETAR129.02019-04-23 04:05:57?§Ô`(y5    3KPUJ 230355Z AUTO 00000KT 10SM CLR 15/07 A3016 RMK AO2KPUJ2019-04-23T03:55:00Z33.92-84.9315.07.00010.030.159449TRUETRUEVFRMETAR393.02019-04-23 04:05:57 ¦X‚¦V§Ôg)!5    3KPKV 230355Z AUTO 12013KT 10SM SCT013 OVC025 23/21 A3002 RMK AO2 T02310207KPKV2019-04-23T03:55:00Z28.65-96.6823.120.71201310.030.02067TRUETRUEMVFRMETAR9.02019-04-23 04:05:57P§Ôf)5    3KPMV 230355Z AUTO 32004KT 10SM OVC016 11/08 A3011 RMK AO2 T01050077KPMV2019-04-23T03:55:00Z40.95-95.9210.57.7320410.030.109253TRUETRUEMVFRMETAR367.02019-04-23 04:05:57A§Ôe(y5    3KPOY 230355Z AUTO 12007KT 10SM CLR 07/00 A3016 RMK AO2KPOY2019-04-23T03:55:00Z44.87-108.87.00.0120710.030.159449TRUETRUEVFRMETAR1552.02019-04-23 04:05:57[§Ôd)-5     3KPQL 230355Z AUTO 00000KT 1 3/4SM BR CLR 13/11 A3016 RMK AO2 VIS 1/2V5 T01280111KPQL2019-04-23T03:55:00Z30.47-88.5312.811.1001.7530.159449TRUETRUEBRIFRMETAR6.02019-04-23 04:05:57 ‘6W‘@§Ôk(5    3KJYR 230355Z AUTO 00000KT 10SM BKN033 09/08 A3016 RMK AO2KJYR2019-04-23T03:55:00Z40.9-97.629.08.00010.030.159449TRUETRUEVFRMETAR509.02019-04-23 04:05:57Y§Ôj))5    3KPVJ 230355Z AUTO 00000KT 10SM OVC041 20/17 A3004 RMK AO2 LTG DSNT W T01960171KPVJ2019-04-23T03:55:00Z34.72-97.2219.617.10010.030.041338TRUETRUEVFRMETAR295.02019-04-23 04:05:57X§Ôi)5    3KPHP 230355Z AUTO 28006KT 10SM CLR 08/02 A3018 RMK AO2 SLP221 T00830022KPHP2019-04-23T03:55:00Z44.05-101.68.32.2280610.030.1801191022.1TRUETRUEVFRMETAR672.02019-04-23 04:05:57f§Ôh)-5      3KPIM 230355Z AUTO 00000KT 10SM CLR 14/12 A3016 RMK AO2 T01350116 402840060 PWINOKPIM2019-04-23T03:55:00Z32.83-84.8813.511.60010.030.159449TRUETRUETRUEVFR28.46.0METAR275.02019-04-23 04:05:57 ŠUmŠ]§Ôo)5    3KLAM 230355Z AUTO 22013G21KT 10SM -RA 07/06 A3018 RMK AO2 P0004 T00660062KLAM2019-04-23T03:55:00Z35.87-106.276.66.2220132110.030.180119TRUETRUE-RA0.04METAR2179.02019-04-23 04:05:57b§Ôn)55   3KLDM 230355Z AUTO 24010G16KT 10SM SCT070 BKN090 OVC110 10/04 A2987 RMK AO2 T01010044KLDM2019-04-23T03:55:00Z43.97-86.410.14.4240101610.029.870079TRUETRUEVFRMETAR197.02019-04-23 04:05:57B§Ôm(y5    3KLHM 230355Z AUTO 36008KT 10SM CLR 17/10 A2996 RMK AO1KLHM2019-04-23T03:55:00Z38.92-121.3517.010.0360810.029.958662TRUETRUEVFRMETAR37.02019-04-23 04:05:57]§Ôl)!5    3KLIC 230355Z AUTO 02003KT 10SM OVC025 07/02 A3027 RMK AO2 SLP235 T00720022KLIC2019-04-23T03:55:00Z39.27-103.677.22.220310.030.2687021023.5TRUETRUEMVFRMETAR1630.02019-04-23 04:05:57 µ7hˆµM§Ôs) 5    3KT35 230355Z AUTO 16006KT 10SM CLR 21/16 A3005 RMK AO2 T02070161KT352019-04-23T03:55:00Z30.88-96.9720.716.1160610.030.050198TRUETRUEVFRMETAR123.02019-04-23 04:05:57Z§Ôr)5     3KTAZ 230355Z AUTO 18008KT 10SM OVC060 18/13 A2995 RMK AO2 P0001 T01790125KTAZ2019-04-23T03:55:00Z39.53-89.3317.912.5180810.029.949802TRUETRUEVFR0.01METAR190.02019-04-23 04:05:57I§Ôq) 5    3KTBR 230355Z AUTO 00000KT 10SM CLR 14/12 A3015 RMK AO2 T01360116KTBR2019-04-23T03:55:00Z32.48-81.7313.611.60010.030.15059TRUETRUEVFRMETAR57.02019-04-23 04:05:57C§Ôp(y5    3KL18 230355Z AUTO 31003KT 10SM CLR 13/11 A2997 RMK AO2KL182019-04-23T03:55:00Z33.35-117.2513.011.0310310.029.970472TRUETRUEVFRMETAR216.02019-04-23 04:05:57 ¤)Lƒ¤Y§Ôw))5    3KSNL 230355Z AUTO 00000KT 10SM OVC038 19/16 A3005 RMK AO2 LTG DSNT W T01880163KSNL2019-04-23T03:55:00Z35.35-96.9518.816.30010.030.050198TRUETRUEVFRMETAR327.02019-04-23 04:05:57C§Ôv(y5    3KSOA 230355Z AUTO 16005KT 10SM CLR 21/15 A3004 RMK AO2KSOA2019-04-23T03:55:00Z30.58-100.6521.015.0160510.030.041338TRUETRUEVFRMETAR652.02019-04-23 04:05:57W§Ôu)!5    3KSWW 230355Z AUTO 10009KT 10SM SCT049 BKN065 21/14 A3002 RMK AO2 T02060136KSWW2019-04-23T03:55:00Z32.47-100.4720.613.6100910.030.02067TRUETRUEVFRMETAR727.02019-04-23 04:05:57Q§Ôt)5    3KT20 230355Z AUTO 13004KT 10SM OVC025 21/18 A3003 RMK AO2 T02050183KT202019-04-23T03:55:00Z29.52-97.4720.518.3130410.030.029528TRUETRUEMVFRMETAR108.02019-04-23 04:05:57 Ë;kœËK§Ô{) 5    3KSEF 230355Z AUTO 07003KT 10SM CLR 18/14 A3014 RMK AO2 T01760137KSEF2019-04-23T03:55:00Z27.45-81.3517.613.770310.030.138779TRUETRUEVFRMETAR19.02019-04-23 04:05:57I§Ôz) 5    3KSFQ 230355Z AUTO 00000KT 10SM CLR 13/10 A3012 RMK AO2 T01280104KSFQ2019-04-23T03:55:00Z36.68-76.612.810.40010.030.121063TRUETRUEVFRMETAR22.02019-04-23 04:05:57J§Ôy) 5    3KSJS 230355Z AUTO 00000KT 10SM CLR 16/08 A3012 RMK AO2 T01580075KSJS2019-04-23T03:55:00Z37.75-82.6315.87.50010.030.121063TRUETRUEVFRMETAR372.02019-04-23 04:05:57?§Ôx(y5    3KSME 230355Z AUTO 00000KT 10SM CLR 13/07 A3012 RMK AO2KSME2019-04-23T03:55:00Z37.05-84.6213.07.00010.030.121063TRUETRUEVFRMETAR283.02019-04-23 04:05:57 ¦K|¦P§Ô)5    3KHTO 230355Z AUTO 36007KT 10SM OVC017 12/10 A2993 RMK AO2 T01210101KHTO2019-04-23T03:55:00Z40.95-72.2512.110.1360710.029.929134TRUETRUEMVFRMETAR17.02019-04-23 04:05:57I§Ô~) 5    3KHWY 230355Z AUTO 00000KT 10SM CLR 09/08 A3010 RMK AO2 T00940075KHWY2019-04-23T03:55:00Z38.58-77.729.47.50010.030.100393TRUETRUEVFRMETAR103.02019-04-23 04:05:57G§Ô})5    3KTEX 230355Z AUTO 15003KT 10SM OVC090 06/M02 A3022 RMK AO2KTEX2019-04-23T03:55:00Z37.95-107.96.0-2.0150310.030.221457TRUETRUEVFRMETAR2769.02019-04-23 04:05:57b§Ô|)75    3KTFP 230355Z AUTO 13011KT 10SM SCT010 SCT017 OVC023 23/21 A2999 RMK AO2 T02300207 PNOKTFP2019-04-23T03:55:00Z27.92-97.2223.020.71301110.029.991142TRUETRUEMVFRMETAR6.02019-04-23 04:05:57 ¬%Ds¬A§Õ(y5    3KHDC 230355Z AUTO 12004KT 10SM CLR 17/14 A3014 RMK AO2KHDC2019-04-23T03:55:00Z30.52-90.4217.014.0120410.030.138779TRUETRUEVFRMETAR13.02019-04-23 04:05:57K§Õ) 5    3KHDE 230355Z AUTO 36005KT 10SM CLR 09/02 A3019 RMK AO2 T00910018KHDE2019-04-23T03:55:00Z40.45-99.329.11.8360510.030.188976TRUETRUEVFRMETAR705.02019-04-23 04:05:57[§Õ)55     3KHHG 230355Z AUTO 00000KT 10SM TS OVC110 16/09 A3000 RMK AO2 LTG DSNT ALQS T01630090KHHG2019-04-23T03:55:00Z40.85-85.4516.39.00010.030.0TRUETRUETSVFRMETAR246.02019-04-23 04:05:57U§Õ)!5    3KHJH 230355Z AUTO 02006KT 10SM SCT021 OVC028 12/08 A3015 RMK AO2 T01200084KHJH2019-04-23T03:55:00Z40.15-97.5812.08.420610.030.15059TRUETRUEMVFRMETAR447.02019-04-23 04:05:57 ¾,e™¾U§Õ)5     3KFZG 230355Z AUTO 00000KT 10SM CLR 14/14 A3017 RMK AO2 T01410137 PWINOKFZG2019-04-23T03:55:00Z31.68-83.2714.113.70010.030.171259TRUETRUETRUEVFRMETAR111.02019-04-23 04:05:57F§Õ)5     3KGHG 230355Z AUTO VRB04KT 3/4SM BR OVC001 08/08 A2992 RMK AO2KGHG2019-04-23T03:55:00Z42.1-70.678.08.0040.7529.920275TRUETRUEBRLIFRMETAR4.02019-04-23 04:05:57A§Õ(y5    3KGOP 230355Z AUTO 14006KT 10SM CLR 21/16 A3004 RMK AO2KGOP2019-04-23T03:55:00Z31.42-97.821.016.0140610.030.041338TRUETRUEVFRMETAR276.02019-04-23 04:05:57N§Õ) 5    3KHBV 230355Z AUTO 12011KT 10SM CLR 21/17 A2996 RMK AO2 T02130174KHBV2019-04-23T03:55:00Z27.35-98.7321.317.41201110.029.958662TRUETRUEVFRMETAR202.02019-04-23 04:05:57 Bh Ø>§Õ (y5    3KW22 230355Z AUTO 00000KT 10SM CLR 12/07 A3014 RMK AO2KW222019-04-23T03:55:00Z39.0-80.2712.07.00010.030.138779TRUETRUEVFRMETAR499.02019-04-23 04:05:57B§Õ (y5    3KW43 230355Z AUTO 16007KT 10SM CLR 06/02 A3021 RMK AO2KW432019-04-23T03:55:00Z44.67-104.576.02.0160710.030.209646TRUETRUEVFRMETAR1300.02019-04-23 04:05:57B§Õ (y5    3KWDR 230355Z AUTO 24003KT 10SM CLR 16/12 A3017 RMK AO2KWDR2019-04-23T03:55:00Z33.98-83.6716.012.0240310.030.171259TRUETRUEVFRMETAR287.02019-04-23 04:05:57T§Õ )5     3KWWR 230355Z AUTO 00000KT 10SM DZ OVC090 16/10 A3013 RMK AO2 LTG DSNT SKWWR2019-04-23T03:55:00Z36.45-99.5216.010.00010.030.129921TRUETRUEDZVFRMETAR667.02019-04-23 04:05:578§Õ({5   3KFYJ 230355Z AUTO 00000KT 11/11 A3011 RMK AO1 T01090106KFYJ2019-04-23T03:55:00Z37.52-76.7710.910.60030.109253TRUETRUEMETAR7.02019-04-23 04:05:57 Ï;j¤ÏO§Õ)5    3KTXW 230355Z AUTO 13006KT 10SM OVC110 23/20 A2994 RMK AO2 T02320200KTXW2019-04-23T03:55:00Z26.18-97.9723.220.0130610.029.940945TRUETRUEVFRMETAR21.02019-04-23 04:05:57@§Õ(y5    3KULS 230355Z AUTO 01005KT 10SM CLR 11/06 A3016 RMK AO2KULS2019-04-23T03:55:00Z37.6-101.3711.06.010510.030.159449TRUETRUEVFRMETAR936.02019-04-23 04:05:57K§Õ) 5    3KUXL 230355Z AUTO 12008KT 10SM CLR 20/18 A3011 RMK AO2 T02010175KUXL2019-04-23T03:55:00Z30.13-93.3820.117.5120810.030.109253TRUETRUEVFRMETAR4.02019-04-23 04:05:57?§Õ (y5    3KVDI 230355Z AUTO 16003KT 10SM CLR 17/11 A3015 RMK AO2KVDI2019-04-23T03:55:00Z32.2-82.3717.011.0160310.030.15059TRUETRUEVFRMETAR84.02019-04-23 04:05:57 ¯:hŠ¯U§Õ)5    3KTIP 230355Z AUTO 19007KT 7SM SCT050 SCT120 18/11 A2994 RMK AO2 T01770106KTIP2019-04-23T03:55:00Z40.28-88.1517.710.619077.029.940945TRUETRUEVFRMETAR225.02019-04-23 04:05:57X§Õ)!5     3KTMK 230355Z AUTO 05003KT 10SM RA BKN030 BKN035 OVC049 10/07 A3028 RMK AO2KTMK2019-04-23T03:55:00Z45.42-123.8210.07.050310.030.280512TRUETRUERAMVFRMETAR11.02019-04-23 04:05:57L§Õ)5    3KTMT 230355Z AUTO 00000KT 10SM CLR 08/M02 A3025 RMK AO2 T00811017KTMT2019-04-23T03:55:00Z39.47-117.28.1-1.70010.030.250984TRUETRUEVFRMETAR1748.02019-04-23 04:05:57@§Õ(y5    3KTVI 230355Z AUTO 26006KT 10SM CLR 17/10 A3017 RMK AO2KTVI2019-04-23T03:55:00Z30.9-83.8817.010.0260610.030.171259TRUETRUEVFRMETAR80.02019-04-23 04:05:57 º-Wº?§Õ(y5    3KMAW 230355Z AUTO 20005KT 10SM CLR 17/12 A3006 RMK AO2KMAW2019-04-23T03:55:00Z36.6-90.017.012.0200510.030.059055TRUETRUEVFRMETAR90.02019-04-23 04:05:57R§Õ)5   3KRCX 230355Z AUTO 36010G16KT 10SM SCT013 06/04 A3004 RMK AO2 T00550041KRCX2019-04-23T03:55:00Z45.5-91.05.54.1360101610.030.041338TRUETRUEVFRMETAR377.02019-04-23 04:05:57P§Õ)5    3KI63 230355Z AUTO 29011KT 10SM SCT060 17/13 A2995 RMK AO2 T01730125KI632019-04-23T03:55:00Z39.98-90.817.312.52901110.029.949802TRUETRUEVFRMETAR223.02019-04-23 04:05:57M§Õ) 5    3KIBM 230355Z AUTO 23003KT 10SM CLR 03/02 A3025 RMK AO2 T00330015KIBM2019-04-23T03:55:00Z41.18-103.683.31.5230310.030.250984TRUETRUEVFRMETAR1501.02019-04-23 04:05:57  =m˜å ?§Õ(y5    3KMNI 230355Z AUTO 00000KT 10SM CLR 12/11 A3016 RMK AO2KMNI2019-04-23T03:55:00Z33.58-80.2212.011.00010.030.159449TRUETRUEVFRSPECI32.02019-04-23 04:05:57-§Õ(_5   3KCNW 230355Z 16006KT 10SM SKC 20/17 A3004KCNW2019-04-23T03:55:00Z31.63-97.0720.017.0160610.030.041338VFRMETAR156.02019-04-23 04:05:57O§Õ)5    3KMCX 230355Z AUTO 18007KT 10SM OVC080 21/09 A2995 RMK AO2 T02080086KMCX2019-04-23T03:55:00Z40.72-86.7720.88.6180710.029.949802TRUETRUEVFRMETAR206.02019-04-23 04:05:57J§Õ)5    3KGGI 230355Z AUTO 30016KT 10SM OVC009 10/08 A3000 RMK AO2 T00950075KGGI2019-04-23T03:55:00Z41.72-92.739.57.53001610.030.0TRUETRUEIFRMETAR307.02019-04-23 04:05:57=§Õ(y5    3KHXD 230355Z AUTO 00000KT 10SM CLR 17/13 A3017 RMK AO2KHXD2019-04-23T03:55:00Z32.22-80.717.013.00010.030.171259TRUETRUEVFRMETAR6.02019-04-23 04:05:57 È4m±Èc§Õ!)/5    3KGYY 230355Z AUTO 17008G16KT 10SM -RA SCT090 BKN110 22/11 A2988 RMK AO2 T02150106KGYY2019-04-23T03:55:00Z41.62-87.4221.510.617081610.029.878937TRUETRUE-RAVFRMETAR180.02019-04-23 04:05:576§Õ (s5    3KHAE 230355Z AUTO 31009KT 10SM SCT031 18/10 RMK AO2KHAE2019-04-23T03:55:00Z39.73-91.4518.010.0310910.0TRUETRUEVFRMETAR234.02019-04-23 04:05:57A§Õ({5    3KHCO 230355Z AUTO 36008KT 10SM CLR 09/M01 A3015 RMK AO2KHCO2019-04-23T03:55:00Z48.75-96.939.0-1.0360810.030.15059TRUETRUEVFRMETAR250.02019-04-23 04:05:57F§Õ(5   3KPLD 230355Z AUTO 18009G14KT 10SM CLR 18/08 A3001 RMK AO2KPLD2019-04-23T03:55:00Z40.45-84.9818.08.018091410.030.008858TRUETRUEVFRMETAR282.02019-04-23 04:05:57 ¬*T|¬J§Õ%) 5    3KGRN 230355Z AUTO 00000KT 10SM CLR 06/03 A3022 RMK AO2 T00550033KGRN2019-04-23T03:55:00Z42.8-102.175.53.30010.030.221457TRUETRUEVFRMETAR1086.02019-04-23 04:05:57R§Õ$)5    3KGWB 230355Z AUTO 16007KT 105V185 10SM SCT080 BKN090 18/08 A2998 RMK AO2KGWB2019-04-23T03:55:00Z41.3-85.0718.08.0160710.029.97933TRUETRUEVFRMETAR269.02019-04-23 04:05:57P§Õ#)5    3KGYB 230355Z AUTO 17003KT 10SM SCT028 22/18 A3006 RMK AO2 T02200180KGYB2019-04-23T03:55:00Z30.17-96.9822.018.0170310.030.059055TRUETRUEVFRMETAR148.02019-04-23 04:05:57P§Õ")5    3KGYI 230355Z AUTO 13006KT 10SM OVC060 21/17 A3005 RMK AO2 T02100165KGYI2019-04-23T03:55:00Z33.72-96.6721.016.5130610.030.050198TRUETRUEVFRMETAR228.02019-04-23 04:05:57 ±+Yx±A§Õ)(y5    3KGIC 230355Z AUTO 00000KT 10SM CLR 11/08 A3017 RMK AO1KGIC2019-04-23T03:55:00Z45.95-116.1211.08.00010.030.171259TRUETRUEVFRMETAR1009.02019-04-23 04:05:57[§Õ()!5     3KGLW 230355Z AUTO 00000KT 10SM CLR 17/09 A3009 RMK AO2 T01670091 402710046KGLW2019-04-23T03:55:00Z37.03-85.9516.79.10010.030.088583TRUETRUEVFR27.14.6METAR218.02019-04-23 04:05:57L§Õ') 5    3KGMJ 230355Z AUTO 19003KT 10SM BKN046 OVC060 18/16 A3006 RMK AO2KGMJ2019-04-23T03:55:00Z36.6-94.7318.016.0190310.030.059055TRUETRUEVFRMETAR254.02019-04-23 04:05:57O§Õ&)5    3KGPM 230355Z AUTO 11003KT 10SM SCT046 21/16 A3004 RMK AO2 T02140160KGPM2019-04-23T03:55:00Z32.7-97.0521.416.0110310.030.041338TRUETRUEVFRMETAR180.02019-04-23 04:05:57 _;kˆ_‚#§Õ-)‚5    3KUGN 230355Z AUTO 19018G28KT 10SM FEW055 FEW075 BKN100 21/11 A2979 RMK AO2 PK WND 19032/0344 LTG DSNT NW RAB42E51 SLP077 P0000 T02060111KUGN2019-04-23T03:55:00Z42.42-87.8720.611.1190182810.029.7903541007.7TRUETRUEVFR0.005METAR222.02019-04-23 04:05:57]§Õ,)'5   3KGBG 230355Z AUTO 28013G20KT 10SM BKN044 OVC055 15/12 A2995 RMK AO2 T01540118KGBG2019-04-23T03:55:00Z40.93-90.4315.411.8280132010.029.949802TRUETRUEVFRMETAR233.02019-04-23 04:05:57J§Õ+) 5    3KGCM 230355Z AUTO 00000KT 10SM BKN035 OVC060 18/16 A3005 RMK AO2KGCM2019-04-23T03:55:00Z36.3-95.4818.016.00010.030.050198TRUETRUEVFRMETAR221.02019-04-23 04:05:57?§Õ*(}5    3KGDJ 230355Z AUTO 10SM CLR 22/17 A3002 RMK AO2 T02160168KGDJ2019-04-23T03:55:00Z32.45-97.8221.616.810.030.02067TRUETRUEVFRMETAR237.02019-04-23 04:05:57 ÅP–ŁK§Õ1) 5    3KTZR 230355Z AUTO 19005KT 10SM CLR 15/09 A3007 RMK AO2 T01540085KTZR2019-04-23T03:55:00Z39.9-83.1315.48.5190510.030.070866TRUETRUEVFRMETAR276.02019-04-23 04:05:574§Õ0(o5    3KU68 230355Z AUTO 00000KT 10SM CLR 08/M37 RMK AO2KU682019-04-23T03:55:00Z44.92-108.458.0-37.00010.0TRUETRUEVFRMETAR1247.02019-04-23 04:05:57A§Õ/(5    3KUBE 230355Z AUTO 02009KT 10SM SCT010 03/02 A3008 RMK AO2KUBE2019-04-23T03:55:00Z45.5-91.983.02.020910.030.079725TRUETRUEVFRMETAR379.02019-04-23 04:05:57c§Õ.)-5      3KUES 230355Z AUTO 06004KT 4SM +RA SCT004 BKN023 OVC038 14/14 A2982 RMK AO2 P0027KUES2019-04-23T03:55:00Z43.05-88.2514.014.06044.029.819881TRUETRUE+RAMVFR0.27METAR278.02019-04-23 04:05:57 ³J‚³I§Õ5) 5    3KTNB 230355Z AUTO 00000KT 10SM CLR 12/06 A3021 RMK AO2 T01180055KTNB2019-04-23T03:55:00Z36.2-81.6511.85.50010.030.209646TRUETRUEVFRMETAR911.02019-04-23 04:05:57B§Õ4(5    3KTQH 230355Z AUTO 00000KT 10SM BKN050 17/16 A3006 RMK AO2KTQH2019-04-23T03:55:00Z35.93-95.017.016.00010.030.059055TRUETRUEVFRMETAR266.02019-04-23 04:05:57D§Õ3({5    3KTRK 230355Z AUTO 17003KT 10SM CLR 05/M05 A3028 RMK AO2KTRK2019-04-23T03:55:00Z39.32-120.125.0-5.0170310.030.280512TRUETRUEVFRMETAR1798.02019-04-23 04:05:57f§Õ2)35     3KTYQ 230355Z AUTO 16007KT 10SM SCT090 15/11 A3000 RMK AO2 P0001 T01470107 402380073KTYQ2019-04-23T03:55:00Z40.03-86.2514.710.7160710.030.0TRUETRUEVFR23.87.30.01METAR281.02019-04-23 04:05:57 ¼1_¼M§Õ9) 5    3KTEW 230355Z AUTO 13014KT 10SM CLR 18/08 A2993 RMK AO2 T01750077KTEW2019-04-23T03:55:00Z42.57-84.4217.57.71301410.029.929134TRUETRUEVFRMETAR280.02019-04-23 04:05:57J§Õ8) 5    3KTIF 230355Z AUTO 00000KT 10SM CLR 07/01 A3021 RMK AO2 T00660005KTIF2019-04-23T03:55:00Z41.97-100.576.60.50010.030.209646TRUETRUEVFRMETAR892.02019-04-23 04:05:57L§Õ7)5    3KTKV 230355Z AUTO 01005KT 10SM OVC008 03/02 A2998 RMK AO2 T00340024KTKV2019-04-23T03:55:00Z45.47-89.823.42.410510.029.97933TRUETRUEIFRMETAR453.02019-04-23 04:05:57I§Õ6) 5    3KTMA 230355Z AUTO 00000KT 10SM CLR 15/10 A3015 RMK AO2 T01470098KTMA2019-04-23T03:55:00Z31.43-83.4814.79.80010.030.15059TRUETRUEVFRMETAR109.02019-04-23 04:05:57 ³7e•³\§Õ=)%5      3KSTE 230355Z AUTO 02008KT 7SM +RA OVC009 05/05 A2993 RMK AO2 P0001 T00520052KSTE2019-04-23T03:55:00Z44.55-89.535.25.22087.029.929134TRUETRUE+RAIFR0.01METAR338.02019-04-23 04:05:57J§Õ<) 5    3KSYF 230355Z AUTO 00000KT 10SM CLR 08/01 A3023 RMK AO2 T00810012KSYF2019-04-23T03:55:00Z39.77-101.88.11.20010.030.230314TRUETRUEVFRMETAR1025.02019-04-23 04:05:57L§Õ;) 5    3KSZT 230355Z AUTO 24003KT 10SM BKN065 OVC080 15/00 A3009 RMK AO2KSZT2019-04-23T03:55:00Z48.3-116.5715.00.0240310.030.088583TRUETRUEVFRMETAR648.02019-04-23 04:05:57C§Õ:(y5    3KTBX 230355Z AUTO 14014KT 10SM CLR 02/00 A3030 RMK AO2KTBX2019-04-23T03:55:00Z43.47-108.232.00.01401410.030.301182TRUETRUEVFRMETAR2225.02019-04-23 04:05:57Y8ƒ8@HPX`hpx€ˆ˜ ¨°¸ÀÈÐØàèðø (08@HPX`hpx€ˆ˜ ¨°¸ÀÈÐØàèðø (08@HPX`hpx€ˆ˜ ¨°¸ÀÈÐØàèðø ¨°¸ÀÈÐØàèðø)§Ô+*§Ô/+§Ô3,§Ô7-§Ô;.§Ô?/§ÔC0§ÔG1§ÔK2§ÔO3§ÔS4§ÔW)§Ô+*§Ô/+§Ô3,§Ô7-§Ô;.§Ô?/§ÔC0§ÔG1§ÔK2§ÔO3§ÔS4§ÔW5§Ô[6§Ô_7§Ôc8§Ôg9§Ôk:§Ôo;§Ôs<§Ôw=§Ô{>§Ô?§Õ@§ÕA§Õ B§ÕC§ÕD§ÕE§ÕF§Õ!G§Õ%H§Õ)I§Õ-J§Õ1K§Õ5L§Õ9M§Õ=O§ÕAP§ÕEQ§ÕIR§ÕMS§ÕQT§ÕUU§ÕYV§Õ]W§ÕaX§ÕeY§ÕiZ§Õm[§Õr\§Õv]§Õ{^§Ö_§Ö`§Öa§Ö b§Öc§Öd§Öe§Öf§Ö g§Ö$h§Ö(i§Ö,j§Ö0k§Ö4l§Ö9m§Ö=n§ÖAo§ÖEp§ÖIq§ÖMr§ÖQs§ÖUt§ÖYu§Ö]v§Öaw§Öfx§Öjy§Önz§Ös{§Öw|§Ö{}§Ö~§×§×€§× §×‚§× „$N{„q§ÕA)I5      3KSLH 230355Z AUTO 03003KT 7SM -RA SCT046 SCT065 OVC090 06/04 A2989 RMK AO2 T00600042 401350026KSLH2019-04-23T03:55:00Z45.65-84.526.04.23037.029.890747TRUETRUE-RAVFR13.52.6METAR195.02019-04-23 04:05:57M§Õ@) 5    3KSLO 230355Z AUTO 21009KT 10SM CLR 21/11 A2999 RMK AO2 T02110113KSLO2019-04-23T03:55:00Z38.65-88.9721.111.3210910.029.991142TRUETRUEVFRMETAR175.02019-04-23 04:05:57P§Õ?)5    3KSLR 230355Z AUTO 13003KT 10SM SCT048 20/15 A3006 RMK AO2 T02000152KSLR2019-04-23T03:55:00Z33.17-95.6220.015.2130310.030.059055TRUETRUEVFRMETAR149.02019-04-23 04:05:57V§Õ>)!5    3KSNK 230355Z AUTO 03007KT 10SM BKN046 OVC060 18/16 A3001 RMK AO2 T01750160KSNK2019-04-23T03:55:00Z32.7-100.9517.516.030710.030.008858TRUETRUEVFRMETAR741.02019-04-23 04:05:57 Ÿ#H‚Ÿ]§ÕE)%5    3KY51 230355Z AUTO 35013G19KT 10SM OVC006 09/09 A2989 RMK AO1 P0002 T00900090KY512019-04-23T03:55:00Z43.58-90.99.09.0350131910.029.890747TRUETRUEIFR0.02METAR394.02019-04-23 04:05:57@§ÕD(y5    3KGYH 230355Z AUTO 00000KT 10SM CLR 17/11 A3013 RMK AO2KGYH2019-04-23T03:55:00Z34.75-82.3817.011.00010.030.129921TRUETRUEVFRSPECI292.02019-04-23 04:05:57U§ÕC)5     3KMDZ 230355Z AUTO 02012KT 10SM OVC009 04/03 A2996 RMK AO2 T00400028 TSNOKMDZ2019-04-23T03:55:00Z45.1-90.34.02.8201210.029.958662TRUETRUETRUEIFRMETAR448.02019-04-23 04:05:57W§ÕB)5    3KMGC 230355Z AUTO 18008G15KT 10SM -RA BKN070 OVC090 20/08 A2991 RMK AO2KMGC2019-04-23T03:55:00Z41.7-86.8220.08.018081510.029.911417TRUETRUE-RAVFRMETAR200.02019-04-23 04:05:57 •8TŒ•q§ÕI)Q5     3KHHF 230355Z AUTO 02003KT 10SM SCT080 SCT095 SCT120 14/14 A3010 RMK AO2 LTG DSNT E P0004 T01410135KHHF2019-04-23T03:55:00Z35.9-100.414.113.520310.030.100393TRUETRUEVFR0.04METAR712.02019-04-23 04:05:57B§ÕH(5    3KOQN 230355Z AUTO 00000KT 10SM SCT080 13/08 A3005 RMK AO2KOQN2019-04-23T03:55:00Z39.98-75.5813.08.00010.030.050198TRUETRUEVFRMETAR142.02019-04-23 04:05:57^§ÕG)/5    3KIDP 230355Z AUTO 35008KT 10SM SCT025 BKN038 OVC060 18/13 A3005 RMK AO2 T01780128KIDP2019-04-23T03:55:00Z37.17-95.7817.812.8350810.030.050198TRUETRUEVFRMETAR251.02019-04-23 04:05:57B§ÕF(5    3KHFJ 230355Z AUTO 00000KT 10SM OVC048 18/16 A3005 RMK AO2KHFJ2019-04-23T03:55:00Z36.9-94.0218.016.00010.030.050198TRUETRUEVFRMETAR401.02019-04-23 04:05:57 ¯1T„¯O§ÕM)5    3KHQG 230355Z AUTO 01006KT 10SM SCT045 13/06 A3016 RMK AO2 T01320055KHQG2019-04-23T03:55:00Z37.17-101.3713.25.510610.030.159449TRUETRUEVFRMETAR956.02019-04-23 04:05:57J§ÕL)5   3KHPT 230355Z AUTO 33015G20KT 10SM OVC007 07/05 A3001 RMK AO2KHPT2019-04-23T03:55:00Z42.58-93.237.05.0330152010.030.008858TRUETRUEIFRMETAR358.02019-04-23 04:05:57W§ÕK)5    3KHON 230355Z AUTO 29003KT 10SM CLR 07/04 A3015 RMK AO2 SLP216 T00670039KHON2019-04-23T03:55:00Z44.38-98.236.73.9290310.030.150591021.6TRUETRUEVFRMETAR390.02019-04-23 04:05:57I§ÕJ) 5    3KHMZ 230355Z AUTO 00000KT 10SM CLR 10/06 A3012 RMK AO2 T00960063KHMZ2019-04-23T03:55:00Z40.08-78.529.66.30010.030.121063TRUETRUEVFRMETAR354.02019-04-23 04:05:57 ·*ZŠ·M§ÕQ) 5    3KJSO 230355Z AUTO 16006KT 10SM CLR 20/15 A3008 RMK AO2 T01980151KJSO2019-04-23T03:55:00Z31.87-95.2219.815.1160610.030.079725TRUETRUEVFRMETAR206.02019-04-23 04:05:57J§ÕP) 5    3KLKR 230355Z AUTO 00000KT 10SM FEW046 SCT049 15/09 A3014 RMK AO2KLKR2019-04-23T03:55:00Z34.72-80.8515.09.00010.030.138779TRUETRUEVFRSPECI149.02019-04-23 04:05:57J§ÕO)5   3KMHL 230355Z AUTO 31011G17KT 10SM OVC042 16/11 A3005 RMK AO2KMHL2019-04-23T03:55:00Z39.1-93.216.011.0310111710.030.050198TRUETRUEVFRSPECI237.02019-04-23 04:05:57P§ÕN)5    3KHQZ 230355Z AUTO 13005KT 10SM OVC050 21/17 A3004 RMK AO1 T02080167KHQZ2019-04-23T03:55:00Z32.75-96.5320.816.7130510.030.041338TRUETRUEVFRMETAR136.02019-04-23 04:05:57 Á0h¤Á]§ÕU)/5    3KANK 230355Z AUTO 11006KT 10SM BKN045 BKN060 OVC120 06/02 A3033 RMK AO1 T00560024KANK2019-04-23T03:55:00Z38.53-106.055.62.4110610.030.33071TRUETRUEVFRMETAR2293.02019-04-23 04:05:57>§ÕT(y5    3KBRY 230355Z AUTO 00000KT 10SM CLR 14/09 A3007 RMK AO1KBRY2019-04-23T03:55:00Z37.82-85.514.09.00010.030.070866TRUETRUEVFRSPECI204.02019-04-23 04:05:57B§ÕS(y5    3KFDW 230355Z AUTO 14005KT 10SM CLR 16/10 A3014 RMK AO1KFDW2019-04-23T03:55:00Z34.32-81.1216.010.0140510.030.138779TRUETRUEVFRSPECI176.02019-04-23 04:05:57J§ÕR)5     3KGAF 230355Z AUTO 34007KT 10SM CLR 09/02 A3018 RMK AO2 PWINOKGAF2019-04-23T03:55:00Z48.4-97.379.02.0340710.030.180119TRUETRUETRUEVFRMETAR252.02019-04-23 04:05:57 “*(c“J§ÕY) 5    3KLNN 230355Z AUTO 00000KT 10SM CLR 10/07 A3005 RMK AO1 T01010065KLNN2019-04-23T03:55:00Z41.67-81.3710.16.50010.030.050198TRUETRUEVFRMETAR191.02019-04-23 04:05:57?§ÕX(y5    3KCKI 230355Z AUTO 00000KT 10SM CLR 14/12 A3016 RMK AO2KCKI2019-04-23T03:55:00Z33.72-79.8514.012.00010.030.159449TRUETRUEVFRSPECI21.02019-04-23 04:05:57|§ÕW)U5      3K1P1 230355Z AUTO 00000KT 10SM RA SCT034 BKN060 OVC080 12/11 A3004 RMK AO2 P0002 T01230114 402270062K1P12019-04-23T03:55:00Z43.78-71.7512.311.40010.030.041338TRUETRUERAVFR22.76.20.02METAR154.02019-04-23 04:05:57P§ÕV)5    3K1S5 230355Z AUTO 24007KT 10SM BKN120 18/08 A3010 RMK AO2 T01750082K1S52019-04-23T03:55:00Z46.33-119.9717.58.2240710.030.100393TRUETRUEVFRMETAR234.02019-04-23 04:05:57 ”-Kh”N§Õ])5    3KIFA 230355Z AUTO 32015KT 10SM OVC009 09/08 A3002 RMK AO2 T00850075KIFA2019-04-23T03:55:00Z42.47-93.278.57.53201510.030.02067TRUETRUEIFRMETAR347.02019-04-23 04:05:57]§Õ\)5    3KLLJ 230355Z AUTO 32006KT 10SM CLR 12/M03 A3016 RMK AO2 SLP181 T01171028KLLJ2019-04-23T03:55:00Z44.52-114.2211.7-2.8320610.030.1594491018.1TRUETRUEVFRMETAR1536.02019-04-23 04:05:57\§Õ[)!5     3KLNA 230355Z AUTO 07006KT 10SM CLR 22/14 A3013 RMK AO2 T02220135 402610166KLNA2019-04-23T03:55:00Z26.6-80.0222.213.570610.030.129921TRUETRUEVFR26.116.6METAR11.02019-04-23 04:05:57M§ÕZ) 5    3KLNC 230355Z AUTO 13004KT 10SM CLR 20/17 A3004 RMK AO2 T01970170KLNC2019-04-23T03:55:00Z32.58-96.7219.717.0130410.030.041338TRUETRUEVFRMETAR153.02019-04-23 04:05:57 È<q¡ÈS§Õa)!5    3KLDJ 230355Z AUTO 00000KT 10SM SCT044 OVC050 15/14 A3003 RMK AO2 T01530135KLDJ2019-04-23T03:55:00Z40.62-74.2515.313.50010.030.029528TRUETRUEVFRMETAR7.02019-04-23 04:05:57J§Õ`) 5    3KLQK 230355Z AUTO 00000KT 10SM CLR 12/12 A3013 RMK AO2 T01220122KLQK2019-04-23T03:55:00Z34.82-82.712.212.20010.030.129921TRUETRUEVFRMETAR309.02019-04-23 04:05:57E§Õ_(5    3KLBO 230355Z AUTO 23003KT 10SM SCT060 18/15 A3005 RMK AO2KLBO2019-04-23T03:55:00Z37.65-92.6518.015.0230310.030.050198TRUETRUEVFRMETAR403.02019-04-23 04:05:57>§Õ^(y5    3KINF 230355Z AUTO 00000KT 10SM CLR 13/13 A3016 RMK AO2KINF2019-04-23T03:55:00Z28.8-82.3213.013.00010.030.159449TRUETRUEVFRMETAR15.02019-04-23 04:05:57 Ó:j¦ÓM§Õe) 5    3KM30 230355Z AUTO 22005KT 10SM CLR 18/11 A3006 RMK AO2 T01840112KM302019-04-23T03:55:00Z37.18-88.7518.411.2220510.030.059055TRUETRUEVFRMETAR117.02019-04-23 04:05:57>§Õd(y5    3KMGR 230355Z AUTO 00000KT 10SM CLR 15/10 A3016 RMK AO2KMGR2019-04-23T03:55:00Z31.08-83.815.010.00010.030.159449TRUETRUEVFRMETAR90.02019-04-23 04:05:57J§Õc) 5    3KMKJ 230355Z AUTO 00000KT 10SM CLR 12/08 A3021 RMK AO2 T01150082KMKJ2019-04-23T03:55:00Z36.88-81.3311.58.20010.030.209646TRUETRUEVFRMETAR780.02019-04-23 04:05:57@§Õb(y5    3KSPA 230355Z AUTO 00000KT 10SM CLR 13/11 A3013 RMK AO2KSPA2019-04-23T03:55:00Z34.92-81.9313.011.00010.030.129921TRUETRUEVFRMETAR303.02019-04-23 04:05:57 Ó-j¢ÓI§Õi) 5    3KLNQ 230355Z AUTO 00000KT 10SM CLR 17/16 A3016 RMK AO2 T01700156KLNQ2019-04-23T03:55:00Z29.35-89.4317.015.60010.030.159449TRUETRUEVFRMETAR1.02019-04-23 04:05:57B§Õh(5    3KLOM 230355Z AUTO 00000KT 10SM BKN085 13/10 A3005 RMK AO1KLOM2019-04-23T03:55:00Z40.13-75.2713.010.00010.030.050198TRUETRUEVFRMETAR92.02019-04-23 04:05:57=§Õg(y5    3KLRO 230355Z AUTO 00000KT 10SM CLR 13/13 A3017 RMK AO2KLRO2019-04-23T03:55:00Z32.9-79.7813.013.00010.030.171259TRUETRUEVFRMETAR4.02019-04-23 04:05:57M§Õf)5    3KLXN 230355Z AUTO 35005KT 10SM CLR 06/M01 A3020 RMK AO2 T00561007KLXN2019-04-23T03:55:00Z40.78-99.775.6-0.7350510.030.200787TRUETRUEVFRMETAR734.02019-04-23 04:05:57 Î1a’΁>§Õm(y5    3KLCQ 230355Z AUTO 00000KT 10SM CLR 13/09 A3016 RMK AO2KLCQ2019-04-23T03:55:00Z30.18-82.5813.09.00010.030.159449TRUETRUEVFRMETAR61.02019-04-23 04:05:57I§Õl) 5    3KLGC 230355Z AUTO 00000KT 10SM CLR 14/14 A3015 RMK AO2 T01380135KLGC2019-04-23T03:55:00Z33.0-85.0713.813.50010.030.15059TRUETRUEVFRMETAR211.02019-04-23 04:05:57J§Õk) 5    3KLHB 230355Z AUTO 00000KT 10SM CLR 20/18 A3005 RMK AO2 T02000175KLHB2019-04-23T03:55:00Z30.87-96.6220.017.50010.030.050198TRUETRUEVFRMETAR87.02019-04-23 04:05:57I§Õj) 5    3KLKU 230355Z AUTO 00000KT 10SM CLR 08/07 A3016 RMK AO2 T00830073KLKU2019-04-23T03:55:00Z38.02-77.978.37.30010.030.159449TRUETRUEVFRMETAR150.02019-04-23 04:05:57 0p´ìH§Õr) 5    3KJYL 230355Z AUTO 00000KT 10SM CLR 16/13 A3015 RMK AO2 T01610128KJYL2019-04-23T03:55:00Z32.65-81.616.112.80010.030.15059TRUETRUEVFRMETAR57.02019-04-23 04:05:57B§Õq(y5    3KJYO 230355Z AUTO 27003KT 10SM CLR 13/10 A3010 RMK AO2KJYO2019-04-23T03:55:00Z39.07-77.5713.010.0270310.030.100393TRUETRUEVFRMETAR119.02019-04-23 04:05:576§Õp(u5     3KJZP 230355Z AUTO 00000KT 10SM CLR A3020 RMK AO2 PNOKJZP2019-04-23T03:55:00Z34.45-84.470010.030.200787TRUETRUEVFRMETAR468.02019-04-23 04:05:57:§Õo(y5    3KK88 230355Z 10SM SCT043 15/14 A3006 RMK AO1 T01460144KK882019-04-23T03:55:00Z37.87-95.3814.614.410.030.059055TRUEVFRMETAR309.02019-04-23 04:05:57J§Õn) 5    3KLCG 230355Z AUTO 36006KT 10SM CLR 07/05 A3015 RMK AO2 T00700045KLCG2019-04-23T03:55:00Z42.25-96.987.04.5360610.030.15059TRUETRUEVFRMETAR436.02019-04-23 04:05:57 „Qa„W§Õv)!5    3KIJX 230355Z AUTO 24007KT 10SM SCT075 BKN080 20/15 A2993 RMK AO2 T01960151KIJX2019-04-23T03:55:00Z39.77-90.2519.615.1240710.029.929134TRUETRUEVFRMETAR190.02019-04-23 04:05:57j§Õu)E5    3KIKK 230355Z AUTO 20011KT 10SM SCT070 BKN100 BKN110 19/12 A2991 RMK AO2 LTG DSNT S T01900117KIKK2019-04-23T03:55:00Z41.07-87.8519.011.72001110.029.911417TRUETRUEVFRMETAR192.02019-04-23 04:05:57?§Õt(y5    3KIOB 230355Z AUTO 00000KT 10SM CLR 12/08 A3011 RMK AO2KIOB2019-04-23T03:55:00Z38.05-83.9812.08.00010.030.109253TRUETRUEVFRMETAR311.02019-04-23 04:05:57d§Õs)55   3KJOT 230355Z AUTO 19014G22KT 10SM SCT055 SCT065 BKN110 21/12 A2984 RMK AO2 T02110124KJOT2019-04-23T03:55:00Z41.52-88.1821.112.4190142210.029.840551TRUETRUEVFRMETAR177.02019-04-23 04:05:57 8j¥çI§Õ{)5    3PPNU 230355Z AUTO 09008KT 3/4SM OVC003 M09/M09 A2989 RMK AO1PPNU2019-04-23T03:55:00Z70.42-150.03-9.0-9.09080.7529.890747TRUETRUELIFRMETAR27.02019-04-23 04:05:578§Õz(w5    3EHEH 230355Z AUTO 07007KT 9999 OVC320 11/02 Q1001 BLUEHEH2019-04-23T03:55:00Z51.455.3811.02.07076.2129.557087TRUEVFRMETAR22.02019-04-23 04:05:57?§Õy)5    3EHKD 230355Z AUTO 09013KT 070V130 9999 NCD 11/04 Q1003 BLUEHKD2019-04-23T03:55:00Z52.924.7711.04.090136.2129.616142TRUEVFRMETAR14.02019-04-23 04:05:57H§Õx(5   3KM75 230355Z AUTO 17016G22KT 10SM CLR 13/05 A2992 RMK A01KM752019-04-23T03:55:00Z48.37-107.9213.05.0170162210.029.920275TRUETRUEVFRMETAR687.02019-04-23 04:05:57B§Õw(y5    3KM91 230355Z AUTO 17007KT 10SM CLR 19/10 A3007 RMK A01KM912019-04-23T03:55:00Z36.53-86.9219.010.0170710.030.070866TRUETRUEVFRMETAR215.02019-04-23 04:05:57 ;w¼îJ§Ö) 5    3KW13 230355Z AUTO 00000KT 10SM CLR 12/07 A3014 RMK AO1 T01150071KW132019-04-23T03:55:00Z38.08-78.9511.57.10010.030.138779TRUETRUEVFRMETAR443.02019-04-23 04:05:57H§Õ) 5    3KW99 230355Z AUTO 00000KT 10SM CLR 09/07 A3014 RMK AO2 T00850066KW992019-04-23T03:55:00Z39.0-79.158.56.60010.030.138779TRUETRUEVFRMETAR293.02019-04-23 04:05:575§Õ~(u5   3TXKF 230355Z 12008KT 9999 FEW019 FEW300 20/17 Q1020 TXKF2019-04-23T03:55:00Z32.37-64.6820.017.012086.2130.11811VFRMETAR6.02019-04-23 04:05:57>§Õ}(y5    3KVDF 230355Z AUTO 00000KT 10SM CLR 14/12 A3016 RMK AO2KVDF2019-04-23T03:55:00Z28.02-82.3314.012.00010.030.159449TRUETRUEVFRMETAR7.02019-04-23 04:05:57?§Õ|(y5    3KVNC 230355Z AUTO 05005KT 10SM CLR 20/13 A3014 RMK AO2KVNC2019-04-23T03:55:00Z27.07-82.4320.013.050510.030.138779TRUETRUEVFRMETAR6.02019-04-23 04:05:57 Æ-fšÆN§Ö) 5    3KSBS 230355Z AUTO 11006KT 10SM CLR 06/00 A3018 RMK AO1 T00641003KSBS2019-04-23T03:55:00Z40.52-106.876.4-0.3110610.030.180119TRUETRUEVFRMETAR2096.02019-04-23 04:05:57F§Ö(5    3KTVK 230355Z AUTO 29011KT 10SM OVC015 12/10 A3004 RMK AO2KTVK2019-04-23T03:55:00Z40.68-92.912.010.02901110.030.041338TRUETRUEMVFRMETAR314.02019-04-23 04:05:57A§Ö({5    3KUTA 230355Z AUTO 00000KT 10SM 14/12 A3010 RMK AO2 TSNOKUTA2019-04-23T03:55:00Z34.68-90.3514.012.00010.030.100393TRUETRUETRUEMETAR59.02019-04-23 04:05:57M§Ö)5   3KUVA 230355Z AUTO 11007G14KT 10SM CLR 21/18 A3000 RMK AO2 T02080175KUVA2019-04-23T03:55:00Z29.22-99.7520.817.511071410.030.0TRUETRUEVFRMETAR287.02019-04-23 04:05:57 ¶7e–¶Z§Ö)%5     3KRCV 230355Z AUTO 09004KT 4SM UP SCT011 OVC018 02/01 A3026 RMK AO2 T00200013KRCV2019-04-23T03:55:00Z37.72-106.352.01.39044.030.259842TRUETRUEUPMVFRMETAR2424.02019-04-23 04:05:57I§Ö) 5    3KREG 230355Z AUTO 00000KT 10SM CLR 18/15 A3013 RMK AO2 T01810147KREG2019-04-23T03:55:00Z30.17-90.9318.114.70010.030.129921TRUETRUEVFRMETAR4.02019-04-23 04:05:57L§Ö) 5    3KRNV 230355Z AUTO 17004KT 10SM CLR 19/10 A3008 RMK AO2 T01850104KRNV2019-04-23T03:55:00Z33.77-90.7518.510.4170410.030.079725TRUETRUEVFRMETAR41.02019-04-23 04:05:57C§Ö(5    3KRZL 230355Z AUTO 00000KT 10SM OVC080 20/11 A2995 RMK AO2KRZL2019-04-23T03:55:00Z40.95-87.1820.011.00010.029.949802TRUETRUEVFRMETAR213.02019-04-23 04:05:57 žKxžT§Ö )5    3KPLU 230355Z AUTO 25003KT 10SM BKN033 BKN055 OVC065 11/11 A3022 RMK AO2KPLU2019-04-23T03:55:00Z47.1-122.2811.011.0250310.030.221457TRUETRUEVFRMETAR164.02019-04-23 04:05:57M§Ö ) 5    3KPPQ 230355Z AUTO 26007KT 10SM CLR 20/16 A2995 RMK AO2 T01990160KPPQ2019-04-23T03:55:00Z39.63-90.7819.916.0260710.029.949802TRUETRUEVFRMETAR216.02019-04-23 04:05:57H§Ö ) 5    3KPTB 230355Z AUTO 00000KT 10SM CLR 09/08 A3012 RMK AO2 T00860076KPTB2019-04-23T03:55:00Z37.17-77.528.67.60010.030.121063TRUETRUEVFRMETAR59.02019-04-23 04:05:57a§Ö )-5     3KPVB 230355Z AUTO 32007KT 290V350 4SM OVC004 16/16 A2984 RMK AO1 P0008 T01560156KPVB2019-04-23T03:55:00Z42.68-90.4315.615.632074.029.840551TRUETRUELIFR0.08METAR313.02019-04-23 04:05:57 Ç6[–ǁI§Ö) 5    3KMWO 230355Z AUTO 00000KT 10SM CLR 12/09 A3005 RMK AO2 T01150093KMWO2019-04-23T03:55:00Z39.53-84.411.59.30010.030.050198TRUETRUEVFRMETAR198.02019-04-23 04:05:57?§Ö(y5    3KOKV 230355Z AUTO 00000KT 10SM CLR 11/07 A3012 RMK AO2KOKV2019-04-23T03:55:00Z39.13-78.1511.07.00010.030.121063TRUETRUEVFRMETAR222.02019-04-23 04:05:57U§Ö)!5    3KORG 230355Z AUTO 13005KT 10SM BKN012 BKN039 21/20 A3011 RMK AO2 T02050198KORG2019-04-23T03:55:00Z30.07-93.820.519.8130510.030.109253TRUETRUEMVFRMETAR4.02019-04-23 04:05:57D§Ö (5    3KOZA 230355Z AUTO 15008KT 10SM SCT036 20/13 A3002 RMK AO2KOZA2019-04-23T03:55:00Z30.73-101.220.013.0150810.030.02067TRUETRUEVFRMETAR726.02019-04-23 04:05:57 Æ9t’ƁF§Ö) 5    3KONZ 230355Z AUTO 12003KT 10SM CLR 11/07 A3000 RMK AO2 T01090071KONZ2019-04-23T03:55:00Z42.1-83.1510.97.1120310.030.0TRUETRUEVFRMETAR180.02019-04-23 04:05:57\§Ö)/5    3KPTS 230355Z AUTO 00000KT 10SM BKN035 BKN042 OVC060 18/17 A3004 RMK AO2 T01840165KPTS2019-04-23T03:55:00Z37.45-94.7318.416.50010.030.041338TRUETRUEVFRMETAR290.02019-04-23 04:05:57?§Ö(y5    3KMEZ 230355Z AUTO 00000KT 10SM CLR 15/15 A3009 RMK AO2KMEZ2019-04-23T03:55:00Z34.55-94.215.015.00010.030.088583TRUETRUEVFRMETAR329.02019-04-23 04:05:57A§Ö(y5    3KMQS 230355Z AUTO 30003KT 10SM CLR 12/09 A3007 RMK AO2KMQS2019-04-23T03:55:00Z39.98-75.8712.09.0300310.030.070866TRUETRUEVFRMETAR201.02019-04-23 04:05:57 «9b…«T§Ö)5   3KVTI 230355Z AUTO 29012G19KT 7SM OVC007 11/10 A2995 RMK AO2 T01050100KVTI2019-04-23T03:55:00Z42.22-92.0210.510.029012197.029.949802TRUETRUEIFRMETAR255.02019-04-23 04:05:57W§Ö)!5    3KEAN 230355Z AUTO 17006KT 10SM BKN009 OVC018 06/03 A3023 RMK AO2 T00620025KEAN2019-04-23T03:55:00Z42.05-104.936.22.5170610.030.230314TRUETRUEIFRMETAR1456.02019-04-23 04:05:57Q§Ö)5    3K2J9 230355Z AUTO 29004KT 10SM FEW025 SCT030 OVC044 17/08 A3017 RMK AO2K2J92019-04-23T03:55:00Z30.6-84.5517.08.0290410.030.171259TRUETRUEVFRMETAR69.02019-04-23 04:05:57A§Ö(y5    3K2V5 230355Z AUTO 36007KT 10SM CLR 05/00 A3023 RMK AO2K2V52019-04-23T03:55:00Z40.1-102.255.00.0360710.030.230314TRUETRUEVFRMETAR1118.02019-04-23 04:05:57 ²6rª²r§Ö)I5     3KPCZ 230355Z AUTO 01009G16KT 10SM -DZ SCT010 BKN015 OVC026 08/07 A2991 RMK AO2 P0004 T00800065KPCZ2019-04-23T03:55:00Z44.33-89.028.06.51091610.029.911417TRUETRUE-DZMVFR0.04METAR252.02019-04-23 04:05:57B§Ö({5    3KD50 230355Z AUTO 18009KT 10SM CLR 09/M06 A3008 RMK AO2KD502019-04-23T03:55:00Z48.93-103.39.0-6.0180910.030.079725TRUETRUEVFRMETAR595.02019-04-23 04:05:57>§Ö(y5    3KD55 230355Z AUTO 08004KT 10SM CLR 06/05 A3017 RMK AO2KD552019-04-23T03:55:00Z48.75-98.46.05.080410.030.171259TRUETRUEVFRMETAR491.02019-04-23 04:05:57D§Ö(5    3KD57 230355Z AUTO 00000KT 10SM 02/M02 A3014 RMK AO2 PWINOKD572019-04-23T03:55:00Z46.82-101.872.0-2.00010.030.138779TRUETRUETRUEMETAR637.02019-04-23 04:05:57 â<|´âL§Ö )5   3KOXV 230355Z AUTO 30012G18KT 10SM OVC014 11/11 A3002 RMK AO2KOXV2019-04-23T03:55:00Z41.28-93.1211.011.0300121810.030.02067TRUETRUEMVFRMETAR283.02019-04-23 04:05:57B§Ö({5    3KPAN 230355Z AUTO 00000KT 10SM CLR 13/M03 A3002 RMK AO2KPAN2019-04-23T03:55:00Z34.25-111.3313.0-3.00010.030.02067TRUETRUEVFRMETAR1572.02019-04-23 04:05:57:§Ö(y5    3KPCD 230355Z 10SM BKN075 21/11 A2999 RMK AO2 T02070113KPCD2019-04-23T03:55:00Z37.87-89.8720.711.310.029.991142TRUEVFRMETAR113.02019-04-23 04:05:57>§Ö(y5    3KPCM 230355Z AUTO 00000KT 10SM CLR 18/11 A3017 RMK AO2KPCM2019-04-23T03:55:00Z28.0-82.1718.011.00010.030.171259TRUETRUEVFRMETAR47.02019-04-23 04:05:57 ®/Rv®B§Ö$(y5    3KDUB 230355Z AUTO 19003KT 10SM CLR 01/00 A3023 RMK AO2KDUB2019-04-23T03:55:00Z43.55-109.681.00.0190310.030.230314TRUETRUEVFRMETAR2224.02019-04-23 04:05:57V§Ö#)5     3KRRL 230355Z AUTO 03009KT 10SM OVC011 05/04 A2997 RMK AO2 T00460041 TSNOKRRL2019-04-23T03:55:00Z45.2-89.724.64.130910.029.970472TRUETRUETRUEMVFRMETAR401.02019-04-23 04:05:57W§Ö")!5   3KORS 230355Z AUTO 16006G14KT 10SM BKN018 BKN024 OVC060 11/09 A3018 RMK AO2KORS2019-04-23T03:55:00Z48.7-122.9211.09.016061410.030.180119TRUETRUEMVFRMETAR9.02019-04-23 04:05:57K§Ö!) 5    3KOSC 230355Z AUTO 18009KT 10SM CLR 13/04 A2993 RMK AO2 T01330042KOSC2019-04-23T03:55:00Z44.45-83.413.34.2180910.029.929134TRUETRUEVFRMETAR193.02019-04-23 04:05:57 «6d}«L§Ö() 5    3KDCY 230355Z AUTO 20008KT 10SM CLR 19/10 A3001 RMK AO2 T01850101KDCY2019-04-23T03:55:00Z38.7-87.1318.510.1200810.030.008858TRUETRUEVFRMETAR144.02019-04-23 04:05:57a§Ö')75    3KDKB 230355Z AUTO 23010KT 10SM BKN070 OVC090 17/14 A2985 RMK AO2 LTG DSNT N T01660135KDKB2019-04-23T03:55:00Z41.93-88.716.613.52301010.029.84941TRUETRUEVFRMETAR279.02019-04-23 04:05:57L§Ö&) 5    3KDQH 230355Z AUTO 12003KT 10SM CLR 15/11 A3016 RMK AO2 T01540109KDQH2019-04-23T03:55:00Z31.48-82.8715.410.9120310.030.159449TRUETRUEVFRMETAR78.02019-04-23 04:05:57D§Ö%(5    3KDTA 230355Z AUTO 15003KT 10SM SCT075 08/06 A3018 RMK AO1KDTA2019-04-23T03:55:00Z39.38-112.58.06.0150310.030.180119TRUETRUEVFRMETAR1402.02019-04-23 04:05:57 ¯#O~¯I§Ö,) 5    3KCJR 230355Z AUTO 00000KT 10SM CLR 10/08 A3012 RMK AO2 T01030083KCJR2019-04-23T03:55:00Z38.53-77.8710.38.30010.030.121063TRUETRUEVFRMETAR97.02019-04-23 04:05:57K§Ö+) 5    3KCTJ 230355Z AUTO 00000KT 10SM CLR 13/11 A3020 RMK AO2 T01310110KCTJ2019-04-23T03:55:00Z33.63-85.1513.111.00010.030.200787TRUETRUEVFRMETAR354.02019-04-23 04:05:57N§Ö*)5    3KCUH 230355Z AUTO 00000KT 10SM OVC050 18/16 A3005 RMK AO2 T01810162KCUH2019-04-23T03:55:00Z35.95-96.7718.116.20010.030.050198TRUETRUEVFRMETAR279.02019-04-23 04:05:57W§Ö))!5    3KCVB 230355Z AUTO 11011KT 10SM SCT018 BKN055 21/16 A3002 RMK AO2 T02110163KCVB2019-04-23T03:55:00Z29.35-98.8521.116.31101110.030.02067TRUETRUEVFRMETAR235.02019-04-23 04:05:57 °-[€°J§Ö0) 5    3KBQP 230355Z AUTO 00000KT 10SM CLR 15/14 A3010 RMK AO2 T01460144KBQP2019-04-23T03:55:00Z32.75-91.8814.614.40010.030.100393TRUETRUEVFRMETAR51.02019-04-23 04:05:57U§Ö/)5   3KBTA 230355Z AUTO 35014G20KT 10SM OVC012 10/07 A3011 RMK AO2 T00970072KBTA2019-04-23T03:55:00Z41.42-96.129.77.2350142010.030.109253TRUETRUEMVFRMETAR396.02019-04-23 04:05:57L§Ö.) 5  3KC09 230355Z AUTO 19020G27KT 10SM 19/13 A2983 RMK AO2 T01910126KC092019-04-23T03:55:00Z41.43-88.4219.112.6190202710.029.828741TRUETRUEMETAR178.02019-04-23 04:05:57M§Ö-) 5    3KCFD 230355Z AUTO 12004KT 10SM CLR 19/18 A3007 RMK AO2 T01860180KCFD2019-04-23T03:55:00Z30.72-96.3318.618.0120410.030.070866TRUETRUEVFRMETAR112.02019-04-23 04:05:57 ¬#O¬M§Ö4)5    3KBKS 230355Z AUTO 07004KT 10SM SCT017 22/19 A2997 RMK AO1 T02180193KBKS2019-04-23T03:55:00Z27.2-98.1221.819.370410.029.970472TRUETRUEVFRMETAR34.02019-04-23 04:05:57J§Ö3) 5    3KBKT 230355Z AUTO 00000KT 10SM CLR 14/08 A3012 RMK AO1 T01350084KBKT2019-04-23T03:55:00Z37.07-77.9513.58.40010.030.121063TRUETRUEVFRMETAR134.02019-04-23 04:05:57N§Ö2) 5    3KBMC 230355Z AUTO 13005KT 10SM CLR 13/03 A3017 RMK AO1 T01320029KBMC2019-04-23T03:55:00Z41.55-112.0713.22.9130510.030.171259TRUETRUEVFRMETAR1288.02019-04-23 04:05:57W§Ö1)!5    3KBMT 230355Z AUTO 13005KT 10SM BKN015 BKN039 20/18 A3009 RMK AO2 T02030181KBMT2019-04-23T03:55:00Z30.07-94.2220.318.1130510.030.088583TRUETRUEMVFRMETAR10.02019-04-23 04:05:57 *h¤ðK§Ö9) 5    3KAZE 230355Z AUTO 16003KT 10SM CLR 18/10 A3014 RMK AO2 T01830097KAZE2019-04-23T03:55:00Z31.88-82.6518.39.7160310.030.138779TRUETRUEVFRMETAR78.02019-04-23 04:05:57.§Ö8(c5    3KBGE 230355Z 10SM 18/08 A3016 RMK AO2 PWINOKBGE2019-04-23T03:55:00Z30.97-84.6318.08.010.030.159449TRUETRUEMETAR43.02019-04-23 04:05:57>§Ö7(y5    3KBHC 230355Z AUTO 00000KT 10SM CLR 14/10 A3014 RMK AO2KBHC2019-04-23T03:55:00Z31.72-82.414.010.00010.030.138779TRUETRUEVFRMETAR61.02019-04-23 04:05:57<§Ö6(y5    3KBIJ 230355Z AUTO 00000KT 10SM CLR 13/11 A3015 RMK AO2KBIJ2019-04-23T03:55:00Z31.4-84.913.011.00010.030.15059TRUETRUEVFRMETAR65.02019-04-23 04:05:57P§Ö5)5    3KBKD 230355Z AUTO 14006KT 10SM BKN055 22/15 A3001 RMK AO2 T02200152KBKD2019-04-23T03:55:00Z32.72-98.8822.015.2140610.030.008858TRUETRUEVFRMETAR392.02019-04-23 04:05:57 ¾;lŽ¾J§Ö=) 5    3KPTT 230355Z AUTO 02008KT 10SM CLR 15/10 A3011 RMK AO2 T01510097KPTT2019-04-23T03:55:00Z37.7-98.7515.19.720810.030.109253TRUETRUEVFRMETAR595.02019-04-23 04:05:57X§Ö<)#5    3KRCR 230355Z AUTO 14007KT 10SM SCT080 SCT100 18/11 A2995 RMK AO2 LTG DSNT EKRCR2019-04-23T03:55:00Z41.07-86.1818.011.0140710.029.949802TRUETRUEVFRMETAR241.02019-04-23 04:05:57I§Ö;) 5    3KRMN 230355Z AUTO 00000KT 10SM CLR 10/10 A3014 RMK AO2 T01000100KRMN2019-04-23T03:55:00Z38.4-77.4510.010.00010.030.138779TRUETRUEVFRMETAR65.02019-04-23 04:05:57?§Ö:(y5    3KDVK 230355Z AUTO 00000KT 10SM CLR 12/09 A3010 RMK AO2KDVK2019-04-23T03:55:00Z37.58-84.7712.09.00010.030.100393TRUETRUEVFRMETAR312.02019-04-23 04:05:57 .LgR§ÖA)5    3KPNA 230355Z AUTO 12005KT 10SM SCT036 SCT050 SCT060 03/03 A3026 RMK AO2KPNA2019-04-23T03:55:00Z42.8-109.83.03.0120510.030.259842TRUETRUEVFRMETAR2160.02019-04-23 04:05:57_§Ö@)/5    3KPNT 230355Z AUTO 18012KT 10SM SCT048 BKN065 OVC095 18/14 A2990 RMK AO2 T01810144KPNT2019-04-23T03:55:00Z40.92-88.6218.114.41801210.029.899607TRUETRUEVFRMETAR201.02019-04-23 04:05:57\§Ö?)+5    3KPPA 230355Z AUTO 36009KT 10SM OVC110 13/11 A3011 RMK AO2 LTG DSNT SE T01270108KPPA2019-04-23T03:55:00Z35.62-101.012.710.8360910.030.109253TRUETRUEVFRMETAR989.02019-04-23 04:05:57L§Ö>) 5    3KPRG 230355Z AUTO 20011KT 10SM CLR 20/12 A2998 RMK AO2 T02010120KPRG2019-04-23T03:55:00Z39.7-87.6720.112.02001110.029.97933TRUETRUEVFRMETAR199.02019-04-23 04:05:57 ÂLg•ÂM§ÖE) 5    3KOZS 230355Z AUTO 25004KT 10SM SCT047 OVC055 20/15 A3003 RMK AO2KOZS2019-04-23T03:55:00Z37.97-92.6820.015.0250410.030.029528TRUETRUEVFRMETAR324.02019-04-23 04:05:57L§ÖD) 5    3KPBX 230355Z AUTO 15003KT 10SM CLR 17/08 A3012 RMK AO2 T01700076KPBX2019-04-23T03:55:00Z37.57-82.5717.07.6150310.030.121063TRUETRUEVFRMETAR449.02019-04-23 04:05:57_§ÖC)15    3KPEQ 230355Z AUTO 09005KT 10SM CLR 19/14 A2991 RMK AO2 LTG DSNT N AND NW T01890140KPEQ2019-04-23T03:55:00Z31.38-103.5218.914.090510.029.911417TRUETRUEVFRMETAR797.02019-04-23 04:05:57.§ÖB(g5   3KPMU 230355Z AUTO 00000KT 14/13 A3010 RMK AO2KPMU2019-04-23T03:55:00Z34.37-89.914.013.00030.100393TRUETRUEMETAR67.02019-04-23 04:05:57 ª:TªO§ÖI)5    3KONM 230355Z AUTO 09005KT 10SM BKN110 14/04 A3007 RMK AO2 T01360035KONM2019-04-23T03:55:00Z34.02-106.913.63.590510.030.070866TRUETRUEVFRMETAR1410.02019-04-23 04:05:57O§ÖH)5    3KOSA 230355Z AUTO 13004KT 10SM SCT049 18/15 A3007 RMK AO1 T01800150KOSA2019-04-23T03:55:00Z33.1-94.9718.015.0130410.030.070866TRUETRUEVFRMETAR111.02019-04-23 04:05:57`§ÖG)75    3KOUN 230355Z AUTO 00000KT 10SM BKN037 OVC044 19/17 A3003 RMK AO2 LTG DSNT W T01910169KOUN2019-04-23T03:55:00Z35.25-97.4719.116.90010.030.029528TRUETRUEVFRMETAR357.02019-04-23 04:05:57@§ÖF(y5    3KOYM 230355Z AUTO 24003KT 10SM CLR 12/04 A3013 RMK AO2KOYM2019-04-23T03:55:00Z41.42-78.512.04.0240310.030.129921TRUETRUEVFRMETAR590.02019-04-23 04:05:57 Æ/e–ƁJ§ÖM) 5    3KOGA 230355Z AUTO 00000KT 10SM CLR 08/01 A3023 RMK AO2 T00810013KOGA2019-04-23T03:55:00Z41.12-101.778.11.30010.030.230314TRUETRUEVFRMETAR999.02019-04-23 04:05:57I§ÖL) 5    3KOGS 230355Z AUTO 00000KT 10SM FEW060 FEW095 12/06 A3010 RMK AO2KOGS2019-04-23T03:55:00Z44.67-75.4712.06.00010.030.100393TRUETRUEVFRMETAR91.02019-04-23 04:05:57D§ÖK)5    3KOKM 230355Z AUTO 10SM OVC042 20/17 A3004 RMK AO2 T02000170KOKM2019-04-23T03:55:00Z35.67-95.9520.017.010.030.041338TRUETRUEVFRMETAR220.02019-04-23 04:05:57K§ÖJ) 5    3KONL 230355Z AUTO 35005KT 10SM CLR 07/01 A3018 RMK AO2 T00700012KONL2019-04-23T03:55:00Z42.47-98.677.01.2350510.030.180119TRUETRUEVFRMETAR619.02019-04-23 04:05:57 ¾5aŒ¾H§ÖQ) 5    3KFWC 230355Z AUTO 18003KT 10SM CLR 18/11 A3000 RMK AO1 T01780113KFWC2019-04-23T03:55:00Z38.38-88.4217.811.3180310.030.0TRUETRUEVFRMETAR133.02019-04-23 04:05:57O§ÖP)5    3KMLE 230355Z AUTO 34007KT 10SM OVC016 11/08 A3012 RMK AO2 T01130078KMLE2019-04-23T03:55:00Z41.2-96.1211.37.8340710.030.121063TRUETRUEMVFRMETAR320.02019-04-23 04:05:57N§ÖO) 5    3KMWA 230355Z AUTO 21010KT 10SM CLR 20/10 A3003 RMK AO2 T02030101KMWA2019-04-23T03:55:00Z37.77-89.0220.310.12101010.030.029528TRUETRUEVFRMETAR144.02019-04-23 04:05:57E§ÖN(5    3KMYZ 230355Z AUTO 35008KT 10SM OVC019 11/08 A3013 RMK AO2KMYZ2019-04-23T03:55:00Z39.85-96.6311.08.0350810.030.129921TRUETRUEMVFRMETAR319.02019-04-23 04:05:57 ½1[½J§ÖU) 5    3KFGX 230355Z AUTO 00000KT 10SM CLR 15/07 A3009 RMK AO2 T01450065KFGX2019-04-23T03:55:00Z38.55-83.7514.56.50010.030.088583TRUETRUEVFRMETAR278.02019-04-23 04:05:57H§ÖT) 5    3KFKN 230355Z AUTO 00000KT 10SM CLR 11/10 A3012 RMK AO2 T01060104KFKN2019-04-23T03:55:00Z36.7-76.910.610.40010.030.121063TRUETRUEVFRMETAR12.02019-04-23 04:05:57P§ÖS)5    3KFOA 230355Z AUTO 19009KT 10SM OVC080 21/11 A2999 RMK AO2 T02050111KFOA2019-04-23T03:55:00Z38.67-88.4520.511.1190910.029.991142TRUETRUEVFRMETAR144.02019-04-23 04:05:57I§ÖR) 5    3KFVX 230355Z AUTO 00000KT 10SM CLR 10/08 A3011 RMK AO2 T00980083KFVX2019-04-23T03:55:00Z37.35-78.429.88.30010.030.109253TRUETRUEVFRMETAR125.02019-04-23 04:05:57 r-+Wr_§ÖY)/5    3KE11 230355Z AUTO 08009KT 10SM BKN017 BKN024 BKN030 16/13 A2999 RMK AO2 T01570132KE112019-04-23T03:55:00Z32.33-102.5315.713.280910.029.991142TRUETRUEMVFRMETAR967.02019-04-23 04:05:57N§ÖX)5    3KELA 230355Z AUTO 12006KT 10SM SCT041 20/18 A3004 RMK AO2 T02010181KELA2019-04-23T03:55:00Z29.6-96.3220.118.1120610.030.041338TRUETRUEVFRMETAR56.02019-04-23 04:05:57|§ÖW)U5      3KELK 230355Z AUTO 07014KT 10SM -VCTSRA OVC085 16/14 A3005 RMK AO2 LTG DSNT SE AND SW P0008 T01570137KELK2019-04-23T03:55:00Z35.43-99.415.713.7701410.030.050198TRUETRUEVCTS -RAVFR0.08METAR610.02019-04-23 04:05:57M§ÖV) 5    3KEMM 230355Z AUTO 33005KT 10SM SCT038 BKN046 05/01 A3026 RMK AO2KEMM2019-04-23T03:55:00Z41.82-110.555.01.0330510.030.259842TRUETRUEVFRMETAR2220.02019-04-23 04:05:57 µU…µJ§Ö]) 5    3KEZF 230355Z AUTO 00000KT 10SM CLR 12/10 A3009 RMK AO2 T01240101KEZF2019-04-23T03:55:00Z38.27-77.4512.410.10010.030.088583TRUETRUEVFRMETAR26.02019-04-23 04:05:57J§Ö\) 5    3KEZM 230355Z AUTO 00000KT 10SM CLR 13/12 A3017 RMK AO2 T01280123KEZM2019-04-23T03:55:00Z32.22-83.1312.812.30010.030.171259TRUETRUEVFRMETAR93.02019-04-23 04:05:57@§Ö[(y5    3KF70 230355Z AUTO 00000KT 10SM CLR 15/11 A2998 RMK AO1KF702019-04-23T03:55:00Z33.57-117.1315.011.00010.029.97933TRUETRUEVFRMETAR412.02019-04-23 04:05:57_§ÖZ)+5   3KFEP 230355Z AUTO 25011G17KT 10SM CLR 16/16 A2983 RMK AO2 LTG DSNT NE T01610155KFEP2019-04-23T03:55:00Z42.25-89.5816.115.5250111710.029.828741TRUETRUEVFRMETAR262.02019-04-23 04:05:57 Ï"Y’ρ=§Öa(y5    3K24J 230355Z AUTO 00000KT 10SM CLR 14/11 A3015 RMK A01K24J2019-04-23T03:55:00Z30.3-83.0314.011.00010.030.15059TRUETRUEVFRMETAR32.02019-04-23 04:05:57A§Ö`(y5    3K27K 230355Z AUTO 15005KT 10SM CLR 16/05 A3008 RMK AO1K27K2019-04-23T03:55:00Z38.23-84.4316.05.0150510.030.079725TRUETRUEVFRMETAR289.02019-04-23 04:05:57C§Ö_(y5    3KEQA 230355Z AUTO 36010KT 10SM CLR 15/10 A3008 RMK AO2KEQA2019-04-23T03:55:00Z37.78-96.8215.010.03601010.030.079725TRUETRUEVFRMETAR420.02019-04-23 04:05:57X§Ö^)5      3KETB 230355Z AUTO 05009KT 3SM RA BKN003 OVC009 09/09 A2983 RMK AO2 P0016KETB2019-04-23T03:55:00Z43.42-88.139.09.05093.029.828741TRUETRUERALIFR0.16METAR270.02019-04-23 04:05:57 <u¬ÚB§Öf(y5    3KPCW 230355Z AUTO 14006KT 10SM CLR 14/11 A3001 RMK AO2KPCW2019-04-23T03:55:00Z41.52-82.8714.011.0140610.030.008858TRUETRUEVFRMETAR178.02019-04-23 04:05:57L§Öe)5    3K08D 230355Z AUTO 13003KT 10SM FEW044 FEW050 08/M03 A3012 RMK AO2K08D2019-04-23T03:55:00Z48.3-102.48.0-3.0130310.030.121063TRUETRUEVFRMETAR684.02019-04-23 04:05:57C§Öd(5    3K0S9 230355Z AUTO VRB05KT 10SM OVC017 11/08 A3017 RMK AO2K0S92019-04-23T03:55:00Z48.05-122.8211.08.00510.030.171259TRUETRUEMVFRMETAR33.02019-04-23 04:05:57A§Öc(y5    3K20U 230355Z AUTO 21008KT 10SM CLR 09/02 A3013 RMK AO2K20U2019-04-23T03:55:00Z46.93-103.989.02.0210810.030.129921TRUETRUEVFRMETAR840.02019-04-23 04:05:57>§Öb(y5    3K22N 230355Z AUTO 00000KT 10SM CLR 13/05 A3007 RMK AO2K22N2019-04-23T03:55:00Z40.8-75.7713.05.00010.030.070866TRUETRUEVFRMETAR163.02019-04-23 04:05:57 Ä6ZœÄR§Öj)5    3KPTD 230355Z AUTO 06004KT 10SM FEW043 SCT090 BKN120 11/04 A3012 RMK AO2KPTD2019-04-23T03:55:00Z44.68-74.9511.04.060410.030.121063TRUETRUEVFRMETAR144.02019-04-23 04:05:578§Öi(q5   3KPVE 230355Z AUTO 00000KT 10SM 15/13 A3009 RMK A01KPVE2019-04-23T03:55:00Z35.65-88.215.013.00010.030.088583TRUETRUEMETAR149.02019-04-23 04:05:57V§Öh)5    3KOWI 230355Z AUTO 35011G16KT 10SM OVC050 16/12 A3007 RMK AO2 PWINOKOWI2019-04-23T03:55:00Z38.53-95.2516.012.0350111610.030.070866TRUETRUETRUEVFRMETAR292.02019-04-23 04:05:57D§Ög({5    3KP08 230355Z AUTO 31003KT 10SM CLR 23/M04 A2983 RMK AO2KP082019-04-23T03:55:00Z32.93-111.4323.0-4.0310310.029.828741TRUETRUEVFRMETAR481.02019-04-23 04:05:57 Ô8r™Ô?§Ön(y5    3KLUG 230355Z AUTO 00000KT 10SM CLR 12/11 A3011 RMK A01KLUG2019-04-23T03:55:00Z35.52-86.812.011.00010.030.109253TRUETRUEVFRMETAR219.02019-04-23 04:05:57S§Öm)5    3KGUL 230355Z AUTO 13017KT 10SM FEW024 FEW028 SCT037 23/19 A3007 RMK A01KGUL2019-04-23T03:55:00Z27.3-93.5323.019.01301710.030.070866TRUETRUEVFRMETAR30.02019-04-23 04:05:57@§Öl(y5    3KGZS 230355Z AUTO 00000KT 10SM CLR 13/12 A3012 RMK A01KGZS2019-04-23T03:55:00Z35.15-87.0513.012.00010.030.121063TRUETRUEVFRMETAR209.02019-04-23 04:05:57B§Ök(y5    3KPHT 230355Z AUTO 20005KT 10SM CLR 17/12 A3007 RMK A01KPHT2019-04-23T03:55:00Z36.33-88.3817.012.0200510.030.070866TRUETRUEVFRMETAR177.02019-04-23 04:05:57 6k¥ÞC§Ös(5    3KIMM 230355Z AUTO 10004KT 10SM OVC049 18/15 A3011 RMK AO2KIMM2019-04-23T03:55:00Z26.43-81.418.015.0100410.030.109253TRUETRUEVFRMETAR12.02019-04-23 04:05:57A§Ör(y5    3KIMS 230355Z AUTO 16005KT 10SM CLR 17/08 A3006 RMK AO1KIMS2019-04-23T03:55:00Z38.75-85.4717.08.0160510.030.059055TRUETRUEVFRMETAR250.02019-04-23 04:05:57@§Öq(y5    3KJAU 230355Z AUTO 00000KT 10SM CLR 12/10 A3016 RMK A01KJAU2019-04-23T03:55:00Z36.33-84.1712.010.00010.030.159449TRUETRUEVFRMETAR360.02019-04-23 04:05:57E§Öp(5    3KJTC 230355Z AUTO 14008KT 10SM FEW100 08/01 A3009 RMK AO2KJTC2019-04-23T03:55:00Z34.13-109.328.01.0140810.030.088583TRUETRUEVFRMETAR2150.02019-04-23 04:05:57D§Öo(}5     3KJWN 230355Z AUTO 00000KT 5SM HZ CLR 18/10 A3008 RMK A01KJWN2019-04-23T03:55:00Z36.18-86.8818.010.0005.030.079725TRUETRUEHZMVFRMETAR151.02019-04-23 04:05:57 Ù.gŸÙ@§Öw(w5    3KHQI 230355Z AUTO 12020KT 9SM CLR 23/19 A3005 RMK A01KHQI2019-04-23T03:55:00Z27.93-93.6723.019.0120209.030.050198TRUETRUEVFRMETAR26.02019-04-23 04:05:57B§Öv(y5    3KHZD 230355Z AUTO 20005KT 10SM CLR 18/11 A3008 RMK A01KHZD2019-04-23T03:55:00Z36.08-88.4718.011.0200510.030.079725TRUETRUEVFRMETAR151.02019-04-23 04:05:57A§Öu(y5    3KIFP 230355Z AUTO 05006KT 10SM CLR 26/01 A2984 RMK AO2KIFP2019-04-23T03:55:00Z35.15-114.5726.01.050610.029.840551TRUETRUEVFRMETAR212.02019-04-23 04:05:57L§Öt) 5    3KIKT 230355Z AUTO 11009KT 10SM BKN016 OVC020 21/13 A3015 RMK A01KIKT2019-04-23T03:55:00Z28.52-88.2821.013.0110910.030.15059TRUETRUEMVFRMETAR25.02019-04-23 04:05:57 ­"\r­?§Ö{(y5    3KOVL 230355Z AUTO 04006KT 10SM CLR 05/03 A3013 RMK AO2KOVL2019-04-23T03:55:00Z44.78-95.035.03.040610.030.129921TRUETRUEVFRMETAR328.02019-04-23 04:05:57d§Öz)95     3KOWP 230355Z AUTO 00000KT 7SM SCT040 BKN048 OVC060 21/18 A3005 RMK AO2 T02100180 PWINOKOWP2019-04-23T03:55:00Z36.18-96.1521.018.0007.030.050198TRUETRUETRUEVFRMETAR272.02019-04-23 04:05:57@§Öy(y5    3KM02 230355Z AUTO 00000KT 10SM CLR 17/10 A3009 RMK A01KM022019-04-23T03:55:00Z36.13-87.4317.010.00010.030.088583TRUETRUEVFRMETAR272.02019-04-23 04:05:57X§Öx)5   3KHHV 230355Z AUTO 13015G23KT 8SM SCT019 BKN024 OVC036 50/48 A3003 RMK A01KHHV2019-04-23T03:55:00Z26.93-94.6850.048.013015238.030.029528TRUETRUEMVFRMETAR25.02019-04-23 04:05:57 Á/W’ÁK§Ö)5    3KOLY 230355Z AUTO 19006KT 10SM SCT080 20/11 A3000 RMK AO2 T01950113KOLY2019-04-23T03:55:00Z38.72-88.1819.511.3190610.030.0TRUETRUEVFRMETAR147.02019-04-23 04:05:57?§Ö~(y5    3KOMH 230355Z AUTO 00000KT 10SM CLR 10/08 A3011 RMK AO2KOMH2019-04-23T03:55:00Z38.25-78.0510.08.00010.030.109253TRUETRUEVFRMETAR142.02019-04-23 04:05:57R§Ö})5     3KONP 230355Z AUTO 00000KT 7SM BKN050 OVC070 10/08 A3030 RMK AO2 P0001KONP2019-04-23T03:55:00Z44.57-124.0310.08.0007.030.301182TRUETRUEVFR0.01METAR48.02019-04-23 04:05:57K§Ö|)5    3KOOA 230355Z AUTO 30015KT 10SM OVC014 11/08 A3000 RMK AO2 T01130078KOOA2019-04-23T03:55:00Z41.23-92.511.37.83001510.030.0TRUETRUEMVFRMETAR256.02019-04-23 04:05:57 8r«ãC§×(5    3KSRE 230355Z AUTO 00000KT 10SM OVC045 19/16 A3005 RMK AO2KSRE2019-04-23T03:55:00Z35.27-96.6819.016.00010.030.050198TRUETRUEVFRMETAR312.02019-04-23 04:05:57B§×(y5    3KSYI 230355Z AUTO 12003KT 10SM CLR 13/11 A3012 RMK A01KSYI2019-04-23T03:55:00Z35.57-86.4513.011.0120310.030.121063TRUETRUEVFRMETAR245.02019-04-23 04:05:57A§×(y5    3KTCY 230355Z AUTO 27007KT 10SM CLR 24/04 A2997 RMK A01KTCY2019-04-23T03:55:00Z37.68-121.4324.04.0270710.029.970472TRUETRUEVFRMETAR59.02019-04-23 04:05:57@§×(y5    3KTHA 230355Z AUTO 00000KT 10SM CLR 13/10 A3013 RMK A01KTHA2019-04-23T03:55:00Z35.38-86.2513.010.00010.030.129921TRUETRUEVFRMETAR331.02019-04-23 04:05:57B§×(y5    3KUCY 230355Z AUTO 21006KT 10SM CLR 19/10 A3005 RMK A01KUCY2019-04-23T03:55:00Z36.38-88.9819.010.0210610.030.050198TRUETRUEVFRMETAR104.02019-04-23 04:05:57 ç:r¬ç?§×(y5    3KSCX 230355Z AUTO 00000KT 10SM CLR 15/07 A3014 RMK A01KSCX2019-04-23T03:55:00Z36.45-84.5815.07.00010.030.138779TRUETRUEVFRMETAR471.02019-04-23 04:05:57@§×(y5    3KSNH 230355Z AUTO 00000KT 10SM CLR 15/13 A3010 RMK A01KSNH2019-04-23T03:55:00Z35.17-88.2215.013.00010.030.100393TRUETRUEVFRMETAR144.02019-04-23 04:05:57B§×(5   3KSPR 230355Z AUTO VRB06G15KT 10SM CLR 23/17 A3011 RMK A01KSPR2019-04-23T03:55:00Z28.6-91.223.017.0061510.030.109253TRUETRUEVFRMETAR31.02019-04-23 04:05:57@§×(y5    3KSRB 230355Z AUTO 00000KT 10SM CLR 11/10 A3012 RMK A01KSRB2019-04-23T03:55:00Z36.05-85.5311.010.00010.030.121063TRUETRUEVFRMETAR313.02019-04-23 04:05:57 Ã&TÃD§× ({5    3KRTS 230355Z AUTO 34005KT 10SM CLR 07/M07 A3025 RMK AO2KRTS2019-04-23T03:55:00Z39.67-119.887.0-7.0340510.030.250984TRUETRUEVFRMETAR1540.02019-04-23 04:05:57A§× (y5    3KRZR 230355Z AUTO 19003KT 10SM CLR 12/12 A3013 RMK A01KRZR2019-04-23T03:55:00Z35.22-84.812.012.0190310.030.129921TRUETRUEVFRMETAR263.02019-04-23 04:05:57L§× ) 5    3KS39 230355Z AUTO 31008KT 10SM BKN075 OVC085 15/06 A3025 RMK AO2KS392019-04-23T03:55:00Z44.28-120.915.06.0310810.030.250984TRUETRUEVFRMETAR991.02019-04-23 04:05:57T§× )5    3KSCF 230355Z AUTO 12017KT 10SM BKN018 BKN024 OVC033 21/18 A3005 RMK A01KSCF2019-04-23T03:55:00Z29.12-91.8721.018.01201710.030.050198TRUETRUEMVFRMETAR8.02019-04-23 04:05:57 Ý/j¤ÝA§×(5    3K05U 230355Z AUTO 00000KT 10SM SCT065 07/03 A3025 RMK A01K05U2019-04-23T03:55:00Z39.6-116.07.03.00010.030.250984TRUETRUEVFRMETAR1816.02019-04-23 04:05:57@§×(y5    3KRKW 230355Z AUTO 23005KT 10SM CLR 16/07 A3015 RMK A01KRKW2019-04-23T03:55:00Z35.92-84.6816.07.0230510.030.15059TRUETRUEVFRMETAR508.02019-04-23 04:05:57?§×(y5    3KRNC 230355Z AUTO 00000KT 10SM CLR 12/10 A3012 RMK A01KRNC2019-04-23T03:55:00Z35.7-85.8512.010.00010.030.121063TRUETRUEVFRMETAR315.02019-04-23 04:05:57K§× ) 5    3KRQB 230355Z AUTO 14007KT 10SM CLR 19/07 A2986 RMK AO2 T01870070KRQB2019-04-23T03:55:00Z43.72-85.518.77.0140710.029.861221TRUETRUEVFRMETAR302.02019-04-23 04:05:57 Ø1cžØ@§×(y5    3K1M5 230355Z AUTO 19006KT 10SM CLR 18/09 A3008 RMK A01K1M52019-04-23T03:55:00Z36.6-86.4818.09.0190610.030.079725TRUETRUEVFRMETAR250.02019-04-23 04:05:57?§×(y5    3K0A9 230355Z AUTO 00000KT 10SM CLR 11/09 A3016 RMK AO2K0A92019-04-23T03:55:00Z36.37-82.1711.09.00010.030.159449TRUETRUEVFRMETAR486.02019-04-23 04:05:57H§×)5     3K0R0 230355Z AUTO 19004KT 10SM +RA CLR 16/11 A3019 RMK AO2K0R02019-04-23T03:55:00Z31.3-89.8216.011.0190410.030.188976TRUETRUE+RAVFRMETAR81.02019-04-23 04:05:57I§×)5    3K18H 230355Z AUTO VRB05G12KT 5SM HZ CLR 24/18 A3006 RMK A01K18H2019-04-23T03:55:00Z26.13-92.0324.018.005125.030.059055TRUETRUEHZMVFRMETAR10.02019-04-23 04:05:57 7q«çC§×(5    3K3S8 230355Z AUTO 34004KT 10SM SCT070 22/06 A3024 RMK AO2K3S82019-04-23T03:55:00Z42.5-123.422.06.0340410.030.239174TRUETRUEVFRMETAR343.02019-04-23 04:05:57>§×(y5    3K33N 230355Z AUTO 00000KT 10SM CLR 12/11 A3005 RMK A01K33N2019-04-23T03:55:00Z39.22-75.612.011.00010.030.050198TRUETRUEVFRMETAR17.02019-04-23 04:05:57@§×(y5    3K2M2 230355Z AUTO 00000KT 10SM CLR 14/12 A3012 RMK A01K2M22019-04-23T03:55:00Z35.23-87.2514.012.00010.030.121063TRUETRUEVFRMETAR286.02019-04-23 04:05:57@§×(y5    3K2A0 230355Z AUTO 00000KT 10SM CLR 13/12 A3013 RMK A01K2A02019-04-23T03:55:00Z35.48-84.9313.012.00010.030.129921TRUETRUEVFRMETAR219.02019-04-23 04:05:57C§×(5    3K2LS 230355Z AUTO 11003KT 10SM BKN030 19/16 A3015 RMK AO2K2LS2019-04-23T03:55:00Z29.42-90.319.016.0110310.030.15059TRUETRUEMVFRMETAR-2.02019-04-23 04:05:57 É:t“ɁD§×({5    3K6S0 230355Z AUTO 24011KT 10SM CLR 11/M00 A3009 RMK A01K6S02019-04-23T03:55:00Z45.8-109.9711.00.02401110.030.088583TRUETRUEVFRMETAR1363.02019-04-23 04:05:57[§×)!5   3K5T9 230355Z AUTO 10010G15KT 10SM FEW029 SCT037 BKN046 24/17 A2996 RMK A01K5T92019-04-23T03:55:00Z28.85-100.5224.017.0100101510.029.958662TRUETRUEVFRMETAR270.02019-04-23 04:05:57@§×(y5    3K54A 230355Z AUTO 03004KT 10SM CLR 17/13 A3013 RMK AO2K54A2019-04-23T03:55:00Z26.85-82.2517.013.030410.030.129921TRUETRUEVFRMETAR14.02019-04-23 04:05:57@§×(y5    3K46U 230355Z AUTO 00000KT 10SM CLR 06/03 A3023 RMK A01K46U2019-04-23T03:55:00Z43.18-111.056.03.00010.030.230314TRUETRUEVFRMETAR1717.02019-04-23 04:05:57 8q§áA§×"(y5    3KC83 230355Z AUTO 26009KT 10SM CLR 19/07 A2997 RMK AO2KC832019-04-23T03:55:00Z37.83-121.6219.07.0260910.029.970472TRUETRUEVFRMETAR24.02019-04-23 04:05:57@§×!(y5    3KBGF 230355Z AUTO 00000KT 10SM CLR 15/10 A3014 RMK A01KBGF2019-04-23T03:55:00Z35.18-86.0715.010.00010.030.138779TRUETRUEVFRMETAR299.02019-04-23 04:05:57D§× (5    3KATP 230355Z AUTO 10020KT 10SM FEW033 22/18 A3012 RMK A01KATP2019-04-23T03:55:00Z27.2-90.0322.018.01002010.030.121063TRUETRUEVFRMETAR62.02019-04-23 04:05:57A§×(y5    3K8A3 230355Z AUTO 20005KT 10SM CLR 18/07 A3011 RMK A01K8A32019-04-23T03:55:00Z36.42-85.3218.07.0200510.030.109253TRUETRUEVFRMETAR419.02019-04-23 04:05:57B§×(y5    3K6S5 230355Z AUTO 10005KT 10SM CLR 09/02 A3014 RMK AO2K6S52019-04-23T03:55:00Z46.25-114.139.02.0100510.030.138779TRUETRUEVFRMETAR1110.02019-04-23 04:05:57 Ð7r«ÐU§×&)!5    3KPSO 230355Z AUTO 00000KT 10SM BKN080 OVC100 08/02 A3019 RMK AO2 T00840017KPSO2019-04-23T03:55:00Z37.28-107.058.41.70010.030.188976TRUETRUEVFRMETAR2334.02019-04-23 04:05:57A§×%(y5    3KCXW 230355Z AUTO 17007KT 10SM CLR 18/14 A3005 RMK A01KCXW2019-04-23T03:55:00Z35.02-92.5518.014.0170710.030.050198TRUETRUEVFRMETAR84.02019-04-23 04:05:57?§×$(y5    3KCRX 230355Z AUTO 00000KT 10SM CLR 15/14 A3010 RMK AO2KCRX2019-04-23T03:55:00Z34.92-88.615.014.00010.030.100393TRUETRUEVFRMETAR130.02019-04-23 04:05:57C§×#(y5    3KCCB 230355Z AUTO 24007KT 10SM CLR 17/11 A2996 RMK AO2KCCB2019-04-23T03:55:00Z34.12-117.6817.011.0240710.029.958662TRUETRUEVFRMETAR440.02019-04-23 04:05:57 %;v°ê%?§×+(y5    3KM04 230355Z AUTO 00000KT 10SM CLR 16/12 A3008 RMK A01KM042019-04-23T03:55:00Z35.58-89.5816.012.00010.030.079725TRUETRUEVFRMETAR85.02019-04-23 04:05:57@§×*(y5    3KM08 230355Z AUTO 00000KT 10SM CLR 13/11 A3009 RMK A01KM082019-04-23T03:55:00Z35.22-89.0513.011.00010.030.088583TRUETRUEVFRMETAR152.02019-04-23 04:05:57@§×)(y5    3KM54 230355Z AUTO 00000KT 10SM CLR 16/11 A3008 RMK A01KM542019-04-23T03:55:00Z36.18-86.3216.011.00010.030.079725TRUETRUEVFRMETAR180.02019-04-23 04:05:57?§×((y5    3KPLR 230355Z AUTO 00000KT 10SM CLR 12/12 A3015 RMK A01KPLR2019-04-23T03:55:00Z33.57-86.2512.012.00010.030.15059TRUETRUEVFRMETAR148.02019-04-23 04:05:57?§×'(y5    3KPQN 230355Z AUTO 06004KT 10SM CLR 07/04 A3014 RMK AO2KPQN2019-04-23T03:55:00Z43.97-96.327.04.060410.030.138779TRUETRUEVFRMETAR529.02019-04-23 04:05:57 :n¨áE§×0({5    3KEKS 230355Z AUTO 14008KT 10SM CLR 11/M05 A3018 RMK AO2KEKS2019-04-23T03:55:00Z45.27-111.6511.0-5.0140810.030.180119TRUETRUEVFRMETAR1641.02019-04-23 04:05:57A§×/(y5    3KEDJ 230355Z AUTO 17008KT 10SM CLR 14/05 A3005 RMK AO1KEDJ2019-04-23T03:55:00Z40.37-83.8214.05.0170810.030.050198TRUETRUEVFRMETAR342.02019-04-23 04:05:57@§×.(y5    3KE16 230355Z AUTO 32006KT 10SM CLR 21/04 A3001 RMK AO2KE162019-04-23T03:55:00Z37.08-121.621.04.0320610.030.008858TRUETRUEVFRMETAR86.02019-04-23 04:05:57F§×-(5    3KDLP 230355Z AUTO 11010KT 10SM OVC027 21/16 A3013 RMK A01KDLP2019-04-23T03:55:00Z29.12-89.5521.016.01101010.030.129921TRUETRUEMVFRMETAR36.02019-04-23 04:05:57@§×,(y5    3KDKX 230355Z AUTO 00000KT 10SM CLR 12/12 A3013 RMK A01KDKX2019-04-23T03:55:00Z35.97-83.8712.012.00010.030.129921TRUETRUEVFRMETAR254.02019-04-23 04:05:57 Ý<t¡Ý>§×4(y5    3KGBK 230355Z AUTO 08006KT 10SM CLR 23/20 A3008 RMK A01KGBK2019-04-23T03:55:00Z27.2-92.223.020.080610.030.079725TRUETRUEVFRMETAR59.02019-04-23 04:05:57M§×3) 5    3KFTN 230355Z AUTO 08007KT 10SM BKN050 BKN060 23/18 A2995 RMK A01KFTN2019-04-23T03:55:00Z28.22-100.0223.018.080710.029.949802TRUETRUEVFRMETAR236.02019-04-23 04:05:57B§×2(y5    3KFOT 230355Z AUTO 28007KT 10SM CLR 10/08 A3024 RMK AO1KFOT2019-04-23T03:55:00Z40.55-124.1310.08.0280710.030.239174TRUETRUEVFRMETAR120.02019-04-23 04:05:57>§×1(y5    3KFCH 230355Z AUTO 00000KT 10SM CLR 22/09 A2998 RMK A01KFCH2019-04-23T03:55:00Z36.72-119.8222.09.00010.029.97933TRUETRUEVFRMETAR85.02019-04-23 04:05:57 -h¡Ù@§×9(y5    3KGKT 230355Z AUTO 00000KT 10SM CLR 13/10 A3013 RMK A01KGKT2019-04-23T03:55:00Z35.85-83.5313.010.00010.030.129921TRUETRUEVFRMETAR309.02019-04-23 04:05:57B§×8({5    3KGOO 230355Z AUTO 05005KT 10SM CLR 21/M07 A3012 RMK AO1KGOO2019-04-23T03:55:00Z39.22-121.021.0-7.050510.030.121063TRUETRUEVFRMETAR962.02019-04-23 04:05:57A§×7(y5    3KEDU 230355Z AUTO 31003KT 10SM CLR 23/04 A2997 RMK AO1KEDU2019-04-23T03:55:00Z38.53-121.7823.04.0310310.029.970472TRUETRUEVFRMETAR21.02019-04-23 04:05:57?§×6(y5    3KFYE 230355Z AUTO 00000KT 10SM CLR 15/12 A3009 RMK A01KFYE2019-04-23T03:55:00Z35.2-89.3815.012.00010.030.088583TRUETRUEVFRMETAR133.02019-04-23 04:05:57M§×5) 5    3KFYM 230355Z AUTO 16003KT 10SM FEW037 FEW043 17/10 A3013 RMK A01KFYM2019-04-23T03:55:00Z35.07-86.5717.010.0160310.030.129921TRUETRUEVFRMETAR300.02019-04-23 04:05:57 8<}²ý8?§×>(y5    3KXPY 230355Z AUTO 12008KT 10SM CLR 21/17 A3014 RMK A01KXPY2019-04-23T03:55:00Z29.12-90.221.017.0120810.030.138779TRUETRUEVFRMETAR2.02019-04-23 04:05:57/§×=(e5    3EHAM 230355Z 09011KT CAVOK 11/02 Q1002 NOSIGEHAM2019-04-23T03:55:00Z52.324.7811.02.090116.2129.586615TRUEVFRMETAR9.02019-04-23 04:05:57E§×<)5     3EHBK 230355Z AUTO 08011KT 040V110 9999 NSC 11/02 Q1000 NOSIGEHBK2019-04-23T03:55:00Z50.925.7711.02.080116.2129.52756TRUETRUEVFRMETAR116.02019-04-23 04:05:579§×;(y5    3EHGG 230355Z AUTO 09012KT 060V140 9999 NSC 10/03 Q1005EHGG2019-04-23T03:55:00Z53.126.5710.03.090126.2129.675198TRUEVFRMETAR4.02019-04-23 04:05:57>§×:(y5    3KGCY 230355Z AUTO 00000KT 10SM CLR 15/08 A3014 RMK A01KGCY2019-04-23T03:55:00Z36.2-82.8215.08.00010.030.138779TRUETRUEVFRMETAR490.02019-04-23 04:05:57 Ì:t£ÌQ§×B)5     3KVQT 230355Z AUTO 13016KT 5SM BR FEW014 SCT034 22/20 A3010 RMK A01KVQT2019-04-23T03:55:00Z28.27-92.2722.020.0130165.030.100393TRUETRUEBRMVFRMETAR25.02019-04-23 04:05:57K§×A) 5    3KVWU 230355Z AUTO 31007KT 10SM BKN085 OVC090 08/02 A3010 RMK AO2KVWU2019-04-23T03:55:00Z48.15-94.528.02.0310710.030.100393TRUETRUEVFRMETAR360.02019-04-23 04:05:57@§×@(w5    3KXIH 230355Z AUTO 13019KT 9SM CLR 21/20 A3005 RMK A01KXIH2019-04-23T03:55:00Z29.18-94.5221.020.0130199.030.050198TRUETRUEVFRMETAR75.02019-04-23 04:05:57@§×?(y5    3KXNX 230355Z AUTO 00000KT 10SM CLR 15/11 A3012 RMK A01KXNX2019-04-23T03:55:00Z36.38-86.4215.011.00010.030.121063TRUETRUEVFRMETAR178.02019-04-23 04:05:57 ×7r§×J§×F) 5    3KDYA 230355Z AUTO 00000KT 10SM CLR 13/13 A3013 RMK AO2 T01340126KDYA2019-04-23T03:55:00Z32.47-87.9513.412.60010.030.129921TRUETRUEVFRSPECI34.02019-04-23 04:05:57E§×E(5    3KVAF 230355Z AUTO 13014KT 10SM BKN038 23/20 A3003 RMK A01KVAF2019-04-23T03:55:00Z27.35-94.6323.020.01301410.030.029528TRUETRUEVFRMETAR46.02019-04-23 04:05:57?§×D(y5    3KVKS 230355Z AUTO 00000KT 10SM CLR 16/15 A3011 RMK A01KVKS2019-04-23T03:55:00Z32.23-90.9316.015.00010.030.109253TRUETRUEVFRMETAR32.02019-04-23 04:05:57C§×C(5    3KVKY 230355Z AUTO 00000KT 10SM BKN015 21/12 A3017 RMK A01KVKY2019-04-23T03:55:00Z29.25-88.4321.012.00010.030.171259TRUETRUEMVFRMETAR32.02019-04-23 04:05:57 ÌJŠÌ8§×J(o5    3KO69 230355Z AUTO 10SM BKN003 14/11 A3002 RMK A01KO692019-04-23T03:55:00Z38.25-122.614.011.010.030.02067TRUETRUELIFRMETAR28.02019-04-23 04:05:57:§×I(q5   3KO86 230355Z AUTO 26004KT 10SM 17/06 A3019 RMK AO1KO862019-04-23T03:55:00Z40.98-122.717.06.0260410.030.188976TRUETRUEMETAR729.02019-04-23 04:05:57B§×H(y5    3KO22 230355Z AUTO 31004KT 10SM CLR 19/06 A3003 RMK A01KO222019-04-23T03:55:00Z38.03-120.4219.06.0310410.030.029528TRUETRUEVFRMETAR646.02019-04-23 04:05:57h§×G)35     3KMWC 230355Z AUTO 02009G15KT 4SM +RA SCT005 SCT039 OVC050 15/12 A2982 RMK AO2 P0009KMWC2019-04-23T03:55:00Z43.12-88.0315.012.0209154.029.819881TRUETRUE+RAMVFR0.09METAR227.02019-04-23 04:05:57 ÝA}¸ÝU§×N)5    3KMZG 230355Z AUTO 20014KT 10SM BKN019 BKN025 OVC030 23/22 A3001 RMK A01KMZG2019-04-23T03:55:00Z27.73-96.1823.022.02001410.030.008858TRUETRUEMVFRMETAR29.02019-04-23 04:05:57?§×M({5    3KMZH 230355Z AUTO 00000KT 10SM CLR 00/M01 A3011 RMK AO2KMZH2019-04-23T03:55:00Z46.42-92.80.0-1.00010.030.109253TRUETRUEVFRMETAR328.02019-04-23 04:05:57>§×L(y5    3KN38 230355Z AUTO 00000KT 10SM CLR 11/07 A3010 RMK AO2KN382019-04-23T03:55:00Z41.73-77.411.07.00010.030.100393TRUETRUEVFRMETAR577.02019-04-23 04:05:579§×K(q5   3KO32 230355Z AUTO 00000KT 10SM 21/10 A2998 RMK AO2KO322019-04-23T03:55:00Z36.67-119.4521.010.00010.029.97933TRUETRUEMETAR117.02019-04-23 04:05:57 1k¥Ü?§×S(y5    3KMMI 230355Z AUTO 00000KT 10SM CLR 12/11 A3016 RMK A01KMMI2019-04-23T03:55:00Z35.4-84.5712.011.00010.030.159449TRUETRUEVFRMETAR266.02019-04-23 04:05:57C§×R(5    3KMNV 230355Z AUTO 00000KT 10SM SCT044 13/11 A3014 RMK A01KMNV2019-04-23T03:55:00Z35.55-84.3813.011.00010.030.138779TRUETRUEVFRMETAR314.02019-04-23 04:05:57@§×Q(y5    3KMOR 230355Z AUTO 00000KT 10SM CLR 15/10 A3012 RMK A01KMOR2019-04-23T03:55:00Z36.18-83.3715.010.00010.030.121063TRUETRUEVFRMETAR400.02019-04-23 04:05:57@§×P(y5    3KMRC 230355Z AUTO 00000KT 10SM CLR 15/15 A3009 RMK A01KMRC2019-04-23T03:55:00Z35.55-87.1815.015.00010.030.088583TRUETRUEVFRMETAR208.02019-04-23 04:05:57I§×O(5   3KMVH 230355Z AUTO 23015G22KT 10SM CLR 10/04 A3006 RMK AO2KMVH2019-04-23T03:55:00Z46.83-108.9310.04.0230152210.030.059055TRUETRUEVFRMETAR1355.02019-04-23 04:05:57 À+h‰ÀC§×W({5    3KMEV 230355Z AUTO 06009KT 10SM CLR 08/M05 A3024 RMK AO2KMEV2019-04-23T03:55:00Z38.98-119.758.0-5.060910.030.239174TRUETRUEVFRMETAR1439.02019-04-23 04:05:57Y§×V)!5     3KMGG 230355Z AUTO 00000KT 10SM CLR 05/03 A3014 RMK AO2 T00510030 400920051KMGG2019-04-23T03:55:00Z45.23-93.985.13.00010.030.138779TRUETRUEVFR9.25.1METAR313.02019-04-23 04:05:57=§×U(y5    3KMIS 230355Z AUTO 00000KT 10SM CLR 21/13 A3015 RMK A01KMIS2019-04-23T03:55:00Z29.3-88.8521.013.00010.030.15059TRUETRUEVFRMETAR32.02019-04-23 04:05:57O§×T)5   3KMJQ 230355Z AUTO 00011G15KT 10SM SCT016 SCT036 06/04 A3011 RMK AO2KMJQ2019-04-23T03:55:00Z43.63-94.976.04.00111510.030.109253TRUETRUEVFRMETAR441.02019-04-23 04:05:57 ¶@C~¶B§×[(y5    3KMBT 230355Z AUTO 20004KT 10SM CLR 18/10 A3009 RMK A01KMBT2019-04-23T03:55:00Z35.88-86.3818.010.0200410.030.088583TRUETRUEVFRMETAR188.02019-04-23 04:05:57?§×Z(y5    3KMCC 230355Z AUTO 36008KT 10SM CLR 20/07 A2998 RMK AO2KMCC2019-04-23T03:55:00Z38.67-121.420.07.0360810.029.97933TRUETRUEVFRMETAR23.02019-04-23 04:05:57w§×Y)I5      3KMCD 230355Z AUTO 12004KT 10SM -SN SCT070 OVC090 07/06 A2991 RMK AO2 P0001 T00700061 401500030KMCD2019-04-23T03:55:00Z45.85-84.637.06.1120410.029.911417TRUETRUE-SNVFR15.03.00.01METAR226.02019-04-23 04:05:57:§×X(q5   3KMDJ 230355Z AUTO 12014KT 10SM 21/15 A3014 RMK A01KMDJ2019-04-23T03:55:00Z28.65-89.821.015.01201410.030.138779TRUETRUEMETAR31.02019-04-23 04:05:57 Ù5a™Ù:§×_(q5   3KSEM 230355Z AUTO 14003KT 10SM 13/12 A3013 RMK AO2KSEM2019-04-23T03:55:00Z32.35-86.9813.012.0140310.030.129921TRUETRUESPECI51.02019-04-23 04:05:57B§×^(y5    3KRID 230355Z AUTO 17008KT 10SM CLR 13/11 A3006 RMK AO2KRID2019-04-23T03:55:00Z39.75-84.8513.011.0170810.030.059055TRUETRUEVFRMETAR348.02019-04-23 04:05:57N§×])5    3KLUM 230355Z AUTO 33012KT 10SM SCT017 04/03 A3004 RMK AO2 T00400029KLUM2019-04-23T03:55:00Z44.9-91.874.02.93301210.030.041338TRUETRUEVFRMETAR273.02019-04-23 04:05:57E§×\({5    3KSVE 230355Z AUTO 27004KT 10SM CLR 15/M02 A3022 RMK AO2KSVE2019-04-23T03:55:00Z40.37-120.5715.0-2.0270410.030.221457TRUETRUEVFRMETAR1263.02019-04-23 04:05:57 ‹YQ‹@§×c(}5    3K4S2 230355Z AUTO 10SM BKN046 OVC055 14/07 A3022 RMK AO2K4S22019-04-23T03:55:00Z45.68-121.5514.07.010.030.221457TRUETRUEVFRMETAR192.02019-04-23 04:05:57‚§×b)g5     3K57C 230355Z AUTO 29006G09KT 7SM -TSRA SCT020 BKN035 OVC050 16/15 A2980 RMK AO2 LTG DSNT ALQS P0018 T01600150K57C2019-04-23T03:55:00Z42.8-88.3716.015.0290697.029.799213TRUETRUE-TSRAVFR0.18METAR262.02019-04-23 04:05:57@§×a(y5    3K5H4 230355Z AUTO 13005KT 10SM CLR 08/01 A3018 RMK AO2K5H42019-04-23T03:55:00Z47.78-99.938.01.0130510.030.180119TRUETRUEVFRMETAR490.02019-04-23 04:05:57[§×`))5    3KSXU 230355Z AUTO 03007KT 10SM SCT060 10/07 A3014 RMK AO2 LTG DSNT S T01020072KSXU2019-04-23T03:55:00Z34.93-104.6510.27.230710.030.138779TRUETRUEVFRMETAR1460.02019-04-23 04:05:57 9r®éH§×h)5     3K42J 230355Z AUTO 00000KT 10SM CLR 14/10 A3015 RMK A01 TSNOK42J2019-04-23T03:55:00Z29.85-82.0514.010.00010.030.15059TRUETRUETRUEVFRMETAR60.02019-04-23 04:05:57?§×g(y5    3K46D 230355Z AUTO 09004KT 10SM CLR 09/01 A3018 RMK AO2K46D2019-04-23T03:55:00Z47.45-99.159.01.090410.030.180119TRUETRUEVFRMETAR490.02019-04-23 04:05:57>§×f(y5    3K4A6 230355Z AUTO 00000KT 10SM CLR 13/13 A3015 RMK AO2K4A62019-04-23T03:55:00Z34.68-86.013.013.00010.030.15059TRUETRUEVFRMETAR198.02019-04-23 04:05:57A§×e(y5    3K4I3 230355Z AUTO 16004KT 10SM CLR 15/08 A3009 RMK AO2K4I32019-04-23T03:55:00Z40.33-82.5315.08.0160410.030.088583TRUETRUEVFRMETAR363.02019-04-23 04:05:57A§×d(5     3K4M9 230355Z AUTO 20008G13KT 10SM CLR A3005 RMK AO2 PWINOK4M92019-04-23T03:55:00Z36.4-90.6520081310.030.050198TRUETRUETRUEVFRMETAR90.02019-04-23 04:05:57 Ö8eÖA§×l(5    3K6B9 230355Z AUTO 00000KT 10SM SCT110 08/07 A3011 RMK AO2K6B92019-04-23T03:55:00Z42.92-76.438.07.00010.030.109253TRUETRUEVFRMETAR316.02019-04-23 04:05:57B§×k({5    3K5SM 230355Z AUTO 05007KT 10SM CLR 00/M03 A3033 RMK AO2K5SM2019-04-23T03:55:00Z39.43-107.380.0-3.050710.030.33071TRUETRUEVFRMETAR3232.02019-04-23 04:05:57M§×j) 5     3K2D5 230355Z AUTO 02005KT 10SM FEW050 08/07 A3016 RMK AO2 PWINOK2D52019-04-23T03:55:00Z46.17-98.088.07.020510.030.159449TRUETRUETRUEVFRMETAR407.02019-04-23 04:05:57B§×i({5    3K33V 230355Z AUTO 00000KT 10SM CLR 01/M01 A3025 RMK AO1K33V2019-04-23T03:55:00Z40.75-106.281.0-1.00010.030.250984TRUETRUEVFRMETAR2484.02019-04-23 04:05:57 ;q¨çC§×q)5   3EHJR 230355Z AUTO 10026KT //// // ///////// 11/06 Q1003 RE// W10/H11EHJR2019-04-23T03:55:00Z53.223.2211.06.01002629.616142TRUEMETAR50.02019-04-23 04:05:57;§×p({5    3EHHW 230355Z AUTO 11031KT 9999 NSC 11/06 Q1006 W///H///EHHW2019-04-23T03:55:00Z54.036.0311.06.0110316.2129.704725TRUEVFRMETAR0.02019-04-23 04:05:57C§×o)5   3EHJA 230355Z AUTO 08029KT //// // ///////// 11/06 Q1003 RE// W///H///EHJA2019-04-23T03:55:00Z53.822.9511.06.0802929.616142TRUEMETAR50.02019-04-23 04:05:57D§×n) 5    3EHFZ 230355Z AUTO 09024KT 050V120 9999 NCD 10/06 Q1005 W///H///EHFZ2019-04-23T03:55:00Z54.124.0210.06.090246.2129.675198TRUEVFRMETAR50.02019-04-23 04:05:57?§×m(y5    3K6L4 230355Z AUTO 00000KT 10SM CLR 16/08 A3012 RMK AO2K6L42019-04-23T03:55:00Z37.85-81.9216.08.00010.030.121063TRUETRUEVFRMETAR508.02019-04-23 04:05:57 DH‡ÆD;§×v({5    3EHPG 230355Z AUTO 08021KT 9999 NCD 12/06 Q1001 W///H///EHPG2019-04-23T03:55:00Z52.373.3512.06.080216.2129.557087TRUEVFRMETAR50.02019-04-23 04:05:57;§×u({5    3EHQE 230355Z AUTO 06024KT 9999 NSC 11/06 Q1002 W///H///EHQE2019-04-23T03:55:00Z52.924.1511.06.060246.2129.586615TRUEVFRMETAR50.02019-04-23 04:05:57;§×t({5    3EHMG 230355Z AUTO 09030KT 9999 NCD 11/06 Q1005 W///H///EHMG2019-04-23T03:55:00Z53.624.9711.06.090306.2129.675198TRUEVFRMETAR50.02019-04-23 04:05:57;§×s({5    3EHMA 230355Z AUTO 11022KT 9999 NCD 12/05 Q1005 W///H///EHMA2019-04-23T03:55:00Z53.55.9512.05.0110226.2129.675198TRUEVFRMETAR50.02019-04-23 04:05:572§×r({5    3EHKV 230355Z AUTO 09027KT 9999 NSC 11/06 Q//// W///H///EHKV2019-04-23T03:55:00Z53.273.6311.06.090276.21TRUEVFRMETAR50.02019-04-23 04:05:57 Ð?|£ÐM§×z) 5    3KAVK 230355Z AUTO 16005KT 10SM BKN036 OVC043 16/14 A3009 RMK AO2KAVK2019-04-23T03:55:00Z36.77-98.6716.014.0160510.030.088583TRUETRUEVFRMETAR449.02019-04-23 04:05:57S§×y)5     3KBBF 230355Z AUTO 14015KT 5SM HZ SCT024 BKN034 OVC042 23/20 A3000 RMK A01KBBF2019-04-23T03:55:00Z27.83-96.0223.020.0140155.030.0TRUETRUEHZMVFRMETAR36.02019-04-23 04:05:57=§×x)5   3EHSC 230355Z AUTO 10016KT 9999 ///////// 12/06 Q1000 W10/H5EHSC2019-04-23T03:55:00Z51.933.6712.06.0100166.2129.52756TRUEMETAR50.02019-04-23 04:05:57;§×w)5   3EHSA 230355Z AUTO 07016KT 9999 ///////// 12/07 Q1000 W08/H7EHSA2019-04-23T03:55:00Z52.03.2812.07.070166.2129.52756TRUEMETAR50.02019-04-23 04:05:57 Ä:g‰Ä?§×~(y5    3KGGE 230355Z AUTO 00000KT 10SM CLR 12/11 A3017 RMK AO2KGGE2019-04-23T03:55:00Z33.32-79.3212.011.00010.030.171259TRUETRUEVFRMETAR12.02019-04-23 04:05:57X§×})!5    3KLNL 230355Z AUTO 01010G17KT 1/2SM FG OVC003 03/03 A3002 RMK AO2 T00260026KLNL2019-04-23T03:55:00Z46.15-89.222.62.61010170.530.02067TRUETRUEFGLIFRMETAR520.02019-04-23 04:05:57M§×|)5     3KM25 230355Z AUTO 21003KT 10SM CLR 20/10 A3007 RMK AO2 PWINOKM252019-04-23T03:55:00Z36.77-88.5820.010.0210310.030.070866TRUETRUETRUEVFRSPECI160.02019-04-23 04:05:57@§×{(y5    3KMAO 230355Z AUTO 19003KT 10SM CLR 14/10 A3015 RMK AO2KMAO2019-04-23T03:55:00Z34.18-79.3314.010.0190310.030.15059TRUETRUEVFRMETAR28.02019-04-23 04:05:57 ¼8T¼M§Ø)5    3KVNW 230355Z AUTO 20007KT 10SM CLR 16/07 A3003 RMK AO2 LTG DSNT WKVNW2019-04-23T03:55:00Z40.87-84.6216.07.0200710.030.029528TRUETRUEVFRMETAR239.02019-04-23 04:05:57?§Ø(y5    3K2C8 230355Z AUTO 01005KT 10SM CLR 09/00 A3016 RMK AO2K2C82019-04-23T03:55:00Z48.78-97.639.00.010510.030.159449TRUETRUEVFRMETAR272.02019-04-23 04:05:57^§Ø)15    3KBKN 230355Z AUTO 06003KT 10SM FEW036 SCT044 BKN049 17/14 A3009 RMK AO2 LTG DSNT NKBKN2019-04-23T03:55:00Z36.75-97.3517.014.060310.030.088583TRUETRUEVFRMETAR314.02019-04-23 04:05:57B§×(y5    3KEOE 230355Z AUTO 16004KT 10SM CLR 14/12 A3016 RMK AO2KEOE2019-04-23T03:55:00Z34.32-81.6314.012.0160410.030.159449TRUETRUEVFRMETAR174.02019-04-23 04:05:57 „.Wk„a§Ø)35     3PAAD 230355Z AUTO 04006KT 2SM BR OVC003 M10/M11 A2986 RMK AO2 VIS 1 1/4V4 T10981110PAAD2019-04-23T03:55:00Z70.13-146.28-9.8-11.04062.029.861221TRUETRUEBRLIFRMETAR8.02019-04-23 04:05:57f§Ø)-5    3KPRO 230355Z AUTO 33014G22KT 10SM OVC014 09/08 A3006 RMK AO2 T00880076 402170088KPRO2019-04-23T03:55:00Z41.83-94.178.87.6330142210.030.059055TRUETRUEMVFR21.78.8METAR308.02019-04-23 04:05:57Q§Ø)5    3KRPD 230355Z AUTO 36010KT 10SM SCT012 05/M03 A3008 RMK AO2 T00491030KRPD2019-04-23T03:55:00Z45.42-91.774.9-3.03601010.030.079725TRUETRUEVFRMETAR338.02019-04-23 04:05:57L§Ø)5    3KSUW 230355Z AUTO 00000KT 10SM CLR M01/M01 A3014 RMK AO2 T10101011KSUW2019-04-23T03:55:00Z46.68-92.1-1.0-1.10010.030.138779TRUETRUEVFRMETAR206.02019-04-23 04:05:57 ­/_†­S§Ø )5   3KBBD 230355Z AUTO 15014G22KT 10SM SCT039 SCT049 21/14 A2997 RMK AO2KBBD2019-04-23T03:55:00Z31.18-99.3221.014.0150142210.029.970472TRUETRUEVFRMETAR557.02019-04-23 04:05:57S§Ø )5   3KC29 230355Z AUTO 03010G15KT 7SM OVC005 13/12 A2981 RMK AO1 T01260116KC292019-04-23T03:55:00Z43.12-89.5312.611.63010157.029.811024TRUETRUEIFRMETAR283.02019-04-23 04:05:57J§Ø) 5    3K17J 230355Z AUTO 25003KT 10SM CLR 19/09 A3015 RMK AO2 T01860089K17J2019-04-23T03:55:00Z31.07-84.9218.68.9250310.030.15059TRUETRUEVFRMETAR45.02019-04-23 04:05:57K§Ø) 5    3K0V4 230355Z AUTO 00000KT 10SM CLR 11/11 A3013 RMK AO1 T01050105K0V42019-04-23T03:55:00Z37.15-79.0210.510.50010.030.129921TRUETRUEVFRMETAR182.02019-04-23 04:05:57 /YxU§Ø)!5    3K3T5 230355Z AUTO 14003KT 10SM BKN028 BKN037 21/18 A3002 RMK AO2 T02060184K3T52019-04-23T03:55:00Z29.9-96.9520.618.4140310.030.02067TRUETRUEMVFRMETAR99.02019-04-23 04:05:57[§Ø )!5     3K40J 230355Z AUTO 00000KT 10SM CLR 17/13 A3017 RMK AO2 T01660126 402850080K40J2019-04-23T03:55:00Z30.07-83.5716.612.60010.030.171259TRUETRUEVFR28.58.0METAR13.02019-04-23 04:05:57P§Ø )5    3KADS 230355Z AUTO 13007KT 10SM SCT050 22/17 A3004 RMK AO2 T02200165KADS2019-04-23T03:55:00Z32.97-96.8222.016.5130710.030.041338TRUETRUEVFRMETAR196.02019-04-23 04:05:57K§Ø ) 5    3KALX 230355Z AUTO 00000KT 10SM CLR 14/12 A3016 RMK AO2 T01380120KALX2019-04-23T03:55:00Z32.92-85.9713.812.00010.030.159449TRUETRUEVFRMETAR209.02019-04-23 04:05:57 ®G€®L§Ø) 5    3KC65 230355Z AUTO 16007KT 10SM FEW065 OVC100 19/10 A2993 RMK A01KC652019-04-23T03:55:00Z41.37-86.319.010.0160710.029.929134TRUETRUEVFRMETAR244.02019-04-23 04:05:57A§Ø(y5    3K2G9 230355Z AUTO 17004KT 10SM CLR 10/05 A3014 RMK AO2K2G92019-04-23T03:55:00Z40.03-79.0210.05.0170410.030.138779TRUETRUEVFRMETAR693.02019-04-23 04:05:57L§Ø) 5    3K2I0 230355Z AUTO 22004KT 10SM CLR 20/11 A3005 RMK AO2 T01980105K2I02019-04-23T03:55:00Z37.35-87.419.810.5220410.030.050198TRUETRUEVFRMETAR134.02019-04-23 04:05:57a§Ø))5     3K3D2 230355Z AUTO 01015G18KT 4SM RA OVC003 04/04 A2990 RMK AO2 P0019 T00400037K3D22019-04-23T03:55:00Z45.13-87.184.03.71015184.029.899607TRUETRUERALIFR0.19METAR234.02019-04-23 04:05:57 ´#Fw´=§Ø(y5    3KDCM 230355Z AUTO 00000KT 10SM CLR 14/09 A3015 RMK AO2KDCM2019-04-23T03:55:00Z34.78-81.214.09.00010.030.15059TRUETRUEVFRMETAR200.02019-04-23 04:05:57I§Ø) 5    3KEBA 230355Z AUTO 00000KT 10SM CLR 15/13 A3015 RMK AO2 T01490129KEBA2019-04-23T03:55:00Z34.1-82.8214.912.90010.030.15059TRUETRUEVFRMETAR184.02019-04-23 04:05:57W§Ø)!5    3KEBG 230355Z AUTO 10006KT 10SM BKN020 BKN027 24/20 A2995 RMK AO2 T02370196KEBG2019-04-23T03:55:00Z26.45-98.1323.719.6100610.029.949802TRUETRUEMVFRMETAR24.02019-04-23 04:05:57W§Ø)!5    3KC75 230355Z AUTO 25004KT 10SM BKN041 OVC047 18/16 A2989 RMK AO2 T01820155KC752019-04-23T03:55:00Z41.02-89.3818.215.5250410.029.890747TRUETRUEVFRMETAR173.02019-04-23 04:05:57 ;u®ÚB§Ø({5    3KTWM 230355Z AUTO 36003KT 10SM CLR 02/M02 A3011 RMK AO2KTWM2019-04-23T03:55:00Z47.03-91.752.0-2.0360310.030.109253TRUETRUEVFRMETAR328.02019-04-23 04:05:57N§Ø) 5    3KU42 230355Z AUTO 28006KT 10SM CLR 11/06 A3017 RMK AO1 T01130060KU422019-04-23T03:55:00Z40.62-111.9811.36.0280610.030.171259TRUETRUEVFRMETAR1402.02019-04-23 04:05:57A§Ø(y5    3KUKT 230355Z AUTO 33006KT 10SM CLR 15/08 A3005 RMK A01KUKT2019-04-23T03:55:00Z40.43-75.3815.08.0330610.030.050198TRUETRUEVFRMETAR160.02019-04-23 04:05:57@§Ø(y5    3KUOX 230355Z AUTO 00000KT 10SM CLR 13/11 A3012 RMK AO2KUOX2019-04-23T03:55:00Z34.38-89.5313.011.00010.030.121063TRUETRUEVFRMETAR137.02019-04-23 04:05:57?§Ø(y5    3KCCA 230355Z AUTO 00000KT 10SM CLR 15/14 A3007 RMK AO2KCCA2019-04-23T03:55:00Z35.6-92.4515.014.00010.030.070866TRUETRUEVFRMETAR157.02019-04-23 04:05:57 ²8Y²X§Ø)!5    3KAEJ 230355Z AUTO 12008KT 10SM BKN024 OVC035 05/01 A3026 RMK AO2 T00470012KAEJ2019-04-23T03:55:00Z38.82-106.124.71.2120810.030.259842TRUETRUEMVFRMETAR2422.02019-04-23 04:05:57C§Ø(y5    3KAIB 230355Z AUTO 32006KT 10SM CLR 11/00 A3012 RMK AO2KAIB2019-04-23T03:55:00Z38.23-108.5711.00.0320610.030.121063TRUETRUEVFRMETAR1811.02019-04-23 04:05:57Y§Ø)!5     3KTTF 230355Z AUTO 10003KT 10SM CLR 11/11 A3000 RMK AO2 T01120109 402010062KTTF2019-04-23T03:55:00Z41.93-83.4211.210.9100310.030.0TRUETRUEVFR20.16.2METAR188.02019-04-23 04:05:57B§Ø(y5    3KTVY 230355Z AUTO 16006KT 10SM CLR 08/06 A3018 RMK AO2KTVY2019-04-23T03:55:00Z40.62-112.358.06.0160610.030.180119TRUETRUEVFRMETAR1317.02019-04-23 04:05:57 ¾+dƒ¾?§Ø#(y5    3K9D7 230355Z AUTO 09008KT 10SM CLR 06/01 A3018 RMK AO2K9D72019-04-23T03:55:00Z48.48-99.236.01.090810.030.180119TRUETRUEVFRMETAR452.02019-04-23 04:05:57[§Ø")'5     3KACB 230355Z AUTO 35003KT 5SM -RA BKN060 OVC080 13/08 A2987 RMK AO2 T01300082KACB2019-04-23T03:55:00Z44.98-85.213.08.235035.029.870079TRUETRUE-RAMVFRMETAR190.02019-04-23 04:05:57A§Ø!(5    3KADU 230355Z AUTO 00000KT 10SM OVC013 09/07 A3009 RMK AO2KADU2019-04-23T03:55:00Z41.7-94.929.07.00010.030.088583TRUETRUEMVFRMETAR392.02019-04-23 04:05:57O§Ø )5    3KAEG 230355Z AUTO 05012KT 10SM SCT120 08/06 A3011 RMK AO2 T00770060KAEG2019-04-23T03:55:00Z35.13-106.87.76.0501210.030.109253TRUETRUEVFRMETAR1779.02019-04-23 04:05:57 ¬^“¬a§Ø')75    3KDUC 230355Z AUTO 18009KT 7SM BKN034 OVC042 21/17 A3005 RMK AO2 LTG DSNT NW T02080165KDUC2019-04-23T03:55:00Z34.47-97.9720.816.518097.030.050198TRUETRUEVFRMETAR339.02019-04-23 04:05:57E§Ø&)5     3EHRD 230355Z AUTO 08010KT 050V120 9999 NSC 11/03 Q1001 NOSIGEHRD2019-04-23T03:55:00Z51.954.4511.03.080106.2129.557087TRUETRUEVFRMETAR-5.02019-04-23 04:05:579§Ø%(q5   3K7L2 230355Z AUTO 08006KT 10SM 06/06 A3018 RMK AO2K7L22019-04-23T03:55:00Z46.22-100.256.06.080610.030.180119TRUETRUEMETAR543.02019-04-23 04:05:57]§Ø$)%5      3K82C 230355Z AUTO 35009KT 5SM -RA OVC005 10/09 A2989 RMK AO2 P0003 T00970091K82C2019-04-23T03:55:00Z43.83-90.139.79.135095.029.890747TRUETRUE-RAIFR0.03METAR276.02019-04-23 04:05:57 ¿;m¿H§Ø+) 5    3KCTY 230355Z AUTO 00000KT 10SM CLR 13/10 A3016 RMK AO2 T01260098KCTY2019-04-23T03:55:00Z29.63-83.112.69.80010.030.159449TRUETRUEVFRMETAR13.02019-04-23 04:05:57Z§Ø*)!5     3KCXE 230355Z AUTO 00000KT 10SM CLR 11/08 A3013 RMK AO1 T01100081 402210073KCXE2019-04-23T03:55:00Z36.78-78.511.08.10010.030.129921TRUETRUEVFR22.17.3METAR153.02019-04-23 04:05:57H§Ø)) 5    3KD39 230355Z AUTO 00000KT 10SM CLR 04/03 A3014 RMK AO2 T00440025KD392019-04-23T03:55:00Z45.7-94.934.42.50010.030.138779TRUETRUEVFRMETAR380.02019-04-23 04:05:57?§Ø((y5    3KDBN 230355Z AUTO 00000KT 10SM CLR 12/12 A3016 RMK AO2KDBN2019-04-23T03:55:00Z32.57-82.9812.012.00010.030.159449TRUETRUEVFRMETAR94.02019-04-23 04:05:57 Á;a|Á5§Ø/(s5    3KCFE 230355Z 10SM CLR 05/02 A3013 RMK AO2 T00520022KCFE2019-04-23T03:55:00Z45.17-93.855.22.210.030.129921TRUEVFRMETAR295.02019-04-23 04:05:57_§Ø.)'5      3KCMY 230355Z AUTO 35008KT 10SM -DZ OVC009 07/07 A2994 RMK AO2 P0004 T00670065KCMY2019-04-23T03:55:00Z43.97-90.736.76.5350810.029.940945TRUETRUE-DZIFR0.04METAR256.02019-04-23 04:05:57T§Ø-)5   3KCOM 230355Z AUTO 14013G19KT 10SM BKN042 21/14 A2998 RMK AO2 T02140143KCOM2019-04-23T03:55:00Z31.83-99.421.414.3140131910.029.97933TRUETRUEVFRMETAR517.02019-04-23 04:05:57?§Ø,(y5    3KCQF 230355Z AUTO 00000KT 10SM CLR 12/12 A3016 RMK AO2KCQF2019-04-23T03:55:00Z30.47-87.8812.012.00010.030.159449TRUETRUEVFRMETAR28.02019-04-23 04:05:57 &8s±ê&>§Ø4(y5    3KVQQ 230355Z AUTO 00000KT 10SM CLR 11/10 A3015 RMK AO2KVQQ2019-04-23T03:55:00Z30.22-81.8811.010.00010.030.15059TRUETRUEVFRMETAR25.02019-04-23 04:05:57A§Ø3(y5    3KUYF 230355Z AUTO 17007KT 10SM CLR 15/08 A3006 RMK AO2KUYF2019-04-23T03:55:00Z39.93-83.4715.08.0170710.030.059055TRUETRUEVFRMETAR330.02019-04-23 04:05:57<§Ø2(y5    3KDVO 230355Z AUTO 35007KT 10SM CLR 15/12 A3000 RMK AO2KDVO2019-04-23T03:55:00Z38.15-122.5515.012.0350710.030.0TRUETRUEVFRMETAR1.02019-04-23 04:05:57?§Ø1(y5    3KCDH 230355Z AUTO 00000KT 10SM CLR 15/11 A3007 RMK AO2KCDH2019-04-23T03:55:00Z33.62-92.7715.011.00010.030.070866TRUETRUEVFRMETAR35.02019-04-23 04:05:57B§Ø0(y5    3KCEY 230355Z AUTO 20005KT 10SM CLR 19/10 A3006 RMK AO1KCEY2019-04-23T03:55:00Z36.67-88.3719.010.0200510.030.059055TRUETRUEVFRMETAR176.02019-04-23 04:05:57 ¹.Q¹@§Ø8(y5    3KCBK 230355Z AUTO 02005KT 10SM CLR 07/00 A3021 RMK AO2KCBK2019-04-23T03:55:00Z39.43-101.057.00.020510.030.209646TRUETRUEVFRMETAR971.02019-04-23 04:05:57L§Ø7) 5    3KCFS 230355Z AUTO 16009KT 10SM CLR 15/07 A2996 RMK AO2 T01520065KCFS2019-04-23T03:55:00Z43.47-83.4515.26.5160910.029.958662TRUETRUEVFRMETAR214.02019-04-23 04:05:57W§Ø6)5     3KCGF 230355Z AUTO 15004KT 10SM CLR 16/06 A3007 RMK AO2 FZRANO T01600057KCGF2019-04-23T03:55:00Z41.57-81.4716.05.7150410.030.070866TRUETRUETRUEVFRMETAR268.02019-04-23 04:05:57L§Ø5) 5    3KCIR 230355Z AUTO 21007KT 10SM CLR 20/11 A3005 RMK AO2 T01960110KCIR2019-04-23T03:55:00Z37.07-89.2219.611.0210710.030.050198TRUETRUEVFRMETAR98.02019-04-23 04:05:57Y8Þ8@HPX`hpx€ˆ˜ ¨°¸ÀÈÐØàèðø (08@HPX`hpx€ˆ˜ ¨°¸ÀÈÐØàèðø (08@HPX`hpx€ˆ˜ ¨°¸ÀÈÐØàèðø ¨°¸ÀÈÐØàèðø„§×…§×"†§×&‡§×+ˆ§×0‰§×4Š§×9‹§×>Œ§×B§×FŽ§×J§×N„§×…§×"†§×&‡§×+ˆ§×0‰§×4Š§×9‹§×>Œ§×B§×FŽ§×J§×N§×S‘§×W’§×[“§×_”§×c•§×h–§×l—§×q˜§×v™§×zš§×~›§Øœ§Ø§Ø ž§ØŸ§Ø §Ø¡§Ø¢§Ø£§Ø#¤§Ø'¥§Ø+¦§Ø/§§Ø4¨§Ø8ª§Ø<«§Ø@¬§ØD­§ØH®§ØL¯§ØP°§ØT±§ØX²§Ø\³§Ø`´§Øeµ§Øi¶§Øl·§Øo¸§Øs¹§Øxº§Ø|»§Ù¼§Ù½§Ù¾§Ù ¿§ÙÀ§ÙÁ§Ù§ÙçÙ ħÙ$ŧÙ(ƧÙ,ǧÙ0ȧÙ4ɧÙ8ʧÙ<˧Ù@̧ÙDͧÙH׍ÙLϧÙPЧÙTѧÙXÒ§Ù\Ó§Ù`Ô§ÙdÕ§ÙhÖ§ÙlקÙpاÙtÙ§ÙxÚ§Ù|Û§ÚܧÚݧÚ —*g—J§Ø<) 5    3KBVN 230355Z AUTO 02005KT 10SM CLR 09/06 A3017 RMK AO2 T00880061KBVN2019-04-23T03:55:00Z41.73-98.058.86.120510.030.171259TRUETRUEVFRMETAR551.02019-04-23 04:05:57=§Ø;(y5    3KBYL 230355Z AUTO 00000KT 10SM CLR 14/09 A3012 RMK AO1KBYL2019-04-23T03:55:00Z36.8-84.214.09.00010.030.121063TRUETRUEVFRMETAR359.02019-04-23 04:05:57V§Ø:)!5    3KBYY 230355Z AUTO 12007KT 10SM SCT032 SCT041 21/20 A3004 RMK AO2 T02130199KBYY2019-04-23T03:55:00Z28.97-95.8721.319.9120710.030.041338TRUETRUEVFRMETAR14.02019-04-23 04:05:57t§Ø9)95      3KCAO 230355Z AUTO 04009KT 10SM -RA OVC030 08/06 A3020 RMK AO2 SLP199 P0001 T00830061 $KCAO2019-04-23T03:55:00Z36.45-103.158.36.140910.030.2007871019.9TRUETRUETRUE-RAMVFR0.01METAR1514.02019-04-23 04:05:57 ¶2\ˆ¶L§Ø@) 5    3KEZZ 230355Z AUTO 32008KT 10SM CLR 12/09 A3007 RMK AO2 T01230086KEZZ2019-04-23T03:55:00Z39.72-94.2812.38.6320810.030.070866TRUETRUEVFRMETAR317.02019-04-23 04:05:57N§Ø?) 5    3KBPC 230355Z AUTO 36006KT 10SM BKN090 BKN110 12/10 A3011 RMK AO2KBPC2019-04-23T03:55:00Z35.88-101.0312.010.0360610.030.109253TRUETRUEVFRMETAR845.02019-04-23 04:05:57P§Ø>)5    3KBPG 230355Z AUTO 05009KT 10SM OVC038 19/14 A3001 RMK AO2 T01850144KBPG2019-04-23T03:55:00Z32.22-101.5218.514.450910.030.008858TRUETRUEVFRMETAR784.02019-04-23 04:05:57H§Ø=) 5    3KBQK 230355Z AUTO 00000KT 10SM CLR 13/11 A3015 RMK AO2 T01310113KBQK2019-04-23T03:55:00Z31.25-81.4713.111.30010.030.15059TRUETRUEVFRMETAR8.02019-04-23 04:05:57 À0[’ÀL§ØD)5     3KJKA 230355Z AUTO 00000KT 2SM BR CLR 12/12 A3016 RMK AO2 T01220121KJKA2019-04-23T03:55:00Z30.28-87.6712.212.1002.030.159449TRUETRUEBRIFRMETAR5.02019-04-23 04:05:57C§ØC({5    3KL35 230355Z AUTO 06006KT 10SM CLR 07/M01 A3014 RMK AO2KL352019-04-23T03:55:00Z34.27-116.857.0-1.060610.030.138779TRUETRUEVFRMETAR2059.02019-04-23 04:05:57O§ØB)5    3KFLY 230355Z AUTO 04005KT 10SM OVC030 04/01 A3029 RMK AO2 T00400012KFLY2019-04-23T03:55:00Z38.95-104.574.01.240510.030.28937TRUETRUEMVFRMETAR2096.02019-04-23 04:05:57J§ØA) 5    3KF17 230355Z AUTO 00000KT 10SM CLR 18/14 A3009 RMK AO2 T01810143KF172019-04-23T03:55:00Z31.83-94.1518.114.30010.030.088583TRUETRUEVFRMETAR97.02019-04-23 04:05:57 Í;i’́?§ØH(y5    3KHVS 230355Z AUTO 00000KT 10SM CLR 13/10 A3014 RMK AO2KHVS2019-04-23T03:55:00Z34.4-80.1213.010.00010.030.138779TRUETRUEVFRMETAR111.02019-04-23 04:05:57Q§ØG)5   3KJAQ 230355Z AUTO 02013G17KT 10SM CLR 20/07 A3001 RMK AO1 T02030065KJAQ2019-04-23T03:55:00Z38.37-120.820.36.520131710.030.008858TRUETRUEVFRMETAR512.02019-04-23 04:05:57L§ØF) 5    3KJAS 230355Z AUTO 14003KT 10SM CLR 20/17 A3011 RMK AO2 T01970170KJAS2019-04-23T03:55:00Z30.88-94.0319.717.0140310.030.109253TRUETRUEVFRMETAR65.02019-04-23 04:05:57?§ØE(y5    3KJGG 230355Z AUTO 00000KT 10SM CLR 13/11 A3011 RMK AO1KJGG2019-04-23T03:55:00Z37.23-76.7213.011.00010.030.109253TRUETRUEVFRMETAR15.02019-04-23 04:05:57 Æ.fÆA§ØL(y5    3KFRR 230355Z AUTO 21004KT 10SM CLR 13/07 A3011 RMK AO1KFRR2019-04-23T03:55:00Z38.92-78.2513.07.0210410.030.109253TRUETRUEVFRMETAR216.02019-04-23 04:05:57S§ØK)5    3KGNC 230355Z AUTO 06011KT 10SM OVC021 14/14 A3005 RMK AO2 T01350135KGNC2019-04-23T03:55:00Z32.68-102.6513.513.5601110.030.050198TRUETRUEMVFRMETAR1010.02019-04-23 04:05:57B§ØJ(5    3KGZL 230355Z AUTO 00000KT 10SM OVC050 18/13 A3006 RMK AO2KGZL2019-04-23T03:55:00Z35.28-95.118.013.00010.030.059055TRUETRUEVFRMETAR183.02019-04-23 04:05:57L§ØI) 5    3KHLX 230355Z AUTO 29006KT 10SM CLR 16/05 A3017 RMK AO2 T01550046KHLX2019-04-23T03:55:00Z36.77-80.8215.54.6290610.030.171259TRUETRUEVFRMETAR834.02019-04-23 04:05:57 Ã<u‘ÁH§ØP) 5    3KLUL 230355Z AUTO 00000KT 10SM CLR 18/10 A3015 RMK A02 T01750098KLUL2019-04-23T03:55:00Z31.67-89.1717.59.80010.030.15059TRUETRUEVFRMETAR73.02019-04-23 04:05:57^§ØO)%5      3KC35 230355Z AUTO 05007KT 10SM DZ OVC009 10/10 A2986 RMK AO2 P0001 T01040104KC352019-04-23T03:55:00Z43.53-89.9810.410.450710.029.861221TRUETRUEDZIFR0.01METAR276.02019-04-23 04:05:57A§ØN(y5    3KANQ 230355Z AUTO 16003KT 10SM CLR 16/09 A2997 RMK AO2KANQ2019-04-23T03:55:00Z41.63-85.0816.09.0160310.029.970472TRUETRUEVFRMETAR303.02019-04-23 04:05:57>§ØM(y5    3KS32 230355Z AUTO 01007KT 10SM CLR 07/04 A3017 RMK AO2KS322019-04-23T03:55:00Z47.42-98.17.04.010710.030.171259TRUETRUEVFRMETAR684.02019-04-23 04:05:57 Î.]™ÎE§ØT(5    3KICL 230355Z AUTO 31008KT 10SM OVC015 10/08 A3012 RMK AO2KICL2019-04-23T03:55:00Z40.72-95.0210.08.0310810.030.121063TRUETRUEMVFRMETAR303.02019-04-23 04:05:57>§ØS(y5    3KIDI 230355Z AUTO 00000KT 10SM CLR 10/08 A3015 RMK A01KIDI2019-04-23T03:55:00Z40.62-79.0810.08.00010.030.15059TRUETRUEVFRMETAR429.02019-04-23 04:05:57K§ØR) 5    3KMDQ 230355Z AUTO 00000KT 10SM CLR 14/13 A3014 RMK A02 T01420126KMDQ2019-04-23T03:55:00Z34.87-86.5514.212.60010.030.138779TRUETRUEVFRMETAR230.02019-04-23 04:05:57L§ØQ)5    3KLRU 230355Z AUTO 32007KT 10SM SCT120 13/08 A3000 RMK AO2 T01270080KLRU2019-04-23T03:55:00Z32.27-106.9212.78.0320710.030.0TRUETRUEVFRMETAR1358.02019-04-23 04:05:57 Ç(P‹Ç>§ØX(y5    3KCKM 230355Z AUTO 00000KT 10SM CLR 16/12 A3009 RMK A01KCKM2019-04-23T03:55:00Z34.3-90.5216.012.00010.030.088583TRUETRUEVFRMETAR53.02019-04-23 04:05:57?§ØW(y5    3KDYB 230355Z AUTO 00000KT 10SM CLR 13/12 A3017 RMK AO1KDYB2019-04-23T03:55:00Z33.07-80.2813.012.00010.030.171259TRUETRUEVFRMETAR18.02019-04-23 04:05:57R§ØV)5   3KEOK 230355Z AUTO 29009G15KT 10SM FEW021 BKN045 15/11 A2997 RMK AO2KEOK2019-04-23T03:55:00Z40.47-91.4215.011.029091510.029.970472TRUETRUEVFRMETAR205.02019-04-23 04:05:57R§ØU)5     3KEZS 230355Z AUTO 03009KT 10SM RA OVC007 08/06 A2992 RMK AO2 T00750055KEZS2019-04-23T03:55:00Z44.78-88.577.55.530910.029.920275TRUETRUERAIFRMETAR248.02019-04-23 04:05:57 À.f‘ÀK§Ø\) 5    3KS33 230355Z AUTO 00000KT 10SM BKN050 OVC055 15/07 A3024 RMK AO2KS332019-04-23T03:55:00Z44.67-121.1515.07.00010.030.239174TRUETRUEVFRMETAR743.02019-04-23 04:05:57O§Ø[)5   3KPBH 230355Z AUTO 01009G15KT 10SM OVC009 04/04 A3002 RMK AO2 T00380038KPBH2019-04-23T03:55:00Z45.7-90.43.83.81091510.030.02067TRUETRUEIFRMETAR449.02019-04-23 04:05:57B§ØZ(y5    3KLRY 230355Z AUTO 35007KT 10SM CLR 17/11 A3007 RMK AO2KLRY2019-04-23T03:55:00Z38.62-94.3517.011.0350710.030.070866TRUETRUEVFRSPECI279.02019-04-23 04:05:57L§ØY)5    3KOIN 230355Z AUTO 00000KT 10SM CLR 07/M01 A3024 RMK AO1 T00721010KOIN2019-04-23T03:55:00Z39.83-100.537.2-1.00010.030.239174TRUETRUEVFRSPECI824.02019-04-23 04:05:57 •3]•B§Ø`(y5    3KF44 230355Z AUTO 17007KT 10SM CLR 21/15 A3004 RMK AO2KF442019-04-23T03:55:00Z32.17-95.8321.015.0170710.030.041338TRUETRUEVFRMETAR135.02019-04-23 04:05:57P§Ø_)5    3KFET 230355Z AUTO 34006KT 10SM OVC011 11/08 A3014 RMK AO2 T01050078KFET2019-04-23T03:55:00Z41.45-96.5210.57.8340610.030.138779TRUETRUEMVFRMETAR367.02019-04-23 04:05:57W§Ø^)#5    3KD25 230355Z AUTO 36007KT 310V010 10SM OVC004 03/03 A3003 RMK AO2 T00250025KD252019-04-23T03:55:00Z46.12-89.882.52.5360710.030.029528TRUETRUELIFRMETAR491.02019-04-23 04:05:57j§Ø])35      3KUNU 230355Z AUTO 36010G14KT 5SM BR OVC003 09/09 A2983 RMK AO2 P0003 T00900087 TSNOKUNU2019-04-23T03:55:00Z43.42-88.79.08.736010145.029.828741TRUETRUETRUEBRLIFR0.03METAR285.02019-04-23 04:05:57 @¿úX§Øe)#5    3KXBP 230355Z AUTO 12004KT 10SM CLR 20/16 A3003 RMK AO2 LTG DSNT N T01950160KXBP2019-04-23T03:55:00Z33.18-97.8319.516.0120410.030.029528TRUETRUEVFRMETAR260.02019-04-23 04:05:57?§Ød(y5    3KXLL 230355Z AUTO 00000KT 10SM CLR 14/08 A3006 RMK AO2KXLL2019-04-23T03:55:00Z40.57-75.4814.08.00010.030.059055TRUETRUEVFRMETAR122.02019-04-23 04:05:57:§Øc({5    3EHAK 230355Z AUTO VRB30KT 9999 NSC 10/06 Q1008 W///H///EHAK2019-04-23T03:55:00Z55.423.8210.06.00306.2129.763779TRUEVFRMETAR50.02019-04-23 04:05:57;§Øb({5    3EHDV 230355Z AUTO 10029KT 9999 NCD 10/06 Q1004 W///H///EHDV2019-04-23T03:55:00Z54.322.9310.06.0100296.2129.64567TRUEVFRMETAR50.02019-04-23 04:05:57:§Øa({5    3EHFD 230355Z AUTO 09030KT 9999 NCD 10/06 Q1007 W///H///EHFD2019-04-23T03:55:00Z54.854.710.06.090306.2129.734253TRUEVFRMETAR50.02019-04-23 04:05:57 Ã+fˆÃ?§Øi(y5    3KRBW 230355Z AUTO 00000KT 10SM CLR 13/12 A3017 RMK AO2KRBW2019-04-23T03:55:00Z32.92-80.6313.012.00010.030.171259TRUETRUEVFRMETAR31.02019-04-23 04:05:57X§Øh)%5    3KRCE 230355Z AUTO 04006KT 10SM SCT031 OVC065 18/15 A3006 RMK AO2 LTG DSNT SWKRCE2019-04-23T03:55:00Z35.48-97.8218.015.040610.030.059055TRUETRUEVFRMETAR413.02019-04-23 04:05:57?§Øg(y5    3K96D 230355Z AUTO 29003KT 10SM CLR 07/01 A3017 RMK AO2K96D2019-04-23T03:55:00Z48.93-97.97.01.0290310.030.171259TRUETRUEVFRMETAR290.02019-04-23 04:05:57O§Øf)5    3K5R8 230355Z AUTO 10003KT 10SM OVC038 17/15 A3010 RMK AO2 T01730154K5R82019-04-23T03:55:00Z30.43-93.4717.315.4100310.030.100393TRUETRUEVFRMETAR24.02019-04-23 04:05:57 â â‚#§Øl)‚5     3PAEH 230355Z AUTO 31022G28KT 240V330 10SM -FZRA OVC023 M04/M08 A2967 RMK AO2 PK WND 32028/0303 SNB0318E0329 SLP061 P0000 T10451080PAEH2019-04-23T03:55:00Z58.65-162.07-4.5-8.0310222810.029.669291006.1TRUETRUE-FZRAMVFR0.005METAR161.02019-04-23 04:05:57~§Øk)O5      3PACZ 230355Z AUTO 31015KT 1 3/4SM -SN BKN007 M07/M08 A2951 RMK AO2 SNB0155 SLP004 P0000 T10741084PACZ2019-04-23T03:55:00Z61.78-166.03-7.4-8.4310151.7529.5098421000.4TRUETRUE-SNIFR0.005METAR146.02019-04-23 04:05:57k§Øj);5    3KLSV 230355Z 32005KT 10SM FEW100 24/00 A2993 RMK AO2A SLP108 WND DATA ESTMD T02421003 $KLSV2019-04-23T03:55:00Z36.22-115.0224.2-0.3320510.029.9291341010.8TRUETRUEVFRMETAR570.02019-04-23 04:05:57 ‚§Øo)a5      3PASV 230355Z AUTO 27003KT 10SM -SN OVC017 M06/M08 A2942 RMK AO2 LTG DSNT NE SNB0342 SLP996 P0000 T10581085PASV2019-04-23T03:55:00Z61.1-155.57-5.8-8.5270310.029.421259999.6TRUETRUE-SNMVFR0.005METAR484.02019-04-23 04:05:57h§Øn)95   3PAIM 230355Z AUTO 03012G22KT 360V060 10SM BKN085 04/M02 A2932 RMK AO2 SLP939 T00431022PAIM2019-04-23T03:55:00Z66.0-153.74.3-2.230122210.029.320866993.9TRUETRUEVFRMETAR389.02019-04-23 04:05:57y§Øm)I5      3PALU 230355Z AUTO 06019KT 10SM -SN OVC013 M09/M11 A2991 RMK AO2 SNB0255 SLP129 P0000 T10881107PALU2019-04-23T03:55:00Z68.88-166.1-8.8-10.7601910.029.9114171012.9TRUETRUE-SNMVFR0.005METAR3.02019-04-23 04:05:57 ƒ÷'VƒM§Øs) 5    3KLXY 230355Z AUTO 15004KT 10SM CLR 20/16 A3005 RMK AO2 T02000160KLXY2019-04-23T03:55:00Z31.63-96.5220.016.0150410.030.050198TRUETRUEVFRMETAR166.02019-04-23 04:05:57K§Ør) 5    3KLYO 230355Z AUTO 03008KT 10SM CLR 12/09 A3012 RMK AO2 T01210092KLYO2019-04-23T03:55:00Z38.35-98.2312.19.230810.030.121063TRUETRUEVFRMETAR515.02019-04-23 04:05:57J§Øq) 5    3KLZZ 230355Z AUTO 17007KT 10SM CLR 21/15 A3002 RMK AO2 T02050153KLZZ2019-04-23T03:55:00Z31.1-98.220.515.3170710.030.02067TRUETRUEVFRMETAR371.02019-04-23 04:05:57‚§Øp)k5     3PATC 230355Z AUTO 02029KT 6SM BR OVC008 M05/M06 A2953 RMK AO2 PK WND 02037/0257 SHSNB0148E0307 SLP007 T10521058PATC2019-04-23T03:55:00Z65.57-167.92-5.2-5.820296.029.5305121000.7TRUETRUEBRIFRMETAR83.02019-04-23 04:05:57 4bžíJ§Øx) 5    3KACP 230355Z AUTO 00000KT 10SM CLR 15/14 A3011 RMK AO2 T01470137KACP2019-04-23T03:55:00Z30.75-92.6814.713.70010.030.109253TRUETRUEVFRMETAR33.02019-04-23 04:05:57+§Øw(_5   3MUHA 230355Z 07007KT 9000 NSC 21/17 Q1018MUHA2019-04-23T03:55:00Z22.97-82.4221.017.07075.5930.059055VFRMETAR64.02019-04-23 04:05:57>§Øv(y5    3KLUA 230355Z AUTO 00000KT 10SM CLR 11/08 A3013 RMK AO2KLUA2019-04-23T03:55:00Z38.67-78.511.08.00010.030.129921TRUETRUEVFRMETAR275.02019-04-23 04:05:57L§Øu) 5    3KLUD 230355Z AUTO 11004KT 10SM CLR 20/17 A3002 RMK AO2 T01950165KLUD2019-04-23T03:55:00Z33.25-97.5819.516.5110410.030.02067TRUETRUEVFRMETAR319.02019-04-23 04:05:57F§Øt(5    3KLUV 230355Z AUTO 03008KT 10SM OVC020 15/14 A3003 RMK AO2KLUV2019-04-23T03:55:00Z32.75-101.9215.014.030810.030.029528TRUETRUEMVFRMETAR912.02019-04-23 04:05:57 Ä:d”āJ§Ø|) 5    3K9A5 230355Z AUTO 00000KT 10SM CLR 13/11 A3015 RMK AO2 T01280105K9A52019-04-23T03:55:00Z34.68-85.2812.810.50010.030.15059TRUETRUEVFRMETAR237.02019-04-23 04:05:57J§Ø{) 5    3K9V9 230355Z AUTO 00000KT 10SM CLR 11/04 A3017 RMK AO2 T01070035K9V92019-04-23T03:55:00Z43.77-99.3210.73.50010.030.171259TRUETRUEVFRMETAR519.02019-04-23 04:05:57P§Øz)5    3KAAA 230355Z AUTO 20004KT 10SM SCT060 20/14 A2992 RMK AO2 T01970143KAAA2019-04-23T03:55:00Z40.17-89.3319.714.3200410.029.920275TRUETRUEVFRMETAR182.02019-04-23 04:05:57@§Øy(y5    3KACJ 230355Z AUTO 00000KT 10SM CLR 16/12 A3017 RMK AO2KACJ2019-04-23T03:55:00Z32.12-84.1816.012.00010.030.171259TRUETRUEVFRMETAR143.02019-04-23 04:05:57 ¹1fŠ¹K§Ù) 5    3K5A6 230355Z AUTO 00000KT 10SM CLR 15/14 A3011 RMK AO2 T01450135K5A62019-04-23T03:55:00Z33.47-89.7314.513.50010.030.109253TRUETRUEVFRMETAR111.02019-04-23 04:05:57V§Ø)!5    3K66R 230355Z AUTO 12005KT 10SM SCT032 BKN040 21/16 A3006 RMK AO2 T02050160K66R2019-04-23T03:55:00Z29.65-96.5220.516.0120510.030.059055TRUETRUEVFRMETAR74.02019-04-23 04:05:57E§Ø~)5   3K6A1 230355Z AUTO 24004KT 10SM 19/07 A3016 RMK AO2 T01890069K6A12019-04-23T03:55:00Z32.57-84.2518.96.9240410.030.159449TRUETRUEMETAR203.02019-04-23 04:05:57I§Ø}) 5    3K6R3 230355Z AUTO 15003KT 7SM CLR 19/18 A3007 RMK AO2 T01920182K6R32019-04-23T03:55:00Z30.35-95.019.218.215037.030.070866TRUETRUEVFRMETAR46.02019-04-23 04:05:57 È/_ŽÈ@§Ù(y5    3K3K3 230355Z AUTO 02005KT 10SM CLR 08/03 A3020 RMK AO2K3K32019-04-23T03:55:00Z38.0-101.758.03.020510.030.200787TRUETRUEVFRMETAR1013.02019-04-23 04:05:57K§Ù) 5    3K3N8 230355Z AUTO 30005KT 10SM CLR 07/03 A3012 RMK AO2 T00670034K3N82019-04-23T03:55:00Z47.25-95.886.73.4300510.030.121063TRUETRUEVFRMETAR383.02019-04-23 04:05:57J§Ù) 5    3K49A 230355Z AUTO 00000KT 10SM CLR 12/10 A3020 RMK AO2 T01220095K49A2019-04-23T03:55:00Z34.63-84.5312.29.50010.030.200787TRUETRUEVFRMETAR453.02019-04-23 04:05:57K§Ù) 5    3K4A9 230355Z AUTO 00000KT 10SM CLR 12/11 A3014 RMK AO2 T01180108K4A92019-04-23T03:55:00Z34.47-85.7211.810.80010.030.138779TRUETRUEVFRMETAR267.02019-04-23 04:05:57 Ï.q¡ÏL§Ù) 5    3K11R 230355Z AUTO 14006KT 10SM CLR 21/18 A3005 RMK AO2 T02100177K11R2019-04-23T03:55:00Z30.22-96.3721.017.7140610.030.050198TRUETRUEVFRMETAR94.02019-04-23 04:05:57J§Ù) 5    3K1A6 230355Z AUTO 00000KT 10SM CLR 12/09 A3014 RMK AO2 T01190094K1A62019-04-23T03:55:00Z36.62-83.7311.99.40010.030.138779TRUETRUEVFRMETAR352.02019-04-23 04:05:577§Ù(q5   3K21D 230355Z AUTO 02006KT 10SM 06/05 A3009 RMK AO2K21D2019-04-23T03:55:00Z45.0-92.856.05.020610.030.088583TRUETRUEMETAR285.02019-04-23 04:05:57L§Ù) 5    3K3F3 230355Z AUTO 18004KT 10SM CLR 20/16 A3011 RMK AO2 T01970156K3F32019-04-23T03:55:00Z32.07-93.7719.715.6180410.030.109253TRUETRUEVFRMETAR96.02019-04-23 04:05:57 ’/D[’C§Ù ({5    3KD60 230355Z AUTO 17011KT 10SM CLR 07/M05 A3011 RMK AO2KD602019-04-23T03:55:00Z48.38-102.97.0-5.01701110.030.109253TRUETRUEVFRMETAR693.02019-04-23 04:05:57c§Ù )55   3K06C 230355Z AUTO 19010G15KT 10SM SCT055 BKN065 BKN110 19/12 A2982 RMK AO2 T01900122K06C2019-04-23T03:55:00Z41.98-88.119.012.2190101510.029.819881TRUETRUEVFRMETAR244.02019-04-23 04:05:57e§Ù )35      3K0E0 230355Z AUTO 10009KT 10SM RA BKN037 OVC045 08/08 A3018 RMK AO2 P0018 T00770077K0E02019-04-23T03:55:00Z34.98-106.07.77.7100910.030.180119TRUETRUERAVFR0.18METAR1890.02019-04-23 04:05:57K§Ù ) 5    3K0R4 230355Z AUTO 14009KT 10SM CLR 19/15 A3011 RMK AO2 T01900145K0R42019-04-23T03:55:00Z31.57-91.519.014.5140910.030.109253TRUETRUEVFRMETAR17.02019-04-23 04:05:57 ‡-\M‡@§Ù({5    3KS25 230355Z AUTO 00000KT 10SM CLR 08/M03 A3010 RMK AO2KS252019-04-23T03:55:00Z47.8-103.258.0-3.00010.030.100393TRUETRUEVFRMETAR644.02019-04-23 04:05:57‚ §Ù)m5      3PATL 230355Z AUTO 29009KT 180V340 1 1/2SM -SN OVC022 M03/M04 A2941 RMK AO2 SHSNB0208E0301 SLP977 P0000 T10291042PATL2019-04-23T03:55:00Z62.9-155.97-2.9-4.229091.529.409449997.7TRUETRUE-SNIFR0.005METAR294.02019-04-23 04:05:57K§Ù)5   3KRDK 230355Z AUTO 32008G13KT 10SM OVC016 11/08 A3010 RMK AO2KRDK2019-04-23T03:55:00Z41.02-95.2711.08.032081310.030.100393TRUETRUEMVFRMETAR318.02019-04-23 04:05:57M§Ù ) 5    3KRFI 230355Z AUTO 15003KT 10SM CLR 20/15 A3007 RMK AO2 T01990151KRFI2019-04-23T03:55:00Z32.15-94.8519.915.1150310.030.070866TRUETRUEVFRMETAR135.02019-04-23 04:05:57 ª;8qªA§Ù(y5    3KRUG 230355Z AUTO 12008KT 10SM CLR 08/02 A3014 RMK AO2KRUG2019-04-23T03:55:00Z48.38-100.028.02.0120810.030.138779TRUETRUEVFRMETAR472.02019-04-23 04:05:57A§Ù(y5    3KRVL 230355Z AUTO 27003KT 10SM CLR 11/07 A3008 RMK A01KRVL2019-04-23T03:55:00Z40.68-77.6311.07.0270310.030.079725TRUETRUEVFRMETAR250.02019-04-23 04:05:57}§Ù)c5      3KRYV 230355Z AUTO 35005KT 5SM BR SCT003 BKN007 OVC018 14/14 A2979 RMK AO2 LTG DSNT E THRU S P0009 T01390139KRYV2019-04-23T03:55:00Z43.17-88.7213.913.935055.029.790354TRUETRUEBRIFR0.09METAR254.02019-04-23 04:05:57?§Ù(y5    3KRZT 230355Z AUTO 00000KT 10SM CLR 14/08 A3007 RMK AO2KRZT2019-04-23T03:55:00Z39.43-83.0214.08.00010.030.070866TRUETRUEVFRMETAR221.02019-04-23 04:05:57 ·0ZŒ·O§Ù)5    3KY31 230355Z AUTO 14005KT 10SM SCT120 17/07 A2989 RMK AO2 T01650066KY312019-04-23T03:55:00Z44.25-84.1816.56.6140510.029.890747TRUETRUEVFRMETAR269.02019-04-23 04:05:57H§Ù) 5    3KY63 230355Z AUTO 00000KT 10SM CLR 10/00 A3013 RMK AO2 T00960003KY632019-04-23T03:55:00Z45.98-96.09.60.30010.030.129921TRUETRUEVFRMETAR367.02019-04-23 04:05:57P§Ù)5    3KY70 230355Z AUTO 15010KT 10SM SCT110 17/07 A2988 RMK AO2 T01710072KY702019-04-23T03:55:00Z42.93-85.0717.17.21501010.029.878937TRUETRUEVFRMETAR250.02019-04-23 04:05:57J§Ù) 5    3KZPH 230355Z AUTO 00000KT 10SM CLR 16/12 A3016 RMK A02 T01560115KZPH2019-04-23T03:55:00Z28.23-82.1515.611.50010.030.159449TRUETRUEVFRMETAR26.02019-04-23 04:05:57 ½3@|½9§Ù(q5   3KSHL 230355Z AUTO 33006KT 10SM 06/06 A3012 RMK AO2KSHL2019-04-23T03:55:00Z43.22-95.826.06.0330610.030.121063TRUETRUEMETAR432.02019-04-23 04:05:57>§Ù(y5    3KVVV 230355Z AUTO 17004KT 10SM CLR 08/05 A3015 RMK AO2KVVV2019-04-23T03:55:00Z45.3-96.428.05.0170410.030.15059TRUETRUEVFRMETAR335.02019-04-23 04:05:57m§Ù)55      3KWWD 230355Z AUTO 10SM -RA OVC060 17/11 A3005 RMK AO2 RAB51 SLP179 P0000 T01670111 $KWWD2019-04-23T03:55:00Z39.02-74.9216.711.110.030.0501981017.9TRUETRUETRUE-RAVFR0.005METAR7.02019-04-23 04:05:57G§Ù)5    3KY19 230355Z AUTO 11005KT 10SM SCT037 12/M02 A3016 RMK AO2KY192019-04-23T03:55:00Z46.77-100.912.0-2.0110510.030.159449TRUETRUEVFRMETAR593.02019-04-23 04:05:57 À/dÀJ§Ù ) 5    3KADH 230355Z AUTO 00000KT 10SM SCT045 OVC050 20/16 A3005 RMK AO2KADH2019-04-23T03:55:00Z34.8-96.6720.016.00010.030.050198TRUETRUEVFRMETAR308.02019-04-23 04:05:57N§Ù)5    3KAHQ 230355Z AUTO 35008KT 10SM OVC010 10/09 A3013 RMK AO2 T00970085KAHQ2019-04-23T03:55:00Z41.23-96.69.78.5350810.030.129921TRUETRUEMVFRMETAR374.02019-04-23 04:05:57E§Ù(5    3KSDA 230355Z AUTO 32007KT 10SM OVC017 11/08 A3011 RMK AO2KSDA2019-04-23T03:55:00Z40.75-95.4211.08.0320710.030.109253TRUETRUEMVFRMETAR296.02019-04-23 04:05:57K§Ù) 5    3KSGS 230355Z AUTO 01010KT 10SM CLR 07/05 A3009 RMK AO2 T00660053KSGS2019-04-23T03:55:00Z44.87-93.036.65.3101010.030.088583TRUETRUEVFRMETAR250.02019-04-23 04:05:57 ´#Xz´@§Ù$(y5    3KO54 230355Z AUTO 00000KT 10SM CLR 17/07 A3017 RMK AO1KO542019-04-23T03:55:00Z40.75-122.9217.07.00010.030.171259TRUETRUEVFRMETAR717.02019-04-23 04:05:57X§Ù#)5     3KOCQ 230355Z AUTO 36008KT 10SM OVC008 06/05 A2990 RMK AO1 P0005 T00600052KOCQ2019-04-23T03:55:00Z44.87-87.926.05.2360810.029.899607TRUETRUEIFR0.05METAR183.02019-04-23 04:05:57E§Ù"(}5     3KOLV 230355Z AUTO 17005KT 6SM HZ CLR 16/11 A3009 RMK A01KOLV2019-04-23T03:55:00Z34.98-89.7816.011.017056.030.088583TRUETRUEHZVFRMETAR122.02019-04-23 04:05:57W§Ù!)!5    3KALN 230355Z AUTO 26006KT 10SM BKN050 OVC100 22/17 A2996 RMK AO2 T02190166KALN2019-04-23T03:55:00Z38.88-90.0321.916.6260610.029.958662TRUETRUEVFRMETAR166.02019-04-23 04:05:57 È4a›ÈM§Ù()5   3KMPZ 230355Z AUTO 30013G20KT 10SM OVC016 13/11 A2997 RMK AO2KMPZ2019-04-23T03:55:00Z40.95-91.5213.011.0300132010.029.970472TRUETRUEMVFRMETAR224.02019-04-23 04:05:57@§Ù'(y5    3KMQJ 230355Z AUTO 16006KT 10SM CLR 16/11 A3002 RMK AO1KMQJ2019-04-23T03:55:00Z39.85-85.916.011.0160610.030.02067TRUETRUEVFRMETAR263.02019-04-23 04:05:57M§Ù&)5   3KMUT 230355Z AUTO 28014G20KT 10SM OVC015 14/10 A2994 RMK AO2KMUT2019-04-23T03:55:00Z41.37-91.1514.010.0280142010.029.940945TRUETRUEMVFRMETAR167.02019-04-23 04:05:57F§Ù%(5    3KMXO 230355Z AUTO 27015KT 10SM OVC006 13/13 A2988 RMK AO2KMXO2019-04-23T03:55:00Z42.22-91.1713.013.02701510.029.878937TRUETRUEIFRMETAR259.02019-04-23 04:05:57 Ò.g˜Ò@§Ù,(y5    3KMAN 230355Z AUTO 00000KT 10SM CLR 14/03 A3014 RMK A01KMAN2019-04-23T03:55:00Z43.58-116.5214.03.00010.030.138779TRUETRUEVFRMETAR774.02019-04-23 04:05:57I§Ù+)5     3KMBO 230355Z AUTO 00000KT 10SM CLR 17/12 A3011 RMK AO2 PWINOKMBO2019-04-23T03:55:00Z32.43-90.117.012.00010.030.109253TRUETRUETRUEVFRMETAR99.02019-04-23 04:05:57A§Ù*(5    3KMCJ 230355Z AUTO 00000KT 10SM SCT036 21/18 A3004 RMK A01KMCJ2019-04-23T03:55:00Z29.72-95.421.018.00010.030.041338TRUETRUEVFRMETAR69.02019-04-23 04:05:57L§Ù)) 5    3KMOP 230355Z AUTO 14008KT 10SM CLR 19/08 A2986 RMK AO2 T01850081KMOP2019-04-23T03:55:00Z43.62-84.7318.58.1140810.029.861221TRUETRUEVFRMETAR230.02019-04-23 04:05:57 É;jŽÉ?§Ù0(y5    3KLUX 230355Z AUTO 00000KT 10SM CLR 15/11 A3014 RMK AO2KLUX2019-04-23T03:55:00Z34.5-81.9515.011.00010.030.138779TRUETRUEVFRMETAR213.02019-04-23 04:05:57V§Ù/)!5    3KLWA 230355Z AUTO 17007KT 10SM BKN090 BKN110 19/09 A2988 RMK AO2 T01900089KLWA2019-04-23T03:55:00Z42.35-86.2519.08.9170710.029.878937TRUETRUEVFRMETAR203.02019-04-23 04:05:57K§Ù.) 5    3KM21 230355Z AUTO 00000KT 10SM CLR 14/10 A3005 RMK AO2 T01390102KM212019-04-23T03:55:00Z37.22-87.1513.910.20010.030.050198TRUETRUEVFRMETAR129.02019-04-23 04:05:57?§Ù-(y5    3KM40 230355Z AUTO 00000KT 10SM CLR 14/14 A3013 RMK AO2KM402019-04-23T03:55:00Z33.87-88.4814.014.00010.030.129921TRUETRUEVFRMETAR69.02019-04-23 04:05:57 Õ+gÕB§Ù4(y5    3KL08 230355Z AUTO 33006KT 10SM CLR 24/04 A2987 RMK AO2KL082019-04-23T03:55:00Z33.27-116.3224.04.0330610.029.870079TRUETRUEVFRMETAR159.02019-04-23 04:05:57D§Ù3(}5     3KL52 230355Z AUTO 12005KT 5SM BR CLR 12/10 A3001 RMK A01KL522019-04-23T03:55:00Z35.1-120.6212.010.012055.030.008858TRUETRUEBRMVFRMETAR4.02019-04-23 04:05:57>§Ù2(y5    3KLBE 230355Z AUTO 00000KT 10SM CLR 10/07 A3012 RMK AO2KLBE2019-04-23T03:55:00Z40.27-79.410.07.00010.030.121063TRUETRUEVFRMETAR361.02019-04-23 04:05:57O§Ù1)5    3KLMO 230355Z AUTO 00000KT 10SM OVC027 08/04 A3028 RMK AO2 T00830035KLMO2019-04-23T03:55:00Z40.17-105.178.33.50010.030.280512TRUETRUEMVFRMETAR1541.02019-04-23 04:05:57 Þ8x¢Þ>§Ù8(y5    3KJVW 230355Z AUTO 00000KT 10SM CLR 15/15 A3011 RMK AO2KJVW2019-04-23T03:55:00Z32.3-90.4215.015.00010.030.109253TRUETRUEVFRMETAR76.02019-04-23 04:05:57P§Ù7)5    3KJXI 230355Z AUTO 15006KT 10SM OVC003 21/15 A3005 RMK AO2 T02050147KJXI2019-04-23T03:55:00Z32.7-94.9520.514.7150610.030.050198TRUETRUELIFRMETAR127.02019-04-23 04:05:57:§Ù6(w5    3KJZI 230355Z AUTO 00000KT 9SM CLR 14/13 A3017 RMK AO2KJZI2019-04-23T03:55:00Z32.7-80.014.013.0009.030.171259TRUETRUEVFRMETAR6.02019-04-23 04:05:57B§Ù5(y5    3KKY8 230355Z AUTO 16004KT 10SM CLR 16/13 A3004 RMK A01KKY82019-04-23T03:55:00Z37.95-86.8716.013.0160410.030.041338TRUETRUEVFRMETAR126.02019-04-23 04:05:57 Ú&bÚ/§Ù<(c5    3KJFX 230355Z AUTO 13/13 A3014 RMK AO2 PWINOKJFX2019-04-23T03:55:00Z33.9-87.3213.013.030.138779TRUETRUETRUEMETAR148.02019-04-23 04:05:57M§Ù;) 5    3KJHN 230355Z AUTO 01006KT 10SM CLR 12/04 A3018 RMK AO2 T01200040KJHN2019-04-23T03:55:00Z37.58-101.7312.04.010610.030.180119TRUETRUEVFRMETAR1013.02019-04-23 04:05:57>§Ù:(y5    3KJMR 230355Z AUTO 00000KT 10SM CLR 02/00 A3014 RMK AO2KJMR2019-04-23T03:55:00Z45.88-93.272.00.00010.030.138779TRUETRUEVFRMETAR309.02019-04-23 04:05:57T§Ù9)5    3KJVL 230355Z AUTO 19005KT 10SM SCT070 SCT085 BKN100 17/16 A2978 RMK AO2KJVL2019-04-23T03:55:00Z42.62-89.0517.016.0190510.029.778543TRUETRUEVFRMETAR246.02019-04-23 04:05:57 ¸,ZŽ¸P§Ù@)5    3KIIB 230355Z AUTO 30014KT 10SM OVC008 11/10 A2993 RMK AO2 T01050097KIIB2019-04-23T03:55:00Z42.45-91.9510.59.73001410.029.929134TRUETRUEIFRMETAR298.02019-04-23 04:05:57F§Ù?(5    3KIKV 230355Z AUTO 32014KT 10SM OVC013 10/07 A3004 RMK AO2KIKV2019-04-23T03:55:00Z41.68-93.5710.07.03201410.030.041338TRUETRUEMVFRMETAR275.02019-04-23 04:05:57L§Ù>) 5    3KIKW 230355Z AUTO 16009KT 10SM CLR 18/08 A2990 RMK AO2 T01760076KIKW2019-04-23T03:55:00Z43.67-84.2717.67.6160910.029.899607TRUETRUEVFRMETAR194.02019-04-23 04:05:57N§Ù=)5    3KIRS 230355Z AUTO 17007KT 10SM SCT120 18/09 A2995 RMK AO2 T01780091KIRS2019-04-23T03:55:00Z41.8-85.4317.89.1170710.029.949802TRUETRUEVFRMETAR282.02019-04-23 04:05:57 Ì.\—́E§ÙD)5    3KHZL 230355Z AUTO 33004KT 10SM CLR 12/04 A3011 RMK AO2 PNOKHZL2019-04-23T03:55:00Z40.98-76.012.04.0330410.030.109253TRUETRUEVFRMETAR489.02019-04-23 04:05:57?§ÙC(y5    3KI67 230355Z AUTO 00000KT 10SM CLR 15/07 A3004 RMK AO1KI672019-04-23T03:55:00Z39.25-84.7815.07.00010.030.041338TRUETRUEVFRMETAR178.02019-04-23 04:05:57L§ÙB) 5    3KI68 230355Z AUTO 14006KT 10SM CLR 15/07 A3006 RMK AO1 T01530067KI682019-04-23T03:55:00Z39.47-84.2515.36.7140610.030.059055TRUETRUEVFRMETAR274.02019-04-23 04:05:57L§ÙA) 5    3KI69 230355Z AUTO 19003KT 10SM CLR 17/06 A3007 RMK AO2 T01700057KI692019-04-23T03:55:00Z39.08-84.2217.05.7190310.030.070866TRUETRUEVFRMETAR255.02019-04-23 04:05:57 ½9K½<§ÙH(w5    3KHEG 230355Z AUTO 00000KT 9SM CLR 13/10 A3017 RMK AO2KHEG2019-04-23T03:55:00Z30.28-81.813.010.0009.030.171259TRUETRUEVFRMETAR27.02019-04-23 04:05:57F§ÙG(5    3KHNR 230355Z AUTO 35012KT 10SM OVC011 10/08 A3009 RMK AO2KHNR2019-04-23T03:55:00Z41.58-95.3310.08.03501210.030.088583TRUETRUEMVFRMETAR375.02019-04-23 04:05:57h§ÙF);5   3KHOB 230355Z AUTO 05013G19KT 10SM SCT012 BKN033 OVC110 14/12 A3003 RMK AO2 LTG DSNT S-WKHOB2019-04-23T03:55:00Z32.67-103.2214.012.050131910.030.029528TRUETRUEVFRMETAR1115.02019-04-23 04:05:57A§ÙE({5    3KHZE 230355Z AUTO 00000KT 10SM CLR 03/M01 A3016 RMK AO2KHZE2019-04-23T03:55:00Z47.28-101.583.0-1.00010.030.159449TRUETRUEVFRMETAR553.02019-04-23 04:05:57 Ñ,m‘с:§ÙL(y5    3KGPC 230355Z AUTO 00000KT 10SM CLR 20/08 A3000 RMK AO2KGPC2019-04-23T03:55:00Z39.63-86.8220.08.00010.030.0TRUETRUEVFRMETAR257.02019-04-23 04:05:57V§ÙK)5    3KGPI 230355Z 22006KT 10SM OVC070 15/M01 A3004 RMK AO2 SLP172 T01501006KGPI2019-04-23T03:55:00Z48.32-114.2515.0-0.6220610.030.0413381017.2TRUEVFRMETAR908.02019-04-23 04:05:579§ÙJ(q5   3KGWR 230355Z AUTO 36004KT 10SM 10/06 A3015 RMK A01KGWR2019-04-23T03:55:00Z46.22-97.6510.06.0360410.030.15059TRUETRUEMETAR386.02019-04-23 04:05:57N§ÙI)5    3KHAI 230355Z AUTO 17007KT 10SM SCT120 17/08 A2994 RMK AO2 T01710080KHAI2019-04-23T03:55:00Z41.97-85.617.18.0170710.029.940945TRUETRUEVFRMETAR251.02019-04-23 04:05:57 ½'d”½Q§ÙP)5    3KGCD 230355Z AUTO 20003KT 10SM SCT090 14/05 A3023 RMK AO2 T01440048KGCD2019-04-23T03:55:00Z44.38-118.9714.44.8200310.030.230314TRUETRUEVFRMETAR1127.02019-04-23 04:05:57J§ÙO) 5    3KGDB 230355Z AUTO 04006KT 10SM CLR 07/04 A3016 RMK AO2 T00690040KGDB2019-04-23T03:55:00Z44.75-95.556.94.040610.030.159449TRUETRUEVFRMETAR319.02019-04-23 04:05:57=§ÙN(y5    3KGHW 230355Z AUTO 00000KT 10SM CLR 05/03 A3015 RMK AO2KGHW2019-04-23T03:55:00Z45.63-95.325.03.00010.030.15059TRUETRUEVFRMETAR425.02019-04-23 04:05:57S§ÙM)!5    3KGNT 230355Z AUTO 00000KT 10SM SCT085 BKN110 06/05 A3015 RMK AO2 T00590045KGNT2019-04-23T03:55:00Z35.17-107.95.94.50010.030.15059TRUETRUEVFRMETAR1987.02019-04-23 04:05:57 Á0]†Á?§ÙT(y5    3KBOW 230355Z AUTO 00000KT 10SM CLR 17/12 A3014 RMK AO2KBOW2019-04-23T03:55:00Z27.93-81.7717.012.00010.030.138779TRUETRUEVFRMETAR39.02019-04-23 04:05:57Q§ÙS)5    3KBRG 230355Z AUTO 12006KT 10SM SCT110 11/06 A3009 RMK AO2 T01050057KBRG2019-04-23T03:55:00Z34.65-106.8310.55.7120610.030.088583TRUETRUEVFRMETAR1585.02019-04-23 04:05:57M§ÙR)5   3KFSW 230355Z AUTO 29010G18KT 10SM OVC017 14/11 A2997 RMK AO2KFSW2019-04-23T03:55:00Z40.67-91.3214.011.0290101810.029.970472TRUETRUEMVFRMETAR221.02019-04-23 04:05:57J§ÙQ)5   3KFXY 230355Z AUTO 36019G23KT 10SM OVC008 07/07 A3004 RMK AO2KFXY2019-04-23T03:55:00Z43.23-93.627.07.0360192310.030.041338TRUETRUEIFRMETAR375.02019-04-23 04:05:57 Ó/j˜Ó?§ÙX(y5    3KBDH 230355Z AUTO 06006KT 10SM CLR 05/02 A3016 RMK AO2KBDH2019-04-23T03:55:00Z45.12-95.135.02.060610.030.159449TRUETRUEVFRMETAR247.02019-04-23 04:05:57L§ÙW) 5    3KBDN 230355Z AUTO 35004KT 10SM BKN055 BKN065 16/05 A3025 RMK AO2KBDN2019-04-23T03:55:00Z44.1-121.216.05.0350410.030.250984TRUETRUEVFRMETAR1055.02019-04-23 04:05:57?§ÙV(y5    3KBNL 230355Z AUTO 00000KT 10SM CLR 14/12 A3014 RMK AO2KBNL2019-04-23T03:55:00Z33.25-81.3814.012.00010.030.138779TRUETRUEVFRMETAR75.02019-04-23 04:05:57K§ÙU)5   3KBNW 230355Z AUTO 34014G19KT 10SM OVC010 08/08 A3003 RMK AO2KBNW2019-04-23T03:55:00Z42.03-93.838.08.0340141910.030.029528TRUETRUEMVFRMETAR354.02019-04-23 04:05:57 É;uœÉM§Ù\)5   3KAWG 230355Z AUTO 29016G23KT 10SM OVC015 12/11 A2997 RMK AO2KAWG2019-04-23T03:55:00Z41.27-91.6712.011.0290162310.029.970472TRUETRUEMVFRMETAR230.02019-04-23 04:05:57S§Ù[)5    3KAXA 230355Z AUTO 01013G21KT 10SM OVC009 08/07 A3005 RMK AO2 PWINOKAXA2019-04-23T03:55:00Z43.07-94.278.07.010132110.030.050198TRUETRUETRUEIFRMETAR372.02019-04-23 04:05:57@§ÙZ(y5    3KBAC 230355Z AUTO 34003KT 10SM CLR 09/01 A3017 RMK AO2KBAC2019-04-23T03:55:00Z46.93-98.029.01.0340310.030.171259TRUETRUEVFRMETAR427.02019-04-23 04:05:57?§ÙY(y5    3KBBP 230355Z AUTO 00000KT 10SM CLR 12/11 A3014 RMK AO2KBBP2019-04-23T03:55:00Z34.62-79.7312.011.00010.030.138779TRUETRUEVFRMETAR45.02019-04-23 04:05:57 ¦<w¦K§Ù`) 5    3KAPS 230355Z AUTO 16004KT 10SM CLR 19/14 A3014 RMK AO2 T01890138KAPS2019-04-23T03:55:00Z30.08-90.5818.913.8160410.030.138779TRUETRUEVFRMETAR2.02019-04-23 04:05:57?§Ù_(y5    3KAQX 230355Z AUTO 00000KT 10SM CLR 16/13 A3014 RMK AO2KAQX2019-04-23T03:55:00Z32.98-81.2716.013.00010.030.138779TRUETRUEVFRMETAR49.02019-04-23 04:05:57@§Ù^(y5    3KARW 230355Z AUTO 19003KT 10SM CLR 15/13 A3016 RMK AO2KARW2019-04-23T03:55:00Z32.42-80.6315.013.0190310.030.159449TRUETRUEVFRMETAR4.02019-04-23 04:05:57x§Ù])O5      3KATS 230355Z AUTO 34003KT 2SM -TSRA SCT003 BKN017 OVC029 14/14 A3008 RMK AO2 LTG DSNT ALQDS P0015KATS2019-04-23T03:55:00Z32.85-104.4714.014.034032.030.079725TRUETRUE-TSRAIFR0.15METAR1081.02019-04-23 04:05:57 Í;tŸÍL§Ùd)5   3KAIO 230355Z AUTO 35009G14KT 10SM OVC012 10/10 A3009 RMK AO2KAIO2019-04-23T03:55:00Z41.38-95.0310.010.035091410.030.088583TRUETRUEMVFRMETAR360.02019-04-23 04:05:57O§Ùc)5    3KAJZ 230355Z AUTO 09007KT 10SM CLR 15/M01 A3005 RMK AO2 T01501006KAJZ2019-04-23T03:55:00Z38.78-108.0715.0-0.690710.030.050198TRUETRUEVFRMETAR1583.02019-04-23 04:05:57A§Ùb(5    3KALM 230355Z AUTO 34005KT 10SM BKN120 13/08 A3000 RMK AO2KALM2019-04-23T03:55:00Z32.82-105.9713.08.0340510.030.0TRUETRUEVFRMETAR1279.02019-04-23 04:05:57?§Ùa(y5    3KANE 230355Z AUTO 01006KT 10SM CLR 06/05 A3011 RMK AO2KANE2019-04-23T03:55:00Z45.15-93.226.05.010610.030.109253TRUETRUEVFRMETAR278.02019-04-23 04:05:57 Á:R‰ÁB§Ùh(5    3KTPF 230355Z AUTO 06005KT 10SM OVC100 19/14 A3016 RMK AO2KTPF2019-04-23T03:55:00Z27.92-82.4519.014.060510.030.159449TRUETRUEVFRMETAR3.02019-04-23 04:05:57C§Ùg(y5    3KTSP 230355Z AUTO 24004KT 10SM CLR 12/04 A3012 RMK AO2KTSP2019-04-23T03:55:00Z35.13-118.4312.04.0240410.030.121063TRUETRUEVFRMETAR1220.02019-04-23 04:05:57b§Ùf)95    3KAID 230355Z AUTO 19009KT 10SM SCT100 SCT120 18/08 A3001 RMK AO2 LTG DSNT NE T01810076KAID2019-04-23T03:55:00Z40.12-85.6218.17.6190910.030.008858TRUETRUEVFRMETAR280.02019-04-23 04:05:57@§Ùe(y5    3KAIK 230355Z AUTO 00000KT 10SM CLR 13/11 A3017 RMK AO2KAIK2019-04-23T03:55:00Z33.65-81.6813.011.00010.030.171259TRUETRUEVFRMETAR161.02019-04-23 04:05:57 Å1_ŠÅ?§Ùl(w5    3KTKX 230355Z AUTO 20007KT 8SM CLR 18/13 A3004 RMK AO2KTKX2019-04-23T03:55:00Z36.22-90.0218.013.020078.030.041338TRUETRUEVFRMETAR80.02019-04-23 04:05:57O§Ùk)5    3KTME 230355Z AUTO 13007KT 9SM SCT026 BKN032 OVC038 21/19 A3006 RMK AO2KTME2019-04-23T03:55:00Z29.8-95.921.019.013079.030.059055TRUETRUEVFRMETAR51.02019-04-23 04:05:57L§Ùj)5   3KTNU 230355Z AUTO 30013G21KT 10SM OVC011 10/09 A3001 RMK AO2KTNU2019-04-23T03:55:00Z41.67-93.0210.09.0300132110.030.008858TRUETRUEMVFRMETAR290.02019-04-23 04:05:57I§Ùi)5   3KTOB 230355Z AUTO 36014G20KT 10SM OVC007 06/06 A3002 RMK AO2KTOB2019-04-23T03:55:00Z44.02-92.826.06.0360142010.030.02067TRUETRUEIFRMETAR398.02019-04-23 04:05:57 ½'b…½B§Ùp(y5    3KSUZ 230355Z AUTO 22004KT 10SM CLR 19/13 A3008 RMK A01KSUZ2019-04-23T03:55:00Z34.58-92.4819.013.0220410.030.079725TRUETRUEVFRMETAR119.02019-04-23 04:05:57W§Ùo)!5    3KSVC 230355Z AUTO 31007KT 10SM SCT100 SCT120 10/06 A3009 RMK AO2 T00950058KSVC2019-04-23T03:55:00Z32.63-108.159.55.8310710.030.088583TRUETRUEVFRMETAR1659.02019-04-23 04:05:57?§Ùn(y5    3KSYM 230355Z AUTO 00000KT 10SM CLR 17/04 A3011 RMK AO2KSYM2019-04-23T03:55:00Z38.22-83.5817.04.00010.030.109253TRUETRUEVFRMETAR313.02019-04-23 04:05:57S§Ùm)5     3KTKC 230355Z AUTO 01006KT 10SM CLR 06/04 A3014 RMK AO2 T00640042 TSNOKTKC2019-04-23T03:55:00Z44.25-95.626.44.210610.030.138779TRUETRUETRUEVFRMETAR408.02019-04-23 04:05:57 ´;K‚´H§Ùt)5    3KSOW 230355Z AUTO 20007KT 10SM BKN095 11/M04 A3006 RMK A01KSOW2019-04-23T03:55:00Z34.27-110.011.0-4.0200710.030.059055TRUETRUEVFRMETAR1954.02019-04-23 04:05:57C§Ùs(y5    3KSPF 230355Z AUTO 19010KT 10SM CLR 07/02 A3021 RMK AO2KSPF2019-04-23T03:55:00Z44.47-103.777.02.01901010.030.209646TRUETRUEVFRMETAR1188.02019-04-23 04:05:57j§Ùr)95     3KSRR 230355Z AUTO 35008G19KT 2 1/2SM RA FEW005 BKN021 OVC028 05/05 A3020 RMK AO2 P0028KSRR2019-04-23T03:55:00Z33.47-105.525.05.03508192.530.200787TRUETRUERAIFR0.28METAR2076.02019-04-23 04:05:57?§Ùq(y5    3KSUA 230355Z AUTO 06004KT 10SM CLR 21/13 A3014 RMK AO2KSUA2019-04-23T03:55:00Z27.18-80.2221.013.060410.030.138779TRUETRUEVFRMETAR6.02019-04-23 04:05:57 µ"_–µ[§Ùx)/5    3KSJX 230355Z AUTO 36005KT 10SM BKN055 BKN065 OVC100 07/06 A2991 RMK AO2 T00650056KSJX2019-04-23T03:55:00Z45.7-85.576.55.6360510.029.911417TRUETRUEVFRMETAR204.02019-04-23 04:05:57C§Ùw(5    3KSLB 230355Z AUTO 01017KT 10SM OVC010 07/07 A3007 RMK AO2KSLB2019-04-23T03:55:00Z42.6-95.227.07.0101710.030.070866TRUETRUEMVFRMETAR454.02019-04-23 04:05:57=§Ùv(y5    3KSMS 230355Z AUTO 00000KT 10SM CLR 13/12 A3015 RMK AO2KSMS2019-04-23T03:55:00Z34.0-80.3713.012.00010.030.15059TRUETRUEVFRMETAR56.02019-04-23 04:05:57X§Ùu)!5     3KSNC 230355Z AUTO 36009KT 6SM -RA FEW031 FEW037 OVC047 13/12 A2995 RMK AO2KSNC2019-04-23T03:55:00Z41.38-72.513.012.036096.029.949802TRUETRUE-RAVFRMETAR127.02019-04-23 04:05:57 »;i‹»J§Ù|) 5    3KASL 230355Z AUTO 00000KT 10SM CLR 18/16 A3008 RMK AO1 T01830155KASL2019-04-23T03:55:00Z32.52-94.318.315.50010.030.079725TRUETRUEVFRMETAR109.02019-04-23 04:05:57X§Ù{)95   3ORBD 230355Z 35005KT 9999 FEW010 FEW080 12/09 A3004 RMK FU FEW010 WND DATA ALSTG ESTMDORBD2019-04-23T03:55:00Z33.9344.3712.09.035056.2130.041338VFRMETAR49.02019-04-23 04:05:57L§Ùz)5    3KANW 230355Z AUTO 00000KT 10SM SCT100 07/01 A3019 RMK AO2 T00720012KANW2019-04-23T03:55:00Z42.57-100.07.21.20010.030.188976TRUETRUEVFRMETAR789.02019-04-23 04:05:57?§Ùy(y5    3KAQR 230355Z AUTO 00000KT 10SM CLR 18/17 A3005 RMK AO2KAQR2019-04-23T03:55:00Z34.4-96.1518.017.00010.030.050198TRUETRUEVFRMETAR189.02019-04-23 04:05:57 §&9l§?§Ú(y5    3KCQW 230355Z AUTO 00000KT 10SM CLR 13/10 A3013 RMK AO2KCQW2019-04-23T03:55:00Z34.72-79.9513.010.00010.030.129921TRUETRUEVFRMETAR73.02019-04-23 04:05:57G§Ù(5    3KCSQ 230355Z AUTO 32010KT 10SM OVC013 10/10 A3007 RMK AO2KCSQ2019-04-23T03:55:00Z41.02-94.3710.010.03201010.030.070866TRUETRUEMVFRMETAR394.02019-04-23 04:05:57g§Ù~)-5     3KPDC 230355Z AUTO 32011G14KT 10SM -DZ OVC009 12/12 A2988 RMK AO2 P0001 T01200115KPDC2019-04-23T03:55:00Z43.02-91.1212.011.5320111410.029.878937TRUETRUE-DZIFR0.01METAR201.02019-04-23 04:05:57T§Ù})5   3KPEA 230355Z AUTO 30011G18KT 10SM OVC015 11/08 A3002 RMK AO2 T01050076KPEA2019-04-23T03:55:00Z41.4-92.9510.57.6300111810.030.02067TRUETRUEMVFRMETAR270.02019-04-23 04:05:57 ·.O‰·L§Ú) 5    3KCLS 230355Z AUTO 19005KT 8SM FEW010 OVC030 12/12 A3024 RMK AO2KCLS2019-04-23T03:55:00Z46.68-122.9812.012.019058.030.239174TRUETRUEMVFRMETAR54.02019-04-23 04:05:57@§Ú(y5    3KCLW 230355Z AUTO 36004KT 10SM CLR 18/13 A3015 RMK AO2KCLW2019-04-23T03:55:00Z27.98-82.7518.013.0360410.030.15059TRUETRUEVFRMETAR22.02019-04-23 04:05:57Y§Ú)#5   3KCMR 230355Z AUTO 12004G12KT 10SM FEW031 SCT043 BKN070 08/M02 A3010 RMK AO2KCMR2019-04-23T03:55:00Z35.3-112.28.0-2.012041210.030.100393TRUETRUEVFRMETAR2036.02019-04-23 04:05:57L§Ú)5   3KCNC 230355Z AUTO 31010G18KT 10SM OVC013 11/09 A3004 RMK AO2KCNC2019-04-23T03:55:00Z41.02-93.3711.09.0310101810.030.041338TRUETRUEMVFRMETAR320.02019-04-23 04:05:57 ¼W¼K§Ú)5   3KCIN 230355Z AUTO 35015G22KT 10SM OVC010 08/08 A3007 RMK AO2KCIN2019-04-23T03:55:00Z42.03-94.778.08.0350152210.030.070866TRUETRUEMVFRMETAR375.02019-04-23 04:05:57D§Ú(}5    3KCKC 230355Z AUTO 34004KT 10SM CLR M01/M04 A3010 RMK AO2KCKC2019-04-23T03:55:00Z47.83-90.37-1.0-4.0340410.030.100393TRUETRUEVFRMETAR548.02019-04-23 04:05:57A§Ú(y5    3KCKZ 230355Z AUTO 33006KT 10SM CLR 15/08 A3005 RMK AO2KCKZ2019-04-23T03:55:00Z40.38-75.2815.08.0330610.030.050198TRUETRUEVFRMETAR173.02019-04-23 04:05:57\§Ú)%5      3KCLI 230355Z AUTO 03009KT 10SM RA OVC007 07/05 A2991 RMK AO2 P0011 T00670051KCLI2019-04-23T03:55:00Z44.62-88.736.75.130910.029.911417TRUETRUERAIFR0.11METAR250.02019-04-23 04:05:57 ß>z¤ß?§Ú (y5    3KCDN 230355Z AUTO 00000KT 10SM CLR 13/10 A3014 RMK AO2KCDN2019-04-23T03:55:00Z34.28-80.5713.010.00010.030.138779TRUETRUEVFRMETAR92.02019-04-23 04:05:57P§Ú )5    3KCFJ 230355Z AUTO 17007KT 10SM SCT080 17/10 A2997 RMK AO2 T01660102KCFJ2019-04-23T03:55:00Z39.98-86.9216.610.2170710.029.970472TRUETRUEVFRMETAR244.02019-04-23 04:05:57>§Ú (y5    3KCGC 230355Z AUTO 00000KT 10SM CLR 13/11 A3016 RMK AO2KCGC2019-04-23T03:55:00Z28.87-82.5713.011.00010.030.159449TRUETRUEVFRMETAR3.02019-04-23 04:05:57<§Ú (y5    3KCIC 230355Z AUTO 35009KT 10SM CLR 24/05 A3000 RMK AO1KCIC2019-04-23T03:55:00Z39.78-121.8324.05.0350910.030.0TRUETRUEVFRMETAR73.02019-04-23 04:05:57 Ë1\“ˁB§Ú({5    3KCBG 230355Z AUTO 33003KT 10SM CLR 03/M01 A3012 RMK AO2KCBG2019-04-23T03:55:00Z45.57-93.273.0-1.0330310.030.121063TRUETRUEVFRMETAR287.02019-04-23 04:05:57C§Ú(5    3KCCY 230355Z AUTO 33014KT 10SM OVC008 08/07 A2998 RMK AO2KCCY2019-04-23T03:55:00Z43.07-92.628.07.03301410.029.97933TRUETRUEIFRMETAR343.02019-04-23 04:05:57O§Ú)5    3KCDA 230355Z AUTO 30004KT 10SM BKN110 12/05 A3009 RMK AO2 T01240050KCDA2019-04-23T03:55:00Z44.57-72.0212.45.0300410.030.088583TRUETRUEVFRMETAR363.02019-04-23 04:05:57I§Ú ) 5    3KCDI 230355Z AUTO 00000KT 10SM CLR 09/08 A3010 RMK AO2 T00900078KCDI2019-04-23T03:55:00Z39.97-81.589.07.80010.030.100393TRUETRUEVFRMETAR244.02019-04-23 04:05:57 »4Z…»D§Ú({5    3KBXK 230355Z AUTO 24003KT 10SM CLR 22/M03 A2982 RMK AO1KBXK2019-04-23T03:55:00Z33.42-112.6822.0-3.0240310.029.819881TRUETRUEVFRMETAR315.02019-04-23 04:05:57O§Ú)5    3KCAD 230355Z AUTO 17006KT 10SM SCT110 18/07 A2984 RMK AO2 T01880072KCAD2019-04-23T03:55:00Z44.27-85.4218.87.2170610.029.840551TRUETRUEVFRMETAR398.02019-04-23 04:05:57T§Ú)5    3KCAV 230355Z AUTO 35012G18KT 10SM OVC007 08/07 A3004 RMK AO2 PWINOKCAV2019-04-23T03:55:00Z42.75-93.778.07.0350121810.030.041338TRUETRUETRUEIFRMETAR354.02019-04-23 04:05:57F§Ú(5    3KCBF 230355Z AUTO 34008KT 10SM OVC011 10/10 A3011 RMK AO2KCBF2019-04-23T03:55:00Z41.27-95.7710.010.0340810.030.109253TRUETRUEMVFRMETAR382.02019-04-23 04:05:57 ¹8q¹@§Ú(y5    3KFRH 230355Z AUTO 20003KT 10SM CLR 18/08 A3004 RMK AO1KFRH2019-04-23T03:55:00Z38.5-86.6318.08.0200310.030.041338TRUETRUEVFRMETAR241.02019-04-23 04:05:57l§Ú)A5      3KBUU 230355Z AUTO 27007KT 7SM -RA SCT023 BKN046 OVC055 17/14 A2979 RMK AO2 P0003 T01690138KBUU2019-04-23T03:55:00Z42.68-88.316.913.827077.029.790354TRUETRUE-RAVFR0.03METAR237.02019-04-23 04:05:57A§Ú(y5    3KBVU 230355Z AUTO 02005KT 10SM CLR 20/03 A2993 RMK AO2KBVU2019-04-23T03:55:00Z35.95-114.8720.03.020510.029.929134TRUETRUEVFRMETAR671.02019-04-23 04:05:57B§Ú({5    3KBWW 230355Z AUTO 20007KT 10SM CLR 09/M01 A3004 RMK AO2KBWW2019-04-23T03:55:00Z46.17-103.39.0-1.0200710.030.041338TRUETRUEVFRMETAR910.02019-04-23 04:05:57 ÁTÁH§Ú) 5    3KFIN 230355Z AUTO 00000KT 10SM CLR 14/12 A3015 RMK AO2 T01400121KFIN2019-04-23T03:55:00Z29.47-81.214.012.10010.030.15059TRUETRUEVFRMETAR10.02019-04-23 04:05:57?§Ú(}5     3KFMH 230355Z 35007KT 1/2SM FG OVC003 08/08 A2990 RMK AO2KFMH2019-04-23T03:55:00Z41.63-70.528.08.035070.529.899607TRUEFGLIFRMETAR40.02019-04-23 04:05:57D§Ú)5   3KFMM 230355Z AUTO 03003KT 10SM 06/01 A3026 RMK AO2 T00600009KFMM2019-04-23T03:55:00Z40.33-103.86.00.930310.030.259842TRUETRUEMETAR1393.02019-04-23 04:05:57\§Ú)'5   3KFPK 230355Z AUTO 17013G19KT 10SM SCT100 BKN120 18/09 A2992 RMK AO2 T01800087KFPK2019-04-23T03:55:00Z42.57-84.8218.08.7170131910.029.920275TRUETRUEVFRMETAR272.02019-04-23 04:05:57 Â$^†Â>§Ú (y5    3KDYT 230355Z AUTO 00000KT 10SM CLR 02/00 A3013 RMK AO2KDYT2019-04-23T03:55:00Z46.72-92.032.00.00010.030.129921TRUETRUEVFRMETAR186.02019-04-23 04:05:57R§Ú)5   3KEGV 230355Z AUTO 02009G17KT 10SM OVC005 03/03 A2999 RMK AO2 T00270027KEGV2019-04-23T03:55:00Z45.93-89.272.72.72091710.029.991142TRUETRUEIFRMETAR500.02019-04-23 04:05:57@§Ú({5    3KELO 230355Z AUTO 00000KT 10SM CLR 01/M02 A3012 RMK AO2KELO2019-04-23T03:55:00Z47.82-91.821.0-2.00010.030.121063TRUETRUEVFRMETAR443.02019-04-23 04:05:57V§Ú)5    3KFFL 230355Z AUTO 30012G19KT 10SM OVC015 12/09 A2997 RMK AO2 PWINOKFFL2019-04-23T03:55:00Z41.03-91.9712.09.0300121910.029.970472TRUETRUETRUEMVFRMETAR244.02019-04-23 04:05:57 ³/i¢³i§Ú$)95     3KDLL 230355Z AUTO 04012G18KT 7SM -RA BKN008 OVC012 09/08 A2986 RMK AO2 P0004 T00930084KDLL2019-04-23T03:55:00Z43.52-89.779.38.44012187.029.861221TRUETRUE-RAIFR0.04METAR299.02019-04-23 04:05:57A§Ú#(y5    3KDLZ 230355Z AUTO 16003KT 10SM CLR 15/08 A3007 RMK AO2KDLZ2019-04-23T03:55:00Z40.28-83.1215.08.0160310.030.070866TRUETRUEVFRMETAR289.02019-04-23 04:05:57@§Ú"(y5    3KDNA 230355Z AUTO 03007KT 10SM CLR 14/08 A2998 RMK AO2KDNA2019-04-23T03:55:00Z31.88-106.714.08.030710.029.97933TRUETRUEVFRMETAR1253.02019-04-23 04:05:57K§Ú!)5   3KDNS 230355Z AUTO 35011G20KT 10SM OVC011 08/07 A3012 RMK AO2KDNS2019-04-23T03:55:00Z41.97-95.378.07.0350112010.030.121063TRUETRUEMVFRMETAR388.02019-04-23 04:05:57 ¶1aŒ¶P§Ú()5    3KNFG 230355Z 00000KT 7SM FEW030 13/12 A2996 RMK AO2 SLP145 T01280117KNFG2019-04-23T03:55:00Z33.28-117.3312.811.7007.029.9586621014.5TRUEVFRMETAR24.02019-04-23 04:05:57O§Ú') 5     3KOLZ 230355Z AUTO 32013KT 9SM OVC006 10/10 A2993 RMK AO2 PWINOKOLZ2019-04-23T03:55:00Z42.67-91.9710.010.0320139.029.929134TRUETRUETRUEIFRMETAR328.02019-04-23 04:05:57J§Ú&) 5    3KAUH 230355Z AUTO 33004KT 10SM CLR 06/05 A3017 RMK AO2 T00600050KAUH2019-04-23T03:55:00Z40.88-98.06.05.0330410.030.171259TRUETRUEVFRMETAR550.02019-04-23 04:05:57I§Ú%)5   3KDEH 230355Z AUTO 34009G15KT 10SM OVC007 09/09 A2991 RMK AO2KDEH2019-04-23T03:55:00Z43.27-91.729.09.034091510.029.911417TRUETRUEIFRMETAR353.02019-04-23 04:05:57 º#[‹ºK§Ú,) 5    3KRNP 230355Z AUTO 14009KT 10SM CLR 17/07 A2994 RMK AO2 T01700073KRNP2019-04-23T03:55:00Z43.0-84.1317.07.3140910.029.940945TRUETRUEVFRMETAR224.02019-04-23 04:05:57J§Ú+) 5    3KROS 230355Z AUTO 35003KT 10SM CLR 03/01 A3011 RMK AO2 T00260013KROS2019-04-23T03:55:00Z45.7-92.952.61.3350310.030.109253TRUETRUEVFRMETAR281.02019-04-23 04:05:57B§Ú*(5    3KRRT 230355Z AUTO 02007KT 10SM SCT075 09/03 A3014 RMK AO2KRRT2019-04-23T03:55:00Z48.93-95.339.03.020710.030.138779TRUETRUEVFRMETAR327.02019-04-23 04:05:57W§Ú))+5   3FJDG 230355Z 30007KT 9999 FEW019 FEW080 SCT250 30/26 A2980 RMK SLP088 T03010264FJDG2019-04-23T03:55:00Z-7.3272.4230.126.430076.2129.7992131008.8VFRMETAR3.02019-04-23 04:05:57 ±0j—±`§Ú0)!5    3KRSP 230354Z AUTO 33006KT 10SM CLR 13/07 A3010 RMK AO2 SLP198 T01330067 $ KRSP2019-04-23T03:54:00Z39.65-77.4713.36.7330610.030.1003931019.8TRUETRUETRUEVFRMETAR561.02019-04-23 04:05:57M§Ú/) 5    3KAXX 230355Z AUTO 20004KT 10SM -RA 00/00 A3027 RMK AO2 T00020000KAXX2019-04-23T03:55:00Z36.42-105.280.20.0200410.030.268702TRUETRUE-RAMETAR2548.02019-04-23 04:05:57@§Ú.(y5    3KAUN 230355Z AUTO 00000KT 10SM CLR 16/07 A3004 RMK A01KAUN2019-04-23T03:55:00Z38.95-121.0816.07.00010.030.041338TRUETRUEVFRMETAR467.02019-04-23 04:05:57J§Ú-) 5    3KRNH 230355Z AUTO 02008KT 10SM CLR 05/03 A3009 RMK AO2 T00480027KRNH2019-04-23T03:55:00Z45.15-92.534.82.720810.030.088583TRUETRUEVFRMETAR304.02019-04-23 04:05:57 S''SN§Ú4)5    3KNKT 230354Z 23005KT 10SM CLR 14/12 A3014 RMK AO2 SLP204 T01440117KNKT2019-04-23T03:54:00Z34.9-76.8814.411.7230510.030.1387791020.4TRUEVFRMETAR9.02019-04-23 04:05:57z§Ú3)O5     3KORH 230354Z 01012G19KT 6SM RA BR BKN005 BKN012 OVC033 12/11 A2995 RMK AO2 SLP143 P0006 T01170111KORH2019-04-23T03:54:00Z42.27-71.8711.711.11012196.029.9498021014.3TRUERA BRIFR0.06METAR304.02019-04-23 04:05:57q§Ú2)C5      3KPLN 230354Z AUTO 05005KT 10SM -RA SCT065 OVC085 08/06 A2990 RMK AO2 SLP127 P0006 T00830061KPLN2019-04-23T03:54:00Z45.57-84.88.36.150510.029.8996071012.7TRUETRUE-RAVFR0.06METAR217.02019-04-23 04:05:57\§Ú1)!5    3KLNK 230354Z AUTO 36009KT 10SM OVC019 11/07 A3015 RMK AO2 SLP209 T01060067KLNK2019-04-23T03:54:00Z40.85-96.7710.66.7360910.030.150591020.9TRUETRUEMVFRMETAR364.02019-04-23 04:05:57 œ>x˜œv§Ú8)S5     3PAKN 230354Z 25012KT 7SM FEW016 SCT021 OVC034 M04/M08 A2958 RMK AO2 SNB16E45 SLP019 P0000 T10391078PAKN2019-04-23T03:54:00Z58.68-156.65-3.9-7.8250127.029.580711001.9TRUEVFR0.005METAR17.02019-04-23 04:05:57Z§Ú7)5      3K04V 230354Z AUTO 00000KT 7SM -RA BKN019 OVC026 03/03 A3024 RMK AO2 P0002K04V2019-04-23T03:54:00Z38.1-106.173.03.0007.030.239174TRUETRUE-RAMVFR0.02METAR2385.02019-04-23 04:05:57@§Ú6(y5    3K20V 230354Z AUTO 00000KT 10SM CLR 04/01 A3024 RMK AO2K20V2019-04-23T03:54:00Z40.05-106.374.01.00010.030.239174TRUETRUEVFRMETAR2259.02019-04-23 04:05:57<§Ú5(y5   3K1V4 230354Z AUTO 14/06 A3005 RMK AO1 SLP169 T01390061K1V42019-04-23T03:54:00Z44.42-72.0213.96.130.0501981016.9TRUETRUEMETAR210.02019-04-23 04:05:57 'ßó'V§Ú<)5   3PHMK 230354Z 04014G24KT 10SM CLR 25/19 A3010 RMK AO2 SLP193 T02500189PHMK2019-04-23T03:54:00Z21.15-157.125.018.940142410.030.1003931019.3TRUEVFRMETAR141.02019-04-23 04:05:57j§Ú;)A5   3PHOG 230354Z 07017G26KT 10SM FEW040 27/18 A3007 RMK AO2 PK WND 06026/0352 SLP186 T02670183PHOG2019-04-23T03:54:00Z20.9-156.4326.718.370172610.030.0708661018.6TRUEVFRMETAR12.02019-04-23 04:05:57f§Ú:)95   3PGSN 230354Z 08014G18KT 10SM FEW022 BKN038 BKN050 31/23 A2989 RMK AO2 SLP144 T03060228PGSN2019-04-23T03:54:00Z15.12145.7230.622.880141810.029.8907471014.4TRUEVFRMETAR65.02019-04-23 04:05:57‚§Ú9)‚5      3PAHN 230354Z AUTO 12016G26KT 10SM -RA FEW050 BKN070 OVC095 04/01 A2977 RMK AO2 PK WND 14032/0326 SLP084 P0000 T00440006 TSNOPAHN2019-04-23T03:54:00Z59.25-135.524.40.6120162610.029.7696861008.4TRUETRUETRUE-RAVFR0.005METAR5.02019-04-23 04:05:57 ™I{™\§Ú@)5    3KBKB 230354Z AUTO 00000KT 10SM CLR 17/16 A3008 RMK AO2 SLP214 T01670156 $KBKB2019-04-23T03:54:00Z31.0-92.9216.715.60010.030.0797251021.4TRUETRUETRUEVFRMETAR94.02019-04-23 04:05:57H§Ú?) 5   3K12N 230354Z AUTO 00000KT 11/10 A3004 RMK AO1 SLP171 T01110100K12N2019-04-23T03:54:00Z41.02-74.7311.110.00030.0413381017.1TRUETRUEMETAR177.02019-04-23 04:05:57F§Ú>) 5   3KMTP 230354Z AUTO 01006KT 11/09 A2993 RMK AO1 SLP134 T01110089KMTP2019-04-23T03:54:00Z41.07-71.9211.18.910629.9291341013.4TRUETRUEMETAR2.02019-04-23 04:05:57e§Ú=)95   3PGUM 230354Z 09014G23KT 10SM FEW023 SCT033 SCT050 29/23 A2989 RMK AO2 SLP113 T02940228PGUM2019-04-23T03:54:00Z13.48144.829.422.890142310.029.8907471011.3TRUEVFRMETAR91.02019-04-23 04:05:57 N9Ne§ÚD)15    3KUIN 230354Z AUTO 29012KT 10SM CLR 17/12 A2997 RMK AO2 WSHFT 0256 SLP144 T01720117KUIN2019-04-23T03:54:00Z39.95-91.217.211.72901210.029.9704721014.4TRUETRUEVFRMETAR234.02019-04-23 04:05:57_§ÚC)%5    3KPNE 230354Z AUTO 00000KT 10SM BKN085 15/09 A3005 RMK AO2 SLP174 T01500089 $KPNE2019-04-23T03:54:00Z40.08-75.0215.08.90010.030.0501981017.4TRUETRUETRUEVFRMETAR28.02019-04-23 04:05:57x§ÚB)[5     3KPSF 230354Z AUTO 00000KT 10SM BKN027 BKN034 OVC048 13/11 A3000 RMK AO2 RAB02E17 SLP142 P0001 T01330111KPSF2019-04-23T03:54:00Z42.43-73.2813.311.10010.030.01014.2TRUETRUEMVFR0.01METAR355.02019-04-23 04:05:57^§ÚA)75   3PTTP 230354Z 11009KT 15SM BKN017TCU OVC130 29/25 A2983 RMK TCU ALQDS SLP100 T02860245PTTP2019-04-23T03:54:00Z6.97158.2228.624.5110915.029.8287411010.0MVFRMETAR2.02019-04-23 04:05:57 €)@^€X§ÚH)5    3KUZA 230354Z AUTO 00000KT 10SM CLR 14/11 A3014 RMK AO2 SLP199 T01390111KUZA2019-04-23T03:54:00Z34.98-81.0513.911.10010.030.1387791019.9TRUETRUEVFRMETAR202.02019-04-23 04:05:57\§ÚG)5    3KLWT 230354Z AUTO 22013KT 10SM CLR 12/01 A3001 RMK AO2 SLP153 T01220011KLWT2019-04-23T03:54:00Z47.03-109.4712.21.12201310.030.0088581015.3TRUETRUEVFRMETAR1270.02019-04-23 04:05:57c§ÚF)%5     3KAAO 230354Z AUTO 35007KT 10SM CLR 12/10 A3008 RMK AO2 SLP182 T01220100 TSNOKAAO2019-04-23T03:54:00Z37.75-97.2212.210.0350710.030.0797251018.2TRUETRUETRUEVFRMETAR434.02019-04-23 04:05:57Q§ÚE)5    3KACY 230354Z 00000KT 10SM OVC060 16/12 A3003 RMK AO2 SLP169 T01610117KACY2019-04-23T03:54:00Z39.45-74.5716.111.70010.030.0295281016.9TRUEVFRMETAR23.02019-04-23 04:05:57 x4TxV§ÚL)5    3KPTW 230354Z AUTO 00000KT 10SM CLR 12/08 A3006 RMK AO2 SLP176 T01170083KPTW2019-04-23T03:54:00Z40.23-75.5511.78.30010.030.0590551017.6TRUETRUEVFRMETAR92.02019-04-23 04:05:57Z§ÚK)5    3KRBL 230354Z AUTO 33006KT 10SM CLR 22/09 A3003 RMK AO2 SLP166 T02220089KRBL2019-04-23T03:54:00Z40.15-122.2522.28.9330610.030.0295281016.6TRUETRUEVFRMETAR104.02019-04-23 04:05:57Z§ÚJ)5    3KRDG 230354Z AUTO 31004KT 10SM CLR 12/10 A3004 RMK AO2 SLP179 T01220100KRDG2019-04-23T03:54:00Z40.37-75.9712.210.0310410.030.0413381017.9TRUETRUEVFRMETAR109.02019-04-23 04:05:57f§ÚI)35    3KVAY 230354Z AUTO 00000KT 10SM SCT065 OVC085 16/09 A3003 RMK AO2 SLP169 T01560094 $KVAY2019-04-23T03:54:00Z39.93-74.8315.69.40010.030.0295281016.9TRUETRUETRUEVFRMETAR15.02019-04-23 04:05:57 |%GW|U§ÚP)/5   3PGWT 230354Z 10010KT 7SM SCT016 BKN100 BKN150 32/23 A2988 RMK WIND DATA ESTIMATEDPGWT2019-04-23T03:54:00Z14.98145.6232.023.0100107.029.878937VFRMETAR82.02019-04-23 04:05:57j§ÚO)=5    3KSBN 230354Z AUTO 16011KT 10SM FEW070 SCT080 BKN110 19/08 A2992 RMK AO2 SLP129 T01890083KSBN2019-04-23T03:54:00Z41.7-86.3218.98.31601110.029.9202751012.9TRUETRUEVFRMETAR237.02019-04-23 04:05:57X§ÚN)5    3KSBY 230354Z AUTO 18003KT 10SM CLR 13/11 A3006 RMK AO2 SLP180 T01280111KSBY2019-04-23T03:54:00Z38.33-75.512.811.1180310.030.0590551018.0TRUETRUEVFRMETAR19.02019-04-23 04:05:57U§ÚM)5    3KRFD 230354Z 22009KT 10SM CLR 18/14 A2982 RMK AO2 SLP094 T01830144 $KRFD2019-04-23T03:54:00Z42.2-89.118.314.4220910.029.8198811009.4TRUETRUEVFRMETAR221.02019-04-23 04:05:57 v!Bevi§ÚT)=5    3KVSF 230354Z AUTO 00000KT 10SM FEW041 BKN060 OVC085 13/12 A3003 RMK AO2 SLP168 T01330122KVSF2019-04-23T03:54:00Z43.35-72.5213.312.20010.030.0295281016.8TRUETRUEVFRMETAR175.02019-04-23 04:05:57W§ÚS)5    3KVTA 230354Z AUTO 00000KT 10SM CLR 13/09 A3007 RMK AO2 SLP181 T01280094KVTA2019-04-23T03:54:00Z40.02-82.4712.89.40010.030.0708661018.1TRUETRUEVFRMETAR268.02019-04-23 04:05:57Y§ÚR)5    3KWAL 230354Z AUTO 27004KT 10SM CLR 15/12 A3007 RMK AO2 SLP179 T01500117KWAL2019-04-23T03:54:00Z37.93-75.4715.011.7270410.030.0708661017.9TRUETRUEVFRMETAR14.02019-04-23 04:05:57Y§ÚQ)5    3KWLD 230354Z AUTO 02008KT 10SM CLR 16/11 A3006 RMK AO2 SLP175 T01560111KWLD2019-04-23T03:54:00Z37.17-97.0315.611.120810.030.0590551017.5TRUETRUEVFRMETAR350.02019-04-23 04:05:57 _ 6U_p§ÚX)?5      3KOLM 230354Z AUTO 23004KT 6SM BR BKN011 OVC021 10/09 A3024 RMK AO2 SLP240 P0001 T01000089KOLM2019-04-23T03:54:00Z46.97-122.910.08.923046.030.2391741024.0TRUETRUEBRMVFR0.01METAR58.02019-04-23 04:05:57[§ÚW)5    3KOLS 230354Z AUTO 00000KT 10SM CLR 17/M03 A2995 RMK AO2 SLP091 T01721033KOLS2019-04-23T03:54:00Z31.42-110.8517.2-3.30010.029.9498021009.1TRUETRUEVFRMETAR1184.02019-04-23 04:05:57d§ÚV)/5    3KSET 230354Z AUTO 22004KT 10SM SCT060 OVC075 23/16 A2995 RMK AO2 SLP136 T02280156KSET2019-04-23T03:54:00Z38.93-90.4322.815.6220410.029.9498021013.6TRUETRUEVFRMETAR134.02019-04-23 04:05:57Z§ÚU)5    3KSJN 230354Z AUTO 16007KT 10SM CLR 11/02 A3002 RMK AO2 SLP107 T01060022KSJN2019-04-23T03:54:00Z34.52-109.3810.62.2160710.030.020671010.7TRUETRUEVFRMETAR1745.02019-04-23 04:05:57 §%W{§N§Ú\)5    3KMRY 230354Z 26006KT 9SM CLR 13/08 A3004 RMK AO2 SLP185 T01280083KMRY2019-04-23T03:54:00Z36.58-121.8512.88.326069.030.0413381018.5TRUEVFRMETAR66.02019-04-23 04:05:57V§Ú[)5    3KMVL 230354Z AUTO 00000KT 10SM CLR 08/05 A3009 RMK AO2 SLP192 T00780050KMVL2019-04-23T03:54:00Z44.53-72.627.85.00010.030.0885831019.2TRUETRUEVFRMETAR234.02019-04-23 04:05:57H§ÚZ)5    3KMYP 230354Z AUTO 06021KT OVC001 M02/M03 A3041 RMK AO2 PWINOKMYP2019-04-23T03:54:00Z38.48-106.32-2.0-3.0602130.410433TRUETRUETRUEMETAR3667.02019-04-23 04:05:57U§ÚY)5    3KOFP 230354Z AUTO 00000KT 10SM CLR 11/08 A3011 RMK AO2 SLP196 T01110078KOFP2019-04-23T03:54:00Z37.7-77.4311.17.80010.030.1092531019.6TRUETRUEVFRMETAR62.02019-04-23 04:05:57 ŸVŸ\§Ú`)!5    3KMIV 230354Z AUTO 29004KT 10SM OVC065 16/11 A3004 RMK AO2 SLP170 T01560106KMIV2019-04-23T03:54:00Z39.37-75.0815.610.6290410.030.0413381017.0TRUETRUEVFRMETAR23.02019-04-23 04:05:57O§Ú_)5    3KMKC 230354Z 32006KT 10SM CLR 16/09 A3006 RMK AO2 SLP173 T01560094KMKC2019-04-23T03:54:00Z39.12-94.615.69.4320610.030.0590551017.3TRUEVFRMETAR227.02019-04-23 04:05:57C§Ú^(5    3KMNH 230354Z AUTO 07003KT 10SM OVC008 02/01 A3029 RMK AO2KMNH2019-04-23T03:54:00Z39.22-104.652.01.070310.030.28937TRUETRUEIFRMETAR2152.02019-04-23 04:05:57[§Ú])5    3KMOT 230354Z AUTO 13004KT 10SM CLR 09/M02 A3013 RMK AO2 SLP208 T00891022KMOT2019-04-23T03:54:00Z48.25-101.278.9-2.2130410.030.1299211020.8TRUETRUEVFRMETAR519.02019-04-23 04:05:57 }2Y}V§Úd)5    3KLYH 230354Z AUTO 00000KT 10SM CLR 12/08 A3013 RMK AO2 SLP199 T01170078KLYH2019-04-23T03:54:00Z37.32-79.211.77.80010.030.1299211019.9TRUETRUEVFRMETAR295.02019-04-23 04:05:57S§Úc)5    3KMEM 230354Z 21003KT 10SM SCT250 17/10 A3008 RMK AO2 SLP184 T01720100KMEM2019-04-23T03:54:00Z35.07-89.9817.210.0210310.030.0797251018.4TRUEVFRMETAR86.02019-04-23 04:05:57`§Úb)'5   3KMFI 230354Z AUTO 03012G21KT 10SM OVC009 06/04 A2992 RMK AO2 SLP139 T00560044KMFI2019-04-23T03:54:00Z44.63-90.185.64.430122110.029.9202751013.9TRUETRUEIFRMETAR389.02019-04-23 04:05:57b§Úa)/5    3KMGJ 230354Z AUTO 00000KT 10SM FEW070 SCT095 13/12 A3001 RMK AO2 SLP162 T01280122KMGJ2019-04-23T03:54:00Z41.52-74.2712.812.20010.030.0088581016.2TRUETRUEVFRMETAR108.02019-04-23 04:05:57 _ù!>_Y§Úh)5    3KJST 230354Z AUTO 20006KT 10SM CLR 12/06 A3012 RMK AO2 SLP203 T01220056KJST2019-04-23T03:54:00Z40.32-78.8312.25.6200610.030.1210631020.3TRUETRUEVFRMETAR694.02019-04-23 04:05:57]§Úg)!5    3KLAF 230354Z AUTO 19005KT 10SM OVC080 19/11 A2996 RMK AO2 SLP141 T01940106KLAF2019-04-23T03:54:00Z40.42-86.9319.410.6190510.029.9586621014.1TRUETRUEVFRMETAR182.02019-04-23 04:05:57R§Úf)5    3KLEX 230354Z 15006KT 10SM FEW002 17/05 A3008 RMK AO2 SLP181 T01720050KLEX2019-04-23T03:54:00Z38.03-84.617.25.0150610.030.0797251018.1TRUEVFRMETAR300.02019-04-23 04:05:57‚§Úe)U5     3KLWM 230354Z AUTO 04013G21KT 1 1/2SM +RA BR BKN008 OVC012 13/12 A2995 RMK AO2 SLP141 P0006 T01280117KLWM2019-04-23T03:54:00Z42.72-71.1312.811.74013211.529.9498021014.1TRUETRUE+RA BRIFR0.06METAR54.02019-04-23 04:05:57 ?'4?Y§Úl)5    3KIPT 230354Z AUTO 27003KT 10SM CLR 11/07 A3007 RMK AO2 SLP184 T01060067KIPT2019-04-23T03:54:00Z41.25-76.9210.66.7270310.030.0708661018.4TRUETRUEVFRMETAR164.02019-04-23 04:05:57‚§Úk)u5      3KISW 230354Z AUTO 03010G19KT 4SM RA BKN009 BKN014 OVC031 08/04 A2992 RMK AO2 CIG 007V013 SLP135 P0001 T00780044 TSNOKISW2019-04-23T03:54:00Z44.37-89.837.84.43010194.029.9202751013.5TRUETRUETRUERAIFR0.01METAR307.02019-04-23 04:05:57m§Új)35      3KIZG 230354Z AUTO 36005KT 7SM -RA OVC022 11/10 A3007 RMK AO2 SLP183 P0004 T01110100KIZG2019-04-23T03:54:00Z43.98-70.9511.110.036057.030.0708661018.3TRUETRUE-RAMVFR0.04METAR135.02019-04-23 04:05:57S§Úi)5    3KJAN 230354Z 16006KT 10SM FEW250 18/11 A3012 RMK AO2 SLP196 T01780106KJAN2019-04-23T03:54:00Z32.32-90.0817.810.6160610.030.1210631019.6TRUEVFRMETAR91.02019-04-23 04:05:57 #D]X§Úp)5    3KILN 230354Z AUTO 16003KT 10SM CLR 13/06 A3006 RMK AO2 SLP183 T01330056KILN2019-04-23T03:54:00Z39.43-83.813.35.6160310.030.0590551018.3TRUETRUEVFRMETAR322.02019-04-23 04:05:57a§Úo)'5   3KIMT 230354Z AUTO 34011G19KT 10SM OVC008 04/02 A2996 RMK AO2 SLP153 T00390022KIMT2019-04-23T03:54:00Z45.82-88.123.92.2340111910.029.9586621015.3TRUETRUEIFRMETAR349.02019-04-23 04:05:57Y§Ún)%5    3KIND 230354Z 14009KT 10SM BKN100 BKN170 17/09 A2999 RMK AO2 SLP152 T01720094KIND2019-04-23T03:54:00Z39.72-86.317.29.4140910.029.9911421015.2TRUEVFRMETAR241.02019-04-23 04:05:57W§Úm)5    3KINT 230354Z AUTO 00000KT 10SM CLR 16/08 A3014 RMK AO2 SLP200 T01560078KINT2019-04-23T03:54:00Z36.13-80.2215.67.80010.030.1387791020.0TRUETRUEVFRMETAR291.02019-04-23 04:05:57 œ.Y|œZ§Út)5    3KGCN 230354Z AUTO VRB04KT 10SM CLR 08/M01 A3009 RMK AO2 SLP132 T00831006KGCN2019-04-23T03:54:00Z35.95-112.158.3-0.60410.030.0885831013.2TRUETRUEVFRMETAR2016.02019-04-23 04:05:57W§Ús)5    3KGED 230354Z AUTO 00000KT 10SM CLR 13/11 A3006 RMK AO2 SLP177 T01280106KGED2019-04-23T03:54:00Z38.68-75.3712.810.60010.030.0590551017.7TRUETRUEVFRMETAR19.02019-04-23 04:05:57O§Úr)5    3KGSO 230354Z 19003KT 10SM CLR 15/09 A3012 RMK AO2 SLP194 T01500089KGSO2019-04-23T03:54:00Z36.1-79.9515.08.9190310.030.1210631019.4TRUEVFRMETAR275.02019-04-23 04:05:57L§Úq)5    3KHWD 230354Z 25003KT 10SM CLR 17/11 A3000 RMK AO2 SLP168 T01670106KHWD2019-04-23T03:54:00Z37.67-122.1216.710.6250310.030.01016.8TRUEVFRMETAR21.02019-04-23 04:05:57 2#G2Z§Úx)%5    3KBUF 230354Z 10006KT 10SM SCT150 SCT250 11/07 A3009 RMK AO2 SLP192 T01110072KBUF2019-04-23T03:54:00Z42.93-78.7311.17.2100610.030.0885831019.2TRUEVFRMETAR211.02019-04-23 04:05:57‚/§Úw)‚?5     3KFWA 230354Z 00000KT 10SM FEW038 FEW080 OVC130 17/11 A2999 RMK AO2 LTG DSNT S-W RAB13E48 SLP154 OCNL LTGICCG DSNT S-W CB DSNT S-W MOV E P0000 T01670111 $KFWA2019-04-23T03:54:00Z40.98-85.1816.711.10010.029.9911421015.4TRUETRUEVFR0.005METAR248.02019-04-23 04:05:57V§Úv)5    3KFZY 230354Z AUTO 00000KT 10SM CLR 08/05 A3012 RMK AO2 SLP200 T00830050KFZY2019-04-23T03:54:00Z43.35-76.388.35.00010.030.1210631020.0TRUETRUEVFRMETAR138.02019-04-23 04:05:57W§Úu)5    3KGCK 230354Z AUTO 01009KT 10SM CLR 09/04 A3015 RMK AO2 SLP207 T00890044KGCK2019-04-23T03:54:00Z37.92-100.728.94.410910.030.150591020.7TRUETRUEVFRMETAR877.02019-04-23 04:05:57 %!KD§Ú|(5    3KBDU 230354Z AUTO 00000KT 10SM OVC020 06/03 A3026 RMK AO2KBDU2019-04-23T03:54:00Z40.03-105.236.03.00010.030.259842TRUETRUEMVFRMETAR1612.02019-04-23 04:05:57P§Ú{)5    3KBFL 230354Z 01004KT 10SM CLR 22/04 A2999 RMK AO2 SLP149 T02170044KBFL2019-04-23T03:54:00Z35.43-119.0521.74.410410.029.9911421014.9TRUEVFRMETAR151.02019-04-23 04:05:57~§Úz)U5      3KBOS 230354Z 02013KT 3SM -RA BR FEW007 OVC014 10/08 A2994 RMK AO2 CIG 004 E SLP136 P0007 T01000083 $KBOS2019-04-23T03:54:00Z42.37-71.0210.08.320133.029.9409451013.6TRUETRUE-RA BRMVFR0.07METAR6.02019-04-23 04:05:57U§Úy)5    3KBTV 230354Z 32009KT 10SM CLR 11/04 A3007 RMK AO2 SLP185 LAST T01060039KBTV2019-04-23T03:54:00Z44.47-73.1510.63.9320910.030.0708661018.5TRUEVFRMETAR105.02019-04-23 04:05:57 $GiV§Û)5    3KAPN 230354Z AUTO 00000KT 10SM CLR 08/06 A2991 RMK AO2 SLP130 T00830061KAPN2019-04-23T03:54:00Z45.07-83.578.36.10010.029.9114171013.0TRUETRUEVFRMETAR210.02019-04-23 04:05:57X§Ú)%5   3KAUW 230354Z AUTO 01008G16KT 10SM OVC009 05/03 A2993 RMK AO2 SLPNO T00500033KAUW2019-04-23T03:54:00Z44.93-89.625.03.31081610.029.929134TRUETRUEIFRMETAR362.02019-04-23 04:05:57W§Ú~)5    3KAVL 230354Z AUTO 00000KT 10SM CLR 13/07 A3018 RMK AO2 SLP205 T01330072KAVL2019-04-23T03:54:00Z35.43-82.5313.37.20010.030.1801191020.5TRUETRUEVFRMETAR670.02019-04-23 04:05:57V§Ú})5    3KAVP 230354Z 31005KT 10SM CLR 13/06 A3007 RMK AO2 SLP183 T01280061 $KAVP2019-04-23T03:54:00Z41.33-75.7212.86.1310510.030.0708661018.3TRUETRUEVFRMETAR291.02019-04-23 04:05:57 …*C`…U§Û)5    3KAKQ 230354Z AUTO 00000KT 10SM CLR 12/09 A3011 RMK AO2 SLP195 T01170094KAKQ2019-04-23T03:54:00Z36.98-77.011.79.40010.030.1092531019.5TRUETRUEVFRMETAR34.02019-04-23 04:05:57]§Û)5    3KAKR 230354Z AUTO 00000KT 10SM CLR 14/07 A3007 RMK AO2 SLP181 T01390067 $KAKR2019-04-23T03:54:00Z41.03-81.4713.96.70010.030.0708661018.1TRUETRUETRUEVFRMETAR363.02019-04-23 04:05:57a§Û)'5   3KALO 230354Z AUTO 32013G21KT 10SM OVC009 10/08 A2995 RMK AO2 SLP142 T01000083KALO2019-04-23T03:54:00Z42.55-92.410.08.3320132110.029.9498021014.2TRUETRUEIFRMETAR264.02019-04-23 04:05:57P§Û)5    3KAPC 230354Z 14003KT 10SM CLR 17/12 A2999 RMK AO2 SLP147 T01720122KAPC2019-04-23T03:54:00Z38.2-122.2817.212.2140310.029.9911421014.7TRUEVFRMETAR13.02019-04-23 04:05:57 i#@HiY§Û)%5    3KSYR 230354Z 28004KT 10SM FEW120 SCT150 10/06 A3011 RMK AO2 SLP195 T01000056KSYR2019-04-23T03:54:00Z43.12-76.110.05.6280410.030.1092531019.5TRUEVFRMETAR127.02019-04-23 04:05:57r§Û)95      3KTAD 230354Z AUTO 05006KT 6SM -RA BR OVC029 08/06 A3024 RMK AO2 SLP209 P0005 T00780061KTAD2019-04-23T03:54:00Z37.27-104.337.86.15066.030.2391741020.9TRUETRUE-RA BRMVFR0.05METAR1756.02019-04-23 04:05:57]§Û)!5    3KTQE 230354Z AUTO 35013KT 10SM OVC013 09/08 A3013 RMK AO2 SLP200 T00940078KTQE2019-04-23T03:54:00Z41.77-96.189.47.83501310.030.1299211020.0TRUETRUEMVFRMETAR312.02019-04-23 04:05:57W§Û)5    3KAKH 230354Z AUTO 00000KT 10SM CLR 14/10 A3013 RMK AO2 SLP199 T01390100KAKH2019-04-23T03:54:00Z35.2-81.1513.910.00010.030.1299211019.9TRUETRUEVFRMETAR243.02019-04-23 04:05:57 r?^rf§Û )75    3KPHL 230354Z 35004KT 10SM SCT060 BKN090 OVC120 17/08 A3004 RMK AO2 SLP171 T01720083 $KPHL2019-04-23T03:54:00Z39.87-75.2317.28.3350410.030.0413381017.1TRUETRUEVFRMETAR18.02019-04-23 04:05:57[§Û )%5    3KPIA 230354Z 32009KT 10SM FEW034 BKN075 19/14 A2991 RMK AO2 SLP126 T01940139KPIA2019-04-23T03:54:00Z40.67-89.6819.413.9320910.029.9114171012.6TRUEVFRMETAR205.02019-04-23 04:05:57Z§Û )5    3KSLC 230354Z 11007KT 10SM FEW060 13/05 A3015 RMK AO2 SLP188 T01280050 $KSLC2019-04-23T03:54:00Z40.77-111.9712.85.0110710.030.150591018.8TRUETRUEVFRMETAR1286.02019-04-23 04:05:57[§Û )%5    3KSUS 230354Z 23007KT 10SM BKN060 OVC075 23/16 A2996 RMK AO2 SLP138 T02280161KSUS2019-04-23T03:54:00Z38.65-90.6522.816.1230710.029.9586621013.8TRUEVFRMETAR141.02019-04-23 04:05:57 ‰$Pq‰b§Û)35    3KCOS 230354Z 06008KT 10SM BKN027 BKN032 OVC047 07/02 A3027 RMK AO2 SLP231 T00720017KCOS2019-04-23T03:54:00Z38.82-104.687.21.760810.030.2687021023.1TRUEMVFRMETAR1856.02019-04-23 04:05:57Y§Û)!5    3KCOU 230354Z AUTO 27010KT 10SM BKN060 19/16 A3000 RMK AO2 SLP150 T01940156KCOU2019-04-23T03:54:00Z38.82-92.2219.415.62701010.030.01015.0TRUETRUEVFRMETAR271.02019-04-23 04:05:57N§Û)5    3KCRW 230354Z 00000KT 10SM CLR 12/09 A3011 RMK AO2 SLP192 T01220089KCRW2019-04-23T03:54:00Z38.38-81.5812.28.90010.030.1092531019.2TRUEVFRMETAR309.02019-04-23 04:05:57V§Û )5    3KPHF 230354Z AUTO 00000KT 10SM CLR 12/10 A3010 RMK AO2 SLP191 T01170100KPHF2019-04-23T03:54:00Z37.13-76.511.710.00010.030.1003931019.1TRUETRUEVFRMETAR12.02019-04-23 04:05:57 † 8c†W§Û)5    3KBUY 230354Z AUTO 00000KT 10SM CLR 11/09 A3013 RMK AO2 SLP198 T01110094KBUY2019-04-23T03:54:00Z36.05-79.4711.19.40010.030.1299211019.8TRUETRUEVFRMETAR180.02019-04-23 04:05:57O§Û)5    3KBWI 230354Z 26004KT 10SM CLR 12/09 A3007 RMK AO2 SLP180 T01220094KBWI2019-04-23T03:54:00Z39.17-76.6812.29.4260410.030.0708661018.0TRUEVFRMETAR59.02019-04-23 04:05:57b§Û)+5    3KCAR 230354Z AUTO 36012KT 10SM CLR 06/M05 A3020 RMK AO2 PRESFR SLP232 T00561050KCAR2019-04-23T03:54:00Z46.87-68.025.6-5.03601210.030.2007871023.2TRUETRUEVFRMETAR191.02019-04-23 04:05:57Z§Û)5    3KCEU 230354Z AUTO 35003KT 10SM CLR 17/12 A3014 RMK AO2 SLP201 T01670122KCEU2019-04-23T03:54:00Z34.67-82.8816.712.2350310.030.1387791020.1TRUETRUEVFRMETAR268.02019-04-23 04:05:57 !KoZ§Û)5    3KEVV 230354Z AUTO 21008KT 10SM CLR 19/11 A3003 RMK AO2 SLP164 T01940106KEVV2019-04-23T03:54:00Z38.05-87.5219.410.6210810.030.0295281016.4TRUETRUEVFRMETAR117.02019-04-23 04:05:57V§Û)5    3KEWN 230354Z AUTO 00000KT 10SM CLR 14/11 A3014 RMK AO2 SLP207 T01390106KEWN2019-04-23T03:54:00Z35.07-77.0513.910.60010.030.1387791020.7TRUETRUEVFRMETAR3.02019-04-23 04:05:57P§Û)5    3KFFZ 230354Z 03003KT 10SM CLR 23/00 A2981 RMK AO2 SLP073 T02330000KFFZ2019-04-23T03:54:00Z33.47-111.7223.30.030310.029.8110241007.3TRUEVFRMETAR424.02019-04-23 04:05:57Y§Û)5    3KFIG 230354Z AUTO 23004KT 10SM CLR 13/07 A3011 RMK AO2 SLP194 T01330067KFIG2019-04-23T03:54:00Z41.05-78.4213.36.7230410.030.1092531019.4TRUETRUEVFRMETAR462.02019-04-23 04:05:57 ‡Cd‡W§Û)5    3KDYL 230354Z AUTO 00000KT 10SM CLR 16/08 A3004 RMK AO2 SLP169 T01560078KDYL2019-04-23T03:54:00Z40.33-75.1215.67.80010.030.0413381016.9TRUETRUEVFRMETAR117.02019-04-23 04:05:57Y§Û)5    3KECG 230354Z AUTO 22005KT 10SM CLR 14/12 A3011 RMK AO2 SLP196 T01390117KECG2019-04-23T03:54:00Z36.27-76.1813.911.7220510.030.1092531019.6TRUETRUEVFRMETAR11.02019-04-23 04:05:57N§Û)5    3KEIK 230354Z AUTO 00000KT 10SM OVC027 08/03 A3031 RMK AO2 T00750031KEIK2019-04-23T03:54:00Z40.02-105.057.53.10010.030.31004TRUETRUEMVFRMETAR1564.02019-04-23 04:05:57c§Û)35    3KEUG 230354Z 36004KT 10SM SCT055 BKN070 OVC090 16/11 A3025 RMK AO2 SLP242 T01560111KEUG2019-04-23T03:54:00Z44.13-123.2215.611.1360410.030.2509841024.2TRUEVFRMETAR114.02019-04-23 04:05:57 Y"B7YX§Û )!5    3KDDH 230354Z AUTO 00000KT 10SM OVC090 12/06 A3002 RMK AO2 SLP163 T01220061KDDH2019-04-23T03:54:00Z42.9-73.2512.26.10010.030.020671016.3TRUETRUEVFRMETAR244.02019-04-23 04:05:57‚§Û)a5    3KDEC 230354Z AUTO 20015G21KT 10SM FEW065 BKN080 BKN110 19/11 A2994 RMK AO2 RAB18E50 SLP134 P0000 T01890111KDEC2019-04-23T03:54:00Z39.83-88.8518.911.1200152110.029.9409451013.4TRUETRUEVFR0.005METAR207.02019-04-23 04:05:57Z§Û)5   3KDSM 230354Z 32012G20KT 10SM OVC011 10/07 A3004 RMK AO2 SLP170 T01000067KDSM2019-04-23T03:54:00Z41.53-93.6710.06.7320122010.030.0413381017.0TRUEMVFRMETAR295.02019-04-23 04:05:57X§Û)5    3KDSV 230354Z AUTO 13003KT 10SM CLR 08/07 A3012 RMK AO2 SLP211 T00830067KDSV2019-04-23T03:54:00Z42.57-77.728.36.7130310.030.1210631021.1TRUETRUEVFRMETAR198.02019-04-23 04:05:57Y898@HPX`hpx€ˆ˜ ¨°¸ÀÈÐØàèðø (08@HPX`hpx€ˆ˜ ¨°¸ÀÈÐØàèðø (08@HPX`hpx€ˆ˜ ¨°¸ÀÈÐØàèðø ¨°¸ÀÈÐØàèðøߧÚ্Ú᧍Ú⧍Úã§Ú 䧍Ú$姍Ú(槍Ú,种Ú0觍Ú4駍Ú8꧍Ú<ߧÚ্Ú᧍Ú⧍Úã§Ú 䧍Ú$姍Ú(槍Ú,种Ú0觍Ú4駍Ú8꧍Ú<맍Ú@짍ÚDí§ÚHÚL留ÚPð§ÚTñ§ÚXò§Ú\ó§Ú`ô§Údõ§Úhö§Úl÷§Úpø§Útù§Úxú§Ú|û§Ûü§Ûý§Ûþ§Û ÿ§Û§Û§Û§Û§Û §Û$§Û(§Û,§Û0 §Û4 §Û8 §Û< §Û@ §ÛD§ÛH§ÛL§ÛP§ÛT§ÛX§Û\§Û`§Ûd§Ûg§Ûj§Ûm§Ûq§Ûu§Ûy§Û|§Ü§Ü§Ü §Ü !§Ü"§Ü#§Ü$§Ü%§Ü &§Ü$'§Ü((§Ü,)§Ü0*§Ü4+§Ü8,§Ü<-§Ü@.§ÜD/§ÜH0§ÜL1§ÜP2§ÜT3§ÜX4§Ü\5§Ü`6§Üd7§Üh8§Ül žKHqžM§Û$)5    3KROA 230354Z 00000KT 10SM CLR 15/07 A3015 RMK AO2 SLP204 T01500067KROA2019-04-23T03:54:00Z37.32-79.9715.06.70010.030.150591020.4TRUEVFRMETAR362.02019-04-23 04:05:57Q§Û#)5    3KROC 230354Z 00000KT 10SM FEW140 10/06 A3012 RMK AO2 SLP203 T01000061KROC2019-04-23T03:54:00Z43.12-77.6810.06.10010.030.1210631020.3TRUEVFRMETAR178.02019-04-23 04:05:57}§Û")c5    3KRST 230354Z AUTO 36016G26KT 10SM OVC006 07/06 A3000 RMK AO2 PK WND 36027/0335 RAE36 SLP162 P0000 T00670056KRST2019-04-23T03:54:00Z43.9-92.56.75.6360162610.030.01016.2TRUETRUEIFR0.005METAR403.02019-04-23 04:05:57/§Û!(k5    3KMWN 230354Z 05042KT 0SM -RA FG VV000 02/02 RMKKMWN2019-04-23T03:54:00Z44.27-71.32.02.050420.0-RA FGLIFR0METAR1910.02019-04-23 04:05:57 k"OJkY§Û()5    3KORL 230353Z AUTO 10004KT 10SM CLR 18/12 A3014 RMK AO2 SLP210 T01830117KORL2019-04-23T03:53:00Z28.55-81.3318.311.7100410.030.1387791021.0TRUETRUEVFRMETAR37.02019-04-23 04:05:57§Û')U5     3KOSH 230353Z AUTO 02014G21KT 3SM RA BR OVC007 08/07 A2986 RMK AO2 CIG 003V010 SLP110 P0013 T00780067KOSH2019-04-23T03:53:00Z43.97-88.557.86.72014213.029.8612211011.0TRUETRUERA BRIFR0.13METAR248.02019-04-23 04:05:57M§Û&)5    3KRIC 230354Z 00000KT 10SM CLR 14/09 A3010 RMK AO2 SLP196 T01390089KRIC2019-04-23T03:54:00Z37.52-77.3213.98.90010.030.1003931019.6TRUEVFRMETAR50.02019-04-23 04:05:57X§Û%)5    3KRKS 230354Z AUTO 07005KT 10SM CLR 04/01 A3024 RMK AO2 SLP235 T00390006KRKS2019-04-23T03:54:00Z41.6-109.073.90.670510.030.2391741023.5TRUETRUEVFRMETAR2060.02019-04-23 04:05:57 )û)X§Û,)5    3KOVE 230353Z AUTO 02005KT 10SM CLR 21/10 A2999 RMK AO2 SLP156 T02060100KOVE2019-04-23T03:53:00Z39.5-121.6220.610.020510.029.9911421015.6TRUETRUEVFRMETAR58.02019-04-23 04:05:57n§Û+)55      3KOVS 230353Z AUTO 01006KT 10SM -RA OVC012 14/12 A2986 RMK AO2 SLP111 P0004 T01390117KOVS2019-04-23T03:53:00Z43.15-90.6813.911.710610.029.8612211011.1TRUETRUE-RAMVFR0.04METAR202.02019-04-23 04:05:57‚§Û*)_5       3KOWD 230353Z AUTO 06003KT 4SM -RA BR BKN008 BKN015 OVC027 12/09 A2993 RMK AO2 SLP135 P0013 T01170094 TSNOKOWD2019-04-23T03:53:00Z42.18-71.1711.79.46034.029.9291341013.5TRUETRUETRUE-RA BRIFR0.13METAR19.02019-04-23 04:05:57s§Û))O5     3PHTO 230353Z 07008KT 9SM SCT026 BKN037 OVC055 24/18 A3011 RMK AO2 RAB04E14 SLP194 P0000 T02440183PHTO2019-04-23T03:53:00Z19.72-155.0524.418.37089.030.1092531019.4TRUEVFR0.005METAR12.02019-04-23 04:05:57 |9V|T§Û0)5    3PHKO 230353Z 20007KT 10SM SCT045 27/21 A3003 RMK AO2 SLP170 T02670206PHKO2019-04-23T03:53:00Z19.73-156.0526.720.6200710.030.0295281017.0TRUEVFRMETAR27.02019-04-23 04:05:57]§Û/)5    3KBRD 230353Z AUTO 14003KT 10SM CLR 05/01 A3013 RMK AO2 SLP212 T00500006 $KBRD2019-04-23T03:53:00Z46.4-94.135.00.6140310.030.1299211021.2TRUETRUETRUEVFRMETAR372.02019-04-23 04:05:57Y§Û.)5    3KOSU 230353Z AUTO 17004KT 10SM CLR 17/08 A3006 RMK AO2 SLP178 T01670083KOSU2019-04-23T03:53:00Z40.08-83.0816.78.3170410.030.0590551017.8TRUETRUEVFRMETAR280.02019-04-23 04:05:57b§Û-)'5   3KOTM 230353Z AUTO 31011G19KT 10SM OVC015 12/08 A2999 RMK AO2 SLP153 T01170078KOTM2019-04-23T03:53:00Z41.1-92.4511.77.8310111910.029.9911421015.3TRUETRUEMVFRMETAR256.02019-04-23 04:05:57 s=QsX§Û4)5    3KICR 230353Z AUTO 22004KT 10SM CLR 08/01 A3018 RMK AO2 SLP223 T00830011KICR2019-04-23T03:53:00Z43.38-99.858.31.1220410.030.1801191022.3TRUETRUEVFRMETAR621.02019-04-23 04:05:57f§Û3)35    3KINK 230353Z AUTO 10008KT 10SM CLR 18/14 A2992 RMK AO2 LTG DSNT NW SLP099 T01780144KINK2019-04-23T03:53:00Z31.78-103.217.814.4100810.029.9202751009.9TRUETRUEVFRMETAR855.02019-04-23 04:05:57U§Û2)5   3PHJR 230353Z 05008G15KT 10SM CLR 27/17 A3010 RMK AO2 SLP199 T02670172PHJR2019-04-23T03:53:00Z21.32-158.0726.717.25081510.030.1003931019.9TRUEVFRMETAR15.02019-04-23 04:05:57b§Û1)35    3PHLI 230353Z 05010KT 10SM FEW020 SCT028 BKN035 25/20 A3013 RMK AO2 SLP201 T02500200PHLI2019-04-23T03:53:00Z21.97-159.3325.020.0501010.030.1299211020.1TRUEVFRMETAR45.02019-04-23 04:05:57 |:^|\§Û8)!5    3KHYR 230353Z AUTO 02010KT 10SM OVC004 04/03 A3008 RMK AO2 SLP198 T00390033KHYR2019-04-23T03:53:00Z46.02-91.453.93.3201010.030.0797251019.8TRUETRUELIFRMETAR370.02019-04-23 04:05:57V§Û7)5    3KHZY 230353Z AUTO 00000KT 10SM CLR 10/07 A3008 RMK AO2 SLP188 T01000072KHZY2019-04-23T03:53:00Z41.78-80.710.07.20010.030.0797251018.8TRUETRUEVFRMETAR276.02019-04-23 04:05:57Y§Û6)5    3KIAG 230353Z AUTO 10006KT 10SM CLR 11/07 A3008 RMK AO2 SLP191 T01060067KIAG2019-04-23T03:53:00Z43.12-78.9310.66.7100610.030.0797251019.1TRUETRUEVFRMETAR182.02019-04-23 04:05:57a§Û5)35    3KIAH 230353Z 13010KT 10SM FEW020 SCT040 BKN250 21/19 A3005 RMK AO2 SLP175 T02110189KIAH2019-04-23T03:53:00Z30.0-95.3721.118.91301010.030.0501981017.5TRUEVFRMETAR36.02019-04-23 04:05:57 X$=>X`§Û<)/5    3KHUL 230353Z AUTO 06006KT 10SM FEW060 OVC090 08/04 A3017 RMK AO2 SLP221 T00830039KHUL2019-04-23T03:53:00Z46.12-67.88.33.960610.030.1712591022.1TRUETRUEVFRMETAR150.02019-04-23 04:05:57y§Û;)O5      3KHVN 230353Z AUTO 35005KT 10SM -RA SCT075 OVC090 15/12 A2996 RMK AO2 RAB39 SLP145 P0001 T01500122KHVN2019-04-23T03:53:00Z41.27-72.8715.012.2350510.029.9586621014.5TRUETRUE-RAVFR0.01METAR4.02019-04-23 04:05:57a§Û:)5    3KHVR 230353Z AUTO 23012KT 10SM CLR 13/03 A2988 RMK AO2 SLP121 T01330028 $KHVR2019-04-23T03:53:00Z48.55-109.7713.32.82301210.029.8789371012.1TRUETRUETRUEVFRMETAR787.02019-04-23 04:05:57V§Û9)5    3KHWO 230353Z AUTO 07006KT 10SM CLR 22/13 A3013 RMK AO2 SLP202 T02170128KHWO2019-04-23T03:53:00Z26.0-80.2321.712.870610.030.1299211020.2TRUETRUEVFRMETAR2.02019-04-23 04:05:57 ‡*Ac‡V§Û@)5    3KHSI 230353Z AUTO 01004KT 10SM CLR 08/03 A3017 RMK AO2 SLP222 T00830033KHSI2019-04-23T03:53:00Z40.6-98.438.33.310410.030.1712591022.2TRUETRUEVFRMETAR591.02019-04-23 04:05:57X§Û?)5    3KHSV 230353Z 00000KT 10SM FEW250 18/12 A3013 RMK AO2 SLP196 T01830122 $KHSV2019-04-23T03:53:00Z34.65-86.7818.312.20010.030.1299211019.6TRUETRUEVFRMETAR191.02019-04-23 04:05:57c§Û>)/5    3KHTL 230353Z AUTO 17008KT 10SM FEW095 SCT120 18/06 A2987 RMK AO2 SLP113 T01780061KHTL2019-04-23T03:53:00Z44.35-84.6717.86.1170810.029.8700791011.3TRUETRUEVFRMETAR351.02019-04-23 04:05:57P§Û=)5    3KHUF 230353Z 18007KT 10SM CLR 19/11 A2999 RMK AO2 SLP152 T01890106KHUF2019-04-23T03:53:00Z39.45-87.318.910.6180710.029.9911421015.2TRUEVFRMETAR179.02019-04-23 04:05:57 y*HQyR§ÛD)5    3KBRO 230353Z 12006KT 10SM OVC009 24/23 A2996 RMK AO2 SLP144 T02440233KBRO2019-04-23T03:53:00Z25.92-97.4224.423.3120610.029.9586621014.4TRUEIFRMETAR7.02019-04-23 04:05:57q§ÛC)?5     3KBTL 230353Z AUTO 17011KT 10SM FEW120 18/08 A2993 RMK AO2 RAB08E20 SLP133 P0000 T01780078KBTL2019-04-23T03:53:00Z42.32-85.2317.87.81701110.029.9291341013.3TRUETRUEVFR0.005METAR290.02019-04-23 04:05:57\§ÛB)5    3KBTM 230353Z AUTO 28006KT 10SM CLR 11/M03 A3016 RMK AO2 SLP197 T01061033KBTM2019-04-23T03:53:00Z45.97-112.510.6-3.3280610.030.1594491019.7TRUETRUEVFRMETAR1688.02019-04-23 04:05:57P§ÛA)5    3KBTR 230353Z 10005KT 10SM CLR 18/15 A3012 RMK AO2 SLP200 T01830150KBTR2019-04-23T03:53:00Z30.53-91.1518.315.0100510.030.1210631020.0TRUEVFRMETAR21.02019-04-23 04:05:57 Œ%FhŒV§ÛH)5    3KPBI 230353Z 05007KT 10SM FEW047 23/13 A3013 RMK AO2 SLP202 T02280133 $KPBI2019-04-23T03:53:00Z26.68-80.122.813.350710.030.1299211020.2TRUETRUEVFRMETAR6.02019-04-23 04:05:57X§ÛG)5    3KPBF 230353Z AUTO 20004KT 10SM CLR 17/09 A3008 RMK AO2 SLP185 T01720094KPBF2019-04-23T03:53:00Z34.18-91.9317.29.4200410.030.0797251018.5TRUETRUEVFRMETAR62.02019-04-23 04:05:57Y§ÛF)5    3KPBG 230353Z AUTO 34011KT 10SM CLR 12/00 A3010 RMK AO2 SLP192 T01170000KPBG2019-04-23T03:53:00Z44.65-73.4711.70.03401110.030.1003931019.2TRUETRUEVFRMETAR72.02019-04-23 04:05:57U§ÛE)5    3KICT 230353Z 36012KT 10SM SCT180 16/10 A3008 RMK AO2 SLP179 T01610100KICT2019-04-23T03:53:00Z37.65-97.4316.110.03601210.030.0797251017.9TRUEVFRMETAR407.02019-04-23 04:05:57 Sí +SR§ÛL)5    3KLAX 230353Z 20005KT 9SM FEW027 16/12 A2995 RMK AO2 SLP141 T01560122KLAX2019-04-23T03:53:00Z33.93-118.3815.612.220059.029.9498021014.1TRUEVFRMETAR46.02019-04-23 04:05:57[§ÛK)%5    3KLAN 230353Z 16014KT 10SM FEW120 18/08 A2991 RMK AO2 PRESFR SLP125 T01830078KLAN2019-04-23T03:53:00Z42.78-84.5818.37.81601410.029.9114171012.5TRUEVFRMETAR264.02019-04-23 04:05:57[§ÛJ)5    3KLAR 230353Z AUTO 15011KT 10SM CLR 01/01 A3022 RMK AO2 SLP214 T00110006KLAR2019-04-23T03:53:00Z41.32-105.671.10.61501110.030.2214571021.4TRUETRUEVFRMETAR2216.02019-04-23 04:05:57‚ §ÛI)s5      3KLAW 230353Z AUTO 09009KT 10SM -RA SCT036 BKN044 OVC110 21/18 A3001 RMK AO2 LTG DSNT W RAB44 SLP154 P0000 T02110178KLAW2019-04-23T03:53:00Z34.55-98.4221.117.890910.030.0088581015.4TRUETRUE-RAVFR0.005METAR337.02019-04-23 04:05:57 t$BRtX§ÛP)5    3KPEO 230353Z AUTO 20003KT 10SM CLR 08/07 A3012 RMK AO2 SLP202 T00780067KPEO2019-04-23T03:53:00Z42.65-77.057.86.7200310.030.1210631020.2TRUETRUEVFRMETAR256.02019-04-23 04:05:57j§ÛO)75      3KPDX 230353Z 28004KT 10SM -RA OVC047 14/12 A3025 RMK AO2 RAB41 SLP243 P0000 T01440117KPDX2019-04-23T03:53:00Z45.6-122.6214.411.7280410.030.2509841024.3TRUE-RAVFR0.005METAR7.02019-04-23 04:05:57\§ÛN)!5    3KPDT 230353Z AUTO 28011KT 10SM OVC070 17/06 A3015 RMK AO2 SLP202 T01670061KPDT2019-04-23T03:53:00Z45.7-118.8316.76.12801110.030.150591020.2TRUETRUEVFRMETAR462.02019-04-23 04:05:57V§ÛM)5    3KPDK 230353Z AUTO 00000KT 10SM CLR 14/11 A3015 RMK AO2 SLP203 T01440111KPDK2019-04-23T03:53:00Z33.88-84.314.411.10010.030.150591020.3TRUETRUEVFRMETAR302.02019-04-23 04:05:57 {7Z{Y§ÛT)5    3KPKD 230353Z AUTO 28003KT 10SM CLR 03/M01 A3011 RMK AO2 SLP206 T00331006KPKD2019-04-23T03:53:00Z46.9-95.073.3-0.6280310.030.1092531020.6TRUETRUEVFRMETAR442.02019-04-23 04:05:57W§ÛS)5    3KPKB 230353Z AUTO 00000KT 10SM CLR 11/07 A3013 RMK AO2 SLP202 T01110072KPKB2019-04-23T03:53:00Z39.35-81.4211.17.20010.030.1299211020.2TRUETRUEVFRMETAR262.02019-04-23 04:05:57W§ÛR)5    3KPIR 230353Z AUTO 04003KT 10SM CLR 08/01 A3015 RMK AO2 SLP212 T00780011KPIR2019-04-23T03:53:00Z44.38-100.287.81.140310.030.150591021.2TRUETRUEVFRMETAR526.02019-04-23 04:05:57f§ÛQ)'5     3KPGA 230353Z AUTO 31003KT 10SM CLR 18/M03 A2996 RMK AO2 SLP100 T01831033 TSNOKPGA2019-04-23T03:53:00Z36.92-111.4518.3-3.3310310.029.9586621010.0TRUETRUETRUEVFRMETAR1307.02019-04-23 04:05:57 ‡)Fh‡[§ÛX)5    3KJER 230353Z AUTO 22007KT 10SM CLR 12/03 A3018 RMK AO2 SLP212 T01220033KJER2019-04-23T03:53:00Z42.72-114.4512.23.3220710.030.1801191021.2TRUETRUEVFRMETAR1222.02019-04-23 04:05:57X§ÛW)5    3KJKL 230353Z AUTO 14004KT 10SM CLR 18/06 A3012 RMK AO2 SLP188 T01830056KJKL2019-04-23T03:53:00Z37.6-83.3218.35.6140410.030.1210631018.8TRUETRUEVFRMETAR416.02019-04-23 04:05:57]§ÛV)!5    3KLAA 230353Z AUTO 03005KT 10SM SCT090 10/04 A3019 RMK AO2 SLP207 T01000039KLAA2019-04-23T03:53:00Z38.07-102.6810.03.930510.030.1889761020.7TRUETRUEVFRMETAR1119.02019-04-23 04:05:57Q§ÛU)5    3KPMD 230353Z 30007KT 10SM CLR 18/03 A3001 RMK AO2 SLP146 T01830033KPMD2019-04-23T03:53:00Z34.63-118.0818.33.3300710.030.0088581014.6TRUEVFRMETAR780.02019-04-23 04:05:57 [!>;[Z§Û\)5    3KITR 230353Z AUTO 34005KT 10SM CLR 07/03 A3022 RMK AO2 SLP224 T00720028KITR2019-04-23T03:53:00Z39.23-102.287.22.8340510.030.2214571022.4TRUETRUEVFRMETAR1279.02019-04-23 04:05:57}§Û[)U5      3KIWI 230353Z AUTO VRB04KT 5SM -RA BR BKN008 BKN014 OVC019 12/12 A3003 RMK AO2 SLP169 P0007 T01220117KIWI2019-04-23T03:53:00Z43.97-69.7212.211.7045.030.0295281016.9TRUETRUE-RA BRIFR0.07METAR20.02019-04-23 04:05:57]§ÛZ)!5    3KIXD 230353Z AUTO 33010KT 10SM OVC044 14/09 A3008 RMK AO2 SLP178 T01440094KIXD2019-04-23T03:53:00Z38.82-94.8814.49.43301010.030.0797251017.8TRUETRUEVFRMETAR342.02019-04-23 04:05:57Y§ÛY)5    3KJBR 230353Z AUTO 19003KT 10SM CLR 18/10 A3007 RMK AO2 SLP179 T01830100KJBR2019-04-23T03:53:00Z35.83-90.6518.310.0190310.030.0708661017.9TRUETRUEVFRMETAR79.02019-04-23 04:05:57 ƒ)A^ƒU§Û`)5    3KPGD 230353Z AUTO 02005KT 10SM CLR 17/13 A3015 RMK AO2 SLP209 T01720133KPGD2019-04-23T03:53:00Z26.92-82.017.213.320510.030.150591020.9TRUETRUEVFRMETAR7.02019-04-23 04:05:57]§Û_)5    3KPHD 230353Z AUTO 00000KT 10SM CLR 12/08 A3009 RMK AO2 SLP190 T01170078 $KPHD2019-04-23T03:53:00Z40.47-81.4211.77.80010.030.0885831019.0TRUETRUETRUEVFRMETAR272.02019-04-23 04:05:57b§Û^)'5    3KPIE 230353Z AUTO 34007KT 10SM CLR 19/14 A3014 RMK AO2 SLP207 T01890139 PNO $KPIE2019-04-23T03:53:00Z27.92-82.6818.913.9340710.030.1387791020.7TRUETRUETRUEVFRMETAR4.02019-04-23 04:05:57Q§Û])5    3KPIH 230353Z 20007KT 10SM CLR 09/04 A3019 RMK AO2 SLP213 T00890044KPIH2019-04-23T03:53:00Z42.92-112.578.94.4200710.030.1889761021.3TRUEVFRMETAR1359.02019-04-23 04:05:57 :^W§Ûd)5    3KPMP 230353Z AUTO 06006KT 10SM CLR 23/13 A3012 RMK AO2 SLP200 T02330133KPMP2019-04-23T03:53:00Z26.25-80.1223.313.360610.030.1210631020.0TRUETRUEVFRMETAR6.02019-04-23 04:05:57V§Ûc)5    3KPNS 230353Z AUTO 00000KT 10SM CLR 17/10 A3015 RMK AO2 SLP212 T01670100KPNS2019-04-23T03:53:00Z30.48-87.1816.710.00010.030.150591021.2TRUETRUEVFRMETAR38.02019-04-23 04:05:57Y§Ûb)5    3KPOF 230353Z AUTO 20005KT 10SM CLR 18/12 A3003 RMK AO2 SLP168 T01780122KPOF2019-04-23T03:53:00Z36.77-90.3217.812.2200510.030.0295281016.8TRUETRUEVFRMETAR99.02019-04-23 04:05:57a§Ûa)/5    3KPOU 230353Z AUTO 00000KT 10SM SCT050 OVC060 14/13 A3001 RMK AO2 SLP158 T01440133KPOU2019-04-23T03:53:00Z41.63-73.8814.413.30010.030.0088581015.8TRUETRUEVFRMETAR46.02019-04-23 04:05:57 Ìçõ̂#§Ûg)‚ 5       3PAVL 230353Z AUTO 02027KT 1/4SM BLSN VV002 M04/M07 A2956 RMK AO2 PK WND 02035/0343 UPE22SNB22E46 SLP011 P0003 T10441072 TSNO $PAVL2019-04-23T03:53:00Z67.73-164.55-4.4-7.220270.2529.560041001.1TRUETRUETRUETRUEBLSNLIFR0.03200METAR3.02019-04-23 04:05:57l§Ûf);5     3PAWD 230353Z AUTO 36006KT 10SM BKN055 OVC070 03/M02 A2946 RMK AO2 SLP975 T00331017 TSNOPAWD2019-04-23T03:53:00Z60.12-149.423.3-1.7360610.029.459646997.5TRUETRUETRUEVFRMETAR23.02019-04-23 04:05:57‚§Ûe)q5       3PAWI 230353Z AUTO 02023KT 1 1/4SM UP BR OVC007 M07/M08 A2992 RMK AO2 PK WND 02027/0255 SLP134 P0000 T10671083 TSNOPAWI2019-04-23T03:53:00Z70.62-159.85-6.7-8.320231.2529.9202751013.4TRUETRUETRUEBR UPIFR0.005METAR27.02019-04-23 04:05:57 öñßöc§Ûj)-5     3PASO 230353Z AUTO 21005KT 10SM BKN040 01/M07 A2952 RMK AO2 SLP997 T00061072 TSNOPASO2019-04-23T03:53:00Z59.45-151.70.6-7.2210510.029.518702999.7TRUETRUETRUEVFRMETAR9.02019-04-23 04:05:57‚ §Ûi)i5       3PATK 230353Z AUTO 17007KT 3SM -SN BR BKN038 OVC048 01/M01 A2942 RMK AO2 SNE0258B18 SLP969 P0001 T00111011 TSNOPATK2019-04-23T03:53:00Z62.3-150.11.1-1.117073.029.421259996.9TRUETRUETRUE-SN BRMVFR0.01METAR109.02019-04-23 04:05:57‚ §Ûh)W5       3PATO 230353Z AUTO 10004KT 3/4SM -SN BR VV013 00/M01 A2947 RMK AO2 SNB0255 SLP979 P0001 T00001011 TSNOPATO2019-04-23T03:53:00Z60.78-148.850.0-1.110040.7529.471457997.9TRUETRUETRUE-SN BRLIFR0.011300METAR31.02019-04-23 04:05:57 ÷íí÷p§Ûm)M5     3PASC 230353Z 07009KT 1SM R06/3500VP6000FT BR OVC003 M09/M11 A2987 RMK AO2 SLP115 I1000 T10941111PASC2019-04-23T03:53:00Z70.2-148.47-9.4-11.17091.029.8700791011.5TRUEBRLIFRMETAR15.02019-04-23 04:05:57z§Ûl)W5    3PASI 230353Z 17010G19KT 10SM BKN027 BKN039 OVC047 06/02 A2993 RMK AO2 RAB36E47 SLP135 P0000 T00610017PASI2019-04-23T03:53:00Z57.07-135.356.11.7170101910.029.9291341013.5TRUEMVFR0.005METAR5.02019-04-23 04:05:57‚ §Ûk)k5    3PASN 230353Z AUTO 29015G26KT 10SM FEW044 SCT095 M02/M08 A2983 RMK AO2 PK WND 28027/0333 SLP101 T10171083 TSNO $PASN2019-04-23T03:53:00Z57.15-170.22-1.7-8.3290152610.029.8287411010.1TRUETRUETRUETRUEVFRMETAR29.02019-04-23 04:05:57 Jé)JY§Ûq)5    3KLIT 230353Z 19008KT 10SM BKN200 19/11 A3007 RMK AO2 SLP181 T01890111 $KLIT2019-04-23T03:53:00Z34.73-92.2318.911.1190810.030.0708661018.1TRUETRUEVFRMETAR79.02019-04-23 04:05:57Y§Ûp)5    3KLLQ 230353Z AUTO 19004KT 10SM CLR 19/10 A3009 RMK AO2 SLP186 T01940100KLLQ2019-04-23T03:53:00Z33.63-91.7519.410.0190410.030.0885831018.6TRUETRUEVFRMETAR83.02019-04-23 04:05:57[§Ûo)5    3KLMT 230353Z AUTO 31008KT 10SM CLR 14/06 A3026 RMK AO2 SLP228 T01390056KLMT2019-04-23T03:53:00Z42.15-121.7213.95.6310810.030.2598421022.8TRUETRUEVFRMETAR1246.02019-04-23 04:05:57‚§Ûn)g5       3PAQT 230353Z AUTO 08016KT 3SM -FZRA BR OVC010 M09/M11 A2989 RMK AO2 FZRAB51 SLP122 P0000 I1001 T10941106 TSNOPAQT2019-04-23T03:53:00Z70.22-151.0-9.4-10.680163.029.8907471012.2TRUETRUETRUE-FZRA BRMVFR0.005METAR12.02019-04-23 04:05:57 † .c†W§Ûu)5    3KLFT 230353Z AUTO 19003KT 10SM CLR 19/17 A3012 RMK AO2 SLP199 T01940172KLFT2019-04-23T03:53:00Z30.2-92.019.417.2190310.030.1210631019.9TRUETRUEVFRMETAR11.02019-04-23 04:05:57E§Ût)5    3KLGB 230353Z 10SM CLR 17/12 A2995 RMK AO2 SLP141 T01670117KLGB2019-04-23T03:53:00Z33.82-118.1516.711.710.029.9498021014.1TRUEVFRMETAR10.02019-04-23 04:05:57X§Ûs)5    3KLHQ 230353Z AUTO 00000KT 10SM CLR 12/11 A3008 RMK AO2 SLP184 T01170111KLHQ2019-04-23T03:53:00Z39.75-82.6711.711.10010.030.0797251018.4TRUETRUEVFRMETAR260.02019-04-23 04:05:57n§Ûr)95     3KLHX 230353Z AUTO 05013KT 10SM SCT050 OVC085 12/03 A3021 RMK AO2 SLP203 T01220033 TSNOKLHX2019-04-23T03:53:00Z38.05-103.5212.23.3501310.030.2096461020.3TRUETRUETRUEVFRMETAR1277.02019-04-23 04:05:57 v!DTvX§Ûy)5    3KLCH 230353Z AUTO 13005KT 10SM CLR 18/17 A3010 RMK AO2 SLP200 T01830167KLCH2019-04-23T03:53:00Z30.13-93.2218.316.7130510.030.1003931020.0TRUETRUEVFRMETAR4.02019-04-23 04:05:57j§Ûx)35      3KLEB 230353Z AUTO 03003KT 8SM -RA OVC075 14/12 A3003 RMK AO2 SLP162 P0001 T01390117KLEB2019-04-23T03:53:00Z43.63-72.313.911.73038.030.0295281016.2TRUETRUE-RAVFR0.01METAR171.02019-04-23 04:05:57W§Ûw)5    3KLEE 230353Z AUTO 00000KT 10SM CLR 18/11 A3016 RMK AO2 SLP212 T01780111KLEE2019-04-23T03:53:00Z28.82-81.8217.811.10010.030.1594491021.2TRUETRUEVFRMETAR23.02019-04-23 04:05:57Y§Ûv)5    3KLFK 230353Z AUTO 15005KT 10SM CLR 18/16 A3007 RMK AO2 SLP178 T01830156KLFK2019-04-23T03:53:00Z31.23-94.7518.315.6150510.030.0708661017.8TRUETRUEVFRMETAR88.02019-04-23 04:05:57  @ ‚/§Û|)‚;5    3KLBB 230353Z 04013KT 10SM FEW015 BKN035 BKN120 BKN150 14/12 A3004 RMK AO2 LTG DSNT SE AND S SLP141 OCNL LTGICCG DSNT SE-S CB DSNT SE-S MOV NE T01390122KLBB2019-04-23T03:53:00Z33.67-101.8213.912.2401310.030.0413381014.1TRUEBKN15000VFRMETAR993.02019-04-23 04:05:57Y§Û{)5    3KLBF 230353Z AUTO 00000KT 10SM CLR 06/M01 A3021 RMK AO2 SLP234 T00561011KLBF2019-04-23T03:53:00Z41.12-100.675.6-1.10010.030.2096461023.4TRUETRUEVFRMETAR847.02019-04-23 04:05:57[§Ûz)!5    3KLBX 230353Z AUTO 12007KT 10SM SCT041 21/19 A3004 RMK AO2 SLP172 T02110189KLBX2019-04-23T03:53:00Z29.12-95.4721.118.9120710.030.0413381017.2TRUETRUEVFRMETAR6.02019-04-23 04:05:57 "î'"§Ü)_5      3KFRG 230353Z 33009KT 10SM -RA FEW045 BKN080 BKN110 13/12 A2999 RMK AO2 RAB01E19B46 SLP154 P0000 T01330117KFRG2019-04-23T03:53:00Z40.73-73.4213.311.7330910.029.9911421015.4TRUE-RAVFR0.005METAR21.02019-04-23 04:05:57V§Û)5    3KFPR 230353Z AUTO 00000KT 10SM CLR 14/13 A3013 RMK AO2 SLP203 T01440128KFPR2019-04-23T03:53:00Z27.5-80.3814.412.80010.030.1299211020.3TRUETRUEVFRMETAR13.02019-04-23 04:05:57e§Û~)/5    3KFOK 230353Z AUTO 34010KT 10SM BKN021 OVC026 12/11 A2996 RMK AO2 SLP146 T01220111KFOK2019-04-23T03:53:00Z40.85-72.6212.211.13401010.029.9586621014.6TRUETRUEMVFRMETAR33.02019-04-23 04:05:57‚ §Û})i5       3PAYA 230353Z AUTO 14005KT 10SM -RA FEW033 BKN043 BKN050 04/M01 A2970 RMK AO2 RAB33 SLP056 P0000 T00391006 TSNOPAYA2019-04-23T03:53:00Z59.52-139.673.9-0.6140510.029.6988181005.6TRUETRUETRUE-RAVFR0.005METAR11.02019-04-23 04:05:57  >dO§Ü)5    3KFTY 230353Z 00000KT 10SM CLR 14/12 A3016 RMK AO2 SLP206 T01390122KFTY2019-04-23T03:53:00Z33.78-84.5213.912.20010.030.1594491020.6TRUEVFRMETAR263.02019-04-23 04:05:57T§Ü)5    3KFTW 230353Z 13008KT 10SM SCT043 21/16 A3001 RMK AO2 SLP154 T02110161KFTW2019-04-23T03:53:00Z32.83-97.3721.116.1130810.030.0088581015.4TRUEVFRMETAR214.02019-04-23 04:05:57\§Ü)5    3KFST 230353Z AUTO 14017KT 10SM CLR 18/14 A2993 RMK AO2 SLP092 T01830144KFST2019-04-23T03:53:00Z30.92-102.9218.314.41401710.029.9291341009.2TRUETRUEVFRMETAR918.02019-04-23 04:05:57Z§Ü)5    3KFSM 230353Z AUTO 26003KT 10SM CLR 19/13 A3005 RMK AO2 SLP171 T01940128KFSM2019-04-23T03:53:00Z35.33-94.3719.412.8260310.030.0501981017.1TRUETRUEVFRMETAR140.02019-04-23 04:05:57 —)Jj—M§Ü)5    3KFXE 230353Z 05005KT 10SM CLR 23/13 A3011 RMK AO2 SLP200 T02280128KFXE2019-04-23T03:53:00Z26.2-80.1822.812.850510.030.1092531020.0TRUEVFRMETAR6.02019-04-23 04:05:57Z§Ü)!5    3KFWN 230353Z AUTO 00000KT 10SM SCT060 13/12 A3003 RMK AO2 SLP169 T01330117KFWN2019-04-23T03:53:00Z41.2-74.6313.311.70010.030.0295281016.9TRUETRUEVFRMETAR133.02019-04-23 04:05:57Y§Ü)5    3KFVE 230353Z AUTO 35006KT 10SM CLR 04/M08 A3023 RMK AO2 SLP240 T00441083KFVE2019-04-23T03:53:00Z47.28-68.34.4-8.3350610.030.2303141024.0TRUETRUEVFRMETAR301.02019-04-23 04:05:57Q§Ü)5    3KFUL 230353Z 18003KT 10SM CLR 16/12 A2995 RMK AO2 SLP142 T01610117KFUL2019-04-23T03:53:00Z33.87-117.9816.111.7180310.029.9498021014.2TRUEVFRMETAR35.02019-04-23 04:05:57 R ,LRt§Ü )E5      3KGEG 230353Z 21011KT 10SM -RA BKN090 OVC110 14/04 A3010 RMK AO2 SLP193 RAB35 P0000 T01440039KGEG2019-04-23T03:53:00Z47.62-117.5314.43.92101110.030.1003931019.3TRUE-RAVFR0.005METAR735.02019-04-23 04:05:57Z§Ü )5    3KGCC 230353Z AUTO 16006KT 10SM CLR 04/01 A3018 RMK AO2 SLP224 T00390011KGCC2019-04-23T03:53:00Z44.33-105.553.91.1160610.030.1801191022.4TRUETRUEVFRMETAR1320.02019-04-23 04:05:57n§Ü )55      3KGAG 230353Z AUTO 10SM -RA OVC090 16/12 A3010 RMK AO2 RAB30 SLP179 P0000 T01610117 $KGAG2019-04-23T03:53:00Z36.3-99.7716.111.710.030.1003931017.9TRUETRUETRUE-RAVFR0.005METAR668.02019-04-23 04:05:57Z§Ü )5    3KFYV 230353Z AUTO 18003KT 10SM CLR 15/12 A3008 RMK AO2 SLP176 T01500122KFYV2019-04-23T03:53:00Z36.02-94.1715.012.2180310.030.0797251017.6TRUETRUEVFRMETAR379.02019-04-23 04:05:57 #FoZ§Ü)5    3KGFL 230353Z AUTO 36010KT 10SM CLR 14/04 A3003 RMK AO2 SLP172 T01390044KGFL2019-04-23T03:53:00Z43.33-73.6213.94.43601010.030.0295281017.2TRUETRUEVFRMETAR103.02019-04-23 04:05:57Q§Ü)5    3KGFK 230353Z 32006KT 10SM SCT220 07/03 A3015 RMK AO2 SLP215 T00720028KGFK2019-04-23T03:53:00Z47.95-97.187.22.8320610.030.150591021.5TRUEVFRMETAR258.02019-04-23 04:05:57W§Ü)5    3KGEZ 230353Z AUTO 17006KT 10SM CLR 17/08 A3002 RMK AO2 SLP160 T01720078KGEZ2019-04-23T03:53:00Z39.58-85.817.27.8170610.030.020671016.0TRUETRUEVFRMETAR245.02019-04-23 04:05:57W§Ü )5    3KGEY 230353Z AUTO 00000KT 10SM CLR 09/04 A3015 RMK AO2 SLP214 T00940044KGEY2019-04-23T03:53:00Z44.52-108.089.44.40010.030.150591021.4TRUETRUEVFRMETAR1191.02019-04-23 04:05:57 x D`xb§Ü)%5     3KLOU 230353Z AUTO 16004KT 10SM CLR 18/08 A3004 RMK AO2 SLP170 T01830078 TSNOKLOU2019-04-23T03:53:00Z38.22-85.6718.37.8160410.030.0413381017.0TRUETRUETRUEVFRMETAR164.02019-04-23 04:05:57^§Ü)5    3KGIF 230353Z AUTO 12006KT 10SM CLR 19/13 A3015 RMK AO2 SLP208 T01940128 $KGIF2019-04-23T03:53:00Z28.07-81.7519.412.8120610.030.150591020.8TRUETRUETRUEVFRMETAR43.02019-04-23 04:05:57V§Ü)5    3KGGW 230353Z AUTO 16010KT 10SM CLR 12/03 A3000 RMK AO2 SLP162 T01220028KGGW2019-04-23T03:53:00Z48.22-106.6212.22.81601010.030.01016.2TRUETRUEVFRMETAR694.02019-04-23 04:05:57Z§Ü)5    3KGGG 230353Z AUTO 17005KT 10SM CLR 20/16 A3005 RMK AO2 SLP171 T02000161KGGG2019-04-23T03:53:00Z32.38-94.7220.016.1170510.030.0501981017.1TRUETRUEVFRMETAR107.02019-04-23 04:05:57 y@`ya§Ü)35    3KBFI 230353Z 17007KT 10SM SCT010 BKN018 OVC028 12/09 A3021 RMK AO2 SLP229 T01170094KBFI2019-04-23T03:53:00Z47.55-122.3211.79.4170710.030.2096461022.9TRUEMVFRMETAR4.02019-04-23 04:05:57Z§Ü)5    3KLND 230353Z AUTO 23004KT 10SM CLR 04/01 A3020 RMK AO2 SLP227 T00440006KLND2019-04-23T03:53:00Z42.82-108.734.40.6230410.030.2007871022.7TRUETRUEVFRMETAR1694.02019-04-23 04:05:57W§Ü)5    3KLNS 230353Z AUTO 05003KT 10SM CLR 14/07 A3005 RMK AO2 SLP175 T01440067KLNS2019-04-23T03:53:00Z40.12-76.314.46.750310.030.0501981017.5TRUETRUEVFRMETAR125.02019-04-23 04:05:57]§Ü)5    3KLOL 230353Z AUTO 26003KT 10SM CLR 11/M02 A3018 RMK AO2 SLP210 T01061022KLOL2019-04-23T03:53:00Z40.07-118.5710.6-2.2260310.030.1801191021.0TRUETRUEVFRMETAR1189.02019-04-23 04:05:57  *Kf @§Ü({5    3KORB 230353Z AUTO 00000KT 10SM CLR 02/M03 A3008 RMK AO2KORB2019-04-23T03:53:00Z48.02-92.872.0-3.00010.030.079725TRUETRUEVFRMETAR397.02019-04-23 04:05:57_§Ü)5    3KLPR 230353Z AUTO 18006KT 10SM CLR 15/07 A3006 RMK AO2 SLP179 T01500067 $KLPR2019-04-23T03:53:00Z41.35-82.1815.06.7180610.030.0590551017.9TRUETRUETRUEVFRMETAR241.02019-04-23 04:05:57Y§Ü)5    3KJEF 230353Z AUTO 29005KT 10SM CLR 21/16 A2999 RMK AO2 SLP141 T02060156KJEF2019-04-23T03:53:00Z38.6-92.1520.615.6290510.029.9911421014.1TRUETRUEVFRMETAR168.02019-04-23 04:05:57P§Ü)5    3KBKL 230353Z 17006KT 10SM CLR 17/06 A3005 RMK AO2 SLP175 T01670056KBKL2019-04-23T03:53:00Z41.53-81.6716.75.6170610.030.0501981017.5TRUEVFRMETAR184.02019-04-23 04:05:57 d(Ldb§Ü )'5   3KGJT 230353Z AUTO 06013G21KT 10SM FEW100 16/01 A3002 RMK AO2 SLP120 T01610011KGJT2019-04-23T03:53:00Z39.12-108.5216.11.160132110.030.020671012.0TRUETRUEVFRMETAR1475.02019-04-23 04:05:57V§Ü)5    3KVLD 230353Z AUTO 00000KT 10SM CLR 13/11 A3015 RMK AO2 SLP217 T01280106KVLD2019-04-23T03:53:00Z30.78-83.2712.810.60010.030.150591021.7TRUETRUEVFRMETAR62.02019-04-23 04:05:57l§Ü)35      3KLSE 230353Z AUTO 35011KT 8SM -RA OVC011 09/07 A2994 RMK AO2 SLP137 P0004 T00940067KLSE2019-04-23T03:53:00Z43.88-91.259.46.7350118.029.9409451013.7TRUETRUE-RAMVFR0.04METAR199.02019-04-23 04:05:57`§Ü)%5     3KGKJ 230353Z AUTO VRB03KT 10SM CLR 14/06 A3008 RMK AO2 SLP185 T01390061 TSNOKGKJ2019-04-23T03:53:00Z41.63-80.2213.96.10310.030.0797251018.5TRUETRUETRUEVFRMETAR428.02019-04-23 04:05:57 r/Sr[§Ü$)!5    3KGOK 230353Z AUTO 05003KT 10SM OVC033 18/14 A3006 RMK AO2 SLP174 T01830144KGOK2019-04-23T03:53:00Z35.85-97.418.314.450310.030.0590551017.4TRUETRUEVFRMETAR324.02019-04-23 04:05:57V§Ü#)5    3KGPT 230353Z AUTO 00000KT 10SM CLR 15/13 A3015 RMK AO2 SLP210 T01500133KGPT2019-04-23T03:53:00Z30.42-89.0815.013.30010.030.150591021.0TRUETRUEVFRMETAR14.02019-04-23 04:05:57Z§Ü")5    3KIPL 230353Z AUTO 24006KT 10SM CLR 24/03 A2982 RMK AO2 SLP097 T02440028KIPL2019-04-23T03:53:00Z32.83-115.5824.42.8240610.029.8198811009.7TRUETRUEVFRMETAR-17.02019-04-23 04:05:57k§Ü!)A5     3TJNR 230353Z AUTO 10SM FEW029 SCT035 BKN046 26/19 A3000 RMK AO2 SLP157 T02560194 403110239TJNR2019-04-23T03:53:00Z18.25-65.6325.619.410.030.01015.7TRUETRUEVFR31.123.9METAR12.02019-04-23 04:05:57 ‡$Df‡Y§Ü()5    3KGLD 230353Z AUTO 35006KT 10SM CLR 06/02 A3020 RMK AO2 SLP230 T00610017KGLD2019-04-23T03:53:00Z39.37-101.76.11.7350610.030.2007871023.0TRUETRUEVFRMETAR1113.02019-04-23 04:05:57X§Ü')5    3KGLH 230353Z AUTO 22004KT 10SM CLR 18/10 A3008 RMK AO2 SLP191 T01780100KGLH2019-04-23T03:53:00Z33.5-90.9817.810.0220410.030.0797251019.1TRUETRUEVFRMETAR45.02019-04-23 04:05:57Z§Ü&)5    3KGMU 230353Z AUTO 27003KT 10SM CLR 17/11 A3014 RMK AO2 SLP201 T01720106KGMU2019-04-23T03:53:00Z34.85-82.3517.210.6270310.030.1387791020.1TRUETRUEVFRMETAR315.02019-04-23 04:05:57V§Ü%)5    3KGNV 230353Z AUTO 00000KT 10SM CLR 16/10 A3018 RMK AO2 SLP217 T01610100KGNV2019-04-23T03:53:00Z29.7-82.2816.110.00010.030.1801191021.7TRUETRUEVFRMETAR45.02019-04-23 04:05:57 ‡?c‡V§Ü,)5    3KGRI 230353Z AUTO 00000KT 10SM CLR 08/03 A3018 RMK AO2 SLP228 T00780033KGRI2019-04-23T03:53:00Z40.97-98.327.83.30010.030.1801191022.8TRUETRUEVFRMETAR561.02019-04-23 04:05:57V§Ü+)5    3KCUB 230353Z AUTO 00000KT 10SM CLR 14/11 A3014 RMK AO2 SLP205 T01440111KCUB2019-04-23T03:53:00Z33.97-81.014.411.10010.030.1387791020.5TRUETRUEVFRMETAR56.02019-04-23 04:05:57Z§Ü*)!5    3KUUU 230353Z AUTO 01008KT 10SM SCT008 10/09 A2990 RMK AO2 SLP125 T01000094KUUU2019-04-23T03:53:00Z41.53-71.2810.09.410810.029.8996071012.5TRUETRUEVFRMETAR51.02019-04-23 04:05:57[§Ü))!5    3KGKY 230353Z AUTO 10005KT 10SM BKN047 22/17 A3002 RMK AO2 SLP158 T02170167KGKY2019-04-23T03:53:00Z32.67-97.121.716.7100510.030.020671015.8TRUETRUEVFRMETAR192.02019-04-23 04:05:57 [99[X§Ü0)5    3KBGM 230353Z AUTO 31005KT 10SM CLR 09/06 A3008 RMK AO2 SLP189 T00890061KBGM2019-04-23T03:53:00Z42.22-75.988.96.1310510.030.0797251018.9TRUETRUEVFRMETAR490.02019-04-23 04:05:57z§Ü/)U5      3KBGR 230353Z 02012KT 5SM -RA BR BKN008 OVC015 11/10 A3009 RMK AO2 CIG 006V011 SLP187 P0004 T01060100KBGR2019-04-23T03:53:00Z44.8-68.8210.610.020125.030.0885831018.7TRUE-RA BRIFR0.04METAR57.02019-04-23 04:05:57O§Ü.)5    3KBHM 230353Z 00000KT 10SM CLR 16/12 A3017 RMK AO2 SLP209 T01560117KBHM2019-04-23T03:53:00Z33.57-86.7515.611.70010.030.1712591020.9TRUEVFRMETAR197.02019-04-23 04:05:57l§Ü-)C5   3KGRR 230353Z 18015G23KT 10SM SCT055 BKN095 OVC110 20/08 A2988 RMK AO2 SLP113 LAST T02000078KGRR2019-04-23T03:53:00Z42.88-85.5220.07.8180152310.029.8789371011.3TRUEVFRMETAR237.02019-04-23 04:05:57 S%=TS{§Ü4)O5      3KBEH 230353Z AUTO 17008KT 10SM -RA BKN070 OVC090 19/09 A2989 RMK AO2 RAB48 SLP119 P0000 T01890094KBEH2019-04-23T03:53:00Z42.13-86.4218.99.4170810.029.8907471011.9TRUETRUE-RAVFR0.005METAR191.02019-04-23 04:05:57c§Ü3)/5    3KGSH 230353Z AUTO 18007KT 10SM SCT100 BKN120 18/09 A2995 RMK AO2 SLP138 T01780089KGSH2019-04-23T03:53:00Z41.53-85.7817.88.9180710.029.9498021013.8TRUETRUEVFRMETAR252.02019-04-23 04:05:57b§Ü2)'5   3KBRL 230353Z AUTO 30009G18KT 10SM OVC017 14/09 A2995 RMK AO2 SLP141 T01390094KBRL2019-04-23T03:53:00Z40.77-91.1313.99.430091810.029.9498021014.1TRUETRUEMVFRMETAR211.02019-04-23 04:05:57U§Ü1)5    3KBOI 230353Z 02003KT 10SM CLR 16/01 A3015 RMK AO2 SLP200 T01610006 $KBOI2019-04-23T03:53:00Z43.57-116.2316.10.620310.030.150591020.0TRUETRUEVFRMETAR875.02019-04-23 04:05:57 ,!C ,X§Ü8)5    3KBFF 230353Z AUTO 00000KT 10SM CLR 07/03 A3023 RMK AO2 SLP235 T00720033KBFF2019-04-23T03:53:00Z41.87-103.587.23.30010.030.2303141023.5TRUETRUEVFRMETAR1203.02019-04-23 04:05:57‚3§Ü7)‚?5   3KMDW 230353Z 19015G27KT 10SM FEW033 SCT070 SCT110 OVC180 20/12 A2983 RMK PK WND 17027/0352 RAE46 TSE46 SLP093 OCNL LTGIC DSNT N CB DSNT N P0006 T02000122KMDW2019-04-23T03:53:00Z41.78-87.7520.012.2190152710.029.8287411009.3OVC18000VFR0.06METAR188.02019-04-23 04:05:57X§Ü6)5    3KVCB 230353Z AUTO 33007KT 10SM CLR 24/01 A2998 RMK AO2 SLP150 T02390006KVCB2019-04-23T03:53:00Z38.38-121.9523.90.6330710.029.979331015.0TRUETRUEVFRMETAR33.02019-04-23 04:05:57Y§Ü5)5    3KBFM 230353Z AUTO 25003KT 10SM CLR 14/13 A3017 RMK AO2 SLP216 T01440133KBFM2019-04-23T03:53:00Z30.62-88.0714.413.3250310.030.1712591021.6TRUETRUEVFRMETAR20.02019-04-23 04:05:57 %F]X§Ü<)5    3KVGT 230353Z AUTO 02009KT 10SM CLR 24/00 A2993 RMK AO2 SLP137 T02390000KVGT2019-04-23T03:53:00Z36.22-115.223.90.020910.029.9291341013.7TRUETRUEVFRMETAR671.02019-04-23 04:05:57c§Ü;)/5    3KVIH 230353Z AUTO 24009KT 10SM SCT055 OVC075 21/15 A3002 RMK AO2 SLP157 T02060150KVIH2019-04-23T03:53:00Z38.13-91.7720.615.0240910.030.020671015.7TRUETRUEVFRMETAR333.02019-04-23 04:05:57Y§Ü:)5    3KVEL 230353Z AUTO 07007KT 10SM CLR 11/02 A3015 RMK AO2 SLP178 T01060017KVEL2019-04-23T03:53:00Z40.45-109.5210.61.770710.030.150591017.8TRUETRUEVFRMETAR1604.02019-04-23 04:05:57U§Ü9)5    3KBFD 230353Z AUTO 00000KT 10SM CLR 08/06 A3010 RMK AO2 SLP197 T00780056KBFD2019-04-23T03:53:00Z41.8-78.637.85.60010.030.1003931019.7TRUETRUEVFRMETAR647.02019-04-23 04:05:57 } Fe}b§Ü@)/5    3KGUP 230353Z AUTO 06007KT 10SM BKN070 OVC100 09/01 A3010 RMK AO2 SLP126 T00890006KGUP2019-04-23T03:53:00Z35.52-108.88.90.660710.030.1003931012.6TRUETRUEVFRMETAR1971.02019-04-23 04:05:57[§Ü?)5    3KIDA 230353Z AUTO 22008KT 10SM CLR 10/03 A3018 RMK AO2 SLP210 T01000033KIDA2019-04-23T03:53:00Z43.52-112.0710.03.3220810.030.1801191021.0TRUETRUEVFRMETAR1453.02019-04-23 04:05:57T§Ü>)5    3KILM 230353Z AUTO 00000KT 10SM CLR 16/12 A3015 RMK AO2 SLP209 T01560122KILM2019-04-23T03:53:00Z34.27-77.915.612.20010.030.150591020.9TRUETRUEVFRMETAR9.02019-04-23 04:05:57Z§Ü=)5    3KIML 230353Z AUTO 01004KT 10SM CLR 06/M02 A3022 RMK AO2 SLP244 T00561017KIML2019-04-23T03:53:00Z40.52-101.625.6-1.710410.030.2214571024.4TRUETRUEVFRMETAR998.02019-04-23 04:05:57 A4UA‚§ÜD)k5      3PAGY 230353Z AUTO 20015G24KT 10SM -RA OVC060 07/M04 A2972 RMK AO2 PK WND 21040/0256 SLP063 P0000 T00671044 TSNOPAGY2019-04-23T03:53:00Z59.47-135.36.7-4.4200152410.029.7194881006.3TRUETRUETRUE-RAVFR0.005METAR5.02019-04-23 04:05:57Y§ÜC)5    3KBPI 230353Z AUTO 24004KT 10SM CLR 04/01 A3024 RMK AO2 SLP217 T00390011KBPI2019-04-23T03:53:00Z42.58-110.13.91.1240410.030.2391741021.7TRUETRUEVFRMETAR2117.02019-04-23 04:05:57c§ÜB)%5     3KBPK 230353Z AUTO 23005KT 10SM CLR 20/11 A3004 RMK AO2 SLP165 T02000111 TSNOKBPK2019-04-23T03:53:00Z36.37-92.4720.011.1230510.030.0413381016.5TRUETRUETRUEVFRMETAR280.02019-04-23 04:05:57]§ÜA)!5    3KBPT 230353Z AUTO 12010KT 10SM BKN019 21/18 A3007 RMK AO2 SLP183 T02110183KBPT2019-04-23T03:53:00Z29.95-94.0321.118.31201010.030.0708661018.3TRUETRUEMVFRMETAR5.02019-04-23 04:05:57 Zü/ZO§ÜH)5    3KGSP 230353Z 22003KT 10SM CLR 14/09 A3014 RMK AO2 SLP199 T01390089KGSP2019-04-23T03:53:00Z34.9-82.2213.98.9220310.030.1387791019.9TRUEVFRMETAR287.02019-04-23 04:05:57R§ÜG)5    3KGTF 230353Z 22013KT 10SM CLR 12/02 A2998 RMK AO2 SLP151 T01170017KGTF2019-04-23T03:53:00Z47.47-111.3811.71.72201310.029.979331015.1TRUEVFRMETAR1119.02019-04-23 04:05:57o§ÜF)E5      3PAFA 230353Z 20005KT 10SM -RA BKN037 OVC046 07/03 A2920 RMK AO2 RAB02 SLP893 P0001 T00670028PAFA2019-04-23T03:53:00Z64.8-147.856.72.8200510.029.199802989.3TRUE-RAVFR0.01METAR132.02019-04-23 04:05:57~§ÜE)W5    3PAGK 230353Z AUTO 17023G29KT 10SM OVC100 02/M09 A2936 RMK AO2 PK WND 17029/0353 SLP960 T00221094 TSNOPAGK2019-04-23T03:53:00Z62.15-145.452.2-9.4170232910.029.359253996.0TRUETRUETRUEVFRMETAR481.02019-04-23 04:05:57 t"-MtS§ÜL)!5    3KPTK 230353Z 16005KT 10SM BKN140 14/07 A3000 RMK AO2 SLP157 LAST T01440067KPTK2019-04-23T03:53:00Z42.67-83.4214.46.7160510.030.01015.7TRUEVFRMETAR299.02019-04-23 04:05:57Z§ÜK)5    3KWRL 230353Z AUTO 16007KT 10SM CLR 07/03 A3016 RMK AO2 SLP219 T00670033KWRL2019-04-23T03:53:00Z43.97-107.956.73.3160710.030.1594491021.9TRUETRUEVFRMETAR1271.02019-04-23 04:05:57o§ÜJ)C5   3KWST 230353Z AUTO 36009G17KT 10SM BKN018 BKN075 OVC100 14/12 A2991 RMK AO2 SLP129 T01390117KWST2019-04-23T03:53:00Z41.35-71.813.911.736091710.029.9114171012.9TRUETRUEMVFRMETAR21.02019-04-23 04:05:57X§ÜI)5    3KWVI 230353Z AUTO 00000KT 10SM CLR 12/10 A3003 RMK AO2 SLP168 T01220100KWVI2019-04-23T03:53:00Z36.93-121.7812.210.00010.030.0295281016.8TRUETRUEVFRMETAR43.02019-04-23 04:05:57 ŽIhŽT§ÜP)5    3KPRC 230353Z 28007KT 10SM CLR 12/M01 A3001 RMK AO2 SLP107 T01221006KPRC2019-04-23T03:53:00Z34.65-112.4212.2-0.6280710.030.0088581010.7TRUEVFRMETAR1524.02019-04-23 04:05:57[§ÜO)%5    3KPSC 230353Z 24007KT 10SM BKN080 OVC110 22/07 A3010 RMK AO2 SLP190 T02170072KPSC2019-04-23T03:53:00Z46.27-119.1221.77.2240710.030.1003931019.0TRUEVFRMETAR121.02019-04-23 04:05:57P§ÜN)5    3KPSP 230353Z 35003KT 10SM CLR 26/02 A2989 RMK AO2 SLP119 T02610022KPSP2019-04-23T03:53:00Z33.82-116.526.12.2350310.029.8907471011.9TRUEVFRMETAR135.02019-04-23 04:05:57[§ÜM)!5    3KPSX 230353Z AUTO 11014KT 10SM OVC035 23/21 A3002 RMK AO2 SLP163 T02280206KPSX2019-04-23T03:53:00Z28.72-96.2522.820.61101410.030.020671016.3TRUETRUEVFRMETAR5.02019-04-23 04:05:57 %I[H§ÜT) 5   3KYIP 230353Z 14004KT 10SM 13/08 A3002 RMK AO2 SLP162 T01330078KYIP2019-04-23T03:53:00Z42.23-83.5313.37.8140410.030.020671016.2TRUEMETAR215.02019-04-23 04:05:57h§ÜS)55     3KYKM 230353Z 36006KT 10SM FEW110 18/06 A3012 RMK AO2 RAB31E41 SLP199 P0000 T01780056KYKM2019-04-23T03:53:00Z46.57-120.5317.85.6360610.030.1210631019.9TRUEVFR0.005METAR324.02019-04-23 04:05:57V§ÜR)5    3KZZV 230353Z AUTO 00000KT 10SM CLR 13/07 A3008 RMK AO2 SLP186 T01330072KZZV2019-04-23T03:53:00Z39.95-81.913.37.20010.030.0797251018.6TRUETRUEVFRMETAR268.02019-04-23 04:05:57U§ÜQ)5    3KPRB 230353Z AUTO 29006KT 10SM CLR 20/08 A3000 RMK AO2 SLP155 T02000078KPRB2019-04-23T03:53:00Z35.67-120.6320.07.8290610.030.01015.5TRUETRUEVFRMETAR245.02019-04-23 04:05:57 q6_qh§ÜX)=5    3KPAE 230353Z 16012KT 10SM BKN008 OVC013 11/09 A3020 RMK AO2 CIG 005V010 SLP228 T01060089KPAE2019-04-23T03:53:00Z47.92-122.2810.68.91601210.030.2007871022.8TRUEIFRMETAR180.02019-04-23 04:05:57Q§ÜW)5    3KPAH 230353Z 23005KT 10SM CLR 17/11 A3005 RMK AO2 SLP172 T01720111KPAH2019-04-23T03:53:00Z37.07-88.7717.211.1230510.030.0501981017.2TRUEVFRMETAR119.02019-04-23 04:05:57]§ÜV)!5    3KMKO 230353Z AUTO 17006KT 10SM OVC060 20/18 A3005 RMK AO2 SLP171 T02000183KMKO2019-04-23T03:53:00Z35.65-95.3720.018.3170610.030.0501981017.1TRUETRUEVFRMETAR185.02019-04-23 04:05:57a§ÜU)/5    3KXNA 230353Z AUTO 00000KT 10SM FEW043 OVC050 19/14 A3007 RMK AO2 SLP171 T01890144KXNA2019-04-23T03:53:00Z36.28-94.318.914.40010.030.0708661017.1TRUETRUEVFRMETAR392.02019-04-23 04:05:57 p"@NpX§Ü\)5    3KVRB 230353Z AUTO 07004KT 10SM CLR 16/13 A3013 RMK AO2 SLP201 T01610133KVRB2019-04-23T03:53:00Z27.65-80.4216.113.370410.030.1299211020.1TRUETRUEVFRMETAR10.02019-04-23 04:05:57l§Ü[)55      3KGUY 230353Z AUTO 01006KT 10SM -RA OVC070 13/09 A3016 RMK AO2 SLP190 P0003 T01280089KGUY2019-04-23T03:53:00Z36.68-101.512.88.910610.030.1594491019.0TRUETRUE-RAVFR0.03METAR948.02019-04-23 04:05:57\§ÜZ)!5    3KPWA 230353Z AUTO 04006KT 10SM OVC055 19/15 A3005 RMK AO2 SLP168 T01890150KPWA2019-04-23T03:53:00Z35.53-97.6518.915.040610.030.0501981016.8TRUETRUEVFRMETAR397.02019-04-23 04:05:57X§ÜY)5    3KOXB 230353Z AUTO 27003KT 10SM CLR 12/11 A3006 RMK AO2 SLP177 T01220111KOXB2019-04-23T03:53:00Z38.32-75.1212.211.1270310.030.0590551017.7TRUETRUEVFRMETAR3.02019-04-23 04:05:57 S#5S\§Ü`)!5    3KRBG 230353Z AUTO 02005KT 10SM OVC070 21/09 A3023 RMK AO2 SLP238 T02110089KRBG2019-04-23T03:53:00Z43.23-123.3521.18.920510.030.2303141023.8TRUETRUEVFRMETAR154.02019-04-23 04:05:57\§Ü_)!5    3KRBD 230353Z AUTO 13008KT 10SM FEW046 21/17 A3002 RMK AO2 SLP159 T02110167KRBD2019-04-23T03:53:00Z32.68-96.8721.116.7130810.030.020671015.9TRUETRUEVFRMETAR203.02019-04-23 04:05:57‚§Ü^)o5   3KRAC 230353Z AUTO 18011G20KT 10SM SCT060 17/09 A2979 RMK AO2 PK WND 17031/0319 LTG DSNT W AND NW SLP088 T01720094KRAC2019-04-23T03:53:00Z42.77-87.8217.29.4180112010.029.7903541008.8TRUETRUEVFRMETAR203.02019-04-23 04:05:57W§Ü])5    3KVPC 230353Z AUTO 00000KT 10SM CLR 12/10 A3015 RMK AO2 SLP204 T01170100KVPC2019-04-23T03:53:00Z34.13-84.8511.710.00010.030.150591020.4TRUETRUEVFRMETAR222.02019-04-23 04:05:57 s*@PsW§Üd)5    3KBKV 230353Z AUTO 00000KT 10SM CLR 13/11 A3016 RMK AO2 SLP213 T01330111KBKV2019-04-23T03:53:00Z28.47-82.4513.311.10010.030.1594491021.3TRUETRUEVFRMETAR20.02019-04-23 04:05:57j§Üc)?5   3KRHI 230353Z AUTO 03005G18KT 10SM OVC006 04/02 A2998 RMK AO2 CIG 005V010 SLP161 T00440022KRHI2019-04-23T03:53:00Z45.63-89.484.42.23051810.029.979331016.1TRUETRUEIFRMETAR485.02019-04-23 04:05:57d§Üb)/5    3KRIL 230353Z AUTO 08008KT 10SM FEW090 FEW100 12/01 A3011 RMK AO2 SLP161 T01220006KRIL2019-04-23T03:53:00Z39.53-107.7312.20.680810.030.1092531016.1TRUETRUEVFRMETAR1678.02019-04-23 04:05:57P§Üa)5    3KRDD 230353Z 36008KT 10SM CLR 26/06 A3003 RMK AO2 SLP166 T02610061KRDD2019-04-23T03:53:00Z40.52-122.326.16.1360810.030.0295281016.6TRUEVFRMETAR155.02019-04-23 04:05:57 v6VvZ§Üh)5    3KRIW 230353Z AUTO 19003KT 10SM CLR 07/02 A3021 RMK AO2 SLP226 T00670017KRIW2019-04-23T03:53:00Z43.07-108.476.71.7190310.030.2096461022.6TRUETRUEVFRMETAR1697.02019-04-23 04:05:57Z§Üg)5    3KBMG 230353Z AUTO 18006KT 10SM CLR 18/10 A3001 RMK AO2 SLP156 T01780100KBMG2019-04-23T03:53:00Z39.15-86.6217.810.0180610.030.0088581015.6TRUETRUEVFRMETAR257.02019-04-23 04:05:57Z§Üf)5    3KBMQ 230353Z AUTO 14006KT 10SM CLR 21/16 A3005 RMK AO2 SLP162 T02060156KBMQ2019-04-23T03:53:00Z30.73-98.2320.615.6140610.030.0501981016.2TRUETRUEVFRMETAR389.02019-04-23 04:05:57d§Üe)/5     3KBLI 230353Z 18009KT 10SM OVC017 11/08 A3019 RMK AO2 RAE17 SLP232 P0000 T01110078KBLI2019-04-23T03:53:00Z48.8-122.5311.17.8180910.030.1889761023.2TRUEMVFR0.005METAR50.02019-04-23 04:05:57 };\}Y§Ül)5    3KGVL 230353Z AUTO 26005KT 10SM CLR 16/09 A3016 RMK AO2 SLP203 T01610089KGVL2019-04-23T03:53:00Z34.27-83.8316.18.9260510.030.1594491020.3TRUETRUEVFRMETAR386.02019-04-23 04:05:57Y§Ük)5    3KBKE 230353Z AUTO 00000KT 10SM CLR 14/03 A3020 RMK AO2 SLP221 T01390033KBKE2019-04-23T03:53:00Z44.85-117.8213.93.30010.030.2007871022.1TRUETRUEVFRMETAR1024.02019-04-23 04:05:57W§Üj)5    3KRME 230353Z AUTO 28004KT 10SM CLR 08/06 A3011 RMK AO2 SLP195 T00830056KRME2019-04-23T03:53:00Z43.22-75.48.35.6280410.030.1092531019.5TRUETRUEVFRMETAR154.02019-04-23 04:05:57b§Üi)-5    3KRKP 230353Z AUTO 11014KT 7SM SCT021 OVC029 22/20 A2999 RMK AO2 SLP157 T02170200KRKP2019-04-23T03:53:00Z28.08-97.0521.720.0110147.029.9911421015.7TRUETRUEMVFRMETAR6.02019-04-23 04:05:57 …$Hl…a§Üp))5    3TISX 230353Z AUTO 01004KT CLR 21/18 A2998 RMK AO2 SLP151 T02060178 402940206 $TISX2019-04-23T03:53:00Z17.7-64.820.617.810429.979331015.1TRUETRUETRUE29.420.6METAR19.02019-04-23 04:05:57V§Üo)5    3KHGR 230353Z AUTO 00000KT 10SM CLR 16/07 A3008 RMK AO2 SLP195 T01610072KHGR2019-04-23T03:53:00Z39.7-77.7316.17.20010.030.0797251019.5TRUETRUEVFRMETAR224.02019-04-23 04:05:57V§Ün)5    3KGWO 230353Z AUTO 00000KT 10SM CLR 16/13 A3009 RMK AO2 SLP189 T01610128KGWO2019-04-23T03:53:00Z33.5-90.0816.112.80010.030.0885831018.9TRUETRUEVFRMETAR44.02019-04-23 04:05:57V§Üm)5    3KGZH 230353Z AUTO 00000KT 10SM CLR 14/11 A3015 RMK AO2 SLP209 T01440111KGZH2019-04-23T03:53:00Z31.42-87.0514.411.10010.030.150591020.9TRUETRUEVFRMETAR78.02019-04-23 04:05:57 ˆ"Fiˆ[§Üt)!5    3KRVS 230353Z AUTO 00000KT 10SM OVC040 20/17 A3003 RMK AO2 SLP175 T02000172KRVS2019-04-23T03:53:00Z36.05-95.9820.017.20010.030.0295281017.5TRUETRUEVFRMETAR200.02019-04-23 04:05:57W§Üs)5    3KRWF 230353Z AUTO 03005KT 10SM CLR 07/03 A3013 RMK AO2 SLP209 T00670033KRWF2019-04-23T03:53:00Z44.55-95.086.73.330510.030.1299211020.9TRUETRUEVFRMETAR311.02019-04-23 04:05:57V§Ür)5    3KRWI 230353Z AUTO 00000KT 10SM CLR 12/11 A3013 RMK AO2 SLP202 T01170106KRWI2019-04-23T03:53:00Z35.85-77.911.710.60010.030.1299211020.2TRUETRUEVFRMETAR47.02019-04-23 04:05:57X§Üq)5    3KRWL 230353Z AUTO 06009KT 10SM CLR 04/01 A3022 RMK AO2 SLP218 T00440011KRWL2019-04-23T03:53:00Z41.78-107.24.41.160910.030.2214571021.8TRUETRUEVFRMETAR2077.02019-04-23 04:05:57 u#+Wu\§Üx)!5    3KRQE 230353Z AUTO 00000KT 10SM OVC055 11/00 A3011 RMK AO2 SLP119 T01110000KRQE2019-04-23T03:53:00Z35.65-109.0711.10.00010.030.1092531011.9TRUETRUEVFRMETAR2055.02019-04-23 04:05:57N§Üw)5    3KRSW 230353Z 00000KT 10SM CLR 20/14 A3012 RMK AO2 SLP197 T02000139KRSW2019-04-23T03:53:00Z26.53-81.7520.013.90010.030.1210631019.7TRUEVFRMETAR10.02019-04-23 04:05:57r§Üv)A5      3KRTN 230353Z AUTO 06009KT 7SM -RA BKN020 OVC030 07/05 A3022 RMK AO2 SLP187 P0002 T00720050KRTN2019-04-23T03:53:00Z36.73-104.57.25.06097.030.2214571018.7TRUETRUE-RAMVFR0.02METAR1936.02019-04-23 04:05:57W§Üu)5    3KRUE 230353Z AUTO 00000KT 10SM CLR 16/13 A3005 RMK AO2 SLP170 T01560133KRUE2019-04-23T03:53:00Z35.25-93.115.613.30010.030.0501981017.0TRUETRUEVFRMETAR115.02019-04-23 04:05:57 N9Ne§Ü|)/5    3KHRI 230353Z AUTO 24011KT 10SM SCT075 OVC095 19/06 A3013 RMK AO2 SLP200 T01940056KHRI2019-04-23T03:53:00Z45.83-119.2719.45.62401110.030.1299211020.0TRUETRUEVFRMETAR195.02019-04-23 04:05:57^§Ü{)5    3KRMG 230353Z AUTO 00000KT 10SM CLR 14/11 A3013 RMK AO2 SLP197 T01390106 $KRMG2019-04-23T03:53:00Z34.35-85.1713.910.60010.030.1299211019.7TRUETRUETRUEVFRMETAR193.02019-04-23 04:05:57o§Üz)95     3KRNM 230353Z AUTO 11003KT 10SM CLR 16/11 A2996 RMK AO2 RAB05E31 SLP139 P0000 T01560111KRNM2019-04-23T03:53:00Z33.03-116.9215.611.1110310.029.9586621013.9TRUETRUEVFR0.005METAR427.02019-04-23 04:05:57h§Üy);5    3KRNT 230353Z AUTO 14005KT 9SM BKN009 BKN013 OVC030 12/11 A3021 RMK AO2 SLP235 T01170106KRNT2019-04-23T03:53:00Z47.5-122.2211.710.614059.030.2096461023.5TRUETRUEIFRMETAR21.02019-04-23 04:05:57 b BbZ§Ý)5    3KHLN 230353Z AUTO 20006KT 10SM CLR 14/00 A3008 RMK AO2 SLP197 T01440000KHLN2019-04-23T03:53:00Z46.6-111.9814.40.0200610.030.0797251019.7TRUETRUEVFRMETAR1182.02019-04-23 04:05:57X§Ü)5    3KHOT 230353Z AUTO 05004KT 10SM CLR 16/14 A3008 RMK AO2 SLP181 T01560139KHOT2019-04-23T03:53:00Z34.48-93.115.613.950410.030.0797251018.1TRUETRUEVFRMETAR162.02019-04-23 04:05:57[§Ü~)%5    3KHOU 230353Z 13011KT 10SM SCT015 OVC230 22/18 A3004 RMK AO2 SLP178 T02170183KHOU2019-04-23T03:53:00Z29.63-95.2821.718.31301110.030.0413381017.8TRUEVFRMETAR36.02019-04-23 04:05:57y§Ü})M5      3KHQM 230353Z AUTO 14004KT 1 1/2SM -RA BR OVC007 09/09 A3024 RMK AO2 RAB39 SLP242 P0002 T00940094KHQM2019-04-23T03:53:00Z46.97-123.939.49.414041.530.2391741024.2TRUETRUE-RA BRIFR0.02METAR7.02019-04-23 04:05:57 …!Ce…Z§Ý)5    3KHKS 230353Z AUTO 13004KT 10SM CLR 18/13 A3012 RMK AO2 SLP192 T01780128KHKS2019-04-23T03:53:00Z32.33-90.2217.812.8130410.030.1210631019.2TRUETRUEVFRMETAR108.02019-04-23 04:05:57X§Ý)5    3KHKY 230353Z AUTO 00000KT 10SM CLR 14/10 A3013 RMK AO2 SLP188 T01440100KHKY2019-04-23T03:53:00Z35.75-81.3814.410.00010.030.1299211018.8TRUETRUEVFRMETAR354.02019-04-23 04:05:57X§Ý)5    3KHLC 230353Z AUTO 35009KT 10SM CLR 09/03 A3018 RMK AO2 SLP221 T00890028KHLC2019-04-23T03:53:00Z39.37-99.838.92.8350910.030.1801191022.1TRUETRUEVFRMETAR669.02019-04-23 04:05:57Y§Ý)5    3KHLG 230353Z AUTO 16003KT 10SM CLR 15/06 A3011 RMK AO2 SLP197 T01500061KHLG2019-04-23T03:53:00Z40.17-80.6515.06.1160310.030.1092531019.7TRUETRUEVFRMETAR372.02019-04-23 04:05:57 q>QqZ§Ý)5    3KHIB 230353Z AUTO 16003KT 10SM CLR 02/M01 A3012 RMK AO2 SLP213 T00221006KHIB2019-04-23T03:53:00Z47.38-92.832.2-0.6160310.030.1210631021.3TRUETRUEVFRMETAR412.02019-04-23 04:05:57g§Ý)55     3KHIO 230353Z 07004KT 10SM OVC041 13/11 A3024 RMK AO2 RAB36E48 SLP239 P0000 T01330111KHIO2019-04-23T03:53:00Z45.55-122.9513.311.170410.030.2391741023.9TRUEVFR0.005METAR68.02019-04-23 04:05:57W§Ý)5    3KHJO 230353Z AUTO 00000KT 10SM CLR 19/12 A2998 RMK AO2 SLP152 T01890122KHJO2019-04-23T03:53:00Z36.32-119.6218.912.20010.029.979331015.2TRUETRUEVFRMETAR74.02019-04-23 04:05:57_§Ý)5    3KHKA 230353Z AUTO 19007KT 10SM CLR 19/11 A3007 RMK AO2 SLP180 T01940106 $KHKA2019-04-23T03:53:00Z35.93-89.8319.410.6190710.030.0708661018.0TRUETRUETRUEVFRMETAR78.02019-04-23 04:05:57 G)<Go§Ý )K5     3KHFD 230353Z 00000KT 10SM FEW010 SCT016 OVC023 14/13 A2996 RMK AO2 RAE49 SLP146 P0003 T01390128KHFD2019-04-23T03:53:00Z41.73-72.6513.912.80010.029.9586621014.6TRUEMVFR0.03METAR4.02019-04-23 04:05:57W§Ý )5    3KBUR 230353Z 11007KT 10SM CLR 19/12 A2995 RMK AO2 SLP131 T01890117 $KBUR2019-04-23T03:53:00Z34.2-118.3718.911.7110710.029.9498021013.1TRUETRUEVFRMETAR217.02019-04-23 04:05:57‚ §Ý )k5     3KBVY 230353Z AUTO 04012G19KT 1 1/2SM -RA BR OVC005 09/07 A2993 RMK AO2 PK WND 05030/0305 SLP131 P0007 T00890072KBVY2019-04-23T03:53:00Z42.58-70.928.97.24012191.529.9291341013.1TRUETRUE-RA BRIFR0.07METAR28.02019-04-23 04:05:57Q§Ý )5    3KHHR 230353Z 21004KT 10SM CLR 16/12 A2996 RMK AO2 SLP144 T01610117KHHR2019-04-23T03:53:00Z33.92-118.3316.111.7210410.029.9586621014.4TRUEVFRMETAR18.02019-04-23 04:05:57 !Ehc§Ý)%5     3KHRO 230353Z AUTO 25004KT 10SM CLR 19/11 A3007 RMK AO2 SLP170 T01940106 TSNOKHRO2019-04-23T03:53:00Z36.27-93.1519.410.6250410.030.0708661017.0TRUETRUETRUEVFRMETAR417.02019-04-23 04:05:57W§Ý)5    3KHAO 230353Z AUTO 00000KT 10SM CLR 13/09 A3005 RMK AO2 SLP175 T01330089KHAO2019-04-23T03:53:00Z39.37-84.5213.38.90010.030.0501981017.5TRUETRUEVFRMETAR188.02019-04-23 04:05:57V§Ý)5    3KHBG 230353Z AUTO 00000KT 10SM CLR 15/11 A3015 RMK AO2 SLP209 T01500106KHBG2019-04-23T03:53:00Z31.27-89.2515.010.60010.030.150591020.9TRUETRUEVFRMETAR44.02019-04-23 04:05:57Y§Ý )5    3KHEI 230353Z AUTO 00000KT 10SM CLR 05/M01 A3016 RMK AO2 SLP220 T00501006KHEI2019-04-23T03:53:00Z46.02-102.655.0-0.60010.030.1594491022.0TRUETRUEVFRMETAR828.02019-04-23 04:05:57 !*KY!‚2§Ý)‚/5   !   3KCDS 230353Z AUTO 04009KT 5SM VCTS RA BR SCT037 BKN060 OVC090 16/14 A3005 RMK AO2 WSHFT 0305 LTG DSNT NE AND E TSE20B31E48 SLP162 P0046 T01610144KCDS2019-04-23T03:53:00Z34.43-100.2816.114.44095.030.0501981016.2TRUETRUEVCTS RA BRMVFR0.46METAR594.02019-04-23 04:05:57l§Ý)A5     3KCDW 230353Z AUTO 00000KT 5SM BR FEW037 BKN048 OVC060 14/14 A3003 RMK AO2 SLP175 T01440144KCDW2019-04-23T03:53:00Z40.88-74.2814.414.4005.030.0295281017.5TRUETRUEBRMVFRMETAR64.02019-04-23 04:05:57Y§Ý)5    3KBWG 230353Z AUTO 18004KT 10SM CLR 18/09 A3008 RMK AO2 SLP180 T01830089KBWG2019-04-23T03:53:00Z36.97-86.4218.38.9180410.030.0797251018.0TRUETRUEVFRMETAR168.02019-04-23 04:05:57P§Ý)5    3KRAL 230353Z 00000KT 10SM CLR 19/11 A2994 RMK AO2 SLP128 T01940111KRAL2019-04-23T03:53:00Z33.95-117.4519.411.10010.029.9409451012.8TRUEVFRMETAR252.02019-04-23 04:05:57 –#<s–W§Ý)5    3KCAG 230353Z AUTO 00000KT 10SM CLR 06/01 A3016 RMK AO2 SLP202 T00560011KCAG2019-04-23T03:53:00Z40.5-107.525.61.10010.030.1594491020.2TRUETRUEVFRMETAR1887.02019-04-23 04:05:57C§Ý)5    3KCCR 230353Z 10SM CLR 22/08 A2999 RMK AO2 SLP140 T02170083KCCR2019-04-23T03:53:00Z38.0-122.0521.78.310.029.9911421014.0TRUEVFRMETAR11.02019-04-23 04:05:57a§Ý)/5    3KCDC 230353Z AUTO 35008KT 10SM SCT037 BKN047 08/06 A3015 RMK AO2 SLP181 T00830056KCDC2019-04-23T03:53:00Z37.7-113.18.35.6350810.030.150591018.1TRUETRUEVFRMETAR1714.02019-04-23 04:05:57W§Ý)5    3KCDR 230353Z AUTO 00000KT 10SM CLR 08/03 A3021 RMK AO2 SLP240 T00830033KCDR2019-04-23T03:53:00Z42.83-103.18.33.30010.030.2096461024.0TRUETRUEVFRMETAR1010.02019-04-23 04:05:57 t 6StY§Ý)5    3KMPO 230353Z AUTO 32009KT 10SM CLR 10/07 A3006 RMK AO2 SLP184 T01000067KMPO2019-04-23T03:53:00Z41.13-75.3810.06.7320910.030.0590551018.4TRUETRUEVFRMETAR577.02019-04-23 04:05:57]§Ý)!5    3KPUB 230353Z AUTO 04012KT 10SM OVC038 11/03 A3024 RMK AO2 SLP217 T01060028KPUB2019-04-23T03:53:00Z38.28-104.510.62.8401210.030.2391741021.7TRUETRUEVFRMETAR1420.02019-04-23 04:05:57d§Ý)/5    3KPUW 230353Z AUTO 25008KT 10SM FEW065 OVC080 15/02 A3016 RMK AO2 SLP212 T01500022KPUW2019-04-23T03:53:00Z46.75-117.1215.02.2250810.030.1594491021.2TRUETRUEVFRMETAR773.02019-04-23 04:05:57Z§Ý)5    3KBYG 230353Z AUTO 15009KT 10SM CLR 07/02 A3016 RMK AO2 SLP204 T00670022KBYG2019-04-23T03:53:00Z44.38-106.726.72.2150910.030.1594491020.4TRUETRUEVFRMETAR1497.02019-04-23 04:05:57 {$Gd{c§Ý )/5    3KMSO 230353Z AUTO 30004KT 10SM FEW080 SCT110 12/01 A3012 RMK AO2 SLP202 T01220011KMSO2019-04-23T03:53:00Z46.92-114.112.21.1300410.030.1210631020.2TRUETRUEVFRMETAR975.02019-04-23 04:05:57]§Ý)-5    3KMSN 230353Z 03008KT 8SM BKN006 OVC012 11/10 A2980 RMK AO2 SLP091 LAST T01110100KMSN2019-04-23T03:53:00Z43.13-89.3511.110.03088.029.7992131009.1TRUEIFRMETAR261.02019-04-23 04:05:57W§Ý)5    3KMSL 230353Z AUTO 00000KT 10SM CLR 16/13 A3013 RMK AO2 SLP197 T01560133KMSL2019-04-23T03:53:00Z34.75-87.615.613.30010.030.1299211019.7TRUETRUEVFRMETAR164.02019-04-23 04:05:57V§Ý)5    3KMRB 230353Z AUTO 00000KT 10SM CLR 12/08 A3008 RMK AO2 SLP186 T01170078KMRB2019-04-23T03:53:00Z39.4-77.9811.77.80010.030.0797251018.6TRUETRUEVFRMETAR164.02019-04-23 04:05:57 t+KtQ§Ý$)5    3KMSY 230353Z 12007KT 10SM BKN250 19/13 A3014 RMK AO2 SLP210 T01940133KMSY2019-04-23T03:53:00Z30.0-90.2519.413.3120710.030.1387791021.0TRUEVFRMETAR5.02019-04-23 04:05:57Z§Ý#)!5    3KMSS 230353Z AUTO 05004KT 10SM FEW120 11/03 A3014 RMK AO2 SLP208 T01060033KMSS2019-04-23T03:53:00Z44.93-74.8510.63.350410.030.1387791020.8TRUETRUEVFRMETAR66.02019-04-23 04:05:57`§Ý")35    3KMSP 230353Z 02010KT 10SM FEW015 SCT049 BKN250 06/04 A3009 RMK AO2 SLP196 T00610039KMSP2019-04-23T03:53:00Z44.88-93.236.13.9201010.030.0885831019.6TRUEVFRMETAR265.02019-04-23 04:05:57i§Ý!)/5     3TIST 230353Z AUTO 09005KT 10SM CLR 24/19 A2997 RMK AO2 SLP150 T02390189 403060233TIST2019-04-23T03:53:00Z18.33-64.9823.918.990510.029.9704721015.0TRUETRUEVFR30.623.3METAR7.02019-04-23 04:05:57 €0Mj€d§Ý()/5    3KTIW 230353Z AUTO 22007KT 10SM FEW005 OVC029 10/09 A3023 RMK AO2 SLP237 T01000094KTIW2019-04-23T03:53:00Z47.27-122.5810.09.4220710.030.2303141023.7TRUETRUEMVFRMETAR89.02019-04-23 04:05:57]§Ý')!5    3KBIV 230353Z AUTO 18012KT 10SM BKN100 19/10 A2986 RMK AO2 SLP107 T01890100KBIV2019-04-23T03:53:00Z42.75-86.118.910.01801210.029.8612211010.7TRUETRUEVFRMETAR208.02019-04-23 04:05:57]§Ý&)5    3KMTH 230353Z AUTO 07008KT 10SM CLR 25/14 A3010 RMK AO2 SLP192 T02500144 $KMTH2019-04-23T03:53:00Z24.73-81.0525.014.470810.030.1003931019.2TRUETRUETRUEVFRMETAR2.02019-04-23 04:05:57J§Ý%) 5   3K6R6 230353Z AUTO 06007KT 19/14 A2993 RMK AO1 SLP108 T01890144K6R62019-04-23T03:53:00Z30.05-102.2218.914.460729.9291341010.8TRUETRUEMETAR701.02019-04-23 04:05:57 n#Ddnp§Ý,)G5     3KMVY 230353Z AUTO 01006KT 1/2SM R24/2200V4000FT FG VV002 08/07 A2990 RMK AO2 SLP125 T00830072KMVY2019-04-23T03:53:00Z41.4-70.628.37.21060.529.8996071012.5TRUETRUEFGLIFR200METAR16.02019-04-23 04:05:57Z§Ý+)5    3KMWL 230353Z AUTO 13006KT 10SM CLR 20/16 A2999 RMK AO2 SLP145 T02000161KMWL2019-04-23T03:53:00Z32.78-98.0720.016.1130610.029.9911421014.5TRUETRUEVFRMETAR284.02019-04-23 04:05:57Y§Ý*)5    3KTDZ 230353Z AUTO 17008KT 10SM CLR 16/08 A3001 RMK AO2 SLP159 T01560078KTDZ2019-04-23T03:53:00Z41.57-83.4815.67.8170810.030.0088581015.9TRUETRUEVFRMETAR189.02019-04-23 04:05:57W§Ý))5    3KTHV 230353Z AUTO 00000KT 10SM CLR 11/08 A3006 RMK AO2 SLP182 T01060083KTHV2019-04-23T03:53:00Z39.92-76.8810.68.30010.030.0590551018.2TRUETRUEVFRMETAR144.02019-04-23 04:05:57 ‚8Z‚R§Ý0)5    3KMYF 230353Z 28004KT 10SM CLR 16/11 A2996 RMK AO2 SLP142 T01610111KMYF2019-04-23T03:53:00Z32.82-117.1316.111.1280410.029.9586621014.2TRUEVFRMETAR136.02019-04-23 04:05:57X§Ý/)5    3KMYV 230353Z AUTO 34007KT 10SM CLR 22/07 A2997 RMK AO2 SLP153 T02220072KMYV2019-04-23T03:53:00Z39.1-121.5722.27.2340710.029.9704721015.3TRUETRUEVFRMETAR21.02019-04-23 04:05:57\§Ý.)#5    3KMTJ 230353Z AUTO 00000KT 10SM SCT120 13/M02 A3008 RMK AO2 SLP136 T01281017KMTJ2019-04-23T03:53:00Z38.5-107.912.8-1.70010.030.0797251013.6TRUETRUEVFRMETAR1750.02019-04-23 04:05:57`§Ý-)!5   3KMTO 230353Z AUTO 20011G18KT 10SM CLR 20/11 A2996 RMK AO2 SLP141 T02000111KMTO2019-04-23T03:53:00Z39.47-88.2720.011.1200111810.029.9586621014.1TRUETRUEVFRMETAR214.02019-04-23 04:05:57 š+Vš_§Ý4)5    3KMNN 230353Z AUTO 16009KT 10SM CLR 14/09 A3006 RMK AO2 SLP178 T01440089 $KMNN2019-04-23T03:53:00Z40.62-83.0714.48.9160910.030.0590551017.8TRUETRUETRUEVFRMETAR301.02019-04-23 04:05:57Q§Ý3)5    3KMOD 230353Z 30012KT 10SM CLR 24/06 A2994 RMK AO2 SLP137 T02390061KMOD2019-04-23T03:53:00Z37.62-120.9523.96.13001210.029.9409451013.7TRUEVFRMETAR29.02019-04-23 04:05:57O§Ý2)5    3KNEW 230353Z 13006KT 10SM CLR 19/14 A3016 RMK AO2 SLP204 T01890144KNEW2019-04-23T03:53:00Z30.05-90.0318.914.4130610.030.1594491020.4TRUEVFRMETAR3.02019-04-23 04:05:57O§Ý1)5    3KOAK 230353Z 29008KT 10SM BKN200 17/11 A3000 RMK AO2 SLP160 T01670106KOAK2019-04-23T03:53:00Z37.72-122.2316.710.6290810.030.01016.0TRUEVFRMETAR26.02019-04-23 04:05:57 %/%\§Ý8)!5    3KCRS 230353Z AUTO 16009KT 10SM OVC044 21/16 A3005 RMK AO2 SLP173 T02110156KCRS2019-04-23T03:53:00Z32.03-96.421.115.6160910.030.0501981017.3TRUETRUEVFRMETAR133.02019-04-23 04:05:57‚"§Ý7)‚5   #   3KCSM 230353Z 05003KT 6SM VCTS -RA BR FEW060 BKN075 OVC095 16/14 A3008 RMK AO2 LTG DSNT SE AND S TSB0258E13B32E50 SLP176 P0005 T01560144KCSM2019-04-23T03:53:00Z35.35-99.215.614.45036.030.0797251017.6TRUEVCTS -RA BRVFR0.05METAR588.02019-04-23 04:05:57Y§Ý6)5    3KCSV 230353Z AUTO 22003KT 10SM CLR 14/07 A3016 RMK AO2 SLP200 T01440067KCSV2019-04-23T03:53:00Z35.95-85.0814.46.7220310.030.1594491020.0TRUETRUEVFRMETAR570.02019-04-23 04:05:57l§Ý5)95     3KMMV 230353Z AUTO 22004KT 10SM OVC042 13/07 A3024 RMK AO2 RAE01 SLP240 P0000 T01330067KMMV2019-04-23T03:53:00Z45.2-123.1313.36.7220410.030.2391741024.0TRUETRUEVFR0.005METAR48.02019-04-23 04:05:57 ~)Mo~k§Ý<)=5    3KCPS 230353Z AUTO 24005KT 10SM FEW050 SCT060 BKN075 22/14 A2996 RMK AO2 SLP142 T02220144KCPS2019-04-23T03:53:00Z38.57-90.1522.214.4240510.029.9586621014.2TRUETRUEVFRMETAR126.02019-04-23 04:05:57X§Ý;)5    3KCRE 230353Z AUTO 23006KT 10SM CLR 17/13 A3015 RMK AO1 SLP211 T01670133KCRE2019-04-23T03:53:00Z33.82-78.7216.713.3230610.030.150591021.1TRUETRUEVFRMETAR10.02019-04-23 04:05:57V§Ý:)5    3KCRG 230353Z AUTO 00000KT 10SM CLR 13/12 A3015 RMK AO2 SLP208 T01330122KCRG2019-04-23T03:53:00Z30.33-81.5213.312.20010.030.150591020.8TRUETRUEVFRMETAR13.02019-04-23 04:05:57Q§Ý9)5    3KCRQ 230353Z 28003KT 10SM CLR 16/12 A2996 RMK AO2 SLP142 T01610122KCRQ2019-04-23T03:53:00Z33.13-117.2816.112.2280310.029.9586621014.2TRUEVFRMETAR99.02019-04-23 04:05:57 b"7?bW§Ý@)5    3KCNO 230353Z 29008KT 10SM CLR 15/12 A2996 RMK AO2 SLP142 LAST T01500122KCNO2019-04-23T03:53:00Z33.98-117.6215.012.2290810.029.9586621014.2TRUEVFRMETAR207.02019-04-23 04:05:57r§Ý?)E5   3KCNY 230353Z AUTO 12022G28KT 10SM CLR 16/02 A3002 RMK AO2 PK WND 12038/0332 SLP132 T01560017KCNY2019-04-23T03:53:00Z38.77-109.7515.61.7120222810.030.020671013.2TRUETRUEVFRMETAR1390.02019-04-23 04:05:57e§Ý>)/5    3KCOT 230353Z AUTO 12010KT 10SM SCT021 BKN047 22/18 A2997 RMK AO2 SLP143 T02170178KCOT2019-04-23T03:53:00Z28.45-99.2221.717.81201010.029.9704721014.3TRUETRUEVFRMETAR140.02019-04-23 04:05:57X§Ý=)5    3KCPR 230353Z AUTO 05006KT 10SM CLR 02/01 A3021 RMK AO2 SLP233 T00220006KCPR2019-04-23T03:53:00Z42.9-106.472.20.650610.030.2096461023.3TRUETRUEVFRMETAR1621.02019-04-23 04:05:57 0Æî0Y§ÝD)5    3KCLL 230353Z AUTO 14005KT 10SM CLR 21/17 A3005 RMK AO2 SLP171 T02060167KCLL2019-04-23T03:53:00Z30.58-96.3720.616.7140510.030.0501981017.1TRUETRUEVFRMETAR96.02019-04-23 04:05:57Y§ÝC)5    3KCLM 230353Z AUTO 32003KT 9SM OVC003 08/08 A3020 RMK AO2 SLP227 T00830078KCLM2019-04-23T03:53:00Z48.12-123.58.37.832039.030.2007871022.7TRUETRUELIFRMETAR85.02019-04-23 04:05:57R§ÝB)5    3KCMI 230353Z 19010KT 10SM CLR 17/11 A2995 RMK AO2 SLP139 T01720111KCMI2019-04-23T03:53:00Z40.03-88.2717.211.11901010.029.9498021013.9TRUEVFRMETAR228.02019-04-23 04:05:57‚4§ÝA)‚A5      3KCNM 230353Z AUTO VRB05KT 10SM VCTS SCT047 BKN070 BKN090 14/12 A3003 RMK AO2 PK WND 26032/0309 WSHFT 0306 LTG DSNT N-SE RAE50 TSE38 SLP132 P0071 T01440122KCNM2019-04-23T03:53:00Z32.33-104.2514.412.20510.030.0295281013.2TRUETRUEVCTSVFR0.71METAR985.02019-04-23 04:05:57 †$El†`§ÝH)!5   3KCEZ 230353Z AUTO 13011G20KT 10SM CLR 12/01 A3007 RMK AO2 SLP131 T01220006KCEZ2019-04-23T03:53:00Z37.3-108.6312.20.6130112010.030.0708661013.1TRUETRUEVFRMETAR1797.02019-04-23 04:05:57S§ÝG)5    3KCHA 230353Z 00000KT 10SM CLR 16/11 A3014 RMK AO2 SLP202 LAST T01610106KCHA2019-04-23T03:53:00Z35.03-85.216.110.60010.030.1387791020.2TRUEVFRMETAR210.02019-04-23 04:05:57Y§ÝF)5    3KCHO 230353Z AUTO 26004KT 10SM CLR 14/07 A3012 RMK AO2 SLP195 T01440072KCHO2019-04-23T03:53:00Z38.13-78.4514.47.2260410.030.1210631019.5TRUETRUEVFRMETAR192.02019-04-23 04:05:57V§ÝE)5    3KCKB 230353Z AUTO 00000KT 10SM CLR 13/08 A3012 RMK AO2 SLP193 T01280078KCKB2019-04-23T03:53:00Z39.3-80.2212.87.80010.030.1210631019.3TRUETRUEVFRMETAR360.02019-04-23 04:05:57 r:QrY§ÝL)5    3KSTS 230353Z AUTO 15004KT 10SM CLR 17/12 A3001 RMK AO2 SLP155 T01720122KSTS2019-04-23T03:53:00Z38.5-122.8217.212.2150410.030.0088581015.5TRUETRUEVFRMETAR39.02019-04-23 04:05:57c§ÝK)/5    3KODO 230353Z AUTO 08007KT 10SM BKN023 BKN042 17/14 A2998 RMK AO2 SLP120 T01720144KODO2019-04-23T03:53:00Z31.92-102.417.214.480710.029.979331012.0TRUETRUEMVFRMETAR902.02019-04-23 04:05:57^§ÝJ)5    3KODX 230353Z AUTO 32005KT 10SM CLR 06/01 A3017 RMK AO2 SLP228 T00610011 $KODX2019-04-23T03:53:00Z41.62-98.956.11.1320510.030.1712591022.8TRUETRUETRUEVFRMETAR631.02019-04-23 04:05:57\§ÝI)5    3KCEW 230353Z AUTO 00000KT 10SM CLR 12/08 A3017 RMK AO2 SLP215 T01220083 $KCEW2019-04-23T03:53:00Z30.78-86.5212.28.30010.030.1712591021.5TRUETRUETRUEVFRMETAR55.02019-04-23 04:05:57 u;]ub§ÝP))5    3KONT 230353Z 25008KT 10SM FEW060 FEW120 20/13 A2995 RMK AO2 SLP134 T02000128 $KONT2019-04-23T03:53:00Z34.05-117.5820.012.8250810.029.9498021013.4TRUETRUEVFRMETAR274.02019-04-23 04:05:57X§ÝO)5    3KOPF 230353Z AUTO 06006KT 10SM CLR 22/13 A3012 RMK AO2 SLP200 T02220133KOPF2019-04-23T03:53:00Z25.92-80.2822.213.360610.030.1210631020.0TRUETRUEVFRMETAR16.02019-04-23 04:05:57W§ÝN)5    3KSTP 230353Z AUTO 01008KT 10SM CLR 07/04 A3010 RMK AO2 SLP195 T00670039KSTP2019-04-23T03:53:00Z44.93-93.056.73.910810.030.1003931019.5TRUETRUEVFRMETAR219.02019-04-23 04:05:57b§ÝM)/5    3KBDE 230353Z AUTO 34003KT 10SM BKN070 OVC090 09/02 A3012 RMK AO2 SLP206 T00890022KBDE2019-04-23T03:53:00Z48.73-94.628.92.2340310.030.1210631020.6TRUETRUEVFRMETAR329.02019-04-23 04:05:57 x!9Zx\§ÝT)!5    3KOJC 230353Z AUTO 34008KT 10SM BKN044 15/09 A3007 RMK AO2 SLP175 T01500094KOJC2019-04-23T03:53:00Z38.85-94.7315.09.4340810.030.0708661017.5TRUETRUEVFRMETAR326.02019-04-23 04:05:57Y§ÝS)5    3KOLF 230353Z AUTO 19007KT 10SM CLR 13/02 A3003 RMK AO2 SLP175 T01280022KOLF2019-04-23T03:53:00Z48.1-105.5812.82.2190710.030.0295281017.5TRUETRUEVFRMETAR604.02019-04-23 04:05:57b§ÝR)%5    3KOMK 230353Z AUTO 15008KT 10SM FEW090 18/06 A3002 RMK AO2 SLP164 T01780056 $KOMK2019-04-23T03:53:00Z48.47-119.5217.85.6150810.030.020671016.4TRUETRUETRUEVFRMETAR395.02019-04-23 04:05:57Y§ÝQ)5    3KONO 230353Z AUTO 25003KT 10SM CLR 16/05 A3015 RMK AO2 SLP207 T01560050KONO2019-04-23T03:53:00Z44.02-117.0215.65.0250310.030.150591020.7TRUETRUEVFRMETAR667.02019-04-23 04:05:57 d BAdW§ÝX)5    3KTCL 230353Z AUTO 00000KT 10SM CLR 16/12 A3013 RMK AO2 SLP201 T01560122KTCL2019-04-23T03:53:00Z33.22-87.6215.612.20010.030.1299211020.1TRUETRUEVFRMETAR49.02019-04-23 04:05:57{§ÝW)Q5     3KTCS 230353Z AUTO 25008KT 10SM BKN100 OVC110 16/04 A3005 RMK AO2 RAB0255E17 SLP113 P0000 T01560039KTCS2019-04-23T03:53:00Z33.23-107.2715.63.9250810.030.0501981011.3TRUETRUEVFR0.005METAR1469.02019-04-23 04:05:57X§ÝV)5    3KOGB 230353Z AUTO 19004KT 10SM CLR 15/11 A3015 RMK AO2 SLP207 T01500111KOGB2019-04-23T03:53:00Z33.47-80.8515.011.1190410.030.150591020.7TRUETRUEVFRMETAR59.02019-04-23 04:05:57Z§ÝU)5    3KOGD 230353Z AUTO 04013KT 10SM CLR 12/01 A3016 RMK AO2 SLP188 T01220006KOGD2019-04-23T03:53:00Z41.2-112.0212.20.6401310.030.1594491018.8TRUETRUEVFRMETAR1353.02019-04-23 04:05:57 }:W}T§Ý\)5    3KTLH 230353Z AUTO 00000KT 10SM CLR 18/09 A3015 RMK AO2 SLP210 T01830089KTLH2019-04-23T03:53:00Z30.4-84.3518.38.90010.030.150591021.0TRUETRUEVFRMETAR19.02019-04-23 04:05:57]§Ý[)!5    3KTKI 230353Z AUTO 16004KT 10SM OVC050 21/18 A3003 RMK AO2 SLP170 T02060178KTKI2019-04-23T03:53:00Z33.18-96.5820.617.8160410.030.0295281017.0TRUETRUEVFRMETAR179.02019-04-23 04:05:57\§ÝZ)!5    3KSWO 230353Z AUTO 02006KT 10SM OVC040 19/13 A3005 RMK AO2 SLP167 T01890128KSWO2019-04-23T03:53:00Z36.17-97.0818.912.820610.030.0501981016.7TRUETRUEVFRMETAR290.02019-04-23 04:05:57^§ÝY)!5    3KTCC 230353Z AUTO 07010KT 10SM OVC030 12/07 A3013 RMK AO2 SLP170 T01220072KTCC2019-04-23T03:53:00Z35.18-103.612.27.2701010.030.1299211017.0TRUETRUEMVFRMETAR1235.02019-04-23 04:05:57 £#@£X§Ý`)5    3KTOR 230353Z AUTO 00000KT 10SM CLR 07/03 A3022 RMK AO2 SLP236 T00720033KTOR2019-04-23T03:53:00Z42.07-104.157.23.30010.030.2214571023.6TRUETRUEVFRMETAR1277.02019-04-23 04:05:579§Ý_(u5    3KTOP 230353Z AUTO A3008 RMK AO2 SLPNO PWINO FZRANO $KTOP2019-04-23T03:53:00Z39.07-95.6330.079725TRUETRUETRUETRUETRUEMETAR268.02019-04-23 04:05:57]§Ý^)5    3KTMB 230353Z AUTO 07007KT 10SM CLR 22/13 A3010 RMK AO2 SLP192 T02170133 $KTMB2019-04-23T03:53:00Z25.65-80.4321.713.370710.030.1003931019.2TRUETRUETRUEVFRMETAR2.02019-04-23 04:05:57W§Ý])5    3KTOI 230353Z AUTO 00000KT 10SM CLR 13/12 A3015 RMK AO2 SLP207 T01330122KTOI2019-04-23T03:53:00Z31.85-86.0213.312.20010.030.150591020.7TRUETRUEVFRMETAR118.02019-04-23 04:05:57 ž+YvžR§Ýd)5    3KTTD 230353Z 00000KT 10SM OVC050 14/11 A3025 RMK AO2 SLP242 T01440111KTTD2019-04-23T03:53:00Z45.55-122.4214.411.10010.030.2509841024.2TRUEVFRMETAR14.02019-04-23 04:05:57]§Ýc)!5    3KTRL 230353Z AUTO 17005KT 10SM BKN043 22/16 A3004 RMK AO2 SLP168 T02170156KTRL2019-04-23T03:53:00Z32.72-96.2721.715.6170510.030.0413381016.8TRUETRUEVFRMETAR145.02019-04-23 04:05:57L§Ýb)5    3KTRI 230353Z 00000KT 10SM CLR 12/08 A3015 RMK AO2 SLP194 T01170083KTRI2019-04-23T03:53:00Z36.48-82.411.78.30010.030.150591019.4TRUEVFRMETAR474.02019-04-23 04:05:57O§Ýa)5    3KTPA 230353Z 06007KT 10SM CLR 19/13 A3016 RMK AO2 SLP211 T01940133KTPA2019-04-23T03:53:00Z27.97-82.5319.413.360710.030.1594491021.1TRUEVFRMETAR11.02019-04-23 04:05:57 € :Z€T§Ýh)5    3KTUS 230353Z 28003KT 10SM BKN120 22/00 A2990 RMK AO2 SLP087 T02220000KTUS2019-04-23T03:53:00Z32.13-110.9522.20.0280310.029.8996071008.7TRUEVFRMETAR776.02019-04-23 04:05:57Z§Ýg)5    3KTUP 230353Z AUTO 19003KT 10SM CLR 18/13 A3011 RMK AO2 SLP191 T01780128KTUP2019-04-23T03:53:00Z34.27-88.7717.812.8190310.030.1092531019.1TRUETRUEVFRMETAR105.02019-04-23 04:05:57`§Ýf)35    3KTUL 230353Z 15003KT 10SM SCT030 BKN037 OVC060 21/17 A3002 RMK AO2 SLP161 T02060172KTUL2019-04-23T03:53:00Z36.2-95.8820.617.2150310.030.020671016.1TRUEVFRMETAR207.02019-04-23 04:05:57Z§Ýe)!5    3KTTN 230353Z AUTO 00000KT 10SM OVC085 14/10 A3003 RMK AO2 SLP162 T01440100KTTN2019-04-23T03:53:00Z40.28-74.8214.410.00010.030.0295281016.2TRUETRUEVFRMETAR59.02019-04-23 04:05:57 m ,MmZ§Ýl)5    3KTXK 230353Z AUTO 15006KT 10SM CLR 21/14 A3006 RMK AO2 SLP175 T02060139KTXK2019-04-23T03:53:00Z33.45-93.9820.613.9150610.030.0590551017.5TRUETRUEVFRMETAR111.02019-04-23 04:05:57Y§Ýk)5    3KTVR 230353Z AUTO 17004KT 10SM CLR 18/13 A3010 RMK AO2 SLP199 T01830133KTVR2019-04-23T03:53:00Z32.35-91.0318.313.3170410.030.1003931019.9TRUETRUEVFRMETAR26.02019-04-23 04:05:57Y§Ýj)5    3KTVL 230353Z AUTO 03003KT 10SM CLR 08/M03 A3027 RMK AO2 SLP222 T00831033KTVL2019-04-23T03:53:00Z38.9-120.08.3-3.330310.030.2687021022.2TRUETRUEVFRMETAR1924.02019-04-23 04:05:57o§Ýi)?5     3KTVC 230353Z AUTO 25004KT 10SM OVC060 10/07 A2985 RMK AO2 RAB08E20 SLP107 P0000 T01000072KTVC2019-04-23T03:53:00Z44.73-85.5710.07.2250410.029.849411010.7TRUETRUEVFR0.005METAR190.02019-04-23 04:05:57 }!=\}Y§Ýp)!5    3KUIL 230353Z AUTO VRB06KT 10SM OVC009 09/08 A3018 RMK AO2 SLP222 T00940083KUIL2019-04-23T03:53:00Z47.93-124.559.48.30610.030.1801191022.2TRUETRUEIFRMETAR54.02019-04-23 04:05:57[§Ýo)!5    3KUAO 230353Z AUTO 00000KT 10SM OVC048 15/12 A3025 RMK AO2 SLP242 T01500117KUAO2019-04-23T03:53:00Z45.25-122.7715.011.70010.030.2509841024.2TRUETRUEVFRMETAR59.02019-04-23 04:05:57^§Ýn)+5    3KTYS 230353Z 26003KT 10SM FEW002 15/10 A3012 RMK AO2 SLP194 FU FEW002 T01500100KTYS2019-04-23T03:53:00Z35.82-83.9815.010.0260310.030.1210631019.4TRUEVFRMETAR302.02019-04-23 04:05:57Y§Ým)5    3KTYR 230353Z AUTO 16006KT 10SM CLR 21/16 A3004 RMK AO2 SLP167 T02060156KTYR2019-04-23T03:53:00Z32.37-95.420.615.6160610.030.0413381016.7TRUETRUEVFRMETAR165.02019-04-23 04:05:57 Ž"GjŽV§Ýt)5    3KABY 230353Z AUTO 00000KT 10SM CLR 16/10 A3016 RMK AO2 SLP212 T01610100KABY2019-04-23T03:53:00Z31.53-84.216.110.00010.030.1594491021.2TRUETRUEVFRMETAR58.02019-04-23 04:05:57W§Ýs)5    3KABR 230353Z AUTO 02003KT 10SM CLR 09/04 A3016 RMK AO2 SLP215 T00940044KABR2019-04-23T03:53:00Z45.45-98.429.44.420310.030.1594491021.5TRUETRUEVFRMETAR397.02019-04-23 04:05:57U§Ýr)5    3KAAF 230353Z AUTO 00000KT 10SM CLR 13/09 A3016 RMK AO2 SLP213 T01330089KAAF2019-04-23T03:53:00Z29.73-85.0313.38.90010.030.1594491021.3TRUETRUEVFRMETAR5.02019-04-23 04:05:57X§Ýq)5    3KUTS 230353Z AUTO VRB04KT 10SM CLR 21/16 A3005 RMK AO2 SLP172 T02110161KUTS2019-04-23T03:53:00Z30.75-95.5821.116.10410.030.0501981017.2TRUETRUEVFRMETAR104.02019-04-23 04:05:57 €2V€P§Ýx)5    3KAEX 230353Z 17004KT 10SM CLR 17/15 A3009 RMK AO2 SLP192 T01720150KAEX2019-04-23T03:53:00Z31.33-92.5717.215.0170410.030.0885831019.2TRUEVFRMETAR27.02019-04-23 04:05:57V§Ýw)5    3KACV 230353Z AUTO 00000KT 10SM CLR 10/08 A3023 RMK AO2 SLP243 T01000083KACV2019-04-23T03:53:00Z40.98-124.110.08.30010.030.2303141024.3TRUETRUEVFRMETAR67.02019-04-23 04:05:57b§Ýv)%5     3KADG 230353Z AUTO 18003KT 10SM CLR 14/08 A3001 RMK AO2 SLP165 T01440078 TSNOKADG2019-04-23T03:53:00Z41.87-84.0814.47.8180310.030.0088581016.5TRUETRUETRUEVFRMETAR241.02019-04-23 04:05:57`§Ýu)-5     3KACK 230353Z AUTO 06007KT 1 1/2SM BR OVC018 09/09 A2989 RMK AO2 SLP121 T00940094KACK2019-04-23T03:53:00Z41.25-70.079.49.46071.529.8907471012.1TRUETRUEBRIFRMETAR16.02019-04-23 04:05:57 ’Io’W§Ý|)5    3KAIA 230353Z AUTO 00000KT 10SM CLR 06/02 A3022 RMK AO2 SLP233 T00610022KAIA2019-04-23T03:53:00Z42.05-102.86.12.20010.030.2214571023.3TRUETRUEVFRMETAR1196.02019-04-23 04:05:57T§Ý{)5    3KAGS 230353Z 00000KT 10SM CLR 13/12 A3013 RMK AO2 SLP202 T01280117 $KAGS2019-04-23T03:53:00Z33.37-81.9712.811.70010.030.1299211020.2TRUETRUEVFRMETAR44.02019-04-23 04:05:57P§Ýz)5    3KAGC 230353Z 17006KT 10SM CLR 14/07 A3010 RMK AO2 SLP196 T01390072KAGC2019-04-23T03:53:00Z40.35-79.9213.97.2170610.030.1003931019.6TRUEVFRMETAR389.02019-04-23 04:05:57[§Ýy)%5    3KAFW 230353Z 13006KT 10SM BKN170 OVC250 22/16 A3001 RMK AO2 SLP153 T02170161KAFW2019-04-23T03:53:00Z32.97-97.3221.716.1130610.030.0088581015.3TRUEVFRMETAR233.02019-04-23 04:05:57 y >[y\§Þ)%5    3KAMA 230353Z 36009KT 10SM SCT070 BKN090 11/09 A3011 RMK AO2 SLP173 T01110094KAMA2019-04-23T03:53:00Z35.22-101.7211.19.4360910.030.1092531017.3TRUEVFRMETAR1093.02019-04-23 04:05:57]§Ý)!5    3KALW 230353Z AUTO 19010KT 10SM OVC080 19/05 A3013 RMK AO2 SLP202 T01890050KALW2019-04-23T03:53:00Z46.1-118.2818.95.01901010.030.1299211020.2TRUETRUEVFRMETAR363.02019-04-23 04:05:57\§Ý~)!5    3KALI 230353Z AUTO 11007KT 10SM OVC015 22/20 A2998 RMK AO2 SLP149 T02170200KALI2019-04-23T03:53:00Z27.73-98.0221.720.0110710.029.979331014.9TRUETRUEMVFRMETAR53.02019-04-23 04:05:57Z§Ý})5    3KAKO 230353Z AUTO 32007KT 10SM CLR 06/02 A3025 RMK AO2 SLP245 T00560017KAKO2019-04-23T03:53:00Z40.17-103.225.61.7320710.030.2509841024.5TRUETRUEVFRMETAR1421.02019-04-23 04:05:57 ;$Ec;‚"§Þ)‚5     3KENW 230353Z AUTO 21018G26KT 7SM RA SCT060 SCT070 BKN090 20/14 A2979 RMK AO2 PK WND 19029/0341 LTG DSNT W-N RAB50 SLP083 P0001 T02000139KENW2019-04-23T03:53:00Z42.6-87.9320.013.921018267.029.7903541008.3TRUETRUERAVFR0.01METAR219.02019-04-23 04:05:57\§Þ)!5    3KEPH 230353Z AUTO 31009KT 10SM SCT110 18/06 A3007 RMK AO2 SLP183 T01780061KEPH2019-04-23T03:53:00Z47.3-119.5217.86.1310910.030.0708661018.3TRUETRUEVFRMETAR383.02019-04-23 04:05:57Y§Þ)5    3KEQY 230353Z AUTO 19003KT 10SM CLR 14/08 A3013 RMK AO2 SLP208 T01390078KEQY2019-04-23T03:53:00Z35.02-80.6213.97.8190310.030.1299211020.8TRUETRUEVFRMETAR212.02019-04-23 04:05:57V§Þ)5    3KAMG 230353Z AUTO 00000KT 10SM CLR 13/10 A3014 RMK AO2 SLP205 T01330100KAMG2019-04-23T03:53:00Z31.53-82.513.310.00010.030.1387791020.5TRUETRUEVFRMETAR59.02019-04-23 04:05:57Y8”8@HPX`hpx€ˆ˜ ¨°¸ÀÈÐØàèðø (08@HPX`hpx€ˆ˜ ¨°¸ÀÈÐØàèðø (08@HPX`hpx€ˆ˜ ¨°¸ÀÈÐØàèðø ¨°¸ÀÈÐØàèðø:§Üt;§Üx<§Ü|=§Ý>§Ý?§Ý@§Ý A§ÝB§ÝC§ÝD§ÝE§Ý :§Üt;§Üx<§Ü|=§Ý>§Ý?§Ý@§Ý A§ÝB§ÝC§ÝD§ÝE§Ý F§Ý$G§Ý(H§Ý,I§Ý0J§Ý4K§Ý8L§Ý<M§Ý@N§ÝDO§ÝHP§ÝLQ§ÝPR§ÝTS§ÝXT§Ý\U§Ý`V§ÝdW§ÝhX§ÝlY§ÝpZ§Ýt[§Ýx\§Ý|]§Þ^§Þ`§Þa§Þ b§Þc§Þd§Þe§Þf§Þ g§Þ$h§Þ(i§Þ,j§Þ0k§Þ4l§Þ8m§Þ<n§Þ@o§ÞDp§ÞHq§ÞLr§ÞPs§ÞTt§ÞXu§Þ\v§Þ`w§Þdx§Þhy§Þlz§Þp{§Þt|§Þx}§Þ|~§ß§ß€§ß§ß ‚§ßƒ§ß„§ß…§ß†§ß ‡§ß$ˆ§ß(‰§ß,Š§ß0‹§ß4Œ§ß8§ß<Ž§ß@§ßD§ßH‘§ßL’§ßP“§ßT Ž=kŽW§Þ)5    3KELD 230353Z AUTO 00000KT 10SM CLR 15/13 A3008 RMK AO2 SLP184 T01500133KELD2019-04-23T03:53:00Z33.22-92.8215.013.30010.030.0797251018.4TRUETRUEVFRMETAR81.02019-04-23 04:05:57L§Þ)5    3KELM 230353Z 00000KT 10SM CLR 07/06 A3011 RMK AO2 SLP199 T00720056KELM2019-04-23T03:53:00Z42.15-76.97.25.60010.030.1092531019.9TRUEVFRMETAR302.02019-04-23 04:05:57[§Þ)5    3KELN 230353Z AUTO 32014KT 10SM CLR 11/06 A3013 RMK AO2 SLP206 T01110056KELN2019-04-23T03:53:00Z47.03-120.5311.15.63201410.030.1299211020.6TRUETRUEVFRMETAR519.02019-04-23 04:05:57\§Þ)!5    3KEMP 230353Z AUTO 34009KT 10SM BKN042 14/11 A3008 RMK AO2 SLP183 T01440106KEMP2019-04-23T03:53:00Z38.33-96.214.410.6340910.030.0797251018.3TRUETRUEVFRMETAR367.02019-04-23 04:05:57 t#Bgtm§Þ )95     3KDXR 230353Z AUTO 30004KT 10SM OVC050 13/12 A3001 RMK AO2 RAE47 SLP161 P0001 T01330117KDXR2019-04-23T03:53:00Z41.37-73.4813.311.7300410.030.0088581016.1TRUETRUEVFR0.01METAR139.02019-04-23 04:05:57U§Þ )5    3KECP 230353Z AUTO 00000KT 10SM CLR 14/12 A3015 RMK AO2 SLP222 T01390117KECP2019-04-23T03:53:00Z30.35-85.813.911.70010.030.150591022.2TRUETRUEVFRMETAR21.02019-04-23 04:05:57[§Þ )5    3KEEO 230353Z AUTO 31003KT 10SM CLR 08/M01 A3015 RMK AO2 SLP176 T00781006KEEO2019-04-23T03:53:00Z40.05-107.887.8-0.6310310.030.150591017.6TRUETRUEVFRMETAR1930.02019-04-23 04:05:57W§Þ )5    3KEET 230353Z AUTO 00000KT 10SM CLR 16/13 A3015 RMK AO2 SLP204 T01560133KEET2019-04-23T03:53:00Z33.18-86.7815.613.30010.030.150591020.4TRUETRUEVFRMETAR173.02019-04-23 04:05:57 ”'Ps”Y§Þ)5    3KAWM 230353Z AUTO 17003KT 10SM CLR 19/12 A3007 RMK AO2 SLP180 T01890117KAWM2019-04-23T03:53:00Z35.13-90.2318.911.7170310.030.0708661018.0TRUETRUEVFRMETAR65.02019-04-23 04:05:57W§Þ)5    3KAXN 230353Z AUTO 15006KT 10SM CLR 08/03 A3014 RMK AO2 SLP214 T00780033KAXN2019-04-23T03:53:00Z45.87-95.47.83.3150610.030.1387791021.4TRUETRUEVFRMETAR433.02019-04-23 04:05:57Q§Þ)5    3KDVT 230353Z 00000KT 10SM CLR 24/M02 A2982 RMK AO2 SLP078 T02391022KDVT2019-04-23T03:53:00Z33.68-112.0723.9-2.20010.029.8198811007.8TRUEVFRMETAR443.02019-04-23 04:05:57S§Þ )5    3KDWH 230353Z 12007KT 10SM SCT019 21/18 A3005 RMK AO2 SLP172 T02110183KDWH2019-04-23T03:53:00Z30.07-95.5521.118.3120710.030.0501981017.2TRUEVFRMETAR46.02019-04-23 04:05:57 X&?Xa§Þ))5     3KASX 230353Z AUTO 04004KT 3/4SM BR OVC003 03/03 A3011 RMK AO2 SLP205 T00280028KASX2019-04-23T03:53:00Z46.55-90.922.82.84040.7530.1092531020.5TRUETRUEBRLIFRMETAR251.02019-04-23 04:05:57W§Þ)5    3KATY 230353Z AUTO 33003KT 10SM CLR 06/02 A3014 RMK AO2 SLP219 T00560017KATY2019-04-23T03:53:00Z44.9-97.155.61.7330310.030.1387791021.9TRUETRUEVFRMETAR532.02019-04-23 04:05:57‚§Þ)a5     3KAUG 230353Z AUTO 01013G18KT 2 1/2SM RA BR SCT009 BKN023 OVC028 09/09 A3006 RMK AO2 SLP181 P0014 T00940089KAUG2019-04-23T03:53:00Z44.32-69.89.48.91013182.530.0590551018.1TRUETRUERA BRIFR0.14METAR109.02019-04-23 04:05:57T§Þ)5    3KAUS 230353Z 15005KT 10SM BKN200 21/17 A3004 RMK AO2 SLP164 T02110167KAUS2019-04-23T03:53:00Z30.18-97.6821.116.7150510.030.0413381016.4TRUEVFRMETAR166.02019-04-23 04:05:57 ‚@a‚Y§Þ)5    3KARA 230353Z AUTO 15008KT 10SM CLR 19/17 A3012 RMK AO2 SLP199 T01890172KARA2019-04-23T03:53:00Z30.03-91.8818.917.2150810.030.1210631019.9TRUETRUEVFRMETAR18.02019-04-23 04:05:57Y§Þ)5    3KARB 230353Z AUTO 12005KT 10SM CLR 13/07 A3001 RMK AO2 SLP162 T01330072KARB2019-04-23T03:53:00Z42.22-83.7313.37.2120510.030.0088581016.2TRUETRUEVFRMETAR251.02019-04-23 04:05:57U§Þ)5    3KASD 230353Z AUTO 00000KT 10SM CLR 16/13 A3015 RMK AO2 SLP211 T01610128KASD2019-04-23T03:53:00Z30.35-89.8216.112.80010.030.150591021.1TRUETRUEVFRMETAR9.02019-04-23 04:05:57_§Þ)#5    3KASE 230353Z AUTO 17003KT 10SM FEW110 07/M02 A3019 RMK AO2 SLP147 T00671017KASE2019-04-23T03:53:00Z39.23-106.876.7-1.7170310.030.1889761014.7TRUETRUEVFRMETAR2354.02019-04-23 04:05:57 ‹Fh‹W§Þ)5    3KAOH 230353Z AUTO 17009KT 10SM CLR 17/06 A3002 RMK AO2 SLP162 T01670061KAOH2019-04-23T03:53:00Z40.7-84.0216.76.1170910.030.020671016.2TRUETRUEVFRMETAR296.02019-04-23 04:05:57X§Þ)5    3KAOO 230353Z AUTO 23003KT 10SM CLR 12/06 A3011 RMK AO2 SLP196 T01170061KAOO2019-04-23T03:53:00Z40.3-78.3211.76.1230310.030.1092531019.6TRUETRUEVFRMETAR455.02019-04-23 04:05:57S§Þ)5    3KAPA 230353Z 00000KT 10SM OVC020 07/03 A3026 RMK AO2 SLP246 T00670033KAPA2019-04-23T03:53:00Z39.57-104.856.73.30010.030.2598421024.6TRUEMVFRMETAR1775.02019-04-23 04:05:57[§Þ)!5    3KAPF 230353Z AUTO 09011KT 10SM FEW060 22/17 A3010 RMK AO2 SLP193 T02220167KAPF2019-04-23T03:53:00Z26.15-81.7722.216.7901110.030.1003931019.3TRUETRUEVFRMETAR3.02019-04-23 04:05:57 {#:[{Z§Þ )5    3KESF 230353Z AUTO 00000KT 7SM CLR 15/14 A3010 RMK AO2 SLP193 T01500139 $KESF2019-04-23T03:53:00Z31.4-92.2815.013.9007.030.1003931019.3TRUETRUETRUEVFRMETAR28.02019-04-23 04:05:57Y§Þ)5    3KEVW 230353Z AUTO 03004KT 10SM CLR 05/01 A3025 RMK AO2 SLP226 T00500006KEVW2019-04-23T03:53:00Z41.27-111.035.00.630410.030.2509841022.6TRUETRUEVFRMETAR2177.02019-04-23 04:05:57c§Þ)%5    3KAMW 230353Z AUTO 32013KT 10SM OVC010 09/07 A3003 RMK AO2 SLP166 T00890072 $KAMW2019-04-23T03:53:00Z41.98-93.628.97.23201310.030.0295281016.6TRUETRUETRUEMVFRMETAR279.02019-04-23 04:05:57W§Þ)5    3KANB 230353Z AUTO 00000KT 10SM CLR 14/12 A3015 RMK AO2 SLP207 T01390117KANB2019-04-23T03:53:00Z33.58-85.8513.911.70010.030.150591020.7TRUETRUEVFRMETAR183.02019-04-23 04:05:57  @YR§Þ$)5    3KFAT 230353Z 00000KT 10SM SCT150 25/08 A2997 RMK AO2 SLP147 T02500078KFAT2019-04-23T03:53:00Z36.78-119.7225.07.80010.029.9704721014.7TRUEVFRMETAR104.02019-04-23 04:05:57a§Þ#)/5    3KEYW 230353Z AUTO 08006KT 10SM BKN040 OVC046 24/16 A3011 RMK AO2 SLP196 T02390161KEYW2019-04-23T03:53:00Z24.55-81.7523.916.180610.030.1092531019.6TRUETRUEVFRMETAR5.02019-04-23 04:05:57Z§Þ")!5    3KEYE 230353Z AUTO 14005KT 10SM FEW100 18/09 A2998 RMK AO2 SLP149 T01780089KEYE2019-04-23T03:53:00Z39.83-86.317.88.9140510.029.979331014.9TRUETRUEVFRMETAR248.02019-04-23 04:05:57Z§Þ!)!5    3KEWB 230353Z AUTO 36005KT 10SM OVC008 09/09 A2990 RMK AO2 SLP125 T00940094KEWB2019-04-23T03:53:00Z41.68-70.959.49.4360510.029.8996071012.5TRUETRUEIFRMETAR23.02019-04-23 04:05:57 `*L?`Y§Þ()5    3KFDY 230353Z AUTO 16008KT 10SM CLR 16/07 A3001 RMK AO2 SLP156 T01610072KFDY2019-04-23T03:53:00Z41.02-83.6716.17.2160810.030.0088581015.6TRUETRUEVFRMETAR247.02019-04-23 04:05:57‚§Þ')g5      3KFDR 230353Z AUTO 08007KT 10SM VCTS BKN110 19/18 A2997 RMK AO2 LTG DSNT W-N RAB0257E53 SLP136 P0003 T01940183KFDR2019-04-23T03:53:00Z34.35-98.9819.418.380710.029.9704721013.6TRUETRUEVCTSVFR0.03METAR386.02019-04-23 04:05:57X§Þ&)5    3KFCM 230353Z AUTO 02010KT 10SM CLR 07/03 A3009 RMK AO2 SLP193 T00670033KFCM2019-04-23T03:53:00Z44.83-93.476.73.3201010.030.0885831019.3TRUETRUEVFRMETAR280.02019-04-23 04:05:57P§Þ%)5    3KFAY 230353Z 20004KT 10SM CLR 13/10 A3013 RMK AO2 SLP197 T01330100KFAY2019-04-23T03:53:00Z34.98-78.8813.310.0200410.030.1299211019.7TRUEVFRMETAR55.02019-04-23 04:05:57 "@iV§Þ,)5    3KFLO 230353Z AUTO 00000KT 10SM CLR 13/10 A3015 RMK AO2 SLP207 T01330100KFLO2019-04-23T03:53:00Z34.18-79.7313.310.00010.030.150591020.7TRUETRUEVFRMETAR44.02019-04-23 04:05:57Q§Þ+)5    3KFLL 230353Z 06007KT 10SM FEW040 23/13 A3011 RMK AO2 SLP196 T02280133KFLL2019-04-23T03:53:00Z26.07-80.1522.813.360710.030.1092531019.6TRUEVFRMETAR3.02019-04-23 04:05:57\§Þ*)!5    3KFHR 230353Z AUTO 08004KT 10SM OVC022 11/08 A3020 RMK AO2 SLP226 T01060078KFHR2019-04-23T03:53:00Z48.52-123.0310.67.880410.030.2007871022.6TRUETRUEMVFRMETAR32.02019-04-23 04:05:57X§Þ))5    3KFFT 230353Z AUTO 18003KT 10SM CLR 14/08 A3007 RMK AO2 SLP177 T01440078KFFT2019-04-23T03:53:00Z38.18-84.914.47.8180310.030.0708661017.7TRUETRUEVFRMETAR236.02019-04-23 04:05:57 v*LUvY§Þ0)5    3KFOE 230353Z AUTO 36006KT 10SM CLR 14/09 A3008 RMK AO2 SLP182 T01440094KFOE2019-04-23T03:53:00Z38.93-95.6514.49.4360610.030.0797251018.2TRUETRUEVFRMETAR320.02019-04-23 04:05:57q§Þ/)E5    3KFMN 230353Z AUTO 12017KT 10SM FEW120 12/03 A3006 RMK AO2 PK WND 12029/0254 SLP146 T01220033KFMN2019-04-23T03:53:00Z36.75-108.2312.23.31201710.030.0590551014.6TRUETRUEVFRMETAR1685.02019-04-23 04:05:57X§Þ.)5    3KFMY 230353Z AUTO 11003KT 10SM CLR 20/14 A3012 RMK AO2 SLP200 T02000144KFMY2019-04-23T03:53:00Z26.58-81.8720.014.4110310.030.1210631020.0TRUETRUEVFRMETAR4.02019-04-23 04:05:57P§Þ-)5    3KFNT 230353Z 17008KT 10SM CLR 16/06 A2997 RMK AO2 SLP147 T01560061KFNT2019-04-23T03:53:00Z42.97-83.7515.66.1170810.029.9704721014.7TRUEVFRMETAR233.02019-04-23 04:05:57 €"Cl€f§Þ4)-5      3KGRB 230353Z 36010KT 6SM RA BR OVC007 07/06 A2990 RMK AO2 SLP129 P0012 T00720061KGRB2019-04-23T03:53:00Z44.48-88.137.26.1360106.029.8996071012.9TRUERA BRIFR0.12METAR208.02019-04-23 04:05:57Q§Þ3)5    3KBNA 230353Z 19004KT 10SM CLR 17/10 A3010 RMK AO2 SLP188 T01720100KBNA2019-04-23T03:53:00Z36.12-86.6817.210.0190410.030.1003931018.8TRUEVFRMETAR210.02019-04-23 04:05:57Y§Þ2)5    3KUNO 230353Z AUTO 23004KT 10SM CLR 19/11 A3006 RMK AO2 SLP168 T01940106KUNO2019-04-23T03:53:00Z36.88-91.919.410.6230410.030.0590551016.8TRUETRUEVFRMETAR372.02019-04-23 04:05:57X§Þ1)5    3KFFC 230353Z AUTO 00000KT 10SM CLR 14/12 A3016 RMK AO2 SLP210 T01390122KFFC2019-04-23T03:53:00Z33.35-84.5713.912.20010.030.1594491021.0TRUETRUEVFRMETAR262.02019-04-23 04:05:57 Y ,YM§Þ8)5    3KLWV 230353Z AUTO 19009KT 10SM CLR 19/11 A3000 RMK AO2 SLPNO T01890106KLWV2019-04-23T03:53:00Z38.77-87.618.910.6190910.030.0TRUETRUEVFRMETAR131.02019-04-23 04:05:57b§Þ7)%5    3KLXT 230353Z AUTO 35009KT 10SM SCT046 15/09 A3006 RMK AO2 SLP174 T01500094 $KLXT2019-04-23T03:53:00Z38.97-94.3715.09.4350910.030.0590551017.4TRUETRUETRUEVFRMETAR306.02019-04-23 04:05:57‚§Þ6)a5      3KLXV 230353Z AUTO 33004KT 2SM -SN BR BKN006 OVC010 00/M01 A3029 RMK AO2 CIG 004V008 SLP182 P0001 T00001006KLXV2019-04-23T03:53:00Z39.23-106.320.0-0.633042.030.289371018.2TRUETRUE-SN BRIFR0.01METAR3028.02019-04-23 04:05:57Z§Þ5)5    3KMAE 230353Z AUTO 17003KT 10SM CLR 22/11 A2997 RMK AO2 SLP146 T02170111KMAE2019-04-23T03:53:00Z36.98-120.1221.711.1170310.029.9704721014.6TRUETRUEVFRMETAR77.02019-04-23 04:05:57 3TO§Þ<)5    3KLVK 230353Z 00000KT 10SM CLR 19/11 A2999 RMK AO2 SLP155 T01940111KLVK2019-04-23T03:53:00Z37.7-121.8219.411.10010.029.9911421015.5TRUEVFRMETAR117.02019-04-23 04:05:57Y§Þ;)5    3KLVM 230353Z AUTO 25008KT 10SM CLR 09/02 A3010 RMK AO2 SLP188 T00890022KLVM2019-04-23T03:53:00Z45.7-110.438.92.2250810.030.1003931018.8TRUETRUEVFRMETAR1418.02019-04-23 04:05:57d§Þ:)%5    3KLVS 230353Z AUTO 08014KT 10SM OVC013 07/04 A3020 RMK AO2 SLP163 T00670044 $KLVS2019-04-23T03:53:00Z35.65-105.136.74.4801410.030.2007871016.3TRUETRUETRUEMVFRMETAR2091.02019-04-23 04:05:57]§Þ9)!5    3KLWD 230353Z AUTO 32012KT 10SM OVC015 11/08 A3006 RMK AO2 SLP176 T01110078KLWD2019-04-23T03:53:00Z40.63-93.911.17.83201210.030.0590551017.6TRUETRUEMVFRMETAR346.02019-04-23 04:05:57 ŽBbŽN§Þ@)5    3KSAC 230353Z 31008KT 10SM CLR 23/08 A2996 RMK AO2 SLP145 T02280078KSAC2019-04-23T03:53:00Z38.5-121.522.87.8310810.029.9586621014.5TRUEVFRMETAR11.02019-04-23 04:05:57Z§Þ?)5    3KRXE 230353Z AUTO 22007KT 10SM CLR 12/03 A3017 RMK AO2 SLP201 T01170033KRXE2019-04-23T03:53:00Z43.83-111.811.73.3220710.030.1712591020.1TRUETRUEVFRMETAR1480.02019-04-23 04:05:57V§Þ>)5    3KLUK 230353Z AUTO 00000KT 10SM CLR 12/09 A3006 RMK AO2 SLP178 T01220094KLUK2019-04-23T03:53:00Z39.1-84.4212.29.40010.030.0590551017.8TRUETRUEVFRMETAR155.02019-04-23 04:05:57\§Þ=)!5    3KLVJ 230353Z AUTO 12008KT 10SM FEW039 22/19 A3006 RMK AO2 SLP177 T02170194KLVJ2019-04-23T03:53:00Z29.52-95.2521.719.4120810.030.0590551017.7TRUETRUEVFRMETAR12.02019-04-23 04:05:57 jì-j=§ÞD)5   3PKMJ 230353Z 05018KT 15SM FEW015 SCT050 BKN300 30/25 A2979 PKMJ2019-04-23T03:53:00Z7.07171.2730.025.0501815.029.790354VFRMETAR3.02019-04-23 04:05:57a§ÞC)/5    3KMLT 230353Z AUTO 03008KT 10SM BKN047 OVC055 11/00 A3017 RMK AO2 SLP221 T01110000KMLT2019-04-23T03:53:00Z45.65-68.711.10.030810.030.1712591022.1TRUETRUEVFRMETAR123.02019-04-23 04:05:57R§ÞB)5    3KSAV 230353Z 00000KT 10SM CLR 16/12 A3016 RMK AO2 SLP211 LAST T01560122KSAV2019-04-23T03:53:00Z32.12-81.215.612.20010.030.1594491021.1TRUEVFRMETAR14.02019-04-23 04:05:57‚§ÞA)y5      3KSAF 230353Z AUTO 25009KT 9SM -RA SCT026 OVC031 08/06 A3016 RMK AO2 WSHFT 0247 LTG DSNT N RAB15 SLP149 P0003 T00780061KSAF2019-04-23T03:53:00Z35.62-106.17.86.125099.030.1594491014.9TRUETRUE-RAVFR0.03METAR1930.02019-04-23 04:05:57 u>\ua§ÞH)/5    3KGLR 230353Z AUTO VRB05KT 10SM SCT100 SCT120 11/05 A2990 RMK AO2 SLP124 T01060050KGLR2019-04-23T03:53:00Z45.02-84.6810.65.00510.029.8996071012.4TRUETRUEVFRMETAR407.02019-04-23 04:05:57\§ÞG)!5    3KJLN 230353Z AUTO 23004KT 10SM OVC060 19/16 A3005 RMK AO2 SLP167 T01940161KJLN2019-04-23T03:53:00Z37.15-94.519.416.1230410.030.0501981016.7TRUETRUEVFRMETAR299.02019-04-23 04:05:57Z§ÞF)5    3KLKV 230353Z AUTO 35005KT 10SM CLR 11/04 A3026 RMK AO2 SLP238 T01110039KLKV2019-04-23T03:53:00Z42.17-120.411.13.9350510.030.2598421023.8TRUETRUEVFRMETAR1441.02019-04-23 04:05:57\§ÞE)!5    3KMCW 230353Z AUTO 35018KT 10SM OVC008 07/07 A3003 RMK AO2 SLP165 T00720067KMCW2019-04-23T03:53:00Z43.15-93.337.26.73501810.030.0295281016.5TRUETRUEIFRMETAR369.02019-04-23 04:05:57 q/ECqL§ÞL)5    3KSBA 230353Z 00000KT 9SM CLR 14/12 A2992 RMK AO2 SLP131 T01440117KSBA2019-04-23T03:53:00Z34.43-119.8514.411.7009.029.9202751013.1TRUEVFRMETAR3.02019-04-23 04:05:57|§ÞK)W5    3CYZH 230353Z AUTO 32007G21KT 7SM -TSRA SQ FEW039 BKN055 OVC077 05/04 A2964 RMK LTNG DIST ALQDS SLP059CYZH2019-04-23T03:53:00Z55.28-114.775.04.03207217.029.6397631005.9TRUE-TSRA SQVFRSPECI581.02019-04-23 04:05:57d§ÞJ)/5    3KFNB 230353Z AUTO 32009KT 10SM BKN018 OVC024 12/08 A3010 RMK AO2 SLP190 T01170083KFNB2019-04-23T03:53:00Z40.07-95.5811.78.3320910.030.1003931019.0TRUETRUEMVFRMETAR300.02019-04-23 04:05:57K§ÞI)5    3KFOZ 230353Z AUTO 00000KT 10SM SCT080 SCT100 03/M02 A3014 RMK AO2KFOZ2019-04-23T03:53:00Z47.77-93.653.0-2.00010.030.138779TRUETRUEVFRMETAR411.02019-04-23 04:05:57 u(JuO§ÞP)5    3KSJC 230353Z 33005KT 10SM FEW080 17/11 A3000 RMK AO2 SLP159 T01720111KSJC2019-04-23T03:53:00Z37.37-121.9217.211.1330510.030.01015.9TRUEVFRMETAR24.02019-04-23 04:05:57X§ÞO)5    3KSFB 230353Z AUTO 12003KT 10SM CLR 18/13 A3015 RMK AO2 SLP207 T01780133KSFB2019-04-23T03:53:00Z28.77-81.2217.813.3120310.030.150591020.7TRUETRUEVFRMETAR17.02019-04-23 04:05:57V§ÞN)5    3KSEG 230353Z AUTO 00000KT 10SM CLR 09/07 A3008 RMK AO2 SLP186 T00940072KSEG2019-04-23T03:53:00Z40.82-76.879.47.20010.030.0797251018.6TRUETRUEVFRMETAR134.02019-04-23 04:05:57v§ÞM)G5      3KSBM 230353Z AUTO 05010KT 3SM +RA BR BKN005 OVC055 08/07 A2985 RMK AO2 SLP111 P0034 T00780072KSBM2019-04-23T03:53:00Z43.78-87.857.87.250103.029.849411011.1TRUETRUE+RA BRIFR0.34METAR232.02019-04-23 04:05:57 "Iva§ÞT)/5    3KSMQ 230353Z AUTO 00000KT 10SM FEW050 OVC070 14/13 A3001 RMK AO2 SLP162 T01440128KSMQ2019-04-23T03:53:00Z40.62-74.6714.412.80010.030.0088581016.2TRUETRUEVFRMETAR30.02019-04-23 04:05:57M§ÞS)5    3KSMF 230353Z 34004KT 10SM CLR 20/08 A2996 RMK AO2 SLP143 T02000078KSMF2019-04-23T03:53:00Z38.7-121.620.07.8340410.029.9586621014.3TRUEVFRMETAR6.02019-04-23 04:05:57S§ÞR)5    3KSLN 230353Z 01011KT 10SM FEW027 13/08 A3012 RMK AO2 SLP198 T01330083KSLN2019-04-23T03:53:00Z38.78-97.6513.38.3101110.030.1210631019.8TRUEVFRMETAR385.02019-04-23 04:05:57X§ÞQ)5    3KSIY 230353Z AUTO VRB05KT 10SM CLR 16/07 A3024 RMK AO2 SLP246 T01560067KSIY2019-04-23T03:53:00Z41.77-122.4715.66.70510.030.2391741024.6TRUETRUEVFRMETAR807.02019-04-23 04:05:57 n 9Xnd§ÞX)/5    3KSFF 230353Z AUTO 20003KT 10SM BKN070 OVC090 16/03 A3011 RMK AO2 SLP192 T01610028KSFF2019-04-23T03:53:00Z47.68-117.3216.12.8200310.030.1092531019.2TRUETRUEVFRMETAR609.02019-04-23 04:05:57[§ÞW)!5    3KSGR 230353Z AUTO 12006KT 10SM BKN040 22/18 A3004 RMK AO2 SLP174 T02170183KSGR2019-04-23T03:53:00Z29.62-95.6521.718.3120610.030.0413381017.4TRUETRUEVFRMETAR2.02019-04-23 04:05:57a§ÞV)-5    3KSHN 230353Z AUTO 25003KT 8SM FEW004 OVC014 09/08 A3022 RMK AO2 SLP235 T00940078KSHN2019-04-23T03:53:00Z47.23-123.139.47.825038.030.2214571023.5TRUETRUEMVFRMETAR82.02019-04-23 04:05:57Z§ÞU)5    3KSHR 230353Z AUTO 17006KT 10SM CLR 07/03 A3013 RMK AO2 SLP205 T00670028KSHR2019-04-23T03:53:00Z44.77-106.976.72.8170610.030.1299211020.5TRUETRUEVFRMETAR1202.02019-04-23 04:05:57 ,= ,n§Þ\)E5     3PAMR 230353Z 16005KT 10SM SCT009 OVC040 01/M03 A2945 RMK AO2 SNB17E45 SLP975 P0000 T00061028PAMR2019-04-23T03:53:00Z61.22-149.850.6-2.8160510.029.450787997.5TRUEVFR0.005METAR41.02019-04-23 04:05:57‚§Þ[)‚5     3PANC 230353Z 14007KT 10SM FEW006 BKN040 BKN060 01/M01 A2945 RMK AO2 SNE38 SLP973 PRESENT WX VCSH N AND SE P0001 T00111011 VISNO N $PANC2019-04-23T03:53:00Z61.17-150.01.1-1.1140710.029.450787997.3TRUETRUEVFR0.01METAR38.02019-04-23 04:05:57\§ÞZ)+5    3PAOR 230353Z 28003KT 9SM FEW011 OVC016 04/02 A2915 RMK AO2 SLP891 T00390022 PNOPAOR2019-04-23T03:53:00Z62.97-141.933.92.228039.029.149607989.1TRUEMVFRMETAR523.02019-04-23 04:05:57[§ÞY)%5    3KSNA 230353Z 17005KT 10SM FEW019 SCT100 16/12 A2997 RMK AO2 SLP148 T01560122KSNA2019-04-23T03:53:00Z33.67-117.8715.612.2170510.029.9704721014.8TRUEVFRMETAR16.02019-04-23 04:05:57 E'EEz§Þ`)Q5      3PANN 230353Z AUTO VRB06KT 10SM BKN038 OVC095 04/00 A2921 RMK AO2 RAE00 SLP899 P0000 T00390000 TSNOPANN2019-04-23T03:53:00Z64.55-149.083.90.00610.029.208662989.9TRUETRUETRUEVFR0.005METAR110.02019-04-23 04:05:57\§Þ_)5    3KSDL 230353Z AUTO 26003KT 10SM CLR 24/M03 A2983 RMK AO2 SLP080 T02441028KSDL2019-04-23T03:53:00Z33.62-111.9224.4-2.8260310.029.8287411008.0TRUETRUEVFRMETAR447.02019-04-23 04:05:57X§Þ^)5    3KSDM 230353Z AUTO 00000KT 10SM CLR 15/12 A2997 RMK AO2 SLP146 T01500117KSDM2019-04-23T03:53:00Z32.58-117.015.011.70010.029.9704721014.6TRUETRUEVFRMETAR159.02019-04-23 04:05:57u§Þ])O5     3KSEA 230353Z 18008KT 9SM FEW005 SCT011 OVC024 11/09 A3021 RMK AO2 RAB09E38 SLP236 P0000 T01110094KSEA2019-04-23T03:53:00Z47.45-122.3211.19.418089.030.2096461023.6TRUEMVFR0.005METAR136.02019-04-23 04:05:57 ”%FM”3§Þd(i5    3KSPG 230353Z AUTO A3012 RMK AO2 SLP201 PWINO $KSPG2019-04-23T03:53:00Z27.77-82.6330.1210631020.1TRUETRUETRUETRUEMETAR2.02019-04-23 04:05:57s§Þc)C5      3KSPB 230353Z AUTO 00000KT 5SM BR OVC043 14/12 A3024 RMK AO2 RAB10E23 SLP241 P0000 T01390117KSPB2019-04-23T03:53:00Z45.77-122.8713.911.7005.030.2391741024.1TRUETRUEBRMVFR0.005METAR14.02019-04-23 04:05:57Y§Þb)5    3KSNY 230353Z AUTO 28005KT 10SM CLR 01/00 A3024 RMK AO2 SLP255 T00110000KSNY2019-04-23T03:53:00Z41.1-102.981.10.0280510.030.2391741025.5TRUETRUEVFRMETAR1307.02019-04-23 04:05:57U§Þa)5    3KSNS 230353Z AUTO 35009KT 8SM CLR 14/09 A3002 RMK AO2 SLP173 T01390089KSNS2019-04-23T03:53:00Z36.67-121.613.98.935098.030.020671017.3TRUETRUEVFRMETAR30.02019-04-23 04:05:57 ‡,Hf‡Y§Þh)5    3KCXO 230353Z AUTO 14007KT 10SM CLR 20/18 A3006 RMK AO2 SLP177 T02000183KCXO2019-04-23T03:53:00Z30.35-95.4220.018.3140710.030.0590551017.7TRUETRUEVFRMETAR75.02019-04-23 04:05:57\§Þg)5    3KCUT 230353Z AUTO 29003KT 10SM CLR 02/M01 A3023 RMK AO2 SLP238 T00171006KCUT2019-04-23T03:53:00Z43.73-103.621.7-0.6290310.030.2303141023.8TRUETRUEVFRMETAR1725.02019-04-23 04:05:57^§Þf)!5    3KSSF 230353Z AUTO 12009KT 10SM BKN018 22/17 A3001 RMK AO2 SLP153 T02170167KSSF2019-04-23T03:53:00Z29.33-98.4721.716.7120910.030.0088581015.3TRUETRUEMVFRMETAR176.02019-04-23 04:05:57N§Þe)5    3KSRQ 230353Z 02005KT 10SM CLR 19/13 A3011 RMK AO2 SLP196 T01940128KSRQ2019-04-23T03:53:00Z27.4-82.5719.412.820510.030.1092531019.6TRUEVFRMETAR18.02019-04-23 04:05:57 ^&+Q^m§Þl)I5    3KDAL 230353Z 14010KT 10SM SCT050 BKN170 OVC250 23/16 A3002 RMK AO2 SLP158 VIRGA S-SW T02330161KDAL2019-04-23T03:53:00Z32.85-96.8523.316.11401010.030.020671015.8TRUEVFRMETAR158.02019-04-23 04:05:57T§Þk)5    3KDAB 230353Z 18003KT 10SM CLR 16/14 A3015 RMK AO2 SLP208 T01560144 $KDAB2019-04-23T03:53:00Z29.18-81.0715.614.4180310.030.150591020.8TRUETRUEVFRMETAR9.02019-04-23 04:05:57u§Þj)K5      3KFLD 230353Z AUTO 02016KT 7SM -RA OVC005 08/08 A2985 RMK AO2 CIG 004V010 SLP110 P0029 T00830078KFLD2019-04-23T03:53:00Z43.77-88.488.37.820167.029.849411011.0TRUETRUE-RAIFR0.29METAR240.02019-04-23 04:05:57T§Þi)5    3KCYS 230353Z 16005KT 10SM OVC023 05/02 A3025 RMK AO2 SLP244 T00500022KCYS2019-04-23T03:53:00Z41.15-104.85.02.2160510.030.2509841024.4TRUEMVFRMETAR1868.02019-04-23 04:05:57 u"/OuT§Þp)5    3KDEN 230353Z 08004KT 10SM OVC026 07/03 A3026 RMK AO2 SLP233 T00670033KDEN2019-04-23T03:53:00Z39.85-104.656.73.380410.030.2598421023.3TRUEMVFRMETAR1640.02019-04-23 04:05:57Z§Þo)5    3KDCU 230353Z AUTO 14003KT 10SM CLR 16/12 A3013 RMK AO2 SLP200 T01560117KDCU2019-04-23T03:53:00Z34.65-86.9515.611.7140310.030.1299211020.0TRUETRUEVFRMETAR176.02019-04-23 04:05:57m§Þn)A5     3KDBQ 230353Z AUTO 28010KT 3SM BR SCT006 BKN011 OVC021 15/14 A2985 RMK AO2 SLP107 T01500139KDBQ2019-04-23T03:53:00Z42.4-90.715.013.9280103.029.849411010.7TRUETRUEBRMVFRMETAR326.02019-04-23 04:05:57X§Þm)5    3KDAN 230353Z AUTO 08003KT 10SM CLR 10/08 A3013 RMK AO2 SLP195 T01000083KDAN2019-04-23T03:53:00Z36.57-79.3310.08.380310.030.1299211019.5TRUETRUEVFRMETAR175.02019-04-23 04:05:57 €#N]€W§Þt)!5    3KDFI 230353Z AUTO 19009KT 10SM SCT110 18/07 A3000 RMK AO2 SLP158 T01780072KDFI2019-04-23T03:53:00Z41.33-84.4317.87.2190910.030.01015.8TRUETRUEVFRMETAR219.02019-04-23 04:05:57k§Þs)=5    3KDEW 230353Z AUTO 20009KT 10SM BKN065 BKN080 OVC100 14/01 A3010 RMK AO2 SLP193 T01440011KDEW2019-04-23T03:53:00Z47.97-117.4314.41.1200910.030.1003931019.3TRUETRUEVFRMETAR674.02019-04-23 04:05:57O§Þr)5    3KDET 230353Z 13008KT 10SM CLR 11/06 A3001 RMK AO2 SLP162 T01110056KDET2019-04-23T03:53:00Z42.4-83.0211.15.6130810.030.0088581016.2TRUEVFRMETAR190.02019-04-23 04:05:57W§Þq)5    3KDEQ 230353Z AUTO 00000KT 10SM CLR 16/16 A3005 RMK AO2 SLP171 T01610161KDEQ2019-04-23T03:53:00Z34.05-94.416.116.10010.030.0501981017.1TRUETRUEVFRMETAR106.02019-04-23 04:05:57 n%Ffnr§Þx)95      3KDHT 230353Z AUTO 04008KT 6SM -RA BR OVC060 11/08 A3017 RMK AO2 SLP190 P0004 T01060083KDHT2019-04-23T03:53:00Z36.02-102.5510.68.34086.030.1712591019.0TRUETRUE-RA BRVFR0.04METAR1217.02019-04-23 04:05:57Z§Þw)5    3KDHN 230353Z AUTO 22005KT 10SM CLR 16/10 A3018 RMK AO2 SLP214 T01610100KDHN2019-04-23T03:53:00Z31.32-85.4516.110.0220510.030.1801191021.4TRUETRUEVFRMETAR113.02019-04-23 04:05:57Y§Þv)5    3KDGW 230353Z AUTO 12009KT 10SM CLR 03/02 A3022 RMK AO2 SLP240 T00330017KDGW2019-04-23T03:53:00Z42.8-105.383.31.7120910.030.2214571024.0TRUETRUEVFRMETAR1499.02019-04-23 04:05:57U§Þu)%5    3KDFW 230353Z 12007KT 10SM BKN170 OVC190 21/17 A3000 RMK AO2 SLP153 T02110167KDFW2019-04-23T03:53:00Z32.9-97.0221.116.7120710.030.01015.3TRUEVFRMETAR174.02019-04-23 04:05:57 M?EMr§Þ|)C5   3KDMN 230353Z AUTO 34015G21KT 10SM FEW070 BKN090 OVC110 16/06 A3001 RMK AO2 SLP105 T01610061KDMN2019-04-23T03:53:00Z32.27-107.7216.16.1340152110.030.0088581010.5TRUETRUEVFRMETAR1311.02019-04-23 04:05:57t§Þ{)K5   3KDLS 230353Z AUTO 32012G23KT 10SM FEW120 16/06 A3018 RMK AO2 PK WND 31031/0257 SLP220 T01610061KDLS2019-04-23T03:53:00Z45.62-121.1716.16.1320122310.030.1801191022.0TRUETRUEVFRMETAR71.02019-04-23 04:05:57Z§Þz)5    3KDLN 230353Z AUTO 19005KT 10SM CLR 09/02 A3014 RMK AO2 SLP189 T00940022KDLN2019-04-23T03:53:00Z45.25-112.559.42.2190510.030.1387791018.9TRUETRUEVFRMETAR1591.02019-04-23 04:05:57[§Þy)5    3KDKK 230353Z AUTO 00000KT 10SM CLR 07/05 A3009 RMK AO2 SLP191 T00720050 $KDKK2019-04-23T03:53:00Z42.5-79.287.25.00010.030.0885831019.1TRUETRUETRUEVFRMETAR202.02019-04-23 04:05:57 v7VvZ§ß)5    3KDTN 230353Z AUTO 18010KT 10SM CLR 22/14 A3006 RMK AO2 SLP177 T02220144KDTN2019-04-23T03:53:00Z32.55-93.7522.214.41801010.030.0590551017.7TRUETRUEVFRMETAR53.02019-04-23 04:05:57[§Þ)!5    3KDRO 230353Z AUTO 00000KT 10SM OVC110 09/00 A3012 RMK AO2 SLP155 T00940000KDRO2019-04-23T03:53:00Z37.15-107.779.40.00010.030.1210631015.5TRUETRUEVFRMETAR2035.02019-04-23 04:05:57X§Þ~)5    3KDNL 230353Z AUTO 00000KT 10SM CLR 19/10 A3014 RMK AO2 SLP203 T01940100KDNL2019-04-23T03:53:00Z33.47-82.0319.410.00010.030.1387791020.3TRUETRUEVFRMETAR130.02019-04-23 04:05:57e§Þ})/5    3KDMO 230353Z AUTO 34010KT 10SM BKN032 OVC055 16/13 A3004 RMK AO2 SLP167 T01610128KDMO2019-04-23T03:53:00Z38.72-93.1716.112.83401010.030.0413381016.7TRUETRUEVFRMETAR274.02019-04-23 04:05:57 ˆ@eˆW§ß)%5    3KDTW 230353Z 00000KT 10SM BKN120 OVC180 13/06 A3002 RMK AO2 SLP165 T01280061KDTW2019-04-23T03:53:00Z42.23-83.3312.86.10010.030.020671016.5TRUEVFRMETAR195.02019-04-23 04:05:57U§ß)5    3KDTS 230353Z AUTO 00000KT 10SM CLR 16/13 A3016 RMK AO2 SLP212 T01560128KDTS2019-04-23T03:53:00Z30.4-86.4715.612.80010.030.1594491021.2TRUETRUEVFRMETAR5.02019-04-23 04:05:57X§ß)5    3KDTO 230353Z AUTO 12006KT 10SM CLR 22/16 A3001 RMK AO2 SLP155 T02170161KDTO2019-04-23T03:53:00Z33.2-97.221.716.1120610.030.0088581015.5TRUETRUEVFRMETAR196.02019-04-23 04:05:57\§ß)5    3KDRT 230353Z AUTO 10011KT 10SM CLR 23/16 A2994 RMK AO2 SLP126 T02330161KDRT2019-04-23T03:53:00Z29.37-100.9223.316.11001110.029.9409451012.6TRUETRUEVFRMETAR313.02019-04-23 04:05:57 Š"HjŠZ§ß)5    3KMBS 230353Z AUTO 17011KT 10SM CLR 17/08 A2992 RMK AO2 SLP131 T01720078KMBS2019-04-23T03:53:00Z43.53-84.0817.27.81701110.029.9202751013.1TRUETRUEVFRMETAR202.02019-04-23 04:05:57X§ß)5    3KMAI 230353Z AUTO 20003KT 10SM CLR 18/08 A3014 RMK AO2 SLP205 T01780083KMAI2019-04-23T03:53:00Z30.83-85.1817.88.3200310.030.1387791020.5TRUETRUEVFRMETAR32.02019-04-23 04:05:57T§ß)5    3KMAF 230353Z 09007KT 10SM BKN030 18/15 A2999 RMK AO2 SLP119 T01830150KMAF2019-04-23T03:53:00Z31.95-102.218.315.090710.029.9911421011.9TRUEMVFRMETAR874.02019-04-23 04:05:57X§ß)5    3KDUJ 230353Z AUTO 23005KT 10SM CLR 12/06 A3010 RMK AO2 SLP194 T01220056KDUJ2019-04-23T03:53:00Z41.17-78.912.25.6230510.030.1003931019.4TRUETRUEVFRMETAR554.02019-04-23 04:05:57 ’ Hp’X§ß )5    3KMCK 230353Z AUTO 36007KT 10SM CLR 07/01 A3020 RMK AO2 SLP229 T00670006KMCK2019-04-23T03:53:00Z40.2-100.586.70.6360710.030.2007871022.9TRUETRUEVFRMETAR782.02019-04-23 04:05:57R§ß )5    3KMCI 230353Z 33009KT 10SM SCT250 13/09 A3006 RMK AO2 SLP174 T01280089KMCI2019-04-23T03:53:00Z39.3-94.7312.88.9330910.030.0590551017.4TRUEVFRMETAR320.02019-04-23 04:05:57R§ß )5    3KMCE 230353Z AUTO 10SM CLR 21/08 A2994 RMK AO2 SLP138 T02110078 $KMCE2019-04-23T03:53:00Z37.28-120.521.17.810.029.9409451013.8TRUETRUETRUEVFRMETAR47.02019-04-23 04:05:57Z§ß )5    3KMCB 230353Z AUTO 14005KT 10SM CLR 17/12 A3014 RMK AO2 SLP201 T01670117KMCB2019-04-23T03:53:00Z31.18-90.4716.711.7140510.030.1387791020.1TRUETRUEVFRMETAR124.02019-04-23 04:05:57 ¥"Nw¥L§ß)5    3KMGM 230353Z 00000KT 10SM CLR 16/13 A3014 RMK AO2 SLP204 T01560133KMGM2019-04-23T03:53:00Z32.3-86.415.613.30010.030.1387791020.4TRUEVFRMETAR63.02019-04-23 04:05:57Q§ß)5    3KMFE 230353Z 12012KT 10SM CLR 24/20 A2994 RMK AO2 SLP136 T02390200KMFE2019-04-23T03:53:00Z26.18-98.2523.920.01201210.029.9409451013.6TRUEVFRMETAR38.02019-04-23 04:05:57N§ß)5    3KMCO 230353Z 08006KT 10SM CLR 18/12 A3015 RMK AO2 SLP206 T01830117KMCO2019-04-23T03:53:00Z28.42-81.3318.311.780610.030.150591020.6TRUEVFRMETAR29.02019-04-23 04:05:57X§ß )5    3KMCN 230353Z AUTO 00000KT 10SM CLR 13/12 A3014 RMK AO2 SLP203 T01330122KMCN2019-04-23T03:53:00Z32.68-83.6513.312.20010.030.1387791020.3TRUETRUEVFRMETAR109.02019-04-23 04:05:57 CA.Ce§ß)?5    3PAKT 230353Z 21004KT 10SM FEW050 03/02 A3007 RMK AO2 SLP183 HARBOR WIND 28005KT T00330017PAKT2019-04-23T03:53:00Z55.35-131.73.31.7210410.030.0708661018.3TRUEVFRMETAR28.02019-04-23 04:05:57‚ §ß)m5      3PAKW 230353Z AUTO VRB06G23KT 10SM -RA FEW022 BKN046 OVC065 05/00 A3004 RMK AO2 RAB50 SLP174 P0000 T00500000 TSNOPAKW2019-04-23T03:53:00Z55.58-133.075.00.0062310.030.0413381017.4TRUETRUETRUE-RAVFR0.005METAR15.02019-04-23 04:05:57W§ß)5    3KMGW 230353Z AUTO 00000KT 10SM CLR 12/07 A3013 RMK AO2 SLP203 T01170072KMGW2019-04-23T03:53:00Z39.65-79.9211.77.20010.030.1299211020.3TRUETRUEVFRMETAR378.02019-04-23 04:05:57\§ß)!5    3KMFR 230353Z AUTO 08003KT 10SM OVC080 21/08 A3021 RMK AO2 SLP229 T02060078KMFR2019-04-23T03:53:00Z42.38-122.8720.67.880310.030.2096461022.9TRUETRUEVFRMETAR396.02019-04-23 04:05:57 ƒ?aƒX§ß)5    3KMHE 230353Z AUTO 28003KT 10SM CLR 09/03 A3017 RMK AO2 SLP220 T00940028KMHE2019-04-23T03:53:00Z43.77-98.029.42.8280310.030.1712591022.0TRUETRUEVFRMETAR397.02019-04-23 04:05:57X§ß)5    3KMGY 230353Z AUTO 17007KT 10SM CLR 16/05 A3005 RMK AO2 SLP172 T01560050KMGY2019-04-23T03:53:00Z39.6-84.2315.65.0170710.030.0501981017.2TRUETRUEVFRMETAR289.02019-04-23 04:05:57Q§ß)5    3PAHO 230353Z 23013KT 10SM CLR 01/M07 A2952 RMK AO2 SLP996 T00111072PAHO2019-04-23T03:53:00Z59.63-151.471.1-7.22301310.029.518702999.6TRUEVFRMETAR28.02019-04-23 04:05:57d§ß)75    3PAIL 230353Z 30010KT 10SM BKN045 BKN055 OVC070 M02/M08 A2954 RMK AO2 SLP006 T10221083PAIL2019-04-23T03:53:00Z59.75-154.92-2.2-8.33001010.029.539371000.6TRUEVFRMETAR49.02019-04-23 04:05:57 y 5XyY§ß)-5    3KMIE 230353Z 19011KT 10SM SCT110 20/07 A3000 RMK AO2 LTG DSNT N SLP148 T02000067KMIE2019-04-23T03:53:00Z40.23-85.420.06.71901110.030.01014.8TRUEVFRMETAR285.02019-04-23 04:05:57W§ß)5    3KMIC 230353Z AUTO 03008KT 10SM CLR 06/04 A3010 RMK AO2 SLP197 T00560039KMIC2019-04-23T03:53:00Z45.07-93.355.63.930810.030.1003931019.7TRUETRUEVFRMETAR265.02019-04-23 04:05:57P§ß)5    3KMIA 230353Z 05005KT 10SM FEW040 23/13 A3011 RMK AO2 SLP197 T02280128KMIA2019-04-23T03:53:00Z25.8-80.2822.812.850510.030.1092531019.7TRUEVFRMETAR3.02019-04-23 04:05:57o§ß);5      3KMHT 230353Z 35013KT 4SM RA BR BKN010 OVC018 13/12 A2995 RMK AO2 SLP154 P0017 T01330122KMHT2019-04-23T03:53:00Z42.93-71.4313.312.2350134.029.9498021015.4TRUERA BRMVFR0.17METAR81.02019-04-23 04:05:57 S!DSk§ß )=5    3KMLC 230353Z AUTO 11004KT 10SM BKN055 BKN090 OVC110 19/15 A3005 RMK AO2 SLP169 T01890150KMLC2019-04-23T03:53:00Z34.88-95.7818.915.0110410.030.0501981016.9TRUETRUEVFRMETAR232.02019-04-23 04:05:57W§ß)5    3KMLB 230353Z AUTO 07005KT 10SM CLR 21/14 A3013 RMK AO2 SLP203 T02110144KMLB2019-04-23T03:53:00Z28.1-80.6521.114.470510.030.1299211020.3TRUETRUEVFRMETAR11.02019-04-23 04:05:57Y§ß)5    3KMKL 230353Z AUTO 20005KT 10SM CLR 16/12 A3010 RMK AO2 SLP189 T01560117KMKL2019-04-23T03:53:00Z35.6-88.9215.611.7200510.030.1003931018.9TRUETRUEVFRMETAR128.02019-04-23 04:05:57z§ß)]5    3KMIW 230353Z AUTO 31016KT 10SM OVC009 09/08 A2999 RMK AO2 PK WND 32026/0259 CIG 006V012 SLP154 T00890083KMIW2019-04-23T03:53:00Z42.12-92.928.98.33101610.029.9911421015.4TRUETRUEIFRMETAR296.02019-04-23 04:05:57 g?cgv§ß$)I5   3KMLP 230353Z AUTO VRB06G17KT 10SM SCT036 BKN060 BKN080 06/M08 A3016 RMK AO2 SLP174 T00611078 $KMLP2019-04-23T03:53:00Z47.45-115.676.1-7.8061710.030.1594491017.4TRUETRUETRUEVFRMETAR1837.02019-04-23 04:05:57V§ß#)5    3KSSI 230353Z AUTO 00000KT 10SM CLR 17/13 A3014 RMK AO2 SLP209 T01720133KSSI2019-04-23T03:53:00Z31.15-81.3817.213.30010.030.1387791020.9TRUETRUEVFRMETAR6.02019-04-23 04:05:57X§ß")5    3KSTC 230353Z AUTO 36003KT 10SM CLR 04/02 A3013 RMK AO2 SLP219 T00440017KSTC2019-04-23T03:53:00Z45.55-94.054.41.7360310.030.1299211021.9TRUETRUEVFRMETAR314.02019-04-23 04:05:57]§ß!)!5    3KSTJ 230353Z AUTO 34012KT 10SM OVC031 13/09 A3008 RMK AO2 SLP183 T01330094KSTJ2019-04-23T03:53:00Z39.77-94.9213.39.43401210.030.0797251018.3TRUETRUEVFRMETAR247.02019-04-23 04:05:57 ‚ Bb‚Z§ß()5    3KCGI 230353Z AUTO 21005KT 10SM CLR 19/11 A3003 RMK AO2 SLP168 T01940106KCGI2019-04-23T03:53:00Z37.23-89.5819.410.6210510.030.0295281016.8TRUETRUEVFRMETAR102.02019-04-23 04:05:57Z§ß')5    3KBNO 230353Z AUTO 32006KT 10SM CLR 11/04 A3022 RMK AO2 SLP231 T01060044KBNO2019-04-23T03:53:00Z43.6-118.9510.64.4320610.030.2214571023.1TRUETRUEVFRMETAR1264.02019-04-23 04:05:57X§ß&)5    3KLOZ 230353Z AUTO 00000KT 10SM CLR 13/10 A3012 RMK AO2 SLP191 T01330100KLOZ2019-04-23T03:53:00Z37.08-84.0713.310.00010.030.1210631019.1TRUETRUEVFRMETAR362.02019-04-23 04:05:57Z§ß%)5    3KMLS 230353Z AUTO 18006KT 10SM CLR 11/05 A3009 RMK AO2 SLP191 T01060050KMLS2019-04-23T03:53:00Z46.43-105.8810.65.0180610.030.0885831019.1TRUETRUEVFRMETAR801.02019-04-23 04:05:57 + 7"+q§ß,)M5     3PALH 230353Z 17006KT 10SM BKN048 BKN060 OVC075 01/M02 A2946 RMK AO2 SNE28 SLP976 P0001 T00061017PALH2019-04-23T03:53:00Z61.18-149.970.6-1.7170610.029.459646997.6TRUEVFR0.01METAR22.02019-04-23 04:05:57‚§ß+)a5       3PAMC 230353Z AUTO 25009KT 1 1/4SM -SN BR SCT013 OVC018 M01/M03 A2941 RMK AO2 SLP965 P0001 T10111028 TSNO $PAMC2019-04-23T03:53:00Z62.97-155.62-1.1-2.825091.2529.409449996.5TRUETRUETRUETRUE-SN BRIFR0.01METAR103.02019-04-23 04:05:57c§ß*)/5    3KBVO 230353Z AUTO 00000KT 10SM BKN021 OVC065 18/17 A3005 RMK AO2 SLP167 T01780167KBVO2019-04-23T03:53:00Z36.77-96.0217.816.70010.030.0501981016.7TRUETRUEMVFRMETAR210.02019-04-23 04:05:57Z§ß))5    3KBYI 230353Z AUTO 21005KT 10SM CLR 08/04 A3018 RMK AO2 SLP210 T00830039KBYI2019-04-23T03:53:00Z42.55-113.778.33.9210510.030.1801191021.0TRUETRUEVFRMETAR1264.02019-04-23 04:05:57 i+GiX§ß0)5    3KRSL 230353Z AUTO 05005KT 10SM CLR 11/08 A3014 RMK AO2 SLP206 T01060078KRSL2019-04-23T03:53:00Z38.87-98.8210.67.850510.030.1387791020.6TRUETRUEVFRMETAR567.02019-04-23 04:05:57^§ß/)#5    3KELY 230353Z AUTO 36008KT 10SM FEW060 07/M01 A3023 RMK AO2 SLP206 T00671006KELY2019-04-23T03:53:00Z39.3-114.856.7-0.6360810.030.2303141020.6TRUETRUEVFRMETAR1906.02019-04-23 04:05:57h§ß.);5    3KPIL 230353Z AUTO 13009KT 7SM SCT011 BKN018 OVC026 24/22 A2995 RMK AO2 SLP143 T02390217KPIL2019-04-23T03:53:00Z26.17-97.3323.921.713097.029.9498021014.3TRUETRUEMVFRMETAR5.02019-04-23 04:05:57a§ß-)%5    3KPNC 230353Z AUTO 04007KT 10SM FEW037 16/12 A3005 RMK AO2 SLP169 T01610117 $KPNC2019-04-23T03:53:00Z36.73-97.116.111.740710.030.0501981016.9TRUETRUETRUEVFRMETAR308.02019-04-23 04:05:57 T#(4TZ§ß4)5    3KTWF 230353Z AUTO 22008KT 10SM CLR 09/03 A3019 RMK AO2 SLP201 T00890028KTWF2019-04-23T03:53:00Z42.48-114.488.92.8220810.030.1889761020.1TRUETRUEVFRMETAR1266.02019-04-23 04:05:57n§ß3)E5    3KSPW 230353Z AUTO 02013KT 10SM OVC017 08/05 A3011 RMK AO2 PK WND 01027/0311 SLP201 T00830050KSPW2019-04-23T03:53:00Z43.17-95.228.35.0201310.030.1092531020.1TRUETRUEMVFRMETAR403.02019-04-23 04:05:57u§ß2)C5      3KMMK 230353Z AUTO 34003KT 10SM -RA FEW016 OVC023 14/12 A2996 RMK AO2 SLP146 P0001 T01390117KMMK2019-04-23T03:53:00Z41.52-72.8313.911.7340310.029.9586621014.6TRUETRUE-RAMVFR0.01METAR31.02019-04-23 04:05:57W§ß1)5    3KMLU 230353Z AUTO 00000KT 10SM CLR 18/13 A3010 RMK AO2 SLP191 T01830133KMLU2019-04-23T03:53:00Z32.52-92.0318.313.30010.030.1003931019.1TRUETRUEVFRMETAR29.02019-04-23 04:05:57 BîBF§ß8) 5   3KP68 230353Z AUTO VRB03KT 06/03 A3022 RMK AO1 SLP208 T00610028KP682019-04-23T03:53:00Z39.6-116.06.12.80330.2214571020.8TRUETRUEMETAR1809.02019-04-23 04:05:57Z§ß7)5    3KPUC 230353Z AUTO 33007KT 10SM CLR 09/02 A3013 RMK AO2 SLP180 T00940022KPUC2019-04-23T03:53:00Z39.62-110.759.42.2330710.030.1299211018.0TRUETRUEVFRMETAR2091.02019-04-23 04:05:57‚ §ß6)o5      3PAPB 230353Z AUTO 30010KT 10SM FEW030 SCT041 OVC049 M01/M06 A2985 RMK AO2 SNE03B23E33 SLP098 P0000 T10111056 TSNOPAPB2019-04-23T03:53:00Z56.58-169.67-1.1-5.63001010.029.849411009.8TRUETRUETRUEVFR0.005METAR35.02019-04-23 04:05:57y§ß5)W5   3PHNL 230353Z 06013G21KT 10SM FEW024 FEW038 SCT050 27/17 A3010 RMK AO2 SLP191 T02670172 VISNO RWY04R $PHNL2019-04-23T03:53:00Z21.33-157.9226.717.260132110.030.1003931019.1TRUETRUEVFRMETAR4.02019-04-23 04:05:57 |9Z|X§ß<)5    3KBBW 230353Z AUTO 32004KT 10SM CLR 04/00 A3019 RMK AO2 SLP231 T00390000KBBW2019-04-23T03:53:00Z41.43-99.633.90.0320410.030.1889761023.1TRUETRUEVFRMETAR776.02019-04-23 04:05:57Y§ß;)5    3KBCE 230353Z AUTO 03011KT 10SM CLR 05/01 A3019 RMK AO2 SLP163 T00500006KBCE2019-04-23T03:53:00Z37.7-112.155.00.6301110.030.1889761016.3TRUETRUEVFRMETAR2312.02019-04-23 04:05:57T§ß:)5    3PAOT 230353Z 07007KT 10SM CLR 02/M05 A2949 RMK AO2 SLP987 T00221050 $PAOT2019-04-23T03:53:00Z66.87-162.582.2-5.070710.029.489174998.7TRUETRUEVFRMETAR3.02019-04-23 04:05:57g§ß9)/5     3PAOM 230353Z AUTO 04014KT 10SM OVC029 M01/M03 A2945 RMK AO2 SLP973 T10111033 TSNOPAOM2019-04-23T03:53:00Z64.5-165.43-1.1-3.3401410.029.450787997.3TRUETRUETRUEMVFRMETAR11.02019-04-23 04:05:57 _ 6_Q§ß@)5    3KBIL 230353Z 24008KT 10SM CLR 12/04 A3009 RMK AO2 SLP188 T01170039KBIL2019-04-23T03:53:00Z45.8-108.5511.73.9240810.030.0885831018.8TRUEVFRMETAR1091.02019-04-23 04:05:57O§ß?)5    3KFTG 230353Z AUTO 00000KT 10SM OVC023 08/04 A3027 RMK AO2 T00770041KFTG2019-04-23T03:53:00Z39.78-104.557.74.10010.030.268702TRUETRUEMVFRMETAR1675.02019-04-23 04:05:57r§ß>)?5    3KAZO 230353Z AUTO 17008G18KT 10SM FEW120 18/08 A2992 RMK AO2 RAE01 SLP130 P0000 T01830083KAZO2019-04-23T03:53:00Z42.23-85.5518.38.317081810.029.9202751013.0TRUETRUEVFR0.005METAR272.02019-04-23 04:05:57w§ß=)M5     3KBAF 230353Z AUTO 36006KT 10SM FEW022 OVC080 14/12 A2997 RMK AO2 RAB24E36 SLP150 P0000 T01390122KBAF2019-04-23T03:53:00Z42.17-72.7213.912.2360610.029.9704721015.0TRUETRUEVFR0.005METAR83.02019-04-23 04:05:57 T)(TN§ßD)5    3KNIP 230353Z 16006KT 10SM CLR 21/12 A3015 RMK AO2 SLP206 T02110122KNIP2019-04-23T03:53:00Z30.22-81.6721.112.2160610.030.150591020.6TRUEVFRMETAR7.02019-04-23 04:05:57{§ßC)K5   3KSDB 230353Z AUTO 35019G24KT 10SM CLR 14/M01 A3009 RMK AO2 PK WND 35026/0257 SLP153 T01391006 $KSDB2019-04-23T03:53:00Z34.75-118.7213.9-0.6350192410.030.0885831015.3TRUETRUETRUEVFRMETAR1377.02019-04-23 04:05:57X§ßB)5    3KMWT 230353Z AUTO 00000KT 10SM CLR 15/13 A3005 RMK AO2 SLP172 T01500128KMWT2019-04-23T03:53:00Z34.55-93.5815.012.80010.030.0501981017.2TRUETRUEVFRMETAR214.02019-04-23 04:05:57s§ßA)A5      3KVUO 230353Z AUTO 27004KT 10SM -RA OVC046 13/12 A3025 RMK AO2 RAB37 SLP242 P0001 T01330117KVUO2019-04-23T03:53:00Z45.62-122.6513.311.7270410.030.2509841024.2TRUETRUE-RAVFR0.01METAR8.02019-04-23 04:05:57 ‡$Cf‡Y§ßH)5   3PAEN 230353Z 21015G24KT 10SM FEW050 02/M06 A2946 RMK AO2 SLP977 T00171061PAEN2019-04-23T03:53:00Z60.57-151.251.7-6.1210152410.029.459646997.7TRUEVFRMETAR27.02019-04-23 04:05:57W§ßG)5    3KOQT 230353Z AUTO 00000KT 10SM CLR 14/10 A3015 RMK AO2 SLP202 T01390100KOQT2019-04-23T03:53:00Z36.02-84.2313.910.00010.030.150591020.2TRUETRUEVFRMETAR277.02019-04-23 04:05:57[§ßF)!5    3KNQX 230353Z AUTO 08010KT 10SM OVC041 24/17 A3011 RMK AO2 SLP193 T02440167KNQX2019-04-23T03:53:00Z24.57-81.6724.416.7801010.030.1092531019.3TRUETRUEVFRMETAR2.02019-04-23 04:05:57V§ßE)5    3KNUI 230353Z AUTO 00000KT 10SM CLR 12/11 A3007 RMK AO2 SLP183 T01170106KNUI2019-04-23T03:53:00Z38.15-76.4311.710.60010.030.0708661018.3TRUETRUEVFRMETAR7.02019-04-23 04:05:57 5;!5f§ßL)-5     3PACD 230353Z AUTO 28018KT 10SM SCT041 02/M07 A2987 RMK AO2 SLP116 T00171067 TSNOPACD2019-04-23T03:53:00Z55.2-162.721.7-6.72801810.029.8700791011.6TRUETRUETRUEVFRMETAR30.02019-04-23 04:05:57‚§ßK)‚5      3PACV 230353Z 22007KT 5SM R27/5500VP6000FT -SN BR FEW030 BKN043 OVC055 02/M01 A2957 RMK AO2 SNE0257B52 SLP014 P0000 T00221011PACV2019-04-23T03:53:00Z60.5-145.472.2-1.122075.029.5688971001.4TRUE-SN BRMVFR0.005METAR12.02019-04-23 04:05:57U§ßJ)5    3PADQ 230353Z 23010KT 10SM SCT055 00/M11 A2957 RMK AO2 SLP014 T00001106PADQ2019-04-23T03:53:00Z57.75-152.50.0-10.62301010.029.5688971001.4TRUEVFRMETAR34.02019-04-23 04:05:57d§ßI)-5     3PAEG 230353Z AUTO VRB03KT 10SM OVC050 08/M02 A2918 RMK AO2 SLP887 T00831022 TSNOPAEG2019-04-23T03:53:00Z64.78-141.158.3-2.20310.029.179134988.7TRUETRUETRUEVFRMETAR268.02019-04-23 04:05:57 !!!z§ßP)O5      3PABE 230353Z 26013KT 3SM -SN BR SCT010 BKN024 OVC039 M06/M07 A2958 RMK AO2 SLP019 P0002 T10561072PABE2019-04-23T03:53:00Z60.78-161.83-5.6-7.2260133.029.580711001.9TRUE-SN BRMVFR0.02METAR41.02019-04-23 04:05:57o§ßO)K5     3PABI 230353Z 08007KT 10SM OVC100 05/03 A2918 RMK AO2 RAE00 SLP896 SHRA VC ALQDS P0000 T00500028PABI2019-04-23T03:53:00Z64.0-145.725.02.880710.029.179134989.6TRUEVFR0.005METAR386.02019-04-23 04:05:57x§ßN)[5     3PABR 230353Z 05022KT 7SM OVC009 M06/M07 A2996 RMK AO2 PK WND 06030/0317 SNB17E28 SLP147 P0001 T10561067PABR2019-04-23T03:53:00Z71.28-156.77-5.6-6.750227.029.9586621014.7TRUEIFR0.01METAR7.02019-04-23 04:05:57f§ßM)=5    3PABT 230353Z 29005KT 10SM FEW034 SCT060 OVC080 03/M05 A2939 RMK AO2 SLP963 T00331050 PNOPABT2019-04-23T03:53:00Z66.92-151.523.3-5.0290510.029.388779996.3TRUEVFRMETAR195.02019-04-23 04:05:57 f,Yfm§ßT)E5    3KCMX 230353Z AUTO 36006KT 7SM BKN004 OVC041 03/02 A3005 RMK AO2 CIG 001V006 SLP187 T00330017KCMX2019-04-23T03:53:00Z47.17-88.483.31.736067.030.0501981018.7TRUETRUELIFRMETAR326.02019-04-23 04:05:57?§ßS({5    3FAGG 230353Z 11016KT 9999 -RA SCT008 BKN013 16/14 Q1024FAGG2019-04-23T03:53:00Z-34.022.3716.014.0110166.2130.236221-RAMVFRSPECI193.02019-04-23 04:05:57‚§ßR)i5      3KCQC 230353Z AUTO 09011KT 10SM -RA OVC014 07/04 A3020 RMK AO2 PK WND 10027/0306 RAB0256 SLP181 P0002 T00670044KCQC2019-04-23T03:53:00Z35.0-105.676.74.4901110.030.2007871018.1TRUETRUE-RAMVFR0.02METAR2160.02019-04-23 04:05:57N§ßQ)5    3KFAR 230353Z 01004KT 10SM CLR 09/04 A3014 RMK AO2 SLP208 T00940044KFAR2019-04-23T03:53:00Z46.93-96.829.44.410410.030.1387791020.8TRUEVFRMETAR277.02019-04-23 04:05:57 Cô)C`§ßX)'5     3K4BM 230352Z AUTO 20005KT 1/2SM FZFG OVC001 M02/M02 A3036 RMK AO2 LTG DSNT NWK4BM2019-04-23T03:52:00Z39.05-105.52-2.0-2.020050.530.360237TRUETRUEFZFGLIFRMETAR3438.02019-04-23 04:05:57U§ßW)5    3KHRL 230352Z 12010KT 10SM OVC025 23/21 A2995 RMK AO2 SLP140 T02330211KHRL2019-04-23T03:52:00Z26.23-97.6523.321.11201010.029.9498021014.0TRUEMVFRMETAR10.02019-04-23 04:05:57j§ßV)+5   3KDVN 230352Z AUTO 27014G23KT 10SM OVC012 14/12 A2991 RMK AO2 SLP124 T01390117 $KDVN2019-04-23T03:52:00Z41.62-90.5813.911.7270142310.029.9114171012.4TRUETRUETRUEMVFRMETAR230.02019-04-23 04:05:57‚§ßU)[5       3KORE 230352Z AUTO 35005KT 10SM -RA BKN024 BKN044 OVC070 14/12 A2999 RMK AO2 SLP155 P0001 T01390117 TSNOKORE2019-04-23T03:52:00Z42.57-72.2813.911.7350510.029.9911421015.5TRUETRUETRUE-RAMVFR0.01METAR164.02019-04-23 04:05:57 'v§ß\)=5     3KALS 230352Z AUTO 08013G19KT 5SM RA BR OVC018 03/02 A3023 RMK AO2 SLP194 P0016 T00330022KALS2019-04-23T03:52:00Z37.43-105.873.32.28013195.030.2303141019.4TRUETRUERA BRMVFR0.16METAR2299.02019-04-23 04:05:57|§ß[)[5     3KAQW 230352Z AUTO 28005KT 10SM FEW025 SCT033 OVC060 13/08 A3002 RMK AO2 RAB15E30 SLP165 P0000 T01330078KAQW2019-04-23T03:52:00Z42.7-73.1713.37.8280510.030.020671016.5TRUETRUEVFR0.005METAR199.02019-04-23 04:05:57‚ §ßZ)g5      3KARR 230352Z AUTO 19013KT 10SM FEW085 18/13 A2983 RMK AO2 PK WND 15029/0300 RAE29 SLP098 P0000 T01830128 TSNOKARR2019-04-23T03:52:00Z41.77-88.4818.312.81901310.029.8287411009.8TRUETRUETRUEVFR0.005METAR215.02019-04-23 04:05:57S§ßY)5    3KATL 230352Z 25004KT 10SM SCT250 18/09 A3016 RMK AO2 SLP206 T01830094KATL2019-04-23T03:52:00Z33.63-84.4518.39.4250410.030.1594491020.6TRUEVFRMETAR296.02019-04-23 04:05:57 ÿØýe§ß`)55   3KOMA 230352Z 35012G23KT 10SM OVC016 11/07 A3011 RMK AO2 SLP196 CIG 014V018 T01110072KOMA2019-04-23T03:52:00Z41.32-95.911.17.2350122310.030.1092531019.6TRUEMVFRMETAR312.02019-04-23 04:05:57U§ß_)5    3KABI 230352Z 13010KT 10SM OVC055 22/16 A2999 RMK AO2 SLP135 T02170156KABI2019-04-23T03:52:00Z32.42-99.6821.715.61301010.029.9911421013.5TRUEVFRMETAR548.02019-04-23 04:05:57‚!§ß^)‚5     3KABQ 230352Z 06028G37KT 10SM -RA FEW003 BKN042 OVC080 10/06 A3006 RMK AO2 PK WND 07046/0338 SLP128 MTNS OBSC NE-SE P0006 T01000061 $KABQ2019-04-23T03:52:00Z35.05-106.6210.06.160283710.030.0590551012.8TRUETRUE-RAVFR0.06METAR1618.02019-04-23 04:05:57{§ß])U5      3KAFN 230352Z AUTO 01007KT 320V050 4SM RA BR BKN009 OVC017 12/11 A2999 RMK AO2 SLP159 P0010 T01220111KAFN2019-04-23T03:52:00Z42.8-72.012.211.11074.029.9911421015.9TRUETRUERA BRIFR0.1METAR313.02019-04-23 04:05:57 t&Iptv§ßd)K5   3KMLI 230352Z AUTO 27015G23KT 10SM BKN014 14/12 A2990 RMK AO2 PK WND 28027/0335 SLP122 T01440117KMLI2019-04-23T03:52:00Z41.45-90.5214.411.7270152310.029.8996071012.2TRUETRUEMVFRMETAR184.02019-04-23 04:05:57S§ßc)5    3KMWH 230352Z 25008KT 10SM SCT120 18/07 A3007 RMK AO2 SLP183 T01830072KMWH2019-04-23T03:52:00Z47.2-119.3218.37.2250810.030.0708661018.3TRUEVFRMETAR362.02019-04-23 04:05:57W§ßb)5    3KOKB 230352Z AUTO 30005KT 8SM CLR 13/12 A2996 RMK AO2 SLP145 T01280117KOKB2019-04-23T03:52:00Z33.22-117.3512.811.730058.029.9586621014.5TRUETRUEVFRMETAR8.02019-04-23 04:05:57T§ßa)5    3KOKC 230352Z 36007KT 10SM OVC023 19/18 A3005 RMK AO2 SLP167 T01940178KOKC2019-04-23T03:52:00Z35.38-97.619.417.8360710.030.0501981016.7TRUEMVFRMETAR390.02019-04-23 04:05:57 £æ‚£Y§ßg)5    3KMHK 230352Z AUTO 35006KT 10SM CLR 13/08 A3011 RMK AO2 SLP195 T01280083KMHK2019-04-23T03:52:00Z39.13-96.6812.88.3350610.030.1092531019.5TRUETRUEVFRMETAR317.02019-04-23 04:05:57‚^§ßf)ƒ5     3KMKE 230352Z COR 02020G35KT 10SM TS FEW040 BKN055CB OVC095 12/09 A2981 RMK AO2 PK WND 01035/0352 LTG DSNT SW-NW RAB0257E43 TSB52 PRESRR SLP093 OCNL LTGICCC SW-W TS SW-W MOV NE P0001 T01220089 $KMKE2019-04-23T03:52:00Z42.95-87.912.28.920203510.029.8110241009.3TRUETRUETRUETSVFR0.01METAR206.02019-04-23 04:05:57‚§ße)‚5      3KMLF 230352Z AUTO 04004KT 10SM BKN075 BKN090 OVC110 08/07 A3018 RMK AO2 WSHFT 0314 RAE25B30E39 SLP196 P0002 T00830067 TSNOKMLF2019-04-23T03:52:00Z38.42-113.028.36.740410.030.1801191019.6TRUETRUETRUEVFR0.02METAR1534.02019-04-23 04:05:57 ˆ!DgˆY§ßk)5    3KLWC 230352Z AUTO 35009KT 10SM CLR 13/09 A3008 RMK AO2 SLP182 T01330089KLWC2019-04-23T03:52:00Z39.02-95.2213.38.9350910.030.0797251018.2TRUETRUEVFRMETAR253.02019-04-23 04:05:57W§ßj)5    3KMBG 230352Z AUTO 00000KT 10SM CLR 09/00 A3014 RMK AO2 SLP211 T00890000KMBG2019-04-23T03:52:00Z45.55-100.428.90.00010.030.1387791021.1TRUETRUEVFRMETAR510.02019-04-23 04:05:57W§ßi)5    3KMEB 230352Z AUTO 00000KT 10SM CLR 12/10 A3014 RMK AO2 SLP206 T01220100KMEB2019-04-23T03:52:00Z34.78-79.3712.210.00010.030.1387791020.6TRUETRUEVFRMETAR67.02019-04-23 04:05:57Y§ßh)5    3KMFD 230352Z AUTO 15006KT 10SM CLR 15/08 A3007 RMK AO2 SLP181 T01500078KMFD2019-04-23T03:52:00Z40.82-82.5215.07.8150610.030.0708661018.1TRUETRUEVFRMETAR395.02019-04-23 04:05:57 [48[W§ßo)5    3KIEN 230352Z AUTO 00000KT 10SM CLR 07/03 A3022 RMK AO2 SLP235 T00670033KIEN2019-04-23T03:52:00Z43.03-102.526.73.30010.030.2214571023.5TRUETRUEVFRMETAR998.02019-04-23 04:05:57v§ßn)C5      3KIJD 230352Z AUTO 35007KT 10SM -RA BKN020 OVC032 13/11 A2995 RMK AO2 SLP140 P0000 T01330111KIJD2019-04-23T03:52:00Z41.75-72.1813.311.1350710.029.9498021014.0TRUETRUE-RAMVFR0.005METAR75.02019-04-23 04:05:57d§ßm)'5   3KIOW 230352Z AUTO 29013G22KT 10SM OVC012 13/10 A2995 RMK AO2 SLP139 T01280100KIOW2019-04-23T03:52:00Z41.63-91.5512.810.0290132210.029.9498021013.9TRUETRUEMVFRMETAR198.02019-04-23 04:05:57\§ßl)5    3KISN 230352Z AUTO 15006KT 10SM CLR 11/M04 A3008 RMK AO2 SLP193 T01061044KISN2019-04-23T03:52:00Z48.17-103.6310.6-4.4150610.030.0797251019.3TRUETRUEVFRMETAR579.02019-04-23 04:05:57 Z+IPZp§ßs)C5   3KGLS 230352Z AUTO 12015G20KT 10SM FEW010 BKN025 OVC033 21/19 A3006 RMK AO2 SLP178 T02110194KGLS2019-04-23T03:52:00Z29.27-94.8721.119.4120152010.030.0590551017.8TRUETRUEMVFRMETAR6.02019-04-23 04:05:57s§ßr)A5      3KHIE 230352Z AUTO 03005KT 10SM -RA OVC090 13/06 A3006 RMK AO2 RAB49 SLP181 P0000 T01330061KHIE2019-04-23T03:52:00Z44.37-71.5513.36.130510.030.0590551018.1TRUETRUE-RAVFR0.005METAR318.02019-04-23 04:05:57\§ßq)!5    3KHUT 230352Z AUTO 36008KT 10SM FEW036 14/09 A3011 RMK AO2 SLP182 T01440094KHUT2019-04-23T03:52:00Z38.07-97.8714.49.4360810.030.1092531018.2TRUETRUEVFRMETAR467.02019-04-23 04:05:57O§ßp)5    3KIAD 230352Z 27003KT 10SM CLR 12/08 A3008 RMK AO2 SLP186 T01170078KIAD2019-04-23T03:52:00Z38.93-77.4511.77.8270310.030.0797251018.6TRUEVFRMETAR93.02019-04-23 04:05:57 {<M{L§ßw) 5   3KREO 230352Z AUTO 08005KT 12/M02 A3020 RMK AO1 SLP217 T01221017KREO2019-04-23T03:52:00Z42.58-117.8712.2-1.780530.2007871021.7TRUETRUEMETAR1235.02019-04-23 04:05:57i§ßv)95    3KNFW 230352Z 13006KT 10SM SCT044 OVC200 23/16 A3001 RMK AO2 SLP146 T02280161 VISNO N $KNFW2019-04-23T03:52:00Z32.78-97.4322.816.1130610.030.0088581014.6TRUETRUEVFRMETAR198.02019-04-23 04:05:57X§ßu)5    3KNHK 230352Z AUTO 24006KT 10SM CLR 12/12 A3008 RMK AO2 SLP184 T01220117KNHK2019-04-23T03:52:00Z38.27-76.412.211.7240610.030.0797251018.4TRUETRUEVFRMETAR12.02019-04-23 04:05:57`§ßt)35    3KNZY 230352Z 32007KT 10SM FEW030 FEW060 SCT200 16/12 A2996 RMK AO2 SLP145 T01610117KNZY2019-04-23T03:52:00Z32.7-117.2216.111.7320710.029.9586621014.5TRUEVFRMETAR8.02019-04-23 04:05:57 €5f€`§ß{)!5    3KBAN 230352Z AUTO 00000KT 10SM CLR 08/M08 A3028 RMK AO2 SLP215 T00831078 $KBAN2019-04-23T03:52:00Z38.35-119.528.3-7.80010.030.2805121021.5TRUETRUETRUEVFRMETAR2057.02019-04-23 04:05:57I§ßz) 5   3KP69 230352Z AUTO 36004KT 11/08 A3016 RMK AO1 SLP215 T01060083KP692019-04-23T03:52:00Z46.15-115.610.68.3360430.1594491021.5TRUETRUEMETAR480.02019-04-23 04:05:57J§ßy) 5   3KCZZ 230352Z AUTO 21006KT 12/08 A2995 RMK AO1 SLP127 T01220078KCZZ2019-04-23T03:52:00Z32.63-116.4712.27.8210629.9498021012.7TRUETRUEMETAR807.02019-04-23 04:05:57u§ßx)W5   3CYXT 230352Z 22008KT 200V260 20SM FEW020 SCT038TCU BKN055 OVC078 06/01 A3002 RMK CU1TCU3SC2AC2 SLP176CYXT2019-04-23T03:52:00Z54.47-128.576.01.0220820.030.020671017.6OVC7800VFRSPECI217.02019-04-23 04:05:57 ,%A6,‚§ß)]5       3PABA 230352Z 06020KT 4SM UP BR OVC004 M08/M09 A2989 RMK AO2 UPB0257SNE0257 SLP107 P0000 T10781089 FZRANOPABA2019-04-23T03:52:00Z70.13-143.58-7.8-8.960204.029.8907471010.7TRUETRUEBR UPLIFR0.005METAR2.02019-04-23 04:05:57‚§ß~)o5     3KDPA 230352Z 19015KT 10SM FEW050 BKN100 OVC110 19/12 A2982 RMK AO2 PK WND 15032/0258 RAE13 SLP093 P0001 T01940122KDPA2019-04-23T03:52:00Z41.92-88.2519.412.21901510.029.8198811009.3TRUEVFR0.01METAR231.02019-04-23 04:05:57^§ß})!5    3KCFV 230352Z AUTO 31007KT 10SM OVC020 19/16 A3003 RMK AO2 SLP166 T01940161KCFV2019-04-23T03:52:00Z37.08-95.5719.416.1310710.030.0295281016.6TRUETRUEMVFRMETAR225.02019-04-23 04:05:57U§ß|)+5   3PTKK 230352Z VRB05KT 15SM FEW014 SCT120 BKN280 31/27 A2978 RMK SLP088 T03120266PTKK2019-04-23T03:52:00Z7.47151.8531.226.60515.029.7785431008.8VFRMETAR2.02019-04-23 04:05:57 o<foq§à)95      3KBDR 230352Z AUTO 31003KT 10SM -RA OVC080 14/12 A2998 RMK AO2 SLP151 P0001 T01390122 $KBDR2019-04-23T03:52:00Z41.17-73.1313.912.2310310.029.979331015.1TRUETRUETRUE-RAVFR0.01METAR7.02019-04-23 04:05:57P§à)5    3KRAP 230352Z 27003KT 10SM CLR 04/00 A3020 RMK AO2 SLP236 T00390000KRAP2019-04-23T03:52:00Z44.05-103.053.90.0270310.030.2007871023.6TRUEVFRMETAR965.02019-04-23 04:05:57[§à)5    3KMDH 230352Z AUTO 21012KT 10SM CLR 20/11 A3001 RMK AO2 SLP160 T02000111KMDH2019-04-23T03:52:00Z37.78-89.2520.011.12101210.030.0088581016.0TRUETRUEVFRMETAR130.02019-04-23 04:05:57]§à)!5    3KSUX 230352Z AUTO 35011KT 10SM OVC020 09/07 A3014 RMK AO2 SLP210 T00890067KSUX2019-04-23T03:52:00Z42.38-96.388.96.73501110.030.1387791021.0TRUETRUEMVFRMETAR338.02019-04-23 04:05:57 ‹ @j‹Y§à)5    3KCKV 230352Z AUTO 19004KT 10SM CLR 17/08 A3007 RMK AO2 SLP178 T01720083KCKV2019-04-23T03:52:00Z36.62-87.4217.28.3190410.030.0708661017.8TRUETRUEVFRMETAR165.02019-04-23 04:05:57P§à)5    3KCLT 230352Z 17005KT 10SM CLR 16/08 A3014 RMK AO2 SLP200 T01560083KCLT2019-04-23T03:52:00Z35.22-80.9515.68.3170510.030.1387791020.0TRUEVFRMETAR220.02019-04-23 04:05:57Z§à)5    3KCNU 230352Z AUTO 33005KT 10SM CLR 17/12 A3005 RMK AO2 SLP170 T01670117KCNU2019-04-23T03:52:00Z37.67-95.4816.711.7330510.030.0501981017.0TRUETRUEVFRMETAR297.02019-04-23 04:05:57Z§à)5    3KBLH 230352Z AUTO 33009KT 10SM CLR 26/01 A2982 RMK AO2 SLP093 T02560011KBLH2019-04-23T03:52:00Z33.62-114.7225.61.1330910.029.8198811009.3TRUETRUEVFRMETAR119.02019-04-23 04:05:57 =ü÷=S§à )5    3KCVG 230352Z 18006KT 10SM FEW250 15/07 A3004 RMK AO2 SLP169 T01500067KCVG2019-04-23T03:52:00Z39.05-84.6715.06.7180610.030.0413381016.9TRUEVFRMETAR269.02019-04-23 04:05:57[§à )5    3KBLU 230352Z AUTO 04005KT 10SM CLR 13/M08 A3023 RMK AO2 SLP187 T01331078KBLU2019-04-23T03:52:00Z39.28-120.713.3-7.840510.030.2303141018.7TRUETRUEVFRMETAR1609.02019-04-23 04:05:57§à )]5      3KBML 230352Z AUTO 00000KT 10SM -RA FEW050 SCT060 OVC085 11/08 A3008 RMK AO2 RAB30 SLP187 P0002 T01060078KBML2019-04-23T03:52:00Z44.58-71.1810.67.80010.030.0797251018.7TRUETRUE-RAVFR0.02METAR345.02019-04-23 04:05:57~§à)]5   3KCID 230352Z 29017G25KT 10SM OVC010 10/09 A2993 RMK AO2 PK WND 28027/0301 CIG 008V013 SLP133 T01000094 $KCID2019-04-23T03:52:00Z41.88-91.7210.09.4290172510.029.9291341013.3TRUETRUEMVFRMETAR264.02019-04-23 04:05:57 xFhxj§à)=5    3KPPF 230352Z AUTO 34006KT 10SM FEW029 BKN040 OVC060 18/13 A3006 RMK AO2 SLP173 T01830133KPPF2019-04-23T03:52:00Z37.33-95.518.313.3340610.030.0590551017.3TRUETRUEVFRMETAR274.02019-04-23 04:05:57X§à)5    3KDDC 230352Z AUTO 03007KT 10SM CLR 12/05 A3013 RMK AO2 SLP194 T01170050KDDC2019-04-23T03:52:00Z37.77-99.9711.75.030710.030.1299211019.4TRUETRUEVFRMETAR789.02019-04-23 04:05:57P§à )5    3KDCA 230352Z 17006KT 10SM CLR 17/12 A3008 RMK AO2 SLP185 T01670117KDCA2019-04-23T03:52:00Z38.85-77.0316.711.7170610.030.0797251018.5TRUEVFRMETAR18.02019-04-23 04:05:57^§à ))5     3KCQX 230352Z AUTO 00000KT 3/4SM BR OVC002 09/09 A2991 RMK AO2 SLP129 T00890089KCQX2019-04-23T03:52:00Z41.68-70.08.98.9000.7529.9114171012.9TRUETRUEBRLIFRMETAR19.02019-04-23 04:05:57 //Y§à)!5    3KPYM 230352Z AUTO 01006KT 10SM OVC005 08/07 A2992 RMK AO2 SLP131 T00830072KPYM2019-04-23T03:52:00Z41.92-70.738.37.210610.029.9202751013.1TRUETRUEIFRMETAR43.02019-04-23 04:05:57t§à)K5   3KPWK 230352Z AUTO 19016G26KT 10SM FEW060 21/11 A2983 RMK AO2 PK WND 19029/0311 SLP098 T02060111KPWK2019-04-23T03:52:00Z42.12-87.920.611.1190162610.029.8287411009.8TRUETRUEVFRMETAR203.02019-04-23 04:05:57r§à)K5   3KEST 230352Z AUTO 01016G24KT 10SM OVC011 06/05 A3009 RMK AO2 PK WND 01027/0306 SLP196 T00610050KEST2019-04-23T03:52:00Z43.4-94.756.15.010162410.030.0885831019.6TRUETRUEMVFRMETAR401.02019-04-23 04:05:57z§à)G5      3KFIT 230352Z AUTO 35009KT 5SM -RA BR BKN012 OVC032 13/12 A2997 RMK AO2 SLP148 P0012 T01330117KFIT2019-04-23T03:52:00Z42.55-71.7513.311.735095.029.9704721014.8TRUETRUE-RA BRMVFR0.12METAR103.02019-04-23 04:05:57 =&5D=‚§à)e5     3KTAN 230352Z AUTO 35006KT 10SM BKN009 OVC037 10/08 A2991 RMK AO2 RAB16E25 CIG 007V012 SLP130 P0000 T01000083KTAN2019-04-23T03:52:00Z41.88-71.0210.08.3350610.029.9114171013.0TRUETRUEIFR0.005METAR7.02019-04-23 04:05:57k§à)G5     3KSPS 230352Z 12007KT 10SM BKN050 OVC060 20/18 A3000 RMK AO2 RAB0254E36 SLP148 P0000 T02000178KSPS2019-04-23T03:52:00Z33.98-98.520.017.8120710.030.01014.8TRUEVFR0.005METAR308.02019-04-23 04:05:57k§à)=5    3KSPI 230352Z AUTO 18007KT 10SM BKN060 BKN080 BKN090 19/16 A2992 RMK AO2 SLP129 T01940156KSPI2019-04-23T03:52:00Z39.85-89.6819.415.6180710.029.9202751012.9TRUETRUEVFRMETAR181.02019-04-23 04:05:57T§à)5    3KSGF 230352Z 25004KT 10SM OVC050 19/16 A3004 RMK AO2 SLP164 T01890156KSGF2019-04-23T03:52:00Z37.23-93.3818.915.6250410.030.0413381016.4TRUEVFRMETAR390.02019-04-23 04:05:57 š KyšY§à)5    3KVTN 230352Z AUTO 29005KT 10SM CLR 09/01 A3019 RMK AO2 SLP229 T00890006KVTN2019-04-23T03:52:00Z42.87-100.558.90.6290510.030.1889761022.9TRUETRUEVFRMETAR788.02019-04-23 04:05:57L§à)5    3KNRB 230352Z 00000KT 10SM CLR 17/13 A3015 RMK AO2 SLP207 T01670133KNRB2019-04-23T03:52:00Z30.38-81.4216.713.30010.030.150591020.7TRUEVFRMETAR5.02019-04-23 04:05:57O§à)5    3KTOL 230352Z 14004KT 10SM CLR 17/07 A2999 RMK AO2 SLP152 T01720067KTOL2019-04-23T03:52:00Z41.58-83.817.26.7140410.029.9911421015.2TRUEVFRMETAR210.02019-04-23 04:05:57Z§à)5    3KTRM 230352Z AUTO 29006KT 10SM CLR 27/02 A2982 RMK AO2 SLP101 T02670022KTRM2019-04-23T03:52:00Z33.63-116.1726.72.2290610.029.8198811010.1TRUETRUEVFRMETAR-35.02019-04-23 04:05:57 Ù=Œ¯ÙP§à)5    3KBIS 230352Z 00000KT 10SM CLR 09/M01 A3017 RMK AO2 SLP218 T00941011KBIS2019-04-23T03:52:00Z46.77-100.759.4-1.10010.030.1712591021.8TRUEVFRMETAR505.02019-04-23 04:05:57W§à)5    3KBLF 230352Z AUTO 24004KT 10SM CLR 13/04 A3019 RMK AO2 SLP205 T01330039KBLF2019-04-23T03:52:00Z37.3-81.213.33.9240410.030.1889761020.5TRUETRUEVFRMETAR873.02019-04-23 04:05:57+§à(i5   3MUCU 230352Z 02008KT 9000 SCT020CB 24/18 Q1016MUCU2019-04-23T03:52:00Z19.97-75.8324.018.02085.5930.0VFRMETAR76.02019-04-23 04:05:57=§à(5   3MMQT 230352Z 12008KT 6SM BKN250 21/08 A3025 RMK 8/002 HZYMMQT2019-04-23T03:52:00Z20.62-100.1821.08.012086.030.250984VFRMETAR1919.02019-04-23 04:05:57 °1S„°N§à#) 5   3KP58 230351Z AUTO 16006KT 13/07 A2996 RMK AO1 SLP142 T01330067 $KP582019-04-23T03:51:00Z44.02-82.813.36.7160629.9586621014.2TRUETRUETRUEMETAR179.02019-04-23 04:05:57I§à") 5   3KCDJ 230352Z AUTO 31006KT 14/08 A3006 RMK AO1 SLP171 T01390083KCDJ2019-04-23T03:52:00Z39.82-93.5813.98.3310630.0590551017.1TRUETRUEMETAR234.02019-04-23 04:05:57X§à!)'5    3PATA 230352Z 03008KT 10SM BKN065 OVC200 08/M03 A2926 RMK AO2 SLP913 T00781028PATA2019-04-23T03:52:00Z65.17-152.17.8-2.830810.029.258858991.3TRUEVFRMETAR67.02019-04-23 04:05:57I§à ) 5   3KN60 230352Z AUTO 00000KT 07/M03 A3013 RMK AO1 SLP208 T00721033KN602019-04-23T03:52:00Z47.65-101.437.2-3.30030.1299211020.8TRUETRUEMETAR582.02019-04-23 04:05:57 v"Jnvr§à')75     3KGDP 230351Z AUTO 06010KT 10SM CLR 13/07 A3005 RMK AO2 RAE10 SLP117 P0000 T01330072 $KGDP2019-04-23T03:51:00Z31.83-104.8213.37.2601010.030.0501981011.7TRUETRUETRUEVFR0.005METAR1692.02019-04-23 04:05:57V§à&)5    3KABE 230351Z 33006KT 10SM CLR 16/07 A3005 RMK AO2 SLP173 T01610067 $KABE2019-04-23T03:51:00Z40.65-75.4516.16.7330610.030.0501981017.3TRUETRUEVFRMETAR114.02019-04-23 04:05:57R§à%)5    3KACT 230351Z 17012KT 10SM CLR 21/16 A3003 RMK AO2 SLP164 T02110161KACT2019-04-23T03:51:00Z31.62-97.2321.116.11701210.030.0295281016.4TRUEVFRMETAR151.02019-04-23 04:05:57X§à$)5    3KAHN 230351Z AUTO 00000KT 10SM CLR 16/11 A3014 RMK AO2 SLP202 T01560111KAHN2019-04-23T03:51:00Z33.95-83.3315.611.10010.030.1387791020.2TRUETRUEVFRMETAR244.02019-04-23 04:05:57 !Cd]§à+)!5    3KBAZ 230351Z AUTO 11005KT 10SM OVC021 19/17 A3002 RMK AO2 SLP158 T01940172KBAZ2019-04-23T03:51:00Z29.72-98.0519.417.2110510.030.020671015.8TRUETRUEMVFRMETAR195.02019-04-23 04:05:57Y§à*)5    3KBHK 230351Z AUTO 20009KT 10SM CLR 09/03 A3014 RMK AO2 SLP205 T00890028KBHK2019-04-23T03:51:00Z46.35-104.258.92.8200910.030.1387791020.5TRUETRUEVFRMETAR902.02019-04-23 04:05:57X§à))5    3KBKW 230351Z AUTO 15004KT 10SM CLR 12/05 A3017 RMK AO2 SLP207 T01170050KBKW2019-04-23T03:51:00Z37.8-81.1211.75.0150410.030.1712591020.7TRUETRUEVFRMETAR764.02019-04-23 04:05:57Y§à()5    3KAVX 230351Z AUTO 31009KT 10SM CLR 18/08 A2999 RMK AO2 SLP142 T01780083KAVX2019-04-23T03:51:00Z33.4-118.4217.88.3310910.029.9911421014.2TRUETRUEVFRMETAR482.02019-04-23 04:05:57 !MoY§à/)!5    3KHDO 230351Z AUTO 12014KT 10SM FEW060 22/18 A3000 RMK AO2 SLP145 T02220183KHDO2019-04-23T03:51:00Z29.37-99.1722.218.31201410.030.01014.5TRUETRUEVFRMETAR282.02019-04-23 04:05:57X§à.)5    3KHSE 230351Z AUTO 25006KT 10SM CLR 18/14 A3013 RMK AO2 SLP201 T01780139KHSE2019-04-23T03:51:00Z35.23-75.6217.813.9250610.030.1299211020.1TRUETRUEVFRSPECI3.02019-04-23 04:05:57N§à-)5    3KHTS 230351Z 00000KT 10SM CLR 14/09 A3009 RMK AO2 SLP188 T01390089KHTS2019-04-23T03:51:00Z38.37-82.5513.98.90010.030.0885831018.8TRUEVFRMETAR254.02019-04-23 04:05:57Y§à,)5    3KCAK 230351Z 16007KT 10SM SCT160 14/06 A3008 RMK AO2 SLP185 T01440056 $KCAK2019-04-23T03:51:00Z40.92-81.4514.45.6160710.030.0797251018.5TRUETRUEVFRMETAR377.02019-04-23 04:05:57 ‚E`‚X§à3)5    3KCSG 230351Z AUTO 00000KT 10SM CLR 18/12 A3014 RMK AO2 SLP201 T01830122KCSG2019-04-23T03:51:00Z32.52-84.9518.312.20010.030.1387791020.1TRUETRUEVFRMETAR135.02019-04-23 04:05:57_§à2)%5     3KEKN 230351Z AUTO 00000KT 10SM CLR 08/05 A3016 RMK AO2 SLP221 T00780050 TSNOKEKN2019-04-23T03:51:00Z38.88-79.857.85.00010.030.1594491022.1TRUETRUETRUEVFRMETAR603.02019-04-23 04:05:57P§à1)5    3KERI 230351Z 18003KT 10SM CLR 11/07 A3008 RMK AO2 SLP185 T01110072KERI2019-04-23T03:51:00Z42.08-80.1811.17.2180310.030.0797251018.5TRUEVFRMETAR222.02019-04-23 04:05:57_§à0)35    3KEWR 230351Z 32004KT 10SM FEW042 BKN060 OVC100 16/13 A3002 RMK AO2 SLP166 T01560133KEWR2019-04-23T03:51:00Z40.68-74.1715.613.3320410.030.020671016.6TRUEVFRMETAR7.02019-04-23 04:05:57 t ,LtR§à7)5    3KILG 230351Z 00000KT 10SM CLR 16/09 A3005 RMK AO2 SLP176 T01560094 $KILG2019-04-23T03:51:00Z39.67-75.615.69.40010.030.0501981017.6TRUETRUEVFRMETAR28.02019-04-23 04:05:57Z§à6)%5    3KCLE 230351Z 20004KT 10SM BKN170 BKN250 17/07 A3008 RMK AO2 SLP184 T01670072KCLE2019-04-23T03:51:00Z41.42-81.8516.77.2200410.030.0797251018.4TRUEVFRMETAR233.02019-04-23 04:05:57W§à5)%5    3KCMH 230351Z 00000KT 10SM FEW070 BKN200 17/08 A3007 RMK AO2 SLP179 T01720083KCMH2019-04-23T03:51:00Z40.0-82.8817.28.30010.030.0708661017.9TRUEVFRMETAR247.02019-04-23 04:05:57q§à4)A5    3KCRP 230351Z 11011KT 10SM FEW011 SCT017 BKN022 OVC200 23/21 A2999 RMK AO2 SLP153 T02330206KCRP2019-04-23T03:51:00Z27.77-97.523.320.61101110.029.9911421015.3TRUEOVC20000MVFRMETAR14.02019-04-23 04:05:57 B6@Bx§à;)I5      3KLGA 230351Z 32005KT 10SM -RA BKN047 OVC070 13/12 A3001 RMK AO2 RAB21 SLP162 P0000 T01280117 $KLGA2019-04-23T03:51:00Z40.78-73.8812.811.7320510.030.0088581016.2TRUETRUE-RAVFR0.005METAR11.02019-04-23 04:05:57p§à:)G5     3KJFK 230351Z 34010KT 10SM BKN055 OVC110 14/13 A3001 RMK AO2 RAB0258E13 SLP162 P0000 T01440133KJFK2019-04-23T03:51:00Z40.63-73.7714.413.33401010.030.0088581016.2TRUEVFR0.005METAR9.02019-04-23 04:05:57_§à9)!5   3KJCT 230351Z AUTO 15011G18KT 10SM CLR 22/15 A2999 RMK AO2 SLP123 T02170150KJCT2019-04-23T03:51:00Z30.5-99.7721.715.0150111810.029.9911421012.3TRUETRUEVFRMETAR522.02019-04-23 04:05:57_§à8)5    3KIGM 230351Z AUTO 00000KT 10SM CLR 14/03 A2999 RMK AO2 SLP108 T01390033 $KIGM2019-04-23T03:51:00Z35.25-113.9313.93.30010.029.9911421010.8TRUETRUETRUEVFRMETAR1032.02019-04-23 04:05:57 ‰Jg‰X§à?)5    3KMPV 230351Z AUTO 32003KT 10SM CLR 11/04 A3010 RMK AO2 SLP196 T01110044KMPV2019-04-23T03:51:00Z44.2-72.5711.14.4320310.030.1003931019.6TRUETRUEVFRMETAR343.02019-04-23 04:05:57]§à>)5    3KMYL 230351Z AUTO 07004KT 10SM CLR 07/01 A3020 RMK AO2 SLP228 T00720006 $KMYL2019-04-23T03:51:00Z44.9-116.17.20.670410.030.2007871022.8TRUETRUETRUEVFRMETAR1533.02019-04-23 04:05:57N§à=)5    3KORF 230351Z 20005KT 10SM CLR 14/11 A3009 RMK AO2 SLP190 T01440106KORF2019-04-23T03:51:00Z36.9-76.214.410.6200510.030.0885831019.0TRUEVFRSPECI14.02019-04-23 04:05:57\§à<)5    3KOXR 230351Z AUTO 32003KT 7SM CLR 14/12 A2994 RMK AO2 SLP137 T01390117 $KOXR2019-04-23T03:51:00Z34.2-119.213.911.732037.029.9409451013.7TRUETRUETRUEVFRMETAR20.02019-04-23 04:05:57 *@`M§àC)5    3KRDU 230351Z 00000KT 10SM CLR 12/09 A3013 RMK AO2 SLP203 T01220089KRDU2019-04-23T03:51:00Z35.9-78.7812.28.90010.030.1299211020.3TRUEVFRSPECI130.02019-04-23 04:05:57Z§àB)%5    3KSAN 230351Z 31005KT 10SM SCT130 SCT250 17/12 A2998 RMK AO2 SLP150 T01720117KSAN2019-04-23T03:51:00Z32.73-117.1817.211.7310510.029.979331015.0TRUEVFRMETAR12.02019-04-23 04:05:57d§àA)35    3KSAT 230351Z 13010KT 10SM BKN016 BKN028 BKN250 21/17 A3004 RMK AO2 SLP157 T02060167KSAT2019-04-23T03:51:00Z29.53-98.4720.616.71301010.030.0413381015.7TRUEMVFRMETAR243.02019-04-23 04:05:57P§à@)5    3KPIT 230351Z 00000KT 10SM FEW200 13/07 A3010 RMK AO2 SLP199 T01330072KPIT2019-04-23T03:51:00Z40.5-80.2713.37.20010.030.1003931019.9TRUEVFRMETAR357.02019-04-23 04:05:57 g EgX§àG)5    3KSMO 230351Z AUTO 12003KT 9SM CLR 16/12 A2995 RMK AO2 SLP142 T01610122KSMO2019-04-23T03:51:00Z34.02-118.4516.112.212039.029.9498021014.2TRUETRUEVFRMETAR57.02019-04-23 04:05:57U§àF)5    3KSLK 230351Z AUTO 02003KT 10SM CLR 03/01 A3010 RMK AO2 SLP201 T00280006KSLK2019-04-23T03:51:00Z44.4-74.22.80.620310.030.1003931020.1TRUETRUEVFRMETAR498.02019-04-23 04:05:57\§àE)!5    3KSJT 230351Z AUTO 17006KT 10SM BKN060 22/14 A2998 RMK AO2 SLP133 T02170139KSJT2019-04-23T03:51:00Z31.37-100.521.713.9170610.029.979331013.3TRUETRUEVFRMETAR576.02019-04-23 04:05:57x§àD)C5     3KPWM 230351Z 02012G18KT 3SM -RA BR OVC008 13/11 A3001 RMK AO2 SLP161 LAST P0000 T01280111 $KPWM2019-04-23T03:51:00Z43.65-70.312.811.12012183.030.0088581016.1TRUETRUE-RA BRIFR0.005METAR15.02019-04-23 04:05:57 w 8awd§àK)15    3KVCT 230351Z AUTO 10SM FEW014 BKN020 OVC034 21/19 A3002 RMK AO2 SLP163 T02110189 $KVCT2019-04-23T03:51:00Z28.87-96.9321.118.910.030.020671016.3TRUETRUETRUEMVFRMETAR31.02019-04-23 04:05:57Q§àJ)5    3KTEB 230351Z 36004KT 10SM OVC050 16/13 A3002 RMK AO2 SLP164 T01560133KTEB2019-04-23T03:51:00Z40.87-74.0515.613.3360410.030.020671016.4TRUEVFRMETAR7.02019-04-23 04:05:57b§àI)35    3KSTL 230351Z 24008KT 10SM FEW050 BKN075 OVC090 23/15 A2997 RMK AO2 SLP137 T02330150KSTL2019-04-23T03:51:00Z38.75-90.3723.315.0240810.029.9704721013.7TRUEVFRSPECI171.02019-04-23 04:05:57Z§àH)5     3KSMX 230351Z AUTO 00000KT 5SM BR CLR 12/10 A3002 RMK AO2 SLP168 T01170100KSMX2019-04-23T03:51:00Z34.9-120.4511.710.0005.030.020671016.8TRUETRUEBRMVFRMETAR74.02019-04-23 04:05:57 Ë+L~ˁ-§àO(e5   3MUCC 230351Z 04006KT 9000 SCT020 24/18 Q1017MUCC2019-04-23T03:51:00Z22.47-78.3324.018.04065.5930.029528VFRMETAR4.02019-04-23 04:05:57H§àN) 5   3KP59 230351Z AUTO 35009KT 02/01 A3006 RMK AO1 SLP190 T00220011KP592019-04-23T03:51:00Z47.47-87.882.21.1350930.0590551019.0TRUETRUEMETAR190.02019-04-23 04:05:57Y§àM)5    3KYNG 230351Z 18004KT 10SM FEW150 15/04 A3009 RMK AO2 SLP187 T01500044 $KYNG2019-04-23T03:51:00Z41.25-80.6715.04.4180410.030.0885831018.7TRUETRUEVFRMETAR360.02019-04-23 04:05:57O§àL)5    3KVNY 230351Z 00000KT 10SM CLR 22/08 A2994 RMK AO2 SLP131 T02170078KVNY2019-04-23T03:51:00Z34.22-118.4821.77.80010.029.9409451013.1TRUEVFRMETAR245.02019-04-23 04:05:57 d9Æd-§àT(e5    3EGCN 230350Z 33004KT 3500 BR NSC 06/06 Q1002EGCN2019-04-23T03:50:00Z53.48-1.06.06.033042.1729.586615BRIFRMETAR17.02019-04-23 04:05:57)§àS([5   3ESNG 230350Z 22004KT CAVOK 06/M01 Q1014ESNG2019-04-23T03:50:00Z67.1320.826.0-1.022046.2129.940945VFRMETAR310.02019-04-23 04:05:573§àR(m5    3ESNK 230350Z AUTO 00000KT 9999 NCD M00/M01 Q1021ESNK2019-04-23T03:50:00Z63.0317.770.0-1.0006.2130.147638TRUEVFRMETAR19.02019-04-23 04:05:574§àQ(m5    3ESNN 230350Z 33002KT 9999 MIFG NSC M00/M00 Q1022ESNN2019-04-23T03:50:00Z62.5217.430.00.033026.2130.177166MIFGVFRMETAR10.02019-04-23 04:05:57A§àP)5    3LIMJ 230350Z 30003KT 7000 RA FEW020 SCT025 BKN045 13/12 Q1002LIMJ2019-04-23T03:50:00Z44.428.8313.012.030034.3529.586615RAMVFRMETAR3.02019-04-23 04:05:57 P?’ÍP<§àY(5    3EDMO 230350Z AUTO 08004KT 050V120 9999 // NCD 08/03 Q1000EDMO2019-04-23T03:50:00Z48.0711.278.03.08046.2129.52756TRUEVFRMETAR600.02019-04-23 04:05:575§àX(k5    3OOMS 230350Z 21008KT 8000 NSC 35/14 Q1007 NOSIGOOMS2019-04-23T03:50:00Z23.5758.2735.014.021084.9729.734253TRUEMVFRMETAR8.02019-04-23 04:05:57?§àW(5    3OOSA 230350Z 19005KT 9999 FEW020 BKN035 28/21 Q1011 NOSIGOOSA2019-04-23T03:50:00Z17.0254.0728.021.019056.2129.852362TRUEVFRMETAR20.02019-04-23 04:05:57'§àV(a5   3OOSH 230350Z AUTO VRB00KT //// 31/21 Q1007OOSH2019-04-23T03:50:00Z24.5556.6231.021.00029.734253TRUEMETAR35.02019-04-23 04:05:57;§àU(o5     3OODQ 230350Z AUTO 20011KT CAVOK 25/20 Q1011 NOSIGOODQ2019-04-23T03:50:00Z19.5257.6525.020.0200116.2129.852362TRUETRUEVFRMETAR0.02019-04-23 04:05:57 ›U¬øM›,§à^(i5   3EDLV 230350Z 07005KT 020V110 CAVOK 10/02 Q1002EDLV2019-04-23T03:50:00Z51.66.1510.02.07056.2129.586615VFRMETAR32.02019-04-23 04:05:57%§à](Y5   3EGGP 230350Z 07009KT CAVOK 12/07 Q1000EGGP2019-04-23T03:50:00Z53.32-2.8512.07.07096.2129.52756VFRMETAR26.02019-04-23 04:05:57.§à\(i5   3EDHI 230350Z 09010KT 060V170 CAVOK 12/04 Q1010EDHI2019-04-23T03:50:00Z53.539.8312.04.090106.2129.822834VFRMETAR13.02019-04-23 04:05:57#§à[(Y5   3EDHK 230350Z /////KT CAVOK 10/05 Q1013EDHK2019-04-23T03:50:00Z54.3810.1510.05.06.2129.911417VFRMETAR31.02019-04-23 04:05:57%§àZ(Y5   3EDJA 230350Z 06002KT CAVOK 06/03 Q1000EDJA2019-04-23T03:50:00Z47.9810.236.03.06026.2129.52756VFRMETAR633.02019-04-23 04:05:57 U£öJ5§àc(o5    3EDMA 230350Z AUTO 07005KT 9999 // NCD 10/04 Q1000EDMA2019-04-23T03:50:00Z48.4210.9210.04.07056.2129.52756TRUEVFRMETAR463.02019-04-23 04:05:57&§àb(Y5   3EDNY 230350Z 01005KT CAVOK 12/04 Q0999EDNY2019-04-23T03:50:00Z47.679.5212.04.01056.2129.498032VFRMETAR424.02019-04-23 04:05:57'§àa(Y5   3EDSB 230350Z 02012KT CAVOK 13/03 Q0998EDSB2019-04-23T03:50:00Z48.788.0813.03.020126.2129.468504VFRMETAR124.02019-04-23 04:05:57,§à`(i5   3EDFH 230350Z 09007KT 050V120 CAVOK 09/01 Q1000EDFH2019-04-23T03:50:00Z49.957.279.01.09076.2129.52756VFRMETAR498.02019-04-23 04:05:57%§à_(Y5   3EDFM 230350Z 05006KT CAVOK 14/03 Q1000EDFM2019-04-23T03:50:00Z49.478.5214.03.05066.2129.52756VFRMETAR100.02019-04-23 04:05:57 tUªó0t6§àh(5   3LGSO 230350Z AUTO 05004KT //// // ////// 14/07 Q1021 RE//LGSO2019-04-23T03:50:00Z37.4224.9514.07.050430.147638TRUEMETAR72.02019-04-23 04:05:57=§àg(5    3EDAC 230350Z AUTO 07011KT 040V100 9999 // NCD 09/03 Q1007EDAC2019-04-23T03:50:00Z50.9812.59.03.070116.2129.734253TRUEVFRMETAR195.02019-04-23 04:05:571§àf(o5    3EDLN 230350Z AUTO VRB02KT 9999 // NCD 07/02 Q1002EDLN2019-04-23T03:50:00Z51.236.57.02.0026.2129.586615TRUEVFRMETAR38.02019-04-23 04:05:57%§àe(Y5   3EDLP 230350Z 09011KT CAVOK 09/01 Q1004EDLP2019-04-23T03:50:00Z51.628.629.01.090116.2129.64567VFRMETAR213.02019-04-23 04:05:57%§àd(Y5   3EDLW 230350Z 07009KT CAVOK 08/02 Q1003EDLW2019-04-23T03:50:00Z51.527.628.02.07096.2129.616142VFRMETAR127.02019-04-23 04:05:57 mF“Ö%m2§àm(s5   3LGBL 230350Z 19003KT 9999 FEW030 SCT080 10/08 Q1020LGBL2019-04-23T03:50:00Z39.2222.810.08.019036.2130.11811VFRMETAR26.02019-04-23 04:05:57+§àl(e5   3LGHI 230350Z 03008KT 9999 FEW025 15/05 Q1021LGHI2019-04-23T03:50:00Z38.3226.1215.05.03086.2130.147638VFRMETAR4.02019-04-23 04:05:577§àk(5   3LGKP 230350Z AUTO 34004KT //// // ////// 15/10 Q1020 RE//LGKP2019-04-23T03:50:00Z35.4227.1515.010.0340430.11811TRUEMETAR20.02019-04-23 04:05:57-§àj(e5   3LGMK 230350Z 02010KT 9999 FEW025 13/06 Q1020LGMK2019-04-23T03:50:00Z37.4325.3513.06.020106.2130.11811VFRMETAR123.02019-04-23 04:05:574§ài(5   3LGPA 230350Z AUTO 08005KT //// // ////// 12/06 Q1020 RE//LGPA2019-04-23T03:50:00Z37.025.1312.06.080530.11811TRUEMETAR36.02019-04-23 04:05:57 o>‰Ò&o1§àr(i5    3ESPE 230350Z AUTO VRB01KT 9999 NCD 01/00 Q1018ESPE2019-04-23T03:50:00Z65.8820.151.00.0016.2130.059055TRUEVFRMETAR182.02019-04-23 04:05:57&§àq(Y5   3ESSL 230350Z 13004KT CAVOK 03/03 Q1026ESSL2019-04-23T03:50:00Z58.3815.673.03.013046.2130.295275VFRMETAR52.02019-04-23 04:05:571§àp(i5    3ESIA 230350Z AUTO 10006KT 9999 NCD 05/03 Q1025ESIA2019-04-23T03:50:00Z58.5214.55.03.010066.2130.265747TRUEVFRMETAR94.02019-04-23 04:05:57/§ào(e5    3LTAJ 230350Z VRB01KT CAVOK 07/01 Q1018 NOSIGLTAJ2019-04-23T03:50:00Z36.9537.487.01.0016.2130.059055TRUEVFRMETAR855.02019-04-23 04:05:57<§àn(5    3LTAP 230350Z 00000KT 9999 SCT040 BKN100 01/00 Q1024 NOSIGLTAP2019-04-23T03:50:00Z40.8335.521.00.0006.2130.236221TRUEVFRMETAR535.02019-04-23 04:05:57Y8ï8@HPX`hpx€ˆ˜ ¨°¸ÀÈÐØàèðø (08@HPX`hpx€ˆ˜ ¨°¸ÀÈÐØàèðø (08@HPX`hpx€ˆ˜ ¨°¸ÀÈÐØàèðø ¨°¸ÀÈÐØàèðø•§ß\–§ß`—§ßd˜§ßg™§ßkš§ßo›§ßsœ§ßw§ß{ž§ßŸ§à §à•§ß\–§ß`—§ßd˜§ßg™§ßkš§ßo›§ßsœ§ßw§ß{ž§ßŸ§à §à¡§à ¢§à£§à¤§à¥§à¦§à§§à#¨§à'©§à+ª§à/«§à3¬§à7­§à;®§à?¯§àC°§àG±§àK²§àO³§àT´§àYµ§à^¶§àc·§àh¸§àm¹§àr»§àw¼§à|½§á¾§á¿§á À§áÁ§á§áçáħá$ŧá)Ƨá.ǧá3ȧá8ɧá=ʧáB˧áĢáLͧáQ׍áVϧá[Чá`ѧáeÒ§áiÓ§ámÔ§árÕ§áwÖ§á|קâاâÙ§â Ú§âÛ§âܧâݧâÞ§â$ߧâ)্â.᧍â3⧍â8㧍â=䧍âB姍âG槍âL种âQ觍âV駍â[꧍â`맍âe짍âjí§âoât ŽVžó;Ž'§àw([5   3ESNZ 230350Z 19007KT CAVOK 08/M01 Q1020ESNZ2019-04-23T03:50:00Z63.1714.58.0-1.019076.2130.11811VFRMETAR370.02019-04-23 04:05:572§àv(i5    3ESCF 230350Z AUTO 08003KT 9999 NCD 04/03 Q1025ESCF2019-04-23T03:50:00Z58.3815.524.03.08036.2130.265747TRUEVFRMETAR117.02019-04-23 04:05:57%§àu(Y5   3ESDF 230350Z 08006KT CAVOK 07/04 Q1024ESDF2019-04-23T03:50:00Z56.2715.277.04.08066.2130.236221VFRMETAR74.02019-04-23 04:05:572§àt(i5    3ESIB 230350Z AUTO 11004KT 9999 NCD 04/03 Q1023ESIB2019-04-23T03:50:00Z58.4212.684.03.011046.2130.206694TRUEVFRMETAR74.02019-04-23 04:05:57$§às(Y5   3ESPA 230350Z VRB01KT CAVOK 04/03 Q1017ESPA2019-04-23T03:50:00Z65.5322.124.03.0016.2130.029528VFRMETAR34.02019-04-23 04:05:57 yFŽÞ.y/§à|(e5   3KSUN 230350Z 17004KT 10SM FEW080 09/04 A3021KSUN2019-04-23T03:50:00Z43.5-114.289.04.0170410.030.209646VFRMETAR1620.02019-04-23 04:05:57*§à{(]5   3ESNO 230350Z 30003KT CAVOK M01/M01 Q1020ESNO2019-04-23T03:50:00Z63.3818.97-1.0-1.030036.2130.11811VFRMETAR103.02019-04-23 04:05:57*§àz([5   3ESNQ 230350Z 23020KT CAVOK 09/M05 Q1011ESNQ2019-04-23T03:50:00Z67.8220.329.0-5.0230206.2129.852362VFRMETAR452.02019-04-23 04:05:572§ày(i5    3ESNS 230350Z AUTO 26004KT 9999 NCD 02/01 Q1019ESNS2019-04-23T03:50:00Z64.6221.072.01.026046.2130.088583TRUEVFRMETAR49.02019-04-23 04:05:574§àx(s5   3ESNU 230350Z 15002KT CAVOK M01/M01 Q1020 R14/09//95ESNU2019-04-23T03:50:00Z63.7820.27-1.0-1.015026.2130.11811VFRMETAR14.02019-04-23 04:05:57 8=h°þ8@§á(5     3EGVN 230350Z 04005KT 7000 HZ BKN140 11/08 Q0998 WHT NOSIGEGVN2019-04-23T03:50:00Z51.77-1.5811.08.04054.3529.468504TRUEHZMVFRMETAR88.02019-04-23 04:05:57,§á(a5   3EGVO 230350Z 33001KT CAVOK 10/07 Q0998 BLUEGVO2019-04-23T03:50:00Z51.23-0.9510.07.033016.2129.468504VFRMETAR123.02019-04-23 04:05:572§à(}5   3LSME 230350Z AUTO VRB02KT 9999NDV BKN079 11/07 Q0998 RMKLSME2019-04-23T03:50:00Z47.18.311.07.00229.468504TRUEMETAR427.02019-04-23 04:05:57O§à~)5     3ESOW 230350Z AUTO 12002KT 0450 R01/P2000D R19/P2000N BR NCD 02/01 Q1027ESOW2019-04-23T03:50:00Z59.5716.622.01.012020.2830.324802TRUEBRLIFRMETAR31.02019-04-23 04:05:57=§à})5    3EGQL 230350Z 06011KT 6000 BR FEW007 BKN170 08/08 Q1004 WHTEGQL2019-04-23T03:50:00Z56.38-2.878.08.060113.7329.64567BRMVFRMETAR12.02019-04-23 04:05:57 ŒQ£æ9Œ'§á(Y5   3ESOK 230350Z 13006KT CAVOK 06/04 Q1024ESOK2019-04-23T03:50:00Z59.4513.336.04.013066.2130.236221VFRMETAR107.02019-04-23 04:05:57'§á(a5   3EGXC 230350Z 08008KT CAVOK 11/07 Q1000 BLUEGXC2019-04-23T03:50:00Z53.1-0.1711.07.08086.2129.52756VFRMETAR7.02019-04-23 04:05:577§á(o5     3EGXV 230350Z AUTO 36001KT 8000 BR NCD 06/05 Q1002EGXV2019-04-23T03:50:00Z53.87-0.456.05.036014.9729.586615TRUEBRMVFRMETAR6.02019-04-23 04:05:57(§á(a5   3EGXW 230350Z 06007KT CAVOK 09/06 Q1000 BLUEGXW2019-04-23T03:50:00Z53.18-0.529.06.06076.2129.52756VFRMETAR70.02019-04-23 04:05:57)§á(a5   3EGYM 230350Z 09010KT CAVOK 12/05 Q1000 BLUEGYM2019-04-23T03:50:00Z52.630.5712.05.090106.2129.52756VFRMETAR23.02019-04-23 04:05:57 MU‡ÐþM+§á (i5   3ENML 230350Z 06005KT 030V100 CAVOK 05/01 Q1018ENML2019-04-23T03:50:00Z62.757.275.01.06056.2130.059055VFRMETAR3.02019-04-23 04:05:57L§á )#5   3ENNA 230350Z 23013KT 9999 FEW040 BKN098 09/04 Q1006 RMK WIND 1800FT 28030KTENNA2019-04-23T03:50:00Z70.0724.979.04.0230136.2129.704725VFRMETAR8.02019-04-23 04:05:571§á (i5    3ESCM 230350Z AUTO 19006KT 9999 NCD 05/03 Q1027ESCM2019-04-23T03:50:00Z59.8717.65.03.019066.2130.324802TRUEVFRMETAR41.02019-04-23 04:05:57H§á)5    3ESKN 230350Z 10003KT 0600 R08/P2000N R26/0450N BCFG NSC 04/04 Q1026ESKN2019-04-23T03:50:00Z58.7816.94.04.010030.3730.295275BCFGLIFRMETAR43.02019-04-23 04:05:57%§á(Y5   3ESOE 230350Z 03003KT CAVOK 04/02 Q1025ESOE2019-04-23T03:50:00Z59.2215.054.02.03036.2130.265747VFRMETAR57.02019-04-23 04:05:57 zP‰ß&z&§á(Y5   3ESGG 230350Z 12009KT CAVOK 06/03 Q1022ESGG2019-04-23T03:50:00Z57.6712.36.03.012096.2130.177166VFRMETAR169.02019-04-23 04:05:573§á(k5    3ESGJ 230350Z AUTO 00000KT 9000 NCD 00/M01 Q1024ESGJ2019-04-23T03:50:00Z57.7714.070.0-1.0005.5930.236221TRUEVFRMETAR232.02019-04-23 04:05:57$§á(Y5   3ESGT 230350Z 00000KT CAVOK 02/01 Q1023ESGT2019-04-23T03:50:00Z58.3212.332.01.0006.2130.206694VFRMETAR41.02019-04-23 04:05:57A§á ) 5   3ESMK 230350Z 00000KT 0300 R01/0900N R19/0900N NSC M01/M01 Q1022ESMK2019-04-23T03:50:00Z55.9214.07-1.0-1.0000.1930.177166LIFRMETAR23.02019-04-23 04:05:57*§á (a5   3EGDY 230350Z 29003KT CAVOK 12/08 Q0997 BLUEGDY2019-04-23T03:50:00Z51.0-2.6212.08.029036.2129.438976VFRMETAR23.02019-04-23 04:05:57 bT†Îb0§á(e5    3ESSA 230350Z 16003KT CAVOK 05/04 Q1027 NOSIGESSA2019-04-23T03:50:00Z59.6317.935.04.016036.2130.324802TRUEVFRMETAR61.02019-04-23 04:05:570§á(i5    3ESSB 230350Z AUTO 00000KT 9000 NCD 03/03 Q1027ESSB2019-04-23T03:50:00Z59.3517.933.03.0005.5930.324802TRUEVFRMETAR11.02019-04-23 04:05:572§á(i5    3ESSD 230350Z AUTO 18003KT 9999 NCD 08/05 Q1024ESSD2019-04-23T03:50:00Z60.4215.58.05.018036.2130.236221TRUEVFRMETAR161.02019-04-23 04:05:57H§á)5    3ESSP 230350Z 11002KT 0400 R09/P1500N R27/0600N BCFG NSC 00/00 Q1026ESSP2019-04-23T03:50:00Z58.5716.250.00.011020.2530.295275BCFGLIFRMETAR8.02019-04-23 04:05:57&§á(Y5   3ESSV 230350Z 14009KT CAVOK 06/03 Q1027ESSV2019-04-23T03:50:00Z57.6718.356.03.014096.2130.324802VFRMETAR47.02019-04-23 04:05:57 EG{¿E9§á(5    3LSZL 230350Z AUTO VRB01KT 8000NDV -RA NCD 12/11 Q1005 RMKLSZL2019-04-23T03:50:00Z46.178.8812.011.00129.675198TRUE-RAMETAR600.02019-04-23 04:05:575§á(q5    3LGAV 230350Z 00000KT 9999 FEW040 10/05 Q1021 NOSIGLGAV2019-04-23T03:50:00Z37.9323.9510.05.0006.2130.147638TRUEVFRMETAR94.02019-04-23 04:05:576§á(q5    3LGIR 230350Z 17008KT 9999 FEW025 09/06 Q1019 NOSIGLGIR2019-04-23T03:50:00Z35.3225.179.06.017086.2130.088583TRUEVFRMETAR39.02019-04-23 04:05:57F§á) 5    3LGKR 230350Z 14009KT 9999 SCT025 SCT040 BKN080 17/10 Q1013 NOSIGLGKR2019-04-23T03:50:00Z39.6219.9217.010.014096.2129.911417TRUEVFRMETAR2.02019-04-23 04:05:573§á(q5    3LGRP 230350Z VRB03KT 9999 FEW020 14/11 Q1020 NOSIGLGRP2019-04-23T03:50:00Z36.428.0814.011.0036.2130.11811TRUEVFRMETAR5.02019-04-23 04:05:57 >O’Àö>2§á(i5    3ESTA 230350Z AUTO 09010KT 9999 NCD 07/04 Q1021ESTA2019-04-23T03:50:00Z56.2812.837.04.090106.2130.147638TRUEVFRMETAR47.02019-04-23 04:05:57D§á({5    3KCXP 230350Z AUTO 03004KT 10SM CLR 13/M07 A3021 RMK AO2KCXP2019-04-23T03:50:00Z39.18-119.7313.0-7.030410.030.209646TRUETRUEVFRMETAR1435.02019-04-23 04:05:57L§á) 5    3K65S 230350Z AUTO 28003KT 10SM SCT080 OVC100 14/02 A3007 RMK AO2K65S2019-04-23T03:50:00Z48.73-116.314.02.0280310.030.070866TRUETRUEVFRMETAR713.02019-04-23 04:05:577§á(u5    3EGQM 230350Z AUTO 11001KT 9999 OVC150/// 08/07 Q1003EGQM2019-04-23T03:50:00Z55.42-1.68.07.011016.2129.616142TRUEVFRMETAR23.02019-04-23 04:05:57+§á(a5   3EGQS 230350Z 09012KT CAVOK 10/05 Q1003 BLUEGQS2019-04-23T03:50:00Z57.72-3.3210.05.090126.2129.616142VFRMETAR13.02019-04-23 04:05:57 mTœî6mC§á$(}5    3KEMK 230350Z AUTO 20019KT 7SM BKN037 23/20 A3005 RMK A01KEMK2019-04-23T03:50:00Z27.82-94.3223.020.0200197.030.050198TRUETRUEVFRMETAR26.02019-04-23 04:05:572§á#(i5    3ESMQ 230350Z 31003KT 6000 BR NSC M01/M01 Q1025ESMQ2019-04-23T03:50:00Z56.6816.3-1.0-1.031033.7330.265747BRMVFRMETAR16.02019-04-23 04:05:57(§á"(Y5   3ESMS 230350Z 11010KT CAVOK 10/03 Q1020ESMS2019-04-23T03:50:00Z55.5313.3710.03.0110106.2130.11811VFRMETAR106.02019-04-23 04:05:572§á!(i5    3ESMT 230350Z AUTO 10006KT 9999 NCD 08/04 Q1021ESMT2019-04-23T03:50:00Z56.6712.828.04.010066.2130.147638TRUEVFRMETAR30.02019-04-23 04:05:57&§á (Y5   3ESMX 230350Z 07003KT CAVOK 06/06 Q1024ESMX2019-04-23T03:50:00Z56.9214.726.06.07036.2130.236221VFRMETAR186.02019-04-23 04:05:57 7<t§í70§á)(o5   3EKRK 230350Z AUTO 11013KT 9999NDV NCD 10/05 Q1019EKRK2019-04-23T03:50:00Z55.5712.1210.05.01101330.088583TRUEMETAR44.02019-04-23 04:05:574§á((i5    3EKRN 230350Z AUTO 10014KT 9999 NCD 10/02 Q1021EKRN2019-04-23T03:50:00Z55.0714.7510.02.0100146.2130.147638TRUEVFRMETAR16.02019-04-23 04:05:57G§á')5    3ESTL 230350Z AUTO 00000KT 0100 R29L/0275N BCFG ///////// 01/01 Q1021ESTL2019-04-23T03:50:00Z56.0713.21.01.0000.0630.147638TRUEBCFGMETAR43.02019-04-23 04:05:57B§á&(y5    3KGRY 230350Z AUTO 11015KT 10SM CLR 22/18 A3011 RMK A01KGRY2019-04-23T03:50:00Z27.63-90.4522.018.01101510.030.109253TRUETRUEVFRMETAR58.02019-04-23 04:05:57>§á%(y5    3KF45 230350Z AUTO 00000KT 10SM CLR 17/17 A3012 RMK AO2KF452019-04-23T03:50:00Z26.85-80.2217.017.00010.030.121063TRUETRUEVFRMETAR7.02019-04-23 04:05:57 :DzÖþ:>§á.)5   3ENKR 230350Z 17006KT CAVOK 04/02 Q1007 RMK WIND 731FT 25014KTENKR2019-04-23T03:50:00Z69.7229.884.02.017066.2129.734253VFRMETAR91.02019-04-23 04:05:57R§á-)'5    3ENKB 230350Z AUTO 10005KT 060V160 9999 NCD 10/00 Q1018 RMK WIND 745FT 14017KTENKB2019-04-23T03:50:00Z63.127.8210.00.010056.2130.059055TRUEVFRMETAR62.02019-04-23 04:05:57§á,(Y5   3ENFL 230350Z 08009KT CAVOK 09/00 Q1016ENFL2019-04-23T03:50:00Z61.575.029.00.08096.2130.0VFRMETAR9.02019-04-23 04:05:57D§á+)5   3ENAT 230350Z 21011KT 9999 BKN047 07/04 Q1007 RMK WIND 700FT 19011KTENAT2019-04-23T03:50:00Z69.9723.377.04.0210116.2129.734253VFRMETAR3.02019-04-23 04:05:576§á*(5   3EKAH 230350Z AUTO 10007KT 070V130 9999NDV NCD 09/07 Q1019EKAH2019-04-23T03:50:00Z56.2810.629.07.0100730.088583TRUEMETAR25.02019-04-23 04:05:57 PBŽÐP;§á3({5    3EDDH 230350Z 09014KT CAVOK 11/04 Q1011 BECMG 11015G25KTEDDH2019-04-23T03:50:00Z53.6310.011.04.090146.2129.852362VFR-1.5METAR16.02019-04-23 04:05:579§á2({5    3EKCH 230350Z AUTO 11011KT 9999NDV NCD 10/05 Q1019 NOSIGEKCH2019-04-23T03:50:00Z55.6212.6710.05.01101130.088583TRUETRUEMETAR5.02019-04-23 04:05:578§á1(y5    3EKEB 230350Z AUTO 08009KT 050V110 9999 NCD 09/05 Q1014EKEB2019-04-23T03:50:00Z55.528.559.05.08096.2129.940945TRUEVFRMETAR29.02019-04-23 04:05:57.§á0(i5    3EKYT 230350Z AUTO 08009KT 9999 NCD 07/06 Q1019EKYT2019-04-23T03:50:00Z57.19.877.06.08096.2130.088583TRUEVFRMETAR3.02019-04-23 04:05:578§á/(o5   3EKBI 230350Z AUTO 10010G20KT 9999 NCD 10/05 Q1015EKBI2019-04-23T03:50:00Z55.729.1510.05.010010206.2129.970472TRUEVFRMETAR66.02019-04-23 04:05:57 KJÀK4§á8(}5   3ENHM 230350Z AUTO 14030KT 9999NDV NCD 09/05 Q1012 W08/S4ENHM2019-04-23T03:50:00Z59.572.239.05.01403029.88189TRUEMETAR10.02019-04-23 04:05:575§á7(}5   3ENNE 230350Z AUTO 19024KT 9999NDV NCD 08/06 Q1015 W///S5ENNE2019-04-23T03:50:00Z66.038.088.06.01902429.970472TRUEMETAR10.02019-04-23 04:05:57G§á6)5   3ENQR 230350Z AUTO 15027KT 9999NDV FEW180/// SCT210/// 10/05 Q1014 W///S4ENQR2019-04-23T03:50:00Z61.352.2210.05.01502729.940945TRUEMETAR10.02019-04-23 04:05:577§á5(u5    3EDDK 230350Z 09003KT 060V150 CAVOK 10/01 Q1001 NOSIGEDDK2019-04-23T03:50:00Z50.877.1510.01.09036.2129.557087TRUEVFRMETAR99.02019-04-23 04:05:570§á4(e5    3EDDF 230350Z 02012KT CAVOK 11/02 Q1001 NOSIGEDDF2019-04-23T03:50:00Z50.058.611.02.020126.2129.557087TRUEVFRMETAR113.02019-04-23 04:05:57 N=¾N1§á=(k5    3ENHV 230350Z 21013KT 3500 DZ BKN012 04/04 Q1004ENHV2019-04-23T03:50:00Z71.0225.974.04.0210132.1729.64567DZIFRMETAR14.02019-04-23 04:05:573§á<(}5   3ENLA 230350Z AUTO 11031KT 9999NDV NCD 09/06 Q1009 W///S4ENLA2019-04-23T03:50:00Z57.12.839.06.01103129.793306TRUEMETAR4.02019-04-23 04:05:57=§á;) 5   3ENSE 230350Z AUTO 17034KT 9999NDV BKN190/// 11/05 Q1014 W///S4ENSE2019-04-23T03:50:00Z61.452.1511.05.01703429.940945TRUEMETAR10.02019-04-23 04:05:576§á:(}5   3ENQC 230350Z AUTO 15020KT 9999NDV NCD 10/03 Q1015 W///S4ENQC2019-04-23T03:50:00Z60.883.6210.03.01502029.970472TRUEMETAR20.02019-04-23 04:05:57=§á9) 5   3ENQA 230350Z AUTO 16028KT 9999NDV SCT190/// 10/02 Q1015 W05/S4ENQA2019-04-23T03:50:00Z60.653.7210.02.01602829.970472TRUEMETAR20.02019-04-23 04:05:57  F‚»ó M§áB)!5    3BGGH 230350Z AUTO 27007KT 230V300 1800NDV -SN BKN006/// M06/M06 Q1001 RESNBGGH2019-04-23T03:50:00Z64.2-51.68-6.0-6.0270729.557087TRUE-SNMETAR70.02019-04-23 04:05:57B§áA)5   3BGJN 230350Z AUTO 00000KT 9999NDV FEW065/// BKN090/// M07/M08 Q0996BGJN2019-04-23T03:50:00Z69.25-51.07-7.0-8.00029.409449TRUEMETAR25.02019-04-23 04:05:57A§á@)5    3BGKK 230350Z AUTO 08023KT 0900NDV -SN OVC014/// M04/M06 Q1008BGKK2019-04-23T03:50:00Z65.57-37.13-4.0-6.0802329.763779TRUE-SNMETAR34.02019-04-23 04:05:57>§á?(}5  3PHJH 230350Z 06012G20KT 15SM FEW030 25/17 A3009 RMK LASTPHJH2019-04-23T03:50:00Z20.97-156.6725.017.060122015.030.088583VFRSPECI78.02019-04-23 04:05:574§á>(m5    3ENMH 230350Z 21012KT 9999 -RA BKN014 04/03 Q1004ENMH2019-04-23T03:50:00Z71.0227.824.03.0210126.2129.64567-RAMVFRMETAR13.02019-04-23 04:05:57 67q¿6S§áG)/5   3LSMM 230350Z AUTO 10018G30KT 070V130 9999NDV FEW110 BKN130 OVC150 17/00 Q0998 RMKLSMM2019-04-23T03:50:00Z46.758.1217.00.0100183029.468504TRUEMETAR577.02019-04-23 04:05:57*§áF(e5   3MSSS 230350Z 17007KT CAVOK 25/21 Q1016 A3002MSSS2019-04-23T03:50:00Z13.7-89.1225.021.017076.2130.0VFRMETAR616.02019-04-23 04:05:57,§áE(a5   3EGYP 230350Z 30001KT CAVOK 06/04 Q1011 BLUEGYP2019-04-23T03:50:00Z-51.82-58.456.04.030016.2129.852362VFRMETAR74.02019-04-23 04:05:57@§áD)5   3BGSF 230350Z AUTO 06008KT 9999NDV BKN070/// BKN090/// 02/M05 Q0995BGSF2019-04-23T03:50:00Z67.0-50.722.0-5.060829.379921TRUEMETAR53.02019-04-23 04:05:57C§áC)5   3BGBW 230350Z AUTO 07013KT 9999NDV FEW100/// BKN120/// 04/M12 Q0999BGBW2019-04-23T03:50:00Z61.17-45.424.0-12.0701329.498032TRUEMETAR26.02019-04-23 04:05:57 oF†Ço&§áL(Y5   3EDDN 230350Z 09009KT CAVOK 11/04 Q1001EDDN2019-04-23T03:50:00Z49.511.0811.04.09096.2129.557087VFRMETAR312.02019-04-23 04:05:57&§áK(Y5   3EDDS 230350Z 08007KT CAVOK 11/04 Q0999EDDS2019-04-23T03:50:00Z48.679.2211.04.08076.2129.498032VFRMETAR419.02019-04-23 04:05:579§áJ(u5    3EDDT 230350Z 09011KT 050V120 CAVOK 10/02 Q1013 NOSIGEDDT2019-04-23T03:50:00Z52.5713.3210.02.090116.2129.911417TRUEVFRMETAR37.02019-04-23 04:05:57:§áI({5    3EDDV 230350Z 08015KT CAVOK 10/04 Q1008 BECMG 10015G25KTEDDV2019-04-23T03:50:00Z52.479.6810.04.080156.2129.763779VFR1.5METAR54.02019-04-23 04:05:574§áH(}5   3LSMA 230350Z AUTO VRB01KT 9999NDV OVC100 11/06 Q0998 RMKLSMA2019-04-23T03:50:00Z46.958.2811.06.00129.468504TRUEMETAR444.02019-04-23 04:05:57 LI–Ò L8§áQ({5    3EDDW 230350Z 10009KT CAVOK 11/04 Q1008 BECMG 10015G25KTEDDW2019-04-23T03:50:00Z53.038.811.04.010096.2129.763779VFR1.5METAR5.02019-04-23 04:05:57B§áP)5   3OAMS 230350Z 02008KT 9999 FEW052 BKN160 OVC200 18/13 Q1012 BLU BLUOAMS2019-04-23T03:50:00Z36.767.218.013.02086.2129.88189VFRMETAR378.02019-04-23 04:05:57>§áO)5   3LSMP 230350Z 26005KT 210V300 9999 BKN085 15/03 Q0998 RMK BLULSMP2019-04-23T03:50:00Z46.826.9215.03.026056.2129.468504VFRMETAR491.02019-04-23 04:05:57-§áN(e5    3EDDL 230350Z 05006KT CAVOK 08/02 Q1002 NOSIGEDDL2019-04-23T03:50:00Z51.36.778.02.05066.2129.586615TRUEVFRMETAR44.02019-04-23 04:05:571§áM(e5    3EDDM 230350Z 08008KT CAVOK 10/04 Q1001 NOSIGEDDM2019-04-23T03:50:00Z48.3511.8210.04.08086.2129.557087TRUEVFRMETAR447.02019-04-23 04:05:57 lJ“Ø#l1§áV(e5    3EDDC 230350Z 08010KT CAVOK 08/03 Q1010 NOSIGEDDC2019-04-23T03:50:00Z51.1313.758.03.080106.2129.822834TRUEVFRMETAR226.02019-04-23 04:05:57/§áU(e5    3EDDE 230350Z VRB03KT CAVOK 06/03 Q1006 NOSIGEDDE2019-04-23T03:50:00Z50.9810.976.03.0036.2129.704725TRUEVFRMETAR323.02019-04-23 04:05:575§áT(u5    3EDDG 230350Z 08006KT 030V120 CAVOK 11/02 Q1004 NOSIGEDDG2019-04-23T03:50:00Z52.137.711.02.08066.2129.64567TRUEVFRMETAR52.02019-04-23 04:05:571§áS(e5    3EDDP 230350Z 07014KT CAVOK 09/04 Q1008 NOSIGEDDP2019-04-23T03:50:00Z51.4312.239.04.070146.2129.763779TRUEVFRMETAR149.02019-04-23 04:05:570§áR(e5    3EDDR 230350Z 05010KT CAVOK 11/02 Q0998 NOSIGEDDR2019-04-23T03:50:00Z49.227.111.02.050106.2129.468504TRUEVFRMETAR320.02019-04-23 04:05:57 ]B’×]7§á[(s5    3EFHA 230350Z AUTO 14004KT 110V180 CAVOK 05/02 Q1025EFHA2019-04-23T03:50:00Z61.8524.85.02.014046.2130.265747TRUEVFRMETAR145.02019-04-23 04:05:577§áZ(s5    3EFJY 230350Z AUTO 22004KT 170V270 CAVOK 07/02 Q1024EFJY2019-04-23T03:50:00Z62.425.687.02.022046.2130.236221TRUEVFRMETAR145.02019-04-23 04:05:575§áY(s5    3EFKU 230350Z AUTO VRB03KT 140V260 CAVOK 07/02 Q1023EFKU2019-04-23T03:50:00Z63.0227.87.02.0036.2130.206694TRUEVFRMETAR102.02019-04-23 04:05:57*§áX(]5   3LTBZ 230350Z 20002KT CAVOK M05/M07 Q1024LTBZ2019-04-23T03:50:00Z38.6327.35-5.0-7.020026.2130.236221VFRMETAR73.02019-04-23 04:05:578§áW({5   3EDDB 230350Z 09013KT CAVOK 10/02 Q1013 TEMPO 09015G25KTEDDB2019-04-23T03:50:00Z52.3813.5310.02.090136.2129.911417VFRMETAR48.02019-04-23 04:05:57 iJ”à+i<§á`(}5    3MSLP 230350Z VRB02KT 9999 SCT077 28/23 Q1012 A2990 NOSIGMSLP2019-04-23T03:50:00Z13.43-89.0528.023.0026.2129.88189TRUEVFRMETAR25.02019-04-23 04:05:57/§á_(c5    3EFSA 230350Z AUTO 20003KT CAVOK 06/02 Q1025EFSA2019-04-23T03:50:00Z61.9528.936.02.020036.2130.265747TRUEVFRMETAR95.02019-04-23 04:05:57.§á^(c5    3EFPO 230350Z AUTO 17007KT CAVOK 06/03 Q1026EFPO2019-04-23T03:50:00Z61.4721.86.03.017076.2130.295275TRUEVFRMETAR17.02019-04-23 04:05:570§á](c5    3EFJO 230350Z AUTO 18002KT CAVOK 03/01 Q1024EFJO2019-04-23T03:50:00Z62.6729.623.01.018026.2130.236221TRUEVFRMETAR117.02019-04-23 04:05:570§á\(c5    3EFKK 230350Z AUTO 19010KT CAVOK 07/02 Q1021EFKK2019-04-23T03:50:00Z63.7223.137.02.0190106.2130.147638TRUEVFRMETAR25.02019-04-23 04:05:57 qLœÞ(q1§áe(c5    3EFET 230350Z AUTO 22012KT CAVOK 05/01 Q1010EFET2019-04-23T03:50:00Z68.3723.435.01.0220126.2129.822834TRUEVFRMETAR306.02019-04-23 04:05:570§ád(c5    3EFKE 230350Z AUTO 20010KT CAVOK 02/00 Q1018EFKE2019-04-23T03:50:00Z65.7724.572.00.0200106.2130.059055TRUEVFRMETAR15.02019-04-23 04:05:578§ác(s5    3EFKI 230350Z AUTO 21004KT 170V240 CAVOK 06/01 Q1021EFKI2019-04-23T03:50:00Z64.2727.676.01.021046.2130.147638TRUEVFRMETAR136.02019-04-23 04:05:57*§áb(c5    3EFKS 230350Z AUTO 26007KT CAVOK 04/02 Q1016EFKS2019-04-23T03:50:00Z66.029.234.02.026076.2130.0TRUEVFRMETAR263.02019-04-23 04:05:57.§áa(c5    3EFKT 230350Z AUTO 24009KT CAVOK 08/01 Q1012EFKT2019-04-23T03:50:00Z67.724.858.01.024096.2129.88189TRUEVFRMETAR643.02019-04-23 04:05:57 ìKŽ¡ì/§ái(c5    3EFMI 230350Z AUTO 25005KT CAVOK 07/02 Q1026EFMI2019-04-23T03:50:00Z61.6827.27.02.025056.2130.295275TRUEVFRMETAR138.02019-04-23 04:05:57g§áh)K5   3ENEV 230350Z 25022G36KT 210V280 9999 -SHRA FEW057 OVC078 08/03 Q1012 RMK WIND 1400FT 23052G71KTENEV2019-04-23T03:50:00Z68.5216.678.03.025022366.2129.88189-SHRAVFRMETAR26.02019-04-23 04:05:577§ág(s5   3KEFD 230350Z 12010KT 10SM BKN030 OVC250 22/18 A3005KEFD2019-04-23T03:50:00Z29.6-95.1722.018.01201010.030.050198MVFRMETAR10.02019-04-23 04:05:57/§áf(i5   3EFUT 230350Z 23004KT 210V270 CAVOK 05/01 Q1027EFUT2019-04-23T03:50:00Z60.8826.925.01.023046.2130.324802VFRMETAR100.02019-04-23 04:05:57 ÀÿEÀ9§ám(y5    3ENAN 230350Z 23019KT 4700 RA FEW008 OVC012 08/07 Q1010ENAN2019-04-23T03:50:00Z69.2816.138.07.0230192.9229.822834RAIFRMETAR14.02019-04-23 04:05:57@§ál) 5   3ENBR 230350Z 17002KT CAVOK 08/M01 Q1017 RMK WIND 1200FT 14013KTENBR2019-04-23T03:50:00Z60.285.228.0-1.017026.2130.029528VFRMETAR50.02019-04-23 04:05:574§ák(g5    3ENBO 230350Z 22016KT CAVOK 10/M02 Q1015 NOSIGENBO2019-04-23T03:50:00Z67.2714.3710.0-2.0220166.2129.970472TRUEVFRMETAR13.02019-04-23 04:05:57{§áj)m5     3ENDU 230350Z 20004KT 130V260 9999 -SHRA FEW020 BKN030 07/05 Q1010 RMK WIND 1100FT 21026G39KT WIND 2200FT 24024KTENDU2019-04-23T03:50:00Z69.0318.557.05.020046.2129.822834-SHRAMVFR-2.6METAR79.02019-04-23 04:05:57 wIœä-w0§ár(k5    3EGNT 230350Z 32004KT 3800 BR FEW011 07/07 Q1003EGNT2019-04-23T03:50:00Z55.02-1.77.07.032042.3629.616142BRIFRMETAR81.02019-04-23 04:05:571§áq(i5    3EGPB 230350Z AUTO 14019KT 9999 NCD 09/06 Q1008EGPB2019-04-23T03:50:00Z59.87-1.39.06.0140196.2129.763779TRUEVFRMETAR5.02019-04-23 04:05:572§áp(i5    3EGLF 230350Z AUTO 22004KT 9999 NCD 08/06 Q0998EGLF2019-04-23T03:50:00Z51.28-0.778.06.022046.2129.468504TRUEVFRMETAR65.02019-04-23 04:05:57'§áo(_5   3EGMC 230350Z 02004KT 7000 NSC 08/06 Q0999EGMC2019-04-23T03:50:00Z51.570.78.06.02044.3529.498032MVFRMETAR15.02019-04-23 04:05:571§án(i5    3EGMD 230350Z AUTO 07012KT 9999 NCD 13/09 Q0998EGMD2019-04-23T03:50:00Z50.950.9213.09.070126.2129.468504TRUEVFRMETAR3.02019-04-23 04:05:57 xGç0x2§áw(i5    3EGJJ 230350Z AUTO 11009KT 9999 NCD 13/09 Q0995EGJJ2019-04-23T03:50:00Z49.22-2.213.09.011096.2129.379921TRUEVFRMETAR84.02019-04-23 04:05:571§áv(i5    3EGNJ 230350Z AUTO 03004KT 9999 NCD 08/07 Q1001EGNJ2019-04-23T03:50:00Z53.57-0.358.07.03046.2129.557087TRUEVFRMETAR31.02019-04-23 04:05:57#§áu(Y5   3EGPE 230350Z VRB01KT CAVOK 08/05 Q1003EGPE2019-04-23T03:50:00Z57.52-4.038.05.0016.2129.616142VFRMETAR9.02019-04-23 04:05:571§át(i5    3EGSH 230350Z AUTO 08005KT 9999 NCD 10/06 Q1001EGSH2019-04-23T03:50:00Z52.681.2810.06.08056.2129.557087TRUEVFRMETAR36.02019-04-23 04:05:573§ás(i5    3EGGD 230350Z AUTO 08008KT 9999 NCD 12/08 Q0998EGGD2019-04-23T03:50:00Z51.37-2.7212.08.08086.2129.468504TRUEVFRMETAR189.02019-04-23 04:05:57 pT‡Ñ%p/§á|(i5    3EGLC 230350Z AUTO 05004KT 9999 NCD 13/07 Q0998EGLC2019-04-23T03:50:00Z51.50.0513.07.05046.2129.468504TRUEVFRMETAR5.02019-04-23 04:05:57&§á{(Y5   3EGNM 230350Z 04006KT CAVOK 09/05 Q1001EGNM2019-04-23T03:50:00Z53.87-1.639.05.04066.2129.557087VFRMETAR208.02019-04-23 04:05:570§áz(o5   3EGNX 230350Z 02006KT 350V050 9000 NSC 10/07 Q1000EGNX2019-04-23T03:50:00Z52.82-1.3210.07.02065.5929.52756VFRMETAR94.02019-04-23 04:05:57G§áy)5     3EGPD 230350Z AUTO VRB02KT 0750 FG FEW013 05/05 Q1006 TEMPO 1200 BREGPD2019-04-23T03:50:00Z57.2-2.225.05.0020.4729.704725TRUEFGLIFRMETAR65.02019-04-23 04:05:57&§áx(Y5   3EGJB 230350Z 08007KT CAVOK 12/09 Q0996EGJB2019-04-23T03:50:00Z49.42-2.612.09.08076.2129.409449VFRMETAR102.02019-04-23 04:05:57 kGØ,k;§â(u5     3EGCC 230350Z AUTO 06006KT 9999 NCD 12/07 Q1000 NOSIGEGCC2019-04-23T03:50:00Z53.35-2.2712.07.06066.2129.52756TRUETRUEVFRMETAR78.02019-04-23 04:05:57&§â(Y5   3EGAA 230350Z 07006KT CAVOK 10/07 Q0999EGAA2019-04-23T03:50:00Z54.63-6.2210.07.07066.2129.498032VFRMETAR81.02019-04-23 04:05:571§á(i5    3EGAC 230350Z AUTO VRB02KT 8000 NCD 11/08 Q0999EGAC2019-04-23T03:50:00Z54.62-5.8711.08.0024.9729.498032TRUEMVFRMETAR5.02019-04-23 04:05:572§á~(i5    3EGFF 230350Z AUTO 05008KT 9999 NCD 15/09 Q0997EGFF2019-04-23T03:50:00Z51.38-3.3515.09.05086.2129.438976TRUEVFRMETAR67.02019-04-23 04:05:573§á}(i5    3EGGW 230350Z AUTO 04005KT 9999 NCD 11/05 Q0999EGGW2019-04-23T03:50:00Z51.87-0.3711.05.04056.2129.498032TRUEVFRMETAR160.02019-04-23 04:05:57 ~IŸí5~1§â(i5    3EGLL 230350Z AUTO VRB03KT 9000 NCD 13/07 Q0998EGLL2019-04-23T03:50:00Z51.48-0.4513.07.0035.5929.468504TRUEVFRMETAR24.02019-04-23 04:05:572§â(i5    3EGPF 230350Z AUTO 07012KT 9999 NCD 10/06 Q1002EGPF2019-04-23T03:50:00Z55.87-4.4210.06.070126.2129.586615TRUEVFRMETAR8.02019-04-23 04:05:57,§â(e5   3EGPH 230350Z 07010KT 7000 BKN006 09/08 Q1003EGPH2019-04-23T03:50:00Z55.95-3.359.08.070104.3529.616142IFRMETAR41.02019-04-23 04:05:57$§â(Y5   3EGPK 230350Z 04002KT CAVOK 14/03 Q1000EGPK2019-04-23T03:50:00Z55.5-4.5714.03.04026.2129.52756VFRMETAR20.02019-04-23 04:05:571§â(i5    3EGSS 230350Z AUTO 06006KT 9999 NCD 09/06 Q0999EGSS2019-04-23T03:50:00Z51.880.229.06.06066.2129.498032TRUEVFRMETAR106.02019-04-23 04:05:57 iT¤è!i2§â (m5   3MMAA 230350Z 25006KT 5SM SKC 25/23 A2990 RMK HZYMMAA2019-04-23T03:50:00Z16.75-99.7525.023.025065.029.899607MVFRMETAR5.02019-04-23 04:05:57A§â )5   3MMTM 230350Z E12012KT 6SM SCT010 BKN200 24/23 A2994 RMK 8/108MMTM2019-04-23T03:50:00Z22.27-97.8724.023.0120126.029.940945VFRMETAR24.02019-04-23 04:05:576§â (q5    3LCEN 230350Z 27007KT 9999 FEW025 10/05 Q1021 NOSIGLCEN2019-04-23T03:50:00Z35.1333.510.05.027076.2130.147638TRUEVFRMETAR91.02019-04-23 04:05:57*§â(_5   3EGBB 230350Z 33004KT 8000 NSC 11/07 Q1000EGBB2019-04-23T03:50:00Z52.47-1.7511.07.033044.9729.52756MVFRMETAR99.02019-04-23 04:05:57&§â(Y5   3EGKK 230350Z 08002KT CAVOK 10/08 Q0998EGKK2019-04-23T03:50:00Z51.13-0.1710.08.08026.2129.468504VFRMETAR62.02019-04-23 04:05:57 U<€ÄU8§â(s5    3LTAU 230350Z 00000KT 9999 BKN040 01/M01 Q1024 NOSIGLTAU2019-04-23T03:50:00Z38.7735.471.0-1.0006.2130.236221TRUEVFRMETAR1054.02019-04-23 04:05:57+§â(]5   3LTBY 230350Z 23002KT CAVOK M01/M03 Q1024LTBY2019-04-23T03:50:00Z39.8230.52-1.0-3.023026.2130.236221VFRMETAR789.02019-04-23 04:05:576§â(u5   3LTAY 230350Z 10003KT 9999 FEW035 BKN100 02/M02 Q1023LTAY2019-04-23T03:50:00Z37.7729.682.0-2.010036.2130.206694VFRMETAR849.02019-04-23 04:05:576§â (w5   3LTAR 230350Z 00000KT 8000 SCT015 BKN025 M01/M02 Q1022LTAR2019-04-23T03:50:00Z39.836.9-1.0-2.0004.9730.177166MVFRMETAR1271.02019-04-23 04:05:57>§â ({5   3MMZC 230350Z 27010KT 10SM OVC100 21/M10 A3024 RMK 8/03/MMZC2019-04-23T03:50:00Z22.9-102.6821.0-10.02701010.030.239174VFRMETAR2177.02019-04-23 04:05:57 dA‡Ôd0§â(e5   3MUCM 230350Z 36006KT 9000 FEW020 23/21 Q1017MUCM2019-04-23T03:50:00Z21.42-77.8523.021.036065.5930.029528VFRMETAR122.02019-04-23 04:05:574§â(o5    3MUHG 230350Z 08004KT 8000 VCFG FEW030 23/20 Q1016MUHG2019-04-23T03:50:00Z20.77-76.3223.020.08044.9730.0VCFGMVFRMETAR106.02019-04-23 04:05:57-§â(e5    3LTAG 230350Z 02005KT CAVOK 08/05 Q1020 NOSIGLTAG2019-04-23T03:50:00Z37.035.428.05.02056.2130.11811TRUEVFRMETAR66.02019-04-23 04:05:574§â(i5    3LTAN 230350Z 03002KT CAVOK M00/M03 Q1024 NOSIGLTAN2019-04-23T03:50:00Z37.9732.530.0-3.03026.2130.236221TRUEVFRMETAR1006.02019-04-23 04:05:579§â(s5    3LTAT 230350Z 17005KT 9999 FEW040 06/M01 Q1022 NOSIGLTAT2019-04-23T03:50:00Z38.4238.076.0-1.017056.2130.177166TRUEVFRMETAR849.02019-04-23 04:05:57 wF’é;w>§â)5   3LTCU 230350Z 36005KT 330V030 9999 SCT035 BKN100 06/01 Q1019LTCU2019-04-23T03:50:00Z38.8740.586.01.036056.2130.088583VFRMETAR1061.02019-04-23 04:05:57(§â(Y5   3LTFD 230350Z 10012KT CAVOK 13/01 Q1023LTFD2019-04-23T03:50:00Z39.5527.0213.01.0100126.2130.206694VFRMETAR16.02019-04-23 04:05:57#§â(Y5   3LTFG 230350Z 09006KT CAVOK 07/05 Q1021LTFG2019-04-23T03:50:00Z36.332.37.05.09066.2130.147638VFRMETAR95.02019-04-23 04:05:57.§â(e5   3MUVR 230350Z 06008KT 9000 FEW030 21/15 Q1019MUVR2019-04-23T03:50:00Z23.03-81.4321.015.06085.5930.088583VFRMETAR65.02019-04-23 04:05:574§â(o5   3MUSC 230350Z 05005KT 360V100 8000 NSC 20/16 Q1019MUSC2019-04-23T03:50:00Z22.5-79.9520.016.05054.9730.088583MVFRMETAR103.02019-04-23 04:05:57 l<ŠÞ)l7§â(u5    3LTCN 230350Z 09004KT 060V120 CAVOK 06/02 Q1020 NOSIGLTCN2019-04-23T03:50:00Z37.5336.956.02.09046.2130.11811TRUEVFRMETAR526.02019-04-23 04:05:57/§â(g5   3LTCO 230350Z 09009KT 9999 SCT030 01/M03 Q1019LTCO2019-04-23T03:50:00Z39.6543.031.0-3.09096.2130.088583VFRMETAR1665.02019-04-23 04:05:57&§â(Y5   3LTCP 230350Z 03005KT CAVOK 09/00 Q1018LTCP2019-04-23T03:50:00Z37.7338.479.00.03056.2130.059055VFRMETAR676.02019-04-23 04:05:57,§â(e5   3LTCR 230350Z 02008KT 9999 FEW040 09/06 Q1018LTCR2019-04-23T03:50:00Z37.2240.639.06.02086.2130.059055VFRMETAR527.02019-04-23 04:05:57>§â)5   3LTCT 230350Z 26005KT 220V290 9999 FEW030 SCT080 06/M01 Q1020LTCT2019-04-23T03:50:00Z39.9843.876.0-1.026056.2130.11811VFRMETAR946.02019-04-23 04:05:57 ];„Í]-§â$(e5    3LTFJ 230350Z 03007KT CAVOK 07/02 Q1025 NOSIGLTFJ2019-04-23T03:50:00Z40.929.37.02.03076.2130.265747TRUEVFRMETAR98.02019-04-23 04:05:577§â#(u5    3LTFM 230350Z 04004KT 020V080 CAVOK 09/07 Q1026 NOSIGLTFM2019-04-23T03:50:00Z41.2728.759.07.04046.2130.295275TRUEVFRMETAR99.02019-04-23 04:05:571§â"(s5   3LTBH 230350Z 07004KT 9999 SCT035 BKN100 08/04 Q1023LTBH2019-04-23T03:50:00Z40.1326.428.04.07046.2130.206694VFRMETAR3.02019-04-23 04:05:571§â!(s5   3LTCB 230350Z VRB02KT 9999 SCT030 BKN080 10/04 Q1026LTCB2019-04-23T03:50:00Z40.9738.0710.04.0026.2130.295275VFRMETAR5.02019-04-23 04:05:57?§â )5   3LTCK 230350Z 06003KT 020V100 9999 SCT040 BKN080 05/M01 Q1019LTCK2019-04-23T03:50:00Z38.7541.675.0-1.06036.2130.088583VFRMETAR1266.02019-04-23 04:05:57 eJã(e=§â))5    3LTBS 230350Z 07004KT 040V110 9999 FEW100 11/04 Q1021 NOSIGLTBS2019-04-23T03:50:00Z36.728.7711.04.07046.2130.147638TRUEVFRMETAR2.02019-04-23 04:05:575§â((q5    3LTCG 230350Z 19004KT 9999 BKN035 10/06 Q1026 NOSIGLTCG2019-04-23T03:50:00Z41.039.810.06.019046.2130.295275TRUEVFRMETAR30.02019-04-23 04:05:57&§â'(Y5   3LTCS 230350Z 31004KT CAVOK 08/02 Q1019LTCS2019-04-23T03:50:00Z37.4538.98.02.031046.2130.088583VFRMETAR825.02019-04-23 04:05:575§â&(w5   3LTFC 230350Z VRB02KT 9999 FEW035 SCT200 M00/M03 Q1023LTFC2019-04-23T03:50:00Z37.8730.380.0-3.0026.2130.206694VFRMETAR864.02019-04-23 04:05:570§â%(e5    3LTFE 230350Z 15004KT CAVOK 10/04 Q1021 NOSIGLTFE2019-04-23T03:50:00Z37.2527.6710.04.015046.2130.147638TRUEVFRMETAR6.02019-04-23 04:05:57 hA‹Öh.§â.(e5    3LTAI 230350Z 01006KT CAVOK 12/00 Q1021 NOSIGLTAI2019-04-23T03:50:00Z36.930.812.00.01066.2130.147638TRUEVFRMETAR54.02019-04-23 04:05:574§â-(u5   3LTAZ 230350Z VRB02KT 9999 FEW040 SCT180 00/M01 Q1025LTAZ2019-04-23T03:50:00Z38.7734.550.0-1.0026.2130.265747VFRMETAR945.02019-04-23 04:05:57/§â,(e5    3LTBA 230350Z 04005KT CAVOK 09/05 Q1026 NOSIGLTBA2019-04-23T03:50:00Z40.9728.829.05.04056.2130.295275TRUEVFRMETAR37.02019-04-23 04:05:570§â+(e5    3LTBJ 230350Z VRB01KT CAVOK 10/03 Q1022 NOSIGLTBJ2019-04-23T03:50:00Z38.2827.1510.03.0016.2130.177166TRUEVFRMETAR120.02019-04-23 04:05:579§â*(u5    3LTBR 230350Z 32003KT 9999 SCT035 M00/M00 Q1025 NOSIGLTBR2019-04-23T03:50:00Z40.2529.570.00.032036.2130.265747TRUEVFRMETAR232.02019-04-23 04:05:57 BL“È BB§â3)5    3LTCI 230350Z 34003KT 9999 FEW035 SCT070 01/M03 Q1018 NOSIGLTCI2019-04-23T03:50:00Z38.4543.321.0-3.034036.2130.059055TRUEVFRMETAR1661.02019-04-23 04:05:578§â2(u5    3LTDA 230350Z 09005KT 060V130 CAVOK 10/05 Q1021 NOSIGLTDA2019-04-23T03:50:00Z36.3736.2810.05.09056.2130.147638TRUEVFRMETAR82.02019-04-23 04:05:57E§â1)5    3LTFH 230350Z 17003KT 130V210 9999 FEW036 SCT100 05/03 Q1026 NOSIGLTFH2019-04-23T03:50:00Z41.2736.555.03.017036.2130.295275TRUEVFRMETAR5.02019-04-23 04:05:573§â0(i5    3LTAC 230350Z VRB01KT CAVOK M02/M04 Q1024 NOSIGLTAC2019-04-23T03:50:00Z40.1232.97-2.0-4.0016.2130.236221TRUEVFRMETAR949.02019-04-23 04:05:57.§â/(e5    3LTAF 230350Z VRB01KT CAVOK 10/07 Q1020 NOSIGLTAF2019-04-23T03:50:00Z36.9735.2810.07.0016.2130.11811TRUEVFRMETAR20.02019-04-23 04:05:57 HKƒÁþH0§â8(g5    3ENGM 230350Z 05002KT CAVOK 02/M02 Q1022 NOSIGENGM2019-04-23T03:50:00Z60.211.12.0-2.05026.2130.177166TRUEVFRMETAR204.02019-04-23 04:05:57=§â7)5   3ENVA 230350Z 11006KT CAVOK 04/01 Q1020 RMK WIND 670FT 13006KTENVA2019-04-23T03:50:00Z63.4710.924.01.011066.2130.11811VFRMETAR17.02019-04-23 04:05:57<§â6(5    3LTCA 230350Z 21005KT 9999 FEW035 BKN100 06/02 Q1020 NOSIGLTCA2019-04-23T03:50:00Z38.639.276.02.021056.2130.11811TRUEVFRMETAR882.02019-04-23 04:05:57B§â5)5    3LTCD 230350Z 25010KT 9999 SCT040 BKN100 05/M02 Q1021 NOSIGLTCD2019-04-23T03:50:00Z39.7239.55.0-2.0250106.2130.147638TRUEVFRMETAR1215.02019-04-23 04:05:57/§â4(i5   3LTCF 230350Z VRB01KT 9999 BKN035 M01/M02 Q1020LTCF2019-04-23T03:50:00Z40.5743.12-1.0-2.0016.2130.11811VFRMETAR1795.02019-04-23 04:05:57 VY áVB§â=({5    3KWYS 230350Z AUTO 00000KT 10SM CLR 03/M02 A3020 RMK AO2KWYS2019-04-23T03:50:00Z44.67-111.123.0-2.00010.030.200787TRUETRUEVFRMETAR2025.02019-04-23 04:05:57=§â<) 5   3ENOV 230350Z VRB01KT CAVOK 05/M00 Q1017 RMK WIND 2175FT 14012KTENOV2019-04-23T03:50:00Z62.176.075.00.0016.2130.029528VFRMETAR74.02019-04-23 04:05:579§â;(u5    3EGPC 230350Z AUTO 16010KT 9999 SCT005/// 08/07 Q1005EGPC2019-04-23T03:50:00Z58.45-3.078.07.0160106.2129.675198TRUEVFRMETAR39.02019-04-23 04:05:573§â:(i5    3EGPA 230350Z AUTO 15012KT 9999 NCD 08/07 Q1005EGPA2019-04-23T03:50:00Z58.95-2.888.07.0150126.2129.675198TRUEVFRMETAR21.02019-04-23 04:05:57!§â9(Y5   3ENZV 230350Z 12013KT CAVOK 13/02 Q1016ENZV2019-04-23T03:50:00Z58.875.6213.02.0120136.2130.0VFRMETAR9.02019-04-23 04:05:57 L8pºL2§âB(i5    3EGPM 230350Z AUTO 14021KT 9999 NCD 09/06 Q1008EGPM2019-04-23T03:50:00Z60.42-1.39.06.0140216.2129.763779TRUEVFRMETAR22.02019-04-23 04:05:570§âA(i5    3EGPO 230350Z AUTO VRB01KT 9999 NCD 06/04 Q1001EGPO2019-04-23T03:50:00Z58.22-6.326.04.0016.2129.557087TRUEVFRMETAR13.02019-04-23 04:05:570§â@(e5    3EGNS 230350Z 03005KT CAVOK 11/06 Q0999 NOSIGEGNS2019-04-23T03:50:00Z54.08-4.6311.06.03056.2129.498032TRUEVFRMETAR17.02019-04-23 04:05:57B§â?(y5    3KSTK 230350Z AUTO 33004KT 10SM CLR 05/02 A3024 RMK AO2KSTK2019-04-23T03:50:00Z40.62-103.275.02.0330410.030.239174TRUETRUEVFRMETAR1231.02019-04-23 04:05:57B§â>(y5    3KHEQ 230350Z AUTO 31004KT 10SM CLR 07/01 A3024 RMK AO2KHEQ2019-04-23T03:50:00Z40.57-102.287.01.0310410.030.239174TRUETRUEVFRMETAR1137.02019-04-23 04:05:57 *H‘Ù*c§âG)A5     3LTCC 230350Z 10001KT 9999 1500S R34/P1500D R16/P1500U BCFG FEW040 SCT100 06/06 Q1018 NOSIGLTCC2019-04-23T03:50:00Z37.8740.26.06.010016.2130.059055TRUEBCFGVFRMETAR677.02019-04-23 04:05:57@§âF)5    3LTCE 230350Z 09005KT 9999 SCT035 BKN070 01/M03 Q1020 NOSIGLTCE2019-04-23T03:50:00Z39.9541.171.0-3.09056.2130.11811TRUEVFRMETAR1758.02019-04-23 04:05:572§âE(s5   3LTCJ 230350Z VRB01KT 9999 SCT030 BKN080 08/08 Q1018LTCJ2019-04-23T03:50:00Z37.9341.128.08.0016.2130.059055VFRMETAR540.02019-04-23 04:05:571§âD(e5    3LCRA 230350Z 34002KT CAVOK 11/06 Q1021 NOSIGLCRA2019-04-23T03:50:00Z34.5732.9711.06.034026.2130.147638TRUEVFRMETAR23.02019-04-23 04:05:572§âC(i5    3EGPL 230350Z AUTO 12009KT 9999 NCD 13/06 Q0999EGPL2019-04-23T03:50:00Z57.47-7.3713.06.012096.2129.498032TRUEVFRMETAR6.02019-04-23 04:05:57 kSŸê1k@§âL)5   3ENST 230350Z 18013KT CAVOK 12/01 Q1018 RMK WIND 300FT 17018KTENST2019-04-23T03:50:00Z65.9712.4712.01.0180136.2130.059055VFRMETAR17.02019-04-23 04:05:573§âK(s5   3ENVD 230350Z 21004KT 9999 FEW022 BKN150 04/02 Q1006ENVD2019-04-23T03:50:00Z70.0729.854.02.021046.2129.704725VFRMETAR39.02019-04-23 04:05:57/§âJ(e5    3LTBF 230350Z 00000KT CAVOK 04/03 Q1025 NOSIGLTBF2019-04-23T03:50:00Z39.6227.924.03.0006.2130.265747TRUEVFRMETAR102.02019-04-23 04:05:57.§âI(e5    3LTBQ 230350Z 00000KT CAVOK 01/01 Q1026 NOSIGLTBQ2019-04-23T03:50:00Z40.7230.071.01.0006.2130.295275TRUEVFRMETAR50.02019-04-23 04:05:57'§âH(Y5   3LTBU 230350Z 02010KT CAVOK 07/06 Q1024LTBU2019-04-23T03:50:00Z41.1227.927.06.020106.2130.236221VFRMETAR173.02019-04-23 04:05:57 R‰½çL§âQ)5    3ENSG 230350Z 06004KT 020V120 CAVOK 08/M03 Q1019 RMK WIND 3806FT 11010KTENSG2019-04-23T03:50:00Z61.137.128.0-3.06046.2130.088583VFR-1.0METAR497.02019-04-23 04:05:57P§âP)+5    3ENSR 230350Z VRB02KT 9999 -RA FEW012 BKN035 03/03 Q1008 RMK WIND 1119FT 17017KTENSR2019-04-23T03:50:00Z69.7720.973.03.0026.2129.763779-RAVFRMETAR6.02019-04-23 04:05:57F§âO)5   3ENMS 230350Z VRB01KT CAVOK 00/M03 Q1019 RMK WIND 412FT 19003KT 150V240ENMS2019-04-23T03:50:00Z65.7813.220.0-3.0016.2130.088583VFRMETAR70.02019-04-23 04:05:57C§âN) 5    3ENSK 230350Z 15009KT 9999 VCSH FEW015 SCT025 BKN030 08/05 Q1012ENSK2019-04-23T03:50:00Z68.5715.028.05.015096.2129.88189VCSHMVFRMETAR3.02019-04-23 04:05:57(§âM([5   3ENSO 230350Z 14008KT CAVOK 12/M01 Q1017ENSO2019-04-23T03:50:00Z59.785.3312.0-1.014086.2130.029528VFRMETAR49.02019-04-23 04:05:57 <n®Ð5§âV(5   3ENBN 230350Z AUTO 23003KT 190V270 9999NDV NCD 06/03 Q1019ENBN2019-04-23T03:50:00Z65.4712.226.03.0230330.088583TRUEMETAR9.02019-04-23 04:05:57X§âU)35  3ENHF 230350Z 23013G26KT 9999 SCT001 BKN015 06/05 Q1005 REDZ RMK WIND 1254FT 27025KTENHF2019-04-23T03:50:00Z70.6723.676.05.023013266.2129.675198MVFRMETAR81.02019-04-23 04:05:57:§âT(q5    3ENRA 230350Z 34004KT 0200 FZFG VV002 M02/M02 Q1020ENRA2019-04-23T03:50:00Z66.3714.3-2.0-2.034040.1230.11811FZFGLIFR200METAR70.02019-04-23 04:05:57H§âS)5    3ENSH 230350Z 23013KT 9999 BKN020 06/04 Q1014 RMK WIND 150FT 20027KTENSH2019-04-23T03:50:00Z68.2514.676.04.0230136.2129.940945MVFR2.7METAR9.02019-04-23 04:05:57>§âR) 5   3ENSD 230350Z VRB02KT CAVOK 08/M02 Q1018 RMK WIND 1138FT 07009KTENSD2019-04-23T03:50:00Z61.826.128.0-2.0026.2130.059055VFRMETAR60.02019-04-23 04:05:57 >J™Õ>L§â[) 5     3LIRF 230350Z 13017KT 6000 TSRA SCT025 SCT030CB 15/12 Q1002 NOSIGLIRF2019-04-23T03:50:00Z41.7812.2215.012.0130173.7329.586615TRUETSRAMVFRMETAR3.02019-04-23 04:05:57?§âZ)5    3LIRN 230350Z 17007KT 090V230 9999 SCT050 17/09 Q1005 NOSIGLIRN2019-04-23T03:50:00Z40.8814.317.09.017076.2129.675198TRUEVFRMETAR72.02019-04-23 04:05:57>§âY)5   3LIRQ 230350Z 26004KT 230V290 9999 BKN040 OVC080 14/13 Q1002LIRQ2019-04-23T03:50:00Z43.7811.1814.013.026046.2129.586615VFRMETAR38.02019-04-23 04:05:57+§âX(o5   3EEKE 230350Z AUTO 00000KT 9999NDV NSC 01/01 Q1029EEKE2019-04-23T03:50:00Z58.2322.521.01.00030.383858TRUEMETAR4.02019-04-23 04:05:570§âW(i5    3EETU 230350Z AUTO 00000KT 9999 NCD 04/00 Q1030EETU2019-04-23T03:50:00Z58.3226.684.00.0006.2130.413385TRUEVFRMETAR67.02019-04-23 04:05:57 7j±èG§â`)5     3LIMC 230350Z 02010KT 8000 -RA SCT030 BKN050 11/10 Q1004 NOSIGLIMC2019-04-23T03:50:00Z45.628.7211.010.020104.9729.64567TRUE-RAMVFRMETAR211.02019-04-23 04:05:57C§â_(5     3LIME 230350Z VRB02KT 5000 -RA BR BKN040 11/11 Q1004 NOSIGLIME2019-04-23T03:50:00Z45.679.6811.011.0023.1129.64567TRUE-RA BRMVFRMETAR237.02019-04-23 04:05:573§â^(m5    3LIMF 230350Z 31006KT 9999 -RA BKN040 11/08 Q1004LIMF2019-04-23T03:50:00Z45.227.6511.08.031066.2129.64567-RAVFRMETAR287.02019-04-23 04:05:57G§â]) 5     3LIML 230350Z 08003KT 020V110 6000 -RA BKN020 12/11 Q1004 NOSIGLIML2019-04-23T03:50:00Z45.479.2712.011.08033.7329.64567TRUE-RAMVFRMETAR103.02019-04-23 04:05:57C§â\)5    3LIRA 230350Z 13013KT 9999 VCTS FEW020CB BKN025 16/10 Q1002LIRA2019-04-23T03:50:00Z41.812.5816.010.0130136.2129.586615VCTSMVFRMETAR101.02019-04-23 04:05:57 5-{Áø5=§âe({5    3LIPX 230350Z 05014KT 9000 -RA BKN030 BKN060 13/11 Q1005LIPX2019-04-23T03:50:00Z45.3810.8713.011.050145.5929.675198-RAMVFRMETAR68.02019-04-23 04:05:57C§âd)5     3LIPZ 230350Z 09016KT 3000 RA SCT005 SCT020 13/13 Q1006 NOSIGLIPZ2019-04-23T03:50:00Z45.512.3513.013.090161.8629.704725TRUERAIFRMETAR6.02019-04-23 04:05:574§âc(k5    3LIEA 230350Z 18014KT 9999 RA BKN030 14/13 Q0998LIEA2019-04-23T03:50:00Z40.628.2714.013.0180146.2129.468504RAMVFRMETAR23.02019-04-23 04:05:57,§âb(e5   3LIEE 230350Z 13008KT 9999 FEW030 15/14 Q1001LIEE2019-04-23T03:50:00Z39.259.0715.014.013086.2129.557087VFRMETAR4.02019-04-23 04:05:57M§âa)!5    3LIEO 230350Z VRB01KT 0200 R05/0450N R23/0450N FG FEW003 SCT010 13/13 Q0999LIEO2019-04-23T03:50:00Z40.889.5213.013.0010.1229.498032FGLIFRMETAR13.02019-04-23 04:05:57 7At­ì7/§âj(e5   3LICJ 230350Z 22009KT 8000 SCT020 18/11 Q1003LICJ2019-04-23T03:50:00Z38.1713.0818.011.022094.9729.616142MVFRMETAR34.02019-04-23 04:05:57;§âi({5    3LIPE 230350Z 10006KT 6000 -RA BKN006 BKN020 13/12 Q1003LIPE2019-04-23T03:50:00Z44.5211.313.012.010063.7329.616142-RAIFRMETAR42.02019-04-23 04:05:57A§âh(}5     3LIPH 230350Z AUTO 04010KT 5000 -RA OVC006/// 13/12 Q1007LIPH2019-04-23T03:50:00Z45.6312.1713.012.040103.1129.734253TRUE-RAIFRMETAR23.02019-04-23 04:05:57G§âg)5     3LIPQ 230350Z AUTO 16002KT 9999 -RA OVC033/// 13/12 Q1009 RERALIPQ2019-04-23T03:50:00Z45.8213.4713.012.016026.2129.793306TRUE-RAVFRMETAR12.02019-04-23 04:05:579§âf(u5    3LIPR 230350Z AUTO 10006KT 9000 OVC009/// 14/13 Q1004LIPR2019-04-23T03:50:00Z44.0212.6214.013.010065.5929.64567TRUEIFRMETAR13.02019-04-23 04:05:57 sD–Ü&s-§âo(e5    3EBOS 230350Z 09009KT CAVOK 12/04 Q0999 NOSIGEBOS2019-04-23T03:50:00Z51.22.8712.04.09096.2129.498032TRUEVFRMETAR5.02019-04-23 04:05:570§ân(e5    3ELLX 230350Z 04011KT CAVOK 12/01 Q0999 NOSIGELLX2019-04-23T03:50:00Z49.636.212.01.040116.2129.498032TRUEVFRMETAR379.02019-04-23 04:05:574§âm(k5  3LIBD 230350Z 19018G33KT 9999 FEW030 16/10 Q1005LIBD2019-04-23T03:50:00Z41.1216.7716.010.019018336.2129.675198VFRMETAR44.02019-04-23 04:05:57(§âl(Y5   3LIBR 230350Z 16011KT CAVOK 16/09 Q1010LIBR2019-04-23T03:50:00Z40.6517.9516.09.0160116.2129.822834VFRMETAR10.02019-04-23 04:05:576§âk(s5   3LICC 230350Z 05013KT 8000 SCT019 BKN035 16/14 Q1006LICC2019-04-23T03:50:00Z37.4715.0516.014.050134.9729.704725MVFRMETAR17.02019-04-23 04:05:57 jJ”â0j@§ât({5     3LOWK 230350Z AUTO 31002KT 9999 OVC070 09/04 Q1009 NOSIGLOWK2019-04-23T03:50:00Z46.6514.329.04.031026.2129.793306TRUETRUEVFRMETAR441.02019-04-23 04:05:57,§âs(c5    3EBAW 230350Z AUTO 08006KT CAVOK 11/02 Q1000EBAW2019-04-23T03:50:00Z51.24.4711.02.08066.2129.52756TRUEVFRMETAR14.02019-04-23 04:05:57,§âr(e5    3EBBR 230350Z 09005KT CAVOK 11/03 Q1000 NOSIGEBBR2019-04-23T03:50:00Z50.94.511.03.09056.2129.52756TRUEVFRMETAR58.02019-04-23 04:05:570§âq(e5    3EBCI 230350Z 06008KT CAVOK 10/04 Q0999 NOSIGEBCI2019-04-23T03:50:00Z50.474.4510.04.06086.2129.498032TRUEVFRMETAR192.02019-04-23 04:05:570§âp(e5    3EBLG 230350Z 08004KT CAVOK 12/02 Q0999 NOSIGEBLG2019-04-23T03:50:00Z50.635.4512.02.08046.2129.498032TRUEVFRMETAR178.02019-04-23 04:05:57 2>m¶ÿ2G§ây) 5    3LOWW 230350Z 11012KT 9999 FEW015 SCT130 BKN240 09/06 Q1011 NOSIGLOWW2019-04-23T03:50:00Z48.1216.579.06.0110126.2129.852362TRUEVFRMETAR190.02019-04-23 04:05:571§âx(e5    3LOWL 230350Z 09017KT CAVOK 12/04 Q1004 NOSIGLOWL2019-04-23T03:50:00Z48.2214.1812.04.090176.2129.64567TRUEVFRMETAR313.02019-04-23 04:05:571§âw(e5    3LOWS 230350Z 32004KT CAVOK 08/03 Q1001 NOSIGLOWS2019-04-23T03:50:00Z47.7813.028.03.032046.2129.557087TRUEVFRMETAR430.02019-04-23 04:05:57K§âv)5   3LOWI 230350Z 07008KT 010V180 9999 FEW070 BKN120 15/01 Q1003 TEMPO 27007KTLOWI2019-04-23T03:50:00Z47.2711.3315.01.07086.2129.616142VFRMETAR581.02019-04-23 04:05:57<§âu(5    3LOWG 230350Z VRB02KT 9999 SCT060 BKN080 10/04 Q1010 NOSIGLOWG2019-04-23T03:50:00Z47.015.4210.04.0026.2129.822834TRUEVFRMETAR347.02019-04-23 04:05:57 dD‹Ðd4§â~(k5    3ESKM 230350Z AUTO 32003KT 9999 NCD 02/M00 Q1023ESKM2019-04-23T03:50:00Z60.9714.522.00.032036.2130.206694TRUEVFRMETAR193.02019-04-23 04:05:57,§â}(c5   3ESNV 230350Z 00000KT 9999 NSC M01/M03 Q1019ESNV2019-04-23T03:50:00Z64.5816.83-1.0-3.0006.2130.088583VFRMETAR348.02019-04-23 04:05:575§â|(w5   3ESST 230350Z AUTO 00000KT 9999 ///////// 01/M00 Q1024ESST2019-04-23T03:50:00Z60.1512.981.00.0006.2130.236221TRUEMETAR120.02019-04-23 04:05:573§â{(i5    3ESUP 230350Z AUTO 21005KT 9999 NCD 07/01 Q1013ESUP2019-04-23T03:50:00Z67.2523.077.01.021056.2129.911417TRUEVFRMETAR165.02019-04-23 04:05:576§âz(m5    3ESND 230350Z AUTO 09002KT 9999 NCD M01/M02 Q1022ESND2019-04-23T03:50:00Z62.0514.42-1.0-2.09026.2130.177166TRUEVFRMETAR359.02019-04-23 04:05:57 GŒá/*§ã(e5   3LGLM 230350Z 00000KT 9999 SCT025 12/07 Q1021LGLM2019-04-23T03:50:00Z39.9225.2312.07.0006.2130.147638VFRMETAR5.02019-04-23 04:05:57,§ã(e5   3LGSA 230350Z 00000KT 9999 FEW025 10/09 Q1019LGSA2019-04-23T03:50:00Z35.5324.1310.09.0006.2130.088583VFRMETAR135.02019-04-23 04:05:57%§ã(Y5   3LGSM 230350Z 01006KT CAVOK 13/08 Q1021LGSM2019-04-23T03:50:00Z37.6826.9213.08.01066.2130.147638VFRMETAR6.02019-04-23 04:05:575§ã(q5    3LGTS 230350Z VRB02KT 9999 FEW025 13/10 Q1021 NOSIGLGTS2019-04-23T03:50:00Z40.5222.9713.010.0026.2130.147638TRUEVFRMETAR7.02019-04-23 04:05:573§â(i5    3ESGR 230350Z AUTO 14003KT 9999 NCD 02/01 Q1024ESGR2019-04-23T03:50:00Z58.4513.972.01.014036.2130.236221TRUEVFRMETAR105.02019-04-23 04:05:57 ~V¤óA~=§ã)5   3LGSR 230350Z 36004KT 9999 FEW025 13/10 Q1021 RMK FEW180 BLULGSR2019-04-23T03:50:00Z36.425.4813.010.036046.2130.147638VFRMETAR40.02019-04-23 04:05:57,§ã(e5   3LGZA 230350Z 13006KT 9999 FEW020 15/04 Q1014LGZA2019-04-23T03:50:00Z37.7520.8715.04.013066.2129.940945VFRMETAR3.02019-04-23 04:05:57+§ã(e5   3LGAD 230350Z 00000KT 9999 FEW020 10/08 Q1015LGAD2019-04-23T03:50:00Z37.9221.2710.08.0006.2129.970472VFRMETAR12.02019-04-23 04:05:57,§ã(e5   3LGKL 230350Z 33004KT 9999 SCT080 11/04 Q1017LGKL2019-04-23T03:50:00Z37.0722.0211.04.033046.2130.029528VFRMETAR8.02019-04-23 04:05:57$§ã(Y5   3LGKO 230350Z 00000KT CAVOK 13/06 Q1020LGKO2019-04-23T03:50:00Z36.827.0813.06.0006.2130.11811VFRMETAR125.02019-04-23 04:05:57 Q=sà Q4§ã (s5   3LGEL 230350Z 36005KT 9999 FEW030 SCT070 10/05 Q1019LGEL2019-04-23T03:50:00Z38.0723.5510.05.036056.2130.088583VFRMETAR31.02019-04-23 04:05:572§ã (s5   3LGKV 230350Z 03004KT 9999 FEW035 BKN080 11/08 Q1023LGKV2019-04-23T03:50:00Z40.9224.6211.08.03046.2130.206694VFRMETAR5.02019-04-23 04:05:57*§ã (e5   3LGMT 230350Z 00000KT 9999 SCT035 13/05 Q1022LGMT2019-04-23T03:50:00Z39.0526.613.05.0006.2130.177166VFRMETAR17.02019-04-23 04:05:57D§ã )5   3LGPZ 230350Z 10004KT 9999 FEW025 14/12 Q1017 RMK SCT080 SCT180 BLULGPZ2019-04-23T03:50:00Z38.9220.7714.012.010046.2130.029528VFRMETAR4.02019-04-23 04:05:57=§ã )5   3LGRX 230350Z 04011KT 9999 SCT090 16/06 Q1015 RMK BKN180 BLULGRX2019-04-23T03:50:00Z38.1721.4216.06.040116.2129.970472VFRMETAR15.02019-04-23 04:05:57 TPŒÐT4§ã(}5   3ENSL 230350Z AUTO 12038KT 9999NDV NCD 09/06 Q1010 W05/S4ENSL2019-04-23T03:50:00Z58.371.99.06.01203829.822834TRUEMETAR50.02019-04-23 04:05:57<§ã) 5   3ENFB 230350Z AUTO 15041KT 9999NDV BKN210/// 11/04 Q1013 W///S4ENFB2019-04-23T03:50:00Z61.21.8311.04.01504129.911417TRUEMETAR10.02019-04-23 04:05:576§ã(}5   3ENSF 230350Z AUTO 16038KT 9999NDV NCD 12/04 Q1013 W///S4ENSF2019-04-23T03:50:00Z61.251.8512.04.01603829.911417TRUEMETAR10.02019-04-23 04:05:57>§ã) 5  3LOXZ 230350Z 03003KT 30KM FEW040SC SCT070SC BKN210CI 08/03 Q1008LOXZ2019-04-23T03:50:00Z47.214.758.03.030318.6429.763779METAR682.02019-04-23 04:05:57*§ã(e5   3LGAL 230350Z 05005KT 9999 FEW025 08/01 Q1024LGAL2019-04-23T03:50:00Z40.8525.958.01.05056.2130.236221VFRMETAR3.02019-04-23 04:05:57 TNšèT:§ã(5   3MMTO 230349Z 00000KT 7SM SCT200 12/08 A3039 RMK 8/002 HZYMMTO2019-04-23T03:49:00Z19.35-99.5712.08.0007.030.389763VFRMETAR2576.02019-04-23 04:05:57N§ã)!5   3PGRO 230350Z 09016KT 7SM SCT013 BKN100 28/22 A2988 RMK WIND DATA ESTIMATEDPGRO2019-04-23T03:50:00Z14.18145.2528.022.090167.029.878937VFRMETAR185.02019-04-23 04:05:57,§ã(g5   3ENLE 230350Z 10030KT CAVOK 09/06 Q1009 W08/S4ENLE2019-04-23T03:50:00Z56.533.229.06.0100306.2129.793306VFRMETAR3.02019-04-23 04:05:57.§ã(g5   3ENGC 230350Z 18038KT CAVOK 11/04 Q1014 W10/S4ENGC2019-04-23T03:50:00Z61.022.0211.04.0180386.2129.940945VFRMETAR10.02019-04-23 04:05:57,§ã(g5   3ENHE 230350Z 22031KT CAVOK 09/05 Q1015 W///S4ENHE2019-04-23T03:50:00Z65.332.339.05.0220316.2129.970472VFRMETAR1.02019-04-23 04:05:57 #8_–×#.§ã(_5   3KSEE 230347Z 27007KT 10SM SKC 18/11 A2996KSEE2019-04-23T03:47:00Z32.82-116.9718.011.0270710.029.958662VFRMETAR117.02019-04-23 04:05:579§ã(w5   3KPOC 230347Z 23006KT 10SM FEW120 16/12 A2999 RMK LASTKPOC2019-04-23T03:47:00Z34.1-117.7716.012.0230610.029.991142VFRMETAR308.02019-04-23 04:05:57C§ã({5    3KC07 230348Z AUTO 13003KT 10SM CLR 00/M01 A3030 RMK AO2KC072019-04-23T03:48:00Z40.35-106.70.0-1.0130310.030.301182TRUETRUEVFRMETAR3224.02019-04-23 04:05:57S§ã)5     3KCPW 230348Z AUTO 34007KT M1/4SM +SN OVC002 M02/M02 A3035 RMK AO2KCPW2019-04-23T03:48:00Z37.45-106.8-2.0-2.034070.2530.351377TRUETRUE+SNLIFRMETAR3584.02019-04-23 04:05:57B§ã({5     3FAKN 230349Z 09004KT 3000 BCFG OVC002 17/17 Q1023 NOSIGFAKN2019-04-23T03:49:00Z-25.3831.117.017.09041.8630.206694TRUEBCFGLIFRSPECI862.02019-04-23 04:05:57 1)m¸ø1A§ã!(y5    3K6I2 230345Z AUTO 16007KT 10SM CLR 15/08 A3009 RMK AO2K6I22019-04-23T03:45:00Z37.63-85.2515.08.0160710.030.088583TRUETRUEVFRMETAR264.02019-04-23 04:05:57:§ã (y5   3MMTC 230346Z 30009KT 10SM SCT250 27/00 A2995 RMK 8/008MMTC2019-04-23T03:46:00Z25.57-103.427.00.0300910.029.949802VFRMETAR1124.02019-04-23 04:05:57/§ã(k5   3MMCZ 230346Z 12003KT 7SM SKC 22/18 A3002 RMK SCMMCZ2019-04-23T03:46:00Z20.52-86.9222.018.012037.030.02067VFRMETAR5.02019-04-23 04:05:576§ã(w5   3MMUN 230346Z 08005KT 7SM SCT015 24/18 A3005 RMK 8/100MMUN2019-04-23T03:46:00Z21.02-86.8524.018.08057.030.050198VFRMETAR10.02019-04-23 04:05:57Q§ã)5    3MMMX 230346Z 28004KT 8SM SCT020 BKN080 21/07 A3032 NOSIG RMK 8/570 HZY CIMMMX2019-04-23T03:46:00Z19.42-99.0821.07.028048.030.318897TRUEVFRMETAR2238.02019-04-23 04:05:57 T-o°T'§ã&(]5   3MMCM 230345Z 00000KT 7SM SKC 26/17 A3001MMCM2019-04-23T03:45:00Z18.5-88.3326.017.0007.030.008858VFRMETAR12.02019-04-23 04:05:57)§ã%(]5   3MMMD 230345Z 07008KT 7SM SKC 25/19 A2999MMMD2019-04-23T03:45:00Z20.95-89.6525.019.07087.029.991142VFRMETAR10.02019-04-23 04:05:579§ã$(u5    3LHKE 230345Z 08010KT CAVOK 08/05 Q1015 NOSIG RMK BLULHKE2019-04-23T03:45:00Z46.9219.758.05.080106.2129.970472TRUEVFRMETAR115.02019-04-23 04:05:578§ã#(u5    3LHSN 230345Z 08012KT CAVOK 07/05 Q1015 NOSIG RMK BLULHSN2019-04-23T03:45:00Z47.1220.237.05.080126.2129.970472TRUEVFRMETAR98.02019-04-23 04:05:57M§ã")5     3K7BM 230345Z AUTO 13009KT 10SM -SN OVC011 02/01 A3029 RMK AO2K7BM2019-04-23T03:45:00Z38.78-106.222.01.0130910.030.28937TRUETRUE-SNMVFRMETAR2995.02019-04-23 04:05:57 ?z·ãE§ã+) 5    3KATW 230345Z 03014KT 7SM -RA SCT007 OVC030 07/06 A2986 RMK LASTKATW2019-04-23T03:45:00Z44.27-88.527.06.030147.029.861221-RAMVFRMETAR280.02019-04-23 04:05:57N§ã*) 5    3KGNB 230345Z AUTO 33005KT 10SM CLR 03/00 A3025 RMK AO2 T00281004KGNB2019-04-23T03:45:00Z40.08-105.922.8-0.4330510.030.250984TRUETRUEVFRMETAR2500.02019-04-23 04:05:57=§ã)(5   3MMMM 230345Z 22006KT 6SM SCT230 23/04 A3018 RMK 8/002 HZYMMMM2019-04-23T03:45:00Z19.85-101.0223.04.022066.030.180119VFRMETAR1833.02019-04-23 04:05:57?§ã()5   3MMSP 230345Z 00000KT 8SM FEW030 SCT230 22/10 A3015 RMK 8/401MMSP2019-04-23T03:45:00Z22.25-100.9322.010.0008.030.15059VFRMETAR1903.02019-04-23 04:05:57;§ã'(5   3MMTJ 230345Z 00000KT 8SM FEW020 14/12 A2999 RMK 8/500 HZYMMTJ2019-04-23T03:45:00Z32.53-116.9714.012.0008.029.991142VFRMETAR152.02019-04-23 04:05:57 Ë2s’ˁA§ã/)5   3MMLM 230343Z 17007KT 10SM SCT120 SCT220 22/14 A2988 RMK 8/021MMLM2019-04-23T03:43:00Z25.67-109.0722.014.0170710.029.878937VFRMETAR4.02019-04-23 04:05:57[§ã.)'5     3PAFB 230343Z 04006KT 6SM -RA FEW006 SCT025 OVC043 08/02 A2919 RMK AO2A SLP889PAFB2019-04-23T03:43:00Z64.83-147.628.02.04066.029.190945988.9TRUE-RAVFRSPECI137.02019-04-23 04:05:579§ã-(y5   3MMPR 230344Z 20006KT 12SM SCT090 24/20 A2992 RMK 8/030MMPR2019-04-23T03:44:00Z20.67-105.2524.020.0200612.029.920275VFRMETAR6.02019-04-23 04:05:57H§ã,)5     3LIRP 230345Z 10011KT 9999 -RA SCT020 BKN030 13/12 Q1001 NOSIGLIRP2019-04-23T03:45:00Z43.6710.3713.012.0100116.2129.557087TRUE-RAMVFRMETAR2.02019-04-23 04:05:57 2PˆÈ/§ã4(q5   3MMIA 230341Z 00000KT 8SM SKC 23/13 A3000 RMK 6////MMIA2019-04-23T03:41:00Z19.27-103.5723.013.0008.030.0VFRMETAR723.02019-04-23 04:05:57:§ã3(y5   3MMSD 230342Z 18004KT 10SM BKN250 22/16 A2994 RMK 8/008MMSD2019-04-23T03:42:00Z23.13-109.722.016.0180410.029.940945VFRMETAR109.02019-04-23 04:05:57B§ã2)5   3MMVR 230342Z 00000KT 6SM FEW010 24/22 A2994 RMK 8/100 HZY ISOL CIMMVR2019-04-23T03:42:00Z19.15-96.1824.022.0006.029.940945VFRMETAR16.02019-04-23 04:05:57\§ã1)A5   3RJAH 230342Z 14008KT 100V170 9999 FEW030 SCT040 BKN250 20/09 Q1020 RMK 1CU030 4CU040 A3014RJAH2019-04-23T03:42:00Z36.17140.4220.09.014086.2130.11811VFRMETAR35.02019-04-23 04:05:57H§ã0)5    3KC99 230343Z AUTO 00000KT 10SM OVC100 M02/M03 A3032 RMK AO2KC992019-04-23T03:43:00Z29.87-105.55-2.0-3.00010.030.318897TRUETRUEVFRMETAR3320.02019-04-23 04:05:57  7w³ì F§ã9)5   3MMAS 230340Z 27006KT 9SM BKN200 22/M06 A3019 RMK 8/008 HZY PRESRRMMAS2019-04-23T03:40:00Z21.7-102.3222.0-6.027069.030.188976VFRMETAR1863.02019-04-23 04:05:57A§ã8)5   3MMGL 230340Z 27011KT 10SM SCT100 23/M03 A3015 RMK 8/030 CIMMGL2019-04-23T03:40:00Z20.52-103.3223.0-3.02701110.030.15059VFRMETAR1528.02019-04-23 04:05:57>§ã7)5   3MMLO 230340Z 00000KT 8SM SCT080 BKN220 24/02 A3021 RMK 8/038MMLO2019-04-23T03:40:00Z21.0-101.4724.02.0008.030.209646VFRMETAR1819.02019-04-23 04:05:57:§ã6(y5   3MMLP 230341Z 20009KT 10SM SCT200 19/12 A2995 RMK 8/008MMLP2019-04-23T03:41:00Z24.07-110.3719.012.0200910.029.949802VFRMETAR21.02019-04-23 04:05:57C§ã5)5   3MMCS 230341Z 35008KT 10SM SCT030 SCT100 16/08 A2999 RMK 8/460MMCS2019-04-23T03:41:00Z31.62-106.4216.08.0350810.029.991142VFRMETAR1171.02019-04-23 04:05:57 (-bšê(<§ã>(}5   3MMTG 230340Z 31008KT 5SM SKC 27/15 A2995 RMK FU HZ ALQDSMMTG2019-04-23T03:40:00Z16.57-93.0327.015.031085.029.949802MVFRMETAR528.02019-04-23 04:05:57*§ã=(_5   3MMTP 230340Z 00000KT 10SM SKC 25/22 A2993MMTP2019-04-23T03:40:00Z14.77-92.3725.022.00010.029.929134VFRMETAR29.02019-04-23 04:05:57B§ã<(y5    3KMHV 230340Z AUTO 30009KT 10SM CLR 18/03 A3001 RMK A01KMHV2019-04-23T03:40:00Z35.07-118.1518.03.0300910.030.008858TRUETRUEVFRMETAR849.02019-04-23 04:05:57E§ã;(5    3KJSL 230340Z AUTO 11019KT 10SM FEW034 24/16 A3007 RMK A01KJSL2019-04-23T03:40:00Z26.23-95.2524.016.01101910.030.070866TRUETRUEVFRMETAR10.02019-04-23 04:05:57M§ã:) 5    3KGZN 230340Z AUTO 15009KT 10SM BKN042 OVC050 20/15 A3001 RMK AO2KGZN2019-04-23T03:40:00Z32.37-99.0220.015.0150910.030.008858TRUETRUEVFRMETAR522.02019-04-23 04:05:57 HK™ÖHE§ãC) 5   3MMML 230340Z 29012KT 10SM FEW040 26/00 A2982 RMK 8/400 AC DSNT EMMML2019-04-23T03:40:00Z32.62-115.2326.00.02901210.029.819881VFRMETAR22.02019-04-23 04:05:57=§ãB)5   3MMMZ 230340Z 00000KT 10SM BKN240 20/19 A2992 RMK 8/002 HZYMMMZ2019-04-23T03:40:00Z23.17-106.2720.019.00010.029.920275VFRMETAR10.02019-04-23 04:05:57=§ãA(5   3MMAN 230340Z 12009KT 7SM BKN200 23/16 A2996 RMK 8/001 HZYMMAN2019-04-23T03:40:00Z25.87-100.2323.016.012097.029.958662VFRMETAR448.02019-04-23 04:05:57,§ã@(_5   3MMCU 230340Z 18007KT 10SM SKC 19/01 A2998MMCU2019-04-23T03:40:00Z28.7-105.9719.01.0180710.029.97933VFRMETAR1372.02019-04-23 04:05:57/§ã?(_5   3MMMY 230340Z 12010KT 10SM SKC 23/17 A2992MMMY2019-04-23T03:40:00Z25.77-100.0823.017.01201010.029.920275VFRMETAR387.02019-04-23 04:05:57 !:…ºø!Q§ãH)'5   3VEBD 230330Z 10004KT 6000 FEW025 FEW030TCU BKN100 28/18 Q1012 TEMPO 3000 TSRAVEBD2019-04-23T03:30:00Z26.6888.3328.018.010043.7329.88189MVFRMETAR126.02019-04-23 04:05:57<§ãG(q5   3VEGK 230330Z 12010G20KT 6000 SKC 29/20 Q1009 NOSIGVEGK2019-04-23T03:30:00Z26.7583.3729.020.012010203.7329.793306TRUEMVFRMETAR77.02019-04-23 04:05:57E§ãF)5     3VEDG 230330Z 12004KT 4000 HZ FEW020 SCT100 32/19 Q1010 NOSIGVEDG2019-04-23T03:30:00Z23.6287.2532.019.012042.4929.822834TRUEHZIFRMETAR91.02019-04-23 04:05:57/§ãE(k5     3VILH 230330Z 10003KT 9999 SKC 12/-1 Q1031 NOSIGVILH2019-04-23T03:30:00Z34.1377.5510036.2130.442913TRUEVFRMETAR3256.02019-04-23 04:05:57@§ãD)5   3MMCL 230340Z 00000KT 10SM FEW140 OVC250 23/17 A2989 RMK 8/037MMCL2019-04-23T03:40:00Z24.77-107.4723.017.00010.029.890747VFRMETAR39.02019-04-23 04:05:57 IC…È I;§ãM(q5    3VISR 230330Z 30003KT 6000 SCT200 18/10 Q1021 NOSIGVISR2019-04-23T03:30:00Z33.9774.7718.010.030033.7330.147638TRUEMVFRMETAR1666.02019-04-23 04:05:578§ãL(q5    3VIJU 230330Z VRB02KT 6000 FEW250 30/17 Q1007 NOSIGVIJU2019-04-23T03:30:00Z32.6874.8330.017.0023.7329.734253TRUEMVFRMETAR314.02019-04-23 04:05:577§ãK(k5    3VICG 230330Z 15005KT 6000 SKC 31/16 Q1009 NOSIGVICG2019-04-23T03:30:00Z30.6776.7831.016.015053.7329.793306TRUEMVFRMETAR308.02019-04-23 04:05:578§ãJ(q5     3VIGR 230330Z VRB02KT 4500 DU SKC 36/11 Q1008 NOSIGVIGR2019-04-23T03:30:00Z26.2878.2236.011.0022.829.763779TRUEDUIFRMETAR189.02019-04-23 04:05:577§ãI(k5    3VIAG 230330Z 17005KT 6000 SKC 35/13 Q1007 NOSIGVIAG2019-04-23T03:30:00Z27.1377.9735.013.017053.7329.734253TRUEMVFRMETAR169.02019-04-23 04:05:57 =q¦Ü:§ãR(}5    3CWEE 230300Z AUTO M01/M06 RMK AO1 SLP258 T10141056 58006CWEE2019-04-23T03:00:00Z49.27-73.33-1.4-5.61025.8TRUETRUE-0.6METAR305.02019-04-23 04:05:57D§ãQ) 5    3CWIX 230300Z AUTO 00000KT M02/M04 RMK AO1 SLP250 T10191036 58006CWIX2019-04-23T03:00:00Z48.6-71.72-1.9-3.6001025.0TRUETRUE-0.6METAR113.02019-04-23 04:05:57E§ãP) 5    3CWDT 230300Z AUTO 36005KT 02/M10 RMK AO1 SLP276 T00201096 58005CWDT2019-04-23T03:00:00Z49.88-71.252.0-9.636051027.6TRUETRUE-0.5METAR399.02019-04-23 04:05:57F§ãO) 5    3CWKD 230300Z AUTO 26002KT M05/M08 RMK AO1 SLP290 T10531084 50001CWKD2019-04-23T03:00:00Z50.73-71.02-5.3-8.426021029.0TRUETRUE0.1METAR497.02019-04-23 04:05:57=§ãN(w5     3VEBN 230330Z 05011KT 3000 HZ FEW100 29/21 Q1007 NOSIGVEBN2019-04-23T03:30:00Z25.4582.8529.021.050111.8629.734253TRUEHZIFRMETAR83.02019-04-23 04:05:57 ½+fŸ½\§ãV)5     3CYPD 230410Z AUTO 10005KT 5SM -RA BR SCT003 OVC013 06/06 A3022 RMK SLP238CYPD2019-04-23T04:10:00Z45.67-61.376.06.010055.030.2214571023.8TRUE-RA BRMVFRSPECI114.02019-04-23 04:13:16A§ãU(y5    3K2G4 230410Z AUTO 29003KT 10SM CLR 11/03 A3016 RMK AO1K2G42019-04-23T04:10:00Z39.58-79.3311.03.0290310.030.159449TRUETRUEVFRMETAR894.02019-04-23 04:13:16?§ãT(y5    3KFDK 230410Z AUTO 00000KT 10SM CLR 12/10 A3011 RMK AO2KFDK2019-04-23T04:10:00Z39.42-77.3712.010.00010.030.109253TRUETRUEVFRMETAR92.02019-04-23 04:13:16O§ãS) 5     3CYVO 230411Z AUTO 06005KT 9SM -RA OVC055 04/M05 A3017 RMK SLP236CYVO2019-04-23T04:11:00Z48.07-77.774.0-5.06059.030.1712591023.6TRUE-RAVFRSPECI337.02019-04-23 04:13:16 [*1F[e§ãZ)%5       3PAMY 230410Z AUTO 9SM -SN SCT024 OVC030 M04/M09 A2964 RMK AO2 P0000 FZRANO $PAMY2019-04-23T04:10:00Z60.37-166.27-4.0-9.09.029.639763TRUETRUETRUETRUE-SNMVFR0.005METAR13.02019-04-23 04:13:16e§ãY)95  3CYXY 230410Z 21018G29KT 40SM FEW040 SCT130 02/M13 A2946 RMK SC1AC4 SC TR PRESRR SLP008CYXY2019-04-23T04:10:00Z60.72-135.072.0-13.0210182940.029.4596461000.8VFRSPECI703.02019-04-23 04:13:16s§ãX)C5    3PANA 230410Z AUTO 28011G17KT 2SM BR BKN011 BKN022 OVC037 M05/M07 A2959 RMK AO2 PWINO FZRANOPANA2019-04-23T04:10:00Z60.68-161.98-5.0-7.028011172.029.589567TRUETRUETRUETRUEBRIFRMETAR5.02019-04-23 04:13:16P§ãW)5    3KMIW 230410Z AUTO 32014KT 10SM OVC010 09/08 A2999 RMK AO2 T00890083KMIW2019-04-23T04:10:00Z42.12-92.928.98.33201410.029.991142TRUETRUEMVFRMETAR296.02019-04-23 04:13:16 –De–I§ã^) 5    3FALE 230409Z 30002KT 9999 FEW004 BKN006 OVC028 20/19 Q1019 NOSIGFALE2019-04-23T04:09:00Z-29.6231.1220.019.030026.2130.088583TRUEIFRSPECI109.02019-04-23 04:13:16Y§ã])+5    3LEVX 230409Z 19006KT 0500 R19/P2000 R01/1500D BCFG VV001 07/07 Q0994 TEMPO 4000LEVX2019-04-23T04:09:00Z42.22-8.627.07.019060.3129.350393BCFGLIFR100METAR256.02019-04-23 04:13:16K§ã\)5    3CYPH 230409Z AUTO 29008KT 9SM SCT013 M13/M15 A3036 RMK SLP286CYPH2019-04-23T04:09:00Z58.45-78.08-13.0-15.029089.030.3602371028.6TRUEVFRSPECI3.02019-04-23 04:13:16e§ã[))5       3PAIN 230410Z 20003KT 3SM -SN BR FEW015 OVC022 01/00 A2921 RMK AO2 P0000 FZRANOPAIN2019-04-23T04:10:00Z63.73-148.921.00.020033.029.208662TRUETRUE-SN BRMVFR0.005METAR524.02019-04-23 04:13:16 X)RCXe§ãb)35      3KTAD 230409Z AUTO 05006KT 7SM -RA SCT025 OVC031 08/07 A3024 RMK AO2 P0001 T00780067KTAD2019-04-23T04:09:00Z37.27-104.337.86.75067.030.239174TRUETRUE-RAVFR0.01METAR1756.02019-04-23 04:13:16‚ §ãa)k5     3KCDS 230409Z AUTO 03010G16KT 4SM +RA BR FEW005 BKN040 OVC060 16/15 A3005 RMK AO2 LTG DSNT ALQDS P0008 T01560150KCDS2019-04-23T04:09:00Z34.43-100.2815.615.03010164.030.050198TRUETRUE+RA BRMVFR0.08METAR594.02019-04-23 04:13:16Q§ã`)5     3KASX 230409Z AUTO 03003KT 2SM BR OVC002 03/03 A3010 RMK AO2 T00280028KASX2019-04-23T04:09:00Z46.55-90.922.82.83032.030.100393TRUETRUEBRLIFRMETAR251.02019-04-23 04:13:16Q§ã_)5   3LEJR 230409Z 30016G26KT 270V330 6000 RA SCT006 BKN030 BKN048 12/11 Q1001LEJR2019-04-23T04:09:00Z36.75-6.0712.011.030016263.7329.557087RAMVFRSPECI30.02019-04-23 04:13:16 _'<__z§ãf)a5      3PACV 230408Z 13008KT 3SM R27/5000VP6000FT -SN BR BKN013 BKN039 OVC046 01/M01 A2958 RMK AO2 P0001 T00111011PACV2019-04-23T04:08:00Z60.5-145.471.1-1.113083.029.58071TRUE-SN BRMVFR0.01METAR12.02019-04-23 04:13:16W§ãe)5     3PAUN 230408Z AUTO 26006KT 10SM BKN029 OVC065 00/M04 A2946 RMK AO2 FZRANOPAUN2019-04-23T04:08:00Z63.88-160.80.0-4.0260610.029.459646TRUETRUETRUEMVFRSPECI6.02019-04-23 04:13:16e§ãd)+5     3KMTW 230408Z AUTO 02007G16KT 4SM +RA BR SCT006 OVC065 07/06 A2986 RMK AO2 P0011KMTW2019-04-23T04:08:00Z44.12-87.677.06.0207164.029.861221TRUETRUE+RA BRMVFR0.11SPECI198.02019-04-23 04:13:16S§ãc)%5    3PASI 230409Z 17011KT 10SM SCT027 BKN039 OVC047 06/02 A2993 RMK AO2 T00610022PASI2019-04-23T04:09:00Z57.07-135.356.12.21701110.029.929134TRUEVFRMETAR5.02019-04-23 04:13:16 ñ÷w§ãj)A5       3PPIT 230407Z AUTO 28014KT 2SM -SN BR FEW010 OVC033 M06/M07 A2956 RMK AO2 P0000 FZRANO TSNOPPIT2019-04-23T04:07:00Z60.9-162.43-6.0-7.0280142.029.56004TRUETRUETRUETRUE-SN BRIFR0.005SPECI4.02019-04-23 04:13:16]§ãi)/5     3LEMO 230407Z 20016KT 160V240 4000 +SHRA FEW010TCU SCT014 BKN024 14/12 Q1000 NOSIGLEMO2019-04-23T04:07:00Z37.17-5.6214.012.0200162.4929.52756TRUE+SHRAIFRMETAR88.02019-04-23 04:13:16t§ãh)G5      3KFIT 230408Z AUTO 34008KT 3SM +RA BR SCT011 BKN016 OVC030 13/12 A2996 RMK AO2 P0007 T01330117KFIT2019-04-23T04:08:00Z42.55-71.7513.311.734083.029.958662TRUETRUE+RA BRMVFR0.07METAR103.02019-04-23 04:13:16‚ §ãg)o5     3KLNR 230408Z AUTO 01016G27KT 5SM RA BR FEW032 SCT046 OVC080 13/11 A2983 RMK AO2 PK WND 02027/0403 P0004 T01280106KLNR2019-04-23T04:08:00Z43.22-90.1812.810.61016275.029.828741TRUETRUERA BRMVFR0.04METAR217.02019-04-23 04:13:16 ÕìՂ§ãm)‚5    3KUGN 230407Z AUTO 20019G29KT 10SM VCTS SCT060 BKN095 OVC110 21/11 A2978 RMK AO2 PK WND 18029/0405 LTG DSNT N AND NW T02060111KUGN2019-04-23T04:07:00Z42.42-87.8720.611.1200192910.029.778543TRUETRUEVCTSVFRSPECI222.02019-04-23 04:13:16‚§ãl)‚5      3KENW 230407Z AUTO 19013KT 4SM -TSRA FEW022 BKN070 OVC090 18/16 A2977 RMK AO2 PK WND 21036/0356 LTG DSNT N AND NW TSB00 P0019 T01830156KENW2019-04-23T04:07:00Z42.6-87.9318.315.6190134.029.769686TRUETRUE-TSRAMVFR0.19SPECI219.02019-04-23 04:13:16l§ãk)?5      3KBOS 230407Z 02010KT 3SM RA BR FEW007 BKN016 OVC040 10/08 A2993 RMK AO2 P0002 T01000083 $KBOS2019-04-23T04:07:00Z42.37-71.0210.08.320103.029.929134TRUETRUERA BRMVFR0.02SPECI6.02019-04-23 04:13:16 ˆ.G^ˆP§ãq)5    3K0CO 230406Z AUTO 29007KT 231V331 OVC100 M05/M10 A3036 RMK AO2 PWINOK0CO2019-04-23T04:06:00Z39.8-105.77-5.0-10.0290730.360237TRUETRUETRUEMETAR3807.02019-04-23 04:13:16c§ãp)95     3KPVC 230406Z AUTO 00000KT 1 1/2SM BR BKN001 OVC012 06/06 A2991 RMK AO2 VIS 3/4V5 PNO $KPVC2019-04-23T04:06:00Z42.07-70.226.06.0001.529.911417TRUETRUETRUEBRLIFRSPECI2.02019-04-23 04:13:16a§ão)-5     3CYHE 230406Z AUTO 22006KT 6SM -RA BR BKN008 BKN015 OVC035 09/08 A3018 RMK SLP221CYHE2019-04-23T04:06:00Z49.37-121.59.08.022066.030.1801191022.1TRUE-RA BRIFRSPECI39.02019-04-23 04:13:16L§ãn)5   3CWRX 230406Z AUTO 28014KT ////SM //// BKN004 BKN016 OVC026 M21/M24 A2992CWRX2019-04-23T04:06:00Z69.07-79.02-21.0-24.02801429.920275TRUESPECI41.02019-04-23 04:13:16 Îãò΂§ãt)‚55     3KFWA 230406Z 19006KT 10SM TS FEW045CB FEW080 OVC150 16/11 A3000 RMK AO2 LTG DSNT S AND W TSB05 OCNL LTGICCCCG VC SW-NW TS VC SW-NW MOV E T01610106 $KFWA2019-04-23T04:06:00Z40.98-85.1816.110.6190610.030.0TRUETRUETSVFRSPECI248.02019-04-23 04:13:16k§ãs)K5    3KCNM 230406Z AUTO 02009KT 10SM FEW038 SCT050 BKN080 14/12 A3002 RMK AO2 LTG DSNT N-SE T01440122KCNM2019-04-23T04:06:00Z32.33-104.2514.412.220910.030.02067TRUETRUEVFRSPECI985.02019-04-23 04:13:16‚§ãr)‚5     3KRAC 230406Z AUTO 17012G22KT 10SM VCTS -RA SCT060 BKN080 BKN095 18/10 A2979 RMK AO2 LTG DSNT ALQDS RAB0358 P0000 T01780100KRAC2019-04-23T04:06:00Z42.77-87.8217.810.0170122210.029.790354TRUETRUEVCTS -RAVFR0.005SPECI203.02019-04-23 04:13:16 BþBJ§ãx) 5    3KGWW 230405Z AUTO 00000KT 10SM CLR 11/11 A3013 RMK AO2 T01120112KGWW2019-04-23T04:05:00Z35.47-77.9711.211.20010.030.129921TRUETRUEVFRMETAR41.02019-04-23 04:13:16f§ãw)/5     3KSFM 230405Z AUTO 01012KT 3SM -RA BR OVC006 12/11 A2999 RMK AO2 CIG 004V010 PNO $KSFM2019-04-23T04:05:00Z43.38-70.7212.011.010123.029.991142TRUETRUETRUE-RA BRIFRMETAR74.02019-04-23 04:13:16‚§ãv)c5    3KTIK 230406Z AUTO 03003KT 10SM BKN029 BKN036 BKN055 19/18 A3005 RMK AO2 BKN029 V OVC CIG 026 RWY13 SLP174 $KTIK2019-04-23T04:06:00Z35.42-97.3719.018.030310.030.0501981017.4TRUETRUETRUEMVFRMETAR394.02019-04-23 04:13:16t§ãu)M5    3KRND 230406Z AUTO 12003KT 10SM BKN014 BKN020 20/18 A3004 RMK AO2 CIG 014V020 BKN014 V SCT SLP167KRND2019-04-23T04:06:00Z29.52-98.2720.018.0120310.030.0413381016.7TRUETRUEMVFRMETAR232.02019-04-23 04:13:16 (íð(a§ã|)'5      3KSAF 230405Z AUTO 27008KT 10SM -RA OVC029 08/06 A3015 RMK AO2 P0000 T00780061KSAF2019-04-23T04:05:00Z35.62-106.17.86.1270810.030.15059TRUETRUE-RAMVFR0.005SPECI1930.02019-04-23 04:13:16[§ã{)'5   3KWST 230405Z AUTO 35012G19KT 10SM SCT018 OVC070 14/12 A2992 RMK AO2 T01440117KWST2019-04-23T04:05:00Z41.35-71.814.411.7350121910.029.920275TRUETRUEVFRSPECI21.02019-04-23 04:13:16w§ãz)E5       3PFKW 230405Z AUTO 23010KT 3SM -SN BR FEW010 BKN014 OVC019 M05/M07 A2957 RMK AO2 P0000 FZRANOPFKW2019-04-23T04:05:00Z60.8-161.43-5.0-7.0230103.029.568897TRUETRUETRUE-SN BRMVFR0.005METAR8.02019-04-23 04:13:16‚ §ãy)m5       3PPIZ 230405Z AUTO 02023KT 1/2SM -SN FZFG OVC009 M09/M11 A2994 RMK AO2 PK WND 02027/0359 CIG 006V013 P0000 FZRANOPPIZ2019-04-23T04:05:00Z69.73-163.0-9.0-11.020230.529.940945TRUETRUETRUE-SN FZFGLIFR0.005METAR8.02019-04-23 04:13:16 Ç(e—ǁJ§ä) 5    3KGEV 230405Z AUTO 00000KT 10SM CLR 15/06 A3019 RMK AO2 T01500056KGEV2019-04-23T04:05:00Z36.43-81.4215.05.60010.030.188976TRUETRUEVFRMETAR969.02019-04-23 04:13:16H§ã) 5    3KHBI 230405Z AUTO 00000KT 10SM CLR 12/09 A3015 RMK AO2 T01210086KHBI2019-04-23T04:05:00Z35.65-79.912.18.60010.030.15059TRUETRUEVFRMETAR205.02019-04-23 04:13:16=§ã~(y5    3KPGV 230405Z AUTO 00000KT 10SM CLR 12/12 A3014 RMK AO2KPGV2019-04-23T04:05:00Z35.62-77.412.012.00010.030.138779TRUETRUEVFRMETAR8.02019-04-23 04:13:16R§ã})5    3KHSD 230405Z AUTO 01003KT 10SM FEW026 SCT034 OVC060 18/15 A3007 RMK A01KHSD2019-04-23T04:05:00Z35.6-97.7218.015.010310.030.070866TRUETRUEVFRMETAR364.02019-04-23 04:13:16 Õ<kšÕ?§ä(y5    3KJNX 230405Z AUTO 00000KT 10SM CLR 11/11 A3013 RMK AO2KJNX2019-04-23T04:05:00Z35.53-78.3811.011.00010.030.129921TRUETRUEVFRMETAR50.02019-04-23 04:13:16K§ä)5   3SBMQ 230405Z 04012G22KT 3000 -RA BKN008 FEW023TCU OVC080 25/25 Q1012SBMQ2019-04-23T04:05:00Z0.05-51.0725.025.04012221.8629.88189-RAIFRMETAR15.02019-04-23 04:13:16K§ä) 5    3K1A5 230405Z AUTO 00000KT 10SM CLR 10/10 A3022 RMK AO2 T01020102K1A52019-04-23T04:05:00Z35.22-83.4210.210.20010.030.221457TRUETRUEVFRMETAR616.02019-04-23 04:13:16>§ä(y5    3KCGE 230405Z AUTO 00000KT 10SM CLR 13/12 A3007 RMK A01KCGE2019-04-23T04:05:00Z38.53-76.0313.012.00010.030.070866TRUETRUEVFRMETAR6.02019-04-23 04:13:16 .-1,.x§ä)E5       3PAOO 230404Z AUTO 25019KT 2SM -SN BR SCT018 BKN025 OVC031 M06/M08 A2961 RMK AO2 P0000 FZRANOPAOO2019-04-23T04:04:00Z60.53-165.12-6.0-8.0250192.029.610237TRUETRUETRUE-SN BRIFR0.005METAR18.02019-04-23 04:13:16§ä)Q5       3PAQT 230405Z AUTO 08014KT 2 1/2SM -FZRA BR OVC008 M09/M10 A2989 RMK AO2 P0000 I1000 T10941100 TSNOPAQT2019-04-23T04:05:00Z70.22-151.0-9.4-10.080142.529.890747TRUETRUETRUE-FZRA BRIFR0.005SPECI12.02019-04-23 04:13:16v§ä)E5       3PATO 230405Z AUTO 07006KT 5SM -SN BR FEW007 BKN016 01/M01 A2947 RMK AO2 P0000 T00061006 TSNOPATO2019-04-23T04:05:00Z60.78-148.850.6-0.67065.029.471457TRUETRUETRUE-SN BRMVFR0.005METAR31.02019-04-23 04:13:16M§ä)5     3KMEB 230405Z AUTO 00000KT 2SM BR CLR 12/11 A3014 RMK AO2 T01220106KMEB2019-04-23T04:05:00Z34.78-79.3712.210.6002.030.138779TRUETRUEBRIFRSPECI67.02019-04-23 04:13:16 ±+Vt±=§ä (y5    3KEVM 230404Z AUTO 00000KT 10SM CLR 02/00 A3013 RMK AO2KEVM2019-04-23T04:04:00Z47.42-92.52.00.00010.030.129921TRUETRUEVFRMETAR421.02019-04-23 04:13:16\§ä )-5    3KFDR 230404Z AUTO 08008KT 10SM BKN120 19/18 A2997 RMK AO2 LTG DSNT W-N T01940183KFDR2019-04-23T04:04:00Z34.35-98.9819.418.380810.029.970472TRUETRUEVFRMETAR386.02019-04-23 04:13:16O§ä )5    3KLNK 230404Z AUTO 36008KT 10SM OVC017 11/07 A3015 RMK AO2 T01060072KLNK2019-04-23T04:04:00Z40.85-96.7710.67.2360810.030.15059TRUETRUEMVFRSPECI364.02019-04-23 04:13:16O§ä )5     3KPQL 230404Z AUTO 00000KT 1/2SM FG CLR 13/11 A3016 RMK AO2 T01280106KPQL2019-04-23T04:04:00Z30.47-88.5312.810.6000.530.159449TRUETRUEFGLIFRMETAR6.02019-04-23 04:13:16 ‘0a‘J§ä) 5    3SBSP 230404Z AUTO 15005KT 9999 FEW008 SCT010 OVC022 21/18 Q1019SBSP2019-04-23T04:04:00Z-23.62-46.6321.018.015056.2130.088583TRUEMVFRSPECI803.02019-04-23 04:13:16I§ä) 5    3KCGS 230404Z AUTO 00000KT 10SM CLR 11/09 A3007 RMK AO1 T01130090KCGS2019-04-23T04:04:00Z38.98-76.9211.39.00010.030.070866TRUETRUEVFRMETAR15.02019-04-23 04:13:16P§ä)5     3KACK 230404Z AUTO 06007KT 3SM BR OVC018 09/09 A2989 RMK AO2 T00940094KACK2019-04-23T04:04:00Z41.25-70.079.49.46073.029.890747TRUETRUEBRMVFRSPECI16.02019-04-23 04:13:16t§ä )O5      3KAUG 230404Z AUTO 01012KT 2 1/2SM -RA BR BKN007 BKN017 OVC023 09/09 A3006 RMK AO2 P0002 T00940089KAUG2019-04-23T04:04:00Z44.32-69.89.48.910122.530.059055TRUETRUE-RA BRIFR0.02SPECI109.02019-04-23 04:13:16 ©Hƒ©T§ä)5    3ETOU 230403Z 05007KT 9999 CLR 13/02 A2957 RMK A02A SLP012 T01280018 $ETOU2019-04-23T04:03:00Z50.038.3212.81.85076.2129.5688971001.2TRUETRUEVFRMETAR141.02019-04-23 04:13:16?§ä(y5    3K2W6 230403Z AUTO 00000KT 10SM CLR 12/10 A3010 RMK AO1K2W62019-04-23T04:03:00Z38.32-76.5512.010.00010.030.100393TRUETRUEVFRMETAR44.02019-04-23 04:13:16D§ä)5   3CWLI 230404Z AUTO 05030KT ////SM //// BKN002 OVC006 M09/M10 A2965CWLI2019-04-23T04:04:00Z69.58-130.9-9.0-10.0503029.648623TRUESPECI102.02019-04-23 04:13:16h§ä)/5      3KY50 230404Z AUTO 36011KT 10SM -RA OVC008 08/07 A2989 RMK AO2 CIG 005V011 P0000 $KY502019-04-23T04:04:00Z44.03-89.38.07.03601110.029.890747TRUETRUETRUE-RAIFR0.005METAR262.02019-04-23 04:13:16 gù+g>§ä(y5    3KROX 230403Z AUTO 04004KT 10SM CLR 08/03 A3014 RMK AO2KROX2019-04-23T04:03:00Z48.85-95.78.03.040410.030.138779TRUETRUEVFRMETAR323.02019-04-23 04:13:16e§ä)=5     3KDBQ 230403Z AUTO 27012KT 4SM BR BKN006 OVC014 15/14 A2986 RMK AO2 CIG 004V009 T01500139KDBQ2019-04-23T04:03:00Z42.4-90.715.013.9270124.029.861221TRUETRUEBRIFRMETAR326.02019-04-23 04:13:16]§ä)-5     3KHYA 230403Z AUTO 35007KT 1 1/4SM BR BKN002 OVC006 08/07 A2988 RMK AO2 T00780067KHYA2019-04-23T04:03:00Z41.67-70.277.86.735071.2529.878937TRUETRUEBRLIFRMETAR22.02019-04-23 04:13:16‚§ä)]5      3KROW 230403Z AUTO 36004KT 10SM VCTS -RA OVC070 16/11 A3009 RMK AO2 LTG DSNT ALQDS PRESRR P0001 T01560111KROW2019-04-23T04:03:00Z33.3-104.515.611.1360410.030.088583TRUETRUEVCTS -RAVFR0.01METAR1112.02019-04-23 04:13:16 S)4PSw§ä)M5     3KBEH 230402Z AUTO 18008G16KT 10SM VCTS BKN070 OVC085 19/09 A2989 RMK AO2 RAE0359 P0000 T01890094KBEH2019-04-23T04:02:00Z42.13-86.4218.99.418081610.029.890747TRUETRUEVCTSVFR0.005METAR191.02019-04-23 04:13:16^§ä)/5    3KGLS 230402Z AUTO 12014KT 10SM SCT009 BKN024 OVC031 21/19 A3005 RMK AO2 T02110194KGLS2019-04-23T04:02:00Z29.27-94.8721.119.41201410.030.050198TRUETRUEMVFRMETAR6.02019-04-23 04:13:16o§ä)E5     3CYZH 230403Z AUTO VRB02KT 9SM -RA VCTS BKN060 05/04 A2963 RMK LTNG DIST NE E S PRESFR SLP055CYZH2019-04-23T04:03:00Z55.28-114.775.04.0029.029.6309051005.5TRUE-RA VCTSVFRSPECI581.02019-04-23 04:13:16Q§ä)%5    3FMMT 230403Z 25006KT 3000 -RA SCT007 BKN017TCU BKN033 24/24 Q1012 TEMPO 5000FMMT2019-04-23T04:03:00Z-18.1249.3824.024.025061.8629.88189-RAIFRSPECI6.02019-04-23 04:13:16Y8J8@HPX`hpx€ˆ˜ ¨°¸ÀÈÐØàèðø (08@HPX`hpx€ˆ˜ ¨°¸ÀÈÐØàèðø (08@HPX`hpx€ˆ˜ ¨°¸ÀÈÐØàèðø ¨°¸ÀÈÐØàèðøð§â~ñ§ãò§ãó§ã ô§ãõ§ãö§ã÷§ã!ø§ã&ù§ã+ú§ã/û§ã4ð§â~ñ§ãò§ãó§ã ô§ãõ§ãö§ã÷§ã!ø§ã&ù§ã+ú§ã/û§ã4ü§ã9ý§ã>þ§ãCÿ§ãH§ãM§ãR§ãV§ãZ§ã^§ãb§ãf§ãj§ãm §ãq §ãt §ãx §ã| §ä§ä§ä§ä §ä§ä§ä§ä§ä §ä#§ä'§ä+§ä0§ä5§ä9§ä>§äC§äH §äM!§äR"§äW#§ä\$§äa%§äe&§äj'§än(§äs)§äx*§ä}+§å,§å-§å .§å/§å0§å1§å2§å$3§å)4§å.5§å26§å67§å:8§å>9§åB:§åF;§åJ<§åN=§åR>§åV?§åZ@§å^A§åbB§åfC§åjD§ånE§årF§åvG§åzH§å~I§æ ‡,Mˆ‡{§ä )M5      3PASM 230402Z AUTO 27012KT 9SM OVC009 M04/M07 A2949 RMK AO2 SNE0359 SLP003 P0000 T10441067 FZRANOPASM2019-04-23T04:02:00Z62.07-163.3-4.4-6.7270129.029.4891741000.3TRUETRUETRUEIFR0.005SPECI92.02019-04-23 04:13:16?§ä(y5    3KFFM 230402Z AUTO 00000KT 10SM CLR 10/03 A3011 RMK AO2KFFM2019-04-23T04:02:00Z46.28-96.1510.03.00010.030.109253TRUETRUEVFRMETAR361.02019-04-23 04:13:16Y§ä)/5    3PABR 230402Z 05023KT 7SM OVC012 M06/M07 A2997 RMK AO2 PK WND 05028/0401 T10561067PABR2019-04-23T04:02:00Z71.28-156.77-5.6-6.750237.029.970472TRUEMVFRMETAR7.02019-04-23 04:13:16N§ä)5    3KAUW 230402Z AUTO 02009KT 10SM OVC010 05/03 A2993 RMK AO2 T00500033KAUW2019-04-23T04:02:00Z44.93-89.625.03.320910.029.929134TRUETRUEMVFRMETAR362.02019-04-23 04:13:16 æò悧ä#)c5      3PAGM 230401Z AUTO 36030G33KT 1 3/4SM -SN BKN012 OVC019 M07/M09 A2970 RMK AO2 PK WND 36033/0400 P0000 FZRANOPAGM2019-04-23T04:01:00Z63.77-171.73-7.0-9.036030331.7529.698818TRUETRUETRUE-SNIFR0.005SPECI8.02019-04-23 04:13:16‚§ä")]5       3PADM 230402Z AUTO 22012KT 10SM -SN OVC029 M03/M07 A2954 RMK AO2 SNE0344B00 SLP013 P0000 T10331067 FZRANOPADM2019-04-23T04:02:00Z61.87-162.03-3.3-6.72201210.029.539371001.3TRUETRUETRUE-SNMVFR0.005SPECI31.02019-04-23 04:13:16z§ä!)E5       3PAMO 230402Z AUTO 27015KT 9SM -SN OVC009 M05/M07 A2949 RMK AO2 SLP993 P0000 T10501067 FZRANOPAMO2019-04-23T04:02:00Z62.1-163.68-5.0-6.7270159.029.489174999.3TRUETRUETRUE-SNIFR0.005SPECI103.02019-04-23 04:13:16 ™÷3o™P§ä')5     3KLXV 230401Z AUTO 34007KT 310V010 3/4SM -SN BR OVC006 00/00 A3029KLXV2019-04-23T04:01:00Z39.23-106.320.00.034070.7530.28937TRUE-SN BRLIFRMETAR3028.02019-04-23 04:13:16>§ä&)5   3LIPY 230401Z 11005KT 070V140 9000 SCT015 BKN030 14/14 Q1004LIPY2019-04-23T04:01:00Z43.6213.3714.014.011055.5929.64567MVFRSPECI10.02019-04-23 04:13:16>§ä%(y5    3KJES 230401Z AUTO 00000KT 10SM CLR 15/10 A3015 RMK AO2KJES2019-04-23T04:01:00Z31.55-81.8815.010.00010.030.15059TRUETRUEVFRSPECI33.02019-04-23 04:13:16‚§ä$)U5      3PAFS 230401Z AUTO 23014G17KT 1SM -SN BR BKN007 OVC016 M02/M03 A2939 RMK AO2 CIG 004V010 P0000 FZRANOPAFS2019-04-23T04:01:00Z63.02-154.35-2.0-3.023014171.029.388779TRUETRUETRUE-SN BRIFR0.005SPECI126.02019-04-23 04:13:16 ·Ll·`§ä+)+5   3CYXH 230400Z AUTO 21015G23KT 9SM CLR 16/M00 A2977 RMK SLP082 DENSITY ALT 3100FTCYXH2019-04-23T04:00:00Z50.02-110.7216.00.021015239.029.7696861008.2TRUEVFRMETAR716.02019-04-23 04:13:16I§ä*)5    3CYCY 230400Z AUTO 27006KT 9SM CLR M23/M26 A2981 RMK SLP102CYCY2019-04-23T04:00:00Z70.47-68.52-23.0-26.027069.029.8110241010.2TRUEVFRSPECI26.02019-04-23 04:13:16Z§ä)))5     3LESA 230400Z AUTO 29007KT 260V320 5000 -RA BR FEW017 SCT025 BKN042 05/04 Q0995LESA2019-04-23T04:00:00Z40.95-5.55.04.029073.1129.379921TRUE-RA BRMVFRMETAR795.02019-04-23 04:13:16.§ä((i5   3LESO 230400Z 18010KT 140V200 CAVOK 18/09 Q0993LESO2019-04-23T04:00:00Z43.35-1.818.09.0180106.2129.320866VFRMETAR8.02019-04-23 04:13:16 >(pµú>6§ä0(s5    3LFAQ 230400Z AUTO 04006KT 010V070 CAVOK 12/05 Q0997LFAQ2019-04-23T04:00:00Z49.972.712.05.04066.2129.438976TRUEVFRMETAR111.02019-04-23 04:13:165§ä/(u5   3LEVT 230400Z 25004KT 170V290 9999 FEW060 09/07 Q0995LEVT2019-04-23T04:00:00Z42.87-2.729.07.025046.2129.379921VFRMETAR509.02019-04-23 04:13:165§ä.(s5   3LEZG 230400Z 09006KT 9999 FEW060 SCT085 11/10 Q0996LEZG2019-04-23T04:00:00Z41.67-1.0211.010.09066.2129.409449VFRMETAR258.02019-04-23 04:13:162§ä-(i5    3LEDA 230400Z AUTO 00000KT 9000 NCD 11/11 Q0997LEDA2019-04-23T04:00:00Z41.730.5311.011.0005.5929.438976TRUEVFRMETAR350.02019-04-23 04:13:16R§ä,)-5   3LEST 230400Z 19008KT 170V230 9999 SCT016 SCT025 06/06 Q0993 TEMPO 3000 RA BKN010LEST2019-04-23T04:00:00Z42.88-8.426.06.019086.2129.320866VFRMETAR367.02019-04-23 04:13:16 eKÏe1§ä5(c5    3LFRC 230400Z AUTO 15005KT CAVOK 12/08 Q0996LFRC2019-04-23T04:00:00Z49.63-1.4712.08.015056.2129.409449TRUEVFRMETAR138.02019-04-23 04:13:16-§ä4(c5    3LFJR 230400Z AUTO VRB01KT CAVOK 10/09 Q0996LFJR2019-04-23T04:00:00Z47.57-0.310.09.0016.2129.409449TRUEVFRMETAR60.02019-04-23 04:13:168§ä3(o5     3LFGA 230400Z AUTO 32003KT 5000 HZ NSC 12/04 Q0998LFGA2019-04-23T04:00:00Z48.17.3512.04.032033.1129.468504TRUEHZMVFRMETAR191.02019-04-23 04:13:168§ä2(s5    3LFBU 230400Z AUTO 14003KT 100V170 CAVOK 14/07 Q0996LFBU2019-04-23T04:00:00Z45.720.2214.07.014036.2129.409449TRUEVFRMETAR133.02019-04-23 04:13:16/§ä1(c5    3LFAT 230400Z AUTO 14006KT CAVOK 12/07 Q0997LFAT2019-04-23T04:00:00Z50.521.6212.07.014066.2129.438976TRUEVFRMETAR14.02019-04-23 04:13:16 ´Lh|´B§ä9)5    3UGSB 230400Z 13008KT 9999 BKN025 08/08 Q1026 R13/////// NOSIGUGSB2019-04-23T04:00:00Z41.6241.68.08.013086.2130.295275TRUEMVFRMETAR32.02019-04-23 04:13:16f§ä8)/5     3KPWM 230400Z AUTO 03011KT 10SM OVC010 12/11 A3001 RMK AO2 RAE00 P0000 T01220106 $KPWM2019-04-23T04:00:00Z43.65-70.312.210.6301110.030.008858TRUETRUETRUEMVFR0.005SPECI15.02019-04-23 04:13:16^§ä7)55     3PASC 230400Z 07008KT 1/2SM R06/3000V5000FT BR OVC003 M09/M11 A2987 RMK AO2 T10941111PASC2019-04-23T04:00:00Z70.2-148.47-9.4-11.17080.529.870079TRUEBRLIFRMETAR15.02019-04-23 04:13:16.§ä6(c5    3LFPN 230400Z AUTO 00000KT CAVOK 12/05 Q0996LFPN2019-04-23T04:00:00Z48.752.1212.05.0006.2129.409449TRUEVFRMETAR164.02019-04-23 04:13:16 R1S¬ýR%§ä>(Y5   3EPSC 230400Z 07010KT CAVOK 09/00 Q1017EPSC2019-04-23T04:00:00Z53.5814.99.00.070106.2130.029528VFRMETAR47.02019-04-23 04:13:16)§ä=([5   3EPWR 230400Z 10011KT CAVOK 08/M01 Q1015EPWR2019-04-23T04:00:00Z51.116.878.0-1.0100116.2129.970472VFRMETAR121.02019-04-23 04:13:16!§ä<([5   3EPZG 230400Z 07011KT CAVOK 09/M00 Q1016EPZG2019-04-23T04:00:00Z52.1315.89.00.070116.2130.0VFRMETAR59.02019-04-23 04:13:16X§ä;)-5     3UGTB 230400Z 13003KT 100V160 3700 BR BKN003 OVC007 05/04 Q1025 R31L/29//57 NOSIGUGTB2019-04-23T04:00:00Z41.6744.955.04.013032.330.265747TRUEBRLIFRMETAR495.02019-04-23 04:13:16I§ä:) 5     3UGKO 230400Z VRB02KT 2800 -RA BR BKN016 OVC033 08/07 Q1025 NOSIGUGKO2019-04-23T04:00:00Z42.1842.488.07.0021.7430.265747TRUE-RA BRIFRMETAR68.02019-04-23 04:13:16  Q£úN (§äC(Y5   3SAZN 230400Z 00000KT CAVOK 13/09 Q1015SAZN2019-04-23T04:00:00Z-38.95-68.1513.09.0006.2129.970472VFRMETAR271.02019-04-23 04:13:16&§äB([5   3EPBY 230400Z 09013KT CAVOK 08/M01 Q1021EPBY2019-04-23T04:00:00Z53.118.08.0-1.090136.2130.147638VFRMETAR71.02019-04-23 04:13:16#§äA(Y5   3EPKT 230400Z 10011KT CAVOK 06/01 Q1016EPKT2019-04-23T04:00:00Z50.4719.086.01.0100116.2130.0VFRMETAR284.02019-04-23 04:13:16(§ä@([5   3EPLB 230400Z 08008KT CAVOK 02/M01 Q1024EPLB2019-04-23T04:00:00Z51.2322.722.0-1.08086.2130.236221VFRMETAR206.02019-04-23 04:13:16)§ä?([5   3EPMO 230400Z 09010KT CAVOK 06/M02 Q1023EPMO2019-04-23T04:00:00Z52.4520.656.0-2.090106.2130.206694VFRMETAR104.02019-04-23 04:13:16 /:x·õ/@§äH)5    3UKDE 230400Z 32001MPS CAVOK 05/M01 Q1028 R02R/090070 NOSIGUKDE2019-04-23T04:00:00Z47.8735.325.0-1.032026.2130.35433TRUEVFRMETAR113.02019-04-23 04:13:16<§äG(5    3UKDD 230400Z 29001MPS CAVOK 06/M00 Q1028 R08/090070 NOSIGUKDD2019-04-23T04:00:00Z48.3735.16.00.029026.2130.35433TRUEVFRMETAR149.02019-04-23 04:13:16;§äF(u5    3UKLL 230400Z 11006MPS CAVOK 07/M01 Q1023 R13/D NOSIGUKLL2019-04-23T04:00:00Z49.8223.937.0-1.0110126.2130.206694TRUEVFRMETAR325.02019-04-23 04:13:16<§äE(5    3UKDR 230400Z VRB01MPS CAVOK 06/M01 Q1028 R36/09//70 NOSIGUKDR2019-04-23T04:00:00Z48.0533.226.0-1.0026.2130.35433TRUEVFRMETAR124.02019-04-23 04:13:16@§äD(5    3VOBZ 230400Z 18002KT 6000 SCT020 SCT100 34/25 Q1009 NOSIGVOBZ2019-04-23T04:00:00Z16.5280.7834.025.018023.7329.793306TRUEMVFRMETAR24.02019-04-23 04:13:16 S>z¼S)§äM([5   3EPRZ 230400Z 10017KT CAVOK 06/M01 Q1021EPRZ2019-04-23T04:00:00Z50.122.056.0-1.0100176.2130.147638VFRMETAR202.02019-04-23 04:13:164§äL(g5    3EPWA 230400Z 10014KT CAVOK 09/M02 Q1023 NOSIGEPWA2019-04-23T04:00:00Z52.1720.979.0-2.0100146.2130.206694TRUEVFRMETAR107.02019-04-23 04:13:168§äK(u5    3UKBB 230400Z 35002MPS CAVOK 02/M00 Q1029 R88/D NOSIGUKBB2019-04-23T04:00:00Z50.3330.92.00.035046.2130.383858TRUEVFRMETAR119.02019-04-23 04:13:16>§äJ(5    3UKHH 230400Z 33002MPS CAVOK 09/M00 Q1027 R25/0///81 NOSIGUKHH2019-04-23T04:00:00Z49.9236.289.00.033046.2130.324802TRUEVFRMETAR155.02019-04-23 04:13:16<§äI(}5    3UKOO 230400Z 36003MPS CAVOK 05/03 Q1027 R34/090060 NOSIGUKOO2019-04-23T04:00:00Z46.4230.685.03.036066.2130.324802TRUEVFRMETAR35.02019-04-23 04:13:16 ‘Rœð@‘)§äR(Y5   3SARI 230400Z 00000KT CAVOK 21/20 Q1014SARI2019-04-23T04:00:00Z-25.72-54.4721.020.0006.2129.940945VFRMETAR270.02019-04-23 04:13:16*§äQ([5   3EPGD 230400Z 11010KT CAVOK 06/M01 Q1024EPGD2019-04-23T04:00:00Z54.3718.476.0-1.0110106.2130.236221VFRMETAR138.02019-04-23 04:13:16&§äP(Y5   3EPKK 230400Z 04010KT CAVOK 06/01 Q1017EPKK2019-04-23T04:00:00Z50.0719.86.01.040106.2130.029528VFRMETAR237.02019-04-23 04:13:160§äO(k5   3EPLL 230400Z 09014KT 070V130 CAVOK 08/M02 Q1019EPLL2019-04-23T04:00:00Z51.7219.48.0-2.090146.2130.088583VFRMETAR184.02019-04-23 04:13:16(§äN([5   3EPPO 230400Z 09016KT CAVOK 09/M01 Q1017EPPO2019-04-23T04:00:00Z52.4216.829.0-1.090166.2130.029528VFRMETAR92.02019-04-23 04:13:16 2q£Ü8§äW(q5    3GMAD 230400Z 24007KT 9999 FEW020 14/13 Q1008 NOSIGGMAD2019-04-23T04:00:00Z30.32-9.4214.013.024076.2129.763779TRUEVFRMETAR74.02019-04-23 04:13:16A§äV(5    3GMFF 230400Z 27007KT 6000 SCT004 BKN023 12/11 Q1007 NOSIGGMFF2019-04-23T04:00:00Z33.92-4.9712.011.027073.7329.734253TRUEMVFRMETAR579.02019-04-23 04:13:16H§äU) 5    3GMME 230400Z 22012KT 9999 FEW015 BKN023 BKN058 16/12 Q1004 NOSIGGMME2019-04-23T04:00:00Z34.03-6.7716.012.0220126.2129.64567TRUEMVFRMETAR75.02019-04-23 04:13:16;§äT(q5    3GMMN 230400Z 23010KT 9999 BKN016 15/15 Q1007 NOSIGGMMN2019-04-23T04:00:00Z33.37-7.5715.015.0230106.2129.734253TRUEMVFRMETAR206.02019-04-23 04:13:16H§äS) 5    3GMTT 230400Z 21011KT 5000 SCT010 SCT016 BKN020 16/13 Q1002 NOSIGGMTT2019-04-23T04:00:00Z35.72-5.916.013.0210113.1129.586615TRUEMVFRMETAR21.02019-04-23 04:13:16 D:x¾D>§ä\(y5    3NCRG 230400Z AUTO 12010KT 070V180 9999 NCD 24/16 Q1015NCRG2019-04-23T04:00:00Z-21.2-159.8224.016.0120106.2129.970472TRUEVFRMETAR7.02019-04-23 04:13:160§ä[(e5    3ORMM 230400Z 23007KT CAVOK 15/01 Q1017 NOSIGORMM2019-04-23T04:00:00Z30.5747.6715.01.023076.2130.029528TRUEVFRMETAR2.02019-04-23 04:13:164§äZ(k5    3ORNI 230400Z 31008KT 8000 NSC 17/01 Q1017 NOSIGORNI2019-04-23T04:00:00Z31.9844.417.01.031084.9730.029528TRUEMVFRMETAR53.02019-04-23 04:13:16<§äY(5    3ORER 230400Z 00000KT 9000 FEW030 BKN070 08/08 Q1019 NOSIGORER2019-04-23T04:00:00Z36.2343.978.08.0005.5930.088583TRUEVFRMETAR409.02019-04-23 04:13:16@§äX(5    3NTAA 230400Z 07006KT 9999 FEW020 BKN260 28/22 Q1011 NOSIGNTAA2019-04-23T04:00:00Z-17.55-149.6228.022.07066.2129.852362TRUEVFRMETAR2.02019-04-23 04:13:16 -:y¤ò-?§äa(}5    3SKVP 230400Z 00000KT 8000 VCFG FEW010 SCT200 25/23 A2993SKVP2019-04-23T04:00:00Z10.42-73.2525.023.0004.9729.929134VCFGMVFRMETAR138.02019-04-23 04:13:16,§ä`(e5   3SKMR 230400Z 00000KT 9999 SCT020 26/25 A2987SKMR2019-04-23T04:00:00Z8.82-75.8326.025.0006.2129.870079VFRMETAR26.02019-04-23 04:13:16O§ä_)5    3SKAR 230400Z 00000KT 5000 -RA BCFG FEW010 SCT020 BKN100 19/18 A3009SKAR2019-04-23T04:00:00Z4.45-75.7719.018.0003.1130.088583-RA BCFGMVFRMETAR1219.02019-04-23 04:13:16;§ä^(y5    3SKIB 230400Z 26003KT 3000 BR BKN008 BKN080 20/20 A3012SKIB2019-04-23T04:00:00Z4.42-75.1520.020.026031.8630.121063BRIFRMETAR928.02019-04-23 04:13:16@§ä])5   3SARF 230400Z 16010KT 9999 FEW008 SCT022 BKN100 22/20 Q1014SARF2019-04-23T04:00:00Z-26.22-58.2222.020.0160106.2129.940945VFRMETAR60.02019-04-23 04:13:16 Ì>n§ÌU§äe)55   3RPMZ 230400Z 08005KT 040V120 9999 FEW016CB FEW017 BKN090 29/25 Q1009 RMK A2980 CB NWRPMZ2019-04-23T04:00:00Z6.92122.0729.025.08056.2129.793306VFRMETAR6.02019-04-23 04:13:16A§äd({5     3FMCZ 230400Z AUTO 20019KT 9999 SCT018 29/27 Q1008 NOSIGFMCZ2019-04-23T04:00:00Z-12.845.2729.027.0200196.2129.763779TRUETRUEVFRMETAR7.02019-04-23 04:13:16J§äc)5     3SACO 230400Z 10003KT 9000 -DZ SCT040 BKN050 12/11 Q1022 NOSIGSACO2019-04-23T04:00:00Z-31.32-64.2212.011.010035.5930.177166TRUE-DZVFRMETAR474.02019-04-23 04:13:16<§äb)5   3SKSM 230400Z 02008KT 9000 FEW020 BKN200 28/21 A2989 RMK HZSKSM2019-04-23T04:00:00Z11.12-74.2228.021.02085.5929.890747VFRMETAR4.02019-04-23 04:13:16 ;}´äL§äj)5    3RPLL 230400Z 12014KT 100V180 9999 FEW025 35/21 Q1010 NOSIG RMK A2983RPLL2019-04-23T04:00:00Z14.52121.035.021.0120146.2129.822834TRUEVFRMETAR21.02019-04-23 04:13:16J§äi)5    3RPLB 230400Z 07014KT 9999 FEW020 SCT300 35/21 Q1010 NOSIG RMK A2983RPLB2019-04-23T04:00:00Z14.8120.2735.021.070146.2129.822834TRUEVFRMETAR17.02019-04-23 04:13:16C§äh)5    3RPLI 230400Z 27008KT 9999 FEW018 32/26 Q1010 NOSIG RMK A2983RPLI2019-04-23T04:00:00Z18.17120.5232.026.027086.2129.822834TRUEVFRMETAR5.02019-04-23 04:13:168§äg(y5   3RPVM 230400Z 05009KT 9999 FEW020 31/21 Q1011 RMK A2985RPVM2019-04-23T04:00:00Z10.32123.9831.021.05096.2129.852362VFRMETAR10.02019-04-23 04:13:16?§äf)5   3RPMD 230400Z 07008KT 9999 SCT016 BKN290 33/24 Q1010 RMK A2983RPMD2019-04-23T04:00:00Z7.12125.6533.024.07086.2129.822834VFRMETAR18.02019-04-23 04:13:16 Î3^œÎH§än) 5   3ZGGG 230400Z 20005G10MPS 170V230 9999 BKN030 31/23 Q1010 NOSIGZGGG2019-04-23T04:00:00Z23.4113.331.023.020010196.2129.822834TRUEMVFRMETAR15.02019-04-23 04:13:16<§äm(s5     3ZBYN 230400Z VRB02MPS 5000 HZ NSC 23/11 Q1009 NOSIGZBYN2019-04-23T04:00:00Z37.77112.6323.011.0043.1129.793306TRUEHZMVFRMETAR779.02019-04-23 04:13:16O§äl)!5    3ZBSJ 230400Z 10002MPS 050V160 2000 BR SCT026 22/18 Q1008 BECMG TL0530 3000ZBSJ2019-04-23T04:00:00Z38.28114.722.018.010041.2429.763779BRIFRMETAR71.02019-04-23 04:13:16G§äk)5    3ZBAA 230400Z VRB03MPS 3500 HZ NSC 23/15 Q1008 BECMG TL0540 18005MPSZBAA2019-04-23T04:00:00Z40.07116.5823.015.0062.1729.763779HZIFRSPECI30.02019-04-23 04:13:16 6v­êL§äs)5    3ZWWW 230400Z 34002MPS 300V040 9999 FEW030TCU SCT040 15/08 Q1019 NOSIGZWWW2019-04-23T04:00:00Z43.8887.4715.08.034046.2130.088583TRUEVFRMETAR654.02019-04-23 04:13:16=§är(y5    3ZWSH 230400Z 19002MPS 150V220 CAVOK 23/M04 Q1012 NOSIGZWSH2019-04-23T04:00:00Z39.5576.0223.0-4.019046.2129.88189TRUEVFRMETAR1380.02019-04-23 04:13:16C§äq)5    3ZSSS 230400Z 28005MPS 240V320 8000 BKN020 24/20 Q1008 NOSIGZSSS2019-04-23T04:00:00Z31.2121.3324.020.0280104.9729.763779TRUEMVFRMETAR7.02019-04-23 04:13:16:§äp(s5    3ZSPD 230400Z 35005MPS 7000 BKN023 25/22 Q1008 NOSIGZSPD2019-04-23T04:00:00Z31.15121.825.022.0350104.3529.763779TRUEMVFRMETAR4.02019-04-23 04:13:16D§äo)5    3ZSHC 230400Z 32003MPS 230V020 6000 SCT023 27/22 Q1008 NOSIGZSHC2019-04-23T04:00:00Z30.22120.4327.022.032063.7329.763779TRUEMVFRMETAR43.02019-04-23 04:13:16 I7y¿ I:§äx(u5    3GMMW 230400Z 24006KT 170V270 CAVOK 15/06 Q1003 NOSIGGMMW2019-04-23T04:00:00Z34.98-3.0215.06.024066.2129.616142TRUEVFRMETAR175.02019-04-23 04:13:160§äw(e5    3GMMZ 230400Z VRB02KT CAVOK 12/01 Q1006 NOSIGGMMZ2019-04-23T04:00:00Z30.92-6.912.01.0026.2129.704725TRUEVFRMETAR1140.02019-04-23 04:13:164§äv(k5    3GMTA 230400Z VRB02KT 6000 NSC 13/11 Q1002 NOSIGGMTA2019-04-23T04:00:00Z35.17-3.8513.011.0023.7329.586615TRUEMVFRMETAR14.02019-04-23 04:13:168§äu(5   3GMTN 230400Z AUTO 24011KT 210V270 9999NDV /// 17/09 Q1001GMTN2019-04-23T04:00:00Z35.57-5.3217.09.02401129.557087TRUEMETAR10.02019-04-23 04:13:16C§ät)5    3ZYTL 230400Z 09006MPS 6000 FEW013 BKN026 15/11 Q1011 NOSIGZYTL2019-04-23T04:00:00Z38.97121.5315.011.090123.7329.852362TRUEMVFRMETAR97.02019-04-23 04:13:16 $Ci©ç$=§ä}(w5    3ZYTX 230400Z 22009MPS 180V250 CAVOK 26/12 Q1008 NOSIGZYTX2019-04-23T04:00:00Z41.63123.4826.012.0220176.2129.763779TRUEVFRMETAR35.02019-04-23 04:13:16<§ä|(w5    3GMFK 230400Z 10003KT 020V140 CAVOK 12/M01 Q1008 NOSIGGMFK2019-04-23T04:00:00Z31.95-4.412.0-1.010036.2129.763779TRUEVFRMETAR1045.02019-04-23 04:13:16:§ä{(q5    3GMFM 230400Z 26006KT 8000 BKN020 12/11 Q1006 NOSIGGMFM2019-04-23T04:00:00Z33.87-5.5212.011.026064.9729.704725TRUEMVFRMETAR549.02019-04-23 04:13:16T§äz)!5    3GMMB 230400Z AUTO 23010KT 190V280 //// R32/P2000N ////// 15/13 Q1007 NOSIGGMMB2019-04-23T04:00:00Z33.65-7.2215.013.0230101.2429.734253TRUETRUEMETAR191.02019-04-23 04:13:167§äy(q5    3GMML 230400Z 01005KT 9999 OVC023 18/16 Q1012 NOSIGGMML2019-04-23T04:00:00Z27.13-13.2318.016.01056.2129.88189TRUEMVFRMETAR6.02019-04-23 04:13:16 b&yÂb(§å([5   3DAUT 230400Z 10008KT CAVOK 16/M01 Q1004DAUT2019-04-23T04:00:00Z29.250.2716.0-1.010086.2129.64567VFRMETAR312.02019-04-23 04:13:16,§å(e5   3DAUU 230400Z 32003KT 9999 FEW040 18/04 Q1005DAUU2019-04-23T04:00:00Z31.925.418.04.032036.2129.675198VFRMETAR141.02019-04-23 04:13:161§å(s5   3DAUK 230400Z 00000KT 9999 FEW040 SCT100 16/06 Q1005DAUK2019-04-23T04:00:00Z33.086.1216.06.0006.2129.675198VFRMETAR85.02019-04-23 04:13:16'§ä(Y5   3DAOY 230400Z 19002KT CAVOK 03/02 Q1007DAOY2019-04-23T04:00:00Z33.721.083.02.019026.2129.734253VFRMETAR1347.02019-04-23 04:13:16T§ä~))5    3ZBTJ 230400Z 22003MPS 130V260 5000 HZ BKN023 23/16 Q1008 BECMG TL0530 15005MPSZBTJ2019-04-23T04:00:00Z39.12117.3523.016.022063.1129.763779HZMVFRSPECI3.02019-04-23 04:13:16 ,GÁú,H§å)5     3FAPE 230400Z 10012KT 9000 -RA FEW007 SCT028 17/16 Q1025 NOSIGFAPE2019-04-23T04:00:00Z-33.9725.617.016.0100125.5930.265747TRUE-RAVFRMETAR60.02019-04-23 04:13:16A§å(5    3FAUP 230400Z 18002KT 9999 FEW050 SCT100 12/11 Q1017 NOSIGFAUP2019-04-23T04:00:00Z-28.3821.2712.011.018026.2130.029528TRUEVFRMETAR836.02019-04-23 04:13:16:§å(q5    3FBSK 230400Z VRB02KT 9999 OVC010 16/16 Q1021 NOSIGFBSK2019-04-23T04:00:00Z-24.5525.9216.016.0026.2130.147638TRUEMVFRMETAR1005.02019-04-23 04:13:16@§å)5    3UCFO 230400Z 24002MPS 9999 NSC 15/10 Q1012 R12/0///95 NOSIGUCFO2019-04-23T04:00:00Z40.672.815.010.024046.2129.88189TRUEVFRMETAR884.02019-04-23 04:13:163§å(s5   3DAUO 230400Z 29005KT 8000 SCT040 SCT200 18/18 Q1004DAUO2019-04-23T04:00:00Z33.56.7818.018.029054.9729.64567MVFRMETAR63.02019-04-23 04:13:16 HS™ÔHB§å ) 5    3CWRO 230400Z AUTO 30009KT 06/02 RMK AO1 SLP185 T00630015 58005CWRO2019-04-23T04:00:00Z54.17-131.676.31.530091018.5TRUETRUE-0.5METAR7.02019-04-23 04:13:16>§å ({5    3FAEL 230400Z 08013KT 9999 -RA FEW023 SCT033 18/15 Q1025FAEL2019-04-23T04:00:00Z-33.0227.8218.015.080136.2130.265747-RAVFRMETAR125.02019-04-23 04:13:16?§å ({5    3FAGG 230400Z 11016KT 9999 -RA SCT008 BKN013 16/14 Q1024FAGG2019-04-23T04:00:00Z-34.022.3716.014.0110166.2130.236221-RAMVFRMETAR193.02019-04-23 04:13:164§å (u5   3FAHS 230400Z AUTO 17002KT //// // ////// 19/18 Q1020FAHS2019-04-23T04:00:00Z-24.3731.0219.018.0170230.11811TRUEMETAR500.02019-04-23 04:13:16'§å(e5    3FAKM 230400Z 03003KT 9999 FEW008 ///// Q1019FAKM2019-04-23T04:00:00Z-28.824.773036.2130.088583VFRMETAR1192.02019-04-23 04:13:16 ÈA^‹È=§å(w5     3VEBN 230400Z 05010KT 3000 HZ FEW100 30/21 Q1007 NOSIGVEBN2019-04-23T04:00:00Z25.4582.8530.021.050101.8629.734253TRUEHZIFRMETAR83.02019-04-23 04:13:16M§å)5    3UCFL 230400Z VRB01MPS 9999 -SHRA SCT030CB BKN100 10/04 Q1018 R07/CLRD95UCFL2019-04-23T04:00:00Z42.5876.710.04.0026.2130.059055-SHRAVFRMETAR1648.02019-04-23 04:13:16]§å);5    3UTDD 230400Z VRB02MPS 9999 FEW066CB BKN099 17/14 Q1013 R09/19//60 NOSIG RMK QFE692/0922UTDD2019-04-23T04:00:00Z38.5368.8217.014.0046.2129.911417TRUEVFRMETAR803.02019-04-23 04:13:169§å (q5    3FACT 230400Z 14019KT 9999 FEW025 18/13 Q1021 NOSIGFACT2019-04-23T04:00:00Z-33.9718.618.013.0140196.2130.147638TRUEVFRMETAR42.02019-04-23 04:13:16 D8l¦ôD*§å(e5   3DTTB 230400Z 00000KT 8000 SCT020 11/10 Q1003DTTB2019-04-23T04:00:00Z37.259.811.010.0004.9729.616142MVFRMETAR3.02019-04-23 04:13:16,§å(e5   3DTTK 230400Z VRB01KT 6000 SCT023 15/13 Q1004DTTK2019-04-23T04:00:00Z35.6710.0815.013.0013.7329.64567MVFRMETAR68.02019-04-23 04:13:16@§å(y5   3ZPPP 230400Z 22011G19MPS 9999 SCT026 24/03 Q1021 NOSIGZPPP2019-04-23T04:00:00Z25.0102.7524.03.022021376.2130.147638TRUEVFRMETAR1892.02019-04-23 04:13:16F§å)5     3ZLXY 230400Z 13003MPS 070V190 4000 HZ NSC 22/15 Q1010 NOSIGZLXY2019-04-23T04:00:00Z34.43108.7522.015.013062.4929.822834TRUEHZIFRMETAR479.02019-04-23 04:13:16B§å)5    3ZGSZ 230400Z 17005MPS 9999 FEW030 BKN050 29/26 Q1011 NOSIGZGSZ2019-04-23T04:00:00Z22.63113.829.026.0170106.2129.852362TRUEVFRMETAR18.02019-04-23 04:13:16 ]JØ];§å(q5    3WADD 230400Z 10017KT 9999 FEW018 30/25 Q1008 NOSIGWADD2019-04-23T04:00:00Z-8.73115.1730.025.0100176.2129.763779TRUEVFRMETAR216.02019-04-23 04:13:164§å(s5   3PLCH 230400Z 08008KT 9999 SCT019 BKN045 29/25 Q1008PLCH2019-04-23T04:00:00Z1.98-157.3529.025.08086.2129.763779VFRMETAR3.02019-04-23 04:13:16/§å(e5   3SADF 230400Z 05008KT 9999 BKN020 16/11 Q1021SADF2019-04-23T04:00:00Z-34.45-58.5816.011.05086.2130.147638MVFRMETAR4.02019-04-23 04:13:167§å(s5   3SASJ 230400Z 18004KT 2000 SCT006 OVC040 12/12 Q1020SASJ2019-04-23T04:00:00Z-24.37-65.112.012.018041.2430.11811IFRMETAR1167.02019-04-23 04:13:160§å(s5   3LPLA 230400Z /////KT 9999 FEW020 SCT028 13/09 Q1019LPLA2019-04-23T04:00:00Z38.77-27.113.09.06.2130.088583VFRMETAR55.02019-04-23 04:13:16 N8ÄN3§å(k5    3DTTG 230400Z 17002KT 8000 NSC 15/03 Q1005 NOSIGDTTG2019-04-23T04:00:00Z33.739.9215.03.017024.9729.675198TRUEMVFRMETAR5.02019-04-23 04:13:167§å(q5    3DTTJ 230400Z 14009KT 6000 FEW016 17/07 Q1005 NOSIGDTTJ2019-04-23T04:00:00Z33.8710.7717.07.014093.7329.675198TRUEMVFRMETAR4.02019-04-23 04:13:165§å(q5    3DTTX 230400Z 07004KT 9999 SCT030 18/05 Q1004 NOSIGDTTX2019-04-23T04:00:00Z34.7210.6718.05.07046.2129.64567TRUEVFRMETAR23.02019-04-23 04:13:163§å(k5    3DTTZ 230400Z 27007KT 6000 NSC 18/07 Q1004 NOSIGDTTZ2019-04-23T04:00:00Z33.928.0818.07.027073.7329.64567TRUEMVFRMETAR93.02019-04-23 04:13:16B§å)5    3WAAA 230400Z 19004KT 130V250 9999 FEW019 31/26 Q1007 NOSIGWAAA2019-04-23T04:00:00Z-5.07119.5331.026.019046.2129.734253TRUEVFRMETAR14.02019-04-23 04:13:16 ~F“ã+~'§å$(_5   3DTKA 230400Z AUTO 13003KT /// 11/11 Q1002DTKA2019-04-23T04:00:00Z36.988.8811.011.0130329.586615TRUEMETAR21.02019-04-23 04:13:162§å#(o5   3DTMB 230400Z 15003KT 120V190 8000 NSC 16/15 Q1004DTMB2019-04-23T04:00:00Z35.7710.7516.015.015034.9729.64567MVFRMETAR2.02019-04-23 04:13:16*§å"(_5   3DTNH 230400Z 24002KT 7000 NSC 14/12 Q1004DTNH2019-04-23T04:00:00Z36.0710.4314.012.024024.3529.64567MVFRMETAR2.02019-04-23 04:13:16-§å!(u5   3DTTA 230400Z 13003KT 080V160 8000 FEW023 14/12 Q1?03DTTA2019-04-23T04:00:00Z36.8510.2214.012.013034.97MVFRMETAR4.02019-04-23 04:13:164§å (k5    3DTTF 230400Z 35005KT 6000 NSC 15/07 Q1004 NOSIGDTTF2019-04-23T04:00:00Z34.428.8215.07.035053.7329.64567TRUEMVFRMETAR314.02019-04-23 04:13:16 =r¤Ö>§å)(s5     3ZSFZ 230400Z 18005MPS 5000 BR NSC 26/22 Q1009 NOSIGZSFZ2019-04-23T04:00:00Z25.93119.6726.022.0180103.1129.793306TRUEBRMVFRMETAR85.02019-04-23 04:13:16H§å() 5     3ZSNB 230400Z 01005MPS 320V040 5000 HZ SCT026 27/22 Q1008 NOSIGZSNB2019-04-23T04:00:00Z29.83121.4727.022.010103.1129.763779TRUEHZMVFRMETAR4.02019-04-23 04:13:16H§å') 5     3ZSQD 230400Z VRB01MPS 9999 -RA BKN010 OVC030 16/15 Q1009 NOSIGZSQD2019-04-23T04:00:00Z36.27120.3816.015.0026.2129.793306TRUE-RAMVFRMETAR77.02019-04-23 04:13:16E§å&)5    3ZUGY 230400Z 23004MPS 190V260 8000 BKN023 28/20 Q1011 NOSIGZUGY2019-04-23T04:00:00Z26.53106.828.020.023084.9729.852362TRUEMVFRMETAR1074.02019-04-23 04:13:16=§å%(w5    3ZUUU 230400Z 18002MPS 080V250 CAVOK 27/17 Q1008 NOSIGZUUU2019-04-23T04:00:00Z30.58103.9527.017.018046.2129.763779TRUEVFRMETAR508.02019-04-23 04:13:16 >“ÒåB§å.)5    3UTAV 230400Z 03008KT 9999 BKN033CB OVC100 12/11 Q1011 NOSIGUTAV2019-04-23T04:00:00Z39.0863.6212.011.03086.2129.852362TRUEVFRMETAR192.02019-04-23 04:13:16g§å-)E5    3ZGKL 230400Z 28002MPS 250V340 2000 -RA BR FEW010 SCT030 OVC050 23/22 Q1010 BECMG FM0600 3000ZGKL2019-04-23T04:00:00Z25.22110.0323.022.028041.2429.822834-RA BRIFRMETAR166.02019-04-23 04:13:16;§å,(s5    3ZGNN 230400Z 21005MPS 9999 SCT030 31/23 Q1010 NOSIGZGNN2019-04-23T04:00:00Z22.62108.1731.023.0210106.2129.822834TRUEVFRMETAR73.02019-04-23 04:13:16%§å+(_5   3DTTL 230400Z AUTO 00000KT NCD 13/12 Q1004DTTL2019-04-23T04:00:00Z36.8511.0713.012.00029.64567TRUEMETAR30.02019-04-23 04:13:16<§å*(w5    3ZSAM 230400Z 21004MPS 180V250 CAVOK 32/21 Q1010 NOSIGZSAM2019-04-23T04:00:00Z24.53118.1332.021.021086.2129.822834TRUEVFRMETAR18.02019-04-23 04:13:16 µ*X‰µN§å2)5    3UATG 230400Z VRB01MPS CAVOK 10/M00 Q1022 R14/CLRD70 NOSIG RMK QFE769/1025UATG2019-04-23T04:00:00Z47.1251.8310.00.0026.2130.177166TRUEVFRMETAR-22.02019-04-23 04:13:16I§å1)5    3UATT 230400Z 00000MPS CAVOK 09/M02 Q1020 R13/70D NOSIG RMK QFE746/0994UATT2019-04-23T04:00:00Z50.2557.29.0-2.0006.2130.11811TRUEVFRMETAR227.02019-04-23 04:13:16L§å0)5    3UAUU 230400Z 28005MPS CAVOK 12/M03 Q1016 R33/CLRD70 NOSIG RMK QFE746/0995UAUU2019-04-23T04:00:00Z53.263.5512.0-3.0280106.2130.0TRUEVFRMETAR182.02019-04-23 04:13:16P§å/)%5    3UAKD 230400Z 02003MPS 9999 NSC 09/M02 Q1020 R04/0///65 NOSIG RMK QFE731/0975UAKD2019-04-23T04:00:00Z47.767.739.0-2.02066.2130.11811TRUEVFRMETAR381.02019-04-23 04:13:16 £+Ny£P§å6)5    3UASP 230400Z 17005MPS CAVOK 11/M05 Q1020 R21/0///60 NOSIG RMK QFE754/1005UASP2019-04-23T04:00:00Z52.277.0711.0-5.0170106.2130.11811TRUEVFRMETAR125.02019-04-23 04:13:16O§å5)5    3UASS 230400Z VRB01MPS CAVOK 10/M06 Q1021 R26/0///60 NOSIG RMK QFE747/0997UASS2019-04-23T04:00:00Z50.3580.2310.0-6.0026.2130.147638TRUEVFRMETAR232.02019-04-23 04:13:16W§å4)/5    3UARR 230400Z 32002MPS 310V020 CAVOK 10/M00 Q1021 R04/CLRD70 NOSIG RMK QFE763/1017UARR2019-04-23T04:00:00Z51.1551.5310.00.032046.2130.147638TRUEVFRMETAR38.02019-04-23 04:13:16O§å3)5    3UATE 230400Z 03006MPS CAVOK 13/M01 Q1023 R30/0///70 NOSIG RMK QFE766/1022UATE2019-04-23T04:00:00Z43.8751.113.0-1.030126.2130.206694TRUEVFRMETAR22.02019-04-23 04:13:16 •(Mq•V§å:)-5    3UAII 230400Z 07002MPS 030V130 CAVOK 14/11 Q1012 R28/0///70 NOSIG RMK QFE722/0962UAII2019-04-23T04:00:00Z42.3769.4814.011.07046.2129.88189TRUEVFRMETAR422.02019-04-23 04:13:16V§å9)-5    3UAKK 230400Z 27002MPS 240V310 CAVOK 06/01 Q1018 R05/0///70 NOSIG RMK QFE716/0955UAKK2019-04-23T04:00:00Z49.6773.336.01.027046.2130.059055TRUEVFRMETAR538.02019-04-23 04:13:16U§å8)-5    3UAOO 230400Z 05008MPS 020V090 CAVOK 12/04 Q1017 R05/CLRD70 NOSIG RMK QFE751/1002UAOO2019-04-23T04:00:00Z44.765.612.04.050166.2130.029528TRUEVFRMETAR129.02019-04-23 04:13:16R§å7)%5    3UASK 230400Z 24002MPS 9999 NSC 08/M02 Q1021 R12/090060 NOSIG RMK QFE740/0987UASK2019-04-23T04:00:00Z50.0382.58.0-2.024046.2130.147638TRUEVFRMETAR286.02019-04-23 04:13:16 }!Gp}m§å>)[5    3UADD 230400Z 03003MPS 360V070 9999 BKN026CB OVC100 12/08 Q1014 R13/0///65 NOSIG RMK MT OBSC QFE704/0939UADD2019-04-23T04:00:00Z42.8571.312.08.03066.2129.940945TRUEMVFRMETAR665.02019-04-23 04:13:16Q§å=)5    3UACC 230400Z 26005MPS CAVOK 08/M01 Q1019 R22/0///70 NOSIG RMK QFE732/0977UACC2019-04-23T04:00:00Z51.0271.478.0-1.0260106.2130.088583TRUEVFRMETAR355.02019-04-23 04:13:16T§å<)/5    3UACK 230400Z 26003MPS 190V300 CAVOK 09/M03 Q1016 R20/090070 NOSIG RMK QFE739/0985UACK2019-04-23T04:00:00Z53.3269.589.0-3.026066.2130.0TRUEVFRMETAR2547.02019-04-23 04:13:16Y§å;)/5    3UACP 230400Z 18005MPS 9999 FEW050CB 09/M01 Q1015 R23/0/0060 NOSIG RMK QFE749/0998UACP2019-04-23T04:00:00Z54.7869.189.0-1.0180106.2129.970472TRUEVFRMETAR142.02019-04-23 04:13:16 ®'Wƒ®O§åB)5    3UDSG 230400Z 35001KT 9000 FEW043CB SCT043 02/M03 Q1019 R02/CLRD70 NOSIGUDSG2019-04-23T04:00:00Z40.7543.872.0-3.035015.5930.088583TRUEVFRMETAR1524.02019-04-23 04:13:16N§åA)5    3UAAA 230400Z 03003MPS 9999 SCT050CB BKN100 12/09 Q1015 R05R/2/0150 NOSIGUAAA2019-04-23T04:00:00Z43.3577.0312.09.03066.2129.970472TRUEVFRMETAR681.02019-04-23 04:13:16J§å@)5    3UAAH 230400Z 12003MPS 090V170 CAVOK 11/03 Q1017 NOSIG RMK QFE725/0967UAAH2019-04-23T04:00:00Z46.975.011.03.012066.2130.029528TRUEVFRMETAR441.02019-04-23 04:13:16S§å?)15    3UAAT 230400Z 01003MPS 350V060 9999 FEW100 SCT200 15/06 Q1016 NOSIG RMK QFE711/0948UAAT2019-04-23T04:00:00Z45.1278.4515.06.01066.2130.0TRUEVFRMETAR591.02019-04-23 04:13:16 —>X}—`§åF);5    3UTDK 230400Z 22005MPS 9999 -SHRA FEW037CB SCT096 17/15 Q1013 R01/19//60 RMK QFE702/0936UTDK2019-04-23T04:00:00Z37.9869.817.015.0220106.2129.911417-SHRAVFRMETAR699.02019-04-23 04:13:16U§åE)/5   3UTDT 230400Z 18003MPS 9999 SCT036CB OVC100 18/13 Q1011 R35/CLRD70 RMK QFE719/0959UTDT2019-04-23T04:00:00Z37.8768.8718.013.018066.2129.852362VFRMETAR449.02019-04-23 04:13:16`§åD);5    3UTDL 230400Z 25006MPS 8000 SCT012 OVC046CB 12/10 Q1013 R26/CLRD70 NOSIG RMK QFE722/0963UTDL2019-04-23T04:00:00Z40.2269.712.010.0250124.9729.911417TRUEMVFRMETAR442.02019-04-23 04:13:16<§åC)5    3UDYZ 230400Z 00000KT 9999 NSC 04/03 Q1020 R09/010070 NOSIGUDYZ2019-04-23T04:00:00Z40.1544.44.03.0006.2130.11811TRUEVFRMETAR865.02019-04-23 04:13:16 í3‡§í4§åJ(k5    3CWRF 230400Z AUTO 27017KT M26/ A2995 RMK SLP199CWRF2019-04-23T04:00:00Z69.42-89.72-26.02701729.9498021019.9TRUEMETAR325.02019-04-23 04:13:16Z§åI)%5    3CYBW 230400Z AUTO 28009KT 9SM CLR 09/M02 A2982 RMK SLP108 DENSITY ALT 4200FTCYBW2019-04-23T04:00:00Z51.1-114.379.0-2.028099.029.8198811010.8TRUEVFRSPECI1200.02019-04-23 04:13:16&§åH(s5   3CXBO 230400Z AUTO 06010KT RMK AO1 PK WND 09020/0314CXBO2019-04-23T04:00:00Z46.83-71.26010TRUETRUEMETAR100.02019-04-23 04:13:16G§åG) 5    3CXCA 230400Z AUTO 36004KT M00/M02 RMK AO1 SLP215 T10011017 58001CXCA2019-04-23T04:00:00Z49.15-88.35-0.1-1.736041021.5TRUETRUE-0.1METAR228.02019-04-23 04:13:16 AbO§åN)5   3CYTE 230400Z AUTO 29016G21KT 9SM CLR M21/M24 A3007 RMK SLP190CYTE2019-04-23T04:00:00Z64.22-76.52-21.0-24.029016219.030.0708661019.0TRUEVFRMETAR47.02019-04-23 04:13:16Y§åM)5     3CYVM 230400Z AUTO 08004KT 070V150 8SM -SN OVC038 M19/M22 A2975 RMK SLP078CYVM2019-04-23T04:00:00Z67.53-64.02-19.0-22.08048.029.7490161007.8TRUE-SNVFRMETAR6.02019-04-23 04:13:16N§åL)5   3CYWE 230400Z AUTO 06011G16KT 9SM CLR M05/M07 A2959 RMK SLP052CYWE2019-04-23T04:00:00Z64.18-114.08-5.0-7.06011169.029.5895671005.2TRUEVFRMETAR371.02019-04-23 04:13:16e§åK);5    3CYZS 230400Z 01008KT 15SM -RA BR SKC 23/19 A3019 RMK VIA CYHZ SLP230 DENSITY ALT 1000FTCYZS2019-04-23T04:00:00Z64.2-83.3723.019.010815.030.1889761023.0-RA BRVFRMETAR64.02019-04-23 04:13:16 ¨1a’¨d§åR)?5   3CYFS 230400Z 36002KT 15SM BKN075 OVC100 12/M02 A2939 RMK AC6AC2 SLP961 DENSITY ALT 1000FTCYFS2019-04-23T04:00:00Z61.75-121.2212.0-2.0360215.029.388779996.1VFRSPECI169.02019-04-23 04:13:16I§åQ)5    3CYHK 230400Z AUTO 25006KT 9SM CLR M25/M27 A3014 RMK SLP218CYHK2019-04-23T04:00:00Z68.62-95.83-25.0-27.025069.030.1387791021.8TRUEVFRSPECI46.02019-04-23 04:13:16J§åP) 5    3CYHY 230400Z 06002KT 12SM -RA OVC036 08/07 A2944 RMK SC8 SLP977CYHY2019-04-23T04:00:00Z60.82-115.778.07.060212.029.438976997.7-RAVFRSPECI166.02019-04-23 04:13:16I§åO)5   3CYRT 230400Z 11006KT 15SM FEW250 M17/M21 A3024 RMK CI1 SLP246CYRT2019-04-23T04:00:00Z62.82-92.12-17.0-21.0110615.030.2391741024.6VFRSPECI32.02019-04-23 04:13:16 g!BKg^§åV)15    3CYSJ 230400Z 05010KT 8SM -RA SCT008 BKN020 OVC046 08/07 A3014 RMK SC3SC2SC3 SLP212CYSJ2019-04-23T04:00:00Z45.32-65.878.07.050108.030.1387791021.2-RAMVFRMETAR109.02019-04-23 04:13:16q§åU)W5    3CYYG 230400Z 03007KT 15SM -SHRA FEW035 BKN060 OVC100 03/01 A3025 RMK SC2SC4AS2 CVCTV CLDS EMBD SLP247CYYG2019-04-23T04:00:00Z46.27-63.123.01.030715.030.2509841024.7-SHRAVFRMETAR54.02019-04-23 04:13:16Y§åT)'5   3CYCB 230400Z 06006KT 15SM FEW100 SCT220 M24/M28 A3013 RMK AC2CI1 FROIN SLP209CYCB2019-04-23T04:00:00Z69.08-105.12-24.0-28.060615.030.1299211020.9VFRSPECI27.02019-04-23 04:13:16Y§åS)'5   3CYCO 230400Z 03005KT 15SM BKN009 BKN120 M17/M19 A2991 RMK SC5AS1 AS TR SLP133CYCO2019-04-23T04:00:00Z67.82-115.15-17.0-19.030515.029.9114171013.3IFRSPECI22.02019-04-23 04:13:16 ¿2i–¿Q§åZ)5    3CYAY 230400Z AUTO 26005KT 9SM CLR M04/M04 A3024 RMK ICG INTMT SLP244CYAY2019-04-23T04:00:00Z51.38-56.07-4.0-4.026059.030.2391741024.4TRUEVFRSPECI28.02019-04-23 04:13:16M§åY)5    3CYCX 230400Z AUTO 06008KT 030V090 9SM OVC037 06/03 A3020 RMK SLP229CYCX2019-04-23T04:00:00Z45.82-66.426.03.06089.030.2007871022.9TRUEVFRSPECI51.02019-04-23 04:13:16C§åX)5   3CYDF 230400Z 24004KT 15SM SCT220 01/M00 A3024 RMK CI3 SLP243CYDF2019-04-23T04:00:00Z49.22-57.41.00.0240415.030.2391741024.3VFRSPECI22.02019-04-23 04:13:16H§åW)5    3CYGW 230400Z AUTO 13005KT 9SM CLR M10/M15 A3042 RMK SLP305CYGW2019-04-23T04:00:00Z55.27-77.77-10.0-15.013059.030.419291030.5TRUEVFRSPECI12.02019-04-23 04:13:16 ¯*H†¯Q§å^)5    3CYXR 230400Z AUTO 06004KT 9SM OVC080 03/M01 A3012 RMK ICG INTMT SLP213CYXR2019-04-23T04:00:00Z47.7-79.833.0-1.06049.030.1210631021.3TRUEVFRMETAR243.02019-04-23 04:13:16<§å](w5   3CYYY 230400Z 15004KT 15SM SKC 00/M04 A3028 RMK SLP259CYYY2019-04-23T04:00:00Z48.6-68.220.0-4.0150415.030.2805121025.9VFRMETAR52.02019-04-23 04:13:16\§å\)5    3CYZE 230400Z AUTO 13013G18KT 9SM -RA BKN080 OVC099 11/05 A2996 RMK SLP149CYZE2019-04-23T04:00:00Z45.87-82.5711.05.013013189.029.9586621014.9TRUE-RAVFRMETAR193.02019-04-23 04:13:16P§å[)5    3CYZR 230400Z AUTO 15017KT 9SM FEW140 OVC160 12/06 A3000 RMK PRESFR SLP162CYZR2019-04-23T04:00:00Z43.0-82.312.06.0150179.030.01016.2TRUEVFRMETAR181.02019-04-23 04:13:16 ½5k‡½D§åb)5    3CYTZ 230400Z AUTO 08006KT 9SM SCT180 08/07 A3009 RMK SLP192CYTZ2019-04-23T04:00:00Z43.63-79.48.07.08069.030.0885831019.2TRUEVFRMETAR77.02019-04-23 04:13:16^§åa)-5  3CYVP 230400Z 24009G16KT 15SM BKN055 BKN220 M13/M18 A3034 RMK SC6CI1 CI TR SLP280CYVP2019-04-23T04:00:00Z58.12-68.42-13.0-18.024091615.030.3395671028.0VFRMETAR60.02019-04-23 04:13:16D§å`)5   3CYVV 230400Z 16008KT 15SM BKN100 14/07 A3002 RMK AC5 SLP168CYVV2019-04-23T04:00:00Z44.75-81.0814.07.0160815.030.020671016.8VFRMETAR222.02019-04-23 04:13:16E§å_)5    3CYWA 230400Z AUTO 00000KT 9SM BKN091 07/03 A3013 RMK SLP208CYWA2019-04-23T04:00:00Z45.95-77.327.03.0009.030.1299211020.8TRUEVFRMETAR130.02019-04-23 04:13:16 ¿,_“¿N§åf)5   3CYQT 230400Z 28003KT 260V330 15SM BKN250 01/M01 A3012 RMK CI5 SLP211CYQT2019-04-23T04:00:00Z48.37-89.321.0-1.0280315.030.1210631021.1VFRSPECI199.02019-04-23 04:13:16F§åe)5   3CYRJ 230400Z 27007KT 25SM SCT130 02/M06 A3026 RMK AC3 SLP256CYRJ2019-04-23T04:00:00Z48.52-72.272.0-6.0270725.030.2598421025.6VFRSPECI179.02019-04-23 04:13:16G§åd) 5   3CYTL 230400Z AUTO 08004KT 9SM 01/M05 A3021 RMK CLD MISG SLP246CYTL2019-04-23T04:00:00Z53.82-89.881.0-5.08049.030.2096461024.6TRUEMETAR224.02019-04-23 04:13:16N§åc) 5    3CYTS 230400Z 07007KT 6SM -RASN OVC040 00/00 A3012 RMK SC8 SLP218CYTS2019-04-23T04:00:00Z48.57-81.370.00.07076.030.1210631021.8-RA -SNVFRSPECI295.02019-04-23 04:13:16 Ë4g“ˁB§åj(}5    3CYHU 230400Z AUTO 01013KT 9SM CLR 09/01 A3014 RMK SLP208CYHU2019-04-23T04:00:00Z45.52-73.429.01.010139.030.1387791020.8TRUEVFRSPECI27.02019-04-23 04:13:16N§åi)5    3CYMO 230400Z AUTO 04005KT 010V070 9SM CLR M03/M06 A3032 RMK SLP271CYMO2019-04-23T04:00:00Z51.28-80.62-3.0-6.04059.030.3188971027.1TRUEVFRSPECI10.02019-04-23 04:13:16G§åh)5    3CYNA 230400Z AUTO 02010KT 9SM FEW240 00/M07 A3029 RMK SLP259CYNA2019-04-23T04:00:00Z50.17-61.820.0-7.020109.030.289371025.9TRUEVFRSPECI11.02019-04-23 04:13:16F§åg)5    3CYPQ 230400Z AUTO 05003KT 9SM BKN170 08/08 A3010 RMK SLP197CYPQ2019-04-23T04:00:00Z44.22-78.378.08.05039.030.1003931019.7TRUEVFRSPECI191.02019-04-23 04:13:16 ³4r³H§ån)5    3CYWK 230400Z AUTO 26006KT 9SM CLR M07/M13 A3031 RMK SLP302CYWK2019-04-23T04:00:00Z52.92-66.87-7.0-13.026069.030.310041030.2TRUEVFRMETAR551.02019-04-23 04:13:16k§åm)E5    3CYAM 230400Z 06008KT 6SM -SHRA BR SCT041 OVC050 06/05 A2992 RMK SC4SC4 CVCTV CLD EMBD SLP138CYAM2019-04-23T04:00:00Z46.47-84.526.05.06086.029.9202751013.8-SHRA BRVFRSPECI192.02019-04-23 04:13:16<§ål(y5   3CYGP 230400Z VRB02KT 15SM SKC M02/M05 A3031 RMK SLP267CYGP2019-04-23T04:00:00Z48.77-64.47-2.0-5.00215.030.310041026.7VFRSPECI33.02019-04-23 04:13:16F§åk)5    3CYHD 230400Z AUTO 04006KT 9SM BKN085 06/02 A3013 RMK SLP219CYHD2019-04-23T04:00:00Z49.82-92.756.02.04069.030.1299211021.9TRUEVFRSPECI413.02019-04-23 04:13:16 «%Ns«B§år(5    3CYOY 230400Z AUTO 00000KT 9SM CLR 01/M02 A3021 RMK SLP235CYOY2019-04-23T04:00:00Z46.88-71.51.0-2.0009.030.2096461023.5TRUEVFRSPECI168.02019-04-23 04:13:16U§åq)5     3CYPX 230400Z AUTO 29012KT 9SM -SN OVC015 M12/M14 A3030 RMK SLP265CYPX2019-04-23T04:00:00Z60.03-77.27-12.0-14.0290129.030.3011821026.5TRUE-SNMVFRSPECI23.02019-04-23 04:13:16Q§åp)5    3CYQI 230400Z 10006KT 1SM -RA BR OVC002 13/13 A3005 RMK ST8 SLP178CYQI2019-04-23T04:00:00Z43.83-66.0813.013.010061.030.0501981017.8-RA BRLIFRSPECI43.02019-04-23 04:13:16U§åo)!5    3CYUY 230400Z 09009KT 15SM -RA SCT065 OVC089 02/M02 A3016 RMK SC3AC5 SLP232CYUY2019-04-23T04:00:00Z48.2-78.822.0-2.090915.030.1594491023.2-RAVFRMETAR301.02019-04-23 04:13:16 ¿*Z¿H§åv)5    3CYGV 230400Z AUTO 05005KT 9SM FEW240 M01/M07 A3031 RMK SLP267CYGV2019-04-23T04:00:00Z50.27-63.62-1.0-7.05059.030.310041026.7TRUEVFRSPECI33.02019-04-23 04:13:16G§åu)5    3CYMH 230400Z AUTO 23003KT 9SM CLR M04/M06 A3023 RMK SLP238CYMH2019-04-23T04:00:00Z52.28-55.85-4.0-6.023039.030.2303141023.8TRUEVFRMETAR11.02019-04-23 04:13:16J§åt)5    3CYMT 230400Z AUTO 06006KT 9SM OVC110 M01/M07 A3027 RMK SLP272CYMT2019-04-23T04:00:00Z49.77-74.52-1.0-7.06069.030.2687021027.2TRUEVFRSPECI387.02019-04-23 04:13:16P§ås)5    3CYNM 230400Z AUTO 10005KT 9SM OVC100 03/M07 A3022 RMK PRESFR SLP250CYNM2019-04-23T04:00:00Z49.77-77.823.0-7.010059.030.2214571025.0TRUEVFRSPECI281.02019-04-23 04:13:16 ¾5hˆ¾D§åz(5    3CYZP 230400Z AUTO 26011KT 9SM CLR 06/M00 A3010 RMK SLP196CYZP2019-04-23T04:00:00Z53.25-131.826.00.0260119.030.1003931019.6TRUEVFRMETAR6.02019-04-23 04:13:16Z§åy)#5    3CYZT 230400Z 31005KT 5SM -RA BR SCT007 OVC025 08/06 A3014 RMK SF4SC4 SLP209CYZT2019-04-23T04:00:00Z50.67-127.378.06.031055.030.1387791020.9-RA BRMVFRMETAR22.02019-04-23 04:13:16G§åx)5    3CYAH 230400Z AUTO 00000KT 9SM CLR M09/M11 A3037 RMK SLP310CYAH2019-04-23T04:00:00Z53.75-73.67-9.0-11.0009.030.3690951031.0TRUEVFRSPECI306.02019-04-23 04:13:16E§åw)5   3CYBX 230400Z VRB02KT 15SM FEW210 M02/M03 A3025 RMK CI2 SLP249CYBX2019-04-23T04:00:00Z51.45-57.17-2.0-3.00215.030.2509841024.9VFRSPECI35.02019-04-23 04:13:16 o*BoM§å~)5   3CYVL 230400Z AUTO 10013G21KT 9SM CLR 02/M04 A2951 RMK SLP014CYVL2019-04-23T04:00:00Z67.02-126.132.0-4.010013219.029.5098421001.4TRUEVFRMETAR259.02019-04-23 04:13:16b§å})=5   3CYXC 230400Z 21005KT 25SM SCT057 BKN090 11/03 A3003 RMK SC4AC1 SLP179 DENSITY ALT 3200FTCYXC2019-04-23T04:00:00Z49.6-115.7711.03.0210525.030.0295281017.9VFRMETAR939.02019-04-23 04:13:16h§å|)C5  3CYXE 230400Z 18019G27KT 15SM FEW160 SCT300 16/01 A2975 RMK AC1CI3 SLP083 DENSITY ALT 2400FTCYXE2019-04-23T04:00:00Z52.17-106.716.01.0180192715.029.7490161008.3VFRMETAR504.02019-04-23 04:13:16b§å{)15   3CYXS 230400Z AUTO 24010G17KT 9SM BKN075 11/M03 A2985 RMK SLP126 DENSITY ALT 2300FTCYXS2019-04-23T04:00:00Z53.9-122.6811.0-3.024010179.029.849411012.6TRUEVFRMETAR691.02019-04-23 04:13:16 ¹?Z”¹U§æ)5   3CYQD 230400Z AUTO 13013G19KT 9SM BKN130 OVC150 07/M00 A2998 RMK SLP165CYQD2019-04-23T04:00:00Z53.97-101.087.00.013013199.029.979331016.5TRUEVFRSPECI271.02019-04-23 04:13:16@§æ)5     3CYQZ 230400Z AUTO 31007KT 9SM FEW095 RMK T MISG TD MISG DENSITY ALT MISGCYQZ2019-04-23T04:00:00Z53.02-122.5231079.0TRUEVFRSPECI545.02019-04-23 04:13:16_§æ))5     3CYRV 230400Z AUTO 34003KT 290V010 9SM -RA FEW007 OVC018 07/06 A3009 RMK SLP202CYRV2019-04-23T04:00:00Z50.97-118.177.06.034039.030.0885831020.2TRUE-RAMVFRSPECI443.02019-04-23 04:13:16;§å(}5   3CYUA 230400Z AUTO 02012G22KT ////SM OVC007 M06/M07 A2973CYUA2019-04-23T04:00:00Z68.95-137.28-6.0-7.020122229.731298TRUEMETAR38.02019-04-23 04:13:16 .Lwa§æ);5   3CYEV 230400Z 01011KT 15SM FEW150 BKN260 M02/M05 A2957 RMK AC1CI5 AC TR CONTRAILS SLP021CYEV2019-04-23T04:00:00Z68.32-133.5-2.0-5.0101115.029.5688971002.1VFRSPECI68.02019-04-23 04:13:16O§æ)5   3CYIV 230400Z 07003KT 050V120 15SM SKC 01/M06 A3018 RMK VIA CYWG SLP234CYIV2019-04-23T04:00:00Z53.85-94.651.0-6.070315.030.1801191023.4VFRSPECI237.02019-04-23 04:13:16\§æ)+5   3CYKY 230400Z 21022KT 15SM SCT150 12/M03 A2968 RMK AC3 SLP055 DENSITY ALT 2800FTCYKY2019-04-23T04:00:00Z51.52-109.1712.0-3.02102215.029.6811031005.5VFRSPECI694.02019-04-23 04:13:16L§æ)5    3CYPR 230400Z AUTO VRB02KT 9SM SCT055 OVC070 06/00 A3010 RMK SLP195CYPR2019-04-23T04:00:00Z54.28-130.426.00.0029.030.1003931019.5TRUEVFRSPECI34.02019-04-23 04:13:16 c"2cI§æ ) 5    3YSSY 230400Z 15010KT 9999 FEW012 SCT025 BKN075 23/19 Q1025 NOSIGYSSY2019-04-23T04:00:00Z-33.95151.1723.019.0150106.2130.265747TRUEVFRMETAR3.02019-04-23 04:13:16j§æ )M5   3CYBL 230400Z 12005KT 080V140 10SM OVC009 09/08 A3014 RMK SC8 LAST STFD OBS/NEXT 231300UTC SLP212CYBL2019-04-23T04:00:00Z49.95-125.279.08.0120510.030.1387791021.2IFRSPECI106.02019-04-23 04:13:16r§æ)O5   3CYDB 230400Z AUTO 22010G20KT 190V260 9SM OVC095 04/M17 A2919 RMK PRESRR SLP917 DENSITY ALT 2800FTCYDB2019-04-23T04:00:00Z61.37-139.054.0-17.022010209.029.190945991.7TRUEVFRSPECI801.02019-04-23 04:13:16`§æ)+5   3CYDQ 230400Z AUTO 24016G23KT 9SM CLR 11/M00 A2962 RMK SLP048 DENSITY ALT 2400FTCYDQ2019-04-23T04:00:00Z55.75-120.1711.00.024016239.029.6190951004.8TRUEVFRMETAR655.02019-04-23 04:13:16 )m¤Ù:§æ(o5    3YPKU 230400Z AUTO 12012KT 9999 // NCD 35/10 Q1011YPKU2019-04-23T04:00:00Z-15.77128.6835.010.0120126.2129.852362TRUEVFRSPECI45.02019-04-23 04:13:16E§æ) 5    3YPLM 230400Z AUTO 11006KT 9999 // NCD 30/04 Q1015 RF00.0/000.0YPLM2019-04-23T04:00:00Z-22.22114.0730.04.011066.2129.970472TRUEVFRMETAR6.02019-04-23 04:13:16C§æ )5    3YPPH 230400Z 21004KT CAVOK 26/06 Q1024 FM0600 21010KT CAVOKYPPH2019-04-23T04:00:00Z-31.93115.9826.06.021046.2130.236221VFR-1.0METAR13.02019-04-23 04:13:166§æ (e5    3YPTN 230400Z 11015KT CAVOK 34/12 Q1011 NOSIGYPTN2019-04-23T04:00:00Z-14.52132.3834.012.0110156.2129.852362TRUEVFRMETAR109.02019-04-23 04:13:16Q§æ )5     3YPXM 230400Z AUTO 09011KT 9999 -RA BKN019 BKN028 BKN034 26/24 Q1011YPXM2019-04-23T04:00:00Z-10.45105.6726.024.090116.2129.852362TRUE-RAMVFRMETAR259.02019-04-23 04:13:16 G{ÂìR§æ)5     3YBBN 230400Z 13011KT 9999 VCSH SCT028 SCT043 BKN058 23/18 Q1021 NOSIGYBBN2019-04-23T04:00:00Z-27.38153.1323.018.0130116.2130.147638TRUEVCSHVFRMETAR5.02019-04-23 04:13:16P§æ)5    3YBCS 230400Z AUTO 13012KT 9999 // NCD 30/21 Q1012 RMK RF00.0/000.0 NOSIGYBCS2019-04-23T04:00:00Z-16.87145.7530.021.0130126.2129.88189TRUEVFRMETAR7.02019-04-23 04:13:163§æ(e5    3YPAD 230400Z 25015KT CAVOK 20/07 Q1026 NOSIGYPAD2019-04-23T04:00:00Z-34.95138.5220.07.0250156.2130.295275TRUEVFRMETAR4.02019-04-23 04:13:16F§æ) 5    3YPCC 230400Z 08018KT 9999 VCSH SCT017 SCT030 BKN170 28/25 Q1009YPCC2019-04-23T04:00:00Z-12.1796.8228.025.080186.2129.793306VCSHVFRMETAR3.02019-04-23 04:13:163§æ(e5    3YPDN 230400Z 07014KT CAVOK 34/16 Q1009 NOSIGYPDN2019-04-23T04:00:00Z-12.42130.934.016.070146.2129.793306TRUEVFRMETAR30.02019-04-23 04:13:16 <5|­í<+§æ([5   3OIIS 230400Z 35002KT CAVOK 14/M07 Q1011OIIS2019-04-23T04:00:00Z35.3853.6714.0-7.035026.2129.852362VFRMETAR1115.02019-04-23 04:13:16:§æ(y5    3OINB 230400Z 24006KT 4000 RA BKN015 OVC080 10/10 Q1020OINB2019-04-23T04:00:00Z36.7252.6510.010.024062.4930.11811RAIFRMETAR-15.02019-04-23 04:13:16I§æ) 5    3OINK 230400Z 20006KT 5000 -RA BR BKN015 OVC080 10/10 Q1017 A3006OINK2019-04-23T04:00:00Z37.2555.110.010.020063.1130.029528-RA BRMVFRMETAR33.02019-04-23 04:13:163§æ(g5   3OISA 230400Z 21016KT CAVOK 13/M17 Q1014 A2997OISA2019-04-23T04:00:00Z31.0352.7813.0-17.0210166.2129.940945VFRMETAR2004.02019-04-23 04:13:16E§æ) 5    3YBAS 230400Z AUTO 10009KT 9999 // NCD 24/06 Q1021 RF00.0/000.0YBAS2019-04-23T04:00:00Z-23.8133.924.06.010096.2130.147638TRUEVFRMETAR541.02019-04-23 04:13:16 GD‘À G@§æ)5    3VTBD 230400Z 19006KT 130V230 9999 FEW020 34/25 Q1010 NOSIGVTBD2019-04-23T04:00:00Z13.92100.634.025.019066.2129.822834TRUEVFRMETAR3.02019-04-23 04:13:16-§æ(g5   3OICJ 230400Z 00000KT CAVOK 04/M04 Q1017 A3004OICJ2019-04-23T04:00:00Z33.948.754.0-4.0006.2130.029528VFRMETAR1600.02019-04-23 04:13:16K§æ)5   3OICS 230400Z 02004KT 9000 FEW030CB SCT035 BKN070 04/01 Q1015 A3000 RESHRAOICS2019-04-23T04:00:00Z35.2547.024.01.02045.5929.970472VFRMETAR1373.02019-04-23 04:13:16-§æ(g5   3OIFK 230400Z 00000KT CAVOK 13/M04 Q1014 A2996OIFK2019-04-23T04:00:00Z33.951.5813.0-4.0006.2129.940945VFRMETAR982.02019-04-23 04:13:166§æ(s5   3OIHM 230400Z 31002KT 9999 BKN040 04/M05 Q1017 A3004OIHM2019-04-23T04:00:00Z34.2848.824.0-5.031026.2130.029528VFRMETAR1726.02019-04-23 04:13:16 aNœ×a2§æ#(g5    3RJFU 230400Z 17009KT 9999 -RA NSC 20/17 Q1013RJFU2019-04-23T04:00:00Z32.92129.9220.017.017096.2129.911417-RAVFRMETAR5.02019-04-23 04:13:168§æ")5   3RJNK 230400Z 35006KT 320V020 9999 FEW180 BKN280 19/09 Q1016RJNK2019-04-23T04:00:00Z36.37136.4219.09.035066.2130.0VFRMETAR9.02019-04-23 04:13:16?§æ!)5   3RJOA 230400Z 13006KT 100V180 9999 FEW030 BKN120 BKN/// 21/07 Q1016RJOA2019-04-23T04:00:00Z34.42132.9221.07.013066.2130.0VFRSPECI6.02019-04-23 04:13:16,§æ (i5   3RJOB 230400Z 14008KT 100V180 CAVOK 23/09 Q1016RJOB2019-04-23T04:00:00Z34.75133.8323.09.014086.2130.0VFRMETAR242.02019-04-23 04:13:16,§æ(i5   3RJOT 230400Z 03004KT 360V070 CAVOK 20/11 Q1016RJOT2019-04-23T04:00:00Z34.22134.0220.011.03046.2130.0VFRMETAR188.02019-04-23 04:13:16 ¶,„‹¶O§æ')#5   3RJCC 230400Z 18015KT 9999 FEW030 BKN090 10/03 Q1019 RMK 1CU030 7AC090 A3011RJCC2019-04-23T04:00:00Z42.77141.6710.03.0180156.2130.088583VFRMETAR30.02019-04-23 04:13:16s§æ&)i5   3RJFK 230400Z 14011KT 9999 FEW020 SCT035 BKN100 20/16 Q1014 RMK 1CU020 4CU035 6AC100 A2997 VOLCANIC ASH CLOUD SRJFK2019-04-23T04:00:00Z31.8130.7220.016.0140116.2129.940945VFRMETAR275.02019-04-23 04:13:16"§æ%(Y5   3RJSN 230400Z 03010KT CAVOK 17/09 Q1016RJSN2019-04-23T04:00:00Z37.95139.1217.09.030106.2130.0VFRMETAR4.02019-04-23 04:13:16N§æ$)5    3RJFT 230400Z 12008KT 070V190 9999 -RA FEW040 BKN100 BKN/// 24/13 Q1013RJFT2019-04-23T04:00:00Z32.82130.8324.013.012086.2129.911417-RAVFRMETAR196.02019-04-23 04:13:16 .KÛ.'§æ,([5   3RJEC 230400Z 19014KT CAVOK 14/M09 Q1016RJEC2019-04-23T04:00:00Z43.67142.4314.0-9.0190146.2130.0VFRMETAR211.02019-04-23 04:13:16<§æ+)5   3RJFR 230400Z 07006KT 9999 FEW040 BKN100 OVC120 18/13 Q1014RJFR2019-04-23T04:00:00Z33.82131.0318.013.07066.2129.940945VFRMETAR6.02019-04-23 04:13:16(§æ*([5   3RJSK 230400Z VRB06KT CAVOK 21/M03 Q1017RJSK2019-04-23T04:00:00Z39.62140.2221.0-3.0066.2130.029528VFRMETAR96.02019-04-23 04:13:16D§æ))5   3RJAH 230400Z 17006KT 120V250 9999 FEW030 BKN040 BKN250 20/09 Q1020RJAH2019-04-23T04:00:00Z36.17140.4220.09.017066.2130.11811VFRMETAR35.02019-04-23 04:13:16e§æ()A5     3RJFF 230400Z 18006KT 160V220 9999 -RA NSC 22/15 Q1013 NOSIG RMK 1SC060 6AC100 8AS120 A2992RJFF2019-04-23T04:00:00Z33.57130.4322.015.018066.2129.911417TRUE-RAVFRMETAR12.02019-04-23 04:13:16 42f¤ì42§æ1(k5   3RJSA 230400Z 05005KT 020V090 CAVOK 17/M01 Q1017RJSA2019-04-23T04:00:00Z40.72140.6817.0-1.05056.2130.029528VFRMETAR201.02019-04-23 04:13:162§æ0(i5   3RJSF 230400Z 17011KT 130V200 CAVOK 21/04 Q1019RJSF2019-04-23T04:00:00Z37.22140.4221.04.0170116.2130.088583VFRMETAR375.02019-04-23 04:13:16<§æ/)5   3RJOM 230400Z 01008KT 9999 FEW030 SCT050 BKN120 19/12 Q1015RJOM2019-04-23T04:00:00Z33.82132.6819.012.01086.2129.970472VFRMETAR7.02019-04-23 04:13:16F§æ.)5   3RJOK 230400Z 21004KT 170V240 9999 FEW030 BKN060 BKN150 21/14 Q1018RJOK2019-04-23T04:00:00Z33.52133.6721.014.021046.2130.059055VFRMETAR10.02019-04-23 04:13:16H§æ-) 5    3RJFM 230400Z 04006KT 6000 -SHRA FEW015 BKN025 BKN120 20/19 Q1015RJFM2019-04-23T04:00:00Z31.87131.4320.019.04063.7329.970472-SHRAMVFRMETAR9.02019-04-23 04:13:16 4D™Ý4^§æ6)?5   3ROAH 230400Z 18014KT 9999 FEW007 SCT010 BKN020 27/23 Q1011 RMK 1ST007 4CU010 7CU020 A2987ROAH2019-04-23T04:00:00Z26.17127.6527.023.0180146.2129.852362MVFRMETAR8.02019-04-23 04:13:16?§æ5(5    3RJGG 230400Z 13017KT 9999 FEW030 BKN/// 22/12 Q1019 NOSIGRJGG2019-04-23T04:00:00Z34.87136.822.012.0130176.2130.088583TRUEVFRSPECI5.02019-04-23 04:13:166§æ4(s5   3RJCH 230400Z 14011KT 9999 FEW030 SCT140 14/01 Q1018RJCH2019-04-23T04:00:00Z41.77140.8214.01.0140116.2130.059055VFRMETAR36.02019-04-23 04:13:16%§æ3(Y5   3RJSS 230400Z 09009KT CAVOK 14/07 Q1020RJSS2019-04-23T04:00:00Z38.12140.9214.07.09096.2130.11811VFRMETAR5.02019-04-23 04:13:166§æ2(s5   3RJNS 230400Z 14011KT 9999 FEW030 OVC/// 21/10 Q1020RJNS2019-04-23T04:00:00Z34.8138.1821.010.0140116.2130.11811VFRMETAR135.02019-04-23 04:13:16 9[¢Ê*§æ;(_5   3RJFS 230400Z 25004KT 9000 NSC 19/16 Q1013RJFS2019-04-23T04:00:00Z33.15130.319.016.025045.5929.911417VFRMETAR5.02019-04-23 04:13:16R§æ:)!5    3RJAA 230400Z 13012KT 9999 FEW040 BKN/// 21/11 Q1020 NOSIG RMK 2CU040 A3014RJAA2019-04-23T04:00:00Z35.77140.3721.011.0130126.2130.11811TRUEVFRMETAR44.02019-04-23 04:13:163§æ9(e5    3RJBB 230400Z 24012KT CAVOK 21/13 Q1017 NOSIGRJBB2019-04-23T04:00:00Z34.42135.2521.013.0240126.2130.029528TRUEVFRMETAR8.02019-04-23 04:13:16X§æ8)15    3RJTT 230400Z 13004KT 090V180 9999 FEW030 BKN/// 20/12 Q1020 NOSIG RMK 1CU030 A3014RJTT2019-04-23T04:00:00Z35.53139.7720.012.013046.2130.11811TRUEVFRMETAR8.02019-04-23 04:13:16A§æ7)5   3RJOO 230400Z VRB06KT 9999 FEW030 BKN/// 26/15 Q1016 RMK 1CU030 A3002RJOO2019-04-23T04:00:00Z34.77135.4326.015.0066.2130.0VFRMETAR15.02019-04-23 04:13:16 qDŠÐq'§æ@([5   3RJCM 230400Z 19013KT CAVOK 16/M13 Q1016RJCM2019-04-23T04:00:00Z43.88144.1716.0-13.0190136.2130.0VFRMETAR36.02019-04-23 04:13:16,§æ?([5   3RJCB 230400Z 15016KT CAVOK 14/M02 Q1017RJCB2019-04-23T04:00:00Z42.72143.2214.0-2.0150166.2130.029528VFRMETAR152.02019-04-23 04:13:164§æ>(s5   3RJOC 230400Z 07004KT 9999 FEW040 BKN/// 25/11 Q1013RJOC2019-04-23T04:00:00Z35.42132.8725.011.07046.2129.911417VFRMETAR5.02019-04-23 04:13:164§æ=(s5   3RJOH 230400Z 05009KT 9999 FEW180 BKN280 21/10 Q1013RJOH2019-04-23T04:00:00Z35.47133.2521.010.05096.2129.911417VFRMETAR9.02019-04-23 04:13:166§æ<(s5   3ROIG 230400Z 21018KT 9999 FEW012 SCT020 29/26 Q1010ROIG2019-04-23T04:00:00Z24.32124.1729.026.0210186.2129.822834VFRMETAR7.02019-04-23 04:13:16 ZR–Ø"ZB§æE) 5    3RJFO 230400Z VRB01KT 9999 -RA FEW020 SCT035 BKN100 17/14 Q1015RJFO2019-04-23T04:00:00Z33.47131.7217.014.0016.2129.970472-RAVFRMETAR8.02019-04-23 04:13:160§æD(i5   3RJNT 230400Z 36007KT 330V040 CAVOK 22/09 Q1015RJNT2019-04-23T04:00:00Z36.63137.1722.09.036076.2129.970472VFRMETAR27.02019-04-23 04:13:168§æC(q5    3TTPP 230400Z 11005KT 9999 FEW016 25/23 Q1012 NOSIGTTPP2019-04-23T04:00:00Z10.58-61.3525.023.011056.2129.88189TRUEVFRMETAR15.02019-04-23 04:13:166§æB(q5    3TTCP 230400Z 08003KT 9999 FEW018 26/21 Q1012 NOSIGTTCP2019-04-23T04:00:00Z11.15-60.8526.021.08036.2129.88189TRUEVFRMETAR8.02019-04-23 04:13:16(§æA(Y5   3RJCK 230400Z 20013KT CAVOK 09/02 Q1019RJCK2019-04-23T04:00:00Z43.02144.189.02.0200136.2130.088583VFRMETAR98.02019-04-23 04:13:16 æ;p­æA§æI)5    3ZSOF 230400Z 00000MPS 7000 BKN011 OVC046 21/18 Q1009 NOSIGZSOF2019-04-23T04:00:00Z31.98116.9721.018.0004.3529.793306TRUEMVFRMETAR63.02019-04-23 04:13:16=§æH(w5    3ZUCK 230400Z 16003MPS 080V220 CAVOK 28/20 Q1008 NOSIGZUCK2019-04-23T04:00:00Z29.72106.6328.020.016066.2129.763779TRUEVFRMETAR416.02019-04-23 04:13:16E§æG)5    3ZYCC 230400Z 32005MPS 270V010 8000 SCT030 22/08 Q1008 NOSIGZYCC2019-04-23T04:00:00Z43.98125.6822.08.0320104.9729.763779TRUEMVFRMETAR238.02019-04-23 04:13:16?§æF(y5    3ZYHB 230400Z 31007MPS 270V350 CAVOK 19/M06 Q1007 NOSIGZYHB2019-04-23T04:00:00Z45.62126.2519.0-6.0310146.2129.734253TRUEVFRMETAR140.02019-04-23 04:13:16 Ñ![”с=§æM(w5    3ZJHK 230400Z 20005MPS 160V230 CAVOK 33/24 Q1010 NOSIGZJHK2019-04-23T04:00:00Z19.93110.4733.024.0200106.2129.822834TRUEVFRMETAR23.02019-04-23 04:13:16A§æL)5    3ZJSY 230400Z 17003MPS 120V240 9999 FEW020 32/25 Q1012 NOSIGZJSY2019-04-23T04:00:00Z18.3109.4232.025.017066.2129.88189TRUEVFRMETAR27.02019-04-23 04:13:16@§æK(y5    3ZLLL 230400Z 19005MPS 150V220 CAVOK 23/M01 Q1013 NOSIGZLLL2019-04-23T04:00:00Z36.52103.6223.0-1.0190106.2129.911417TRUEVFRMETAR1947.02019-04-23 04:13:16Y§æJ)35    3ZSNJ 230400Z 34003MPS 310V010 3000 BR BKN010 OVC040 22/19 Q1009 BECMG TL0530 BKN015ZSNJ2019-04-23T04:00:00Z31.75118.8722.019.034061.8629.793306BRIFRMETAR33.02019-04-23 04:13:16 È/`ŒÈ>§æQ(w5    3ZBHH 230400Z 24003MPS 160V330 CAVOK 23/10 Q1010 NOSIGZBHH2019-04-23T04:00:00Z40.85111.8223.010.024066.2129.822834TRUEVFRMETAR1065.02019-04-23 04:13:16N§æP)5     3ZGHA 230400Z 06002MPS 030V090 3200 BR SCT016 BKN050 22/17 Q1009 NOSIGZGHA2019-04-23T04:00:00Z28.18113.2222.017.06041.9929.793306TRUEBRIFRMETAR66.02019-04-23 04:13:16I§æO) 5     3ZHCC 230400Z 18003MPS 120V250 3500 HZ BKN030 22/16 Q1009 NOSIGZHCC2019-04-23T04:00:00Z34.52113.8322.016.018062.1729.793306TRUEHZIFRMETAR151.02019-04-23 04:13:16K§æN)5    3ZHHH 230400Z 31003MPS 280V350 8000 FEW020 BKN033 22/17 Q1009 NOSIGZHHH2019-04-23T04:00:00Z30.78114.2222.017.031064.9729.793306TRUEMVFRMETAR33.02019-04-23 04:13:16 ,<q¢Þ,,§æV(_5   3KLCK 230400Z 23003KT 10SM SKC 17/08 A3007KLCK2019-04-23T04:00:00Z39.82-82.9217.08.0230310.030.070866VFRMETAR227.02019-04-23 04:13:16>§æU(y5    3KLHZ 230400Z AUTO 00000KT 10SM CLR 11/09 A3015 RMK AO2KLHZ2019-04-23T04:00:00Z36.02-78.3311.09.00010.030.15059TRUETRUEVFRMETAR113.02019-04-23 04:13:16I§æT) 5    3KOCW 230400Z AUTO 00000KT 10SM CLR 13/10 A3013 RMK AO2 T01250097KOCW2019-04-23T04:00:00Z35.57-77.0512.59.70010.030.129921TRUETRUEVFRMETAR12.02019-04-23 04:13:16E§æS)5    3KRHP 230400Z AUTO 00000KT 11/10 A3018 RMK AO2 T01080104 PWINOKRHP2019-04-23T04:00:00Z35.18-83.8510.810.40030.180119TRUETRUETRUEMETAR518.02019-04-23 04:13:16>§æR(y5    3KUKF 230400Z AUTO 00000KT 10SM CLR 13/09 A3018 RMK AO2KUKF2019-04-23T04:00:00Z36.22-81.113.09.00010.030.180119TRUETRUEVFRMETAR396.02019-04-23 04:13:16 0†£Ü9§æ[(q5    3WAHS 230400Z 09010KT 7000 FEW014 33/23 Q1007 NOSIGWAHS2019-04-23T04:00:00Z-6.98110.3833.023.090104.3529.734253TRUEMVFRMETAR5.02019-04-23 04:13:16A§æZ(}5     3TNCC 230400Z AUTO 10009KT 9999 SCT018 26/21 Q1013 NOSIG TNCC2019-04-23T04:00:00Z12.2-68.9726.021.010096.2129.911417TRUETRUEVFRMETAR9.02019-04-23 04:13:16]§æY)/5    3RJAW 230400Z 36010KT 9999 -SHRA SCT005 BKN010 26/22 Q1013 RMK 3CU005 7CU010 A2992RJAW2019-04-23T04:00:00Z24.77141.3226.022.0360106.2129.911417-SHRAMVFRMETAR116.02019-04-23 04:13:16$§æX(Y5   3EIME 230400Z VRB03KT CAVOK 11/08 Q0997EIME2019-04-23T04:00:00Z53.3-6.4511.08.0036.2129.438976VFRMETAR93.02019-04-23 04:13:16J§æW) 5    3KASJ 230400Z AUTO 00000KT 10SM CLR 11/11 A3013 RMK AO2 T01100110KASJ2019-04-23T04:00:00Z36.28-77.1711.011.00010.030.129921TRUETRUEVFRMETAR21.02019-04-23 04:13:16 K<zÇ K8§æ`(q5    3VTPO 230400Z 10004KT 9999 FEW025 33/22 Q1009 NOSIGVTPO2019-04-23T04:00:00Z17.2399.8233.022.010046.2129.793306TRUEVFRMETAR54.02019-04-23 04:13:168§æ_(q5    3VTPP 230400Z VRB02KT 8000 FEW030 32/23 Q1010 NOSIGVTPP2019-04-23T04:00:00Z16.78100.2832.023.0024.9729.822834TRUEMVFRMETAR44.02019-04-23 04:13:16-§æ^(_5   3VIGG 230400Z 12004KT 6000 NSC 30/17 Q1013VIGG2019-04-23T04:00:00Z32.1776.2530.017.012043.7329.911417MVFRMETAR770.02019-04-23 04:13:16<§æ](q5    3WATT 230400Z 10024KT 9999 FEW020 34/19 Q1008 NOSIGWATT2019-04-23T04:00:00Z-10.17123.6734.019.0100246.2129.763779TRUEVFRMETAR102.02019-04-23 04:13:16>§æ\({5    3WAPP 230400Z 36005KT 9999 BKN015 26/25 Q1007 RERA NOSIGWAPP2019-04-23T04:00:00Z-3.7128.0726.025.036056.2129.734253TRUEMVFRMETAR12.02019-04-23 04:13:16 -Iƒ³ë-8§æe(q5    3VTCN 230400Z VRB02KT 9999 FEW030 34/20 Q1010 NOSIGVTCN2019-04-23T04:00:00Z18.82100.7734.020.0026.2129.822834TRUEVFRMETAR201.02019-04-23 04:13:16B§æd)5    3VTCP 230400Z 05003KT 350V100 9999 FEW045 34/22 Q1011 NOSIGVTCP2019-04-23T04:00:00Z18.13100.1734.022.05036.2129.852362TRUEVFRMETAR162.02019-04-23 04:13:16J§æc)5    3VTPB 230400Z 29003KT 210V010 7000 FEW030 SCT100 30/21 Q1010 NOSIGVTPB2019-04-23T04:00:00Z16.67101.230.021.029034.3529.822834TRUEMVFRMETAR137.02019-04-23 04:13:16@§æb)5    3VTPH 230400Z 06007KT 030V090 8000 FEW028 31/25 Q1010 NOSIGVTPH2019-04-23T04:00:00Z12.6399.9531.025.06074.9729.822834TRUEMVFRMETAR6.02019-04-23 04:13:161§æa(e5    3VTPM 230400Z VRB02KT CAVOK 34/19 Q1010 NOSIGVTPM2019-04-23T04:00:00Z16.6798.5334.019.0026.2129.822834TRUEVFRMETAR197.02019-04-23 04:13:16 SJ”ÞS;§æj(q5     3VANP 230400Z 13002KT 4000 HZ NSC 35/14 Q1011 NOSIGVANP2019-04-23T04:00:00Z21.0879.0535.014.013022.4929.852362TRUEHZIFRMETAR310.02019-04-23 04:13:16D§æi)5     3VOPB 230400Z 05007KT 5000 HZ SCT018 FEW020 31/25 Q1009 NOSIGVOPB2019-04-23T04:00:00Z11.6392.7331.025.05073.1129.793306TRUEHZMVFRMETAR4.02019-04-23 04:13:160§æh(e5   3VTBO 230400Z 22004KT 7000 SCT020 33/26 Q1010VTBO2019-04-23T04:00:00Z12.28102.3233.026.022044.3529.822834MVFRMETAR32.02019-04-23 04:13:160§æg(e5    3VTCH 230400Z 32004KT 5000 HZ NSC 33/18 Q1012VTCH2019-04-23T04:00:00Z19.397.9833.018.032043.1129.88189HZMVFRMETAR269.02019-04-23 04:13:160§æf(e5    3VTCL 230400Z VRB02KT CAVOK 33/20 Q1012 NOSIGVTCL2019-04-23T04:00:00Z18.2799.5233.020.0026.2129.88189TRUEVFRMETAR242.02019-04-23 04:13:16 +BŒÀé+8§æo(q5    3VMMC 230400Z 19009KT 9999 FEW012 29/27 Q1011 NOSIGVMMC2019-04-23T04:00:00Z22.15113.5829.027.019096.2129.852362TRUEVFRMETAR6.02019-04-23 04:13:16Q§æn)!5    3FMEE 230400Z AUTO 09007KT 9999 BKN050 27/24 Q1014 TEMPO 4000 SHRA SCT018CBFMEE2019-04-23T04:00:00Z-20.8755.5227.024.09076.2129.940945TRUEVFRMETAR25.02019-04-23 04:13:16F§æm) 5    3FMEP 230400Z AUTO 03004KT 9999 FEW050 28/20 Q1014 BECMG 24010KTFMEP2019-04-23T04:00:00Z-21.3255.4228.020.03046.2129.940945TRUEVFRSPECI18.02019-04-23 04:13:160§æl(e5   3VOBG 230400Z 31003KT 8000 FEW015 29/17 Q1015VOBG2019-04-23T04:00:00Z12.9577.6329.017.031034.9729.970472MVFRMETAR897.02019-04-23 04:13:168§æk(q5     3VIAR 230400Z VRB02KT 5000 HZ NSC 31/20 Q1008 NOSIGVIAR2019-04-23T04:00:00Z31.774.831.020.0023.1129.763779TRUEHZMVFRMETAR234.02019-04-23 04:13:16 © W‡©X§æs)-5    3RCSS 230400Z 27010KT 230V320 9999 FEW035 33/24 Q1009 NOSIG RMK 27006KT/R10 A2981RCSS2019-04-23T04:00:00Z25.07121.5333.024.0270106.2129.793306TRUEVFRMETAR6.02019-04-23 04:13:16J§ær)5    3RCMQ 230400Z 20008KT 9999 FEW010 SCT016 31/23 Q1011 NOSIG RMK A2988RCMQ2019-04-23T04:00:00Z24.27120.6231.023.020086.2129.852362TRUEVFRMETAR5.02019-04-23 04:13:16C§æq)5    3RCNN 230400Z 26008KT 9999 FEW025 30/24 Q1011 NOSIG RMK A2987RCNN2019-04-23T04:00:00Z22.93120.230.024.026086.2129.852362TRUEVFRMETAR19.02019-04-23 04:13:16Z§æp)15    3RCFN 230400Z 11006KT 070V170 9999 FEW023 SCT035 BKN050 30/24 Q1011 NOSIG RMK A2986RCFN2019-04-23T04:00:00Z22.77121.0730.024.011066.2129.852362TRUEVFRMETAR42.02019-04-23 04:13:16  *_¤ß 9§æx(q5    3VTSM 230400Z 14010KT 9999 FEW020 33/24 Q1010 NOSIGVTSM2019-04-23T04:00:00Z9.55100.0733.024.0140106.2129.822834TRUEVFRMETAR17.02019-04-23 04:13:16?§æw)5    3VTSR 230400Z 12006KT 050V220 9999 SCT030 33/24 Q1009 NOSIGVTSR2019-04-23T04:00:00Z9.7898.5833.024.012066.2129.793306TRUEVFRMETAR8.02019-04-23 04:13:165§æv(q5    3VTST 230400Z VRB02KT 9999 FEW020 33/22 Q1008 NOSIGVTST2019-04-23T04:00:00Z7.5299.6233.022.0026.2129.763779TRUEVFRMETAR16.02019-04-23 04:13:16E§æu)5    3RCTP 230400Z 23014KT 9999 FEW022 32/25 Q1009 NOSIG RMK A2982RCTP2019-04-23T04:00:00Z25.07121.2232.025.0230146.2129.793306TRUEVFRMETAR33.02019-04-23 04:13:16P§æt)5    3RCKH 230400Z 27012KT 9999 FEW016 31/24 Q1011 NOSIG RMK 28012KT/R09 A2986RCKH2019-04-23T04:00:00Z22.57120.3331.024.0270126.2129.852362TRUEVFRMETAR9.02019-04-23 04:13:16 F>„½÷F+§æ}(e5   3VTSB 230400Z VRB06KT 9999 SCT020 34/23 Q1009VTSB2019-04-23T04:00:00Z9.1299.1334.023.0066.2129.793306VFRMETAR11.02019-04-23 04:13:16@§æ|)5    3VTSC 230400Z 11008KT 070V140 9999 FEW022 32/25 Q1009 NOSIGVTSC2019-04-23T04:00:00Z6.52101.7532.025.011086.2129.793306TRUEVFRMETAR6.02019-04-23 04:13:16A§æ{)5    3VTSE 230400Z 07011KT 020V100 9999 BKN020 34/25 Q1009 NOSIGVTSE2019-04-23T04:00:00Z10.7299.3734.025.070116.2129.793306TRUEMVFRMETAR5.02019-04-23 04:13:164§æz(q5    3VTSF 230400Z VRB07KT 9999 SCT039 34/23 Q1009 NOSIGVTSF2019-04-23T04:00:00Z8.5399.9534.023.0076.2129.793306TRUEVFRMETAR4.02019-04-23 04:13:16<§æy(5    3VTSH 230400Z 09006KT 9999 FEW020 SCT100 32/25 Q1008 NOSIGVTSH2019-04-23T04:00:00Z7.2100.5832.025.09066.2129.763779TRUEVFRMETAR5.02019-04-23 04:13:16 -y²çE§ç)5     3VEDG 230400Z 11005KT 4000 HZ FEW020 SCT100 32/20 Q1010 NOSIGVEDG2019-04-23T04:00:00Z23.6287.2532.020.011052.4929.822834TRUEHZIFRMETAR91.02019-04-23 04:13:16E§ç)5     3VOHY 230400Z VRB04KT 5000 HZ FEW020 SCT100 30/21 Q1015 NOSIGVOHY2019-04-23T04:00:00Z17.4578.4530.021.0043.1129.970472TRUEHZMVFRMETAR545.02019-04-23 04:13:16A§ç)5    3WALL 230400Z 17002KT 9999 FEW017CB SCT018 27/26Q1007 RMK CB TO E AND SWWALL2019-04-23T04:00:00Z-1.27116.917026.2129.734253VFRMETAR3.02019-04-23 04:13:16.§æ(e5   3WAOO 230400Z 04004KT 9999 SCT020 31/24 Q1007WAOO2019-04-23T04:00:00Z-3.45114.7731.024.04046.2129.734253VFRMETAR20.02019-04-23 04:13:16M§æ~)5    3WAMM 230400Z 06007KT 9000 FEW018CB SCT020 30/24 Q1008 NOSIG CB IN CLIMBWAMM2019-04-23T04:00:00Z1.55124.9230.024.06075.5929.763779TRUEVFRMETAR80.02019-04-23 04:13:16 +ByÃô+C§ç) 5    3CWPF 230400Z AUTO 04002KT 10/07 RMK AO1 SLP221 T01020074 58002CWPF2019-04-23T04:00:00Z48.43-123.4310.27.44021022.1TRUETRUE-0.2METAR12.02019-04-23 04:13:16I§ç) 5    3K24A 230400Z AUTO 00000KT 10SM CLR 15/09 A3021 RMK AO2 T01460089K24A2019-04-23T04:00:00Z35.32-83.214.68.90010.030.209646TRUETRUEVFRMETAR871.02019-04-23 04:13:160§ç(e5    3VAJB 230400Z 19006KT 5000 HZ NSC 36/04 Q1012VAJB2019-04-23T04:00:00Z23.1880.0536.04.019063.1129.88189HZMVFRMETAR494.02019-04-23 04:13:16C§ç)5     3VOCI 230400Z 34004KT 3500 BR SCT012 BKN080 27/25 Q1010 NOSIGVOCI2019-04-23T04:00:00Z10.1576.427.025.034042.1729.822834TRUEBRIFRMETAR8.02019-04-23 04:13:168§ç(q5     3VEAT 230400Z 00000KT 4000 HZ NSC 31/21 Q1011 NOSIGVEAT2019-04-23T04:00:00Z23.8791.2531.021.0002.4929.852362TRUEHZIFRMETAR16.02019-04-23 04:13:16 ? ?E§ç )5    3CBBC 230400Z AUTO VRB02KT 9SM OVC044 08/05 A3013 RMK SLP205CBBC2019-04-23T04:00:00Z52.18-128.158.05.0029.030.1299211020.5TRUEVFRMETAR43.02019-04-23 04:13:16r§ç )a5   3CYWH 230400Z VRB03KT 15SM FEW006 SCT030 OVC060 10/08 A3020 RMK SF1SC3SC4 LAST STFD OBS/NEXT 231300Z SLP227CYWH2019-04-23T04:00:00Z48.42-123.3810.08.00315.030.2007871022.7VFRMETAR10.02019-04-23 04:13:16‚§ç )‚5   3CYZU 230400Z 23007KT 15SM FEW050 FEW100 SCT210 10/01 A2968 RMK SC1AC1CI1 LAST STFD OBS/ NXT 231200Z SLP066 DENSITY ALT 2900FTCYZU2019-04-23T04:00:00Z54.15-115.7810.01.0230715.029.6811031006.6VFRMETAR785.02019-04-23 04:13:16j§ç)M5   3CYSM 230400Z 21008KT 140V260 15SM SCT064 OVC078 14/01 A2947 RMK SC3AC5 SLP988 DENSITY ALT 1300FTCYSM2019-04-23T04:00:00Z60.03-111.9714.01.0210815.029.471457998.8VFRSPECI203.02019-04-23 04:13:16 ;ò;S§ç)5    3CYIN 230400Z AUTO 16005KT 120V180 9SM FEW240 06/M03 A2994 RMK SLP158CYIN2019-04-23T04:00:00Z51.27-121.686.0-3.016059.029.9409451015.8TRUEVFRMETAR1128.02019-04-23 04:13:16X§ç)5   3CYDL 230400Z AUTO 24013G21KT 220V280 9SM FEW070 02/M07 A2972 RMK SLP085CYDL2019-04-23T04:00:00Z58.42-130.022.0-7.024013219.029.7194881008.5TRUEVFRMETAR816.02019-04-23 04:13:16‚§ç )‚5   3CYCG 230400Z 13003KT 080V150 15SM FEW070 SCT110 BKN130 OVC150 09/04 A3007 RMK AC2AC1AC3AC2 LAST STFD OBS/NEXT 231300Z SLP192CYCG2019-04-23T04:00:00Z49.28-117.629.04.0130315.030.0708661019.2OVC15000VFRSPECI495.02019-04-23 04:13:16t§ç )a5   3CYCD 230400Z 14004KT 120V180 15SM BKN035 OVC055 10/08 A3017 RMK SC5SC3 LAST STFD OBS / NEXT 231300Z SLP218CYCD2019-04-23T04:00:00Z49.05-123.8710.08.0140415.030.1712591021.8VFRSPECI30.02019-04-23 04:13:16 o>HoS§ç)5  3CYQH 230400Z 26023G34KT 30SM SCT065 05/M07 A2954 RMK SC3 PRESRR SLP028CYQH2019-04-23T04:00:00Z60.12-128.825.0-7.0260233430.029.539371002.8VFRSPECI690.02019-04-23 04:13:16p§ç)M5   3CYMA 230400Z 10012G20KT 20SM VCSH FEW035 OVC049 06/01 A2918 RMK SC2SC6 SLP903 DENSITY ALT 1900FTCYMA2019-04-23T04:00:00Z63.62-135.876.01.0100122020.029.179134990.3VCSHVFRSPECI504.02019-04-23 04:13:16W§ç)!5    3CYLW 230400Z AUTO 36003KT 320V020 9SM BKN080 OVC150 09/05 A3005 RMK SLP186CYLW2019-04-23T04:00:00Z49.95-119.379.05.036039.030.0501981018.6TRUEVFRSPECI430.02019-04-23 04:13:16_§ç);5   3CYKA 230400Z 06008KT 030V090 20SM FEW060 SCT085 BKN240 13/03 A2998 RMK SC1AC2CI2 SLP162CYKA2019-04-23T04:00:00Z50.7-120.4513.03.060820.029.979331016.2VFRSPECI346.02019-04-23 04:13:16 6 *6n§ç)G5   3CYXT 230400Z 21007KT 20SM FEW020 SCT038TCU BKN055 OVC077 06/00 A3003 RMK CU1TCU3SC2AC2 SLP178CYXT2019-04-23T04:00:00Z54.47-128.576.00.0210720.030.0295281017.8OVC7700VFRMETAR217.02019-04-23 04:13:16k§ç)E5  3CYXJ 230400Z 25026G39KT 60SM FEW150 FEW240 10/M01 A2957 RMK AC1CI1 SLP034 DENSITY ALT 2600FTCYXJ2019-04-23T04:00:00Z56.25-120.7310.0-1.0250263960.029.5688971003.4VFRMETAR695.02019-04-23 04:13:16l§ç)K5   3CYWL 230400Z 23011KT 15SM FEW090 BKN220 12/M03 A2989 RMK AC1CI6 AC TR SLP137 DENSITY ALT 3500FTCYWL2019-04-23T04:00:00Z52.18-122.0712.0-3.02301115.029.8907471013.7VFRMETAR940.02019-04-23 04:13:16m§ç)Q5   3CYQU 230400Z 23015KT 25SM FEW040 SCT070 BKN240 09/01 A2965 RMK SC2AC1CI2 SLP060 DENSITY ALT 2400FTCYQU2019-04-23T04:00:00Z55.18-118.889.01.02301525.029.6486231006.0VFRSPECI669.02019-04-23 04:13:16 Ê*]—ʁG§ç)5    3VOTV 230400Z 34003KT 4000 HZ SCT015 SCT080 31/25 Q1009 BECMG 5000 HZVOTV2019-04-23T04:00:00Z8.4776.9531.025.034032.4929.793306HZIFRMETAR8.02019-04-23 04:13:16@§ç)5    3VERC 230400Z 23005KT 4000 HZ NSC 29/16 Q1013 BECMG 5000 HZVERC2019-04-23T04:00:00Z23.3285.3229.016.023052.4929.911417HZIFRMETAR652.02019-04-23 04:13:16G§ç)5    3CYZY 230400Z AUTO VRB02KT 9SM FEW070 09/M00 A2978 RMK SLP107CYZY2019-04-23T04:00:00Z55.28-123.129.00.0029.029.7785431010.7TRUEVFRMETAR690.02019-04-23 04:13:16P§ç)5   3CYYF 230400Z 35007KT 15SM SCT080 OVC130 11/03 A3004 RMK AC3AC5 SLP179CYYF2019-04-23T04:00:00Z49.47-119.5811.03.0350715.030.0413381017.9VFRMETAR344.02019-04-23 04:13:16 6C„Ãø6<§ç (w5     3VECC 230400Z 14005KT 3500 HZ FEW020 33/25 Q1010 NOSIGVECC2019-04-23T04:00:00Z22.6588.4333.025.014052.1729.822834TRUEHZIFRMETAR6.02019-04-23 04:13:16E§ç)5     3VOHS 230400Z 26008KT 5000 HZ FEW015 SCT100 29/19 Q1015 NOSIGVOHS2019-04-23T04:00:00Z17.2378.4329.019.026083.1129.970472TRUEHZMVFRMETAR1.02019-04-23 04:13:16;§ç(q5     3VAAH 230400Z 32004KT 5000 FU NSC 32/16 Q1010 NOSIGVAAH2019-04-23T04:00:00Z23.0772.6232.016.032043.1129.822834TRUEFUMVFRMETAR55.02019-04-23 04:13:169§ç(q5     3VIJP 230400Z VRB02KT 3500 HZ NSC 35/10 Q1010 NOSIGVIJP2019-04-23T04:00:00Z26.8275.7835.010.0022.1729.822834TRUEHZIFRMETAR390.02019-04-23 04:13:167§ç(q5     3VABB 230400Z 00000KT 5000 FU NSC 31/22 Q1010 NOSIGVABB2019-04-23T04:00:00Z19.172.8731.022.0003.1129.822834TRUEFUMVFRMETAR8.02019-04-23 04:13:16 BKŒÈB;§ç%(w5     3VELP 230400Z 00000KT 4500 HZ FEW018 27/18 Q1013 NOSIGVELP2019-04-23T04:00:00Z23.8392.6227.018.0002.829.911417TRUEHZIFRMETAR291.02019-04-23 04:13:16?§ç$(5    3VOTK 230400Z 35002KT 7000 FEW020 SCT100 32/23 Q1010 NOSIGVOTK2019-04-23T04:00:00Z8.7278.0232.023.035024.3529.822834TRUEMVFRMETAR25.02019-04-23 04:13:16>§ç#(5    3VOPC 230400Z VRB03KT 6000 SCT020 SCT100 31/25 Q1011 NOSIGVOPC2019-04-23T04:00:00Z11.9779.8231.025.0033.7329.852362TRUEMVFRMETAR36.02019-04-23 04:13:169§ç"(y5    3VEJS 230400Z 00000KT 3000 HZ SCT020 SCT100 30/21 Q1010VEJS2019-04-23T04:00:00Z22.8286.1730.021.0001.8629.822834HZIFRMETAR142.02019-04-23 04:13:16/§ç!(e5    3VABV 230400Z 30006KT 4000 FU NSC 32/16 Q1009VABV2019-04-23T04:00:00Z21.7572.232.016.030062.4929.793306FUIFRMETAR11.02019-04-23 04:13:16 ·A}•·X§ç))!5    3CYFB 230400Z 32009KT 15SM IC FEW062 SCT140 M20/M23 A2989 RMK SC2AC2 SLP128CYFB2019-04-23T04:00:00Z63.75-68.55-20.0-23.0320915.029.8907471012.8ICVFRMETAR34.02019-04-23 04:13:16b§ç()=5   3CYEG 230400Z 15002KT 20SM BKN087 BKN230 09/05 A2968 RMK AC5CI1 SLP063 DENSITY ALT 2500FTCYEG2019-04-23T04:00:00Z53.28-113.579.05.0150220.029.6811031006.3VFRMETAR723.02019-04-23 04:13:16>§ç'(w5   3CYBG 230400Z 12003KT 25SM SKC 01/M03 A3028 RMK SLP260CYBG2019-04-23T04:00:00Z48.33-70.981.0-3.0120325.030.2805121026.0VFRMETAR159.02019-04-23 04:13:169§ç&(y5    3LRTC 230400Z AUTO 28002KT 250V350 9999 NCD 04/01 Q1027LRTC2019-04-23T04:00:00Z45.0728.724.01.028026.2130.324802TRUEVFRMETAR6.02019-04-23 04:13:16 °)c°Y§ç-)#5    3CYJT 230400Z 10002KT 1/4SM R27/6000FT/D FG VV002 01/00 A3025 RMK FG8 SLP246CYJT2019-04-23T04:00:00Z48.55-58.571.00.010020.2530.2509841024.6FGLIFR200METAR26.02019-04-23 04:13:16N§ç,)5    3CYHZ 230400Z 06007KT 3SM -RA BR OVC002 07/07 A3018 RMK ST8 SLP224CYHZ2019-04-23T04:00:00Z44.87-63.57.07.06073.030.1801191022.4-RA BRLIFRMETAR145.02019-04-23 04:13:16@§ç+(y5   3CYGL 230400Z 10005KT 15SM SKC M07/M14 A3038 RMK SLP307CYGL2019-04-23T04:00:00Z53.62-77.7-7.0-14.0100515.030.3809051030.7VFRMETAR195.02019-04-23 04:13:16Q§ç*)5   3CYFC 230400Z AUTO 05009G15KT 9SM BKN043 OVC050 07/04 A3020 RMK SLP229CYFC2019-04-23T04:00:00Z45.87-66.527.04.0509159.030.2007871022.9TRUEVFRMETAR20.02019-04-23 04:13:16 Ã-Y˜ÃO§ç1)5    3CYQG 230400Z AUTO 12008KT 9SM BKN160 10/07 A3001 RMK PRESFR SLP164CYQG2019-04-23T04:00:00Z42.27-82.9710.07.012089.030.0088581016.4TRUEVFRMETAR190.02019-04-23 04:13:16;§ç0(w5   3CYQB 230400Z 06009KT 15SM SKC 05/M00 A3023 RMK SLP239CYQB2019-04-23T04:00:00Z46.78-71.375.00.060915.030.2303141023.9VFRMETAR73.02019-04-23 04:13:16N§ç/)5   3CYOW 230400Z 05006KT 15SM FEW100 BKN130 12/04 A3014 RMK AC2AC5 SLP208CYOW2019-04-23T04:00:00Z45.32-75.6712.04.050615.030.1387791020.8VFRMETAR114.02019-04-23 04:13:16M§ç.)5   3CYMX 230400Z 05004KT 360V090 25SM BKN150 10/M04 A3016 RMK AC6 SLP216CYMX2019-04-23T04:00:00Z45.67-74.0210.0-4.050425.030.1594491021.6VFRMETAR82.02019-04-23 04:13:16Y8¥8@HPX`hpx€ˆ˜ ¨°¸ÀÈÐØàèðø (08@HPX`hpx€ˆ˜ ¨°¸ÀÈÐØàèðø (08@HPX`hpx€ˆ˜ ¨°¸ÀÈÐØàèðø ¨°¸ÀÈÐØàèðøK§æ L§æM§æN§æO§æP§æ#Q§æ'R§æ,S§æ1T§æ6U§æ;V§æ@K§æ L§æM§æN§æO§æP§æ#Q§æ'R§æ,S§æ1T§æ6U§æ;V§æ@W§æEX§æIY§æMZ§æQ[§æV\§æ[]§æ`^§æe_§æj`§æoa§æsb§æxc§æ}d§çe§çf§ç g§çh§çi§çj§çk§ç l§ç%m§ç)n§ç-o§ç1q§ç5r§ç9s§ç=t§çAu§çEv§çIw§çMx§çQy§çVz§çZ{§ç^|§çb}§çf~§çj§çn€§çr§çv‚§çzƒ§ç„§è…§è †§è ‡§èˆ§è‰§èŠ§è‹§è!Œ§è%§è)Ž§è-§è2§è6‘§è;’§è@“§èE”§èJ•§èO–§èS—§èX˜§è]™§èbš§èg›§èlœ§èq§èuž§èzŸ§è~ §é¡§é¢§é £§é¤§é «Iu«D§ç5) 5    3CWMT 230400Z AUTO 06006KT 04/M03 RMK AO1 SLP998 T00421026 57017CWMT2019-04-23T04:00:00Z63.13-117.254.2-2.6606999.8TRUETRUE-1.7SPECI271.02019-04-23 04:13:16N§ç4)5   3CYQX 230400Z 36005KT 20SM FEW150 SCT180 03/01 A3017 RMK AC1AC2 SLP224CYQX2019-04-23T04:00:00Z48.95-54.583.01.0360520.030.1712591022.4VFRMETAR151.02019-04-23 04:13:16O§ç3)5   3CYQQ 230400Z 16011KT 15SM BKN019 OVC067 10/08 A3015 RMK SC6AC2 SLP211CYQQ2019-04-23T04:00:00Z49.72-124.910.08.01601115.030.150591021.1MVFRMETAR24.02019-04-23 04:13:16\§ç2)-5    3CYQM 230400Z 03007KT 15SM -SHRA OVC035 03/01 A3025 RMK SC8 CVCTV CLD EMBD SLP246CYQM2019-04-23T04:00:00Z46.12-64.673.01.030715.030.2509841024.6-SHRAVFRMETAR71.02019-04-23 04:13:16 ¼0_˜¼V§ç9))5   3CYVR 230400Z 07008KT 7SM FEW016 BKN027 OVC051 10/08 A3019 RMK SF1SC6SC1 SLP226CYVR2019-04-23T04:00:00Z49.17-123.1710.08.07087.030.1889761022.6MVFRMETAR2.02019-04-23 04:13:16A§ç8)5   3CYTR 230400Z 00000KT 15SM BKN120 08/07 A3011 RMK AC6 SLP199CYTR2019-04-23T04:00:00Z44.12-77.528.07.00015.030.1092531019.9VFRMETAR86.02019-04-23 04:13:16K§ç7) 5  3CYUL 230400Z 02014G22KT 15SM SCT150 11/M02 A3014 RMK AC3 SLP210CYUL2019-04-23T04:00:00Z45.47-73.7311.0-2.020142215.030.1387791021.0VFRMETAR36.02019-04-23 04:13:16J§ç6) 5    3CYQY 230400Z 36007KT 15SM -RA OVC033 04/03 A3024 RMK SC8 SLP243CYQY2019-04-23T04:00:00Z46.17-60.034.03.0360715.030.2391741024.3-RAVFRMETAR62.02019-04-23 04:13:16 iþ#`iq§ç=)K5   3CYYJ 230400Z 14004KT 15SM FEW014 BKN029 BKN041 OVC065 10/08 A3019 RMK SC1SC5SC2SC1 SC TR SLP225CYYJ2019-04-23T04:00:00Z48.63-123.4210.08.0140415.030.1889761022.5OVC6500MVFRMETAR19.02019-04-23 04:13:16=§ç<(w5   3CYWG 230400Z 04003KT 15SM SKC 05/M01 A3017 RMK SLP225CYWG2019-04-23T04:00:00Z49.88-97.225.0-1.040315.030.1712591022.5VFRMETAR239.02019-04-23 04:13:16U§ç;)5    3CYXX 230400Z 33006KT 8SM -RA SCT015 OVC025 10/09 A3020 RMK SF3SC5 SLP231CYXX2019-04-23T04:00:00Z49.03-122.3810.09.033068.030.2007871023.1-RAMVFRMETAR58.02019-04-23 04:13:16|§ç:)k5   3CYYC 230400Z 27009KT 15SM FEW061 FEW110 SCT250 13/M02 A2979 RMK CU1AC1CI3 CU TR AC TR SLP101 DENSITY ALT 4400FTCYYC2019-04-23T04:00:00Z51.12-114.0213.0-2.0270915.029.7903541010.1VFRMETAR1084.02019-04-23 04:13:16 2mnK§çA)5   3CYYZ 230400Z 15004KT 15SM FEW160 10/05 A3008 RMK AC1 AC TR SLP191CYYZ2019-04-23T04:00:00Z43.67-79.6210.05.0150415.030.0797251019.1VFRMETAR173.02019-04-23 04:13:16y§ç@)a5    3CYYT 230400Z 27006KT 3/4SM R29/3000FT/N R16/2800FT/N -RA BR BKN003 OVC016 06/06 A3015 RMK FG6ST1SC1 SLP216CYYT2019-04-23T04:00:00Z47.62-52.726.06.027060.7530.150591021.6-RA BRLIFRMETAR140.02019-04-23 04:13:16?§ç?(y5   3CYYR 230400Z 27008KT 15SM SKC M03/M10 A3031 RMK SLP268CYYR2019-04-23T04:00:00Z53.32-60.42-3.0-10.0270815.030.310041026.8VFRMETAR49.02019-04-23 04:13:16H§ç>)5   3CYYQ 230400Z 15011KT 15SM FEW085 M03/M05 A3017 RMK AC1 SLP221CYYQ2019-04-23T04:00:00Z58.75-94.07-3.0-5.01501115.030.1712591022.1VFRMETAR29.02019-04-23 04:13:16 Ë>ržËM§çE) 5    3CYBN 230400Z AUTO 18006KT 180V240 9SM CLR 10/04 A3008 RMK SLP188CYBN2019-04-23T04:00:00Z44.27-79.9210.04.018069.030.0797251018.8TRUEVFRSPECI223.02019-04-23 04:13:16N§çD)5    3CYCK 230400Z AUTO 12011KT 9SM BKN140 BKN170 09/06 A3004 RMK SLP176CYCK2019-04-23T04:00:00Z42.3-82.089.06.0120119.030.0413381017.6TRUEVFRMETAR198.02019-04-23 04:13:16F§çC)5  3CYZX 230400Z 06012G20KT 8SM OVC006 07/07 A3017 RMK SF8 SLP217CYZX2019-04-23T04:00:00Z44.98-64.927.07.06012208.030.1712591021.7IFRMETAR28.02019-04-23 04:13:16<§çB(w5   3CYZV 230400Z 03004KT 15SM SKC 01/M08 A3032 RMK SLP272CYZV2019-04-23T04:00:00Z50.22-66.271.0-8.030415.030.3188971027.2VFRMETAR55.02019-04-23 04:13:16 Ì8c—́E§çI)5   3CYGQ 230400Z 04006KT 15SM FEW250 02/M09 A3016 RMK CI2 SLP230CYGQ2019-04-23T04:00:00Z49.77-86.922.0-9.040615.030.1594491023.0VFRSPECI351.02019-04-23 04:13:16F§çH)5    3CYER 230400Z AUTO 12004KT 9SM CLR M05/M05 A3033 RMK SLP272CYER2019-04-23T04:00:00Z56.02-87.68-5.0-5.012049.030.330711027.2TRUEVFRMETAR16.02019-04-23 04:13:16O§çG)5    3CYAT 230400Z AUTO 04004KT 9SM SCT230 BKN250 M05/M07 A3036 RMK SLP284CYAT2019-04-23T04:00:00Z52.93-82.43-5.0-7.04049.030.3602371028.4TRUEVFRMETAR9.02019-04-23 04:13:16B§çF)5    3CYBC 230400Z AUTO VRB02KT 9SM CLR M00/M05 A3029 RMK SLP260CYBC2019-04-23T04:00:00Z49.12-68.20.0-5.0029.030.289371026.0TRUEVFRSPECI22.02019-04-23 04:13:16 ´-a‘´W§çM)#5    3CYKP 230400Z AUTO 07004KT 050V110 9SM CLR M01/M07 A3025 RMK ICG MISG SLP257CYKP2019-04-23T04:00:00Z51.67-85.9-1.0-7.07049.030.2509841025.7TRUEVFRMETAR179.02019-04-23 04:13:16J§çL)5    3CYKL 230400Z AUTO 34005KT 9SM CLR M11/M16 A3028 RMK SLP300CYKL2019-04-23T04:00:00Z54.78-66.82-11.0-16.034059.030.2805121030.0TRUEVFRMETAR521.02019-04-23 04:13:16F§çK)5    3CYKF 230400Z AUTO 09003KT 9SM OVC140 08/06 A3009 RMK SLP193CYKF2019-04-23T04:00:00Z43.47-80.388.06.09039.030.0885831019.3TRUEVFRSPECI317.02019-04-23 04:13:16M§çJ)5   3CYHM 230400Z 05004KT 15SM FEW140 SCT250 09/07 A3008 RMK AC2CI2 SLP192CYHM2019-04-23T04:00:00Z43.17-79.939.07.050415.030.0797251019.2VFRSPECI238.02019-04-23 04:13:16 Ò,a•Ò=§çQ(s5    3FAUT 230400Z 11007KT 2500 -RA BR OVC005 13/13 Q1025FAUT2019-04-23T04:00:00Z-31.5228.6713.013.011071.5530.265747-RA BRIFRMETAR732.02019-04-23 04:13:16F§çP)5    3CYPO 230400Z AUTO 19006KT 9SM CLR M00/M06 A3030 RMK SLP267CYPO2019-04-23T04:00:00Z54.98-85.430.0-6.019069.030.3011821026.7TRUEVFRMETAR53.02019-04-23 04:13:16E§çO)5    3CYOO 230400Z AUTO 08003KT 9SM SCT160 09/06 A3008 RMK SLP192CYOO2019-04-23T04:00:00Z43.92-78.99.06.08039.030.0797251019.2TRUEVFRMETAR139.02019-04-23 04:13:16N§çN)5    3CYLH 230400Z AUTO 08003KT 9SM SCT180 BKN200 01/M05 A3023 RMK SLP254CYLH2019-04-23T04:00:00Z52.2-87.931.0-5.08039.030.2303141025.4TRUEVFRMETAR254.02019-04-23 04:13:16 R?v°R+§çV(a5   3DAUI 230400Z 08002KT 8000 NSC 14/M02 Q1004DAUI2019-04-23T04:00:00Z27.252.5214.0-2.08024.9729.64567MVFRMETAR269.02019-04-23 04:13:16'§çU(Y5   3DAUE 230400Z 33003KT CAVOK 13/00 Q1005DAUE2019-04-23T04:00:00Z30.572.8713.00.033036.2129.675198VFRMETAR397.02019-04-23 04:13:16@§çT)5   3FQBR 230400Z 28004KT 9999 SCT010 BKN020 24/24 Q1015 RMK RERAFQBR2019-04-23T04:00:00Z-19.834.8824.024.028046.2129.970472MVFRMETAR16.02019-04-23 04:13:16C§çS(y5     3FALA 230400Z 11006KT 7000 -RA OVC010 12/11 Q1025 NOSIGFALA2019-04-23T04:00:00Z-25.9227.9212.011.011064.3530.265747TRUE-RAMVFRMETAR1377.02019-04-23 04:13:16;§çR(q5    3FAPP 230400Z 07006KT 8000 BKN070 16/13 Q1022 NOSIGFAPP2019-04-23T04:00:00Z-23.8329.4516.013.07064.9730.177166TRUEMVFRMETAR1242.02019-04-23 04:13:16 À-_“ÀM§çZ)5   3CYSB 230400Z 07011KT 15SM FEW050 BKN130 04/M00 A3002 RMK SC2AC5 SLP182CYSB2019-04-23T04:00:00Z46.63-80.84.00.0701115.030.020671018.2VFRSPECI348.02019-04-23 04:13:16F§çY)5    3CYSC 230400Z AUTO 05008KT 9SM FEW250 09/02 A3011 RMK SLP202CYSC2019-04-23T04:00:00Z45.43-71.689.02.05089.030.1092531020.2TRUEVFRSPECI241.02019-04-23 04:13:16H§çX)5    3CYQA 230400Z AUTO 12005KT 9SM BKN180 11/06 A3007 RMK SLP189CYQA2019-04-23T04:00:00Z44.97-79.2811.06.012059.030.0708661018.9TRUEVFRSPECI282.02019-04-23 04:13:16M§çW)5   3CYQK 230400Z 04004KT 20SM FEW055 FEW100 08/01 A3014 RMK SC1AC1 SLP217CYQK2019-04-23T04:00:00Z49.77-94.378.01.040420.030.1387791021.7VFRSPECI411.02019-04-23 04:13:16 ³7h˜³_§ç^)95   3CYYE 230400Z 33003KT 270V330 15SM BKN110 09/02 A2944 RMK AC7 SLP984 DENSITY ALT 1500FTCYYE2019-04-23T04:00:00Z58.82-122.579.02.0330315.029.438976998.4VFRMETAR382.02019-04-23 04:13:16J§ç])5   3CYXL 230400Z 08004KT 030V110 15SM BKN052 07/04 A3014 RMK SC6 SLP221CYXL2019-04-23T04:00:00Z50.12-91.97.04.080415.030.1387791022.1VFRMETAR390.02019-04-23 04:13:16I§ç\)5   3CYRB 230400Z 31009KT 10SM SCT020 M24/M27 A2991 RMK SC3 SLP142CYRB2019-04-23T04:00:00Z74.72-94.97-24.0-27.0310910.029.9114171014.2VFRMETAR67.02019-04-23 04:13:16C§ç[(5    3CYRQ 230400Z AUTO 03005KT 9SM CLR 06/M02 A3020 RMK SLP229CYRQ2019-04-23T04:00:00Z46.35-72.686.0-2.03059.030.2007871022.9TRUEVFRMETAR61.02019-04-23 04:13:16 Š0?jŠZ§çb)%5   3CYYB 230400Z AUTO 08014G19KT 9SM SCT130 BKN160 OVC180 08/04 A3007 RMK SLP195CYYB2019-04-23T04:00:00Z46.35-79.428.04.08014199.030.0708661019.5TRUEVFRMETAR371.02019-04-23 04:13:16O§ça)5   3CYXU 230400Z 12005KT 15SM BKN150 OVC200 10/07 A3007 RMK AC5CI3 SLP186CYXU2019-04-23T04:00:00Z43.02-81.1510.07.0120515.030.0708661018.6VFRMETAR278.02019-04-23 04:13:16k§ç`)Q5   3CYVQ 230400Z 10006KT 30SM BKN083 BKN200 BKN270 09/M02 A2939 RMK AC5CI1CI1 SLP958 DENSITY ALT 300FTCYVQ2019-04-23T04:00:00Z65.27-126.789.0-2.0100630.029.388779995.8VFRMETAR74.02019-04-23 04:13:16J§ç_)5    3CYYD 230400Z AUTO 33007KT 9SM OVC070 07/M01 A2990 RMK SLP138CYYD2019-04-23T04:00:00Z54.82-127.187.0-1.033079.029.8996071013.8TRUEVFRMETAR523.02019-04-23 04:13:16 i*4iE§çf(5    3CYNE 230400Z AUTO 17004KT 9SM CLR 02/M04 A3013 RMK SLP215CYNE2019-04-23T04:00:00Z53.97-97.822.0-4.017049.030.1299211021.5TRUEVFRSPECI223.02019-04-23 04:13:16c§çe)95    3CYMM 230400Z AUTO 20007KT 9SM FEW100 SCT170 11/M00 A2954 RMK SLP016 DENSITY ALT 1400FTCYMM2019-04-23T04:00:00Z56.65-111.2211.00.020079.029.539371001.6TRUEVFRSPECI369.02019-04-23 04:13:16‚§çd)}5  3CYLL 230400Z 31019G25KT 250V320 15SM BKN100 15/M01 A2961 RMK AC7 LAST STFD OBS/NEXT 231300 UTC SLP038 DENSITY ALT 3000FTCYLL2019-04-23T04:00:00Z53.32-110.0715.0-1.0310192515.029.6102371003.8VFRSPECI669.02019-04-23 04:13:16P§çc) 5   3CYKJ 230400Z AUTO 14012G18KT 9SM FEW150 09/M02 A2966 RMK SLP062CYKJ2019-04-23T04:00:00Z57.25-105.629.0-2.014012189.029.6604331006.2TRUEVFRSPECI509.02019-04-23 04:13:16  ç÷\§çj)+5    3CYPY 230400Z AUTO 28007KT 9SM OVC100 13/M00 A2947 RMK SLP989 DENSITY ALT 1100FTCYPY2019-04-23T04:00:00Z58.77-111.1213.00.028079.029.471457998.9TRUEVFRSPECI232.02019-04-23 04:13:16j§çi)E5  3CYQF 230400Z 29014G20KT 15SM SCT090 BKN250 14/M02 A2973 RMK AC3CI3 SLP079 DENSITY ALT 3800FTCYQF2019-04-23T04:00:00Z52.17-113.914.0-2.0290142015.029.7312981007.9VFRSPECI905.02019-04-23 04:13:16‚§çh)‚!5  3CYQL 230400Z 25025G31KT 60SM FEW090 SCT140 BKN190 BKN300 15/00 A2983 RMK AC1AC2CI3CI1 LAST STFD OBS/NEXT 231200Z SLP102 DENSITY ALT 3800FTCYQL2019-04-23T04:00:00Z49.63-112.815.00.0250253160.029.8287411010.2BKN30000VFRSPECI929.02019-04-23 04:13:16n§çg)W5   3CYOJ 230400Z 18002KT 15SM FEW040 SCT150 07/05 A2941 RMK CF1AC4 CF TR LAST STFD OBS/NXT 231300Z SLP973CYOJ2019-04-23T04:00:00Z58.62-117.177.05.0180215.029.409449997.3VFRSPECI338.02019-04-23 04:13:16 ^<^X§çn)!5    3CYYL 230400Z AUTO 15008KT 9SM FEW075 BKN110 OVC130 06/M03 A2992 RMK SLP148CYYL2019-04-23T04:00:00Z56.87-101.076.0-3.015089.029.9202751014.8TRUEVFRMETAR357.02019-04-23 04:13:16\§çm)+5   3CYQR 230400Z 16019KT 15SM BKN090 12/M08 A2997 RMK AC5 SLP163 DENSITY ALT 1900FTCYQR2019-04-23T04:00:00Z50.43-104.6712.0-8.01601915.029.9704721016.3VFRSPECI577.02019-04-23 04:13:16d§çl)15   3CYQW 230400Z AUTO 18015G21KT 9SM SCT120 17/M01 A2964 RMK SLP045 DENSITY ALT 2700FTCYQW2019-04-23T04:00:00Z52.77-108.2517.0-1.018015219.029.6397631004.5TRUEVFRSPECI548.02019-04-23 04:13:16r§çk)S5  3CYPA 230400Z 18014G25KT 15SM BKN120 OVC160 16/M02 A2973 RMK AC6AC2 PRESFR SLP078 DENSITY ALT 2100FTCYPA2019-04-23T04:00:00Z53.22-105.6716.0-2.0180142515.029.7312981007.8VFRSPECI428.02019-04-23 04:13:16 –LV–:§çr({5   3CWPX 230400Z AUTO 06015KT ////SM //// NCD M22/M25 A3002CWPX2019-04-23T04:00:00Z69.02-107.82-22.0-25.0601530.02067TRUEMETAR165.02019-04-23 04:13:16p§çq)S5   3CYYH 230400Z 31011KT 15SM FEW020 FEW030 FEW210 M23/M27 A3010 RMK SC1SC1CI1 SC TR SC TR FROIN SLP199CYYH2019-04-23T04:00:00Z69.53-93.57-23.0-27.03101115.030.1003931019.9VFRMETAR28.02019-04-23 04:13:16F§çp)5    3CZVL 230400Z AUTO 00000KT 9SM FEW100 06/02 A2968 RMK SLP063CZVL2019-04-23T04:00:00Z53.67-113.856.02.0009.029.6811031006.3TRUEVFRMETAR686.02019-04-23 04:13:16b§ço)/5   3CYYN 230400Z AUTO 18021G31KT 9SM FEW240 13/03 A2982 RMK SLP102 DENSITY ALT 3100FTCYYN2019-04-23T04:00:00Z50.27-107.6713.03.018021319.029.8198811010.2TRUEVFRMETAR818.02019-04-23 04:13:16 àGj¯àI§çv)5    3CZUM 230400Z AUTO 27007KT 9SM CLR M08/M15 A3028 RMK SLP286CZUM2019-04-23T04:00:00Z53.53-64.08-8.0-15.027079.030.2805121028.6TRUEVFRMETAR440.02019-04-23 04:13:165§çu(q5   3CWIL 230400Z AUTO 14007KT ////SM NCD M21/M23 A3014CWIL2019-04-23T04:00:00Z68.32-100.07-21.0-23.0140730.138779TRUESPECI36.02019-04-23 04:13:16W§çt)5   3CWLY 230400Z AUTO 19015G27KT 150V260 9SM SCT090 12/04 A3005 RMK SLP181CWLY2019-04-23T04:00:00Z50.22-121.5812.04.019015279.030.0501981018.1TRUEVFRSPECI229.02019-04-23 04:13:163§çs(w5   3CWOB 230400Z AUTO ///// ////SM //// NCD M18/M21 A2967CWOB2019-04-23T04:00:00Z63.32-64.15-18.0-21.029.66929TRUESPECI367.02019-04-23 04:13:16 ¡7o¡H§çz)5     3VLSK 230400Z 32002KT 6000 HZ FEW020 SCT100 33/21 Q1011 NOSIGVLSK2019-04-23T04:00:00Z16.55104.7533.021.032023.7329.852362TRUEHZMVFRMETAR155.02019-04-23 04:13:16B§çy(5    3VLPS 230400Z 22004KT 8000 FEW027 SCT200 35/23 Q1010 NOSIGVLPS2019-04-23T04:00:00Z15.13105.7835.023.022044.9729.822834TRUEMVFRMETAR107.02019-04-23 04:13:16[§çx)+5   3CYVC 230400Z 15013KT 15SM OVC080 11/M02 A2971 RMK AC8 SLP075 DENSITY ALT 1300FTCYVC2019-04-23T04:00:00Z55.15-105.2711.0-2.01501315.029.710631007.5VFRMETAR379.02019-04-23 04:13:16b§çw)/5   3CZPC 230400Z AUTO 24019G30KT 9SM FEW060 11/01 A2991 RMK SLP130 DENSITY ALT 4300FTCZPC2019-04-23T04:00:00Z49.52-114.011.01.024019309.029.9114171013.0TRUEVFRMETAR1190.02019-04-23 04:13:16 AB{¼A?§ç(u5     3NZCH 230400Z AUTO 07011KT 9999 NCD 15/10 Q1020 NOSIGNZCH2019-04-23T04:00:00Z-43.47172.5515.010.070116.2130.11811TRUETRUEVFRMETAR34.02019-04-23 04:13:160§ç~(e5    3VTCT 230400Z VRB02KT CAVOK 33/21 Q1012 NOSIGVTCT2019-04-23T04:00:00Z19.9599.8833.021.0026.2129.88189TRUEVFRMETAR390.02019-04-23 04:13:169§ç}(q5    3VTCC 230400Z 36005KT 9999 FEW035 33/20 Q1013 NOSIGVTCC2019-04-23T04:00:00Z18.7798.9733.020.036056.2129.911417TRUEVFRMETAR314.02019-04-23 04:13:16A§ç|)5    3VTBS 230400Z 19006KT 140V300 9999 FEW025 33/24 Q1009 NOSIGVTBS2019-04-23T04:00:00Z13.68100.7533.024.019066.2129.793306TRUEVFRMETAR2.02019-04-23 04:13:168§ç{(q5    3VTBU 230400Z 19008KT 7000 FEW020 33/23 Q1010 NOSIGVTBU2019-04-23T04:00:00Z12.68101.033.023.019084.3529.822834TRUEMVFRMETAR5.02019-04-23 04:13:16 .:ƒ»õ.A§è) 5    3CWZQ 230400Z AUTO 34006KT 03/04 RMK AO1 SLP236 T00270036 50000CWZQ2019-04-23T04:00:00Z46.53-61.052.73.634061023.6TRUETRUE0.0METAR17.02019-04-23 04:13:16@§è) 5    3CXHM 230400Z AUTO 00000KT 07/06 RMK AO1 SLP186 T00720064 58012CXHM2019-04-23T04:00:00Z43.28-79.97.26.4001018.6TRUETRUE-1.2METAR107.02019-04-23 04:13:16B§è) 5    3CWQP 230400Z AUTO 28003KT 05/05 RMK AO1 SLP203 T00450047 58011CWQP2019-04-23T04:00:00Z43.83-77.154.54.728031020.3TRUETRUE-1.1METAR79.02019-04-23 04:13:161§è(}5  3CWQH 230400Z AUTO 06005KT 07/03 RMK AO1 SOG 01 T00730032CWQH2019-04-23T04:00:00Z45.37-71.827.33.2605TRUETRUEMETAR181.02019-04-23 04:13:16@§è) 5    3CWQK 230400Z AUTO 36006KT 10/07 RMK AO1 SLP225 T00970072 51004CWQK2019-04-23T04:00:00Z48.3-123.539.77.236061022.5TRUETRUE0.4METAR5.02019-04-23 04:13:16 TgšÏ T/§è (q5  3CWXL 230400Z AUTO 24008KT 15/M01 RMK AO1 T01521010CWXL2019-04-23T04:00:00Z49.73-111.4515.2-1.02408TRUETRUEMETAR817.02019-04-23 04:13:16@§è) 5    3CWYJ 230400Z AUTO 00000KT 09/08 RMK AO1 SLP225 T00900079 55006CWYJ2019-04-23T04:00:00Z48.45-123.39.07.9001022.5TRUETRUE-0.6METAR39.02019-04-23 04:13:16E§è) 5    3CWYY 230400Z AUTO 35007KT 13/04 RMK AO1 SLP168 T01250040 55003CWYY2019-04-23T04:00:00Z49.03-119.4312.54.035071016.8TRUETRUE-0.3METAR283.02019-04-23 04:13:16G§è)5    3CWZA 230400Z AUTO 33002KT 10/09 RMK AO1 6010 SLP222 T00950089 50003CWZA2019-04-23T04:00:00Z49.25-121.779.58.933021022.2TRUETRUE0.3METAR15.02019-04-23 04:13:16§è(O5   3CWZO 230400Z AUTO 01002KT RMK AO1CWZO2019-04-23T04:00:00Z48.55-123.23102TRUETRUEMETAR1.02019-04-23 04:13:16 È4t­È_§è )55    3CWSR 230400Z AUTO 18015G22KT 16/M03 RMK AO1 PK WND 17022/0354 SLP031 T01621030 56025CWSR2019-04-23T04:00:00Z53.37-107.5316.2-3.018015221003.1TRUETRUE-2.5METAR584.02019-04-23 04:13:16A§è ) 5    3CWST 230400Z AUTO 09002KT 01/00 RMK AO1 SLP246 T00120000 56001CWST2019-04-23T04:00:00Z47.35-70.021.20.09021024.6TRUETRUE-0.1METAR31.02019-04-23 04:13:16:§è ({5    3CWBU 230400Z AUTO 13/M03 RMK AO1 SLP107 T01321031 57031CWBU2019-04-23T04:00:00Z53.33-104.0213.2-3.11010.7TRUETRUE-3.1SPECI373.02019-04-23 04:13:16F§è ) 5    3CWIK 230400Z AUTO 14007KT 05/M02 RMK AO1 SLP195 T00491021 58013CWIK2019-04-23T04:00:00Z50.37-102.584.9-2.114071019.5TRUETRUE-1.3SPECI602.02019-04-23 04:13:16 ˜Sˆ˜j§è)?5   3CYBU 230400Z AUTO 13017G25KT 9SM BKN100 BKN120 13/M02 A2982 RMK SLP109 DENSITY ALT 1400FTCYBU2019-04-23T04:00:00Z53.32-104.013.0-2.013017259.029.8198811010.9TRUEVFRSPECI374.02019-04-23 04:13:16E§è(5    3CYDN 230400Z AUTO 14007KT 9SM CLR 06/M02 A3011 RMK SLP207CYDN2019-04-23T04:00:00Z51.1-100.036.0-2.014079.030.1092531020.7TRUEVFRSPECI305.02019-04-23 04:13:16F§è(5    3CYEN 230400Z AUTO 14008KT 9SM CLR 09/M03 A3007 RMK SLP199CYEN2019-04-23T04:00:00Z49.22-102.979.0-3.014089.030.0708661019.9TRUEVFRSPECI581.02019-04-23 04:13:16[§è)%5    3CYET 230400Z AUTO 23007KT 9SM CLR 11/M02 A2972 RMK SLP080 DENSITY ALT 3400FTCYET2019-04-23T04:00:00Z53.57-116.4711.0-2.023079.029.7194881008.0TRUEVFRSPECI925.02019-04-23 04:13:16 Î8d˜ÎD§è(5    3CZMD 230400Z AUTO 04003KT 9SM CLR 03/M05 A3019 RMK SLP237CZMD2019-04-23T04:00:00Z53.43-91.773.0-5.04039.030.1889761023.7TRUEVFRMETAR278.02019-04-23 04:13:16F§è)5    3CZSJ 230400Z AUTO 00000KT 9SM CLR M01/M04 A3018 RMK SLP235CZSJ2019-04-23T04:00:00Z53.07-93.35-1.0-4.0009.030.1801191023.5TRUEVFRMETAR290.02019-04-23 04:13:16N§è)5   3CYBK 230400Z 08004KT 15SM FEW070 M22/M24 A3020 RMK AC1 AC TR SLP233CYBK2019-04-23T04:00:00Z64.28-96.07-22.0-24.080415.030.2007871023.3VFRSPECI18.02019-04-23 04:13:16B§è(5    3CYBQ 230400Z AUTO 17007KT 9SM CLR 03/M02 A2998 RMK SLP169CYBQ2019-04-23T04:00:00Z58.7-98.53.0-2.017079.029.979331016.9TRUEVFRMETAR262.02019-04-23 04:13:16 ×6Y×@§è) 5    3CXKE 230400Z AUTO 00000KT 12/06 RMK AO1 SLP201 T01220061 58005CXKE2019-04-23T04:00:00Z45.0-75.6312.26.1001020.1TRUETRUE-0.5METAR99.02019-04-23 04:13:166§è(y5    3CWKH 230400Z AUTO 07/07 RMK AO1 SLP215 T00710067 50000CWKH2019-04-23T04:00:00Z48.57-123.557.16.71021.5TRUETRUE0.0METAR366.02019-04-23 04:13:16W§è)%5    3CYYU 230400Z 06006KT 3SM -SN BKN011 OVC019 00/M00 A3017 RMK SN1SC5SC2 SLP231CYYU2019-04-23T04:00:00Z49.42-82.470.00.06063.030.1712591023.1-SNMVFRMETAR227.02019-04-23 04:13:16D§è)5    3CYYW 230400Z AUTO VRB02KT 9SM CLR M01/M04 A3017 RMK SLP233CYYW2019-04-23T04:00:00Z50.3-88.9-1.0-4.0029.030.1712591023.3TRUEVFRMETAR351.02019-04-23 04:13:16 ¿Q‡¿B§è) 5    3CWJT 230400Z AUTO 08001KT 03/01 RMK AO1 SLP217 T00300008 58003CWJT2019-04-23T04:00:00Z46.07-74.573.00.88011021.7TRUETRUE-0.3METAR239.02019-04-23 04:13:16D§è) 5    3CWJV 230400Z AUTO 10006KT 08/05 RMK AO1 SLP181 T00760047 55005CWJV2019-04-23T04:00:00Z50.22-119.187.64.710061018.1TRUETRUE-0.5METAR556.02019-04-23 04:13:16D§è) 5    3CWJW 230400Z AUTO 15004KT 08/01 RMK AO1 SLP122 T00790009 53005CWJW2019-04-23T04:00:00Z52.93-118.037.90.915041012.2TRUETRUE0.5METAR1020.02019-04-23 04:13:16_§è)?5     3CXKA 230400Z AUTO 06005KT 01/01 RMK AO1 4PAST HR SOG 22 8014 SLP223 P0002 T00050005 50009CXKA2019-04-23T04:00:00Z49.4-82.450.50.56051022.3TRUETRUE0.90.02METAR218.02019-04-23 04:13:16 ä6k­äC§è!) 5    3CWSL 230400Z AUTO 20001KT 07/06 RMK AO1 SLP187 T00710059 55001CWSL2019-04-23T04:00:00Z50.7-119.277.15.920011018.7TRUETRUE-0.1METAR351.02019-04-23 04:13:168§è (}5     3CWSP 230400Z AUTO 32001KT 10/ RMK AO1 SLP225 T0096 51007CWSP2019-04-23T04:00:00Z48.38-123.929.632011022.5TRUETRUE0.7METAR21.02019-04-23 04:13:16E§è) 5    3CWJI 230400Z AUTO 18009KT 12/01 RMK AO1 SLP152 T01190005 58016CWJI2019-04-23T04:00:00Z49.72-105.9211.90.518091015.2TRUETRUE-1.6METAR724.02019-04-23 04:13:16D§è) 5    3CWJR 230400Z AUTO 28001KT 11/05 RMK AO1 SLP193 T01080050 57004CWJR2019-04-23T04:00:00Z49.07-116.510.85.028011019.3TRUETRUE-0.4METAR646.02019-04-23 04:13:16 ‘ Vr‘[§è%);5   3CWJX 230400Z AUTO 23014KT 16/M04 RMK AO1 SOG 02 6013 PK WND 24019/0303 SLP065 T01571041CWJX2019-04-23T04:00:00Z50.88-109.515.7-4.1230141006.5TRUETRUEMETAR672.02019-04-23 04:13:16^§è$)=5    3CWKG 230400Z AUTO 09007G17KT 12/12 RMK AO1 8015 PK WND 07017/0356 SLP193 T01190118 50029CWKG2019-04-23T04:00:00Z44.43-65.211.911.8907171019.3TRUETRUE2.9METAR165.02019-04-23 04:13:16D§è#) 5    3CWSG 230400Z AUTO 16006KT M00/M03 RMK AO1 SLP266 T10011034 50004CWSG2019-04-23T04:00:00Z49.12-66.65-0.1-3.416061026.6TRUETRUE0.4METAR5.02019-04-23 04:13:16Z§è")15     3CWSK 230400Z AUTO 14005KT 08/08 RMK AO1 4PAST HR 6009 SLP218 P0002 T00830077 50004CWSK2019-04-23T04:00:00Z49.78-123.178.37.714051021.8TRUETRUE0.40.02METAR60.02019-04-23 04:13:16 Ân‹ÂC§è)) 5    3CWMJ 230400Z AUTO 01005KT 07/M04 RMK AO1 SLP217 T00701037 58011CWMJ2019-04-23T04:00:00Z46.27-76.07.0-3.71051021.7TRUETRUE-1.1METAR200.02019-04-23 04:13:16]§è()35    3CWLE 230400Z AUTO 18026G31KT 14/02 RMK AO1 PK WND 18031/0355 SLP096 T01440018 58023CWLE2019-04-23T04:00:00Z50.95-107.1514.41.818026311009.6TRUETRUE-2.3METAR665.02019-04-23 04:13:16)§è'(o5  3CWLC 230400Z AUTO 00030KT 07/02 RMK AO1 T00660015CWLC2019-04-23T04:00:00Z54.3-130.626.61.5030TRUETRUEMETAR27.02019-04-23 04:13:16]§è&)55    3CWKX 230400Z AUTO 24012G19KT 03/M07 RMK AO1 PK WND 23025/0306 SLP100 T00261071 51056CWKX2019-04-23T04:00:00Z58.43-130.022.6-7.124012191010.0TRUETRUE5.6METAR793.02019-04-23 04:13:16 È8X’ȁD§è-)5  3CXCP 230400Z AUTO 24014KT 13/M00 RMK AO1 PK WND 23021/0303 T01311003CXCP2019-04-23T04:00:00Z50.28-113.3513.1-0.324014TRUETRUEMETAR1006.02019-04-23 04:13:16@§è,)5  3CXCD 230400Z AUTO 27013KT 10/01 RMK AO1 PK WND 28020/0302 T00990005CXCD2019-04-23T04:00:00Z56.32-119.759.90.527013TRUETRUEMETAR630.02019-04-23 04:13:16Z§è+)15     3CWMM 230400Z AUTO 34002KT 09/08 RMK AO1 1PAST HR 5007 SLP231 P0000 T00890077 50001CWMM2019-04-23T04:00:00Z49.22-122.688.97.734021023.1TRUETRUE0.10.005METAR5.02019-04-23 04:13:16B§è*) 5    3CWLM 230400Z AUTO 03003KT 09/08 RMK AO1 SLP226 T00880076 55005CWLM2019-04-23T04:00:00Z48.42-123.328.87.63031022.6TRUETRUE-0.5METAR70.02019-04-23 04:13:16 T8„Ò!TG§è2) 5    3CWMQ 230400Z AUTO 20011KT 14/M03 RMK AO1 SLP099 T01361026 56013CWMQ2019-04-23T04:00:00Z49.9-109.4713.6-2.6200111009.9TRUETRUE-1.3METAR767.02019-04-23 04:13:16+§è1(o5  3CXAF 230400Z AUTO 06001KT 05/04 RMK AO1 T00480040CXAF2019-04-23T04:00:00Z54.28-112.974.84.0601TRUETRUEMETAR664.02019-04-23 04:13:16,§è0(o5  3CXAJ 230400Z AUTO 23004KT 06/03 RMK AO1 T00610033CXAJ2019-04-23T04:00:00Z54.77-112.826.13.32304TRUETRUEMETAR574.02019-04-23 04:13:16.§è/(q5  3CXBA 230400Z AUTO 24009KT 16/M02 RMK AO1 T01591022CXBA2019-04-23T04:00:00Z52.12-110.115.9-2.22409TRUETRUEMETAR687.02019-04-23 04:13:16B§è.)5  3CXBR 230400Z AUTO 22014KT 12/01 RMK AO1 PK WND 24026/0309 T01150008CXBR2019-04-23T04:00:00Z49.62-113.8211.50.822014TRUETRUEMETAR1073.02019-04-23 04:13:16 ²4h™²a§è6)A5   3CWRM 230400Z AUTO 28011G17KT 13/M03 RMK AO1 SOG 01 3012 PK WND 27017/0305 SLP076 T01291026CWRM2019-04-23T04:00:00Z52.42-114.9212.9-2.628011171007.6TRUETRUEMETAR988.02019-04-23 04:13:16I§è5)5   3CWJD 230400Z AUTO 16002KT M01/M03 RMK AO1 SOG 06 8019 SLP206 T10141034CWJD2019-04-23T04:00:00Z53.17-99.27-1.4-3.416021020.6TRUETRUEMETAR223.02019-04-23 04:13:16F§è4) 5    3CWEQ 230400Z AUTO 15007KT 10/M02 RMK AO1 SLP180 T00991018 56021CWEQ2019-04-23T04:00:00Z52.12-101.229.9-1.815071018.0TRUETRUE-2.1METAR335.02019-04-23 04:13:16F§è3)5   3CWLB 230400Z AUTO 26007KT 09/04 RMK AO1 SOG 02 8001 SLP045 T00940037CWLB2019-04-23T04:00:00Z54.77-112.029.43.726071004.5TRUETRUEMETAR567.02019-04-23 04:13:16 (3h£è(:§è;(q5    3VOCL 230400Z 32004KT 6000 FEW015 28/24 Q1009 NOSIGVOCL2019-04-23T04:00:00Z11.1375.9528.024.032043.7329.793306TRUEMVFRMETAR104.02019-04-23 04:13:165§è:(k5    3VORY 230400Z 22005KT 6000 NSC 33/21 Q1010 NOSIGVORY2019-04-23T04:00:00Z17.181.8233.021.022053.7329.822834TRUEMVFRMETAR46.02019-04-23 04:13:16?§è9(5    3VOMM 230400Z 21005KT 6000 FEW020 SCT100 34/25 Q1010 NOSIGVOMM2019-04-23T04:00:00Z13.080.1734.025.021053.7329.822834TRUEMVFRMETAR16.02019-04-23 04:13:16E§è8)5   3CYBR 230400Z 12004KT 15SM FEW180 06/M02 A3015 RMK AC2 SLP224CYBR2019-04-23T04:00:00Z49.92-99.956.0-2.0120415.030.150591022.4VFRMETAR409.02019-04-23 04:13:16G§è7) 5    3CWVT 230400Z AUTO 25006KT 15/M02 RMK AO1 SLP051 T01491015 56013CWVT2019-04-23T04:00:00Z55.82-108.4214.9-1.525061005.1TRUETRUE-1.3METAR434.02019-04-23 04:13:16 Ižî>7§è@(s5   3VOTP 230400Z 24005KT 6000 FEW020 SCT100 31/21 Q1010VOTP2019-04-23T04:00:00Z13.6379.5531.021.024053.7329.822834MVFRMETAR107.02019-04-23 04:13:16*§è?(Y5   3HSPN 230400Z 32012KT CAVOK 22/15 Q1013HSPN2019-04-23T04:00:00Z19.4237.2222.015.0320126.2129.911417VFRMETAR138.02019-04-23 04:13:16*§è>([5   3HSOB 230400Z 33009KT CAVOK 18/M08 Q1013HSOB2019-04-23T04:00:00Z13.1730.2218.0-8.033096.2129.911417VFRMETAR574.02019-04-23 04:13:16%§è=(Y5  3HSNN 230400Z 04005KT 8000 22/M09 Q1014HSNN2019-04-23T04:00:00Z12.0524.9722.0-9.04054.9729.940945METAR658.02019-04-23 04:13:161§è<(e5    3VIDN 230400Z 32004KT 5000 HZ NSC 28/17 Q1010VIDN2019-04-23T04:00:00Z30.278.1828.017.032043.1129.822834HZMVFRMETAR558.02019-04-23 04:13:16 ?>~¼û?6§èE(u5   3YCAS 230400Z AUTO 11013KT //// // ////// 26/14 Q1022YCAS2019-04-23T04:00:00Z-28.88153.0726.014.01101330.177166TRUEMETAR26.02019-04-23 04:13:16;§èD(u5    3YCBA 230400Z AUTO 02007KT 9999 // OVC115 24/15 Q1021YCBA2019-04-23T04:00:00Z-31.53145.824.015.02076.2130.147638TRUEVFRMETAR221.02019-04-23 04:13:16<§èC(u5    3YCBB 230400Z AUTO 07009KT 9999 // BKN054 23/11 Q1023YCBB2019-04-23T04:00:00Z-31.33149.2723.011.07096.2130.206694TRUEVFRMETAR645.02019-04-23 04:13:16:§èB(o5    3YCBP 230400Z AUTO 19002KT 9999 // NCD 23/10 Q1023YCBP2019-04-23T04:00:00Z-29.03134.7223.010.019026.2130.206694TRUEVFRMETAR226.02019-04-23 04:13:16<§èA(u5    3YCCY 230400Z AUTO 11007KT 9999 // SCT055 31/15 Q1014YCCY2019-04-23T04:00:00Z-20.67140.531.015.011076.2129.940945TRUEVFRMETAR570.02019-04-23 04:13:16 oA„Óo"§èJ(Y5   3OIAA 230400Z 25004KT CAVOK 18/09 Q1016OIAA2019-04-23T04:00:00Z30.3748.2518.09.025046.2130.0VFRMETAR11.02019-04-23 04:13:166§èI(m5    3SBJP 230400Z 19004KT 8000 -RA BKN017 25/24 Q1012SBJP2019-04-23T04:00:00Z-7.15-34.9525.024.019044.9729.88189-RAMVFRMETAR66.02019-04-23 04:13:16+§èH(Y5   3SAOC 230400Z 02014KT CAVOK 12/10 Q1021SAOC2019-04-23T04:00:00Z-33.12-64.2712.010.020146.2130.147638VFRMETAR421.02019-04-23 04:13:167§èG(y5   3TNCM 230400Z 06005KT 9999 FEW022 25/18 Q1015 RMK A2999TNCM2019-04-23T04:00:00Z18.05-63.1225.018.06056.2129.970472VFRMETAR4.02019-04-23 04:13:169§èF(o5    3YCAR 230400Z AUTO 20014KT 9999 // NCD 24/14 Q1017YCAR2019-04-23T04:00:00Z-24.88113.6724.014.0200146.2130.029528TRUEVFRMETAR8.02019-04-23 04:13:16 L=ÒL=§èO)5   3WBKL 230400Z 03006KT 320V090 9999 FEW018 BKN300 33/25 Q1008WBKL2019-04-23T04:00:00Z5.28115.2533.025.03066.2129.763779VFRMETAR30.02019-04-23 04:13:16=§èN)5   3WBKT 230400Z 11005KT 010V170 9999 SCT014 BKN270 31/27 Q1008WBKT2019-04-23T04:00:00Z6.92116.8231.027.011056.2129.763779VFRMETAR5.02019-04-23 04:13:168§èM(y5    3VELR 230400Z 05004KT 4000 HZ SCT018 BKN100 27/19 Q1013VELR2019-04-23T04:00:00Z27.394.127.019.05042.4929.911417HZIFRMETAR101.02019-04-23 04:13:16'§èL(c5    3VIPT 230400Z 09010KT 4000 HZ NSC 29/19 1010VIPT2019-04-23T04:00:00Z29.0379.4729.019.090102.49HZIFRMETAR234.02019-04-23 04:13:16=§èK)5   3WBGS 230400Z 16003KT 110V230 9999 SCT018 BKN150 28/26 Q1008WBGS2019-04-23T04:00:00Z2.27111.9828.026.016036.2129.763779VFRMETAR8.02019-04-23 04:13:16 °Guw°A§èS)5    3VVDN 230400Z 11005KT 070V140 8000 FEW015 32/23 Q1010 NOSIGVVDN2019-04-23T04:00:00Z16.02108.232.023.011054.9729.822834TRUEMVFRMETAR7.02019-04-23 04:13:16x§èR)k5     3NZAA 230400Z AUTO 20008KT 170V230 9999 TS FEW025/// BKN055/// ///CB 18/12 Q1017 TEMPO 2500 TSRA BKN012 SCT020CBNZAA2019-04-23T04:00:00Z-37.02174.818.012.020086.2130.029528TRUETSVFRSPECI6.02019-04-23 04:13:16L§èQ)5      3NZWN 230400Z AUTO 20015KT 5000 BR BKN004/// 14/13 Q1019 NOSIGNZWN2019-04-23T04:00:00Z-41.32174.814.013.0200153.1130.088583TRUETRUEBRLIFRMETAR7.02019-04-23 04:13:163§èP(s5   3WBGY 230400Z VRB03KT 9999 SCT022 BKN150 31/25 Q1007WBGY2019-04-23T04:00:00Z1.22111.4331.025.0036.2129.734253VFRMETAR34.02019-04-23 04:13:16 19s¶î17§èX(q5    3VVCR 230400Z 07006KT 9999 FEW017 34/25 Q1011 NOSIGVVCR2019-04-23T04:00:00Z12.0109.2234.025.07066.2129.852362TRUEVFRMETAR12.02019-04-23 04:13:16B§èW)5    3VVCT 230400Z 10007KT 070V140 9999 BKN015 33/26 Q1009 NOSIGVVCT2019-04-23T04:00:00Z10.08105.7233.026.010076.2129.793306TRUEMVFRMETAR3.02019-04-23 04:13:167§èV(q5    3VVPB 230400Z 08005KT 9999 FEW020 36/27 Q1010 NOSIGVVPB2019-04-23T04:00:00Z16.38107.736.027.08056.2129.822834TRUEVFRMETAR17.02019-04-23 04:13:16@§èU)5    3VVPQ 230400Z 08007KT 040V140 9999 FEW017 34/21 Q1010 NOSIGVVPQ2019-04-23T04:00:00Z10.23103.9734.021.08076.2129.822834TRUEVFRMETAR4.02019-04-23 04:13:16A§èT)5    3VVTS 230400Z 09008KT 050V180 9999 SCT017 35/22 Q1009 NOSIGVVTS2019-04-23T04:00:00Z10.82106.6735.022.09086.2129.793306TRUEVFRMETAR19.02019-04-23 04:13:16 "=s¹ò"J§è])5    3YMAV 230400Z AUTO 13008KT 9999 // SCT031 SCT079 OVC089 18/11 Q1026YMAV2019-04-23T04:00:00Z-38.03144.4818.011.013086.2130.295275TRUEVFRMETAR8.02019-04-23 04:13:16A§è\)5    3YLRE 230400Z AUTO 06013KT 010V070 9999 // SCT042 28/16 Q1016YLRE2019-04-23T04:00:00Z-23.43144.2828.016.060136.2130.0TRUEVFRMETAR193.02019-04-23 04:13:164§è[(q5    3VTSG 230400Z VRB05KT 9999 SCT020 31/24 Q1010 NOSIGVTSG2019-04-23T04:00:00Z8.198.9831.024.0056.2129.822834TRUEVFRMETAR25.02019-04-23 04:13:16D§èZ)5   3VTSP 230400Z 07006G16KT 310V160 9999 FEW020 34/21 Q1009 NOSIGVTSP2019-04-23T04:00:00Z8.1298.3234.021.0706166.2129.793306TRUEVFRMETAR10.02019-04-23 04:13:16=§èY(5    3VTSS 230400Z VRB03KT 9999 SCT020 SCT100 32/24 Q1009 NOSIGVTSS2019-04-23T04:00:00Z6.92100.3832.024.0036.2129.793306TRUEVFRMETAR35.02019-04-23 04:13:16 ;m¢åK§èb)5    3YMEN 230400Z AUTO 18005KT 130V190 9999 // SCT040 OVC115 18/11 Q1026YMEN2019-04-23T04:00:00Z-37.72144.918.011.018056.2130.295275TRUEVFRMETAR86.02019-04-23 04:13:167§èa(o5    3YMER 230400Z AUTO 11005KT 9999 // NCD 21/16 Q1025YMER2019-04-23T04:00:00Z-36.92149.921.016.011056.2130.265747TRUEVFRMETAR2.02019-04-23 04:13:16E§è`)5    3YMIA 230400Z AUTO 19008KT 9999 // OVC027 OVC040 18/11 Q1024YMIA2019-04-23T04:00:00Z-34.23142.0818.011.019086.2130.236221TRUEMVFRMETAR51.02019-04-23 04:13:16H§è_)5   3YMML 230400Z 13004KT 110V180 9999 FEW025 SCT080 BKN110 17/10 Q1026YMML2019-04-23T04:00:00Z-37.67144.8217.010.013046.2130.295275VFRMETAR141.02019-04-23 04:13:16?§è^(5    3YMOR 230400Z AUTO 03008KT 360V060 9999 // NCD 26/08 Q1021YMOR2019-04-23T04:00:00Z-29.5149.8526.08.03086.2130.147638TRUEVFRMETAR214.02019-04-23 04:13:16 >:s©ó>/§èg(e5    3LKMT 230400Z 00000KT CAVOK 05/03 Q1014 NOSIGLKMT2019-04-23T04:00:00Z49.6718.125.03.0006.2129.940945TRUEVFRMETAR256.02019-04-23 04:13:160§èf(e5    3LKPR 230400Z 09011KT CAVOK 08/03 Q1008 NOSIGLKPR2019-04-23T04:00:00Z50.114.278.03.090116.2129.763779TRUEVFRMETAR365.02019-04-23 04:13:16D§èe)5    3YMAY 230400Z AUTO 04004KT 9999 // SCT076 SCT105 25/13 Q1024YMAY2019-04-23T04:00:00Z-36.07146.9325.013.04046.2130.236221TRUEVFRMETAR171.02019-04-23 04:13:16A§èd(5    3YMDG 230400Z AUTO 05008KT 030V090 9999 // NCD 25/11 Q1024YMDG2019-04-23T04:00:00Z-32.57149.6225.011.05086.2130.236221TRUEVFRMETAR471.02019-04-23 04:13:16@§èc(5    3YMEK 230400Z AUTO 08008KT 050V120 9999 // NCD 26/02 Q1021YMEK2019-04-23T04:00:00Z-26.62118.5526.02.08086.2130.147638TRUEVFRMETAR522.02019-04-23 04:13:16  T¡¼å ?§èl)5   3CWFD 230400Z AUTO 30014KT ////SM //// OVC040 M20/M22 A2932CWFD2019-04-23T04:00:00Z66.57-61.58-20.0-22.03001429.320866TRUESPECI393.02019-04-23 04:13:16Q§èk)5     3CWSA 230400Z AUTO 19010KT 2SM BR FEW047 BKN060 07/06 A3021 RMK SLP232CWSA2019-04-23T04:00:00Z43.93-60.07.06.0190102.030.2096461023.2TRUEBRIFRSPECI4.02019-04-23 04:13:16_§èj)55    3CWAV 230400Z AUTO 25014G20KT 12/M04 RMK AO1 PK WND 25023/0331 SLP079 T01151039 53006CWAV2019-04-23T04:00:00Z51.77-114.6711.5-3.925014201007.9TRUETRUE0.6METAR1114.02019-04-23 04:13:16-§èi(e5   3MYNN 230400Z 05009KT 9999 SCT038 22/14 A3011MYNN2019-04-23T04:00:00Z25.03-77.4722.014.05096.2130.109253VFRMETAR3.02019-04-23 04:13:16&§èh(Y5   3LKKV 230400Z 08014KT CAVOK 07/02 Q1006LKKV2019-04-23T04:00:00Z50.212.927.02.080146.2129.704725VFRMETAR604.02019-04-23 04:13:16 !<r¦÷!P§èq)5    3WBKW 230400Z 05005KT 350V090 8000 -SHRA SCT016 SCT140 BKN300 29/27 Q1008WBKW2019-04-23T04:00:00Z4.32118.1229.027.05054.9729.763779-SHRAMVFRMETAR20.02019-04-23 04:13:16)§èp(o5  3CWAF 230400Z AUTO 12002KT 04/01 RMK AO1 T00380008CWAF2019-04-23T04:00:00Z48.07-69.533.80.81202TRUETRUEMETAR5.02019-04-23 04:13:16F§èo) 5    3CWAQ 230400Z AUTO 16005KT 07/M01 RMK AO1 SLP165 T00721008 56013CWAQ2019-04-23T04:00:00Z49.05-105.487.2-0.816051016.5TRUETRUE-1.3METAR756.02019-04-23 04:13:16D§èn)5   3WBGB 230400Z 29005KT 240V350 9999 SCT016 SCT150 BKN300 32/27 Q1007WBGB2019-04-23T04:00:00Z3.12113.0232.027.029056.2129.734253VFRMETAR5.02019-04-23 04:13:16>§èm)5   3WBGR 230400Z 33007KT 260V020 9999 SCT016 BKN300 32/27 Q1008WBGR2019-04-23T04:00:00Z4.32113.9732.027.033076.2129.763779VFRMETAR18.02019-04-23 04:13:16 ¹"Bx¹9§èu(o5    3YTRE 230400Z AUTO 10009KT 9999 // NCD 24/15 Q1023YTRE2019-04-23T04:00:00Z-31.88152.5224.015.010096.2130.206694TRUEVFRMETAR12.02019-04-23 04:13:16D§èt)5    3YWGT 230400Z AUTO 09004KT 070V230 9999 // BKN044 25/13 Q1024YWGT2019-04-23T04:00:00Z-36.42146.325.013.09046.2130.236221TRUEVFRMETAR153.02019-04-23 04:13:16Z§ès);5   3CXBK 230400Z AUTO 16014KT 10/M09 RMK AO1 SOG 01 6017 PK WND 15017/0342 SLP150 T01011090CXBK2019-04-23T04:00:00Z50.2-104.710.1-9.0160141015.0TRUETRUEMETAR580.02019-04-23 04:13:16X§èr)15     3CXKT 230400Z AUTO 05005KT 06/06 RMK AO1 1PAST HR 8004 SLP221 P0004 T00610056 50026CXKT2019-04-23T04:00:00Z45.07-64.486.15.65051022.1TRUETRUE2.60.04METAR49.02019-04-23 04:13:16 5LÅû5@§èz)5   3FWKI 230400Z VRB02KT CAVOK 13/13 Q1020 BECMG 5000 BCFG FEW005FWKI2019-04-23T04:00:00Z-13.7733.7713.013.0026.2130.11811VFRSPECI1229.02019-04-23 04:13:16D§èy)5    3YSTW 230400Z AUTO 05011KT 9999 // SCT062 BKN071 27/09 Q1022YSTW2019-04-23T04:00:00Z-31.07150.8527.09.050116.2130.177166TRUEVFRMETAR410.02019-04-23 04:13:16B§èx(5    3YSWG 230400Z AUTO 11004KT 080V160 9999 // NCD 25/14 Q1023YSWG2019-04-23T04:00:00Z-35.13147.4725.014.011046.2130.206694TRUEVFRMETAR213.02019-04-23 04:13:169§èw(o5    3YTEF 230400Z AUTO 08013KT 9999 // NCD 35/06 Q1015YTEF2019-04-23T04:00:00Z-21.72122.2335.06.080136.2129.970472TRUEVFRMETAR296.02019-04-23 04:13:16.§èv(o5   3YTNK 230400Z AUTO 12011KT //// // NCD 30/09 Q1016YTNK2019-04-23T04:00:00Z-19.63134.1830.09.01201130.0TRUEMETAR377.02019-04-23 04:13:16 ÉD¨ÉY§è~)%5     3UTAA 230400Z 30008KT 9999 -SHRA OVC005 SCT013CB 11/11 Q1015 R88/290055 NOSIGUTAA2019-04-23T04:00:00Z37.9858.3711.011.030086.2129.970472TRUE-SHRAIFRMETAR210.02019-04-23 04:13:16_§è})E5    3UTAK 230400Z 02012KT 9999 -RA FEW003 OVC046 08/07 Q1018 R16R/29//50 TEMPO 4000 -RA BR BKN003UTAK2019-04-23T04:00:00Z40.0553.08.07.020126.2130.059055-RAVFRMETAR85.02019-04-23 04:13:161§è|(e5    3UTAM 230400Z 02012KT CAVOK 13/08 Q1014 NOSIGUTAM2019-04-23T04:00:00Z37.6261.913.08.020126.2129.940945TRUEVFRMETAR222.02019-04-23 04:13:166§è{({5    3UTAT 230400Z 05008KT CAVOK 12/03 Q1016 R08/CLRD70 NOSIGUTAT2019-04-23T04:00:00Z41.7759.8312.03.05086.2130.0TRUEVFRMETAR83.02019-04-23 04:13:16 ;F„Åú;9§é(m5   3LYVR 230400Z 14032G57KT CAVOK 12/M03 Q1015 NOSIGLYVR2019-04-23T04:00:00Z45.1321.3212.0-3.014032576.2129.970472TRUEVFRMETAR85.02019-04-23 04:13:16E§é)5     3LQBK 230400Z VRB01KT 9999 -RA FEW017 SCT040 11/10 Q1011 NOSIGLQBK2019-04-23T04:00:00Z44.9317.311.010.0016.2129.852362TRUE-RAVFRMETAR122.02019-04-23 04:13:169§é({5    3LQMO 230400Z VRB02KT 9999 -RA FEW035 BKN080 13/09 Q1011LQMO2019-04-23T04:00:00Z43.2817.8313.09.0026.2129.852362-RAVFRMETAR48.02019-04-23 04:13:16<§é({5  3LQSA 230400Z 12015G29KT 080V150 9999 BKN050 12/05 Q1011LQSA2019-04-23T04:00:00Z43.8218.3212.05.012015296.2129.852362VFRMETAR511.02019-04-23 04:13:164§è(m5    3LQTZ 230400Z 05004KT 9999 -RA BKN040 11/10 Q1012LQTZ2019-04-23T04:00:00Z44.4718.7311.010.05046.2129.88189-RAVFRMETAR306.02019-04-23 04:13:16 #5€»ð#G§é)5     3LYKV 230400Z 12016KT 8000 RA BKN043 OVC070 11/09 Q1015 NOSIGLYKV2019-04-23T04:00:00Z43.8220.5811.09.0120164.9729.970472TRUERAMVFRMETAR209.02019-04-23 04:13:16E§é)5     3LYNI 230400Z 10010KT 9999 RA SCT027 OVC033 10/08 Q1020 NOSIGLYNI2019-04-23T04:00:00Z43.3221.8810.08.0100106.2130.11811TRUERAVFRMETAR202.02019-04-23 04:13:16?§é(5    3LYPG 230400Z 35004KT 9999 SCT040 BKN090 13/12 Q1013 NOSIGLYPG2019-04-23T04:00:00Z42.3719.2513.012.035046.2129.911417TRUEVFRMETAR43.02019-04-23 04:13:16/§é(e5    3LYTV 230400Z VRB01KT CAVOK 12/11 Q1011 NOSIGLYTV2019-04-23T04:00:00Z42.3818.7212.011.0016.2129.852362TRUEVFRMETAR5.02019-04-23 04:13:16E§é({5     3LYUZ 230400Z AUTO 10010KT 0350 -RA FG VV001 07/06 Q1014LYUZ2019-04-23T04:00:00Z43.919.77.06.0100100.2229.940945TRUE-RA FGLIFR100METAR904.02019-04-23 04:13:16 H6qÅH8§é (m5    3BIEG 230400Z 01013KT 3000 -SN VV008 00/M01 Q1006BIEG2019-04-23T04:00:00Z65.27-14.40.0-1.010131.8629.704725-SNLIFR800METAR38.02019-04-23 04:13:169§é )5   3BIKF 230400Z 06006KT 9999 FEW044 SCT080 BKN200 04/03 Q1000BIKF2019-04-23T04:00:00Z63.98-22.64.03.06066.2129.52756VFRMETAR54.02019-04-23 04:13:16&§é ([5   3BIRK 230400Z 08006KT CAVOK 05/M00 Q1000BIRK2019-04-23T04:00:00Z64.13-21.935.00.08066.2129.52756VFRMETAR61.02019-04-23 04:13:16?§é (y5     3LYBE 230400Z 13020KT 9999 -RA BKN040 10/07 Q1015 NOSIGLYBE2019-04-23T04:00:00Z44.8220.2810.07.0130206.2129.970472TRUE-RAVFRMETAR99.02019-04-23 04:13:16D§é (5    3LYBT 230400Z 10022G34KT 9999 -RA SCT040 11/06 Q1015 NOSIGLYBT2019-04-23T04:00:00Z44.9320.2511.06.010022346.2129.970472TRUE-RAVFRMETAR80.02019-04-23 04:13:16 nF†Ûn+§é(e5   3LZZI 230400Z VRB01KT 9999 BKN058 05/03 Q1014LZZI2019-04-23T04:00:00Z49.2318.625.03.0016.2129.940945VFRMETAR311.02019-04-23 04:13:166§é(q5    3LCLK 230400Z 31006KT 9999 FEW030 11/06 Q1021 NOSIGLCLK2019-04-23T04:00:00Z34.8733.6211.06.031066.2130.147638TRUEVFRMETAR2.02019-04-23 04:13:16%§é(Y5   3LCPH 230400Z 02009KT CAVOK 10/04 Q1021LCPH2019-04-23T04:00:00Z34.7232.4710.04.02096.2130.147638VFRMETAR8.02019-04-23 04:13:16:§é(q5    3FQMA 230400Z 20006KT 9999 BKN020 21/21 Q1019 NOSIGFQMA2019-04-23T04:00:00Z-25.9232.5721.021.020066.2130.088583TRUEMVFRMETAR44.02019-04-23 04:13:164§é(u5   3BIAR 230400Z VRB01KT 9999 FEW023 BKN040 02/M02 Q1006BIAR2019-04-23T04:00:00Z65.67-18.072.0-2.0016.2129.704725VFRMETAR27.02019-04-23 04:13:16 \T›ß\=§é(w5   3CYGX 230400Z 13004KT 15SM SKC 00/M05 A3017 RMK SLP229CYGX2019-04-23T04:00:00Z56.35-94.70.0-5.0130415.030.1712591022.9VFRSPECI145.02019-04-23 04:13:16:§é(w5    3ZGOW 230400Z 23003MPS 190V270 CAVOK 30/23 Q1011 NOSIGZGOW2019-04-23T04:00:00Z23.55116.530.023.023066.2129.852362TRUEVFRMETAR3.02019-04-23 04:13:166§é(q5    3LKTB 230400Z 08010KT 9999 FEW039 09/04 Q1012 NOSIGLKTB2019-04-23T04:00:00Z49.1316.689.04.080106.2129.88189TRUEVFRMETAR246.02019-04-23 04:13:163§é(s5   3LZPP 230400Z VRB03KT 9999 FEW040 SCT095 12/05 Q1013LZPP2019-04-23T04:00:00Z48.6217.8312.05.0036.2129.911417VFRMETAR161.02019-04-23 04:13:16&§é(e5   3LZSL 230400Z VRB01KT 9999 OVC050 09/07 Q1016LZSL2019-04-23T04:00:00Z48.6319.139.07.0016.2130.0VFRMETAR313.02019-04-23 04:13:16 Ö6i¡ÖE§é)5   3CXDI 230400Z AUTO 11002KT 09/06 RMK AO1 SOG 01 6013 SLP180 T00880060CXDI2019-04-23T04:00:00Z42.87-80.558.86.011021018.0TRUETRUEMETAR232.02019-04-23 04:13:16B§é) 5    3CXDW 230400Z AUTO 00000KT 03/M02 RMK AO1 SLP229 T00251017 58001CXDW2019-04-23T04:00:00Z49.4-98.322.5-1.7001022.9TRUETRUE-0.1METAR341.02019-04-23 04:13:16G§é)5   3CXEC 230400Z AUTO 23004KT 10/03 RMK AO1 SOG 01 5002 SLP061 T01000034CXEC2019-04-23T04:00:00Z53.57-113.5210.03.423041006.1TRUETRUEMETAR671.02019-04-23 04:13:16D§é) 5    3CXET 230400Z AUTO 18004KT 10/04 RMK AO1 SLP186 T01000036 56009CXET2019-04-23T04:00:00Z44.23-79.7810.03.618041018.6TRUETRUE-0.9METAR251.02019-04-23 04:13:16 Æ?}Ɓ1§é(e5    3LFLL 230400Z 16006KT CAVOK 16/06 Q0998 NOSIGLFLL2019-04-23T04:00:00Z45.725.0716.06.016066.2129.468504TRUEVFRMETAR240.02019-04-23 04:13:16<§é(y5     3LFMN 230400Z 02008KT 9999 -RA BKN053 14/10 Q0999 NOSIGLFMN2019-04-23T04:00:00Z43.637.214.010.02086.2129.498032TRUE-RAVFRMETAR10.02019-04-23 04:13:16U§é)/5    3CXCK 230400Z AUTO 18008KT 05/M08 RMK AO1 PK WND 18019/0335 SLP919 T00541079 53031CXCK2019-04-23T04:00:00Z62.12-136.25.4-7.91808991.9TRUETRUE3.1METAR540.02019-04-23 04:13:16`§é)?5    3CXDE 230400Z AUTO 09012G18KT 05/M03 RMK AO1 6006 PK WND 09018/0316 SLP997 T00471033 50001CXDE2019-04-23T04:00:00Z65.22-123.434.7-3.3901218999.7TRUETRUE0.1METAR213.02019-04-23 04:13:16 .@€Ü÷.C§é$) 5    3CWLP 230400Z AUTO 31007KT 08/06 RMK AO1 SLP206 T00840055 58002CWLP2019-04-23T04:00:00Z50.93-127.638.45.531071020.6TRUETRUE-0.2METAR17.02019-04-23 04:13:16_§é#)A5   3CWZG 230400Z AUTO 24008G16KT 10/M03 RMK AO1 SOG 01 5008 PK WND 21024/0306 SLP119 T00981027CWZG2019-04-23T04:00:00Z51.2-115.539.8-2.72408161011.9TRUETRUEMETAR1397.02019-04-23 04:13:16§é"([5    3CXGH 230400Z AUTO 29001KT RMK AO1 58004CXGH2019-04-23T04:00:00Z50.63-97.02901TRUETRUE-0.4METAR217.02019-04-23 04:13:16:§é!(o5     3LFBD 230400Z AUTO 13013KT CAVOK 15/09 Q0995 NOSIGLFBD2019-04-23T04:00:00Z44.82-0.715.09.0130136.2129.379921TRUETRUEVFRMETAR61.02019-04-23 04:13:16:§é (o5     3LFBH 230400Z AUTO 13010KT CAVOK 15/08 Q0995 NOSIGLFBH2019-04-23T04:00:00Z46.18-1.215.08.0130106.2129.379921TRUETRUEVFRMETAR10.02019-04-23 04:13:16 .Cxµë.7§é)(q5    3LEIB 230400Z 31001KT 9000 FEW023 11/10 Q0998 NOSIGLEIB2019-04-23T04:00:00Z38.871.3711.010.031015.5929.468504TRUEVFRMETAR12.02019-04-23 04:13:16D§é()5   3LEMD 230400Z 18005KT 9999 SCT037 12/05 Q0996 TEMPO 4000 RA BKN012LEMD2019-04-23T04:00:00Z40.48-3.5712.05.018056.2129.409449VFRMETAR582.02019-04-23 04:13:16=§é'(5    3LEMG 230400Z 19003KT 9999 FEW030 SCT055 17/10 Q1001 NOSIGLEMG2019-04-23T04:00:00Z36.67-4.517.010.019036.2129.557087TRUEVFRMETAR7.02019-04-23 04:13:16E§é&) 5    3LEPA 230400Z 25009KT 9999 FEW010 SCT019 BKN043 15/13 Q0998 NOSIGLEPA2019-04-23T04:00:00Z39.532.7215.013.025096.2129.468504TRUEVFRMETAR8.02019-04-23 04:13:167§é%(q5    3LEVC 230400Z 28003KT 8000 FEW035 10/09 Q0998 NOSIGLEVC2019-04-23T04:00:00Z39.5-0.4710.09.028034.9729.468504TRUEMVFRMETAR62.02019-04-23 04:13:16 Ð>†±Ð[§é-)15    3GCGM 230400Z AUTO 26006KT 9999 NCD 17/13 Q1013 RMK R09/VRB03KT ARP/27005KT 230V300GCGM2019-04-23T04:00:00Z28.03-17.2217.013.026066.2129.911417TRUEVFRMETAR219.02019-04-23 04:13:16O§é,)5   3GCHI 230400Z AUTO 34019G29KT 310V010 9999 BKN023 BKN029 19/14 Q1013GCHI2019-04-23T04:00:00Z27.82-17.8719.014.034019296.2129.911417TRUEMVFRMETAR30.02019-04-23 04:13:162§é+(e5    3LEAL 230400Z 28005KT CAVOK 13/10 Q0998 NOSIGLEAL2019-04-23T04:00:00Z38.27-0.5513.010.028056.2129.468504TRUEVFRMETAR31.02019-04-23 04:13:16<§é*(y5     3LEBL 230400Z 00000KT 7000 -DZ BKN025 14/13 Q0996 NOSIGLEBL2019-04-23T04:00:00Z41.272.0714.013.0004.3529.409449TRUE-DZMVFRMETAR6.02019-04-23 04:13:16 ®)6c®/§é1(c5    3LFSG 230400Z AUTO 02004KT CAVOK 11/04 Q0997LFSG2019-04-23T04:00:00Z48.336.0711.04.02046.2129.438976TRUEVFRMETAR330.02019-04-23 04:13:16M§é0)5     3LEZL 230400Z 27014KT 240V300 7000 RA FEW015 BKN040 13/13 Q1000 NOSIGLEZL2019-04-23T04:00:00Z37.42-5.913.013.0270144.3529.52756TRUERAMVFRMETAR31.02019-04-23 04:13:16m§é/)a5    3LFTH 230400Z AUTO 06015KT 030V100 9999 OVC034 16/09 Q0997 TEMPO 4000 TSRA BKN014 SCT020CB BECMG 08020G30KTLFTH2019-04-23T04:00:00Z43.16.1516.09.060156.2129.438976TRUEVFRMETAR4.02019-04-23 04:13:16Q§é.)5     3LFTW 230400Z AUTO 33003KT 7000 -RA NSC 13/12 Q0998 TEMPO SHRA BKN040TCULFTW2019-04-23T04:00:00Z43.754.4213.012.033034.3529.468504TRUE-RAMVFRMETAR96.02019-04-23 04:13:16 mAŠÔ"m/§é6(c5    3LFRI 230400Z AUTO 13009KT CAVOK 14/07 Q0995LFRI2019-04-23T04:00:00Z46.7-1.3714.07.013096.2129.379921TRUEVFRMETAR91.02019-04-23 04:13:16,§é5(c5    3LFRM 230400Z AUTO 00000KT CAVOK 13/09 Q0996LFRM2019-04-23T04:00:00Z47.950.213.09.0006.2129.409449TRUEVFRMETAR52.02019-04-23 04:13:160§é4(c5    3LFRO 230400Z AUTO 13005KT CAVOK 11/08 Q0994LFRO2019-04-23T04:00:00Z48.75-3.4711.08.013056.2129.350393TRUEVFRMETAR89.02019-04-23 04:13:161§é3(c5    3LFRV 230400Z AUTO 13008KT CAVOK 13/07 Q0994LFRV2019-04-23T04:00:00Z47.72-2.7213.07.013086.2129.350393TRUEVFRMETAR133.02019-04-23 04:13:169§é2(o5     3LFRZ 230400Z AUTO 11006KT CAVOK 12/07 Q0994 NOSIGLFRZ2019-04-23T04:00:00Z47.32-2.1712.07.011066.2129.350393TRUETRUEVFRMETAR4.02019-04-23 04:13:16 JH…Ñ J9§é;(q5    3GCTS 230400Z 24007KT 9999 FEW017 18/14 Q1013 NOSIGGCTS2019-04-23T04:00:00Z28.05-16.5718.014.024076.2129.911417TRUEVFRMETAR72.02019-04-23 04:13:16B§é:(}5    3GCXO 230400Z AUTO 30020KT 9999 FEW009 BKN018 13/11 Q1014GCXO2019-04-23T04:00:00Z28.48-16.3513.011.0300206.2129.940945TRUEMVFRMETAR632.02019-04-23 04:13:16.§é9(c5    3LFBA 230400Z AUTO 12008KT CAVOK 14/09 Q0995LFBA2019-04-23T04:00:00Z44.170.614.09.012086.2129.379921TRUEVFRMETAR60.02019-04-23 04:13:16=§é8)5   3LFMI 230400Z AUTO VRB02KT 9999 ///TCU 13/12 Q0998 TEMPO SHRALFMI2019-04-23T04:00:00Z43.524.9213.012.0026.2129.468504TRUESPECI24.02019-04-23 04:13:162§é7(c5    3LFOV 230400Z AUTO 25003KT CAVOK 12/10 Q0996LFOV2019-04-23T04:00:00Z48.03-0.7512.010.025036.2129.409449TRUEVFRMETAR101.02019-04-23 04:13:16 ;;¼ï;.§é@(c5    3LFSN 230400Z AUTO VRB03KT CAVOK 11/03 Q0997LFSN2019-04-23T04:00:00Z48.676.2211.03.0036.2129.438976TRUEVFRMETAR217.02019-04-23 04:13:16G§é?) 5    3GCFV 230400Z AUTO 34005KT 300V360 9999 SCT027 OVC039 19/14 Q1012GCFV2019-04-23T04:00:00Z28.43-13.8719.014.034056.2129.88189TRUEVFRMETAR23.02019-04-23 04:13:16=§é>(}5    3GCLA 230400Z AUTO VRB02KT 9999 FEW024 OVC033 19/13 Q1014GCLA2019-04-23T04:00:00Z28.62-17.7519.013.0026.2129.940945TRUEVFRMETAR31.02019-04-23 04:13:166§é=(q5    3GCLP 230400Z VRB02KT 9999 FEW030 18/14 Q1012 NOSIGGCLP2019-04-23T04:00:00Z27.92-15.3718.014.0026.2129.88189TRUEVFRMETAR25.02019-04-23 04:13:16?§é<(5    3GCRR 230400Z AUTO 33007KT 290V360 9999 BKN041 19/11 Q1012GCRR2019-04-23T04:00:00Z28.93-13.5819.011.033076.2129.88189TRUEVFRMETAR40.02019-04-23 04:13:16 nJ™ä.n:§éE(o5     3LFLX 230400Z AUTO 24007KT CAVOK 12/09 Q0997 NOSIGLFLX2019-04-23T04:00:00Z46.851.7212.09.024076.2129.438976TRUETRUEVFRMETAR157.02019-04-23 04:13:160§éD(c5    3LFOH 230400Z AUTO 11005KT CAVOK 13/07 Q0997LFOH2019-04-23T04:00:00Z49.520.0713.07.011056.2129.438976TRUEVFRMETAR103.02019-04-23 04:13:16/§éC(c5    3LFOP 230400Z AUTO 04006KT CAVOK 12/06 Q0997LFOP2019-04-23T04:00:00Z49.371.1712.06.04066.2129.438976TRUEVFRMETAR157.02019-04-23 04:13:16+§éB(c5    3LFQA 230400Z AUTO 00000KT CAVOK 09/06 Q0997LFQA2019-04-23T04:00:00Z49.24.159.06.0006.2129.438976TRUEVFRMETAR95.02019-04-23 04:13:160§éA(c5    3LFQB 230400Z AUTO 28004KT CAVOK 10/07 Q0996LFQB2019-04-23T04:00:00Z48.324.0210.07.028046.2129.409449TRUEVFRMETAR118.02019-04-23 04:13:16 "Bvªî"F§éJ) 5    3LELN 230400Z AUTO 21005KT 9999 SCT008 SCT016 BKN023 07/06 Q0993LELN2019-04-23T04:00:00Z42.57-5.657.06.021056.2129.320866TRUEMVFRMETAR914.02019-04-23 04:13:166§éI(u5   3GEML 230400Z 24004KT 200V280 9999 FEW020 16/12 Q1003GEML2019-04-23T04:00:00Z35.27-2.9516.012.024046.2129.616142VFRMETAR55.02019-04-23 04:13:16F§éH)5    3VEGT 230400Z 02007KT 3000 HZ FEW018 SCT100 29/23 Q1012 BECMG 5000 HZVEGT2019-04-23T04:00:00Z26.191.5829.023.02071.8629.88189HZIFRMETAR54.02019-04-23 04:13:16F§éG) 5    3LFCK 230400Z AUTO 12020KT 9999 FEW027 BKN032 BKN084 14/09 Q0997LFCK2019-04-23T04:00:00Z43.552.2814.09.0120206.2129.438976TRUEVFRMETAR240.02019-04-23 04:13:168§éF(o5     3LFLP 230400Z AUTO VRB02KT CAVOK 13/04 Q0998 NOSIGLFLP2019-04-23T04:00:00Z45.926.0813.04.0026.2129.468504TRUETRUEVFRMETAR463.02019-04-23 04:13:16 oI‘Õ'o2§éO(5  3CXNM 230400Z AUTO 08005KT 02/02 RMK AO1 SOG 148 T00230021CXNM2019-04-23T04:00:00Z46.82-60.672.32.1805TRUETRUEMETAR439.02019-04-23 04:13:16(§éN(Y5   3SULS 230400Z 11003KT CAVOK 13/09 Q1022SULS2019-04-23T04:00:00Z-34.87-55.113.09.011036.2130.177166VFRMETAR30.02019-04-23 04:13:166§éM(u5   3LEPP 230400Z 13004KT 080V190 9999 BKN049 11/07 Q0996LEPP2019-04-23T04:00:00Z42.77-1.6511.07.013046.2129.409449VFRMETAR459.02019-04-23 04:13:162§éL(s5   3LEXJ 230400Z VRB02KT 9999 FEW054 SCT086 14/12 Q0993LEXJ2019-04-23T04:00:00Z43.42-3.8214.012.0026.2129.320866VFRMETAR6.02019-04-23 04:13:161§éK(i5    3LELC 230400Z AUTO VRB02KT 8000 NSC 14/12 Q0999LELC2019-04-23T04:00:00Z37.77-0.814.012.0024.9729.498032TRUEMVFRMETAR3.02019-04-23 04:13:16 "N~µê"B§éT) 5    3CXTP 230400Z AUTO 35003KT 05/02 RMK AO1 SLP218 T00450015 53005CXTP2019-04-23T04:00:00Z48.55-53.974.51.535031021.8TRUETRUE0.5METAR107.02019-04-23 04:13:16E§éS) 5    3CXWN 230400Z AUTO 36001KT 10/M03 RMK AO1 SLP219 T00971029 58003CXWN2019-04-23T04:00:00Z49.88-97.139.7-2.936011021.9TRUETRUE-0.3METAR230.02019-04-23 04:13:16C§éR) 5    3CXSH 230400Z AUTO 04002KT 06/M09 RMK AO1 SLP229 T00601089 53003CXSH2019-04-23T04:00:00Z46.58-72.736.0-8.94021022.9TRUETRUE0.3METAR110.02019-04-23 04:13:16J§éQ)5   3CXOX 230400Z AUTO 16010KT 10/M03 RMK AO1 SOG 01 6029 SLP068 T01001033CXOX2019-04-23T04:00:00Z55.15-105.2710.0-3.3160101006.8TRUETRUEMETAR379.02019-04-23 04:13:16,§éP(s5  3CXRH 230400Z AUTO 00000KT M02/M02 RMK AO1 T10161017CXRH2019-04-23T04:00:00Z49.57-57.88-1.6-1.700TRUETRUEMETAR68.02019-04-23 04:13:16 Ç8\‘ǁD§éX) 5    3CWGX 230400Z AUTO 12004KT 01/M05 RMK AO1 SLP227 T00061049 58013CWGX2019-04-23T04:00:00Z56.35-94.70.6-4.912041022.7TRUETRUE-1.3METAR145.02019-04-23 04:13:16E§éW) 5    3CWGW 230400Z AUTO 16008KT 11/02 RMK AO1 SLP164 T01130018 58003CWGW2019-04-23T04:00:00Z49.75-114.911.31.816081016.4TRUETRUE-0.3METAR1137.02019-04-23 04:13:16V§éV)-5    3CWGT 230400Z AUTO 11022KT 10/08 RMK AO1 PK WND 11028/0326 SLP206 T01030077 55003CWGT2019-04-23T04:00:00Z49.48-124.4310.37.7110221020.6TRUETRUE-0.3METAR5.02019-04-23 04:13:16B§éU) 5    3CWGR 230400Z AUTO 34001KT 02/M00 RMK AO1 SLP249 T00181001 53003CWGR2019-04-23T04:00:00Z47.42-61.81.8-0.134011024.9TRUETRUE0.3METAR60.02019-04-23 04:13:16 Ã&OÁ6§é\(y5   3RPVD 230400Z 07012KT 9999 FEW015 32/24 Q1009 RMK A2980RPVD2019-04-23T04:00:00Z9.33123.332.024.070126.2129.793306VFRMETAR8.02019-04-23 04:13:16J§é[)5    3RPMR 230400Z 01010KT 9999 FEW018 BKN080 34/21 Q1010 NOSIG RMK A2983RPMR2019-04-23T04:00:00Z6.05125.134.021.010106.2129.822834TRUEVFRMETAR154.02019-04-23 04:13:16Q§éZ)5     3YBTL 230400Z AUTO 05006KT 9999 -SHRA SCT025 BKN070 OVC089 27/22 Q1013YBTL2019-04-23T04:00:00Z-19.25146.7527.022.05066.2129.911417TRUE-SHRAVFRMETAR6.02019-04-23 04:13:16T§éY)5     3YBUD 230400Z AUTO 11015KT 9999 -SHRA BKN023 BKN027 BKN039 26/20 Q1018YBUD2019-04-23T04:00:00Z-24.9152.3226.020.0110156.2130.059055TRUE-SHRAMVFRMETAR82.02019-04-23 04:13:16 1Cq°ç10§éa(q5  3CPSV 230400Z AUTO 20011KT 13/M00 RMK AO1 T01321001CPSV2019-04-23T04:00:00Z49.92-110.9213.2-0.120011TRUETRUEMETAR766.02019-04-23 04:13:16C§é`)5  3CPST 230400Z AUTO 29019KT 14/M02 RMK AO1 PK WND 30025/0345 T01431023CPST2019-04-23T04:00:00Z51.03-113.2814.3-2.329019TRUETRUEMETAR967.02019-04-23 04:13:16;§é_(q5     3VIDP 230400Z 23005KT 2000 HZ NSC 33/14 Q1008 NOSIGVIDP2019-04-23T04:00:00Z28.5777.1233.014.023051.2429.763779TRUEHZIFRMETAR233.02019-04-23 04:13:16L§é^)5    3RPLC 230400Z 09010KT 9999 FEW020 BKN300 34/21 Q1011 NOSIG RMK A2985RPLC2019-04-23T04:00:00Z15.17120.5834.021.090106.2129.852362TRUEVFRMETAR196.02019-04-23 04:13:167§é](y5   3RPVP 230400Z 06008KT 9999 FEW019 33/23 Q1010 RMK A2983RPVP2019-04-23T04:00:00Z9.75118.7233.023.06086.2129.822834VFRMETAR16.02019-04-23 04:13:16 #8o¼ñ#H§éf)5   3CWKK 230400Z AUTO 06008KT M01/M04 RMK AO1 SOG 48 8002 SLP221 T10051040CWKK2019-04-23T04:00:00Z49.72-88.33-0.5-4.06081022.1TRUETRUEMETAR260.02019-04-23 04:13:16E§ée)5   3CTNK 230400Z AUTO 00000KT 01/M00 RMK AO1 SOG 01 8014 SLP205 T00121001CTNK2019-04-23T04:00:00Z45.53-78.271.2-0.1001020.5TRUETRUEMETAR410.02019-04-23 04:13:16-§éd(o5  3CXHD 230400Z AUTO 29008KT 11/05 RMK AO1 T01120048CXHD2019-04-23T04:00:00Z53.18-112.2511.24.82908TRUETRUEMETAR688.02019-04-23 04:13:16C§éc)5  3CXFM 230400Z AUTO 20014KT 14/M01 RMK AO1 PK WND 21021/0304 T01441009CXFM2019-04-23T04:00:00Z49.48-111.4814.4-0.920014TRUETRUEMETAR881.02019-04-23 04:13:16B§éb)5  3CPXL 230400Z AUTO 22009KT 16/M02 RMK AO1 PK WND 22018/0307 T01581018CPXL2019-04-23T04:00:00Z49.87-111.3815.8-1.82209TRUETRUEMETAR799.02019-04-23 04:13:16 ã9j®ãE§éj) 5    3CXMD 230400Z AUTO 28002KT 06/M01 RMK AO1 SLP224 T00551014 58001CXMD2019-04-23T04:00:00Z49.22-98.085.5-1.428021022.4TRUETRUE-0.1METAR301.02019-04-23 04:13:166§éi(}5     3CXMI 230400Z AUTO 02004KT 08/ RMK AO1 SLP217 T0080 58003CXMI2019-04-23T04:00:00Z44.6-63.538.02041021.7TRUETRUE-0.3METAR15.02019-04-23 04:13:16I§éh)5   3CXMM 230400Z AUTO 21006KT 10/M01 RMK AO1 SOG 04 8013 SLP011 T01041013CXMM2019-04-23T04:00:00Z56.65-111.2210.4-1.321061001.1TRUETRUEMETAR369.02019-04-23 04:13:16A§ég) 5    3CTRA 230400Z AUTO 02003KT 06/01 RMK AO1 SLP206 T00560009 50000CTRA2019-04-23T04:00:00Z49.67-93.735.60.92031020.6TRUETRUE0.0METAR435.02019-04-23 04:13:16 O#~³O,§éo(e5   3FBSP 230400Z /////KT 9999 OVC020 19/16 Q1020FBSP2019-04-23T04:00:00Z-22.0527.8219.016.06.2130.11811MVFRMETAR892.02019-04-23 04:13:16,§én(_5   3VOCP 230400Z 07004KT 6000 NSC 33/22 Q1010VOCP2019-04-23T04:00:00Z14.4778.8233.022.07043.7329.822834MVFRMETAR130.02019-04-23 04:13:16E§ém)5   3CXHA 230400Z AUTO 13005KT 10/07 RMK AO1 SOG 01 8010 SLP159 T01020067CXHA2019-04-23T04:00:00Z42.03-82.910.26.713051015.9TRUETRUEMETAR191.02019-04-23 04:13:16§él(_5  3CXHF 230400Z AUTO 05/01 RMK AO1 T00450013CXHF2019-04-23T04:00:00Z45.83-75.654.51.3TRUETRUEMETAR190.02019-04-23 04:13:16W§ék)15     3CXIB 230400Z AUTO 03001KT 04/03 RMK AO1 2PAST HR 0006 SLP242 P0001 T00380033 50004CXIB2019-04-23T04:00:00Z46.67-60.383.83.33011024.2TRUETRUE0.40.01METAR8.02019-04-23 04:13:16 dP“ä-dC§ét) 5    3CWSF 230400Z AUTO 18006KT 01/M05 RMK AO1 SLP267 T00051050 51008CWSF2019-04-23T04:00:00Z49.25-65.320.5-5.018061026.7TRUETRUE0.8METAR29.02019-04-23 04:13:161§és(e5    3OJAQ 230400Z 35008KT CAVOK 13/04 Q1019 NOSIGOJAQ2019-04-23T04:00:00Z29.6235.0213.04.035086.2130.088583TRUEVFRMETAR51.02019-04-23 04:13:16)§ér(Y5   3FBKE 230400Z VRB01KT CAVOK 19/17 Q1018FBKE2019-04-23T04:00:00Z-17.8225.1719.017.0016.2130.059055VFRMETAR1000.02019-04-23 04:13:167§éq(s5   3FBMN 230400Z 18007KT 9999 FEW020 BKN070 18/16 Q1018FBMN2019-04-23T04:00:00Z-19.9723.4218.016.018076.2130.059055VFRMETAR900.02019-04-23 04:13:16*§ép(Y5   3FBFT 230400Z 10007KT CAVOK 17/13 Q1020FBFT2019-04-23T04:00:00Z-21.1727.4817.013.010076.2130.11811VFRMETAR1000.02019-04-23 04:13:16 7l Û=§éy) 5   3CWBV 230400Z AUTO 03009KT 05/05 RMK AO1 SLP222 T00490048 54000CWBV2019-04-23T04:00:00Z44.82-62.324.94.83091022.2TRUETRUEMETAR10.02019-04-23 04:13:16?§éx) 5    3CWRN 230400Z AUTO 07008KT 05/05 RMK AO1 SLP226 T00460046 53007CWRN2019-04-23T04:00:00Z45.35-60.984.64.67081022.6TRUETRUE0.7METAR8.02019-04-23 04:13:16F§éw)5   3CWEP 230400Z AUTO 32006KT 01/M00 RMK AO1 SOG 01 0002 SLP247 T00051004CWEP2019-04-23T04:00:00Z46.45-61.970.5-0.432061024.7TRUETRUEMETAR11.02019-04-23 04:13:16E§év)5   3CWBY 230400Z AUTO 01006KT 01/M05 RMK AO1 SOG 01 1007 SLP264 T00071048CWBY2019-04-23T04:00:00Z49.82-64.280.7-4.81061026.4TRUETRUEMETAR53.02019-04-23 04:13:16C§éu) 5    3CWNH 230400Z AUTO 07002KT 04/M06 RMK AO1 SLP258 T00381061 53003CWNH2019-04-23T04:00:00Z47.78-69.533.8-6.17021025.8TRUETRUE0.3METAR148.02019-04-23 04:13:16 %6j¹ð%E§é~)5   3CXZC 230400Z AUTO 04005KT M04/M06 RMK AO1 SOG 02 8011 SLP271 T10361057CXZC2019-04-23T04:00:00Z51.3-80.62-3.6-5.74051027.1TRUETRUEMETAR9.02019-04-23 04:13:16C§é}) 5    3CZEL 230400Z AUTO 12004KT 09/05 RMK AO1 SLP190 T00850052 57008CZEL2019-04-23T04:00:00Z43.65-80.428.55.212041019.0TRUETRUE-0.8METAR376.02019-04-23 04:13:16+§é|(_5   3VYYY 230400Z 25006KT 8000 NSC 34/24 Q1010VYYY2019-04-23T04:00:00Z16.996.1334.024.025064.9729.822834MVFRMETAR33.02019-04-23 04:13:16F§é{)5   3CWPK 230400Z AUTO 08001KT 02/M05 RMK AO1 SOG 41 8009 SLP247 T00161052CWPK2019-04-23T04:00:00Z47.92-74.621.6-5.28011024.7TRUETRUEMETAR442.02019-04-23 04:13:16D§éz)5    3CWWE 230400Z AUTO 02006KT 06/06 RMK AO1 7012 SLP198 T00610061 50003CWWE2019-04-23T04:00:00Z43.97-64.676.16.12061019.8TRUETRUE0.3METAR9.02019-04-23 04:13:16 66½ú6>§ê)5   3RJTO 230400Z 02008KT 350V060 9999 FEW025 BKN/// 19/13 Q1021RJTO2019-04-23T04:00:00Z34.77139.3719.013.02086.2130.147638VFRMETAR41.02019-04-23 04:13:16=§ê)5   3RJTI 230400Z 15005KT 120V190 9999 FEW030 SCT/// 21/13 Q1020RJTI2019-04-23T04:00:00Z35.63139.8321.013.015056.2130.11811VFRMETAR8.02019-04-23 04:13:16>§ê)5   3RJTF 230400Z 15009KT 110V180 9999 FEW030 BKN/// 22/10 Q1020RJTF2019-04-23T04:00:00Z35.67139.5222.010.015096.2130.11811VFRMETAR44.02019-04-23 04:13:16/§ê(e5   3VAPR 230400Z 29013KT 6000 FEW020 29/21 Q1010VAPR2019-04-23T04:00:00Z21.6369.6729.021.0290133.7329.822834MVFRMETAR7.02019-04-23 04:13:16D§é) 5    3CXBI 230400Z AUTO 19003KT 10/04 RMK AO1 SLP191 T01000041 58012CXBI2019-04-23T04:00:00Z44.48-79.5510.04.119031019.1TRUETRUE-1.2METAR289.02019-04-23 04:13:16 >iªñM§ê)5    3UEEE 230400Z 10002MPS CAVOK 06/M09 Q1011 R23L/09//60 NOSIG RMK QFE749UEEE2019-04-23T04:00:00Z62.08129.776.0-9.010046.2129.852362TRUEVFRMETAR103.02019-04-23 04:13:163§ê)5   3WMAU 230400Z VRB01KT 9999 SCT020 BKN300 34/27 Q//// QFF1008WMAU2019-04-23T04:00:00Z2.38103.8834.027.0016.21VFRSPECI45.02019-04-23 04:13:169§ê)5   3WMKA 230400Z VRB02KT 8000 FEW020 SCT140 BKN270 32/27 Q1009WMKA2019-04-23T04:00:00Z6.2100.432.027.0024.9729.793306MVFRMETAR5.02019-04-23 04:13:16O§ê)5    3WMKB 230400Z 27005KT 200V320 7000 SCT020 SCT140 BKN270 32/26 Q1008 NOSIGWMKB2019-04-23T04:00:00Z5.47100.3732.026.027054.3529.763779TRUEMVFRMETAR4.02019-04-23 04:13:16<§ê)5   3WMKC 230400Z 09008KT 020V180 9999 FEW018 BKN280 34/25 Q1009WMKC2019-04-23T04:00:00Z6.17102.2734.025.09086.2129.793306VFRMETAR5.02019-04-23 04:13:16 2P~²÷2?§ê )5   3RJCW 230400Z 19014KT 9999 FEW060 SCT090 BKN100 11/M04 Q1015RJCW2019-04-23T04:00:00Z45.38141.811.0-4.0190146.2129.970472VFRMETAR11.02019-04-23 04:13:165§ê (s5   3RJDC 230400Z 08012KT 9999 FEW030 BKN100 18/15 Q1014RJDC2019-04-23T04:00:00Z33.92131.2718.015.080126.2129.940945VFRMETAR8.02019-04-23 04:13:16F§ê )5     3RJDK 230400Z AUTO 15005KT 080V220 7000 -RA NSC 18/17 Q1013RJDK2019-04-23T04:00:00Z33.02129.1718.017.015054.3529.911417TRUE-RAMVFRMETAR20.02019-04-23 04:13:16L§ê )5    3RJDT 230400Z 03003KT 350V070 9000 -RA FEW004 SCT090 OVC100 17/16 Q1014RJDT2019-04-23T04:00:00Z34.27129.3217.016.03035.5929.940945-RAVFRMETAR66.02019-04-23 04:13:16*§ê (k5   3RJEB 230400Z 05004KT 010V100 CAVOK 12/M02 Q1016RJEB2019-04-23T04:00:00Z44.3143.412.0-2.05046.2130.0VFRMETAR25.02019-04-23 04:13:16 R:‰ÓR@§ê)5   3RJBD 230400Z 15014KT 9999 FEW030 SCT040 BKN/// 24/15 Q1018RJBD2019-04-23T04:00:00Z33.67135.3724.015.0150146.2130.059055VFRMETAR108.02019-04-23 04:13:165§ê(s5   3RJBE 230400Z 20009KT 9999 FEW040 BKN/// 19/13 Q1017RJBE2019-04-23T04:00:00Z34.63135.2319.013.020096.2130.029528VFRMETAR5.02019-04-23 04:13:160§ê(i5   3RJBT 230400Z 17011KT 130V210 CAVOK 28/03 Q1014RJBT2019-04-23T04:00:00Z35.5134.828.03.0170116.2129.940945VFRMETAR210.02019-04-23 04:13:16+§ê([5   3RJCN 230400Z 25015KT CAVOK 15/M09 Q1018RJCN2019-04-23T04:00:00Z43.57144.9715.0-9.0250156.2130.059055VFRMETAR70.02019-04-23 04:13:16@§ê)5   3RJCO 230400Z 15017KT 9999 FEW030 BKN090 BKN120 13/M04 Q1018RJCO2019-04-23T04:00:00Z43.12141.3713.0-4.0150176.2130.059055VFRMETAR11.02019-04-23 04:13:16 m:ŠÒm)§ê(Y5   3RJSI 230400Z 18015KT CAVOK 20/02 Q1019RJSI2019-04-23T04:00:00Z39.42141.1220.02.0180156.2130.088583VFRMETAR93.02019-04-23 04:13:160§ê(g5   3RJSM 230400Z 13014KT 9999 FEW030 14/M01 Q1018RJSM2019-04-23T04:00:00Z40.7141.3714.0-1.0130146.2130.059055VFRMETAR36.02019-04-23 04:13:162§ê(k5   3RJSR 230400Z 21006KT 170V260 CAVOK 20/M03 Q1017RJSR2019-04-23T04:00:00Z40.18140.3720.0-3.021066.2130.029528VFRMETAR87.02019-04-23 04:13:16*§ê(i5   3RJSY 230400Z 07009KT 040V110 CAVOK 24/01 Q1016RJSY2019-04-23T04:00:00Z38.82139.7724.01.07096.2130.0VFRMETAR22.02019-04-23 04:13:16@§ê)5   3RJAF 230400Z 14012KT 100V170 9999 FEW060 BKN/// 24/07 Q1017RJAF2019-04-23T04:00:00Z36.17137.9224.07.0140126.2130.029528VFRMETAR660.02019-04-23 04:13:16 UDÎUD§ê)5  3RJOS 230400Z 20016G26KT 9999 FEW030 SCT120 BKN200 23/14 Q1017RJOS2019-04-23T04:00:00Z34.12134.6223.014.020016266.2130.029528VFRMETAR11.02019-04-23 04:13:16)§ê(Y5   3RJOW 230400Z 16012KT CAVOK 25/11 Q1014RJOW2019-04-23T04:00:00Z34.67131.825.011.0160126.2129.940945VFRMETAR54.02019-04-23 04:13:169§ê)5   3RJOY 230400Z 27014KT 9999 FEW035 SCT060 BKN/// 25/12 Q1016RJOY2019-04-23T04:00:00Z34.6135.5825.012.0270146.2130.0VFRMETAR13.02019-04-23 04:13:161§ê(i5   3RJSC 230400Z 33004KT 280V060 CAVOK 23/02 Q1018RJSC2019-04-23T04:00:00Z38.42140.3723.02.033046.2130.059055VFRMETAR108.02019-04-23 04:13:166§ê(y5    3RJSD 230400Z AUTO 05006KT 360V090 9999 NCD 18/07 Q1016RJSD2019-04-23T04:00:00Z38.03138.4218.07.05066.2130.0TRUEVFRMETAR26.02019-04-23 04:13:16 ÐOp¡ÐK§ê ) 5    3RJFG 230400Z 12012KT 9999 -SHRA FEW014 SCT020 BKN110 20/17 Q1015RJFG2019-04-23T04:00:00Z30.62130.9820.017.0120126.2129.970472-SHRAVFRMETAR237.02019-04-23 04:13:16I§ê) 5    3RJKA 230400Z 14020KT 8000 -SHRA FEW009 BKN030 BKN050 22/21 Q1012RJKA2019-04-23T04:00:00Z28.42129.7222.021.0140204.9729.88189-SHRAMVFRMETAR7.02019-04-23 04:13:16Y§ê)'5     3RJKI 230400Z AUTO 14009KT 100V170 4600 RA BR FEW012 BKN018 BKN031 22/21 Q1013RJKI2019-04-23T04:00:00Z28.32129.9222.021.014092.8629.911417TRUERA BRIFRMETAR6.02019-04-23 04:13:16+§ê(i5   3RJNW 230400Z 24007KT 190V290 CAVOK 24/04 Q1016RJNW2019-04-23T04:00:00Z37.3136.9724.04.024076.2130.0VFRMETAR219.02019-04-23 04:13:16 5c–ف9§ê%(o5    3RORK 230400Z AUTO 14015KT 9999 FEW021 26/21 Q1014RORK2019-04-23T04:00:00Z25.92131.3226.021.0140156.2129.940945TRUEVFRMETAR22.02019-04-23 04:13:167§ê$(u5   3RORS 230400Z 21008KT 170V250 9999 SCT013 29/27 Q1011RORS2019-04-23T04:00:00Z24.82125.1529.027.021086.2129.852362VFRMETAR16.02019-04-23 04:13:16G§ê#) 5    3RORY 230400Z AUTO 15012KT 9999 BKN007 BKN009 BKN010 24/23 Q1011RORY2019-04-23T04:00:00Z27.05128.424.023.0150126.2129.852362TRUEIFRMETAR16.02019-04-23 04:13:16L§ê")5    3ROYN 230400Z AUTO 18016KT 9999 SCT011 BKN018 //////TCU 29/26 Q1010ROYN2019-04-23T04:00:00Z24.47122.9729.026.0180166.2129.822834TRUEMVFRMETAR17.02019-04-23 04:13:16E§ê!) 5    3RJFE 230400Z 15009KT 110V180 7000 RA FEW006 OVC100 19/17 Q1013RJFE2019-04-23T04:00:00Z32.67128.8219.017.015094.3529.911417RAMVFRMETAR80.02019-04-23 04:13:16 *J‹¾*U§ê*)'5     3USRR 230400Z 23004MPS 9000 -RA OVC038 03/03 Q1007 R25/250255 NOSIG RMK QFE750USRR2019-04-23T04:00:00Z61.3373.423.03.023085.5929.734253TRUE-RAVFRSPECI44.02019-04-23 04:13:163§ê)(s5   3WMKE 230400Z VRB03KT 7000 SCT013 BKN140 31/26 Q1009WMKE2019-04-23T04:00:00Z4.53103.4331.026.0034.3529.793306MVFRMETAR5.02019-04-23 04:13:16G§ê()5    3WMKD 230400Z VRB04KT 9999 FEW017CB SCT019 BKN280 33/26 Q1009 NOSIGWMKD2019-04-23T04:00:00Z3.77103.2233.026.0046.2129.793306TRUEVFRMETAR16.02019-04-23 04:13:169§ê'(o5    3ROMD 230400Z AUTO 14011KT 9999 OVC034 26/21 Q1014ROMD2019-04-23T04:00:00Z25.82131.2226.021.0140116.2129.940945TRUEVFRMETAR15.02019-04-23 04:13:160§ê&(e5   3ROMY 230400Z 21018KT 9999 SCT009 29/25 Q1011ROMY2019-04-23T04:00:00Z24.77125.2729.025.0210186.2129.852362VFRMETAR41.02019-04-23 04:13:16 ÅE„¹Ån§ê.)S5    3UHMA 230400Z 34007MPS CAVOK M11/M14 Q1021 R01/CLRD60 NOSIG RMK END R01/35008MPS MT OBSC QFE762/1016UHMA2019-04-23T04:00:00Z64.73177.73-11.0-14.0340146.2130.147638TRUEVFRMETAR62.02019-04-23 04:13:16E§ê-) 5   3UHMD 230400Z 35007MPS 9999 OVC100 M06/M12 Q1007 RMK QFE755/1006UHMD2019-04-23T04:00:00Z64.38-173.22-6.0-12.0350146.2129.734253VFRMETAR3.02019-04-23 04:13:16;§ê,)5   3WMKL 230400Z VRB03KT 9999 FEW017CB SCT140 BKN270 33/27 Q1009WMKL2019-04-23T04:00:00Z6.3299.7233.027.0036.2129.793306VFRMETAR7.02019-04-23 04:13:165§ê+(s5   3WMKI 230400Z 21004KT 9000 FEW020 BKN280 33/25 Q1009WMKI2019-04-23T04:00:00Z4.57101.0833.025.021045.5929.793306VFRMETAR39.02019-04-23 04:13:16 m!8Rm_§ê2)=5    3UHBB 230400Z 28003MPS 240V310 9999 SCT026CB 07/02 Q1002 R36/290250 NOSIG RMK QFE734/0979UHBB2019-04-23T04:00:00Z50.43127.427.02.028066.2129.586615TRUEVFRMETAR195.02019-04-23 04:13:16`§ê1)?5    3UHHH 230400Z 12004MPS 080V150 9999 SCT045CB 10/02 Q1003 R23L/190050 NOSIG RMK QFE746/0995UHHH2019-04-23T04:00:00Z48.52135.1810.02.012086.2129.616142TRUEVFRMETAR72.02019-04-23 04:13:16c§ê0)A5    3UHPP 230400Z 12005MPS 9999 OVC022CB 02/M03 Q1018 R16R/CLRD70 NOSIG RMK MT OBSC QFE761/1014UHPP2019-04-23T04:00:00Z53.17158.452.0-3.0120106.2130.059055TRUEMVFRMETAR40.02019-04-23 04:13:16Y§ê/)35    3UHWW 230400Z 21003MPS 9999 SCT010 BKN033CB 12/09 Q1011 R25L/190065 NOSIG RMK QFE757UHWW2019-04-23T04:00:00Z43.4132.1512.09.021066.2129.852362TRUEVFRMETAR14.02019-04-23 04:13:16 «;~¦«u§ê6)m5    3URSS 230400Z 06001MPS 9999 FEW020 OVC040 11/09 Q1025 R02/150065 R06/190065 NOSIG RMK R06/07002MPS MT OBSC QFE767URSS2019-04-23T04:00:00Z43.4539.9511.09.06026.2130.265747TRUEVFRMETAR16.02019-04-23 04:13:16R§ê5)5    3URWA 230400Z 30005MPS CAVOK 11/M02 Q1024 R27/010070 NOSIG RMK QFE770/1026URWA2019-04-23T04:00:00Z46.2848.0211.0-2.0300106.2130.236221TRUEVFRMETAR-20.02019-04-23 04:13:167§ê4(q5    3URWI 230400Z AUTO 28003MPS 9999 // NCD 09/01 Q1026URWI2019-04-23T04:00:00Z46.3744.339.01.028066.2130.295275TRUEVFRMETAR150.02019-04-23 04:13:16?§ê3(5    3URWW 230400Z 33004MPS CAVOK 08/M01 Q1025 R24/010070 NOSIGURWW2019-04-23T04:00:00Z48.7844.338.0-1.033086.2130.265747TRUEVFRMETAR147.02019-04-23 04:13:16 ›,\m›L§ê:)5    3URMN 230400Z 29001MPS 9999 NSC 05/02 Q1024 R24/////// NOSIG RMK QFE731URMN2019-04-23T04:00:00Z43.5243.635.02.029026.2130.236221TRUEVFRMETAR445.02019-04-23 04:13:16i§ê9)U5    3URMO 230400Z 13002MPS 6000 BKN001 BKN012 03/03 Q1025 R09/010070 NOSIG RMK QBB050 MT OBSC QFE724/0966URMO2019-04-23T04:00:00Z43.244.63.03.013043.7330.265747TRUELIFRMETAR510.02019-04-23 04:13:16J§ê8)5    3URMT 230400Z 13002MPS CAVOK 06/M00 Q1025 R07/010070 NOSIG RMK QFE728URMT2019-04-23T04:00:00Z45.1242.126.00.013046.2130.265747TRUEVFRMETAR453.02019-04-23 04:13:16N§ê7)5    3URRP 230400Z 31001MPS CAVOK 04/M01 Q1027 R05/CLRD70 NOSIG RMK QFE766/1021URRP2019-04-23T04:00:00Z47.539.924.0-1.031026.2130.324802TRUEVFRMETAR65.02019-04-23 04:13:16 µ*TƒµH§ê>)5    3URKK 230400Z 07003MPS CAVOK 08/03 Q1025 R05R/CLRD70 NOSIG RMK QFE766URKK2019-04-23T04:00:00Z45.0339.158.03.07066.2130.265747TRUEVFRMETAR34.02019-04-23 04:13:16K§ê=)5    3URMG 230400Z 00000MPS CAVOK 04/02 Q1026 R26/090070 NOSIG RMK QFE755/1006URMG2019-04-23T04:00:00Z43.3745.74.02.0006.2130.295275TRUEVFRMETAR263.02019-04-23 04:13:16P§ê<)#5    3URML 230400Z 31003MPS 9999 NSC 10/02 Q1026 R32/010070 NOSIG RMK QFE769/1025URML2019-04-23T04:00:00Z42.8247.6510.02.031066.2130.295275TRUEVFRSPECI4.02019-04-23 04:13:16P§ê;)#5    3URMM 230400Z 10003MPS 9999 NSC 05/00 Q1025 R12/090070 NOSIG RMK QFE741/0988URMM2019-04-23T04:00:00Z44.2243.15.00.010066.2130.265747TRUEVFRMETAR314.02019-04-23 04:13:16 04m­ê04§êC(k5    3VAUD 230400Z 28003KT 6000 NSC 35/11 Q1012 NOSIGVAUD2019-04-23T04:00:00Z24.673.935.011.028033.7329.88189TRUEMVFRMETAR514.02019-04-23 04:13:16=§êB(w5     3VEBS 230400Z 04002KT 5000 HZ FEW018 30/28 Q1009 NOSIGVEBS2019-04-23T04:00:00Z20.2585.8230.028.04023.1129.793306TRUEHZMVFRMETAR46.02019-04-23 04:13:16:§êA)5   3WMKM 230400Z VRB04KT 9999 SCT020 SCT140 BKN280 33/24 Q1009WMKM2019-04-23T04:00:00Z2.27102.2533.024.0046.2129.793306VFRMETAR9.02019-04-23 04:13:16A§ê@) 5    3WMKN 230400Z VRB01KT 9999 -RA FEW008 SCT022 BKN150 29/26 Q1009WMKN2019-04-23T04:00:00Z5.37103.0829.026.0016.2129.793306-RAVFRMETAR6.02019-04-23 04:13:16F§ê?)5    3URKA 230400Z AUTO 06006MPS 9999 // NCD 08/03 Q1024 RMK QFE764/1019URKA2019-04-23T04:00:00Z45.037.358.03.060126.2130.236221TRUEVFRMETAR53.02019-04-23 04:13:16 Œú8bŒP§êG)'5    3UUDD 230400Z 26003MPS 230V300 CAVOK 09/01 Q1028 R32L/190095 R32R/CLRD95 NOSIGUUDD2019-04-23T04:00:00Z55.437.99.01.026066.2130.35433TRUEVFRMETAR168.02019-04-23 04:13:16P§êF)5    3UHSS 230400Z 19006MPS 9999 NSC 10/02 Q1015 R19/70D NOSIG RMK QFE760/1013UHSS2019-04-23T04:00:00Z46.88142.7210.02.0190126.2129.970472TRUEVFRMETAR31.02019-04-23 04:13:16<§êE(5    3ULLI 230400Z 28003MPS CAVOK 10/03 Q1029 R28L/090060 NOSIGULLI2019-04-23T04:00:00Z59.830.2710.03.028066.2130.383858TRUEVFRMETAR4.02019-04-23 04:13:16‚§êD)o5    3UHMM 230400Z 10006MPS 3000 R10/1800D -SHSNRA VV008 03/02 Q1012 R10/290340 TEMPO 1000 SHSNRA BR RMK MT OBSC QFE744UHMM2019-04-23T04:00:00Z59.92150.723.02.0100121.8629.88189-SHSN RALIFR800METAR175.02019-04-23 04:13:16Y88@HPX`hpx€ˆ˜ ¨°¸ÀÈÐØàèðø (08@HPX`hpx€ˆ˜ ¨°¸ÀÈÐØàèðø (08@HPX`hpx€ˆ˜ ¨°¸ÀÈÐØàèðø ¨°¸ÀÈÐØàèðø¦§é§§é$¨§é)©§é-ª§é1«§é6¬§é;­§é@®§éE¯§éJ°§éO±§éT¦§é§§é$¨§é)©§é-ª§é1«§é6¬§é;­§é@®§éE¯§éJ°§éO±§éT²§éX³§é\´§éaµ§éf¶§éj·§éo¸§ét¹§éyº§é~»§ê¼§ê½§ê ¾§ê¿§êÀ§êÁ§ê §ê%çê*ħê.ŧê2Ƨê6ǧê:ȧê>ɧêCʧêĢêKͧêO׍êSϧêWЧê[ѧê_Ò§êcÓ§êgÔ§êkÕ§êoÖ§êsקêxاê}Ù§ëÚ§ëÛ§ë ܧëݧëÞ§ëߧë্ë"᧍ë'⧍ë,㧍ë1䧍ë6姍ë;槍ë@种ëE觍ëJ駍ëO꧍ëT맍ëY짍ë]í§ëaëe留ëjð§ënñ§ërò§ëvó§ëzô§ë~õ§ìö§ì÷§ì ø§ìù§ìú§ìû§ì ü§ì%ý§ì)þ§ì.ÿ§ì3 ´=k‹´Q§êK)!5    3USCC 230400Z 25006MPS 9999 SCT040 11/M03 Q1013 R27/000060 NOSIG RMK QFE740USCC2019-04-23T04:00:00Z55.361.511.0-3.0250126.2129.911417TRUEVFRSPECI234.02019-04-23 04:13:16Z§êJ)15    3UWUU 230400Z 27003MPS 220V310 CAVOK 12/M01 Q1017 R14R/0///60 NOSIG RMK QFE752/1003UWUU2019-04-23T04:00:00Z54.5755.8712.0-1.027066.2130.029528TRUEVFRMETAR137.02019-04-23 04:13:16L§êI)5    3UUMO 230400Z 27001MPS CAVOK 07/03 Q1028 R26/090060 NOSIG RMK QFE755/1007UUMO2019-04-23T04:00:00Z55.5237.57.03.027026.2130.35433TRUEVFRMETAR174.02019-04-23 04:13:16=§êH(5    3UUWW 230400Z 25001MPS CAVOK 09/M01 Q1028 R01/000070 NOSIGUUWW2019-04-23T04:00:00Z55.637.279.0-1.025026.2130.35433TRUEVFRMETAR203.02019-04-23 04:13:16 ´'Wˆ´N§êO)5    3ULWC 230400Z 33002MPS CAVOK 09/01 Q1025 R21/010060 NOSIG RMK QFE759/1012ULWC2019-04-23T04:00:00Z59.2838.029.01.033046.2130.265747TRUEVFRMETAR115.02019-04-23 04:13:16I§êN)5    3UUDL 230400Z 24003MPS CAVOK 10/02 Q1024 R23/010060 NOSIG RMK QFE760UUDL2019-04-23T04:00:00Z57.5740.1710.02.024066.2130.236221TRUEVFRMETAR88.02019-04-23 04:13:16J§êM)5    3UUEE 230400Z 29003MPS CAVOK 09/01 Q1028 R24L/CLRD62 R24C/CLRD62 NOSIGUUEE2019-04-23T04:00:00Z55.9737.429.01.029066.2130.35433TRUEVFRMETAR190.02019-04-23 04:13:16S§êL)!5    3USSS 230400Z 28005MPS CAVOK 10/M02 Q1011 R26R/120050 NOSIG RMK QFE738/0984USSS2019-04-23T04:00:00Z56.7560.8210.0-2.0280106.2129.852362TRUEVFRSPECI233.02019-04-23 04:13:16 º.X•ºU§êS)%5    3UIUU 230400Z 34008MPS 9999 FEW046 05/M15 Q1025 R26/60D NOSIG RMK QFE724/0966UIUU2019-04-23T04:00:00Z51.8107.455.0-15.0340166.2130.265747TRUEVFRMETAR515.02019-04-23 04:13:16=§êR(5    3UUOB 230400Z 02003MPS CAVOK 08/M01 Q1028 R11/010060 NOSIGUUOB2019-04-23T04:00:00Z50.6536.588.0-1.02066.2130.35433TRUEVFRMETAR224.02019-04-23 04:13:16P§êQ)5    3UUBP 230400Z 34001MPS CAVOK 06/M03 Q1029 R34/CLRD70 NOSIG RMK QFE754/1005UUBP2019-04-23T04:00:00Z53.2234.186.0-3.034026.2130.383858TRUEVFRMETAR202.02019-04-23 04:13:16L§êP)5    3UUBC 230400Z 00000MPS CAVOK 05/02 Q1029 R31/CLRD60 NOSIG RMK QFE754/1006UUBC2019-04-23T04:00:00Z54.5536.375.02.0006.2130.383858TRUEVFRMETAR199.02019-04-23 04:13:16 …!?^…S§êW)%5    3UUOK 230400Z 34002MPS 9000 NSC 04/M01 Q1029 R12/CLRD65 NOSIG RMK QFE753/1004UUOK2019-04-23T04:00:00Z51.7536.284.0-1.034045.5930.383858TRUEVFRMETAR209.02019-04-23 04:13:16[§êV)55   3UIAA 230400Z 30009G14MPS 9999 SCT043CB 02/M16 Q1016 R29/CLRD70 NOSIG RMK QFE703/0938UIAA2019-04-23T04:00:00Z52.02113.322.0-16.030017276.2130.0TRUEVFRMETAR685.02019-04-23 04:13:16\§êU)55    3UIBB 230400Z 24004MPS 120V280 9999 NSC 03/M12 Q1023 R30/CLRD60 NOSIG RMK QFE724/0965UIBB2019-04-23T04:00:00Z56.37101.73.0-12.024086.2130.206694TRUEVFRMETAR490.02019-04-23 04:13:16Y§êT)/5    3UIII 230400Z 30003MPS 230V030 CAVOK 05/M12 Q1026 R30/CLRD60 NOSIG RMK QFE724/0966UIII2019-04-23T04:00:00Z52.27104.45.0-12.030066.2130.295275TRUEVFRMETAR513.02019-04-23 04:13:16 ×=r®×Q§ê[)+5    3USCM 230400Z 28004MPS 260V330 9999 NSC 11/M06 Q1016 R36/090060 NOSIG RMK QFE724USCM2019-04-23T04:00:00Z53.458.7511.0-6.028086.2130.0TRUEVFRMETAR435.02019-04-23 04:13:16>§êZ(5    3UUOL 230400Z 29003MPS CAVOK 08/M01 Q1027 R33/090060 NOSIGUUOL2019-04-23T04:00:00Z52.739.538.0-1.029066.2130.324802TRUEVFRMETAR176.02019-04-23 04:13:16E§êY) 5     3UUBW 230400Z 29002MPS 4400 HZ NSC 09/03 Q1028 R30/010060 NOSIGUUBW2019-04-23T04:00:00Z55.5538.159.03.029042.7330.35433TRUEHZIFRMETAR115.02019-04-23 04:13:16=§êX(5    3UWGG 230400Z 30001MPS CAVOK 07/00 Q1024 R36R/090060 NOSIGUWGG2019-04-23T04:00:00Z56.2343.787.00.030026.2130.236221TRUEVFRMETAR73.02019-04-23 04:13:16 •=f•K§ê_)5    3UWKS 230400Z 32003MPS CAVOK 08/M05 Q1022 R24/010060 NOSIG RMK QFE752UWKS2019-04-23T04:00:00Z56.0847.358.0-5.032066.2130.177166TRUEVFRMETAR170.02019-04-23 04:13:16Q§ê^)5    3UWKE 230400Z 32006MPS CAVOK 09/M04 Q1018 R21/090070 NOSIG RMK QFE746/0995UWKE2019-04-23T04:00:00Z55.5752.089.0-4.0320126.2130.059055TRUEVFRMETAR196.02019-04-23 04:13:16W§ê])'5     3USNN 230400Z 23006MPS 9999 -RA OVC026 03/01 Q1008 R21/290253 NOSIG RMK QFE751USNN2019-04-23T04:00:00Z60.9576.483.01.0230126.2129.763779TRUE-RAMVFRMETAR54.02019-04-23 04:13:16`§ê\)75     3USPP 230400Z 32005MPS 290V350 9999 -RA BKN026 06/01 Q1015 R21/090060 NOSIG RMK QFE751USPP2019-04-23T04:00:00Z57.9256.026.01.0320106.2129.970472TRUE-RAMVFRSPECI123.02019-04-23 04:13:16 ·,X†·I§êc)5    3UWOO 230400Z VRB01MPS CAVOK 08/M03 Q1020 R26/65D NOSIG RMK QFE754/1006UWOO2019-04-23T04:00:00Z51.855.478.0-3.0026.2130.11811TRUEVFRMETAR109.02019-04-23 04:13:16L§êb)5    3UWSS 230400Z 30005MPS CAVOK 12/M00 Q1023 R30/010095 NOSIG RMK QFE754UWSS2019-04-23T04:00:00Z51.5746.0712.00.0300106.2130.206694TRUEVFRMETAR166.02019-04-23 04:13:16N§êa)5    3UWKD 230400Z 35005MPS CAVOK 08/M01 Q1021 R29/70D NOSIG RMK QFE754/1006UWKD2019-04-23T04:00:00Z55.6249.288.0-1.0350106.2130.147638TRUEVFRMETAR126.02019-04-23 04:13:16N§ê`)5    3UWLW 230400Z 31006MPS 8000 NSC 10/M01 Q1021 R20/CLRD60 NOSIG RMK QFE760UWLW2019-04-23T04:00:00Z54.448.810.0-1.0310124.9730.147638TRUEMVFRMETAR66.02019-04-23 04:13:16 ¡)Pq¡J§êg)5    3UNOO 230400Z 20003MPS CAVOK 08/M03 Q1018 R25/CLRD60 NOSIG RMK QFE755UNOO2019-04-23T04:00:00Z54.9773.328.0-3.020066.2130.059055TRUEVFRSPECI95.02019-04-23 04:13:16Y§êf)55    3UNNT 230400Z VRB01MPS CAVOK 09/M09 Q1021 R25/090070 R34/090070 NOSIG RMK QFE756/1008UNNT2019-04-23T04:00:00Z55.0282.639.0-9.0026.2130.147638TRUEVFRMETAR111.02019-04-23 04:13:16S§êe)%5    3UNKL 230400Z 07002MPS 330V140 CAVOK 08/M10 Q1023 R11/CLRD65 NOSIG RMK QFE741UNKL2019-04-23T04:00:00Z56.1792.488.0-10.07046.2130.206694TRUEVFRSPECI276.02019-04-23 04:13:16Q§êd)5    3UWOR 230400Z 28006MPS CAVOK 12/M02 Q1019 R25/CLRD65 NOSIG RMK QFE740/0987UWOR2019-04-23T04:00:00Z51.0758.612.0-2.0280126.2130.088583TRUEVFRSPECI277.02019-04-23 04:13:16 È/X„ȁ6§êk(k5    3GQNO 230400Z 36014KT 8000 NSC 18/15 Q1009 NOSIGGQNO2019-04-23T04:00:00Z18.3-15.9718.015.0360144.9729.793306TRUEMVFRMETAR4.02019-04-23 04:13:16N§êj)5    3USHH 230400Z 30001MPS 9999 FEW046 04/01 Q1007 R24/010060 NOSIG RMK QFE751USHH2019-04-23T04:00:00Z61.0369.084.01.030026.2129.734253TRUEVFRMETAR23.02019-04-23 04:13:16Q§êi)5    3USTR 230400Z 25003MPS CAVOK 11/M01 Q1010 R21/CLRD65 NOSIG RMK QFE748/0997USTR2019-04-23T04:00:00Z57.1765.3211.0-1.025066.2129.822834TRUEVFRSPECI115.02019-04-23 04:13:16K§êh)5    3UNTT 230400Z 18004MPS CAVOK 08/M09 Q1021 R21/090060 NOSIG RMK QFE751UNTT2019-04-23T04:00:00Z56.3885.228.0-9.018086.2130.147638TRUEVFRMETAR182.02019-04-23 04:13:16 ÆDj•ÆI§êo)5    3UNAA 230400Z 01002MPS CAVOK 06/M09 Q1022 R02/190060 NOSIG RMK QFE744UNAA2019-04-23T04:00:00Z53.7591.46.0-9.01046.2130.177166TRUEVFRMETAR245.02019-04-23 04:13:16O§ên)!5    3UNBB 230400Z VRB01MPS 9999 SCT040 09/M09 Q1021 R24/CLRD60 NOSIG RMK QFE743UNBB2019-04-23T04:00:00Z53.3783.539.0-9.0026.2130.147638TRUEVFRSPECI255.02019-04-23 04:13:16T§êm)%5    3UNEE 230400Z 12002MPS 040V150 CAVOK 08/M12 Q1021 R23/CLRD60 NOSIG RMK QFE743UNEE2019-04-23T04:00:00Z55.2786.088.0-12.012046.2130.147638TRUEVFRSPECI260.02019-04-23 04:13:166§êl(q5    3GUCY 230400Z 00000KT 9999 SCT015 26/23 Q1009 NOSIGGUCY2019-04-23T04:00:00Z9.57-13.6226.023.0006.2129.793306TRUEVFRMETAR26.02019-04-23 04:13:16 ¨*j{¨M§ês)5    3UERR 230400Z 24008MPS CAVOK 03/M13 Q1012 R25/CLRD60 NOSIG RMK QFE728UERR2019-04-23T04:00:00Z62.53114.053.0-13.0240166.2129.88189TRUEVFRSPECI347.02019-04-23 04:13:16i§êr)G5     3UOOO 230400Z 20012MPS 6000 DRSN BKN003CB 00/M00 Q0985 R19/550335 NOSIG RMK QBB100 QFE723/0964UOOO2019-04-23T04:00:00Z69.3287.330.00.0200233.7329.084646TRUEDRSNLIFRSPECI175.02019-04-23 04:13:16:§êq(q5    3GVAC 230400Z 05010KT 9999 BKN014 21/13 Q1013 NOSIGGVAC2019-04-23T04:00:00Z16.72-22.9321.013.050106.2129.911417TRUEMVFRMETAR55.02019-04-23 04:13:16P§êp)5    3UWWW 230400Z 28005MPS CAVOK 10/M03 Q1020 R33/CLRD60 NOSIG RMK QFE754/1006UWWW2019-04-23T04:00:00Z53.550.1710.0-3.0280106.2130.11811TRUEVFRMETAR146.02019-04-23 04:13:16 ! Z Þ!7§êx(q5    3OEKM 230400Z 09004KT 9999 FEW022 20/09 Q1024 NOSIGOEKM2019-04-23T04:00:00Z18.342.7820.09.09046.2130.236221TRUEVFRMETAR2054.02019-04-23 04:13:16<§êw)5   3WBKS 230400Z 06009KT 330V130 9999 SCT016 BKN300 32/25 Q1008WBKS2019-04-23T04:00:00Z5.9118.0732.025.06096.2129.763779VFRMETAR13.02019-04-23 04:13:164§êv(o5   3NIUE 230400Z AUTO 11013KT //// ////// 26/21 Q1013NIUE2019-04-23T04:00:00Z-19.07-169.9226.021.01101329.911417TRUEMETAR20.02019-04-23 04:13:16-§êu(e5   3VDPP 230400Z VRB03KT 9999 SCT017 35/21 Q1009VDPP2019-04-23T04:00:00Z11.55104.8335.021.0036.2129.793306VFRMETAR10.02019-04-23 04:13:16m§êt)G5    3UERP 230400Z 20005G10MPS 8000 -SHSN BKN013CB OVC100 M03/M08 Q1000 R17/550350 NOSIG RMK QFE706UERP2019-04-23T04:00:00Z66.4112.03-3.0-8.020010194.9729.52756TRUE-SHSNMVFRSPECI509.02019-04-23 04:13:16 R?‡×RF§ê}(y5     3OESH 230400Z 02014KT 0500 BLDU VV020 25/10 Q1015 NOSIGOESH2019-04-23T04:00:00Z17.4747.1225.010.020140.3129.970472TRUEBLDULIFR2000METAR722.02019-04-23 04:13:163§ê|(e5    3OERR 230400Z 31010KT CAVOK 11/04 Q1019 NOSIGOERR2019-04-23T04:00:00Z30.8841.1211.04.0310106.2130.088583TRUEVFRMETAR552.02019-04-23 04:13:16*§ê{([5   3OERF 230400Z 29008KT CAVOK 13/M02 Q1018OERF2019-04-23T04:00:00Z29.6243.4713.0-2.029086.2130.059055VFRMETAR447.02019-04-23 04:13:162§êz(e5    3OEPA 230400Z 28004KT CAVOK 13/02 Q1019 NOSIGOEPA2019-04-23T04:00:00Z28.3246.1213.02.028046.2130.088583TRUEVFRMETAR355.02019-04-23 04:13:16;§êy(q5     3OENG 230400Z 06008KT 0400 DU SKC 23/10 Q1020 NOSIGOENG2019-04-23T04:00:00Z17.6244.4223.010.06080.2530.11811TRUEDULIFRMETAR1203.02019-04-23 04:13:16 oJ‹Ò%o0§ë(k5    3OEWD 230400Z 06012KT 1200 BLDU NSC 23/M01 Q1016OEWD2019-04-23T04:00:00Z20.545.223.0-1.060120.7530.0BLDULIFRMETAR617.02019-04-23 04:13:16'§ë(Y5   3OESK 230400Z 30007KT CAVOK 11/02 Q1023OESK2019-04-23T04:00:00Z29.7740.111.02.030076.2130.206694VFRMETAR684.02019-04-23 04:13:163§ë(g5    3OETB 230400Z 36004KT CAVOK 09/M02 Q1021 NOSIGOETB2019-04-23T04:00:00Z28.3736.629.0-2.036046.2130.147638TRUEVFRMETAR770.02019-04-23 04:13:169§ê(m5    3OETF 230400Z 18002KT 6000 NSC 17/M01 Q1021 NOSIGOETF2019-04-23T04:00:00Z21.4740.5317.0-1.018023.7330.147638TRUEMVFRMETAR1449.02019-04-23 04:13:160§ê~(e5    3OETR 230400Z 27004KT CAVOK 06/05 Q1021 NOSIGOETR2019-04-23T04:00:00Z31.738.736.05.027046.2130.147638TRUEVFRMETAR855.02019-04-23 04:13:16 DI•ÑD;§ë(q5    3VLVT 230400Z 24004KT 7000 BKN040 33/22 Q1010 NOSIGVLVT2019-04-23T04:00:00Z17.98102.5733.022.024044.3529.822834TRUEMVFRMETAR171.02019-04-23 04:13:16F§ë) 5  3VYNT 230400Z 19008G16KT 7000 SCT018 FEW022TCU BKN110 33/24 Q1010VYNT2019-04-23T04:00:00Z19.6296.233.024.01908164.3529.822834MVFRMETAR610.02019-04-23 04:13:16>§ë(y5    3KFME 230400Z AUTO 00000KT 10SM CLR 10/08 A3010 RMK AO1KFME2019-04-23T04:00:00Z39.08-76.7710.08.00010.030.100393TRUETRUEVFRSPECI46.02019-04-23 04:13:16.§ë(e5    3OEYN 230400Z 00000KT CAVOK 16/08 Q1010 NOSIGOEYN2019-04-23T04:00:00Z24.1338.0716.08.0006.2129.822834TRUEVFRMETAR8.02019-04-23 04:13:161§ë(e5    3OEWJ 230400Z 34006KT CAVOK 18/07 Q1014 NOSIGOEWJ2019-04-23T04:00:00Z26.1836.4718.07.034066.2129.940945TRUEVFRMETAR16.02019-04-23 04:13:16 [M“Í[4§ë (q5    3OEAH 230400Z 35016KT 9999 SCT040 18/04 Q1016 NOSIGOEAH2019-04-23T04:00:00Z25.2749.4718.04.0350166.2130.0TRUEVFRMETAR172.02019-04-23 04:13:162§ë (e5    3OEAB 230400Z 00000KT CAVOK 18/12 Q1024 NOSIGOEAB2019-04-23T04:00:00Z18.2242.6318.012.0006.2130.236221TRUEVFRMETAR2084.02019-04-23 04:13:16@§ë (y5    3KMDS 230400Z AUTO 13004KT 10SM CLR 07/07 A3017 RMK AO2KMDS2019-04-23T04:00:00Z44.02-97.087.07.0130410.030.171259TRUETRUEVFRMETAR524.02019-04-23 04:13:164§ë (s5   3VDSR 230400Z VRB03KT 9999 SCT015 SCT040 34/21 Q1009VDSR2019-04-23T04:00:00Z13.42103.8334.021.0036.2129.793306VFRMETAR15.02019-04-23 04:13:16-§ë(e5   3VDSV 230400Z VRB03KT 9999 SCT015 34/27 Q1010VDSV2019-04-23T04:00:00Z10.58103.6334.027.0036.2129.822834VFRMETAR10.02019-04-23 04:13:16 cQ”ç$c;§ë(q5     3OEBH 230400Z 04004KT 1600 HZ SKC 21/06 Q1018 NOSIGOEBH2019-04-23T04:00:00Z19.9742.6221.06.04040.9930.059055TRUEHZLIFRMETAR1157.02019-04-23 04:13:16=§ë(5    3OEGN 230400Z 07003KT 9999 FEW030 BKN100 30/22 Q1011 NOSIGOEGN2019-04-23T04:00:00Z16.8842.5730.022.07036.2129.852362TRUEVFRMETAR3.02019-04-23 04:13:16'§ë(Y5   3OEGS 230400Z 32004KT CAVOK 13/01 Q1019OEGS2019-04-23T04:00:00Z26.343.7713.01.032046.2130.088583VFRMETAR650.02019-04-23 04:13:167§ë(q5    3OEBA 230400Z 03002KT 9999 FEW030 19/04 Q1021 NOSIGOEBA2019-04-23T04:00:00Z20.341.6219.04.03026.2130.147638TRUEVFRMETAR1656.02019-04-23 04:13:16)§ë ([5   3OEAO 230400Z 01010KT CAVOK 16/M02 Q1020OEAO2019-04-23T04:00:00Z26.4838.1216.0-2.010106.2130.11811VFRMETAR624.02019-04-23 04:13:16 ¡J™z¡S§ë)5    3CYUX 230400Z AUTO 27011KT 9SM SCT060 SCT083 M24/M27 A2996 RMK SLP149CYUX2019-04-23T04:00:00Z68.77-81.25-24.0-27.0270119.029.9586621014.9TRUEVFRMETAR8.02019-04-23 04:13:16‚§ë)‚5   3CYVT 230400Z 26011G20KT 210V280 15SM VCSH SCT050 OVC075 15/M01 A2961 RMK SC4AC4 LAST STFD OBS/NXT 231200 UTC SLP040 DENSITY ALT 2100FTCYVT2019-04-23T04:00:00Z55.82-108.4215.0-1.0260112015.029.6102371004.0VCSHVFRMETAR434.02019-04-23 04:13:16+§ë([5   3OEHL 230400Z 16002KT CAVOK 10/M02 Q1021OEHL2019-04-23T04:00:00Z27.4241.6710.0-2.016026.2130.147638VFRMETAR1013.02019-04-23 04:13:160§ë(e5    3OEGT 230400Z 01002KT CAVOK 07/03 Q1021 NOSIGOEGT2019-04-23T04:00:00Z31.4237.277.03.01026.2130.147638TRUEVFRMETAR499.02019-04-23 04:13:16 '<e˜Ø'+§ë(_5   3OEKJ 230400Z 03009KT 7000 NSC 17/02 Q1021OEKJ2019-04-23T04:00:00Z24.0747.5817.02.03094.3530.147638MVFRMETAR503.02019-04-23 04:13:16:§ë(o5     3OEJB 230400Z AUTO 32012KT CAVOK 20/05 Q1017 NOSIGOEJB2019-04-23T04:00:00Z27.0549.3820.05.0320126.2130.029528TRUETRUEVFRMETAR8.02019-04-23 04:13:16G§ë)5   3CYTH 230400Z 14003KT 060V170 15SM SKC 04/M05 A3010 RMK SLP206CYTH2019-04-23T04:00:00Z55.78-97.874.0-5.0140315.030.1003931020.6VFRSPECI218.02019-04-23 04:13:16Q§ë)5    3CYUB 230400Z 05024KT 1 1/2SM BLSN SCT250 M07/M08 A2969 RMK CI4 SLP056CYUB2019-04-23T04:00:00Z69.45-133.02-7.0-8.050241.529.689961005.6BLSNIFRMETAR5.02019-04-23 04:13:16>§ë)5   3CYUS 230400Z AUTO 15006G16KT ////SM //// NCD M26/M29 A3015CYUS2019-04-23T04:00:00Z68.82-93.42-26.0-29.015061630.15059TRUEMETAR42.02019-04-23 04:13:16 âH‚ÂâZ§ë)95    3ULAA 230400Z 22002MPS 170V250 9999 SCT033 03/01 Q1019 R26/CLRD68 NOSIG RMK QFE763/1017ULAA2019-04-23T04:00:00Z64.640.723.01.022046.2130.088583TRUEVFRMETAR19.02019-04-23 04:13:16:§ë(q5    3GVNP 230400Z 02015KT 9999 BKN025 21/15 Q1013 NOSIGGVNP2019-04-23T04:00:00Z14.95-23.4821.015.020156.2129.911417TRUEMVFRMETAR70.02019-04-23 04:13:16@§ë(5    3GVSV 230400Z 06013KT 9999 SCT023 BKN200 21/13 Q1014 NOSIGGVSV2019-04-23T04:00:00Z16.83-25.0721.013.060136.2129.940945TRUEVFRMETAR20.02019-04-23 04:13:162§ë(e5    3GABS 230400Z 36004KT CAVOK 29/06 Q1009 NOSIGGABS2019-04-23T04:00:00Z12.52-7.9529.06.036046.2129.793306TRUEVFRMETAR381.02019-04-23 04:13:16 ´&Q„´J§ë")55    3AYMH 230400Z VRB04KT 9999 SCT080 /// Q1016 RMK:BUILD UPS TO THE NW/ TEMP/DP NOT AVBLAYMH2019-04-23T04:00:00Z-5.83144.3046.2130.0VFRMETAR1642.02019-04-23 04:13:16G§ë!)5   3AYNZ 230400Z 11015KT 9999 SCT040 33/22 Q1007 RMK:BUILD UPS IN AREAAYNZ2019-04-23T04:00:00Z-6.57146.7233.022.0110156.2129.734253VFRMETAR70.02019-04-23 04:13:16O§ë )!5   3AYPY 230400Z 13010KT 9999 SCT025 BKN040 31/25 Q1007 RMK: BUILD UPS IN AREAAYPY2019-04-23T04:00:00Z-9.42147.2231.025.0130106.2129.734253VFRMETAR47.02019-04-23 04:13:16T§ë))5    3UUYY 230400Z 30004MPS 9000 BKN040 04/01 Q1019 R36/29//51 NOSIG RMK QFE755/1007UUYY2019-04-23T04:00:00Z61.6550.824.01.030085.5930.088583TRUEVFRMETAR119.02019-04-23 04:13:16 Gz¨éE§ë') 5    3YGEL 230400Z AUTO 10013KT 9999 // NCD 28/01 Q1021 RF00.0/000.0YGEL2019-04-23T04:00:00Z-28.8114.728.01.0100136.2130.147638TRUEVFRMETAR37.02019-04-23 04:13:169§ë&(o5    3YHID 230400Z AUTO 10019KT 9999 // NCD 30/24 Q1009YHID2019-04-23T04:00:00Z-10.58142.330.024.0100196.2129.793306TRUEVFRMETAR13.02019-04-23 04:13:16L§ë%)5    3YPJT 230400Z AUTO 02005KT 320V040 9999 // NCD 27/08 Q1024 RF00.0/000.0YPJT2019-04-23T04:00:00Z-32.1115.8827.08.02056.2130.236221TRUEVFRMETAR30.02019-04-23 04:13:16G§ë$) 5    3YPWR 230400Z AUTO 21008KT 9999 // NCD 23/07 Q1024 RF00.0/000.0YPWR2019-04-23T04:00:00Z-31.12136.8223.07.021086.2130.236221TRUEVFRMETAR167.02019-04-23 04:13:163§ë#(o5   3LFLW 230400Z AUTO 15004KT 9999 ///TCU 11/07 Q0998LFLW2019-04-23T04:00:00Z44.882.4211.07.015046.2129.468504TRUEMETAR639.02019-04-23 04:13:16 3d¯ÛA§ë,({5    3SASA 230400Z 32007KT 6000 -DZ FEW006 OVC012 13/12 Q1019SASA2019-04-23T04:00:00Z-24.85-65.4713.012.032073.7330.088583-DZMVFRMETAR1216.02019-04-23 04:13:16N§ë+)5    3UMKK 230400Z 13002MPS CAVOK 04/M02 Q1027 R24/CLRD60 NOSIG RMK QFE769/1025UMKK2019-04-23T04:00:00Z54.8820.64.0-2.013046.2130.324802TRUEVFRSPECI21.02019-04-23 04:13:16/§ë*(e5   3YLHI 230400Z 09012KT 9999 BKN040 23/15 Q1024YLHI2019-04-23T04:00:00Z-31.53159.0723.015.090126.2130.236221VFRMETAR2.02019-04-23 04:13:16I§ë))5    3YCFS 230400Z AUTO 17006KT 9999 // OVC077 23/18 Q1024 RF00.0/000.0YCFS2019-04-23T04:00:00Z-30.32153.1223.018.017066.2130.236221TRUEVFRMETAR5.02019-04-23 04:13:16G§ë() 5    3YGLA 230400Z AUTO 09019KT 9999 // NCD 28/19 Q1017 RF00.0/000.0YGLA2019-04-23T04:00:00Z-23.87151.2228.019.090196.2130.029528TRUEVFRMETAR52.02019-04-23 04:13:16 _@…Ì_4§ë1(k5    3FYWB 230400Z 07002KT 4000 BR OVC004 11/10 Q1014FYWB2019-04-23T04:00:00Z-22.9814.6511.010.07022.4929.940945BRLIFRMETAR46.02019-04-23 04:13:16-§ë0([5   3FYWE 230400Z 17011KT CAVOK 13/M03 Q1021FYWE2019-04-23T04:00:00Z-22.6217.0813.0-3.0170116.2130.147638VFRMETAR1700.02019-04-23 04:13:163§ë/(g5    3FYWH 230400Z 00000KT CAVOK 07/M02 Q1021 NOSIGFYWH2019-04-23T04:00:00Z-22.4717.477.0-2.0006.2130.147638TRUEVFRMETAR1700.02019-04-23 04:13:165§ë.(w5   3FYWW 230400Z AUTO 14003KT //// // ////// 13/M02 Q1020FYWW2019-04-23T04:00:00Z-22.5717.113.0-2.0140330.11811TRUEMETAR1725.02019-04-23 04:13:16:§ë-(w5     3VAAU 230400Z 00000KT 4000 HZ FEW020 32/09 Q1013 NOSIGVAAU2019-04-23T04:00:00Z19.8575.432.09.0002.4929.911417TRUEHZIFRMETAR579.02019-04-23 04:13:16 hE‰Ðh)§ë6(Y5   3FYKT 230400Z 07006KT CAVOK 14/07 Q1019FYKT2019-04-23T04:00:00Z-26.5218.1214.07.07066.2130.088583VFRMETAR1061.02019-04-23 04:13:163§ë5(u5   3FYLZ 230400Z AUTO 10006KT //// // ////// 20/06 Q1012FYLZ2019-04-23T04:00:00Z-26.6715.2520.06.0100629.88189TRUEMETAR130.02019-04-23 04:13:163§ë4(u5   3FYML 230400Z AUTO 11004KT //// // ////// 15/07 Q1020FYML2019-04-23T04:00:00Z-24.617.9315.07.0110430.11811TRUEMETAR1113.02019-04-23 04:13:166§ë3(u5   3FYOA 230400Z AUTO 12005KT //// // ////// 22/13 Q1015FYOA2019-04-23T04:00:00Z-17.8815.9722.013.0120529.970472TRUEMETAR1095.02019-04-23 04:13:165§ë2(w5   3FYOW 230400Z AUTO 09003KT //// // ////// 15/M00 Q1018FYOW2019-04-23T04:00:00Z-20.4316.6715.00.090330.059055TRUEMETAR1481.02019-04-23 04:13:16 dP—è%d;§ë;(q5     3VILK 230400Z 10007KT 3500 HZ NSC 29/20 Q1009 NOSIGVILK2019-04-23T04:00:00Z26.7580.8729.020.010072.1729.793306TRUEHZIFRMETAR128.02019-04-23 04:13:16=§ë:(w5     3VOVZ 230400Z 20006KT 5000 HZ FEW018 33/25 Q1009 NOSIGVOVZ2019-04-23T04:00:00Z17.7583.2233.025.020063.1129.793306TRUEHZMVFRMETAR5.02019-04-23 04:13:16)§ë9(e5   3VOBM 230400Z 08006KT 9999 FEW015 33/17 Q1016VOBM2019-04-23T04:00:00Z15.8574.6233.017.08066.2130.0VFRMETAR758.02019-04-23 04:13:163§ë8(u5   3FYGB 230400Z AUTO 33003KT //// // ////// 10/06 Q1020FYGB2019-04-23T04:00:00Z-22.518.9710.06.0330330.11811TRUEMETAR1442.02019-04-23 04:13:16*§ë7(e5   3FYKM 230400Z 06003KT 9999 BKN090 21/16 Q1016FYKM2019-04-23T04:00:00Z-17.6324.1821.016.06036.2130.0VFRMETAR958.02019-04-23 04:13:16 =6h¦ó=0§ë@(e5   3NVVV 230400Z 13010KT 9999 SCT020 30/25 Q1009NVVV2019-04-23T04:00:00Z-17.68168.330.025.0130106.2129.793306VFRMETAR21.02019-04-23 04:13:16-§ë?(e5   3DAUL 230400Z 26004KT 9999 FEW030 10/08 Q1007DAUL2019-04-23T04:00:00Z33.772.9210.08.026046.2129.734253VFRMETAR765.02019-04-23 04:13:16<§ë>(}5    3URFF 230400Z 07004MPS CAVOK 07/03 Q1026 R01/090095 NOSIGURFF2019-04-23T04:00:00Z45.0333.987.03.07086.2130.295275TRUEVFRMETAR188.02019-04-23 04:13:16H§ë=)5   3ULPB 230400Z AUTO 00000MPS 9999 // ///072/// 03/02 Q1025 RMK QFE765/1020ULPB2019-04-23T04:00:00Z61.8834.153.02.0006.2130.265747TRUEMETAR46.02019-04-23 04:13:16D§ë<) 5    3ULOO 230400Z AUTO 12001MPS 6000 // NCD 03/M01 Q1030 RMK QFE768ULOO2019-04-23T04:00:00Z57.7828.43.0-1.012023.7330.413385TRUEMVFRSPECI47.02019-04-23 04:13:16 +:~Æ +[§ëE)95   3DRRN 230400Z 28011KT 8000 NSC 30/17 Q1008 TEMPO 30030KT 1200 BLDU TSRA SCT030 FEW040CBDRRN2019-04-23T04:00:00Z13.472.1730.017.0280114.9729.763779MVFRMETAR227.02019-04-23 04:13:164§ëD(q5    3DNMM 230400Z VRB02KT 9999 FEW012 28/26 Q1009 NOSIGDNMM2019-04-23T04:00:00Z6.573.3228.026.0026.2129.793306TRUEVFRMETAR38.02019-04-23 04:13:162§ëC(e5    3DNKN 230400Z 21006KT CAVOK 28/19 Q1010 NOSIGDNKN2019-04-23T04:00:00Z12.058.5228.019.021066.2129.822834TRUEVFRMETAR481.02019-04-23 04:13:166§ëB(q5    3DNAA 230400Z 13005KT 9999 FEW009 28/19 Q1009 NOSIGDNAA2019-04-23T04:00:00Z9.07.2728.019.013056.2129.793306TRUEVFRMETAR344.02019-04-23 04:13:16@§ëA)5   3NVVW 230400Z 10003KT 9999 SCT020 BKN040 29/24 Q1010 RMK RERANVVW2019-04-23T04:00:00Z-19.45169.2229.024.010036.2129.822834VFRMETAR6.02019-04-23 04:13:16 YP‹ÏY3§ëJ(e5    3FTTJ 230400Z 23004KT CAVOK 31/18 Q1006 NOSIGFTTJ2019-04-23T04:00:00Z12.1215.0231.018.023046.2129.704725TRUEVFRMETAR295.02019-04-23 04:13:167§ëI(q5    3DBBB 230400Z 23010KT 8000 SCT011 29/26 Q1008 NOSIGDBBB2019-04-23T04:00:00Z6.332.3729.026.0230104.9729.763779TRUEMVFRMETAR9.02019-04-23 04:13:166§ëH(q5    3DXXX 230400Z 25009KT 9999 FEW013 29/26 Q1009 NOSIGDXXX2019-04-23T04:00:00Z6.171.2529.026.025096.2129.793306TRUEVFRMETAR25.02019-04-23 04:13:16?§ëG(5    3DGAA 230400Z 25008KT 9999 BKN011 BKN019 28/26 Q1009 NOSIGDGAA2019-04-23T04:00:00Z5.58-0.1728.026.025086.2129.793306TRUEMVFRMETAR69.02019-04-23 04:13:16*§ëF(_5   3DRZA 230400Z 08012KT 6000 NSC 29/03 Q1009DRZA2019-04-23T04:00:00Z16.978.029.03.080123.7329.793306MVFRMETAR502.02019-04-23 04:13:16 +T¥Ä+T§ëO))5    3LFMK 230400Z AUTO 09009KT 070V130 9999 BKN008 OVC015 12/12 Q0998 TEMPO 4000 RALFMK2019-04-23T04:00:00Z43.222.3212.012.09096.2129.468504TRUEIFRMETAR130.02019-04-23 04:13:169§ëN)5   3WMBA 230400Z VRB03KT 9999 SCT020 SCT150 BKN280 34/26 Q1008WMBA2019-04-23T04:00:00Z4.22100.734.026.0036.2129.763779VFRMETAR8.02019-04-23 04:13:16[§ëM)35    3DFFD 230400Z 08005KT 040V110 9999 -TSRA FEW020 FEW040CB 26/22 Q1008 TEMPO 4000 TSRADFFD2019-04-23T04:00:00Z12.33-1.5226.022.08056.2129.763779-TSRAVFRMETAR306.02019-04-23 04:13:16)§ëL(Y5   3DFOO 230400Z 18009KT CAVOK 28/22 Q1009DFOO2019-04-23T04:00:00Z11.17-4.3228.022.018096.2129.793306VFRMETAR460.02019-04-23 04:13:16&§ëK(Y5   3FTTA 230400Z 00000KT CAVOK 30/21 Q1009FTTA2019-04-23T04:00:00Z9.1518.3730.021.0006.2129.793306VFRMETAR365.02019-04-23 04:13:16 h8‘Òh0§ëT(e5    3LRCK 230400Z 02006KT CAVOK 04/04 Q1026 NOSIGLRCK2019-04-23T04:00:00Z44.3728.484.04.02066.2130.295275TRUEVFRMETAR108.02019-04-23 04:13:16.§ëS(e5    3LROP 230400Z 07008KT CAVOK 05/01 Q1025 NOSIGLROP2019-04-23T04:00:00Z44.5726.15.01.07086.2130.265747TRUEVFRMETAR95.02019-04-23 04:13:169§ëR(s5    3LRSB 230400Z 13011KT 9999 SCT086 08/M01 Q1020 NOSIGLRSB2019-04-23T04:00:00Z45.7824.088.0-1.0130116.2130.11811TRUEVFRMETAR444.02019-04-23 04:13:16!§ëQ(Y5   3LRTR 230400Z 12008KT CAVOK 09/07 Q1016LRTR2019-04-23T04:00:00Z45.8221.339.07.012086.2130.0VFRMETAR88.02019-04-23 04:13:16B§ëP(5     3LFLY 230400Z AUTO 21005KT 180V240 CAVOK 16/06 Q0997 NOSIGLFLY2019-04-23T04:00:00Z45.724.9516.06.021056.2129.438976TRUETRUEVFRMETAR201.02019-04-23 04:13:16 &LœÐñ&E§ëY) 5    3CWKO 230400Z AUTO 19013KT 09/02 RMK AO1 SLP167 T00900018 58013CWKO2019-04-23T04:00:00Z49.17-105.979.01.8190131016.7TRUETRUE-1.3METAR917.02019-04-23 04:13:16Y§ëX)/5    3CWOY 230400Z AUTO 17016KT 11/M06 RMK AO1 PK WND 16021/0336 SLP142 T01051058 56022CWOY2019-04-23T04:00:00Z51.77-104.210.5-5.8170161014.2TRUETRUE-2.2METAR560.02019-04-23 04:13:16F§ëW) 5    3CWCT 230400Z AUTO 31009KT 10/M01 RMK AO1 SLP067 T01021010 53002CWCT2019-04-23T04:00:00Z52.07-111.4710.2-1.031091006.7TRUETRUE0.2METAR791.02019-04-23 04:13:16*§ëV(e5   3VOHB 230400Z 30004KT 9999 FEW015 30/18 Q1016VOHB2019-04-23T04:00:00Z15.3775.0830.018.030046.2130.0VFRMETAR661.02019-04-23 04:13:16.§ëU(e5    3LRBS 230400Z 05007KT CAVOK 04/01 Q1025 NOSIGLRBS2019-04-23T04:00:00Z44.526.084.01.05076.2130.265747TRUEVFRMETAR91.02019-04-23 04:13:16 Ñ1c›ÑD§ë]) 5    3CZFS 230400Z AUTO 02002KT 12/M02 RMK AO1 SLP961 T01241018 53001CZFS2019-04-23T04:00:00Z61.77-121.2312.4-1.8202996.1TRUETRUE0.1SPECI168.02019-04-23 04:13:16B§ë\) 5    3CZHY 230400Z AUTO 08002KT 07/06 RMK AO1 SLP970 T00650055 58016CZHY2019-04-23T04:00:00Z60.83-115.786.55.5802997.0TRUETRUE-1.6SPECI164.02019-04-23 04:13:16H§ë[)5   3CZSM 230400Z AUTO 18005KT 14/M01 RMK AO1 SOG 06 8016 SLP986 T01421006CZSM2019-04-23T04:00:00Z60.03-111.9314.2-0.61805998.6TRUETRUESPECI203.02019-04-23 04:13:16I§ëZ) 5    3CWEH 230400Z AUTO 21011KT 11/M03 RMK AO1 SLP118 T01061026 56013CWEH2019-04-23T04:00:00Z49.42-108.9710.6-2.6210111011.8TRUETRUE-1.3METAR1078.02019-04-23 04:13:16  5k E§ëa) 5    3CWWF 230400Z AUTO 16012KT 09/M05 RMK AO1 SLP181 T00931054 58018CWWF2019-04-23T04:00:00Z49.7-103.89.3-5.4160121018.1TRUETRUE-1.8METAR589.02019-04-23 04:13:16D§ë`) 5    3CWWK 230400Z AUTO 16003KT 11/09 RMK AO1 SLP231 T01070086 56009CWWK2019-04-23T04:00:00Z49.02-122.7810.78.616031023.1TRUETRUE-0.9METAR15.02019-04-23 04:13:16^§ë_)55    3CWXA 230400Z AUTO 26005G17KT 11/M05 RMK AO1 PK WND 25020/0300 SLP089 T01081048 53002CWXA2019-04-23T04:00:00Z51.07-115.0710.8-4.82605171008.9TRUETRUE0.2METAR1298.02019-04-23 04:13:16a§ë^)C5   3CZEV 230400Z AUTO 02014G19KT M03/M06 RMK AO1 SOG 57 6004 PK WND 02019/0350 SLP023 T10301058CZEV2019-04-23T04:00:00Z68.32-133.52-3.0-5.82014191002.3TRUETRUESPECI103.02019-04-23 04:13:16 ¢7U‡¢_§ëe)?5   3CWVN 230400Z AUTO 18016G21KT 12/03 RMK AO1 SOG 02 8016 PK WND 18021/0359 SLP136 T01200030CWVN2019-04-23T04:00:00Z49.07-107.5712.03.018016211013.6TRUETRUEMETAR785.02019-04-23 04:13:16H§ëd) 5    3CWVP 230400Z AUTO 23007KT 11/M05 RMK AO1 SLP113 T01061046 56011CWVP2019-04-23T04:00:00Z49.63-109.5210.6-4.623071011.3TRUETRUE-1.1METAR1271.02019-04-23 04:13:16\§ëc)55    3CWVQ 230400Z AUTO 04010G18KT 12/M04 RMK AO1 PK WND 04018/0359 SLP208 T01201040 58004CWVQ2019-04-23T04:00:00Z45.42-73.9212.0-4.04010181020.8TRUETRUE-0.4METAR39.02019-04-23 04:13:16C§ëb) 5    3CWWA 230400Z AUTO 03002KT 09/08 RMK AO1 SLP227 T00860075 56009CWWA2019-04-23T04:00:00Z49.35-123.178.67.53021022.7TRUETRUE-0.9METAR178.02019-04-23 04:13:16 ,8Š¾ô,B§ëj) 5    3CWTN 230400Z AUTO 25003KT 04/M01 RMK AO1 SLP240 T00421012 53008CWTN2019-04-23T04:00:00Z47.07-70.784.2-1.225031024.0TRUETRUE0.8METAR6.02019-04-23 04:13:16D§ëi) 5    3CWUS 230400Z AUTO 19004KT 11/02 RMK AO1 SLP193 T01090024 53003CWUS2019-04-23T04:00:00Z49.57-119.6510.92.419041019.3TRUETRUE0.3METAR454.02019-04-23 04:13:16F§ëh) 5    3CWUX 230400Z AUTO 12003KT M03/M06 RMK AO1 SLP255 T10271055 58003CWUX2019-04-23T04:00:00Z48.3-70.93-2.7-5.512031025.5TRUETRUE-0.3METAR135.02019-04-23 04:13:16(§ëg(o5  3CWVF 230400Z AUTO 12008KT 10/09 RMK AO1 T00990093CWVF2019-04-23T04:00:00Z49.1-123.39.99.31208TRUETRUEMETAR1.02019-04-23 04:13:16B§ëf) 5    3CWVI 230400Z AUTO 28006KT 10/04 RMK AO1 SLP054 T00950035 52011CWVI2019-04-23T04:00:00Z53.52-112.19.53.528061005.4TRUETRUE1.1METAR639.02019-04-23 04:13:16 Ï9^“ρ>§ën)5   3WMSA 230400Z 30003KT 260V010 9000 FEW019 BKN280 33/24 Q1009WMSA2019-04-23T04:00:00Z3.13101.5533.024.030035.5929.793306VFRMETAR27.02019-04-23 04:13:16E§ëm)5    3CWSS 230400Z AUTO 05010KT 10/08 RMK AO1 6012 SLP199 T00980076 50003CWSS2019-04-23T04:00:00Z45.2-67.259.87.650101019.9TRUETRUE0.3METAR26.02019-04-23 04:13:16U§ël)/5    3CWTA 230400Z AUTO 02006KT 11/M02 RMK AO1 PK WND 02017/0346 SLP210 T01081015 58001CWTA2019-04-23T04:00:00Z45.5-73.5810.8-1.52061021.0TRUETRUE-0.1METAR63.02019-04-23 04:13:16A§ëk) 5    3CWTG 230400Z AUTO 03005KT 01/M06 RMK AO1 SLP264 T00141061 51002CWTG2019-04-23T04:00:00Z49.32-67.371.4-6.13051026.4TRUETRUE0.2METAR5.02019-04-23 04:13:16 Æ=n¤ÆX§ër)95   3CWGD 230400Z AUTO 14008KT 13/06 RMK AO1 SOG 01 8016 PK WND 14020/0325 SLP164 T01250055CWGD2019-04-23T04:00:00Z43.77-81.7212.55.514081016.4TRUETRUEMETAR214.02019-04-23 04:13:16D§ëq) 5    3CWGL 230400Z AUTO 13006KT 11/05 RMK AO1 SLP186 T01070050 58014CWGL2019-04-23T04:00:00Z44.52-79.2210.75.013061018.6TRUETRUE-1.4METAR221.02019-04-23 04:13:16I§ëp)5  3CWGM 230400Z AUTO 24012G19KT 11/M01 RMK AO1 PK WND 24022/0321 T01141012CWGM2019-04-23T04:00:00Z49.13-113.7811.4-1.22401219TRUETRUEMETAR1296.02019-04-23 04:13:16=§ëo)5   3WMKJ 230400Z VRB06KT 9999 FEW017CB SCT019 BKN280 33/27 Q1008WMKJ2019-04-23T04:00:00Z1.62103.6733.027.0066.2129.763779VFRMETAR40.02019-04-23 04:13:16 Â%[§Â_§ëv)55    3CWFF 230400Z AUTO 17017G24KT 13/M05 RMK AO1 PK WND 16026/0322 SLP104 T01341046 56031CWFF2019-04-23T04:00:00Z52.82-104.5813.4-4.617017241010.4TRUETRUE-3.1METAR490.02019-04-23 04:13:16.§ëu(q5  3CWFJ 230400Z AUTO 21004KT 10/M01 RMK AO1 T00971007CWFJ2019-04-23T04:00:00Z49.2-113.279.7-0.72104TRUETRUEMETAR1136.02019-04-23 04:13:16D§ët) 5    3CWFQ 230400Z AUTO 35006KT 11/02 RMK AO1 SLP187 T01070022 58012CWFQ2019-04-23T04:00:00Z45.03-72.8210.72.235061018.7TRUETRUE-1.2METAR152.02019-04-23 04:13:16U§ës)-5    3CWGB 230400Z AUTO 12020KT 10/08 RMK AO1 PK WND 12023/0359 SLP209 T00990081 56009CWGB2019-04-23T04:00:00Z49.35-124.179.98.1120201020.9TRUETRUE-0.9METAR5.02019-04-23 04:13:16 Á8\ÁI§ëz)5   3CZZJ 230400Z AUTO 23008KT 10/M03 RMK AO1 SOG 02 3004 SLP085 T01001026CZZJ2019-04-23T04:00:00Z53.58-116.4710.0-2.623081008.5TRUETRUEMETAR927.02019-04-23 04:13:16F§ëy)5    3CWEB 230400Z AUTO 30005KT 09/08 RMK AO1 2004 SLP217 T00860082 50008CWEB2019-04-23T04:00:00Z49.38-126.558.68.230051021.7TRUETRUE0.8METAR7.02019-04-23 04:13:16V§ëx)-5    3CWEL 230400Z AUTO 14014KT 10/08 RMK AO1 PK WND 15017/0357 SLP215 T01020084 55008CWEL2019-04-23T04:00:00Z49.22-123.7810.28.4140141021.5TRUETRUE-0.8METAR5.02019-04-23 04:13:16B§ëw) 5    3CWEW 230400Z AUTO 02006KT 10/M01 RMK AO1 SLP222 T00971009 51003CWEW2019-04-23T04:00:00Z45.82-73.439.7-0.92061022.2TRUETRUE0.3METAR21.02019-04-23 04:13:16 ½5Sˆ½E§ë~)5   3CXZV 230400Z AUTO 02003KT 00/M07 RMK AO1 SOG 97 2007 SLP271 T00001073CXZV2019-04-23T04:00:00Z50.22-66.250.0-7.32031027.1TRUETRUEMETAR52.02019-04-23 04:13:16E§ë}) 5    3CZKD 230400Z AUTO 15005KT 03/M06 RMK AO1 SLP207 T00261059 57014CZKD2019-04-23T04:00:00Z56.03-96.522.6-5.915051020.7TRUETRUE-1.4METAR183.02019-04-23 04:13:16\§ë|);5   3CZMJ 230400Z AUTO 18013KT 14/M02 RMK AO1 SOG 01 7017 PK WND 18017/0347 SLP148 T01351017CZMJ2019-04-23T04:00:00Z50.33-105.5713.5-1.7180131014.8TRUETRUEMETAR577.02019-04-23 04:13:16E§ë{) 5    3CZTB 230400Z AUTO 26002KT 02/M01 RMK AO1 SLP209 T00161006 58005CZTB2019-04-23T04:00:00Z48.37-89.321.6-0.626021020.9TRUETRUE-0.5METAR199.02019-04-23 04:13:16 !8o°Ñ!*§ì(o5  3CXRL 230400Z AUTO 28006KT 10/04 RMK AO1 T00980035CXRL2019-04-23T04:00:00Z54.5-111.79.83.52806TRUETRUEMETAR585.02019-04-23 04:13:16Y§ì)15     3CXTD 230400Z AUTO 28004KT 03/03 RMK AO1 6PAST HR 3002 SLP244 P0006 T00290026 50031CXTD2019-04-23T04:00:00Z45.62-61.682.92.628041024.4TRUETRUE3.10.06METAR68.02019-04-23 04:13:169§ì)5   3CXTO 230400Z AUTO 11/06 RMK AO1 SOG 02 6015 SLP189 T01140057CXTO2019-04-23T04:00:00Z43.67-79.411.45.71018.9TRUETRUEMETAR113.02019-04-23 04:13:16C§ì)5   3CXVN 230400Z AUTO 32003KT 06/05 RMK AO1 SOG 02 8008 SLP186 T00600050CXVN2019-04-23T04:00:00Z43.18-79.46.05.032031018.6TRUETRUEMETAR79.02019-04-23 04:13:16B§ë)5  3CXWM 230400Z AUTO 25026KT 15/M01 RMK AO1 PK WND 25034/0346 T01501010CXWM2019-04-23T04:00:00Z49.5-112.1215.0-1.025026TRUETRUEMETAR944.02019-04-23 04:13:16 a™ã?§ì) 5    3CXLB 230400Z AUTO 02002KT 07/07 RMK AO1 SLP203 T00680066 58004CXLB2019-04-23T04:00:00Z44.37-64.36.86.62021020.3TRUETRUE-0.4METAR4.02019-04-23 04:13:160§ì(q5  3CXOY 230400Z AUTO 22010KT 12/M02 RMK AO1 T01201020CXOY2019-04-23T04:00:00Z51.38-110.3512.0-2.022010TRUETRUEMETAR767.02019-04-23 04:13:16B§ì)5  3CXPA 230400Z AUTO 23011KT 10/M00 RMK AO1 PK WND 25019/0307 T01011001CXPA2019-04-23T04:00:00Z55.62-118.310.1-0.123011TRUETRUEMETAR621.02019-04-23 04:13:167§ì(y5    3CXPC 230400Z AUTO 14/03 RMK AO1 SLP170 T01410032 56009CXPC2019-04-23T04:00:00Z45.35-80.0514.13.21017.0TRUETRUE-0.9METAR176.02019-04-23 04:13:16\§ì)=5   3CXRB 230400Z AUTO 33009KT M24/M26 RMK AO1 SOG 03 3004 PK WND 34017/0340 SLP131 T12371261CXRB2019-04-23T04:00:00Z74.72-94.98-23.7-26.133091013.1TRUETRUEMETAR68.02019-04-23 04:13:16 ?Lƒ»õ?0§ì (q5  3CXCS 230400Z AUTO 26012KT 15/M02 RMK AO1 T01461021CXCS2019-04-23T04:00:00Z51.93-110.7214.6-2.126012TRUETRUEMETAR772.02019-04-23 04:13:16@§ì )5  3CXFR 230400Z AUTO 25012KT 08/02 RMK AO1 PK WND 24018/0348 T00750021CXFR2019-04-23T04:00:00Z56.08-118.437.52.125012TRUETRUEMETAR655.02019-04-23 04:13:16B§ì )5  3CXHR 230400Z AUTO 26015KT 13/M01 RMK AO1 PK WND 27021/0341 T01311012CXHR2019-04-23T04:00:00Z51.18-112.513.1-1.226015TRUETRUEMETAR971.02019-04-23 04:13:16C§ì )5    3CXKI 230400Z AUTO 01/M01 RMK AO1 SOG 24 8022 SLP216 T00141009 50002CXKI2019-04-23T04:00:00Z48.22-80.01.4-0.91021.6TRUETRUE0.2METAR324.02019-04-23 04:13:16.§ì (o5  3CXKM 230400Z AUTO 34011KT 12/03 RMK AO1 T01240033CXKM2019-04-23T04:00:00Z52.82-111.8512.43.334011TRUETRUEMETAR675.02019-04-23 04:13:16 ¯(V„¯O§ì)5     3UTSB 230400Z 05008KT 9999 -SHRA BKN040CB 11/09 Q1012 R01/290055 NOSIGUTSB2019-04-23T04:00:00Z39.7764.4811.09.05086.2129.88189TRUE-SHRAVFRMETAR226.02019-04-23 04:13:16L§ì)5    3UTSK 230400Z VRB02KT 4400 -SHRA BR SCT050CB 12/12 Q1012 R16/190060UTSK2019-04-23T04:00:00Z38.8365.7712.012.0022.7329.88189-SHRA BRIFRMETAR1365.02019-04-23 04:13:16L§ì)5    3UTSS 230400Z 14006KT 110V180 9999 BKN061CB 10/09 Q1012 R09/29//55 NOSIGUTSS2019-04-23T04:00:00Z39.766.9810.09.014066.2129.88189TRUEVFRMETAR724.02019-04-23 04:13:16R§ì)5     3UTST 230400Z 07012KT 9999 -SHRA BKN050CB 15/11 Q1011 R88/CLRD70 NOSIGUTST2019-04-23T04:00:00Z37.2867.3215.011.070126.2129.852362TRUE-SHRAVFRMETAR302.02019-04-23 04:13:16 89}¼ô86§ì(k5    3DIBK 230400Z 22008KT 6000 NSC 25/25 Q1011 NOSIGDIBK2019-04-23T04:00:00Z7.72-5.0725.025.022083.7329.852362TRUEMVFRMETAR376.02019-04-23 04:13:16B§ì)5    3UTFN 230400Z 18004KT 8000 NSC 15/12 Q1012 R28/CLRD70 NOSIGUTFN2019-04-23T04:00:00Z40.9871.5715.012.018044.9729.88189TRUEMVFRMETAR490.02019-04-23 04:13:16;§ì({5    3UTNN 230400Z 35004KT CAVOK 09/03 Q1017 R33/CLRD60 NOSIGUTNN2019-04-23T04:00:00Z42.4859.639.03.035046.2130.029528TRUEVFRMETAR67.02019-04-23 04:13:166§ì({5    3UTNU 230400Z 05006KT CAVOK 10/04 Q1016 R31/CLRD70 NOSIGUTNU2019-04-23T04:00:00Z41.5860.6310.04.05066.2130.0TRUEVFRMETAR98.02019-04-23 04:13:16A§ì)5    3UTSA 230400Z 06010KT 9000 NSC 12/10 Q1012 R07/15//67 NOSIGUTSA2019-04-23T04:00:00Z40.1265.1712.010.060105.5929.88189TRUEVFRMETAR346.02019-04-23 04:13:16 >IbŸí>)§ì([5   3DAOR 230400Z 36002KT CAVOK 11/M00 Q1006DAOR2019-04-23T04:00:00Z31.65-2.2711.00.036026.2129.704725VFRMETAR773.02019-04-23 04:13:16,§ì(_5   3DAOF 230400Z 30020KT 8000 NSC 13/08 Q1005DAOF2019-04-23T04:00:00Z27.7-8.1713.08.0300204.9729.675198MVFRMETAR431.02019-04-23 04:13:16=§ì(5   3UTFF 230400Z 19006KT 7000 SCT060CB 16/11 Q1013 R18/CLRD70UTFF2019-04-23T04:00:00Z40.3771.7716.011.019064.3529.911417MVFRMETAR577.02019-04-23 04:13:16a§ì)/5     3UTTT 230400Z 14006KT 100V180 5000 -SHRA BR BKN007CB 13/12 Q1013 R26R/19//60 NOSIGUTTT2019-04-23T04:00:00Z41.2769.2713.012.014063.1129.911417TRUE-SHRA BRIFRMETAR489.02019-04-23 04:13:161§ì(e5    3DIYO 230400Z 24006KT CAVOK 25/24 Q1010 NOSIGDIYO2019-04-23T04:00:00Z6.9-5.3325.024.024066.2129.822834TRUEVFRMETAR213.02019-04-23 04:13:16 kOè0k?§ì (5    3GMFO 230400Z 20016KT 9999 FEW040 SCT200 13/08 Q1004 NOSIGGMFO2019-04-23T04:00:00Z34.77-1.9213.08.0200166.2129.64567TRUEVFRMETAR470.02019-04-23 04:13:162§ì(e5    3LEAB 230400Z 24008KT CAVOK 10/06 Q0999 NOSIGLEAB2019-04-23T04:00:00Z38.95-1.8510.06.024086.2129.498032TRUEVFRMETAR704.02019-04-23 04:13:16/§ì(e5    3DAAP 230400Z 10003KT 2000 HZ NSC 22/04 Q1007DAAP2019-04-23T04:00:00Z26.728.6222.04.010031.2429.734253HZIFRMETAR558.02019-04-23 04:13:16,§ì(e5   3DAOV 230400Z 17005KT 9999 FEW023 10/09 Q1005DAOV2019-04-23T04:00:00Z35.20.1510.09.017056.2129.675198VFRMETAR514.02019-04-23 04:13:16+§ì(e5   3DAOL 230400Z 00000KT 9999 FEW030 11/09 Q1004DAOL2019-04-23T04:00:00Z35.53-0.5211.09.0006.2129.64567VFRMETAR112.02019-04-23 04:13:16 F.q¸ýF1§ì%(i5    3LEBT 230400Z AUTO VRB02KT 7000 NCD 09/09 Q0998LEBT2019-04-23T04:00:00Z39.58-0.459.09.0024.3529.468504TRUEMVFRMETAR50.02019-04-23 04:13:165§ì$(u5   3LELO 230400Z 05006KT 020V080 9999 FEW050 11/08 Q0995LELO2019-04-23T04:00:00Z42.45-2.3211.08.05066.2129.379921VFRMETAR363.02019-04-23 04:13:163§ì#(i5    3LEBR 230400Z AUTO 13008KT 9999 NSC 10/07 Q0996LEBR2019-04-23T04:00:00Z42.2-1.4310.07.013086.2129.409449TRUEVFRMETAR295.02019-04-23 04:13:167§ì"(u5    3LELL 230400Z AUTO VRB02KT 9999 OVC032/// 14/13 Q0996LELL2019-04-23T04:00:00Z41.522.114.013.0026.2129.409449TRUEVFRMETAR250.02019-04-23 04:13:16L§ì!)5    3LESB 230400Z AUTO 28004KT 9999 FEW021/// SCT029/// BKN038/// 14/11 Q0998LESB2019-04-23T04:00:00Z39.62.714.011.028046.2129.468504TRUEVFRMETAR48.02019-04-23 04:13:16 ÏDw¦ÏQ§ì))5     3LERT 230400Z 32014KT 290V350 9000 -RA SCT010 BKN025 12/12 Q1001 NOSIGLERT2019-04-23T04:00:00Z36.63-6.3312.012.0320145.5929.557087TRUE-RAMVFRMETAR26.02019-04-23 04:13:16K§ì()5   3LETO 230400Z 22002KT 9999 FEW040 SCT060 12/07 Q0996 TEMPO 4000 RA BKN012LETO2019-04-23T04:00:00Z40.47-3.4712.07.022026.2129.409449VFRMETAR608.02019-04-23 04:13:16G§ì') 5    3LEBA 230400Z AUTO 22007KT 190V250 9999 SCT023 BKN038 14/11 Q0999LEBA2019-04-23T04:00:00Z37.85-4.8214.011.022076.2129.498032TRUEVFRMETAR92.02019-04-23 04:13:166§ì&(o5    3LEHC 230400Z AUTO 01001KT 9999 SCT060 10/09 Q0997LEHC2019-04-23T04:00:00Z42.08-0.3210.09.01016.2129.438976TRUEVFRMETAR539.02019-04-23 04:13:16 +<j¥î+=§ì.(}5    3LKCV 230400Z 07010KT CAVOK 09/04 Q1009 NOSIG RMK BLU BLULKCV2019-04-23T04:00:00Z49.9315.389.04.070106.2129.793306TRUEVFRMETAR242.02019-04-23 04:13:161§ì-(e5    3LKKB 230400Z 07012KT CAVOK 09/03 Q1008 NOSIGLKKB2019-04-23T04:00:00Z50.1214.539.03.070126.2129.763779TRUEVFRMETAR286.02019-04-23 04:13:16?§ì,(5    3LKLN 230400Z AUTO 09012KT 060V120 9999 FEW031 11/04 Q1006LKLN2019-04-23T04:00:00Z49.6813.2711.04.090126.2129.704725TRUEVFRMETAR362.02019-04-23 04:13:16L§ì+)5    3LKNA 230400Z 11017KT 9999 FEW027 SCT100 09/04 Q1011 NOSIG RMK BLU BLULKNA2019-04-23T04:00:00Z49.1716.129.04.0110176.2129.852362TRUEVFRMETAR472.02019-04-23 04:13:16>§ì*(}5    3LKPD 230400Z 08012KT CAVOK 10/03 Q1010 NOSIG RMK BLU BLULKPD2019-04-23T04:00:00Z50.0215.7310.03.080126.2129.822834TRUEVFRMETAR226.02019-04-23 04:13:16 ‰M™î<‰-§ì3(a5   3DAUA 230400Z 06007KT 8000 NSC 17/M01 Q1002DAUA2019-04-23T04:00:00Z27.83-0.1817.0-1.06074.9729.586615MVFRMETAR263.02019-04-23 04:13:16,§ì2(e5   3DAUB 230400Z 33007KT 9999 FEW040 16/08 Q1005DAUB2019-04-23T04:00:00Z34.785.7216.08.033076.2129.675198VFRMETAR87.02019-04-23 04:13:16%§ì1(Y5   3DAUG 230400Z 00000KT CAVOK 15/04 Q1007DAUG2019-04-23T04:00:00Z32.373.8215.04.0006.2129.734253VFRMETAR450.02019-04-23 04:13:16.§ì0(e5   3DAOI 230400Z 26003KT 9999 SCT026 13/11 Q1002DAOI2019-04-23T04:00:00Z36.221.3213.011.026036.2129.586615VFRMETAR143.02019-04-23 04:13:16-§ì/(e5   3DAOB 230400Z 23008KT 9999 BKN023 07/06 Q1005DAOB2019-04-23T04:00:00Z35.331.477.06.023086.2129.675198MVFRMETAR989.02019-04-23 04:13:16 uS™â/u4§ì8(s5   3DAAV 230400Z 19003KT 9999 SCT016 BKN030 13/12 Q1002DAAV2019-04-23T04:00:00Z36.85.8813.012.019036.2129.586615MVFRMETAR11.02019-04-23 04:13:16-§ì7(e5   3DABT 230400Z 29006KT 9999 FEW023 10/07 Q1005DABT2019-04-23T04:00:00Z35.756.3210.07.029066.2129.675198VFRMETAR823.02019-04-23 04:13:161§ì6(g5    3DAUZ 230400Z 36008KT 3000 HZ NSC 21/M02 Q1006DAUZ2019-04-23T04:00:00Z28.059.6221.0-2.036081.8629.704725HZIFRMETAR562.02019-04-23 04:13:164§ì5(s5   3DAAS 230400Z 24007KT 9999 FEW010 BKN026 07/06 Q1004DAAS2019-04-23T04:00:00Z36.185.337.06.024076.2129.64567MVFRMETAR1038.02019-04-23 04:13:16'§ì4(Y5   3DABS 230400Z 10002KT CAVOK 12/04 Q1005DABS2019-04-23T04:00:00Z35.438.1212.04.010026.2129.675198VFRMETAR813.02019-04-23 04:13:16